SQLite format 3@  -)v?tablebuoy_nowbuoy_nowCREATE TABLE buoy_now ( STN, LAT, LON, YYYY, MM, DD, hh, minute, WDIR, WSPD, GST, WVHT, DPD, APD, MWD, PRES, PTDY, ATMP, WTMP, DEWP, VIS, TIDE, raw_text DEFAULT '', timestamp TIMESTAMP DEFAULT CURRENT_TIMESTAMP )j7tablebuoybuoyCREATE TABLE buoy ( STN, LAT, LON, YYYY, MM, DD, hh, minute, WDIR, WSPD, GST, WVHT, DPD, APD, MWD, PRES, PTDY, ATMP, WTMP, DEWP, VIS, TIDE, raw_text DEFAULT '', timestamp TIMESTAMP DEFAULT C   xph`XPH@80( xph`XPH@80( xph`XPH@80( -1#ɕ8#n9#P"b"]z"Ľl!ĺ6!Lķ Ĵ ı ;Į5ī:ĨR*ĥjϕĢjtğNĜZęrcĖSēMĐQRčUĊ[ć%AĄ1āK0DՕ%zhĕOi3X#  G z6%ە %ʕnoxbþ4^ûLøfõyMóð)í<é|æ|ä+á+ЕÞuÛØ Õ dÒ Ï Ì$ SÉ Æ* Ã" Br J  1( ֕B {Y nŕ{jY{[lHn7MܕTM&0˕0p½Lºg·y_µ ²3̭7mHĕ $Ƹ'$ī: j7tablebuoybuoyCREATE TABLE buoy ( STN, LAT, LON, YYYY, MM, DD, hh, minute, WDIR, WSPD, GST, WVHT, DPD, APD, MWD, PRES, PTDY, ATMP, WTMP, DEWP, VIS, TIDE, raw_text DEFAULT '', timestamp TIMESTAMP DEFAULT CURRENT_TIMESTAMP )v?tablebuoy_nowbuoy_nowCREATE TABLE buoy_now ( STN, LAT, LON, YYYY, MM, DD, hh, minute, WDIR, WSPD, GST, WVHT, DPD, APD, MWD, PRES, PTDY, ATMP, WTMP, DEWP, VIS, TIDE, raw_text DEFAULT '', timestamp TIMESTAMP DEFAULT CURRENT_TIMESTAMP ) nnj}tablemetarmetarCREATE TABLE metar ( raw_text DEFAULT '', station_id, observation_time, latitude, longitude, temp_c, dewpoint_c, wind_dir_degrees, wind_speed_kt, wind_gust_kt, visibility_statute_mi, altim_in_hg, sea_level_pressure_mb, corrected, auto, auto_station, maintenance_indicator_on, no_signal, lightning_sensor_off, freezing_rain_sensor_off, present_weather_sensor_off, wx_string, sky_cover, cloud_base_ft_agl, flight_category, three_hr_pressure_tendency_mb, maxT_c, minT_c, maxT24hr_c, minT24hr_c, precip_in, pcp3hr_in, pcp6hr_in, pcp24hr_in, snow_in, vert_vis_ft, metar_type, elevation_m, timestamp TIMESTAMP DEFAULT CURRENT_TIMESTAMP ) څ~ytojd^XRLF@:4.(" ztnhb\VPJD>82,& ~xrlf`ZTNHB<60*$06ۄEڄAل=؄9ׄ5ք1Մ-Ԅ)ӄ%҄!фЄτ΄̈́ ̄˄ʄɃ|ȃxǃsƃoŃkăgÃcƒ_[WֿS־OֽKּGֻCֺ?ֹ;ָ7ַ2ֶ-ֵ(ִ#ְֱֲֳ֯ ֭֮֬{֫v֪q֩l֨g֧b֦]֥X֤T֣P֢K֡G֠B֟>֞:֝5֜0֛+֚'֙"֖֘֗֕֔ ֑֓֒{֐w֏s֎o֍k֌f֋a֊\։WֈRևMֆHօCք>փ9ւ4ց/ր*&~!}|{zy xwvzuutpskrgqbp]oXnTmPlLkHjDi@h<g8f4e0@٣t2#P-ߏ_S߈ ބ )tablemetar_nowmetar_nowCREATE TABLE metar_now ( raw_text DEFAULT '', station_id, observation_time, latitude, longitude, temp_c, dewpoint_c, wind_dir_degrees, wind_speed_kt, wind_gust_kt, visibility_statute_mi, altim_in_hg, sea_level_pressure_mb, corrected, auto, auto_station, maintenance_indicator_on, no_signal, lightning_sensor_off, freezing_rain_sensor_off, present_weather_sensor_off, wx_string, sky_cover, cloud_base_ft_agl, flight_category, three_hr_pressure_tendency_mb, maxT_c, minT_c, maxT24hr_c, minT24hr_c, precip_in, pcp3hr_in, pcp6hr_in, pcp24hr_in, snow_in, vert_vis_ft, metar_type, elevation_m, timestamp TIMESTAMP DEFAULT CURRENT_TIMESTAMP )T tableshipship CREATE TABLE ship (day, dewpoint_c, gust, latitude, longitude, maxgst, sea_level_pressure_mb, station_id, temp_c, wind, raw_text DEFAULT '', timestamp TIMESTAMP DEFAULT CURRENT_TIMESTAMP ){tmf_XQJC<5.'  xqjc\UNG@92+$|ung`YRKD=6/(!  319xfwYvLu>t1s$rq p|oonbmTlDk4j$ih g~fpeadScFb9a+`_^]u\h[ZZLY=X/W VUTuSfRXQJP<O.NMLKtJfIXHJG<F-EDCBtAe@V?H>8=+<;:9v8g7Y6L5?413$210z/m.`-S,E+8*+)('&u%h$[#N"A!4 &wh\Ot;ଋSH|%߀Cg޸ T#K݌o( Ċ,`Qs| {4@~xrlf`ZTNHB<60*$ 0/14-5.0-109.932318122018-10-20 14:38:50@    320/147.8-2.0-109.93231723.6110102018-10-20 14:38:508     320/142.0-110.032316140142018-10-20 14:38:50?    320/147.35.0-110.13231525.2150122018-10-20 14:38:50?    320/147.2-8.0-95.33230521.7120142018-10-20 14:38:505     320/14-5.0-95.032304102018-10-20 14:38:507     320/145.0-95.032303260122018-10-20 14:38:506     320/14-36.442.9315282202018-10-20 14:38:50<     320/14-22.288.21023.016569110201䪇䩆r䨆e䧆X䦆K䥆>䤆0䣆 䢆䡆䠅x䟅j䞅]䝅O䜅A䛅3䚅&䙅䘅 䗄}䖄o䕄a䔄T䓄F䒄9䑄+䐄䏄䎄䍃u䌃g䋃Z䊃L䉃>䈃0䇃"䆃䅃䄂x䃂i䂂[䁂L䀂=/~ }|{rzdySxDw7v*utsrtqepWoJn<m-lk =uWFuindexi3buoyCREATE UNIQUE INDEX i3 ON buoy(STN,YYYY,MM,DD,hh,mm)F kindexi2metar_nowCREATE UNIQUE INDEX i2 ON metar_now(station_id)`tableship_nowship_now CREATE TABLE ship_now (day, dewpoint_c, gust, latitude, longitude, maxgst, sea_level_pressure_mb, station_id, temp_c, wind, raw_text DEFAULT '', timestamp TIMESTAMP DEFAULT CURRENT_TIMESTAMP )t;tablestationss`tableship_nowship_now CREATE TABLE ship_now (day, dewpoint_c, gust, latitude, longitude, maxgst, sea_level_pressure_mb, station_id, temp_c, wind, raw_text DEFAULT '', timestamp TIMESTAMP DEFAULT CURRENT_TIMESTAMP )t;tablestationsstations CREATE TABLE stations ( metar TEXT, wmob INT, wmos INT, city TEXT, state TEXT, country TEXT, latitude DOUBLE, longitude DOUBLE, elevation DOUBLE, x DOUBLE, y DOUBLE, z DOUBLE, humor TEXT, source TEXT )B[indexi_metarstations CREATE INDEX i_metar ON stations(metar) ~xrlf`ZTNHB<60*$ |vpjd^XRLF@:4.(" ztnhb\VPJD>82,& DD8u7m6e5\4S3J2A180//&.-, +*y)o(e'[&R%I$@#7".!$ |rh^TI?5+!~ul c Z Q H ?6-$vmd[RJB90' {ri`WOG>6.' zqi`X߂OނF݂>܂6ۂ.ڂ%ق؂ׂ ւՁ{ԁrӁiҁ`сYЁQρI΁@́7́.ˁ%ʁɁȁ ǁzrjq#S珴}q此q CWET=CWAR4} KMJX1p^L:(ucQ?- zhVD2 ~ ţ|DA %*% A V ЫMP J KWX1 #쇡  ٦Z=  pq#a Ț 򆪲- +;>}i  Qz DNv* ̘\} ͽ\? = έщp#  ϔUZ _ "~~ :_A Ҵ2 h)L% > +v !%瀕W V/m# vfr &F:f T l9x# I Fw ؒ'4z QWG PWM> ;h# E Nh5 ڽ =^-0 ܤv# 1}{ \Y%B ]x>0L # ac> ⚏ M rp#   ?UWsUy ?by+ Jp^L:(tbP>,xfTB0 |  Wg f>  y#8 [J )YG b 笸@ O- Μ  ufb+   Ӱ%l i$  /bh  E5xe _L] xni z20@ ʢy@ Q@d  1  .7 ; QpG" }GdK  雋`qx ^*  ԭ߷A T عT I ,  KVb t ͗ ް !1 Ni~  [  -p ! 8HJ _wN ū\4 Jir/ GV >^# NOA %cg RC( _ ' T63p {2tfU ?ҿt/(! ە|0ie 笸@p^L:(tbP>,xfTB0 |!u ?1mrOGt ?ZZs ?߭PU^r ?=@!q ?޷r!p ?O=8o ?ᵇjn ?4*  vlbXND:0& 44017S 44014R 44013Q 44009P 44007O 43301N 43001M 42395L 42098K 42097J 42060I 42057H 42055G 42040F 42035E 42020D 42019C 42012B 42003A 42002@ 41690? 41159> 41115= 41114< 41113; 41112: 411109 411088 410647 410636 410625 410564 410533 410522 410491 410470 41046/ 41044. 41043- 41041, 41040+ 41038* 41037) 41033( 41029' 41025& 41024% 41013$ 41010# 41009" 41008! 41004 41002 3ETB9 33969 33964 33963 33960 33952 33907 33889 33886 33884 32323 32322 32321 VCDR: SBEO3 ORIN7 LCNA2t EUCDE176 CGJK APCF1 63105g 52316 46237 45180 42097J^|dN9# t^H2lV@*zdW4110820/01V4106320/04kU4105620/07T4105220/10S4104720/13yR4104619/16lQ4104319/19P4104019/22'O4103720/01)N4102920/03@M4102420/06pL4101020/09QK4100820/12J4100419/15:I3FOB519/17H3EBL520/04G3396020/12F3390819/15E3388419/14D3292820/03\C3286819/15B3281919/15A3272719/15@3262319/18b?3232319/15>3232119/18=3231919/21x<3231719/236WATS120/03SVNM419/15PORO319/17FMISP420/01BGBTF119/18sDBFR20/068MBLTM220/08(AMOUK4020/13@6305519/15=6202919/235101719/17'4608320/13"[4500420/06~Z4104720/13y tK't- '(e5   3KLBE 191445Z 23010KT 15SM BKN250 09/02 A3029KLBE2018-10-19T14:45:00Z40.27-79.49.02.02301015.030.28937VFRMETAR361.02018-10-19 14:46:234 &(i5    3KWDG 191445Z 17009KT 5SM BR OVC003 13/13 A3019KWDG2018-10-19T14:45:00Z36.37-97.7713.013.017095.030.188976BRLIFRMETAR356.02018-10-19 14:46:234 %(e5  3KRYN 191445Z 10012G16KT 10SM CLR 17/11 A3009KRYN2018-10-19T14:45:00Z32.15-111.1717.011.0100121610.030.088583VFRMETAR737.02018-10-19 14:46:23* $(_5   3KMHR 191445Z 04003KT 10SM SKC 09/03 A3012KMHR2018-10-19T14:45:00Z38.53-121.289.03.040310.030.121063VFRMETAR29.02018-10-19 14:46:23/ #(e5   3KMWA 191445Z 19009KT 20SM SCT120 11/05 A3027KMWA2018-10-19T14:45:00Z37.77-89.0211.05.0190920.030.268702VFRMETAR144.02018-10-19 14:46:23 JX +)75    3DIAP 191443Z 22008KT 9999 TS SCT012 FEW020CB SCT040 29/24 Q1008 TEMPO BKN012 FEW020CBDIAP2018-10-19T14:43:00Z5.25-3.9229.024.022086.2129.763779TSVFRMETAR8.02018-10-19 14:46:23T *)!5     3CYTL 191444Z AUTO 32008KT 290V360 3SM OVC003 M01/ A2946 RMK TD MISG SLP992CYTL2018-10-19T14:44:00Z53.82-89.88-1.032083.029.459646999.2TRUELIFRSPECI224.02018-10-19 14:46:23? ))5    3PAKU 191445Z VRB02KT 2SM R06/P6000FT BR OVC080 M06/M07 A2988PAKU2018-10-19T14:45:00Z70.32-149.58-6.0-7.0022.029.878937BRIFRMETAR2.02018-10-19 14:46:230 ((e5  3KSWF 191445Z 24010G15KT 20SM SKC 09/02 A3023KSWF2018-10-19T14:45:00Z41.5-74.089.02.0240101520.030.230314VFRMETAR150.02018-10-19 14:46:23 1gm /)=5     3PAGS 191443Z AUTO 14018G23KT 10SM -RA BKN032 OVC041 11/08 A2963 RMK AO2 WSHFT 1423 P0003PAGS2018-10-19T14:43:00Z58.42-135.7311.08.0140182310.029.630905TRUETRUE-RAVFR0.03SPECI9.02018-10-19 14:46:23F .(5   3KFSE 191443Z AUTO 31013G17KT 10SM CLR 07/01 A2981 RMK AO2KFSE2018-10-19T14:43:00Z47.58-95.777.01.0310131710.029.811024TRUETRUEVFRMETAR389.02018-10-19 14:46:23D -)5     3KKLS 191443Z AUTO 03004KT 1SM BR OVC003 08/07 A3029 RMK AO2KKLS2018-10-19T14:43:00Z46.12-122.98.07.03041.030.28937TRUETRUEBRLIFRSPECI5.02018-10-19 14:46:23I ,)5     3KBOK 191443Z AUTO 00000KT 1/2SM FG OVC003 08/08 A3022 RMK AO2KBOK2018-10-19T14:43:00Z42.07-124.288.08.0000.530.221457TRUETRUEFGLIFRSPECI140.02018-10-19 14:46:23 K KC 3) 5    3KAVL 191442Z 00000KT 10SM SCT004 09/08 A3037 RMK AO2 T00890078KAVL2018-10-19T14:42:00Z35.43-82.538.97.80010.030.369095TRUEVFRSPECI670.02018-10-19 14:46:23p 2)?5      3PAPH 191442Z AUTO 30013KT 6SM -RA BR FEW011 BKN018 OVC026 06/06 A2943 RMK AO2 RAB00 P0000PAPH2018-10-19T14:42:00Z56.95-158.626.06.0300136.029.430119TRUETRUE-RA BRMVFR0.005METAR29.02018-10-19 14:46:23 1)m5     3PAMD 191442Z AUTO 07031G41KT 2 1/2SM RA BR OVC005 09/09 A2877 RMK AO2 PK WND 06047/1413 CIG 003V009 PRESFR P0013PAMD2018-10-19T14:42:00Z59.43-146.39.09.07031412.528.768702TRUETRUERA BRIFR0.13METAR14.02018-10-19 14:46:23f 0)'5      3PABA 191442Z AUTO 11012KT 1/2SM FZFG OVC002 M06/M07 A2991 RMK AO2 FZRANO TSNOPABA2018-10-19T14:42:00Z70.13-143.58-6.0-7.0110120.529.911417TRUETRUETRUETRUEFZFGLIFRMETAR2.02018-10-19 14:46:23 ,CoU 7)5     3KSPB 191442Z AUTO 00000KT 1/4SM FG VV001 06/06 A3026 RMK AO2 T00560056KSPB2018-10-19T14:42:00Z45.77-122.875.65.6000.2530.259842TRUETRUEFGLIFR100SPECI14.02018-10-19 14:46:23N 6)5    3KRMG 191442Z AUTO 00000KT 10SM BKN028 16/10 A3033 RMK AO2 T01560100KRMG2018-10-19T14:42:00Z34.35-85.1715.610.00010.030.33071TRUETRUEMVFRSPECI193.02018-10-19 14:46:23c 5)15     3KHDO 191442Z AUTO 02005KT 10SM OVC010 18/17 A3019 RMK AO2 RAB02E21 P0001 T01780167KHDO2018-10-19T14:42:00Z29.37-99.1717.816.720510.030.188976TRUETRUEMVFR0.01SPECI282.02018-10-19 14:46:23N 4)5    3KCSG 191442Z 11005KT 10SM SCT028 BKN045 18/12 A3030 RMK AO2 T01830122KCSG2018-10-19T14:42:00Z32.52-84.9518.312.2110510.030.301182TRUEVFRSPECI135.02018-10-19 14:46:23 :]R ;)5      3KLGD 191441Z AUTO 00000KT 5SM BR CLR M02/M03 A3038 RMK AO2 FZRANOKLGD2018-10-19T14:41:00Z45.27-118.0-2.0-3.0005.030.380905TRUETRUETRUEBRMVFRMETAR827.02018-10-19 14:46:23Q :)5     3K0CO 191442Z AUTO 03005KT BKN002 M07/M15 A3053 RMK AO2 P0001 PWINOK0CO2018-10-19T14:42:00Z39.8-105.77-7.0-15.030530.528543TRUETRUETRUE0.01METAR3807.02018-10-19 14:46:23W 9)'5    3CYYD 191442Z 00000KT 1/2SM FG BKN060 04/04 A3016 RMK FG5SC2 VIS W-NW 4 SLP227CYYD2018-10-19T14:42:00Z54.82-127.184.04.0000.530.1594491022.7FGLIFRSPECI523.02018-10-19 14:46:23@ 8(y5    3KFME 191442Z AUTO 21004KT 10SM CLR 11/07 A3036 RMK AO1KFME2018-10-19T14:42:00Z39.08-76.7711.07.0210410.030.360237TRUETRUEVFRMETAR46.02018-10-19 14:46:23 (3XA ?({5    3KGOO 191440Z AUTO 00000KT 10SM CLR 17/M07 A3022 RMK AO1KGOO2018-10-19T14:40:00Z39.22-121.017.0-7.00010.030.221457TRUETRUEVFRMETAR962.02018-10-19 14:46:23U >)5    3KHSD 191440Z AUTO 20010KT 10SM FEW012 BKN023 OVC043 13/12 A3023 RMK A01KHSD2018-10-19T14:40:00Z35.6-97.7213.012.02001010.030.230314TRUETRUEMVFRMETAR364.02018-10-19 14:46:23o =)95     3KFSI 191441Z AUTO 19005KT 2 3/4SM +RA BR OVC004 12/12 A3023 RMK AO2 VIS 2 3/4V5 SLP235KFSI2018-10-19T14:41:00Z34.65-98.412.012.019052.7530.2303141023.5TRUETRUE+RA BRLIFRSPECI362.02018-10-19 14:46:23R <)5   3KGDB 191441Z AUTO 25017G22KT 10SM CLR 14/09 A2984 RMK AO2 T01420088KGDB2018-10-19T14:41:00Z44.75-95.5514.28.8250172210.029.840551TRUETRUEVFRMETAR319.02018-10-19 14:46:23 "j{i C)?5     3KROG 191440Z 21007KT 3SM RA BR SCT003 BKN011 OVC027 09/08 A3028 RMK AO2 CIG 008V013 PNO $KROG2018-10-19T14:40:00Z36.37-94.089.08.021073.030.280512TRUETRUERA BRMVFRMETAR415.02018-10-19 14:46:23i B)=5      3KAFW 191440Z 01003KT 2SM +RA BR BKN006 BKN020 OVC025 14/13 A3025 RMK AO2 P0014 T01390128KAFW2018-10-19T14:40:00Z32.97-97.3213.912.81032.030.250984TRUE+RA BRIFR0.14METAR233.02018-10-19 14:46:232 A(w5  3CWZQ 191440Z AUTO 30024G30KT 04/M01 RMK AO1 T00381011CWZQ2018-10-19T14:40:00Z46.53-61.053.8-1.13002430TRUETRUEMETAR17.02018-10-19 14:46:23X @)5     3CYPO 191440Z AUTO 10006KT 5SM -SN BKN023 OVC029 M03/M04 A2946 RMK SLP980CYPO2018-10-19T14:40:00Z54.98-85.43-3.0-4.010065.029.459646998.0TRUE-SNMVFRSPECI53.02018-10-19 14:46:23 ;;] G)#5      3KAXS 191440Z AUTO 21004KT 7SM RA OVC003 13/12 A3026 RMK AO2 P0001 T01330124KAXS2018-10-19T14:40:00Z34.7-99.3313.312.421047.030.259842TRUETRUERALIFR0.01METAR437.02018-10-19 14:46:23> F(y5    3KCVW 191440Z AUTO 07009KT 10SM CLR 22/18 A3016 RMK A01KCVW2018-10-19T14:40:00Z29.78-93.322.018.070910.030.159449TRUETRUEVFRMETAR1.02018-10-19 14:46:23x E)c5      3KLTS 191440Z AUTO 22005KT 10SM -RA OVC004 M A3025 RMK AO2 RAB03E17DZB17E18DZB23E38RAB40 SLPNO ALSTG ESTMD $KLTS2018-10-19T14:40:00Z34.67-99.27220510.030.250984TRUETRUETRUE-RALIFRSPECI420.02018-10-19 14:46:23 D)5     3KGRK 191440Z AUTO 01005KT 2 3/4SM -RA BR SCT006 SCT014 OVC022 14/13 A3022 RMK AO2 VIS 1 1/4V2 3/4 VIS 3/4 RWY15 CIG 013V022 SLP232KGRK2018-10-19T14:40:00Z31.07-97.8314.013.01052.7530.2214571023.2TRUETRUE-RA BRIFRSPECI309.02018-10-19 14:46:23 1lQ K)5    3KDWU 191439Z AUTO 00000KT 10SM BKN005 06/05 A3031 RMK AO2 RAE00 PNO $KDWU2018-10-19T14:39:00Z38.55-82.736.05.00010.030.31004TRUETRUETRUEIFRMETAR166.02018-10-19 14:46:23E J(5   3KXVG 191439Z AUTO 30009G16KT 10SM CLR 11/05 A2970 RMK AO2KXVG2018-10-19T14:39:00Z46.98-94.211.05.030091610.029.698818TRUETRUEVFRMETAR407.02018-10-19 14:46:23? I(y5    3KTGI 191439Z AUTO 23005KT 10SM CLR 16/06 A3037 RMK AO1KTGI2018-10-19T14:39:00Z37.82-75.9816.06.0230510.030.369095TRUETRUEVFRMETAR2.02018-10-19 14:46:23I H(5   3KSTK 191440Z AUTO 32014G19KT 10SM CLR 12/01 A3021 RMK AO2KSTK2018-10-19T14:40:00Z40.62-103.2712.01.0320141910.030.209646TRUETRUEVFRMETAR1231.02018-10-19 14:46:23 tEtK O) 5    3KTTF 191438Z AUTO 22007KT 10SM CLR 09/01 A3014 RMK AO2 T00860010KTTF2018-10-19T14:38:00Z41.93-83.428.61.0220710.030.138779TRUETRUEVFRMETAR188.02018-10-19 14:46:23Q N)5   3KAMN 191439Z AUTO 23008G16KT 10SM CLR 10/04 A3005 RMK AO2 T01020041KAMN2018-10-19T14:39:00Z43.32-84.6810.24.123081610.030.050198TRUETRUEVFRMETAR230.02018-10-19 14:46:23U M)35   3CWRX 191439Z AUTO 13009G17KT 130V190 ////SM //// FEW008 SCT015 BKN019 M07/M08 A2969CWRX2018-10-19T14:39:00Z69.07-79.02-7.0-8.013091729.68996TRUESPECI41.02018-10-19 14:46:23 L)i5   3CYXT 191439Z 13004KT 060V150 3/4SM BR SCT015 SCT065 BKN078 OVC160 07/07 A3013 RMK FG3SF1SC1AC2AC2 SF TR SLP212CYXT2018-10-19T14:39:00Z54.47-128.577.07.013040.7530.1299211021.2BROVC16000LIFRSPECI217.02018-10-19 14:46:23 q6Xqa S)35    3PAKI 191438Z AUTO 08005KT 10SM FEW010 BKN022 OVC028 06/06 A2943 RMK AO2 RAE02 PNO $PAKI2018-10-19T14:38:00Z59.93-164.036.06.080510.029.430119TRUETRUETRUEMVFRSPECI4.02018-10-19 14:46:23X R)5    3KCVS 191438Z 27008KT 10SM SCT004 OVC110 08/07 A3030 RMK AO2A SLP252 $KCVS2018-10-19T14:38:00Z34.37-103.328.07.0270810.030.3011821025.2TRUETRUEVFRMETAR1309.02018-10-19 14:46:23Y Q)5     3KVOK 191438Z AUTO 20004KT 10SM -RA FEW026 10/09 A2990 RMK AO2 SLP131KVOK2018-10-19T14:38:00Z43.92-90.2710.09.0200410.029.8996071013.1TRUETRUE-RAVFRMETAR277.02018-10-19 14:46:23e P)55      3KRKP 191438Z AUTO 03004KT 5SM BR OVC004 21/20 A3010 RMK AO2 RAB21E36 P0000 T02060200KRKP2018-10-19T14:38:00Z28.08-97.0520.620.03045.030.100393TRUETRUEBRLIFR0.005METAR6.02018-10-19 14:46:23 #RA W(5    3KJES 191438Z AUTO 00000KT 10SM BKN060 23/14 A3029 RMK AO2KJES2018-10-19T14:38:00Z31.55-81.8823.014.00010.030.28937TRUETRUEVFRMETAR33.02018-10-19 14:46:23K V) 5     3CYQZ 191438Z AUTO VRB02KT 5SM BR OVC100 02/01 A3029 RMK SLP281CYQZ2018-10-19T14:38:00Z53.02-122.522.01.0025.030.289371028.1TRUEBRMVFRSPECI545.02018-10-19 14:46:23i U)35    3CYSF 191438Z AUTO 31011G17KT 260V330 9SM -SN BKN029 OVC080 M05/M09 A3014 RMK SLP227CYSF2018-10-19T14:38:00Z59.25-105.82-5.0-9.031011179.030.1387791022.7TRUE-SNMVFRSPECI250.02018-10-19 14:46:23h T);5    3CYCS 191438Z 07010KT 3SM -SN DRSN BKN006 OVC018 M02/M03 A2960 RMK SC5SC3 CIG RAG SLP026CYCS2018-10-19T14:38:00Z63.35-90.72-2.0-3.070103.029.6013771002.6-SN DRSNIFRSPECI11.02018-10-19 14:46:23 5r= [(y5    3KEMV 191437Z AUTO 14004KT CLR 13/07 A3040 RMK AO2 TSNOKEMV2018-10-19T14:37:00Z36.68-77.4813.07.0140430.398623TRUETRUETRUEMETAR39.02018-10-19 14:46:23= Z(}5    3EBCV 191437Z AUTO 02006KT 7000 SCT025/// 15/10 Q1024 WHTEBCV2018-10-19T14:37:00Z50.573.8215.010.02064.3530.236221TRUEMVFRSPECI63.02018-10-19 14:46:23S Y) 5     3KSKF 191437Z 02004KT 2SM BR OVC005 17/16 A3016 RMK AO2A SLP211 $KSKF2018-10-19T14:37:00Z29.37-98.5717.016.02042.030.1594491021.1TRUETRUEBRIFRMETAR210.02018-10-19 14:46:23l X)C5      3KLAW 191438Z 18004KT 1 1/2SM RA BR SCT007 BKN026 OVC037 12/12 A3025 RMK AO2 P0011 T01220122KLAW2018-10-19T14:38:00Z34.55-98.4212.212.218041.530.250984TRUERA BRIFR0.11METAR337.02018-10-19 14:46:23 .hI _) 5    3KI69 191437Z AUTO 00000KT 10SM CLR 10/05 A3028 RMK AO2 T00950047KI692018-10-19T14:37:00Z39.08-84.229.54.70010.030.280512TRUETRUEVFRSPECI255.02018-10-19 14:46:23K ^) 5    3KY63 191437Z AUTO 29015KT 10SM CLR 08/04 A2982 RMK AO2 T00820040KY632018-10-19T14:37:00Z45.98-96.08.24.02901510.029.819881TRUETRUEVFRSPECI367.02018-10-19 14:46:23@ ](y5    3K4I3 191437Z AUTO 19003KT 10SM CLR 08/03 A3026 RMK AO2K4I32018-10-19T14:37:00Z40.33-82.538.03.0190310.030.259842TRUETRUEVFRSPECI363.02018-10-19 14:46:23L \) 5     3KCVO 191437Z AUTO 00000KT 10SM FEW004 01/00 A3026 RMK AO2 FZRANOKCVO2018-10-19T14:37:00Z44.5-123.271.00.00010.030.259842TRUETRUETRUEVFRSPECI75.02018-10-19 14:46:23 0_x c)O5      3KMWL 191437Z AUTO 12003KT 1 3/4SM +RA BR FEW005 BKN021 OVC026 13/12 A3024 RMK AO2 P0006 T01330122KMWL2018-10-19T14:37:00Z32.78-98.0713.312.212031.7530.239174TRUETRUE+RA BRIFR0.06SPECI284.02018-10-19 14:46:23E b) 5    3KVCT 191437Z 04008KT 10SM BKN006 20/18 A3013 RMK AO2 T02000183KVCT2018-10-19T14:37:00Z28.87-96.9320.018.340810.030.129921TRUEIFRSPECI31.02018-10-19 14:46:23K a) 5    3KFFX 191437Z AUTO 22010KT 10SM CLR 12/07 A3002 RMK AO2 T01220065KFFX2018-10-19T14:37:00Z43.43-86.012.26.52201010.030.02067TRUETRUEVFRSPECI236.02018-10-19 14:46:23J `) 5    3KHAI 191437Z AUTO 22006KT 10SM CLR 08/01 A3014 RMK AO2 T00840012KHAI2018-10-19T14:37:00Z41.97-85.68.41.2220610.030.138779TRUETRUEVFRMETAR251.02018-10-19 14:46:23 %6k@ g(y5    3KHZR 191437Z AUTO 08005KT 10SM CLR 21/13 A3022 RMK AO2KHZR2018-10-19T14:37:00Z30.72-91.4821.013.080510.030.221457TRUETRUEVFRMETAR12.02018-10-19 14:46:23E f(5   3KNY0 191437Z AUTO 29011G14KT 10SM CLR 08/01 A3015 RMK AO2KNY02018-10-19T14:37:00Z42.98-74.338.01.0290111410.030.15059TRUETRUEVFRMETAR271.02018-10-19 14:46:23i e)G5    3KGOK 191437Z AUTO 19008KT 10SM BKN006 BKN030 OVC090 13/12 A3023 RMK AO2 CIG 005V010 T01280122KGOK2018-10-19T14:37:00Z35.85-97.412.812.2190810.030.230314TRUETRUEIFRSPECI324.02018-10-19 14:46:23U d)5     3KMMV 191437Z AUTO 00000KT M1/4SM FG VV002 01/01 A3025 RMK AO2 T00110011KMMV2018-10-19T14:37:00Z45.2-123.131.11.1000.2530.250984TRUETRUEFGLIFR200SPECI48.02018-10-19 14:46:23 7^F k(5   3KADC 191436Z AUTO 31010G17KT 10SM CLR 09/04 A2975 RMK AO2KADC2018-10-19T14:36:00Z46.45-95.229.04.0310101710.029.749016TRUETRUEVFRSPECI418.02018-10-19 14:46:23K j)5     3KSFY 191436Z AUTO 19006KT 10SM -RA OVC090 09/04 A3005 RMK AO2KSFY2018-10-19T14:36:00Z42.05-90.129.04.0190610.030.050198TRUETRUE-RAVFRMETAR188.02018-10-19 14:46:23S i) 5    3KEND 191436Z 17012KT 10SM OVC004 12/12 A3019 RMK AO2A SLP225 $KEND2018-10-19T14:36:00Z36.32-97.9212.012.01701210.030.1889761022.5TRUETRUELIFRMETAR398.02018-10-19 14:46:23C h)5     3UKLN 191437Z 30003MPS 260V320 4500 FU NSC 17/08 Q1018 NOSIGUKLN2018-10-19T14:37:00Z48.2725.9817.08.030062.830.059055TRUEFUIFRSPECI252.02018-10-19 14:46:23 r7CrK o)5   3KDYT 191436Z AUTO 23018G25KT 10SM SCT032 13/08 A2964 RMK AO2KDYT2018-10-19T14:36:00Z46.72-92.0313.08.0230182510.029.639763TRUETRUEVFRSPECI186.02018-10-19 14:46:23n n)E5      3KHRO 191436Z AUTO 00000KT 3SM RA BR SCT029 BKN075 OVC090 09/08 A3027 RMK AO2 P0007 T00890078KHRO2018-10-19T14:36:00Z36.27-93.158.97.8003.030.268702TRUETRUERA BRMVFR0.07SPECI417.02018-10-19 14:46:23W m)5     3KRTN 191436Z AUTO 07006KT 3/4SM BR VV002 02/01 A3034 RMK AO2 T00170011KRTN2018-10-19T14:36:00Z36.73-104.51.71.17060.7530.339567TRUETRUEBRLIFR200SPECI1936.02018-10-19 14:46:23f l)C5    3KORL 191436Z 06006KT 10SM FEW018 SCT024 SCT048 29/24 A3022 RMK AO2 RAB04E21 T02890239 PNO $KORL2018-10-19T14:36:00Z28.55-81.3328.923.960610.030.221457TRUETRUEVFRSPECI37.02018-10-19 14:46:23 :bh s)55   3KIWD 191436Z AUTO 23014G24KT 10SM BKN028 12/07 A2965 RMK AO2 PK WND 24026/1426 PNO $KIWD2018-10-19T14:36:00Z46.52-90.1212.07.0230142410.029.648623TRUETRUETRUEMVFRMETAR375.02018-10-19 14:46:23G r(5   3KJMR 191436Z AUTO 24010G15KT 10SM CLR 11/07 A2972 RMK AO2KJMR2018-10-19T14:36:00Z45.88-93.2711.07.0240101510.029.719488TRUETRUEVFRSPECI309.02018-10-19 14:46:23R q)5   3KLWA 191436Z AUTO 22011G16KT 10SM CLR 11/02 A3010 RMK AO2 T01090022KLWA2018-10-19T14:36:00Z42.35-86.2510.92.2220111610.030.100393TRUETRUEVFRSPECI203.02018-10-19 14:46:23@ p(y5    3KDLZ 191436Z AUTO 18006KT 10SM CLR 07/01 A3026 RMK AO2KDLZ2018-10-19T14:36:00Z40.28-83.127.01.0180610.030.259842TRUETRUEVFRSPECI289.02018-10-19 14:46:23 &ZR w)5   3KBAX 191436Z AUTO 23014G20KT 10SM CLR 11/03 A3001 RMK AO2 T01070034KBAX2018-10-19T14:36:00Z43.78-82.9810.73.4230142010.030.008858TRUETRUEVFRSPECI234.02018-10-19 14:46:23? v(y5    3KMQJ 191436Z AUTO 21007KT 10SM CLR 09/05 A3024 RMK AO1KMQJ2018-10-19T14:36:00Z39.85-85.99.05.0210710.030.239174TRUETRUEVFRSPECI263.02018-10-19 14:46:23F u(5   3KPNM 191436Z AUTO 23011G17KT 10SM CLR 13/08 A2974 RMK AO2KPNM2018-10-19T14:36:00Z45.57-93.613.08.0230111710.029.740158TRUETRUEVFRSPECI298.02018-10-19 14:46:23T t)5   3KROS 191436Z AUTO 23012G21KT 10SM SCT100 13/07 A2973 RMK AO2 T01300072KROS2018-10-19T14:36:00Z45.7-92.9513.07.2230122110.029.731298TRUETRUEVFRSPECI281.02018-10-19 14:46:23 5[{A {({5    3K04V 191436Z AUTO 00000KT 10SM CLR 03/M02 A3043 RMK AO2K04V2018-10-19T14:36:00Z38.1-106.173.0-2.00010.030.431103TRUETRUEVFRMETAR2385.02018-10-19 14:46:23Z z)5    3CYKD 191436Z 15008KT 1 1/2SM -FZDZ BR OVC003 M06/M07 A2995 RMK ST8 SLP143CYKD2018-10-19T14:36:00Z68.22-135.0-6.0-7.015081.529.9498021014.3-FZDZ BRLIFRSPECI7.02018-10-19 14:46:23T y)5   3KSJX 191436Z AUTO 22015G22KT 10SM OVC100 12/07 A2981 RMK AO2 T01160071KSJX2018-10-19T14:36:00Z45.7-85.5711.67.1220152210.029.811024TRUETRUEVFRSPECI204.02018-10-19 14:46:23E x)5    3K14Y 191436Z AUTO 29012G18KT CLR 10/06 A2976 RMK AO2 PWINOK14Y2018-10-19T14:36:00Z45.9-94.8710.06.0290121829.760826TRUETRUETRUESPECI406.02018-10-19 14:46:23 /iV )!5    3KVYS 191435Z AUTO 21008KT 10SM SCT075 OVC090 11/04 A3012 RMK AO2 T01060036KVYS2018-10-19T14:35:00Z41.35-89.1510.63.6210810.030.121063TRUETRUEVFRMETAR199.02018-10-19 14:46:23? ~(y5    3KW22 191435Z AUTO 19005KT 10SM CLR 08/02 A3028 RMK AO2KW222018-10-19T14:35:00Z39.0-80.278.02.0190510.030.280512TRUETRUEVFRMETAR499.02018-10-19 14:46:23@ }(y5    3KW43 191435Z AUTO 00000KT 10SM CLR 06/00 A3030 RMK AO2KW432018-10-19T14:35:00Z44.67-104.576.00.00010.030.301182TRUETRUEVFRMETAR1300.02018-10-19 14:46:23K |)5   3KEQA 191435Z AUTO 21008G14KT 10SM OVC005 12/11 A3017 RMK AO2KEQA2018-10-19T14:35:00Z37.78-96.8212.011.021081410.030.171259TRUETRUEIFRMETAR420.02018-10-19 14:46:23 9g?¡(w5    3KUCY 191435Z AUTO 18004KT 9SM CLR 12/06 A3026 RMK A01KUCY2018-10-19T14:35:00Z36.38-88.9812.06.018049.030.259842TRUETRUEVFRMETAR104.02018-10-19 14:46:23A¡(5    3KVDI 191435Z AUTO 06005KT 10SM OVC050 18/10 A3031 RMK AO2KVDI2018-10-19T14:35:00Z32.2-82.3718.010.060510.030.31004TRUETRUEVFRMETAR84.02018-10-19 14:46:23L¡) 5    3KVJI 191435Z AUTO 12003KT 10SM CLR 13/07 A3034 RMK AO2 T01320072KVJI2018-10-19T14:35:00Z36.67-82.0213.27.2120310.030.339567TRUETRUEVFRMETAR631.02018-10-19 14:46:23A¡(y5    3KVKS 191435Z AUTO 14003KT 10SM CLR 18/11 A3025 RMK A01KVKS2018-10-19T14:35:00Z32.23-90.9318.011.0140310.030.250984TRUETRUEVFRMETAR32.02018-10-19 14:46:23 *QQ¡)5    3KTFP 191435Z AUTO 05009KT 10SM SCT002 21/20 A3010 RMK AO2 T02130203 PNOKTFP2018-10-19T14:35:00Z27.92-97.2221.320.350910.030.100393TRUETRUEVFRMETAR6.02018-10-19 14:46:23E¡(5   3KTHA 191435Z AUTO VRB06G12KT 10SM CLR 15/10 A3028 RMK A01KTHA2018-10-19T14:35:00Z35.38-86.2515.010.0061210.030.280512TRUETRUEVFRMETAR331.02018-10-19 14:46:23S¡)5   3KTIF 191435Z AUTO 31011G16KT 10SM CLR 12/05 A3010 RMK AO2 T01200046KTIF2018-10-19T14:35:00Z41.97-100.5712.04.6310111610.030.100393TRUETRUEVFRMETAR892.02018-10-19 14:46:23P¡)5    3KTXW 191435Z AUTO 33010KT 10SM OVC006 16/15 A3012 RMK AO2 T01610150KTXW2018-10-19T14:35:00Z26.18-97.9716.115.03301010.030.121063TRUETRUEIFRMETAR21.02018-10-19 14:46:23 6[T¡ )5    3KT82 191435Z AUTO 00000KT 7SM BKN003 OVC008 14/13 A3022 RMK AO2 T01360130KT822018-10-19T14:35:00Z30.25-98.9213.613.0007.030.221457TRUETRUELIFRMETAR517.02018-10-19 14:46:23T¡ )5   3KTAZ 191435Z AUTO 21012G16KT 10SM OVC080 10/02 A3022 RMK AO2 T00950018KTAZ2018-10-19T14:35:00Z39.53-89.339.51.8210121610.030.221457TRUETRUEVFRMETAR190.02018-10-19 14:46:23U¡ )!5    3KTBR 191435Z AUTO 03005KT 10SM SCT048 OVC070 18/12 A3032 RMK AO2 T01810122KTBR2018-10-19T14:35:00Z32.48-81.7318.112.230510.030.318897TRUETRUEVFRMETAR57.02018-10-19 14:46:23D¡(}5    3KTEX 191435Z AUTO 12003KT 10SM CLR M01/M02 A3046 RMK AO2KTEX2018-10-19T14:35:00Z37.95-107.9-1.0-2.0120310.030.46063TRUETRUEVFRMETAR2769.02018-10-19 14:46:23 T{J¡)5     3KSRE 191435Z AUTO 00000KT 1SM -RA OVC004 11/11 A3026 RMK AO2KSRE2018-10-19T14:35:00Z35.27-96.6811.011.0001.030.259842TRUETRUE-RALIFRMETAR312.02018-10-19 14:46:23S¡)5   3KSYF 191435Z AUTO 31010G16KT 10SM CLR 12/03 A3018 RMK AO2 T01170026KSYF2018-10-19T14:35:00Z39.77-101.811.72.6310101610.030.180119TRUETRUEVFRMETAR1025.02018-10-19 14:46:23B¡ (y5    3KSYI 191435Z AUTO 16005KT 10SM CLR 15/10 A3028 RMK A01KSYI2018-10-19T14:35:00Z35.57-86.4515.010.0160510.030.280512TRUETRUEVFRMETAR245.02018-10-19 14:46:23^¡ )/5    3KT35 191435Z AUTO 03004KT 10SM SCT016 BKN028 BKN036 17/14 A3020 RMK AO2 T01670141KT352018-10-19T14:35:00Z30.88-96.9716.714.130410.030.200787TRUETRUEMVFRMETAR123.02018-10-19 14:46:23 9n>¡(y5    3KRZR 191435Z AUTO 00000KT 10SM CLR 13/10 A3031 RMK A01KRZR2018-10-19T14:35:00Z35.22-84.813.010.00010.030.31004TRUETRUEVFRMETAR263.02018-10-19 14:46:23A¡(}5    3KS39 191435Z AUTO 00000KT 10SM CLR M01/M07 A3033 RMK AO2KS392018-10-19T14:35:00Z44.28-120.9-1.0-7.00010.030.33071TRUETRUEVFRMETAR991.02018-10-19 14:46:23@¡(y5    3KSCX 191435Z AUTO 19004KT 10SM CLR 11/08 A3029 RMK A01KSCX2018-10-19T14:35:00Z36.45-84.5811.08.0190410.030.28937TRUETRUEVFRMETAR471.02018-10-19 14:46:23E¡(}5     3KSNH 191435Z AUTO 18003KT 4SM HZ CLR 12/09 A3027 RMK A01KSNH2018-10-19T14:35:00Z35.17-88.2212.09.018034.030.268702TRUETRUEHZMVFRMETAR144.02018-10-19 14:46:23A¡(y5    3KSRB 191435Z AUTO 18008KT 10SM CLR 15/09 A3027 RMK A01KSRB2018-10-19T14:35:00Z36.05-85.5315.09.0180810.030.268702TRUETRUEVFRMETAR313.02018-10-19 14:46:23 7r?¡(y5    3KJAU 191435Z AUTO 00000KT 10SM CLR 10/07 A3036 RMK A01KJAU2018-10-19T14:35:00Z36.33-84.1710.07.00010.030.360237TRUETRUEVFRMETAR360.02018-10-19 14:46:23B¡(5   3KPTD 191435Z AUTO 22017G23KT 10SM CLR 11/04 A3000 RMK AO2KPTD2018-10-19T14:35:00Z44.68-74.9511.04.0220172310.030.0TRUETRUEVFRMETAR144.02018-10-19 14:46:23F¡)5     3KRAW 191435Z AUTO 20009KT 10SM SCT008 SCT018 BKN060 A3020 RMK AO2KRAW2018-10-19T14:35:00Z38.35-93.35200910.030.200787TRUETRUEVFRMETAR285.02018-10-19 14:46:23?¡(y5    3KRKW 191435Z AUTO 00000KT 10SM CLR 12/08 A3032 RMK A01KRKW2018-10-19T14:35:00Z35.92-84.6812.08.00010.030.318897TRUETRUEVFRMETAR508.02018-10-19 14:46:23C¡(}5    3KRTS 191435Z AUTO 00000KT 10SM CLR M00/M08 A3037 RMK AO2KRTS2018-10-19T14:35:00Z39.67-119.880.0-8.00010.030.369095TRUETRUEVFRMETAR1540.02018-10-19 14:46:23 /eM¡)5    3KI63 191435Z AUTO 21009KT 10SM OVC050 11/04 A3015 RMK AO2 T01090038KI632018-10-19T14:35:00Z39.98-90.810.93.8210910.030.15059TRUETRUEVFRMETAR223.02018-10-19 14:46:23U¡)5   3KIJX 191435Z AUTO 19010G14KT 10SM OVC070 10/03 A3017 RMK AO2 T01020029KIJX2018-10-19T14:35:00Z39.77-90.2510.22.9190101410.030.171259TRUETRUEVFRMETAR190.02018-10-19 14:46:23D¡(5    3KIMM 191435Z AUTO 11010KT 10SM SCT024 30/23 A3018 RMK A01KIMM2018-10-19T14:35:00Z26.43-81.430.023.01101010.030.180119TRUETRUEVFRMETAR12.02018-10-19 14:46:23K¡) 5    3KJAS 191435Z AUTO 08004KT 10SM CLR 20/14 A3022 RMK AO2 T01950143KJAS2018-10-19T14:35:00Z30.88-94.0319.514.380410.030.221457TRUETRUEVFRMETAR65.02018-10-19 14:46:23 ;hA¡!(y5    3KGZS 191435Z AUTO 16005KT 10SM CLR 12/09 A3028 RMK A01KGZS2018-10-19T14:35:00Z35.15-87.0512.09.0160510.030.280512TRUETRUEVFRMETAR209.02018-10-19 14:46:23K¡ ) 5    3KHHG 191435Z AUTO 20006KT 10SM CLR 09/01 A3019 RMK AO2 T00890010KHHG2018-10-19T14:35:00Z40.85-85.458.91.0200610.030.188976TRUETRUEVFRMETAR246.02018-10-19 14:46:23M¡)5    3KHSG 191435Z AUTO 00000KT 10SM CLR 02/M05 A3036 RMK AO2 T00171054KHSG2018-10-19T14:35:00Z43.72-108.381.7-5.40010.030.360237TRUETRUEVFRMETAR1494.02018-10-19 14:46:23?¡(y5    3KHZD 191435Z AUTO 00000KT 10SM CLR 12/07 A3026 RMK A01KHZD2018-10-19T14:35:00Z36.08-88.4712.07.00010.030.259842TRUETRUEVFRMETAR151.02018-10-19 14:46:23 7mB¡&(y5    3KFYM 191435Z AUTO 16009KT 10SM CLR 15/11 A3028 RMK A01KFYM2018-10-19T14:35:00Z35.07-86.5715.011.0160910.030.280512TRUETRUEVFRMETAR300.02018-10-19 14:46:23B¡%(}5     3KGCY 191435Z AUTO 32004KT 2SM HZ CLR 12/07 A3033 RMK A01KGCY2018-10-19T14:35:00Z36.2-82.8212.07.032042.030.33071TRUETRUEHZIFRMETAR490.02018-10-19 14:46:23?¡$(y5    3KGKT 191435Z AUTO 00000KT 10SM CLR 10/08 A3034 RMK A01KGKT2018-10-19T14:35:00Z35.85-83.5310.08.00010.030.339567TRUETRUEVFRMETAR309.02018-10-19 14:46:23D¡#(5    3KGVT 191435Z AUTO 00000KT 10SM OVC024 16/12 A3025 RMK AO2KGVT2018-10-19T14:35:00Z33.07-96.0716.012.00010.030.250984TRUETRUEMVFRMETAR163.02018-10-19 14:46:23C¡"(5    3KGZL 191435Z AUTO 09003KT 10SM OVC029 11/08 A3028 RMK AO2KGZL2018-10-19T14:35:00Z35.28-95.111.08.090310.030.280512TRUETRUEMVFRMETAR183.02018-10-19 14:46:23 4ApE¡*)5    3KFOT 191435Z AUTO 00000KT 1/4SM OVC002 08/08 A3020 RMK AO1KFOT2018-10-19T14:35:00Z40.55-124.138.08.0000.2530.200787TRUETRUELIFRMETAR120.02018-10-19 14:46:23K¡))5     3KFTN 191435Z AUTO 32006KT 2SM BR OVC003 15/15 A3020 RMK A01KFTN2018-10-19T14:35:00Z28.22-100.0215.015.032062.030.200787TRUETRUEBRLIFRMETAR236.02018-10-19 14:46:23m¡()K5      3KFWB 191435Z AUTO 00000KT 1 1/4SM -RA SCT002 BKN034 OVC042 09/09 A3027 RMK AO2 VSBY 3/4V2 P0004KFWB2018-10-19T14:35:00Z36.7-93.49.09.0001.2530.268702TRUETRUE-RAIFR0.04METAR406.02018-10-19 14:46:23F¡'({5    3KFWZ 191435Z AUTO 34010KT 10SM CLR 06/M10 A3039 RMK AO2KFWZ2018-10-19T14:35:00Z42.52-108.786.0-10.03401010.030.389763TRUETRUEVFRMETAR2588.02018-10-19 14:46:23 =jA¡.(y5    3KXLL 191435Z AUTO 24010KT 10SM CLR 10/01 A3031 RMK AO2KXLL2018-10-19T14:35:00Z40.57-75.4810.01.02401010.030.31004TRUETRUEVFRMETAR122.02018-10-19 14:46:23[¡-)%5    3KETB 191435Z AUTO 23013G18KT 7SM RA SCT049 SCT065 OVC090 09/03 A2999 RMK AO2KETB2018-10-19T14:35:00Z43.42-88.139.03.023013187.029.991142TRUETRUERAVFRMETAR270.02018-10-19 14:46:23M¡,)5    3KEZM 191435Z AUTO 05005KT 10SM BKN050 19/11 A3033 RMK AO2 T01890114KEZM2018-10-19T14:35:00Z32.22-83.1318.911.450510.030.33071TRUETRUEVFRMETAR93.02018-10-19 14:46:23=¡+(w5    3KFCH 191435Z AUTO 00000KT 7SM CLR 11/06 A3013 RMK A01KFCH2018-10-19T14:35:00Z36.72-119.8211.06.0007.030.129921TRUETRUEVFRMETAR85.02018-10-19 14:46:23 QoO¡2)5    3KGBG 191435Z AUTO 19007KT 10SM OVC070 11/04 A3012 RMK AO2 T01050040KGBG2018-10-19T14:35:00Z40.93-90.4310.54.0190710.030.121063TRUETRUEVFRMETAR233.02018-10-19 14:46:23\¡1)'5   3KPCZ 191435Z AUTO 20011G18KT 10SM BKN090 BKN110 12/06 A2990 RMK AO2 T01200057KPCZ2018-10-19T14:35:00Z44.33-89.0212.05.7200111810.029.899607TRUETRUEVFRMETAR252.02018-10-19 14:46:23@¡0(y5    3KWDR 191435Z AUTO 07003KT 10SM CLR 15/09 A3038 RMK AO1KWDR2018-10-19T14:35:00Z33.98-83.6715.09.070310.030.380905TRUETRUEVFRMETAR287.02018-10-19 14:46:23c¡/)15      3KXBP 191435Z AUTO 00000KT 3SM RA BKN004 OVC025 14/14 A3027 RMK AO2 P0005 T01360136KXBP2018-10-19T14:35:00Z33.18-97.8313.613.6003.030.268702TRUETRUERALIFR0.05METAR260.02018-10-19 14:46:23 0^O¡6)5    3PAAD 191435Z AUTO 10004KT OVC080 M04/M05 A2988 RMK AO2 T10451052 PWINOPAAD2018-10-19T14:35:00Z70.13-146.28-4.5-5.2100429.878937TRUETRUETRUEMETAR8.02018-10-19 14:46:23K¡5) 5    3KEZF 191435Z AUTO 21007KT 10SM CLR 13/07 A3035 RMK AO2 T01300068KEZF2018-10-19T14:35:00Z38.27-77.4513.06.8210710.030.351377TRUETRUEVFRMETAR26.02018-10-19 14:46:23L¡4)5    3KFWC 191435Z AUTO 00000KT 10SM OVC110 08/05 A3026 RMK AO1 T00760052KFWC2018-10-19T14:35:00Z38.38-88.427.65.20010.030.259842TRUETRUEVFRMETAR133.02018-10-19 14:46:23J¡3) 5    3KFYJ 191435Z AUTO 19005KT 10SM CLR 14/07 A3039 RMK AO1 T01400066KFYJ2018-10-19T14:35:00Z37.52-76.7714.06.6190510.030.389763TRUETRUEVFRMETAR7.02018-10-19 14:46:23 /YD¡:)5   3K6A1 191435Z AUTO 06008KT 10SM 16/12 A3033 RMK AO2 T01630121K6A12018-10-19T14:35:00Z32.57-84.2516.312.160810.030.33071TRUETRUEMETAR203.02018-10-19 14:46:23P¡9)5    3KFLY 191435Z AUTO 33008KT 10SM CLR 10/M05 A3036 RMK AO2 T01001049KFLY2018-10-19T14:35:00Z38.95-104.5710.0-4.9330810.030.360237TRUETRUEVFRMETAR2096.02018-10-19 14:46:23P¡8)5   3KBUU 191435Z AUTO 22008G14KT 10SM CLR 10/02 A3003 RMK AO2 T01010016KBUU2018-10-19T14:35:00Z42.68-88.310.11.622081410.030.029528TRUETRUEVFRMETAR237.02018-10-19 14:46:23K¡7) 5    3KI19 191435Z AUTO 22005KT 10SM CLR 10/03 A3027 RMK AO2 T01010034KI192018-10-19T14:35:00Z39.7-83.9810.13.4220510.030.268702TRUETRUEVFRMETAR289.02018-10-19 14:46:23 ,Z~H¡>) 5    3K9V9 191435Z AUTO 32017KT 10SM CLR 12/05 A3000 RMK AO2 T01190050K9V92018-10-19T14:35:00Z43.77-99.3211.95.03201710.030.0TRUETRUEVFRMETAR519.02018-10-19 14:46:23V¡=)!5    3KAAA 191435Z AUTO 19006KT 10SM BKN070 OVC090 10/04 A3018 RMK AO2 T01000043KAAA2018-10-19T14:35:00Z40.17-89.3310.04.3190610.030.180119TRUETRUEVFRMETAR182.02018-10-19 14:46:23L¡<) 5    3KACJ 191435Z AUTO 09005KT 10SM BKN036 OVC060 20/11 A3032 RMK AO2KACJ2018-10-19T14:35:00Z32.12-84.1820.011.090510.030.318897TRUETRUEVFRMETAR143.02018-10-19 14:46:23N¡;)5    3K66R 191435Z AUTO 07005KT 10SM SCT020 19/15 A3017 RMK AO2 T01880148K66R2018-10-19T14:35:00Z29.65-96.5218.814.870510.030.171259TRUETRUEVFRMETAR74.02018-10-19 14:46:23 /btP¡B)5   3K6B0 191435Z AUTO 18014G19KT 10SM CLR 07/00 A3009 RMK AO2 T00660003K6B02018-10-19T14:35:00Z43.98-73.16.60.3180141910.030.088583TRUETRUEVFRMETAR149.02018-10-19 14:46:23h¡A)?5      3K6P9 191435Z AUTO 00000KT 2SM RA SCT002 BKN008 BKN019 12/12 A3026 RMK AO2 P0014 T01210121K6P92018-10-19T14:35:00Z32.43-98.612.112.1002.030.259842TRUETRUERAIFR0.14METAR449.02018-10-19 14:46:23G¡@) 5    3K6R3 191435Z AUTO 00000KT 7SM CLR 19/14 A3020 RMK AO2 T01930142K6R32018-10-19T14:35:00Z30.35-95.019.314.2007.030.200787TRUETRUEVFRMETAR46.02018-10-19 14:46:23K¡?) 5    3K9A5 191435Z AUTO 00000KT 10SM CLR 14/10 A3034 RMK AO2 T01360100K9A52018-10-19T14:35:00Z34.68-85.2813.610.00010.030.339567TRUETRUEVFRMETAR237.02018-10-19 14:46:23 ,aO¡F)5    3KEBG 191435Z AUTO 30007KT 10SM OVC007 18/16 A3014 RMK AO2 T01770158KEBG2018-10-19T14:35:00Z26.45-98.1317.715.8300710.030.138779TRUETRUEIFRMETAR24.02018-10-19 14:46:23>¡E(w5    3KEDU 191435Z AUTO 34003KT 9SM CLR 08/03 A3013 RMK AO1KEDU2018-10-19T14:35:00Z38.53-121.788.03.034039.030.129921TRUETRUEVFRMETAR21.02018-10-19 14:46:23E¡D(}5    3KEKS 191435Z AUTO 02003KT 10SM CLR M01/M04 A3043 RMK AO2KEKS2018-10-19T14:35:00Z45.27-111.65-1.0-4.020310.030.431103TRUETRUEVFRMETAR1641.02018-10-19 14:46:23N¡C)5    3KELK 191435Z AUTO 22008KT 7SM OVC003 12/12 A3021 RMK AO2 T01170115KELK2018-10-19T14:35:00Z35.43-99.411.711.522087.030.209646TRUETRUELIFRMETAR610.02018-10-19 14:46:23 &aJ¡J) 5    3KDCY 191435Z AUTO 18004KT 10SM CLR 08/03 A3025 RMK AO2 T00800031KDCY2018-10-19T14:35:00Z38.7-87.138.03.1180410.030.250984TRUETRUEVFRMETAR144.02018-10-19 14:46:23?¡I(y5    3KDKX 191435Z AUTO VRB04KT 10SM CLR 12/09 A3035 RMK A01KDKX2018-10-19T14:35:00Z35.97-83.8712.09.00410.030.351377TRUETRUEVFRMETAR254.02018-10-19 14:46:23?¡H(y5    3KDTA 191435Z AUTO 00000KT 10SM CLR 02/00 A3040 RMK AO1KDTA2018-10-19T14:35:00Z39.38-112.52.00.00010.030.398623TRUETRUEVFRMETAR1402.02018-10-19 14:46:23T¡G)5    3KE38 191435Z AUTO 00000KT 5SM BKN002 OVC009 08/08 A3034 RMK AO2 T00830081KE382018-10-19T14:35:00Z30.38-103.688.38.1005.030.339567TRUETRUELIFRMETAR1376.02018-10-19 14:46:23 1cC¡N({5    3KCCB 191435Z AUTO 01006KT 10SM CLR 19/M02 A3004 RMK AO2KCCB2018-10-19T14:35:00Z34.12-117.6819.0-2.010610.030.041338TRUETRUEVFRMETAR440.02018-10-19 14:46:23>¡M(y5    3KCRX 191435Z AUTO 00000KT 10SM CLR 10/07 A3027 RMK AO2KCRX2018-10-19T14:35:00Z34.92-88.610.07.00010.030.268702TRUETRUEVFRMETAR130.02018-10-19 14:46:23H¡L)5    3KCVC 191435Z AUTO 09004KT 5SM OVC037 16/10 A3034 RMK AO2 PNOKCVC2018-10-19T14:35:00Z33.63-83.8516.010.09045.030.339567TRUETRUEMVFRMETAR247.02018-10-19 14:46:23I¡K) 5    3KCXW 191435Z AUTO 00000KT 10SM SCT043 OVC085 11/09 A3027 RMK A01KCXW2018-10-19T14:35:00Z35.02-92.5511.09.00010.030.268702TRUETRUEVFRMETAR84.02018-10-19 14:46:23 7rH¡R) 5    3KSHD 191435Z AUTO 00000KT 10SM CLR 08/05 A3034 RMK AO2 T00810047KSHD2018-10-19T14:35:00Z38.27-78.98.14.70010.030.339567TRUETRUEVFRMETAR366.02018-10-19 14:46:23A¡Q(y5    3KSME 191435Z AUTO 19006KT 10SM CLR 10/07 A3030 RMK AO2KSME2018-10-19T14:35:00Z37.05-84.6210.07.0190610.030.301182TRUETRUEVFRMETAR283.02018-10-19 14:46:23?¡P(y5    3KVES 191435Z AUTO 21004KT 10SM CLR 07/03 A3023 RMK AO2KVES2018-10-19T14:35:00Z40.2-84.537.03.0210410.030.230314TRUETRUEVFRMETAR307.02018-10-19 14:46:23C¡O(}5     3KC83 191435Z AUTO 00000KT 3SM HZ CLR 10/05 A3013 RMK AO2KC832018-10-19T14:35:00Z37.83-121.6210.05.0003.030.129921TRUETRUEHZMVFRMETAR24.02018-10-19 14:46:23 2mJ¡V) 5    3KFGX 191435Z AUTO 17003KT 10SM CLR 10/05 A3029 RMK AO2 T00960045KFGX2018-10-19T14:35:00Z38.55-83.759.64.5170310.030.28937TRUETRUEVFRMETAR278.02018-10-19 14:46:23B¡U(y5    3KHII 191435Z AUTO 33007KT 10SM CLR 19/01 A3009 RMK AO2KHII2018-10-19T14:35:00Z34.57-114.3719.01.0330710.030.088583TRUETRUEVFRMETAR238.02018-10-19 14:46:23?¡T({5    3KPNA 191435Z AUTO 00000KT 10SM CLR 00/M06 A3044 RMK AO2KPNA2018-10-19T14:35:00Z42.8-109.80.0-6.00010.030.43996TRUETRUEVFRMETAR2160.02018-10-19 14:46:23H¡S) 5    3KSFQ 191435Z AUTO 00000KT 10SM CLR 15/05 A3039 RMK AO2 T01500046KSFQ2018-10-19T14:35:00Z36.68-76.615.04.60010.030.389763TRUETRUEVFRMETAR22.02018-10-19 14:46:23 4mL¡Z) 5    3KBMC 191435Z AUTO 00000KT 10SM CLR 02/00 A3043 RMK AO1 T00211003KBMC2018-10-19T14:35:00Z41.55-112.072.1-0.30010.030.431103TRUETRUEVFRMETAR1288.02018-10-19 14:46:23W¡Y)5     3KBWD 191435Z AUTO 36003KT 3/4SM VV005 13/13 A3026 RMK AO2 PWINO PNOKBWD2018-10-19T14:35:00Z31.8-98.9513.013.036030.7530.259842TRUETRUETRUELIFR500METAR423.02018-10-19 14:46:23A¡X(y5    3KDVK 191435Z AUTO 21004KT 10SM CLR 11/06 A3028 RMK AO2KDVK2018-10-19T14:35:00Z37.58-84.7711.06.0210410.030.280512TRUETRUEVFRMETAR312.02018-10-19 14:46:23F¡W(5    3KEBS 191435Z AUTO 21012KT 10SM OVC034 11/10 A2994 RMK AO2KEBS2018-10-19T14:35:00Z42.42-93.8711.010.02101210.029.940945TRUETRUEVFRMETAR342.02018-10-19 14:46:23 ,UJ¡^)5   3KTVK 191435Z AUTO 19012G21KT 10SM OVC034 12/07 A3008 RMK AO2KTVK2018-10-19T14:35:00Z40.68-92.912.07.0190122110.030.079725TRUETRUEVFRMETAR314.02018-10-19 14:46:23J¡]) 5    3KUXL 191435Z AUTO 08007KT 10SM CLR 23/16 A3019 RMK AO2 T02290158KUXL2018-10-19T14:35:00Z30.13-93.3822.915.880710.030.188976TRUETRUEVFRMETAR4.02018-10-19 14:46:23Q¡\)5   3KY49 191435Z AUTO 31012G16KT 10SM CLR 09/03 A2972 RMK AO2 T00910025KY492018-10-19T14:35:00Z47.13-94.659.12.5310121610.029.719488TRUETRUEVFRMETAR416.02018-10-19 14:46:23N¡[)5    3KAZE 191435Z AUTO 03003KT 10SM BKN050 20/12 A3030 RMK AO2 T02010115KAZE2018-10-19T14:35:00Z31.88-82.6520.111.530310.030.301182TRUETRUEVFRMETAR78.02018-10-19 14:46:23 0hV¡b)5     3KTIP 191435Z AUTO 22008KT 10SM -RA OVC110 11/03 A3020 RMK AO2 T01060028KTIP2018-10-19T14:35:00Z40.28-88.1510.62.8220810.030.200787TRUETRUE-RAVFRMETAR225.02018-10-19 14:46:23H¡a)5    3KTOC 191435Z AUTO 11003KT CLR 15/08 A3037 RMK AO2 T01480080 PWINOKTOC2018-10-19T14:35:00Z34.6-83.314.88.0110330.369095TRUETRUETRUEMETAR304.02018-10-19 14:46:23B¡`({5    3KTSP 191435Z AUTO 00000KT 10SM CLR 05/M08 A3024 RMK AO2KTSP2018-10-19T14:35:00Z35.13-118.435.0-8.00010.030.239174TRUETRUEVFRMETAR1220.02018-10-19 14:46:23J¡_) 5    3KTVI 191435Z AUTO 09005KT 10SM SCT049 OVC060 22/17 A3028 RMK AO2KTVI2018-10-19T14:35:00Z30.9-83.8822.017.090510.030.280512TRUETRUEVFRMETAR80.02018-10-19 14:46:23 BfJ¡f) 5    3KREG 191435Z AUTO 07004KT 10SM CLR 22/16 A3020 RMK AO2 T02210161KREG2018-10-19T14:35:00Z30.17-90.9322.116.170410.030.200787TRUETRUEVFRMETAR4.02018-10-19 14:46:23V¡e)5     3KRQO 191435Z AUTO 19008KT 10SM -RA OVC006 12/12 A3025 RMK AO2 T01220117KRQO2018-10-19T14:35:00Z35.47-98.012.211.7190810.030.250984TRUETRUE-RAIFRMETAR432.02018-10-19 14:46:23N¡d)5    3KSEF 191435Z AUTO 09005KT 10SM SCT017 29/23 A3020 RMK AO2 T02910229KSEF2018-10-19T14:35:00Z27.45-81.3529.122.990510.030.200787TRUETRUEVFRMETAR19.02018-10-19 14:46:23d¡c)15      3KSNL 191435Z AUTO 18004KT 4SM RA BKN006 OVC010 11/11 A3025 RMK AO2 P0012 T01110106KSNL2018-10-19T14:35:00Z35.35-96.9511.110.618044.030.250984TRUETRUERAIFR0.12METAR327.02018-10-19 14:46:23 9]K¡j) 5    3KPPO 191435Z AUTO 21009KT 10SM CLR 09/01 A3016 RMK AO2 T00850014KPPO2018-10-19T14:35:00Z41.57-86.738.51.4210910.030.159449TRUETRUEVFRMETAR248.02018-10-19 14:46:23U¡i)5   3KPTT 191435Z AUTO 21012G16KT 10SM SCT009 13/11 A3016 RMK AO2 T01270105KPTT2018-10-19T14:35:00Z37.7-98.7512.710.5210121610.030.159449TRUETRUEVFRMETAR595.02018-10-19 14:46:23V¡h)5     3KRBO 191435Z AUTO 33007KT 3/4SM BR OVC002 19/18 A3012 RMK AO2 T01850180KRBO2018-10-19T14:35:00Z27.78-97.6818.518.033070.7530.121063TRUETRUEBRLIFRMETAR24.02018-10-19 14:46:23A¡g(y5    3KRCR 191435Z AUTO 21007KT 10SM CLR 10/01 A3018 RMK AO2KRCR2018-10-19T14:35:00Z41.07-86.1810.01.0210710.030.180119TRUETRUEVFRMETAR241.02018-10-19 14:46:23 (aR¡n)5   3KEHA 191435Z AUTO 30011G15KT 10SM CLR 12/08 A3020 RMK AO2 T01150081KEHA2018-10-19T14:35:00Z37.0-101.911.58.1300111510.030.200787TRUETRUEVFRMETAR1099.02018-10-19 14:46:23U¡m) 5    3KEHY 191435Z AUTO 26012G19KT 10SM CLR 06/M03 A3039 RMK AO2 PWINOKEHY2018-10-19T14:35:00Z41.73-106.476.0-3.0260121910.030.389763TRUETRUETRUEVFRMETAR2225.02018-10-19 14:46:23A¡l({5    3KEMM 191435Z AUTO 00000KT 10SM CLR 00/M03 A3046 RMK AO2KEMM2018-10-19T14:35:00Z41.82-110.550.0-3.00010.030.46063TRUETRUEVFRMETAR2220.02018-10-19 14:46:23R¡k)5     3KPEZ 191435Z AUTO 03003KT 4SM BR OVC005 17/16 A3017 RMK AO2 T01660160KPEZ2018-10-19T14:35:00Z28.95-98.5216.616.03034.030.171259TRUETRUEBRIFRMETAR132.02018-10-19 14:46:23 0\A¡r({5    3KDUB 191435Z AUTO 00000KT 10SM CLR 01/M04 A3042 RMK AO2KDUB2018-10-19T14:35:00Z43.55-109.681.0-4.00010.030.41929TRUETRUEVFRMETAR2224.02018-10-19 14:46:23Q¡q)5    3KDWX 191435Z AUTO 16010KT 10SM CLR M01/M02 A3049 RMK AO2 T10071021KDWX2018-10-19T14:35:00Z41.03-107.5-0.7-2.11601010.030.490158TRUETRUEVFRMETAR1996.02018-10-19 14:46:23N¡p) 5    3KEAN 191435Z AUTO 20005KT 10SM CLR 11/00 A3031 RMK AO2 T01051005KEAN2018-10-19T14:35:00Z42.05-104.9310.5-0.5200510.030.31004TRUETRUEVFRMETAR1456.02018-10-19 14:46:23J¡o) 5    3KEBA 191435Z AUTO 00000KT 10SM CLR 17/10 A3037 RMK AO2 T01650103KEBA2018-10-19T14:35:00Z34.1-82.8216.510.30010.030.369095TRUETRUEVFRMETAR184.02018-10-19 14:46:23 1sI¡w) 5    3KCIR 191435Z AUTO 00000KT 10SM CLR 11/07 A3027 RMK AO2 T01130068KCIR2018-10-19T14:35:00Z37.07-89.2211.36.80010.030.268702TRUETRUEVFRMETAR98.02018-10-19 14:46:23@¡v(y5    3KCQF 191435Z AUTO 07003KT 10SM CLR 23/20 A3022 RMK AO2KCQF2018-10-19T14:35:00Z30.47-87.8823.020.070310.030.221457TRUETRUEVFRMETAR28.02018-10-19 14:46:23D¡u(5    3KDBN 191435Z AUTO 06004KT 10SM OVC026 15/10 A3035 RMK AO2KDBN2018-10-19T14:35:00Z32.57-82.9815.010.060410.030.351377TRUETRUEMVFRMETAR94.02018-10-19 14:46:238¡t(q5   3KDKR 191435Z AUTO 07004KT 10SM 17/13 A3023 RMK AO2KDKR2018-10-19T14:35:00Z31.3-95.417.013.070410.030.230314TRUETRUEMETAR106.02018-10-19 14:46:23I¡s) 5    3KDNV 191435Z AUTO 21008KT 10SM CLR 08/03 A3018 RMK AO2 T00830030KDNV2018-10-19T14:35:00Z40.2-87.68.33.0210810.030.180119TRUETRUEVFRMETAR212.02018-10-19 14:46:23 $WM¡{)5    3KAYS 191435Z AUTO 07006KT 10SM OVC050 22/15 A3028 RMK AO2 T02150151KAYS2018-10-19T14:35:00Z31.25-82.421.515.170610.030.280512TRUETRUEVFRMETAR46.02018-10-19 14:46:23K¡z) 5    3KBCB 191435Z AUTO 28003KT 10SM CLR 07/06 A3037 RMK AO2 T00700055KBCB2018-10-19T14:35:00Z37.22-80.427.05.5280310.030.369095TRUETRUEVFRMETAR650.02018-10-19 14:46:23G¡y(5   3KBWP 191435Z AUTO 33011G19KT 10SM CLR 10/01 A2986 RMK AO1KBWP2018-10-19T14:35:00Z46.25-96.6210.01.0330111910.029.861221TRUETRUEVFRMETAR295.02018-10-19 14:46:23V¡x)!5    3KCCO 191435Z AUTO 12008KT 10SM SCT020 OVC029 16/10 A3033 RMK AO2 T01550095KCCO2018-10-19T14:35:00Z33.32-84.7715.59.5120810.030.33071TRUETRUEMVFRMETAR296.02018-10-19 14:46:23 .\J¡) 5    3KACP 191435Z AUTO 00000KT 10SM CLR 19/15 A3022 RMK AO2 T01850145KACP2018-10-19T14:35:00Z30.75-92.6818.514.50010.030.221457TRUETRUEVFRMETAR33.02018-10-19 14:46:23Q¡~)5     3KAQO 191435Z AUTO 36004KT 3SM BR BKN004 OVC009 15/14 A3026 RMK AO2KAQO2018-10-19T14:35:00Z30.78-98.6715.014.036043.030.259842TRUETRUEBRLIFRMETAR336.02018-10-19 14:46:23L¡}) 5    3KAVC 191435Z AUTO 21007KT 10SM CLR 12/08 A3043 RMK AO2 T01200084KAVC2018-10-19T14:35:00Z36.68-78.0312.08.4210710.030.431103TRUETRUEVFRMETAR135.02018-10-19 14:46:23L¡|) 5    3KAXX 191435Z AUTO 00000KT 7SM CLR 00/M01 A3043 RMK AO2 T10051014KAXX2018-10-19T14:35:00Z36.42-105.28-0.5-1.4007.030.431103TRUETRUEVFRMETAR2548.02018-10-19 14:46:23 !Yy\¢)/5    3KUNU 191435Z AUTO 19014G18KT 10SM -RA BKN080 OVC090 08/05 A3000 RMK AO2 T00780046KUNU2018-10-19T14:35:00Z43.42-88.77.84.6190141810.030.0TRUETRUE-RAVFRSPECI285.02018-10-19 14:46:23Z¢)'5     3KVTI 191435Z AUTO 16005KT 10SM RA SCT013 SCT049 09/07 A2999 RMK AO2 T00910074KVTI2018-10-19T14:35:00Z42.22-92.029.17.4160510.029.991142TRUETRUERAVFRSPECI255.02018-10-19 14:46:23B¢(5    3KX07 191435Z AUTO 07004KT 10SM SCT021 29/23 A3023 RMK A01KX072018-10-19T14:35:00Z27.9-81.6229.023.070410.030.230314TRUETRUEVFRSPECI39.02018-10-19 14:46:23Y¢)'5   3KY51 191435Z AUTO 22008G20KT 10SM SCT019 OVC050 09/09 A2993 RMK AO1 T00900085KY512018-10-19T14:35:00Z43.58-90.99.08.522082010.029.929134TRUETRUEVFRSPECI394.02018-10-19 14:46:23 +eS¢)5      3KLBO 191435Z AUTO 23006KT 10SM RA OVC033 08/06 A3025 RMK AO2 P0002KLBO2018-10-19T14:35:00Z37.65-92.658.06.0230610.030.250984TRUETRUERAVFR0.02SPECI403.02018-10-19 14:46:23L¢) 5    3KLUL 191435Z AUTO 10003KT 10SM CLR 20/12 A3026 RMK AO2 T01970122KLUL2018-10-19T14:35:00Z31.67-89.1719.712.2100310.030.259842TRUETRUEVFRSPECI73.02018-10-19 14:46:23@¢(y5    3KMAO 191435Z AUTO 07004KT 10SM CLR 16/10 A3036 RMK AO2KMAO2018-10-19T14:35:00Z34.18-79.3316.010.070410.030.360237TRUETRUEVFRSPECI28.02018-10-19 14:46:23O¢)5     3KSPF 191435Z AUTO 26006KT 10SM CLR 08/M01 A3027 RMK AO2 PWINOKSPF2018-10-19T14:35:00Z44.47-103.778.0-1.0260610.030.268702TRUETRUETRUEVFRSPECI1188.02018-10-19 14:46:23 >x]¢ ))5     3KEZS 191435Z AUTO 20005KT 10SM -DZ SCT070 OVC080 11/07 A2984 RMK AO2 T01050070KEZS2018-10-19T14:35:00Z44.78-88.5710.57.0200510.029.840551TRUETRUE-DZVFRSPECI248.02018-10-19 14:46:23@¢ (y5    3KGGE 191435Z AUTO 03006KT 10SM CLR 19/13 A3034 RMK AO2KGGE2018-10-19T14:35:00Z33.32-79.3219.013.030610.030.339567TRUETRUEVFRSPECI12.02018-10-19 14:46:23O¢ )5    3KIFA 191435Z AUTO 19009KT 10SM OVC032 10/09 A2997 RMK AO2 T01010090KIFA2018-10-19T14:35:00Z42.47-93.2710.19.0190910.029.970472TRUETRUEVFRSPECI347.02018-10-19 14:46:23g¢)55      3KJSO 191435Z AUTO 06003KT 10SM -RA BKN033 BKN050 13/12 A3023 RMK AO2 P0001 T01370126KJSO2018-10-19T14:35:00Z31.87-95.2213.712.660310.030.230314TRUETRUE-RAVFR0.01METAR206.02018-10-19 14:46:23 ,bC¢(5    3KBNL 191435Z AUTO 07005KT 10SM BKN032 18/11 A3034 RMK AO2KBNL2018-10-19T14:35:00Z33.25-81.3818.011.070510.030.339567TRUETRUEVFRSPECI75.02018-10-19 14:46:23U¢)5   3KCLI 191435Z AUTO 21014G18KT 10SM OVC095 11/05 A2986 RMK AO2 T01060047KCLI2018-10-19T14:35:00Z44.62-88.7310.64.7210141810.029.861221TRUETRUEVFRSPECI250.02018-10-19 14:46:23D¢ (}5    3KCXP 191435Z AUTO 00000KT 10SM CLR M01/M07 A3038 RMK AO2KCXP2018-10-19T14:35:00Z39.18-119.73-1.0-7.00010.030.380905TRUETRUEVFRMETAR1435.02018-10-19 14:46:23N¢ )5     3KD57 191435Z AUTO 30012KT 10SM CLR 07/M00 A3012 RMK AO2 PWINOKD572018-10-19T14:35:00Z46.82-101.877.00.03001210.030.121063TRUETRUETRUEVFRSPECI637.02018-10-19 14:46:23 :rJ¢) 5    3KMHL 191435Z AUTO 22007KT 10SM BKN043 BKN065 12/07 A3018 RMK AO2KMHL2018-10-19T14:35:00Z39.1-93.212.07.0220710.030.180119TRUETRUEVFRSPECI237.02018-10-19 14:46:23T¢)5   3KSUW 191435Z AUTO 24016G24KT 10SM SCT031 14/07 A2965 RMK AO2 T01420070KSUW2018-10-19T14:35:00Z46.68-92.114.27.0240162410.029.648623TRUETRUEVFRSPECI206.02018-10-19 14:46:23B¢(5    3KVNC 191435Z AUTO 08008KT 10SM FEW020 29/24 A3019 RMK AO2KVNC2018-10-19T14:35:00Z27.07-82.4329.024.080810.030.188976TRUETRUEVFRSPECI6.02018-10-19 14:46:23@¢(y5    3KAIK 191435Z AUTO 05007KT 10SM CLR 16/08 A3038 RMK AO2KAIK2018-10-19T14:35:00Z33.65-81.6816.08.050710.030.380905TRUETRUEVFRSPECI161.02018-10-19 14:46:23 :p@¢(y5    3K2J9 191435Z AUTO 11007KT 10SM CLR 24/19 A3027 RMK AO2K2J92018-10-19T14:35:00Z30.6-84.5524.019.0110710.030.268702TRUETRUEVFRSPECI69.02018-10-19 14:46:23K¢)5     3KGAF 191435Z AUTO 31014KT 10SM CLR 09/02 A2987 RMK AO2 PWINOKGAF2018-10-19T14:35:00Z48.4-97.379.02.03101410.029.870079TRUETRUETRUEVFRSPECI252.02018-10-19 14:46:23D¢(5    3KGPH 191435Z AUTO 22008KT 10SM OVC033 13/08 A3014 RMK AO2KGPH2018-10-19T14:35:00Z39.33-94.3213.08.0220810.030.138779TRUETRUEVFRSPECI235.02018-10-19 14:46:23@¢(y5    3KIDI 191435Z AUTO 23005KT 10SM CLR 07/01 A3032 RMK A01KIDI2018-10-19T14:35:00Z40.62-79.087.01.0230510.030.318897TRUETRUEVFRSPECI429.02018-10-19 14:46:23 /g`¢))5    3KMBY 191435Z AUTO 21010G14KT 10SM -DZ SCT026 SCT037 OVC048 12/05 A3017 RMK AO2KMBY2018-10-19T14:35:00Z39.47-92.4312.05.0210101410.030.171259TRUETRUE-DZVFRSPECI264.02018-10-19 14:46:23S¢)5    3KMYJ 191435Z AUTO 20008KT 10SM BKN055 BKN080 OVC110 11/05 A3018 RMK AO2KMYJ2018-10-19T14:35:00Z39.15-91.8211.05.0200810.030.180119TRUETRUEVFRSPECI251.02018-10-19 14:46:23B¢(y5    3KPLD 191435Z AUTO 21012KT 10SM CLR 10/02 A3022 RMK AO2KPLD2018-10-19T14:35:00Z40.45-84.9810.02.02101210.030.221457TRUETRUEVFRSPECI282.02018-10-19 14:46:23K¢)5    3K1P1 191435Z AUTO 00000KT 10SM CLR 05/M01 A3011 RMK AO2 T00531008K1P12018-10-19T14:35:00Z43.78-71.755.3-0.80010.030.109253TRUETRUEVFRSPECI154.02018-10-19 14:46:23 ;l@¢(y5    3KD55 191435Z AUTO 31015KT 10SM CLR 07/02 A2990 RMK AO2KD552018-10-19T14:35:00Z48.75-98.47.02.03101510.029.899607TRUETRUEVFRSPECI491.02018-10-19 14:46:23P¢)5    3KGGI 191435Z AUTO 20010KT 10SM OVC049 10/07 A3003 RMK AO2 T01000072KGGI2018-10-19T14:35:00Z41.72-92.7310.07.22001010.030.029528TRUETRUEVFRSPECI307.02018-10-19 14:46:23I¢) 5    3KLDJ 191435Z AUTO 28008KT 10SM CLR 10/00 A3029 RMK AO2 T01040000KLDJ2018-10-19T14:35:00Z40.62-74.2510.40.0280810.030.28937TRUETRUEVFRSPECI7.02018-10-19 14:46:23?¢(w5    3KMAN 191435Z AUTO 13004KT 8SM CLR 02/02 A3035 RMK A01KMAN2018-10-19T14:35:00Z43.58-116.522.02.013048.030.351377TRUETRUEVFRSPECI774.02018-10-19 14:46:23 +Z;¢#(y5    3KMAW 191435Z AUTO 00000KT 10SM CLR 11/06 A3029 RMK AO2KMAW2018-10-19T14:35:00Z36.6-90.011.06.00010.030.28937TRUETRUEVFRSPECI90.02018-10-19 14:46:23H¢"(5   3K2V5 191435Z AUTO 30011G15KT 10SM CLR 11/02 A3019 RMK AO2K2V52018-10-19T14:35:00Z40.1-102.2511.02.0300111510.030.188976TRUETRUEVFRSPECI1118.02018-10-19 14:46:23K¢!)5     3KANQ 191435Z AUTO 24014KT 10SM CLR 10/01 A3015 RMK AO2 TSNOKANQ2018-10-19T14:35:00Z41.63-85.0810.01.02401410.030.15059TRUETRUETRUEVFRSPECI303.02018-10-19 14:46:23O¢ )5    3KC62 191435Z AUTO 23011KT 10SM CLR 10/M01 A3016 RMK AO2 T01001010KC622018-10-19T14:35:00Z41.47-85.2510.0-1.02301110.030.159449TRUETRUEVFRSPECI306.02018-10-19 14:46:23 7fJ¢') 5    3KSDC 191435Z AUTO 23008KT 190V250 10SM CLR 11/02 A3010 RMK AO2KSDC2018-10-19T14:35:00Z43.23-77.1211.02.0230810.030.100393TRUETRUEVFRSPECI129.02018-10-19 14:46:23V¢&)!5    3KZPH 191435Z AUTO 05003KT 10SM BKN013 BKN018 27/24 A3023 RMK AO2 T02700240KZPH2018-10-19T14:35:00Z28.23-82.1527.024.050310.030.230314TRUETRUEMVFRSPECI26.02018-10-19 14:46:23K¢%) 5    3KHBI 191435Z AUTO 17005KT 10SM CLR 13/07 A3039 RMK AO2 T01270072KHBI2018-10-19T14:35:00Z35.65-79.912.77.2170510.030.389763TRUETRUEVFRSPECI205.02018-10-19 14:46:23C¢$(5    3KDYB 191435Z AUTO 03004KT 10SM OVC043 17/13 A3034 RMK AO1KDYB2018-10-19T14:35:00Z33.07-80.2817.013.030410.030.339567TRUETRUEVFRSPECI18.02018-10-19 14:46:23 5o?¢,(y5    3KSPA 191435Z AUTO 00000KT 10SM CLR 13/06 A3037 RMK AO2KSPA2018-10-19T14:35:00Z34.92-81.9313.06.00010.030.369095TRUETRUEVFRSPECI303.02018-10-19 14:46:23>¢+(y5    3KCKM 191435Z AUTO 00000KT 10SM CLR 13/13 A3027 RMK A01KCKM2018-10-19T14:35:00Z34.3-90.5213.013.00010.030.268702TRUETRUEVFRSPECI53.02018-10-19 14:46:23D¢*(5    3KFDW 191435Z AUTO 08004KT 10SM OVC025 13/08 A3036 RMK AO1KFDW2018-10-19T14:35:00Z34.32-81.1213.08.080410.030.360237TRUETRUEMVFRSPECI176.02018-10-19 14:46:23@¢)(y5    3KSTF 191435Z AUTO 00000KT 10SM CLR 16/11 A3028 RMK AO2KSTF2018-10-19T14:35:00Z33.43-88.8516.011.00010.030.280512TRUETRUEVFRSPECI102.02018-10-19 14:46:23E¢((5    3KCLK 191435Z AUTO 20008KT 10SM OVC006 12/11 A3023 RMK AO2KCLK2018-10-19T14:35:00Z35.53-98.9312.011.0200810.030.230314TRUETRUEIFRSPECI492.02018-10-19 14:46:23 OmS¢0)5   3KPBH 191435Z AUTO 21015G23KT 10SM OVC011 10/09 A2974 RMK AO2 T00970088KPBH2018-10-19T14:35:00Z45.7-90.49.78.8210152310.029.740158TRUETRUEMVFRSPECI449.02018-10-19 14:46:23\¢/)/5    3KPEA 191435Z AUTO 20007KT 10SM SCT033 BKN048 BKN060 12/07 A3004 RMK AO2 T01180067KPEA2018-10-19T14:35:00Z41.4-92.9511.86.7200710.030.041338TRUETRUEVFRSPECI270.02018-10-19 14:46:23D¢.(}5     3KRID 191435Z AUTO 20009KT 5SM HZ CLR 08/01 A3024 RMK AO2KRID2018-10-19T14:35:00Z39.75-84.858.01.020095.030.239174TRUETRUEHZMVFRSPECI348.02018-10-19 14:46:23a¢-))5     3KRRL 191435Z AUTO 22010G18KT 5SM -RA OVC008 09/09 A2983 RMK AO2 T00910091 TSNOKRRL2018-10-19T14:35:00Z45.2-89.729.19.122010185.029.828741TRUETRUETRUE-RAIFRSPECI401.02018-10-19 14:46:23 ._{U¢4)5   3KEGV 191435Z AUTO 23011G17KT 10SM OVC011 10/07 A2972 RMK AO2 T00980071KEGV2018-10-19T14:35:00Z45.93-89.279.87.1230111710.029.719488TRUETRUEMVFRSPECI500.02018-10-19 14:46:23^¢3))5   3KLNL 191435Z AUTO 23011G20KT 200V260 10SM OVC019 11/07 A2972 RMK AO2 T01120071KLNL2018-10-19T14:35:00Z46.15-89.2211.27.1230112010.029.719488TRUETRUEMVFRSPECI520.02018-10-19 14:46:23I¢2) 5    3KLQK 191435Z AUTO 00000KT 10SM CLR 15/09 A3036 RMK AO2 T01480086KLQK2018-10-19T14:35:00Z34.82-82.714.88.60010.030.360237TRUETRUEVFRSPECI309.02018-10-19 14:46:23L¢1) 5    3KOIN 191435Z AUTO 29008KT 10SM CLR 10/06 A3016 RMK AO1 T00980058KOIN2018-10-19T14:35:00Z39.83-100.539.85.8290810.030.159449TRUETRUEVFRMETAR824.02018-10-19 14:46:23 4_vO¢8)5    3K4R5 191435Z AUTO 22009KT 10SM OVC095 13/07 A2962 RMK AO2 T01280073K4R52018-10-19T14:35:00Z46.78-90.7712.87.3220910.029.619095TRUETRUEVFRMETAR198.02018-10-19 14:46:23c¢7)/5    3K2P2 191435Z AUTO 22016G24KT 10SM -RA BKN095 OVC120 10/07 A2983 RMK AO2 T01030073K2P22018-10-19T14:35:00Z45.38-86.9210.37.3220162410.029.828741TRUETRUE-RAVFRMETAR199.02018-10-19 14:46:23O¢6)5     3K1S5 191435Z AUTO 00000KT 5SM BR CLR 00/00 A3034 RMK AO2 T00011001K1S52018-10-19T14:35:00Z46.33-119.970.1-0.1005.030.339567TRUETRUEBRMVFRMETAR234.02018-10-19 14:46:23F¢5(5    3K74V 191435Z AUTO 26003KT 10SM OVC021 02/00 A3047 RMK AO2K74V2018-10-19T14:35:00Z40.28-110.052.00.0260310.030.469488TRUETRUEMVFRMETAR1576.02018-10-19 14:46:23 KlG¢<(5    3KALM 191435Z AUTO 33003KT 10SM OVC021 10/10 A3029 RMK AO2KALM2018-10-19T14:35:00Z32.82-105.9710.010.0330310.030.28937TRUETRUEMVFRMETAR1279.02018-10-19 14:46:23Y¢;)5     3KAJZ 191435Z AUTO 00000KT 10SM BKN017 05/03 A3045 RMK AO2 T00470032 PWINOKAJZ2018-10-19T14:35:00Z38.78-108.074.73.20010.030.448818TRUETRUETRUEMVFRMETAR1583.02018-10-19 14:46:23N¢:) 5     3KAIB 191435Z AUTO 31003KT M1/4SM FG OVC001 02/01 A3047 RMK AO2KAIB2018-10-19T14:35:00Z38.23-108.572.01.031030.2530.469488TRUETRUEFGLIFRMETAR1811.02018-10-19 14:46:23[¢9)'5     3K82C 191435Z AUTO 19005KT 7SM -RA SCT070 OVC090 10/08 A2991 RMK AO2 T01000075K82C2018-10-19T14:35:00Z43.83-90.1310.07.519057.029.911417TRUETRUE-RAVFRMETAR276.02018-10-19 14:46:23 +O?¢@(y5    3KBRY 191435Z AUTO 20003KT 10SM CLR 08/04 A3027 RMK AO1KBRY2018-10-19T14:35:00Z37.82-85.58.04.0200310.030.268702TRUETRUEVFRSPECI204.02018-10-19 14:46:23C¢?(}5    3KBDN 191435Z AUTO 17004KT 10SM CLR M00/M10 A3033 RMK AO2KBDN2018-10-19T14:35:00Z44.1-121.20.0-10.0170410.030.33071TRUETRUEVFRMETAR1055.02018-10-19 14:46:23V¢>)5   3KARV 191435Z AUTO 23010G19KT 10SM OVC015 11/09 A2972 RMK AO2 T01100087KARV2018-10-19T14:35:00Z45.92-89.7211.08.7230101910.029.719488TRUETRUEMVFRMETAR496.02018-10-19 14:46:23O¢=)5    3KANK 191435Z AUTO 23003KT 10SM CLR 04/M01 A3051 RMK AO1 T00421013KANK2018-10-19T14:35:00Z38.53-106.054.2-1.3230310.030.510826TRUETRUEVFRMETAR2293.02018-10-19 14:46:23 Q[¢D)!5    3KDLL 191435Z AUTO 21011G19KT 10SM -RA OVC090 10/05 A2995 RMK AO2 T00990053KDLL2018-10-19T14:35:00Z43.52-89.779.95.3210111910.029.949802TRUETRUE-RAVFRMETAR299.02018-10-19 14:46:23=¢C(w5    3KDCM 191435Z AUTO 08003KT 7SM CLR 14/07 A3037 RMK AO2KDCM2018-10-19T14:35:00Z34.78-81.214.07.08037.030.369095TRUETRUEVFRSPECI200.02018-10-19 14:46:23H¢B) 5    3KCCA 191435Z AUTO 00000KT 10SM SCT045 OVC075 10/08 A3029 RMK AO2KCCA2018-10-19T14:35:00Z35.6-92.4510.08.00010.030.28937TRUETRUEVFRSPECI157.02018-10-19 14:46:23[¢A)!5    3KC35 191435Z AUTO 21007G16KT 10SM -RA OVC090 10/06 A2994 RMK AO2 T01000062KC352018-10-19T14:35:00Z43.53-89.9810.06.221071610.029.940945TRUETRUE-RAVFRMETAR276.02018-10-19 14:46:23 .Rc@¢H(y5    3KGGP 191435Z AUTO 21008KT 10SM CLR 08/02 A3020 RMK AO2KGGP2018-10-19T14:35:00Z40.72-86.378.02.0210810.030.200787TRUETRUEVFRMETAR225.02018-10-19 14:46:23i¢G)?5      3KGLE 191435Z AUTO 00000KT 5SM RA SCT005 BKN014 OVC022 13/12 A3028 RMK AO2 P0005 T01260118KGLE2018-10-19T14:35:00Z33.65-97.212.611.8005.030.280512TRUETRUERAMVFR0.05METAR256.02018-10-19 14:46:23V¢F)!5    3KGNC 191435Z AUTO 00000KT 10SM SCT005 OVC017 10/10 A3034 RMK AO2 T00970096KGNC2018-10-19T14:35:00Z32.68-102.659.79.60010.030.339567TRUETRUEMVFRMETAR1010.02018-10-19 14:46:23L¢E) 5    3KGVE 191435Z AUTO 20003KT 10SM CLR 11/08 A3034 RMK AO1 T01070075KGVE2018-10-19T14:35:00Z38.15-78.1710.77.5200310.030.339567TRUETRUEVFRMETAR138.02018-10-19 14:46:23 +YN¢L) 5  3KFMM 191435Z AUTO 33018G22KT 10SM 11/M01 A3027 RMK AO2 T01061008KFMM2018-10-19T14:35:00Z40.33-103.810.6-0.8330182210.030.268702TRUETRUEMETAR1393.02018-10-19 14:46:23@¢K(y5    3KHVS 191435Z AUTO 11004KT 10SM CLR 16/08 A3037 RMK AO2KHVS2018-10-19T14:35:00Z34.4-80.1216.08.0110410.030.369095TRUETRUEVFRSPECI111.02018-10-19 14:46:23L¢J) 5    3KEOK 191435Z AUTO 20009KT 10SM SCT044 OVC055 11/06 A3011 RMK AO2KEOK2018-10-19T14:35:00Z40.47-91.4211.06.0200910.030.109253TRUETRUEVFRMETAR205.02018-10-19 14:46:23O¢I)5    3KGDJ 191435Z AUTO 00000KT 10SM OVC017 14/13 A3027 RMK AO2 T01440132KGDJ2018-10-19T14:35:00Z32.45-97.8214.413.20010.030.268702TRUETRUEMVFRMETAR237.02018-10-19 14:46:23  ChY¢P)!5   3KLRY 191435Z AUTO 22008G14KT 10SM SCT048 BKN075 OVC085 13/10 A3019 RMK AO2KLRY2018-10-19T14:35:00Z38.62-94.3513.010.022081410.030.188976TRUETRUEVFRSPECI279.02018-10-19 14:46:23U¢O)5   3KLUM 191435Z AUTO 20015G26KT 10SM OVC018 10/06 A2980 RMK AO2 T01020063KLUM2018-10-19T14:35:00Z44.9-91.8710.26.3200152610.029.799213TRUETRUEMVFRMETAR273.02018-10-19 14:46:23D¢N(}5    3KJFX 191435Z AUTO 13006KT 10SM 18/13 A3028 RMK AO2 PWINOKJFX2018-10-19T14:35:00Z33.9-87.3218.013.0130610.030.280512TRUETRUETRUESPECI148.02018-10-19 14:46:23m¢M)C5      3KIIB 191435Z AUTO 19006KT 10SM -RA SCT035 BKN042 OVC049 10/08 A2999 RMK AO2 P0002 T00960084KIIB2018-10-19T14:35:00Z42.45-91.959.68.4190610.029.991142TRUETRUE-RAVFR0.02METAR298.02018-10-19 14:46:23 <uB¢T(y5    3KUYF 191435Z AUTO 20010KT 10SM CLR 11/00 A3025 RMK AO2KUYF2018-10-19T14:35:00Z39.93-83.4711.00.02001010.030.250984TRUETRUEVFRMETAR330.02018-10-19 14:46:23J¢S)5     3KVAF 191435Z AUTO 13021KT 4SM HZ FEW027 29/23 A3009 RMK A01KVAF2018-10-19T14:35:00Z27.35-94.6329.023.0130214.030.088583TRUETRUEHZMVFRSPECI46.02018-10-19 14:46:23A¢R(y5    3KVBS 191435Z AUTO 14018KT 10SM CLR 24/22 A3015 RMK A01KVBS2018-10-19T14:35:00Z29.48-93.6324.022.01401810.030.15059TRUETRUEVFRSPECI31.02018-10-19 14:46:23>¢Q(y5    3KLUX 191435Z AUTO 00000KT 10SM CLR 13/08 A3037 RMK AO2KLUX2018-10-19T14:35:00Z34.5-81.9513.08.00010.030.369095TRUETRUEVFRSPECI213.02018-10-19 14:46:23 H|D¢X({5    3KU68 191435Z AUTO 08004KT 10SM CLR 02/M27 A3034 RMK AO2KU682018-10-19T14:35:00Z44.92-108.452.0-27.080410.030.339567TRUETRUEVFRSPECI1247.02018-10-19 14:46:23F¢W(5   3KULS 191435Z AUTO 31010G14KT 10SM CLR 07/05 A3018 RMK AO2KULS2018-10-19T14:35:00Z37.6-101.377.05.0310101410.030.180119TRUETRUEVFRSPECI936.02018-10-19 14:46:23H¢V) 5    3KUNI 191435Z AUTO 00000KT 10SM CLR 08/04 A3029 RMK AO2 T00760035KUNI2018-10-19T14:35:00Z39.22-82.237.63.50010.030.28937TRUETRUEVFRMETAR193.02018-10-19 14:46:23d¢U)15      3KUVA 191435Z AUTO 33004KT 3SM BR SCT003 OVC009 16/15 A3021 RMK AO2 P0001 T01550152KUVA2018-10-19T14:35:00Z29.22-99.7515.515.233043.030.209646TRUETRUEBRIFR0.01SPECI287.02018-10-19 14:46:23 /WV¢\)#5     3KTMK 191435Z AUTO 00000KT 2 1/2SM BR OVC004 03/03 A3028 RMK AO2 VIS 1 3/4V4KTMK2018-10-19T14:35:00Z45.42-123.823.03.0002.530.280512TRUETRUEBRLIFRSPECI11.02018-10-19 14:46:23I¢[) 5    3KTNB 191435Z AUTO 00000KT 10SM CLR 12/05 A3034 RMK AO2 T01240048KTNB2018-10-19T14:35:00Z36.2-81.6512.44.80010.030.339567TRUETRUEVFRSPECI911.02018-10-19 14:46:23R¢Z)5      3KTQH 191435Z AUTO 14003KT 10SM RA OVC031 08/08 A3028 RMK AO2 P0001KTQH2018-10-19T14:35:00Z35.93-95.08.08.0140310.030.280512TRUETRUERAVFR0.01SPECI266.02018-10-19 14:46:23K¢Y) 5    3KTYQ 191435Z AUTO 20009KT 10SM CLR 08/02 A3022 RMK AO2 T00780022KTYQ2018-10-19T14:35:00Z40.03-86.257.82.2200910.030.221457TRUETRUEVFRMETAR281.02018-10-19 14:46:23 +`O¢`)5    3KSWW 191435Z AUTO 00000KT 10SM OVC004 12/12 A3029 RMK AO2 T01210121KSWW2018-10-19T14:35:00Z32.47-100.4712.112.10010.030.28937TRUETRUELIFRSPECI727.02018-10-19 14:46:23B¢_({5    3KSZT 191435Z AUTO 28003KT 7SM CLR M01/M01 A3038 RMK AO2KSZT2018-10-19T14:35:00Z48.3-116.57-1.0-1.028037.030.380905TRUETRUEVFRSPECI648.02018-10-19 14:46:23E¢^({5    3KTBX 191435Z AUTO 30015KT 10SM CLR 06/M07 A3048 RMK AO2KTBX2018-10-19T14:35:00Z43.47-108.236.0-7.03001510.030.481298TRUETRUEVFRSPECI2225.02018-10-19 14:46:23O¢])5    3KTMA 191435Z AUTO 07004KT 10SM OVC060 21/14 A3028 RMK AO2 T02050137KTMA2018-10-19T14:35:00Z31.43-83.4820.513.770410.030.280512TRUETRUEVFRSPECI109.02018-10-19 14:46:23 =gK¢d) 5    3KSBO 191435Z AUTO 06005KT 10SM BKN032 OVC048 17/11 A3033 RMK AO2KSBO2018-10-19T14:35:00Z32.62-82.3717.011.060510.030.33071TRUETRUEVFRMETAR100.02018-10-19 14:46:23H¢c(5   3KSEZ 191435Z AUTO 04011G18KT 10SM CLR 11/03 A3026 RMK AO2KSEZ2018-10-19T14:35:00Z34.85-111.7811.03.040111810.030.259842TRUETRUEVFRMETAR1473.02018-10-19 14:46:23P¢b)5    3KSLR 191435Z AUTO 02003KT 10SM OVC024 15/11 A3027 RMK AO2 T01450107KSLR2018-10-19T14:35:00Z33.17-95.6214.510.720310.030.268702TRUETRUEMVFRSPECI149.02018-10-19 14:46:23=¢a(}5    3KSPR 191435Z AUTO 10SM BKN019 BKN024 28/24 A3015 RMK A01KSPR2018-10-19T14:35:00Z28.6-91.228.024.010.030.15059TRUETRUEMVFRMETAR31.02018-10-19 14:46:23 .hI¢h) 5    3KRNV 191435Z AUTO 00000KT 10SM CLR 15/10 A3026 RMK AO2 T01520099KRNV2018-10-19T14:35:00Z33.77-90.7515.29.90010.030.259842TRUETRUEVFRMETAR41.02018-10-19 14:46:23c¢g)-5      3KRYW 191435Z AUTO 02006KT 1 3/4SM +RA OVC002 15/15 A3020 RMK AO2 P0003 T01500150KRYW2018-10-19T14:35:00Z30.5-97.9715.015.02061.7530.200787TRUETRUE+RALIFR0.03SPECI376.02018-10-19 14:46:23@¢f(y5    3KRZL 191435Z AUTO 20007KT 10SM CLR 09/02 A3017 RMK AO2KRZL2018-10-19T14:35:00Z40.95-87.189.02.0200710.030.171259TRUETRUEVFRMETAR213.02018-10-19 14:46:23L¢e)5    3KS52 191435Z AUTO 00000KT 7SM CLR M02/M03 A3038 RMK AO2 T10211027KS522018-10-19T14:35:00Z48.38-120.15-2.1-2.7007.030.380905TRUETRUEVFRMETAR520.02018-10-19 14:46:23 9hN¢l) 5    3KPYX 191435Z AUTO 26012KT 10SM CLR 12/09 A3018 RMK AO2 T01190092KPYX2018-10-19T14:35:00Z36.42-100.7511.99.22601210.030.180119TRUETRUEVFRSPECI889.02018-10-19 14:46:23@¢k(y5    3KRBW 191435Z AUTO 08004KT 10SM CLR 18/13 A3034 RMK AO2KRBW2018-10-19T14:35:00Z32.92-80.6318.013.080410.030.339567TRUETRUEVFRMETAR31.02018-10-19 14:46:23K¢j) 5     3KRFI 191435Z AUTO 10SM -DZ SCT035 15/12 A3024 RMK AO2 T01500115KRFI2018-10-19T14:35:00Z32.15-94.8515.011.510.030.239174TRUETRUE-DZVFRMETAR135.02018-10-19 14:46:23A¢i(y5    3KRGA 191435Z AUTO 20005KT 10SM CLR 12/06 A3027 RMK AO2KRGA2018-10-19T14:35:00Z37.63-84.3312.06.0200510.030.268702TRUETRUEVFRMETAR305.02018-10-19 14:46:23 *OF¢p(5    3KCZT 191435Z AUTO 32004KT 10SM OVC004 15/15 A3020 RMK AO2KCZT2018-10-19T14:35:00Z28.52-99.8215.015.0320410.030.200787TRUETRUELIFRSPECI183.02018-10-19 14:46:23B¢o(y5    3KDLP 191435Z AUTO 10010KT 10SM CLR 30/23 A3017 RMK A01KDLP2018-10-19T14:35:00Z29.12-89.5530.023.01001010.030.171259TRUETRUEVFRMETAR36.02018-10-19 14:46:23U¢n)5   3KPMV 191435Z AUTO 20012G16KT 10SM SCT037 14/11 A3002 RMK AO2 T01370111KPMV2018-10-19T14:35:00Z40.95-95.9213.711.1200121610.030.02067TRUETRUEVFRMETAR367.02018-10-19 14:46:23P¢m)5    3KPPA 191435Z AUTO 27015KT 10SM SCT120 12/09 A3023 RMK AO2 T01150087KPPA2018-10-19T14:35:00Z35.62-101.011.58.72701510.030.230314TRUETRUEVFRSPECI989.02018-10-19 14:46:23 *Mv@¢t(y5    3KCKZ 191435Z AUTO 26004KT 10SM CLR 09/00 A3030 RMK AO2KCKZ2018-10-19T14:35:00Z40.38-75.289.00.0260410.030.301182TRUETRUEVFRSPECI173.02018-10-19 14:46:23Q¢s)5     3KCOM 191435Z AUTO 00000KT 5SM BR OVC003 13/13 A3026 RMK AO2 T01310127KCOM2018-10-19T14:35:00Z31.83-99.413.112.7005.030.259842TRUETRUEBRLIFRSPECI517.02018-10-19 14:46:23W¢r)!5    3KCQB 191435Z AUTO 16005KT 10SM BKN005 OVC015 12/11 A3025 RMK AO2 T01170115KCQB2018-10-19T14:35:00Z35.72-96.8211.711.5160510.030.250984TRUETRUEIFRSPECI300.02018-10-19 14:46:23P¢q)5    3KCUH 191435Z AUTO 18004KT 10SM OVC007 12/11 A3024 RMK AO2 T01180113KCUH2018-10-19T14:35:00Z35.95-96.7711.811.3180410.030.239174TRUETRUEIFRMETAR279.02018-10-19 14:46:23 .s>¢x(y5    3KBYL 191435Z AUTO 15005KT 10SM CLR 10/07 A3029 RMK AO1KBYL2018-10-19T14:35:00Z36.8-84.210.07.0150510.030.28937TRUETRUEVFRSPECI359.02018-10-19 14:46:23c¢w)75     3KBYY 191435Z AUTO 06006KT 10SM -RA SCT042 SCT060 BKN080 19/19 A3014 RMK AO2 T01950191KBYY2018-10-19T14:35:00Z28.97-95.8719.519.160610.030.138779TRUETRUE-RAVFRSPECI14.02018-10-19 14:46:235¢v(o5   3KCDH 191435Z AUTO 00000KT 9SM 16/08 A3025 RMK AO2KCDH2018-10-19T14:35:00Z33.62-92.7716.08.0009.030.250984TRUETRUESPECI35.02018-10-19 14:46:23L¢u) 5    3KCFE 191435Z AUTO 22007KT 10SM CLR 12/07 A2978 RMK AO2 T01240072KCFE2018-10-19T14:35:00Z45.17-93.8512.47.2220710.029.778543TRUETRUEVFRSPECI295.02018-10-19 14:46:23 'JL¢|) 5    3KBKT 191435Z AUTO 19005KT 10SM CLR 13/07 A3037 RMK AO1 T01300073KBKT2018-10-19T14:35:00Z37.07-77.9513.07.3190510.030.369095TRUETRUEVFRSPECI134.02018-10-19 14:46:23D¢{)5   3KBQP 191435Z AUTO 09003KT 10SM 18/10 A3026 RMK AO2 T01760100KBQP2018-10-19T14:35:00Z32.75-91.8817.610.090310.030.259842TRUETRUESPECI51.02018-10-19 14:46:23W¢z)!5   3KBQX 191435Z AUTO 12008G13KT 10SM FEW025 FEW032 SCT095 29/25 A3011 RMK A01KBQX2018-10-19T14:35:00Z28.5-95.7229.025.012081310.030.109253TRUETRUEVFRSPECI34.02018-10-19 14:46:23S¢y)5   3KBTA 191435Z AUTO 22016G22KT 10SM CLR 14/10 A2999 RMK AO2 T01350100KBTA2018-10-19T14:35:00Z41.42-96.1213.510.0220162210.029.991142TRUETRUEVFRSPECI396.02018-10-19 14:46:23 *cR£)5    3KATP 191435Z AUTO 13019KT 10SM SCT026 SCT031 SCT037 28/23 A3015 RMK A01KATP2018-10-19T14:35:00Z27.2-90.0328.023.01301910.030.15059TRUETRUEVFRSPECI62.02018-10-19 14:46:23L¢) 5    3KAVQ 191435Z AUTO 12006KT 10SM CLR 16/10 A3006 RMK AO2 T01560098KAVQ2018-10-19T14:35:00Z32.4-111.2215.69.8120610.030.059055TRUETRUEVFRSPECI619.02018-10-19 14:46:23A¢~(5    3KBIJ 191435Z AUTO 09004KT 10SM OVC038 22/16 A3028 RMK AO2KBIJ2018-10-19T14:35:00Z31.4-84.922.016.090410.030.280512TRUETRUEVFRSPECI65.02018-10-19 14:46:23P¢})5   3KBJI 191435Z AUTO 31013G17KT 10SM CLR 08/02 A2974 RMK AO2 T00800020KBJI2018-10-19T14:35:00Z47.5-94.928.02.0310131710.029.740158TRUETRUEVFRSPECI420.02018-10-19 14:46:23 "N}L£)5   3KACQ 191435Z AUTO 21013G17KT 10SM OVC011 11/08 A2986 RMK AO2KACQ2018-10-19T14:35:00Z44.07-93.5511.08.0210131710.029.861221TRUETRUEMVFRSPECI343.02018-10-19 14:46:23K£)5   3KAEL 191435Z AUTO 23009G18KT 10SM OVC009 11/11 A2988 RMK AO2KAEL2018-10-19T14:35:00Z43.68-93.3711.011.023091810.029.878937TRUETRUEIFRSPECI383.02018-10-19 14:46:23N£)5     3KAJR 191435Z AUTO 08004KT 5SM HZ CLR 14/06 A3036 RMK AO2 T01400056KAJR2018-10-19T14:35:00Z34.5-83.5514.05.68045.030.360237TRUETRUEHZMVFRSPECI441.02018-10-19 14:46:23X£)!5    3KALX 191435Z AUTO 11004KT 10SM BKN018 OVC026 17/15 A3030 RMK AO2 T01700146KALX2018-10-19T14:35:00Z32.92-85.9717.014.6110410.030.301182TRUETRUEMVFRSPECI209.02018-10-19 14:46:23 7[K£) 5     3K6S2 191435Z AUTO 00000KT 1 1/4SM BR OVC001 06/06 A3024 RMK AO2K6S22018-10-19T14:35:00Z43.98-124.126.06.0001.2530.239174TRUETRUEBRLIFRSPECI16.02018-10-19 14:46:23L£) 5    3K7W4 191435Z AUTO 21006KT 10SM CLR 13/06 A3035 RMK AO1 T01260064K7W42018-10-19T14:35:00Z37.97-77.7512.66.4210610.030.351377TRUETRUEVFRSPECI106.02018-10-19 14:46:23V£)5   3K9MN 191435Z AUTO 22014G23KT 10SM OVC011 10/09 A2987 RMK AO1 T01010088K9MN2018-10-19T14:35:00Z44.02-92.4810.18.8220142310.029.870079TRUETRUEMVFRSPECI355.02018-10-19 14:46:23C£(y5    3KA39 191435Z AUTO 36007KT 10SM CLR 16/11 A3011 RMK AO2KA392018-10-19T14:35:00Z32.98-111.9216.011.0360710.030.109253TRUETRUEVFRSPECI396.02018-10-19 14:46:23 /vJ£ ) 5    3K18A 191435Z AUTO 00000KT 10SM CLR 15/09 A3036 RMK AO2 T01520090K18A2018-10-19T14:35:00Z34.35-83.1315.29.00010.030.360237TRUETRUEVFRSPECI271.02018-10-19 14:46:23D£ (5   3K18H 191435Z AUTO VRB03G13KT 10SM CLR 31/23 A3010 RMK A01K18H2018-10-19T14:35:00Z26.13-92.0331.023.0031310.030.100393TRUETRUEVFRMETAR10.02018-10-19 14:46:23B£ ({5    3K2G9 191435Z AUTO 24006KT 10SM CLR 06/M01 A3026 RMK AO2K2G92018-10-19T14:35:00Z40.03-79.026.0-1.0240610.030.259842TRUETRUEVFRSPECI693.02018-10-19 14:46:233£ (q5     3K4S1 191435Z AUTO 09003KT 7SM OVC005 A3021 RMK AO1K4S12018-10-19T14:35:00Z42.42-124.429037.030.209646TRUETRUEIFRMETAR5.02018-10-19 14:46:23K£ ) 5    3K5R8 191435Z AUTO 07004KT 10SM CLR 20/14 A3019 RMK AO2 T01970138K5R82018-10-19T14:35:00Z30.43-93.4719.713.870410.030.188976TRUETRUEVFRSPECI24.02018-10-19 14:46:23 :^[£)/5    3PAUT 191435Z AUTO 32008KT 10SM SCT021 BKN038 OVC044 05/02 A2963 RMK AO2 T00470016PAUT2018-10-19T14:35:00Z54.15-165.64.71.6320810.029.630905TRUETRUEVFRSPECI25.02018-10-19 14:46:23E£(5   3K04W 191435Z AUTO 23012G17KT 10SM CLR 12/08 A2971 RMK AO2K04W2018-10-19T14:35:00Z46.02-92.912.08.0230121710.029.71063TRUETRUEVFRSPECI311.02018-10-19 14:46:23V£)5     3K0E0 191435Z AUTO 36005KT 1/4SM FG OVC003 04/04 A3037 RMK AO2 T00400040K0E02018-10-19T14:35:00Z34.98-106.04.04.036050.2530.369095TRUETRUEFGLIFRSPECI1890.02018-10-19 14:46:23@£)5   3K0V4 191435Z AUTO 19006KT CLR 12/08 A3036 RMK AO1 T01180075K0V42018-10-19T14:35:00Z37.15-79.0211.87.5190630.360237TRUETRUESPECI182.02018-10-19 14:46:23 8fD£(5    3KOZS 191435Z AUTO 19007KT 10SM OVC040 10/06 A3022 RMK AO2KOZS2018-10-19T14:35:00Z37.97-92.6810.06.0190710.030.221457TRUETRUEVFRMETAR324.02018-10-19 14:46:23R£)5   3KPEX 191435Z AUTO 26018G23KT 10SM CLR 12/09 A2977 RMK AO2 T01220088KPEX2018-10-19T14:35:00Z45.37-94.7312.28.8260182310.029.769686TRUETRUEVFRSPECI360.02018-10-19 14:46:23L£)5    3KPKV 191435Z AUTO 03009KT 7SM BKN004 21/20 A3013 RMK AO2 T02100200KPKV2018-10-19T14:35:00Z28.65-96.6821.020.03097.030.129921TRUETRUELIFRSPECI9.02018-10-19 14:46:23B£(}5   3KXPY 191435Z AUTO 09010G16KT 9SM CLR 27/23 A3019 RMK A01KXPY2018-10-19T14:35:00Z29.12-90.227.023.09010169.030.188976TRUETRUEVFRMETAR2.02018-10-19 14:46:23 /_wA£(y5    3KMZG 191435Z AUTO 19007KT 10SM CLR 28/25 A3009 RMK A01KMZG2018-10-19T14:35:00Z27.73-96.1828.025.0190710.030.088583TRUETRUEVFRSPECI29.02018-10-19 14:46:23b£)55   3KOCQ 191435Z AUTO 22009G15KT 10SM SCT070 BKN080 OVC100 11/06 A2984 RMK AO1 T01060056KOCQ2018-10-19T14:35:00Z44.87-87.9210.65.622091510.029.840551TRUETRUEVFRSPECI183.02018-10-19 14:46:23J£)5     3KONP 191435Z AUTO 08004KT 1/4SM FG OVC005 06/06 A3028 RMK AO2KONP2018-10-19T14:35:00Z44.57-124.036.06.08040.2530.280512TRUETRUEFGLIFRSPECI48.02018-10-19 14:46:23K£)5    3KOSA 191435Z AUTO 08005KT 7SM SCT026 14/08 A3025 RMK AO1 T01420082KOSA2018-10-19T14:35:00Z33.1-94.9714.28.28057.030.250984TRUETRUEVFRSPECI111.02018-10-19 14:46:23 5kJ£) 5    3KMNE 191435Z AUTO 06003KT 10SM CLR 16/11 A3024 RMK AO2 T01580105KMNE2018-10-19T14:35:00Z32.65-93.315.810.560310.030.239174TRUETRUEVFRMETAR85.02018-10-19 14:46:23R£)5   3KMOP 191435Z AUTO 23010G21KT 10SM CLR 11/04 A3001 RMK AO2 T01080040KMOP2018-10-19T14:35:00Z43.62-84.7310.84.0230102110.030.008858TRUETRUEVFRSPECI230.02018-10-19 14:46:23D£(5    3KMPZ 191435Z AUTO 21009KT 10SM OVC050 11/06 A3009 RMK AO2KMPZ2018-10-19T14:35:00Z40.95-91.5211.06.0210910.030.088583TRUETRUEVFRSPECI224.02018-10-19 14:46:23E£(5   3KMQS 191435Z AUTO 27006G11KT 10SM CLR 11/02 A3033 RMK AO2KMQS2018-10-19T14:35:00Z39.98-75.8711.02.027061110.030.33071TRUETRUEVFRSPECI201.02018-10-19 14:46:23 *WG£!)5   3KMIS 191435Z AUTO VRB04G13KT 10SM SCT022 29/23 A3020 RMK A01KMIS2018-10-19T14:35:00Z29.3-88.8529.023.0041310.030.200787TRUETRUEVFRMETAR32.02018-10-19 14:46:23=£ (w5    3KMKS 191435Z AUTO 07005KT 7SM CLR 19/14 A3033 RMK AO2KMKS2018-10-19T14:35:00Z33.18-80.0319.014.07057.030.33071TRUETRUEVFRMETAR23.02018-10-19 14:46:23M£) 5    3KMLJ 191435Z AUTO 11004KT 10SM BKN028 OVC037 16/09 A3034 RMK AO2KMLJ2018-10-19T14:35:00Z33.15-83.2316.09.0110410.030.339567TRUETRUEMVFRMETAR117.02018-10-19 14:46:23P£)5    3KMMH 191435Z AUTO 35004KT 10SM CLR M02/M09 A3044 RMK AO2 T10241089KMMH2018-10-19T14:35:00Z37.62-118.82-2.4-8.9350410.030.43996TRUETRUEVFRSPECI2173.02018-10-19 14:46:23 )aR£%)5   3KMCD 191435Z AUTO 23019G32KT 10SM CLR 13/04 A2978 RMK AO2 T01250041KMCD2018-10-19T14:35:00Z45.85-84.6312.54.1230193210.029.778543TRUETRUEVFRSPECI226.02018-10-19 14:46:23S£$)5    3KMDJ 191435Z AUTO 10016KT 10SM FEW021 SCT028 SCT035 28/24 A3018 RMK A01KMDJ2018-10-19T14:35:00Z28.65-89.828.024.01001610.030.180119TRUETRUEVFRMETAR31.02018-10-19 14:46:23B£#(5    3KMEZ 191435Z AUTO 00000KT 10SM OVC021 13/08 A3026 RMK AO2KMEZ2018-10-19T14:35:00Z34.55-94.213.08.00010.030.259842TRUETRUEMVFRMETAR329.02018-10-19 14:46:23Q£")5   3KMGG 191435Z AUTO 23006G16KT 10SM CLR 14/09 A2977 RMK AO2 T01400085KMGG2018-10-19T14:35:00Z45.23-93.9814.08.523061610.029.769686TRUETRUEVFRSPECI313.02018-10-19 14:46:23 *Dt>£)(y5    3KLHM 191435Z AUTO 00000KT 10SM CLR 06/02 A3013 RMK AO1KLHM2018-10-19T14:35:00Z38.92-121.356.02.00010.030.129921TRUETRUEVFRSPECI37.02018-10-19 14:46:23J£() 5    3KLNA 191435Z AUTO 07008KT 10SM CLR 29/23 A3018 RMK AO2 T02890226KLNA2018-10-19T14:35:00Z26.6-80.0228.922.670810.030.180119TRUETRUEVFRMETAR11.02018-10-19 14:46:23`£')/5    3KLRU 191435Z AUTO 02007KT 10SM BKN018 SCT026 BKN045 12/10 A3028 RMK AO2 T01230100KLRU2018-10-19T14:35:00Z32.27-106.9212.310.020710.030.280512TRUETRUEMVFRSPECI1358.02018-10-19 14:46:23P£&)5    3KLXY 191435Z AUTO 03003KT 10SM OVC020 16/13 A3021 RMK AO2 T01550127KLXY2018-10-19T14:35:00Z31.63-96.5215.512.730310.030.209646TRUETRUEMVFRSPECI166.02018-10-19 14:46:23 /iJ£-) 5    3KJFZ 191435Z AUTO 22007KT 10SM CLR 11/06 A3033 RMK AO2 T01100058KJFZ2018-10-19T14:35:00Z37.07-81.811.05.8220710.030.33071TRUETRUEVFRMETAR809.02018-10-19 14:46:23L£,)5    3KJYL 191435Z AUTO 07005KT 10SM SCT035 19/13 A3033 RMK AO2 T01920131KJYL2018-10-19T14:35:00Z32.65-81.619.213.170510.030.33071TRUETRUEVFRMETAR57.02018-10-19 14:46:23@£+(y5    3KL18 191435Z AUTO 03007KT 10SM CLR 18/01 A3002 RMK AO2KL182018-10-19T14:35:00Z33.35-117.2518.01.030710.030.02067TRUETRUEVFRSPECI216.02018-10-19 14:46:23K£*) 5    3KLCK 191435Z AUTO 19006KT 10SM CLR 06/01 A3028 RMK AO2 T00600006KLCK2018-10-19T14:35:00Z39.82-82.926.00.6190610.030.280512TRUETRUEVFRSPECI227.02018-10-19 14:46:23 <xG£1)5     3KIKG 191435Z AUTO 4SM BR OVC003 18/18 A3014 RMK AO2 T01770177KIKG2018-10-19T14:35:00Z27.55-98.0317.717.74.030.138779TRUETRUEBRLIFRSPECI40.02018-10-19 14:46:23Q£0)5   3KIKW 191435Z AUTO 23011G18KT 10SM CLR 12/05 A3002 RMK AO2 T01150051KIKW2018-10-19T14:35:00Z43.67-84.2711.55.1230111810.030.02067TRUETRUEVFRSPECI194.02018-10-19 14:46:23>£/(w5    3KIOB 191435Z AUTO 20004KT 7SM CLR 10/03 A3029 RMK AO2KIOB2018-10-19T14:35:00Z38.05-83.9810.03.020047.030.28937TRUETRUEVFRMETAR311.02018-10-19 14:46:23>£.(y5    3KIZA 191435Z AUTO 00000KT 10SM CLR 07/02 A3008 RMK AO2KIZA2018-10-19T14:35:00Z34.6-120.077.02.00010.030.079725TRUETRUEVFRSPECI205.02018-10-19 14:46:23 ,aL£5) 5    3KHQU 191435Z AUTO 13005KT 10SM CLR 16/08 A3040 RMK AO2 T01630080KHQU2018-10-19T14:35:00Z33.53-82.5216.38.0130510.030.398623TRUETRUEVFRSPECI152.02018-10-19 14:46:23O£4)5    3KHRX 191435Z AUTO 27007KT 7SM OVC100 10/09 A3027 RMK AO2 T01020090KHRX2018-10-19T14:35:00Z34.87-102.3310.29.027077.030.268702TRUETRUEVFRSPECI1154.02018-10-19 14:46:23E£3)5    3KHVE 191435Z AUTO 00000KT M1/4SM OVC001 01/01 A3046 RMK AO2KHVE2018-10-19T14:35:00Z38.42-110.71.01.0000.2530.46063TRUETRUELIFRSPECI1350.02018-10-19 14:46:23N£2)5    3KIER 191435Z AUTO 12003KT 10SM SCT050 17/12 A3023 RMK AO2 T01690121KIER2018-10-19T14:35:00Z31.73-93.116.912.1120310.030.230314TRUETRUEVFRMETAR37.02018-10-19 14:46:23 8jK£9) 5    3KHFY 191435Z AUTO 19006KT 10SM CLR 10/02 A3025 RMK AO2 T00980024KHFY2018-10-19T14:35:00Z39.63-86.089.82.4190610.030.250984TRUETRUEVFRMETAR251.02018-10-19 14:46:23L£8) 5    3KHHF 191435Z AUTO 25007KT 10SM CLR 13/11 A3019 RMK AO2 T01310107KHHF2018-10-19T14:35:00Z35.9-100.413.110.7250710.030.188976TRUETRUEVFRSPECI712.02018-10-19 14:46:23H£7) 5    3KHMZ 191435Z AUTO 00000KT 10SM CLR 07/01 A3029 RMK AO2 T00720012KHMZ2018-10-19T14:35:00Z40.08-78.527.21.20010.030.28937TRUETRUEVFRMETAR354.02018-10-19 14:46:23B£6(y5    3KHQI 191435Z AUTO 10021KT 10SM CLR 29/23 A3012 RMK A01KHQI2018-10-19T14:35:00Z27.93-93.6729.023.01002110.030.121063TRUETRUEVFRSPECI26.02018-10-19 14:46:23 Py?£=(y5    3KGWB 191435Z AUTO 21009KT 10SM CLR 09/02 A3018 RMK AO2KGWB2018-10-19T14:35:00Z41.3-85.079.02.0210910.030.180119TRUETRUEVFRMETAR269.02018-10-19 14:46:23Q£<)5   3KHCD 191435Z AUTO 24009G15KT 10SM CLR 13/08 A2980 RMK AO2 T01300084KHCD2018-10-19T14:35:00Z44.87-94.3813.08.424091510.029.799213TRUETRUEVFRMETAR323.02018-10-19 14:46:23A£;(y5    3KHDC 191435Z AUTO 10003KT 10SM CLR 22/14 A3022 RMK AO2KHDC2018-10-19T14:35:00Z30.52-90.4222.014.0100310.030.221457TRUETRUEVFRSPECI13.02018-10-19 14:46:23c£:)/5      3KHFJ 191435Z AUTO 19007KT 10SM -RA SCT005 BKN029 OVC034 08/08 A3025 RMK AO2 P0004KHFJ2018-10-19T14:35:00Z36.9-94.028.08.0190710.030.250984TRUETRUE-RAMVFR0.04SPECI401.02018-10-19 14:46:23 )cL£A) 5    3KGLW 191435Z AUTO 19005KT 10SM CLR 13/06 A3027 RMK AO2 T01260064KGLW2018-10-19T14:35:00Z37.03-85.9512.66.4190510.030.268702TRUETRUEVFRSPECI218.02018-10-19 14:46:23W£@)5     3KGLY 191435Z AUTO 21010KT 2SM BR BKN041 BKN050 BKN090 12/09 A3020 RMK AO2KGLY2018-10-19T14:35:00Z38.35-93.6812.09.0210102.030.200787TRUETRUEBRIFRSPECI251.02018-10-19 14:46:23@£?(w5    3KGRY 191435Z AUTO 12014KT 9SM CLR 28/22 A3016 RMK A01KGRY2018-10-19T14:35:00Z27.63-90.4528.022.0120149.030.159449TRUETRUEVFRSPECI58.02018-10-19 14:46:23Q£>)5    3KGUL 191435Z AUTO 11016KT 9SM SCT025 SCT031 SCT038 29/23 A3012 RMK A01KGUL2018-10-19T14:35:00Z27.3-93.5329.023.0110169.030.121063TRUETRUEVFRSPECI30.02018-10-19 14:46:23 :m~D£E(5   3KGBK 191435Z AUTO 09016G24KT 10SM CLR 29/23 A3012 RMK A01KGBK2018-10-19T14:35:00Z27.2-92.229.023.090162410.030.121063TRUETRUEVFRSPECI59.02018-10-19 14:46:23i£D)55       3KGCM 191435Z AUTO 17005KT 4SM BR SCT003 BKN013 OVC020 10/09 A3028 RMK AO2 P0001 TSNOKGCM2018-10-19T14:35:00Z36.3-95.4810.09.017054.030.280512TRUETRUETRUEBRMVFR0.01SPECI221.02018-10-19 14:46:23G£C(5   3KGHB 191435Z AUTO 12016G25KT 10SM CLR 29/22 A3016 RMK A01KGHB2018-10-19T14:35:00Z27.83-91.9829.022.0120162510.030.159449TRUETRUEVFRSPECI30.02018-10-19 14:46:23@£B(y5    3KGIC 191435Z AUTO 00000KT 10SM CLR 03/00 A3035 RMK AO1KGIC2018-10-19T14:35:00Z45.95-116.123.00.00010.030.351377TRUETRUEVFRSPECI1009.02018-10-19 14:46:23Y8q8@HPX`hpx (08@HPX`hpx (08@HPX`hpx ' + / 3 7 ; ? C  G! K" O# S ' + / 3 7 ; ? C  G! K" O# S$ W% [& _' c( g) k* o+ s, w- {. /¡0¡1¡ 2¡3¡4¡5¡6¡!7¡&8¡*9¡.:¡2;¡6<¡:=¡>>¡B?¡F@¡JA¡NB¡RC¡VD¡ZE¡^F¡bG¡fH¡jI¡nJ¡rK¡wL¡{M¡N¢O¢P¢ Q¢R¢S¢T¢U¢V¢#W¢'X¢,Y¢0Z¢4[¢8\¢<]¢@^¢D_¢H`¢La¢Pb¢Tc¢Xd¢\e¢`f¢dg¢hh¢li¢pj¢tk¢xl¢|m£n£o£p£ Y88@HPX`hpx (08@HPX`hpx (08@HPX`hpxr£s£t£u£!v£%w£)x£-y£1z£5{£9|£=}£Ar£s£t£u£!v£%w£)x£-y£1z£5{£9|£=}£A~£E£I£M£Q£U£Y£]£a£e£i£m£q£u£y£}¤¤¤ ¤ ¤¤¤¤¤!¤%¤)¤-¤1¤5¤9¤=¤A¤E¤I¤M¤Q¤U¤Y¤]¤a¤e¤i¤m¤q¤u¤y¤}¥¥¥ ¥ ¥¥¥¥¥!¥%¥)¥-¥1¥5¥9¥=¥A¥E¥I•¥MÕ¥Qĕ¥Uŕ¥Yƕ¥]Ǖ¥aȕ¥eɕ¥iʕ¥m˕¥q̕¥u 0^tM£I)5   3KFET 191435Z AUTO 22013G18KT 10SM CLR 14/10 A3000 RMK AO2 T01410098KFET2018-10-19T14:35:00Z41.45-96.5214.19.8220131810.030.0TRUETRUEVFRMETAR367.02018-10-19 14:46:23d£H)55    3KFKA 191435Z AUTO 22013G20KT 5SM -RA OVC009 09/08 A2989 RMK AO2 LTG DSNT E T00890075KFKA2018-10-19T14:35:00Z43.68-92.178.97.522013205.029.890747TRUETRUE-RAIFRMETAR389.02018-10-19 14:46:23L£G) 5    3KFKR 191435Z AUTO 23006KT 10SM CLR 11/02 A3023 RMK AO2 T01050023KFKR2018-10-19T14:35:00Z40.27-86.5710.52.3230610.030.230314TRUETRUEVFRSPECI262.02018-10-19 14:46:23J£F) 5    3KGAO 191435Z AUTO 08007KT 10SM CLR 27/20 A3020 RMK AO2 T02650202KGAO2018-10-19T14:35:00Z29.45-90.2726.520.280710.030.200787TRUETRUEVFRSPECI1.02018-10-19 14:46:23 >cS£M)5   3KEVU 191435Z AUTO 22013G19KT 10SM BKN014 OVC023 13/07 A3007 RMK AO2KEVU2018-10-19T14:35:00Z40.35-94.9213.07.0220131910.030.070866TRUETRUEMVFRSPECI349.02018-10-19 14:46:23U£L)5     3KF00 191435Z AUTO 06003KT 10SM RA OVC023 12/11 A3025 RMK AO2 T01200111KF002018-10-19T14:35:00Z33.62-96.1812.011.160310.030.250984TRUETRUERAMVFRSPECI188.02018-10-19 14:46:23Q£K)5    3KF05 191435Z AUTO 22004KT 10SM OVC004 13/13 A3026 RMK AO1 T01340131KF052018-10-19T14:35:00Z34.23-99.2813.413.1220410.030.259842TRUETRUELIFRSPECI386.02018-10-19 14:46:23e£J)55      3KF44 191435Z AUTO 00000KT 2 1/2SM +RA SCT020 BKN025 OVC080 14/12 A3021 RMK AO2 P0008KF442018-10-19T14:35:00Z32.17-95.8314.012.0002.530.209646TRUETRUE+RAIFR0.08SPECI135.02018-10-19 14:46:23 HT£Q)5   3KEIR 191435Z AUTO VRB06G13KT 9SM FEW018 SCT023 SCT028 28/24 A3017 RMK A01KEIR2018-10-19T14:35:00Z28.63-91.4828.024.006139.030.171259TRUETRUEVFRSPECI28.02018-10-19 14:46:23@£P(w5    3KEMK 191435Z AUTO 19021KT 9SM CLR 30/24 A3011 RMK A01KEMK2018-10-19T14:35:00Z27.82-94.3230.024.0190219.030.109253TRUETRUEVFRSPECI26.02018-10-19 14:46:23N£O)5    3KENL 191435Z AUTO 21006KT 10SM OVC110 11/05 A3025 RMK AO2 T01120051KENL2018-10-19T14:35:00Z38.52-89.111.25.1210610.030.250984TRUETRUEVFRSPECI163.02018-10-19 14:46:23^£N)#5      3KERV 191435Z AUTO 32005KT 5SM BR OVC004 14/12 A3022 RMK AO2 P0001 T01350123KERV2018-10-19T14:35:00Z29.98-99.0813.512.332055.030.221457TRUETRUEBRLIFR0.01SPECI510.02018-10-19 14:46:23 -^E£U(5    3KDSF 191435Z AUTO 05014KT 10SM FEW019 29/24 A3017 RMK A01KDSF2018-10-19T14:35:00Z28.35-88.2729.024.0501410.030.171259TRUETRUEVFRMETAR130.02018-10-19 14:46:23N£T) 5    3KDUX 191435Z AUTO 25012KT 10SM CLR 09/07 A3024 RMK AO2 T00930068KDUX2018-10-19T14:35:00Z35.85-102.029.36.82501210.030.239174TRUETRUEVFRMETAR1129.02018-10-19 14:46:23I£S) 5    3KDZJ 191435Z AUTO 00000KT 10SM CLR 12/08 A3036 RMK AO2 T01200076KDZJ2018-10-19T14:35:00Z34.85-84.012.07.60010.030.360237TRUETRUEVFRSPECI582.02018-10-19 14:46:23M£R) 5    3KE80 191435Z AUTO 03004KT 10SM CLR 10/06 A3035 RMK AO2 T01040063KE802018-10-19T14:35:00Z34.65-106.8310.46.330410.030.351377TRUETRUEVFRSPECI1582.02018-10-19 14:46:23 v);^vb£Y)35     3KGJT 191435Z 12003KT 1SM R11/0800VP6000FT BR OVC001 03/03 A3043 RMK AO2 T00330033 $KGJT2018-10-19T14:35:00Z39.12-108.523.33.312031.030.431103TRUETRUEBRLIFRMETAR1475.02018-10-19 14:46:23W£X)!5     3KGMJ 191435Z AUTO 00000KT 5SM -RA SCT024 BKN032 OVC042 10/10 A3027 RMK AO2KGMJ2018-10-19T14:35:00Z36.6-94.7310.010.0005.030.268702TRUETRUE-RAMVFRMETAR254.02018-10-19 14:46:23h£W)55      3KGYB 191435Z AUTO 02004KT 10SM -RA SCT014 BKN021 15/14 A3018 RMK AO2 P0001 T01500139KGYB2018-10-19T14:35:00Z30.17-96.9815.013.920410.030.180119TRUETRUE-RAMVFR0.01SPECI148.02018-10-19 14:46:23Q£V)5   3KHAE 191435Z AUTO 21009G15KT 10SM SCT041 OVC050 12/03 A3016 RMK AO2KHAE2018-10-19T14:35:00Z39.73-91.4512.03.021091510.030.159449TRUETRUEVFRMETAR234.02018-10-19 14:46:23 -^K£]) 5    3KFPK 191435Z AUTO 23008KT 10SM CLR 09/00 A3009 RMK AO2 T00900003KFPK2018-10-19T14:35:00Z42.57-84.829.00.3230810.030.088583TRUETRUEVFRSPECI272.02018-10-19 14:46:232£\(m5     3KFRR 191435Z AUTO 00000KT 10SM CLR A3032 RMK AO1KFRR2018-10-19T14:35:00Z38.92-78.250010.030.318897TRUETRUEVFRMETAR216.02018-10-19 14:46:23I£[)5   3KFSO 191435Z AUTO 17006G14KT 10SM CLR 09/02 A3000 RMK AO2 T00900019KFSO2018-10-19T14:35:00Z44.93-73.19.01.917061410.030.0TRUETRUEVFRSPECI70.02018-10-19 14:46:23M£Z)5    3KFSW 191435Z AUTO 20009KT 170V230 10SM OVC055 12/06 A3010 RMK AO2KFSW2018-10-19T14:35:00Z40.67-91.3212.06.0200910.030.100393TRUETRUEVFRSPECI221.02018-10-19 14:46:23 &QqO£a)5    3KEDN 191435Z AUTO 12007KT 10SM OVC012 22/19 A3027 RMK AO2 T02150193KEDN2018-10-19T14:35:00Z31.3-85.921.519.3120710.030.268702TRUETRUEMVFRMETAR110.02018-10-19 14:46:23Z£`)5     3KF46 191435Z AUTO 01003KT 10SM OVC023 14/14 A3024 RMK AO2 P0002 T01420142KF462018-10-19T14:35:00Z32.93-96.4314.214.210310.030.239174TRUETRUEMVFR0.02SPECI176.02018-10-19 14:46:23O£_)5    3KFEP 191435Z AUTO 22011KT 10SM OVC090 09/02 A3006 RMK AO2 T00890021KFEP2018-10-19T14:35:00Z42.25-89.588.92.12201110.030.059055TRUETRUEVFRSPECI262.02018-10-19 14:46:23T£^)5   3KFKS 191435Z AUTO 21011G20KT 10SM SCT120 12/07 A2992 RMK AO2 T01200067KFKS2018-10-19T14:35:00Z44.63-86.212.06.7210112010.029.920275TRUETRUEVFRSPECI193.02018-10-19 14:46:23 .cG£e(5   3KDXX 191435Z AUTO 30018G23KT 10SM CLR 14/08 A2984 RMK AO2KDXX2018-10-19T14:35:00Z44.98-96.1814.08.0300182310.029.840551TRUETRUEVFRSPECI330.02018-10-19 14:46:23Y£d)5     3KDZB 191435Z AUTO 32003KT 1 3/4SM BR OVC002 15/14 A3023 RMK AO2 T01450140KDZB2018-10-19T14:35:00Z30.53-98.3714.514.032031.7530.230314TRUETRUEBRLIFRSPECI334.02018-10-19 14:46:23E£c({5    3KECS 191435Z AUTO 32010KT 10SM CLR 04/M01 A3026 RMK AO2KECS2018-10-19T14:35:00Z43.88-104.324.0-1.03201010.030.259842TRUETRUEVFRSPECI1273.02018-10-19 14:46:23L£b)5     3KECU 191435Z AUTO 00000KT 1/4SM FG OVC003 13/12 A3027 RMK AO2KECU2018-10-19T14:35:00Z29.95-100.1713.012.0000.2530.268702TRUETRUEFGLIFRSPECI725.02018-10-19 14:46:23 0dJ£i) 5    3KDRI 191435Z AUTO 11003KT 7SM CLR 20/13 A3022 RMK AO2 T02010127KDRI2018-10-19T14:35:00Z30.83-93.3320.112.711037.030.221457TRUETRUEVFRMETAR63.02018-10-19 14:46:23Q£h)5   3KDRM 191435Z AUTO 22012G21KT 10SM CLR 11/06 A2978 RMK AO2 T01130058KDRM2018-10-19T14:35:00Z46.0-83.7511.35.8220122110.029.778543TRUETRUEVFRSPECI204.02018-10-19 14:46:23F£g(5   3KDTL 191435Z AUTO 32012G18KT 10SM CLR 07/02 A2982 RMK AO2KDTL2018-10-19T14:35:00Z46.82-95.877.02.0320121810.029.819881TRUETRUEVFRSPECI426.02018-10-19 14:46:23J£f) 5    3KDUH 191435Z AUTO 21006KT 10SM CLR 10/01 A3015 RMK AO2 T00950006KDUH2018-10-19T14:35:00Z41.73-83.659.50.6210610.030.15059TRUETRUEVFRSPECI204.02018-10-19 14:46:23 :iL£m)5    3KCWV 191435Z AUTO 01005KT 10SM OVC050 19/13 A3031 RMK AO2 T01850126KCWV2018-10-19T14:35:00Z32.2-81.8718.512.610510.030.31004TRUETRUEVFRMETAR33.02018-10-19 14:46:23?£l(y5    3KCZL 191435Z AUTO 00000KT 10SM CLR 15/09 A3035 RMK AO2KCZL2018-10-19T14:35:00Z34.47-84.9315.09.00010.030.351377TRUETRUEVFRMETAR195.02018-10-19 14:46:23K£k) 5    3KDLO 191435Z AUTO 14003KT 10SM CLR 07/01 A3013 RMK AO2 T00650013KDLO2018-10-19T14:35:00Z35.75-119.236.51.3140310.030.129921TRUETRUEVFRMETAR96.02018-10-19 14:46:23@£j(y5    3KDNN 191435Z AUTO 00000KT 10SM CLR 15/12 A3035 RMK AO2KDNN2018-10-19T14:35:00Z34.72-84.8715.012.00010.030.351377TRUETRUEVFRMETAR216.02018-10-19 14:46:23 ;xG£q(5   3KCQM 191435Z AUTO 27010G17KT 10SM CLR 11/06 A2961 RMK AO2KCQM2018-10-19T14:35:00Z47.82-92.6811.06.0270101710.029.610237TRUETRUEVFRSPECI404.02018-10-19 14:46:23=£p(y5    3KCVH 191435Z AUTO 00000KT 10SM CLR 05/01 A3013 RMK A01KCVH2018-10-19T14:35:00Z36.9-121.425.01.00010.030.129921TRUETRUEVFRSPECI70.02018-10-19 14:46:23T£o)5   3KCVX 191435Z AUTO 20012G21KT 10SM SCT110 12/07 A2987 RMK AO2 T01160066KCVX2018-10-19T14:35:00Z45.3-85.2711.66.6200122110.029.870079TRUETRUEVFRSPECI204.02018-10-19 14:46:23e£n)15      3KCWC 191435Z AUTO 10007KT 7SM RA BKN003 OVC030 13/12 A3028 RMK AO2 P0005 T01250122KCWC2018-10-19T14:35:00Z33.85-98.4812.512.210077.030.280512TRUETRUERALIFR0.05SPECI305.02018-10-19 14:46:23 2ZhP£u)5    3KCMD 191435Z AUTO 15004KT 10SM BKN011 17/11 A3031 RMK AO2 T01670106KCMD2018-10-19T14:35:00Z34.27-86.8516.710.6150410.030.31004TRUETRUEMVFRMETAR294.02018-10-19 14:46:23l£t)A5    3KCMY 191435Z AUTO 21008G15KT 10SM BKN018 BKN046 OVC050 09/08 A2990 RMK AO2 P0002 T00930080KCMY2018-10-19T14:35:00Z43.97-90.739.38.021081510.029.899607TRUETRUEMVFR0.02SPECI256.02018-10-19 14:46:23R£s)5   3KCNB 191435Z AUTO 31013G19KT 10SM CLR 15/10 A2986 RMK AO2 T01490096KCNB2018-10-19T14:35:00Z44.73-96.2714.99.6310131910.029.861221TRUETRUEVFRSPECI364.02018-10-19 14:46:23H£r) 5    3KCPK 191435Z AUTO 00000KT 10SM CLR 15/02 A3039 RMK AO2 T01470023KCPK2018-10-19T14:35:00Z36.67-76.3214.72.30010.030.389763TRUETRUEVFRMETAR6.02018-10-19 14:46:23 #\W£y)5     3KMNZ 191435Z AUTO 01003KT 2 1/2SM BR OVC003 14/14 A3025 RMK AO2 T01370137KMNZ2018-10-19T14:35:00Z31.67-98.1513.713.71032.530.250984TRUETRUEBRLIFRSPECI396.02018-10-19 14:46:23N£x)5    3KMQB 191435Z AUTO 20007KT 10SM OVC050 11/04 A3015 RMK AO2 T01050038KMQB2018-10-19T14:35:00Z40.52-90.6510.53.8200710.030.15059TRUETRUEVFRSPECI215.02018-10-19 14:46:23A£w(y5    3KCKN 191435Z AUTO 33012KT 10SM CLR 09/03 A2984 RMK AO2KCKN2018-10-19T14:35:00Z47.85-96.629.03.03301210.029.840551TRUETRUEVFRSPECI273.02018-10-19 14:46:23W£v)5   3KCKP 191435Z AUTO 23011G18KT 10SM OVC013 11/11 A2994 RMK AO2 T01130108KCKP2018-10-19T14:35:00Z42.73-95.5511.310.8230111810.029.940945TRUETRUEMVFRSPECI374.02018-10-19 14:46:23 ;hT£})5   3KMGN 191435Z AUTO 23009G17KT 10SM SCT120 12/06 A2983 RMK AO2 T01250067KMGN2018-10-19T14:35:00Z45.43-84.9212.56.723091710.029.828741TRUETRUEVFRSPECI209.02018-10-19 14:46:23M£|)5    3KMJQ 191435Z 23016G24KT 10SM OVC010 11/08 A2987 RMK AO2 PWINOKMJQ2018-10-19T14:35:00Z43.63-94.9711.08.0230162410.029.870079TRUETRUEMVFRSPECI441.02018-10-19 14:46:23E£{) 5     3KMKN 191435Z 2SM DZ BKN003 OVC015 13/13 A3026 RMK AO2 T01280128KMKN2018-10-19T14:35:00Z31.92-98.612.812.82.030.259842TRUEDZLIFRMETAR423.02018-10-19 14:46:23t£z)M5      3KMKO 191435Z AUTO 17005KT 10SM -RA BKN005 OVC033 11/11 A3029 RMK AO2 CIG 003V008 P0000 T01060106KMKO2018-10-19T14:35:00Z35.65-95.3710.610.6170510.030.28937TRUETRUE-RAIFR0.005METAR185.02018-10-19 14:46:23 /MG¤(5   3KLXL 191435Z AUTO 27011G14KT 10SM CLR 12/07 A2974 RMK AO2KLXL2018-10-19T14:35:00Z45.95-94.3312.07.0270111410.029.740158TRUETRUEVFRSPECI342.02018-10-19 14:46:23B¤(y5    3KLYV 191435Z AUTO 23010KT 10SM CLR 11/08 A2989 RMK AO2KLYV2018-10-19T14:35:00Z43.62-96.2211.08.02301010.029.890747TRUETRUEVFRSPECI436.02018-10-19 14:46:23\£)#5      3KLZZ 191435Z AUTO 36003KT 4SM RA OVC014 14/13 A3022 RMK AO2 P0004 T01350131KLZZ2018-10-19T14:35:00Z31.1-98.213.513.136034.030.221457TRUETRUERAMVFR0.04SPECI371.02018-10-19 14:46:23K£~) 5    3KMFV 191435Z AUTO 25004KT 10SM CLR 16/06 A3038 RMK AO2 T01550058KMFV2018-10-19T14:35:00Z37.63-75.7715.55.8250410.030.380905TRUETRUEVFRMETAR15.02018-10-19 14:46:23 OrK¤) 5    3KLMO 191435Z AUTO 00000KT 10SM CLR 10/03 A3032 RMK AO2 T00990031KLMO2018-10-19T14:35:00Z40.17-105.179.93.10010.030.318897TRUETRUEVFRSPECI1541.02018-10-19 14:46:23W¤)5     3KLNC 191435Z AUTO 03003KT 10SM -RA OVC023 14/13 A3024 RMK AO2 T01420129KLNC2018-10-19T14:35:00Z32.58-96.7214.212.930310.030.239174TRUETRUE-RAMVFRSPECI153.02018-10-19 14:46:23A¤(y5    3KLNP 191435Z AUTO 22006KT 10SM CLR 12/07 A3034 RMK AO2KLNP2018-10-19T14:35:00Z36.97-82.5212.07.0220610.030.339567TRUETRUEVFRMETAR817.02018-10-19 14:46:23d¤)35      3KLUD 191435Z AUTO 00000KT 4SM -RA BKN005 BKN018 13/13 A3025 RMK AO2 P0005 T01320125KLUD2018-10-19T14:35:00Z33.25-97.5813.212.5004.030.250984TRUETRUE-RAIFR0.05SPECI319.02018-10-19 14:46:23 5a@¤ (y5    3KJYM 191435Z AUTO 22008KT 10SM CLR 09/00 A3014 RMK AO2KJYM2018-10-19T14:35:00Z41.92-84.589.00.0220810.030.138779TRUETRUEVFRSPECI360.02018-10-19 14:46:23W¤)!5    3KK88 191435Z AUTO 18009KT 10SM BKN007 OVC010 11/11 A3020 RMK AO1 T01110111KK882018-10-19T14:35:00Z37.87-95.3811.111.1180910.030.200787TRUETRUEIFRMETAR309.02018-10-19 14:46:23N¤)5    3KLHB 191435Z AUTO 03005KT 10SM OVC110 17/13 A3020 RMK AO2 T01660133KLHB2018-10-19T14:35:00Z30.87-96.6216.613.330510.030.200787TRUETRUEVFRSPECI87.02018-10-19 14:46:23E¤(5   3KLJF 191435Z AUTO 25008G14KT 10SM CLR 13/09 A2978 RMK AO2KLJF2018-10-19T14:35:00Z45.1-94.5213.09.025081410.029.778543TRUETRUEVFRSPECI348.02018-10-19 14:46:23 JtB¤ (5    3KJSV 191435Z AUTO 08003KT 10SM OVC033 11/09 A3028 RMK AO2KJSV2018-10-19T14:35:00Z35.43-94.811.09.080310.030.280512TRUETRUEVFRMETAR161.02018-10-19 14:46:23P¤ )5    3KJWG 191435Z AUTO 19007KT 10SM OVC007 13/13 A3022 RMK AO2 T01250125KJWG2018-10-19T14:35:00Z35.87-98.4212.512.5190710.030.221457TRUETRUEIFRMETAR472.02018-10-19 14:46:23O¤ )5    3KJWY 191435Z AUTO 00000KT 10SM OVC020 14/14 A3025 RMK AO2 T01400140KJWY2018-10-19T14:35:00Z32.45-96.9214.014.00010.030.250984TRUETRUEMVFRSPECI217.02018-10-19 14:46:23[¤ )/5    3KJXI 191435Z AUTO 00000KT 10SM SCT045 BKN070 OVC080 14/10 A3024 RMK AO2 T01350104KJXI2018-10-19T14:35:00Z32.7-94.9513.510.40010.030.239174TRUETRUEVFRSPECI127.02018-10-19 14:46:23 /^Q¤)5   3KIGQ 191435Z AUTO 22011G15KT 10SM CLR 09/01 A3014 RMK AO2 T00850009KIGQ2018-10-19T14:35:00Z41.53-87.538.50.9220111510.030.138779TRUETRUEVFRSPECI188.02018-10-19 14:46:23O¤)5    3KINJ 191435Z AUTO 01003KT 10SM OVC018 15/15 A3023 RMK AO2 T01480148KINJ2018-10-19T14:35:00Z32.08-97.114.814.810310.030.230314TRUETRUEMVFRSPECI209.02018-10-19 14:46:23K¤) 5    3KIRS 191435Z AUTO 22011KT 10SM CLR 10/00 A3014 RMK AO2 T00960002KIRS2018-10-19T14:35:00Z41.8-85.439.60.22201110.030.138779TRUETRUEVFRSPECI282.02018-10-19 14:46:23K¤)5    3KJAQ 191435Z AUTO 00000KT 10SM CLR 16/M01 A3015 RMK AO1 T01621010KJAQ2018-10-19T14:35:00Z38.37-120.816.2-1.00010.030.15059TRUETRUEVFRSPECI512.02018-10-19 14:46:23 9iG¤(5   3KHYX 191435Z AUTO 22013G16KT 10SM CLR 10/01 A3004 RMK AO2KHYX2018-10-19T14:35:00Z43.43-83.8710.01.0220131610.030.041338TRUETRUEVFRSPECI183.02018-10-19 14:46:23F¤(5   3KHZX 191435Z AUTO 25009G16KT 10SM CLR 12/07 A2968 RMK AO2KHZX2018-10-19T14:35:00Z46.62-93.3212.07.025091610.029.681103TRUETRUEVFRSPECI374.02018-10-19 14:46:23J¤)5    3KI35 191435Z AUTO 00000KT 4SM OVC001 05/05 A3033 RMK AO2 T00490045KI352018-10-19T14:35:00Z36.87-83.374.94.5004.030.33071TRUETRUELIFRMETAR473.02018-10-19 14:46:23A¤(5    3KI67 191435Z AUTO 00000KT 10SM SCT003 05/04 A3028 RMK AO1KI672018-10-19T14:35:00Z39.25-84.785.04.00010.030.280512TRUETRUEVFRSPECI178.02018-10-19 14:46:23 "Q{N¤)5    3KRSV 191435Z AUTO 20005KT 10SM SCT120 07/04 A3027 RMK AO2 T00740042KRSV2018-10-19T14:35:00Z39.02-87.657.44.2200510.030.268702TRUETRUEVFRSPECI141.02018-10-19 14:46:23P¤)5    3KHMP 191435Z AUTO 12007KT 10SM OVC024 15/09 A3034 RMK AO2 T01510090KHMP2018-10-19T14:35:00Z33.38-84.3315.19.0120710.030.339567TRUETRUEMVFRMETAR269.02018-10-19 14:46:23K¤) 5    3KHSB 191435Z AUTO 20003KT 10SM CLR 09/05 A3028 RMK AO2 T00930051KHSB2018-10-19T14:35:00Z37.82-88.559.35.1200310.030.280512TRUETRUEVFRSPECI121.02018-10-19 14:46:23X¤)5     3KHSP 191435Z AUTO 27011KT 3/4SM HZ VV005 10/04 A3031 RMK AO2 T00960041KHSP2018-10-19T14:35:00Z37.95-79.829.64.1270110.7530.31004TRUETRUEHZLIFR500METAR1156.02018-10-19 14:46:23 1`L¤) 5    3KRMY 191435Z AUTO 22008KT 10SM CLR 10/00 A3013 RMK AO2 T00971004KRMY2018-10-19T14:35:00Z42.23-84.959.7-0.4220810.030.129921TRUETRUEVFRSPECI287.02018-10-19 14:46:23Q¤)5   3KRNP 191435Z AUTO 23010G14KT 10SM CLR 12/00 A3007 RMK AO2 T01160001KRNP2018-10-19T14:35:00Z43.0-84.1311.60.1230101410.030.070866TRUETRUEVFRSPECI224.02018-10-19 14:46:23K¤)5   3KRQB 191435Z AUTO 22006G16KT 10SM CLR 11/07 A3000 RMK AO2 T01100066KRQB2018-10-19T14:35:00Z43.72-85.511.06.622061610.030.0TRUETRUEVFRSPECI302.02018-10-19 14:46:23I¤) 5    3KRSN 191435Z AUTO 00000KT 10SM CLR 16/10 A3029 RMK AO2 T01640103KRSN2018-10-19T14:35:00Z32.52-92.5816.410.30010.030.28937TRUETRUEVFRMETAR95.02018-10-19 14:46:23 'a}i¤!)?5    3KPVB 191435Z AUTO 22010G15KT 7SM SCT044 BKN050 OVC065 08/08 A3002 RMK AO1 P0002 T00820081KPVB2018-10-19T14:35:00Z42.68-90.438.28.122010157.030.02067TRUETRUEVFR0.02SPECI313.02018-10-19 14:46:23^¤ )%5      3KPVJ 191435Z AUTO 00000KT 1SM +RA OVC003 12/12 A3025 RMK AO2 P0015 T01160116KPVJ2018-10-19T14:35:00Z34.72-97.2211.611.6001.030.250984TRUETRUE+RALIFR0.15METAR295.02018-10-19 14:46:23@¤(y5    3KPWC 191435Z AUTO 29006KT 10SM CLR 09/04 A2975 RMK AO2KPWC2018-10-19T14:35:00Z46.72-94.379.04.0290610.029.749016TRUETRUEVFRSPECI395.02018-10-19 14:46:23S¤)5    3KRKR 191435Z AUTO 00000KT 10SM BKN030 BKN039 OVC044 11/10 A3027 RMK AO2KRKR2018-10-19T14:35:00Z35.02-94.6211.010.00010.030.268702TRUETRUEMVFRMETAR138.02018-10-19 14:46:23 6eG¤%(5   3KPQN 191435Z AUTO 26012G16KT 10SM CLR 12/09 A2986 RMK AO2KPQN2018-10-19T14:35:00Z43.97-96.3212.09.0260121610.029.861221TRUETRUEVFRSPECI529.02018-10-19 14:46:23P¤$)5    3KPRS 191435Z AUTO 00000KT 10SM OVC018 14/11 A3025 RMK AO2 T01430108KPRS2018-10-19T14:35:00Z29.63-104.3514.310.80010.030.250984TRUETRUEMVFRSPECI896.02018-10-19 14:46:23K¤#) 5    3KPTB 191435Z AUTO 20003KT 10SM CLR 14/07 A3038 RMK AO2 T01380070KPTB2018-10-19T14:35:00Z37.17-77.5213.87.0200310.030.380905TRUETRUEVFRMETAR59.02018-10-19 14:46:23D¤"(5    3KPUJ 191435Z AUTO 16004KT 10SM BKN023 13/09 A3033 RMK AO2KPUJ2018-10-19T14:35:00Z33.92-84.9313.09.0160410.030.33071TRUETRUEMVFRMETAR393.02018-10-19 14:46:23 %JkS¤))!5    3KPCD 191435Z AUTO 00000KT 10SM BKN070 BKN090 09/05 A3026 RMK AO2 T00910053KPCD2018-10-19T14:35:00Z37.87-89.879.15.30010.030.259842TRUETRUEVFRMETAR113.02018-10-19 14:46:23Y¤()5     3KPIM 191435Z AUTO 09004KT 10SM OVC019 17/14 A3031 RMK AO2 T01700137 PWINOKPIM2018-10-19T14:35:00Z32.83-84.8817.013.790410.030.31004TRUETRUETRUEMVFRMETAR275.02018-10-19 14:46:23U¤')5     3KPMH 191435Z AUTO 17003KT 1/4SM FG OVC002 00/00 A3032 RMK AO2 T00020002KPMH2018-10-19T14:35:00Z38.83-82.850.20.217030.2530.318897TRUETRUEFGLIFRSPECI202.02018-10-19 14:46:23U¤&)5     3KPOV 191435Z AUTO 21006KT 10SM CLR 08/00 A3022 RMK AO2 T00760001 PWINOKPOV2018-10-19T14:35:00Z41.22-81.257.60.1210610.030.221457TRUETRUETRUEVFRSPECI365.02018-10-19 14:46:23 *EtG¤-(5   3KOVL 191435Z AUTO 26012G19KT 10SM CLR 13/07 A2980 RMK AO2KOVL2018-10-19T14:35:00Z44.78-95.0313.07.0260121910.029.799213TRUETRUEVFRSPECI328.02018-10-19 14:46:23K¤,)5   3KOWA 191435Z AUTO 22012G21KT 10SM OVC013 11/09 A2985 RMK AO2KOWA2018-10-19T14:35:00Z44.12-93.2511.09.0220122110.029.84941TRUETRUEMVFRSPECI350.02018-10-19 14:46:23_¤+))5     3KOWP 191435Z AUTO 19006KT 10SM -RA BKN021 OVC028 13/12 A3026 RMK AO2 T01300123KOWP2018-10-19T14:35:00Z36.18-96.1513.012.3190610.030.259842TRUETRUE-RAMVFRMETAR272.02018-10-19 14:46:23P¤*)5   3KOZW 191435Z AUTO 23008G16KT 10SM CLR 10/00 A3010 RMK AO2 T00990000KOZW2018-10-19T14:35:00Z42.62-83.979.90.023081610.030.100393TRUETRUEVFRSPECI293.02018-10-19 14:46:23 9`T¤1)5     3KOLM 191435Z AUTO 00000KT 1/4SM FG VV002 05/05 A3028 RMK AO2 T00500050KOLM2018-10-19T14:35:00Z46.97-122.95.05.0000.2530.280512TRUETRUEFGLIFR200METAR58.02018-10-19 14:46:23J¤0) 5    3KONZ 191435Z AUTO 21006KT 10SM CLR 09/01 A3014 RMK AO2 T00850014KONZ2018-10-19T14:35:00Z42.1-83.158.51.4210610.030.138779TRUETRUEVFRSPECI180.02018-10-19 14:46:23S¤/)5     3KOOA 191435Z AUTO 20009KT 10SM RA OVC048 10/07 A3005 RMK AO2 T01030067KOOA2018-10-19T14:35:00Z41.23-92.510.36.7200910.030.050198TRUETRUERAVFRSPECI256.02018-10-19 14:46:23A¤.(y5    3KOQN 191435Z AUTO 24004KT 10SM CLR 11/02 A3032 RMK AO2KOQN2018-10-19T14:35:00Z39.98-75.5811.02.0240410.030.318897TRUETRUEVFRMETAR142.02018-10-19 14:46:23 4`A¤5({5    3KO54 191435Z AUTO 00000KT 10SM CLR 02/M01 A3026 RMK AO1KO542018-10-19T14:35:00Z40.75-122.922.0-1.00010.030.259842TRUETRUEVFRSPECI717.02018-10-19 14:46:23I¤4)5    3KOBE 191435Z AUTO 08004KT SCT020 BKN026 28/23 A3019 RMK AO2 PWINOKOBE2018-10-19T14:35:00Z27.27-80.8528.023.080430.188976TRUETRUETRUEMETAR11.02018-10-19 14:46:23N¤3)5    3KOEB 191435Z AUTO 23009KT 10SM CLR 11/M03 A3014 RMK AO2 T01071026KOEB2018-10-19T14:35:00Z41.92-85.0310.7-2.6230910.030.138779TRUETRUEVFRSPECI292.02018-10-19 14:46:23F¤2(5    3KOJA 191435Z AUTO 20005KT 10SM OVC004 12/12 A3022 RMK AO2KOJA2018-10-19T14:35:00Z35.55-98.6712.012.0200510.030.221457TRUETRUELIFRMETAR490.02018-10-19 14:46:23 5oK¤9) 5    3KMRT 191435Z AUTO 21007KT 10SM CLR 08/02 A3025 RMK AO2 T00800019KMRT2018-10-19T14:35:00Z40.22-83.358.01.9210710.030.250984TRUETRUEVFRSPECI312.02018-10-19 14:46:23G¤8(5   3KMVE 191435Z AUTO 32014G18KT 10SM CLR 13/07 A2982 RMK AO2KMVE2018-10-19T14:35:00Z44.97-95.7213.07.0320141810.029.819881TRUETRUEVFRSPECI315.02018-10-19 14:46:23@¤7(y5    3KMZH 191435Z AUTO 23009KT 10SM CLR 12/06 A2966 RMK AO2KMZH2018-10-19T14:35:00Z46.42-92.812.06.0230910.029.660433TRUETRUEVFRSPECI328.02018-10-19 14:46:23E¤6(5   3KN03 191435Z AUTO 22010G15KT 10SM CLR 08/02 A3014 RMK AO2KN032018-10-19T14:35:00Z42.6-76.228.02.0220101510.030.138779TRUETRUEVFRSPECI366.02018-10-19 14:46:23 +e]¤=)%5    3KC29 191435Z AUTO 22008G14KT 10SM OVC090 09/07 A2999 RMK AO1 P0002 T00900066KC292018-10-19T14:35:00Z43.12-89.539.06.622081410.029.991142TRUETRUEVFR0.02SPECI283.02018-10-19 14:46:23M¤<)5    3KCDA 191435Z AUTO 12007KT 10SM CLR 05/M01 A3005 RMK AO2 T00511008KCDA2018-10-19T14:35:00Z44.57-72.025.1-0.8120710.030.050198TRUETRUEVFRSPECI363.02018-10-19 14:46:23@¤;(y5    3KCKC 191435Z AUTO 23007KT 10SM CLR 11/04 A2956 RMK AO2KCKC2018-10-19T14:35:00Z47.83-90.3711.04.0230710.029.56004TRUETRUEVFRSPECI548.02018-10-19 14:46:23O¤:)5    3KCKF 191435Z AUTO 10005KT 10SM BKN050 20/12 A3032 RMK AO2 T02020123KCKF2018-10-19T14:35:00Z31.98-83.7720.212.3100510.030.318897TRUETRUEVFRMETAR91.02018-10-19 14:46:23 /jO¤A)5    3KBEC 191435Z AUTO 21009KT 10SM OVC005 11/11 A3017 RMK AO2 T01110105KBEC2018-10-19T14:35:00Z37.7-97.2211.110.5210910.030.171259TRUETRUEIFRMETAR429.02018-10-19 14:46:23C¤@(y5    3KBPC 191435Z AUTO 25014KT 10SM CLR 10/08 A3021 RMK AO2KBPC2018-10-19T14:35:00Z35.88-101.0310.08.02501410.030.209646TRUETRUEVFRSPECI845.02018-10-19 14:46:23?¤?(y5    3KBQK 191435Z AUTO 05008KT 10SM CLR 23/18 A3028 RMK AO2KBQK2018-10-19T14:35:00Z31.25-81.4723.018.050810.030.280512TRUETRUEVFRMETAR8.02018-10-19 14:46:23K¤>) 5    3KBXA 191435Z AUTO 06003KT 10SM CLR 21/14 A3024 RMK AO2 T02070135KBXA2018-10-19T14:35:00Z30.82-89.8720.713.560310.030.239174TRUETRUEVFRMETAR36.02018-10-19 14:46:23 -h@¤E(y5    3KAZC 191435Z AUTO 00000KT 10SM CLR 06/01 A3037 RMK AO2KAZC2018-10-19T14:35:00Z36.97-113.026.01.00010.030.369095TRUETRUEVFRSPECI1486.02018-10-19 14:46:23G¤D(5   3KBBB 191435Z AUTO 34018G21KT 10SM CLR 12/06 A2983 RMK AO2KBBB2018-10-19T14:35:00Z45.32-95.6512.06.0340182110.029.828741TRUETRUEVFRSPECI317.02018-10-19 14:46:23?¤C(y5    3KBBP 191435Z AUTO 08004KT 10SM CLR 16/08 A3037 RMK AO2KBBP2018-10-19T14:35:00Z34.62-79.7316.08.080410.030.369095TRUETRUEVFRMETAR45.02018-10-19 14:46:23M¤B)5    3KBEA 191435Z AUTO 05006KT 7SM OVC003 19/19 A3012 RMK AO2 T01920190KBEA2018-10-19T14:35:00Z28.37-97.7819.219.05067.030.121063TRUETRUELIFRSPECI82.02018-10-19 14:46:23 ;j@¤I(y5    3KASW 191435Z AUTO 22006KT 10SM CLR 08/01 A3018 RMK AO2KASW2018-10-19T14:35:00Z41.27-85.838.01.0220610.030.180119TRUETRUEVFRSPECI259.02018-10-19 14:46:23c¤H)/5      3KAUS 191435Z 01007KT 3SM -RA BR BKN004 OVC014 17/16 A3019 RMK AO2 P0005 T01670156KAUS2018-10-19T14:35:00Z30.18-97.6816.715.61073.030.188976TRUE-RA BRLIFR0.05METAR166.02018-10-19 14:46:23K¤G) 5    3KAXH 191435Z AUTO 07006KT 10SM CLR 20/17 A3016 RMK AO2 T02020170KAXH2018-10-19T14:35:00Z29.52-95.4820.217.070610.030.159449TRUETRUEVFRSPECI21.02018-10-19 14:46:23?¤F(y5    3KAXV 191435Z AUTO 21010KT 10SM CLR 08/03 A3024 RMK AO2KAXV2018-10-19T14:35:00Z40.5-84.38.03.02101010.030.239174TRUETRUEVFRSPECI279.02018-10-19 14:46:23 ,_vG¤M(5   3KAIT 191435Z AUTO 26010G18KT 10SM CLR 12/06 A2968 RMK AO2KAIT2018-10-19T14:35:00Z46.53-93.6712.06.0260101810.029.681103TRUETRUEVFRSPECI367.02018-10-19 14:46:23c¤L)75     3KARM 191435Z AUTO 05003KT 10SM -RA SCT031 BKN060 OVC100 18/17 A3016 RMK AO2 T01820165KARM2018-10-19T14:35:00Z29.25-96.1518.216.550310.030.159449TRUETRUE-RAVFRSPECI31.02018-10-19 14:46:23G¤K) 5    3KARW 191435Z AUTO 05008KT 7SM SCT039 OVC060 20/15 A3031 RMK AO2KARW2018-10-19T14:35:00Z32.42-80.6320.015.05087.030.31004TRUETRUEVFRMETAR4.02018-10-19 14:46:23N¤J)5    3KASN 191435Z AUTO 05003KT 10SM SCT021 18/12 A3031 RMK AO2 T01780121KASN2018-10-19T14:35:00Z33.57-86.0517.812.150310.030.31004TRUETRUEVFRMETAR162.02018-10-19 14:46:23 U?¤Q(y5    3K4S2 191435Z AUTO 00000KT 10SM CLR 01/00 A3034 RMK AO2K4S22018-10-19T14:35:00Z45.68-121.551.00.00010.030.339567TRUETRUEVFRSPECI192.02018-10-19 14:46:23J¤P) 5    3K4V0 191435Z AUTO 00000KT 10SM CLR 01/00 A3045 RMK AO2 T00050000K4V02018-10-19T14:35:00Z40.1-108.770.50.00010.030.448818TRUETRUEVFRSPECI1608.02018-10-19 14:46:23D¤O(5    3K6A2 191435Z AUTO 08004KT 10SM OVC019 13/09 A3034 RMK AO2K6A22018-10-19T14:35:00Z33.23-84.2713.09.080410.030.339567TRUETRUEMVFRMETAR292.02018-10-19 14:46:23[¤N))5   3KACB 191435Z AUTO 21008G14KT 190V250 10SM SCT120 12/06 A2989 RMK AO2 T01190060KACB2018-10-19T14:35:00Z44.98-85.211.96.021081410.029.890747TRUETRUEVFRSPECI190.02018-10-19 14:46:23 5n>¤U(}5    3K3R7 191435Z AUTO 10SM CLR 22/16 A3020 RMK AO2 T02160155K3R72018-10-19T14:35:00Z30.25-92.6721.615.510.030.200787TRUETRUEVFRMETAR7.02018-10-19 14:46:23T¤T)!5    3K3T5 191435Z AUTO 01004KT 10SM BKN015 BKN120 18/18 A3015 RMK AO2 T01820175K3T52018-10-19T14:35:00Z29.9-96.9518.217.510410.030.15059TRUETRUEMVFRSPECI99.02018-10-19 14:46:23A¤S(y5    3K4A9 191435Z AUTO 12005KT 10SM CLR 15/07 A3030 RMK AO2K4A92018-10-19T14:35:00Z34.47-85.7215.07.0120510.030.301182TRUETRUEVFRMETAR267.02018-10-19 14:46:23E¤R)5    3K4O4 191435Z AUTO 00000KT 1 1/2SM OVC028 12/07 A3026 RMK AO2K4O42018-10-19T14:35:00Z33.92-94.8712.07.0001.530.259842TRUETRUEIFRSPECI144.02018-10-19 14:46:23 ,IO¤Y)5    3K1A9 191435Z AUTO 08003KT 10SM OVC019 19/15 A3027 RMK AO2 T01920148K1A92018-10-19T14:35:00Z32.43-86.5219.214.880310.030.268702TRUETRUEMVFRMETAR69.02018-10-19 14:46:23?¤X(y5    3K22N 191435Z AUTO 21004KT 10SM CLR 10/00 A3029 RMK AO2K22N2018-10-19T14:35:00Z40.8-75.7710.00.0210410.030.28937TRUETRUEVFRSPECI163.02018-10-19 14:46:23]¤W))5   3K3D2 191435Z AUTO 24013G21KT 180V290 10SM OVC090 11/05 A2983 RMK AO2 T01120052K3D22018-10-19T14:35:00Z45.13-87.1811.25.2240132110.029.828741TRUETRUEVFRSPECI234.02018-10-19 14:46:23N¤V)5    3K3LF 191435Z AUTO 19006KT 10SM OVC070 09/03 A3023 RMK AO2 T00910030K3LF2018-10-19T14:35:00Z39.17-89.679.13.0190610.030.230314TRUETRUEVFRSPECI210.02018-10-19 14:46:23 DtG¤](5   3KWWR 191435Z AUTO 22010G14KT 10SM CLR 12/08 A3021 RMK AO2KWWR2018-10-19T14:35:00Z36.45-99.5212.08.0220101410.030.209646TRUETRUEVFRMETAR667.02018-10-19 14:46:23J¤\) 5    3KXSA 191435Z AUTO 16007KT 10SM CLR 14/08 A3038 RMK AO2 T01400075KXSA2018-10-19T14:35:00Z37.87-76.914.07.5160710.030.380905TRUETRUEVFRMETAR42.02018-10-19 14:46:23L¤[) 5    3KY70 191435Z AUTO 22010KT 10SM CLR 10/00 A3007 RMK AO2 T00980000KY702018-10-19T14:35:00Z42.93-85.079.80.02201010.030.070866TRUETRUEVFRSPECI250.02018-10-19 14:46:23d¤Z)35      3K0F2 191435Z AUTO 00000KT 5SM -RA BKN003 OVC013 13/13 A3026 RMK AO2 P0002 T01300126K0F22018-10-19T14:35:00Z33.6-97.7813.012.6005.030.259842TRUETRUE-RALIFR0.02SPECI336.02018-10-19 14:46:23 0aL¤a) 5    3KW31 191435Z AUTO 19003KT 10SM CLR 13/08 A3037 RMK AO1 T01260083KW312018-10-19T14:35:00Z36.95-78.1812.68.3190310.030.369095TRUETRUEVFRMETAR162.02018-10-19 14:46:23@¤`(y5    3KW63 191435Z AUTO 15003KT 10SM CLR 13/08 A3037 RMK AO1KW632018-10-19T14:35:00Z36.6-78.5513.08.0150310.030.369095TRUETRUEVFRMETAR129.02018-10-19 14:46:23I¤_) 5    3KW75 191435Z AUTO 20004KT 10SM CLR 14/06 A3038 RMK AO1 T01350058KW752018-10-19T14:35:00Z37.6-76.4513.55.8200410.030.380905TRUETRUEVFRMETAR9.02018-10-19 14:46:23J¤^) 5    3KW96 191435Z AUTO 20005KT 10SM CLR 13/06 A3037 RMK AO1 T01270063KW962018-10-19T14:35:00Z37.5-77.1212.76.3200510.030.369095TRUETRUEVFRMETAR37.02018-10-19 14:46:23 0]X¤e)%5     3KTKV 191435Z AUTO 19003KT 5SM BR BKN009 OVC015 09/08 A2979 RMK AO2 T00900080KTKV2018-10-19T14:35:00Z45.47-89.829.08.019035.029.790354TRUETRUEBRIFRSPECI453.02018-10-19 14:46:23L¤d)5   3KTOB 191435Z AUTO 21013G21KT 10SM OVC012 10/08 A2986 RMK AO2KTOB2018-10-19T14:35:00Z44.02-92.8210.08.0210132110.029.861221TRUETRUEMVFRSPECI398.02018-10-19 14:46:23M¤c) 5    3KU42 191435Z AUTO 33005KT 10SM CLR 06/01 A3041 RMK AO1 T00570011KU422018-10-19T14:35:00Z40.62-111.985.71.1330510.030.410433TRUETRUEVFRSPECI1402.02018-10-19 14:46:23J¤b) 5    3KW13 191435Z AUTO 00000KT 10SM CLR 11/05 A3032 RMK AO1 T01110050KW132018-10-19T14:35:00Z38.08-78.9511.15.00010.030.318897TRUETRUEVFRMETAR443.02018-10-19 14:46:23 0MxR¤i)5   3KSLH 191435Z AUTO 23011G20KT 10SM CLR 13/07 A2979 RMK AO2 T01290065KSLH2018-10-19T14:35:00Z45.65-84.5212.96.5230112010.029.790354TRUETRUEVFRSPECI195.02018-10-19 14:46:23O¤h)5    3KSLO 191435Z AUTO 20007KT 10SM OVC100 11/05 A3025 RMK AO2 T01060045KSLO2018-10-19T14:35:00Z38.65-88.9710.64.5200710.030.250984TRUETRUEVFRSPECI175.02018-10-19 14:46:23]¤g)/5    3KSNK 191435Z AUTO 00000KT 10SM BKN003 BKN029 OVC034 11/11 A3027 RMK AO2 T01100110KSNK2018-10-19T14:35:00Z32.7-100.9511.011.00010.030.268702TRUETRUELIFRSPECI741.02018-10-19 14:46:23J¤f) 5    3KSXU 191435Z AUTO 00000KT 10SM CLR 07/05 A3029 RMK AO2 T00650049KSXU2018-10-19T14:35:00Z34.93-104.656.54.90010.030.28937TRUETRUEVFRSPECI1460.02018-10-19 14:46:23 #Ms?¤m(y5    3KSAA 191435Z AUTO 00000KT 10SM CLR 00/00 A3044 RMK AO2KSAA2018-10-19T14:35:00Z41.45-106.830.00.00010.030.43996TRUETRUEVFRSPECI2138.02018-10-19 14:46:23T¤l)!5    3KSAR 191435Z AUTO 20006KT 10SM BKN075 OVC090 10/05 A3026 RMK AO2 T00970051KSAR2018-10-19T14:35:00Z38.15-89.79.75.1200610.030.259842TRUETRUEVFRSPECI164.02018-10-19 14:46:23P¤k)5    3KSCD 191435Z AUTO 11004KT 10SM OVC016 19/14 A3030 RMK AO2 T01920141KSCD2018-10-19T14:35:00Z33.17-86.319.214.1110410.030.301182TRUETRUEMVFRMETAR173.02018-10-19 14:46:23W¤j)'5    3KSEP 191435Z AUTO 00000KT 2 1/2SM BKN005 OVC008 13/12 A3027 RMK AO2 T01330123KSEP2018-10-19T14:35:00Z32.22-98.1713.312.3002.530.268702TRUETRUEIFRSPECI402.02018-10-19 14:46:23 )^@¤q(y5    3KRZT 191435Z AUTO 17005KT 10SM CLR 05/02 A3028 RMK AO2KRZT2018-10-19T14:35:00Z39.43-83.025.02.0170510.030.280512TRUETRUEVFRMETAR221.02018-10-19 14:46:23A¤p({5    3KS25 191435Z AUTO 28009KT 10SM CLR 06/M00 A3018 RMK AO2KS252018-10-19T14:35:00Z47.8-103.256.00.0280910.030.180119TRUETRUEVFRMETAR644.02018-10-19 14:46:23E¤o(5   3KS32 191435Z AUTO 31012G17KT 10SM CLR 09/02 A2992 RMK AO2KS322018-10-19T14:35:00Z47.42-98.19.02.0310121710.029.920275TRUETRUEVFRSPECI684.02018-10-19 14:46:23Q¤n)5   3KRZN 191435Z AUTO 23011G16KT 10SM CLR 12/07 A2971 RMK AO2 T01240067KRZN2018-10-19T14:35:00Z45.82-92.3712.46.7230111610.029.71063TRUETRUEVFRSPECI301.02018-10-19 14:46:23 8lS¤u)5   3KRGK 191435Z AUTO 23011G19KT 10SM SCT023 OVC028 12/08 A2980 RMK AO2KRGK2018-10-19T14:35:00Z44.58-92.4812.08.0230111910.029.799213TRUETRUEMVFRSPECI239.02018-10-19 14:46:23E¤t(5   3KROX 191435Z AUTO 31012G17KT 10SM CLR 09/03 A2977 RMK AO2KROX2018-10-19T14:35:00Z48.85-95.79.03.0310121710.029.769686TRUETRUEVFRSPECI323.02018-10-19 14:46:23F¤s(5   3KRRT 191435Z AUTO 30013G20KT 10SM CLR 08/02 A2975 RMK AO2KRRT2018-10-19T14:35:00Z48.93-95.338.02.0300132010.029.749016TRUETRUEVFRMETAR327.02018-10-19 14:46:23B¤r(y5    3KRUG 191435Z AUTO 31018KT 10SM CLR 06/01 A2999 RMK AO2KRUG2018-10-19T14:35:00Z48.38-100.026.01.03101810.029.991142TRUETRUEVFRMETAR472.02018-10-19 14:46:23 3_Q¤y)5   3KPZQ 191435Z AUTO 21011G16KT 10SM CLR 13/06 A2983 RMK AO2 T01260060KPZQ2018-10-19T14:35:00Z45.4-83.8212.66.0210111610.029.828741TRUETRUEVFRSPECI204.02018-10-19 14:46:23N¤x) 5    3KRCE 191435Z AUTO 20009KT 10SM SCT007 OVC018 12/12 A3024 RMK AO2KRCE2018-10-19T14:35:00Z35.48-97.8212.012.0200910.030.239174TRUETRUEMVFRMETAR413.02018-10-19 14:46:23N¤w)5    3KRCV 191435Z AUTO 26008KT 10SM CLR 02/M05 A3044 RMK AO2 T00171048KRCV2018-10-19T14:35:00Z37.72-106.351.7-4.8260810.030.43996TRUETRUEVFRMETAR2424.02018-10-19 14:46:23G¤v(5    3KRDK 191435Z AUTO 20011KT 10SM OVC028 13/11 A3004 RMK AO2KRDK2018-10-19T14:35:00Z41.02-95.2713.011.02001110.030.041338TRUETRUEMVFRMETAR318.02018-10-19 14:46:23 $[]¤})%5      3KPDC 191435Z AUTO 20005KT 7SM -RA OVC060 10/08 A2999 RMK AO2 P0002 T00980077KPDC2018-10-19T14:35:00Z43.02-91.129.87.720057.029.991142TRUETRUE-RAVFR0.02METAR201.02018-10-19 14:46:23B¤|(y5    3KPHN 191435Z AUTO 20011KT 10SM CLR 10/00 A3009 RMK AO2KPHN2018-10-19T14:35:00Z42.92-82.5210.00.02001110.030.088583TRUETRUEVFRSPECI198.02018-10-19 14:46:23C¤{(5    3KPLR 191435Z AUTO 00000KT 10SM OVC018 16/13 A3031 RMK A01KPLR2018-10-19T14:35:00Z33.57-86.2516.013.00010.030.31004TRUETRUEMVFRMETAR148.02018-10-19 14:46:23V¤z)5      3KPWT 191435Z AUTO 00000KT 1/4SM FG VV002 01/01 A3028 RMK AO2 FZRANOKPWT2018-10-19T14:35:00Z47.5-122.751.01.0000.2530.280512TRUETRUETRUEFGLIFR200METAR147.02018-10-19 14:46:23 /bQ¥)5   3KOSC 191435Z AUTO 24013G19KT 10SM CLR 11/06 A2995 RMK AO2 T01120055KOSC2018-10-19T14:35:00Z44.45-83.411.25.5240131910.029.949802TRUETRUEVFRMETAR193.02018-10-19 14:46:23O¥)5   3KOXV 191435Z AUTO 22010G18KT 7SM BKN044 OVC050 12/09 A3002 RMK AO2KOXV2018-10-19T14:35:00Z41.28-93.1212.09.022010187.030.02067TRUETRUEVFRMETAR283.02018-10-19 14:46:23G¤(5   3KPAN 191435Z AUTO 06006G13KT 10SM CLR 10/03 A3025 RMK AO2KPAN2018-10-19T14:35:00Z34.25-111.3310.03.06061310.030.250984TRUETRUEVFRMETAR1572.02018-10-19 14:46:23K¤~) 5    3KPCM 191435Z AUTO 09007KT 10SM BKN019 BKN027 29/23 A3023 RMK AO2KPCM2018-10-19T14:35:00Z28.0-82.1729.023.090710.030.230314TRUETRUEMVFRMETAR47.02018-10-19 14:46:23 2i@¥(y5    3KOLZ 191435Z AUTO 19010G16KT 09/09 A2997 RMK AO2 PWINOKOLZ2018-10-19T14:35:00Z42.67-91.979.09.0190101629.970472TRUETRUETRUEMETAR328.02018-10-19 14:46:23]¥)'5    3KONA 191435Z AUTO 23009G17KT 10SM RA SCT016 BKN022 OVC036 11/08 A2988 RMK AO2KONA2018-10-19T14:35:00Z44.07-91.711.08.023091710.029.878937TRUETRUERAMVFRSPECI200.02018-10-19 14:46:23C¥(y5    3KORC 191435Z AUTO 24011KT 10SM CLR 12/11 A2992 RMK AO2KORC2018-10-19T14:35:00Z42.97-96.0712.011.02401110.029.920275TRUETRUEVFRMETAR431.02018-10-19 14:46:23H¥) 5     3KORS 191435Z AUTO 00000KT M1/4SM FG OVC002 08/08 A3027 RMK AO2KORS2018-10-19T14:35:00Z48.7-122.928.08.0000.2530.268702TRUETRUEFGLIFRMETAR9.02018-10-19 14:46:23 1kC¥ (5    3KMXO 191435Z AUTO 19007KT 10SM OVC065 09/07 A3003 RMK AO2KMXO2018-10-19T14:35:00Z42.22-91.179.07.0190710.030.029528TRUETRUEVFRMETAR259.02018-10-19 14:46:23O¥)5    3KOEO 191435Z AUTO 22014KT 10SM SCT110 13/09 A2979 RMK AO2 T01260085KOEO2018-10-19T14:35:00Z45.32-92.712.68.52201410.029.790354TRUETRUEVFRMETAR275.02018-10-19 14:46:23@¥(y5    3KOLE 191435Z AUTO 25005KT 10SM CLR 07/02 A3017 RMK AO2KOLE2018-10-19T14:35:00Z42.23-78.377.02.0250510.030.171259TRUETRUEVFRMETAR651.02018-10-19 14:46:23I¥)5   3KOLG 191435Z AUTO 23012G20KT 10SM SCT110 12/07 A2967 RMK AO1KOLG2018-10-19T14:35:00Z46.3-91.8212.07.0230122010.029.66929TRUETRUEVFRSPECI336.02018-10-19 14:46:23 5hR¥ )5   3KMDZ 191435Z AUTO 22013G21KT 10SM OVC008 09/08 A2981 RMK AO2 T00870080KMDZ2018-10-19T14:35:00Z45.1-90.38.78.0220132110.029.811024TRUETRUEIFRMETAR448.02018-10-19 14:46:23?¥ (y5    3KMGC 191435Z AUTO 20009KT 10SM CLR 09/00 A3014 RMK AO2KMGC2018-10-19T14:35:00Z41.7-86.829.00.0200910.030.138779TRUETRUEVFRSPECI200.02018-10-19 14:46:23G¥ (5   3KMOX 191435Z AUTO 32016G24KT 10SM CLR 11/04 A2981 RMK AO2KMOX2018-10-19T14:35:00Z45.57-95.9711.04.0320162410.029.811024TRUETRUEVFRMETAR344.02018-10-19 14:46:23E¥ (5    3KMUT 191435Z AUTO 21011KT 10SM OVC060 12/04 A3007 RMK AO2KMUT2018-10-19T14:35:00Z41.37-91.1512.04.02101110.030.070866TRUETRUEVFRMETAR167.02018-10-19 14:46:23 7sU¥)5   3KY23 191435Z AUTO 22010G15KT 10SM OVC019 12/09 A2977 RMK AO2 T01180086KY232018-10-19T14:35:00Z45.3-91.6311.88.6220101510.029.769686TRUETRUEMVFRSPECI322.02018-10-19 14:46:23Q¥)5   3KY31 191435Z AUTO 23009G17KT 10SM CLR 11/06 A2995 RMK AO2 T01090055KY312018-10-19T14:35:00Z44.25-84.1810.95.523091710.029.949802TRUETRUEVFRMETAR269.02018-10-19 14:46:23>¥(y5    3KMCJ 191435Z AUTO 04008KT 10SM CLR 21/15 A3015 RMK A01KMCJ2018-10-19T14:35:00Z29.72-95.421.015.040810.030.15059TRUETRUEVFRSPECI69.02018-10-19 14:46:23C¥(y5    3KMDS 191435Z AUTO 27010KT 10SM CLR 10/10 A2988 RMK AO2KMDS2018-10-19T14:35:00Z44.02-97.0810.010.02701010.029.878937TRUETRUEVFRMETAR524.02018-10-19 14:46:23 4cS¥)5   3KVLL 191435Z AUTO 21010G14KT 10SM CLR 09/M01 A3013 RMK AO2 T00931009KVLL2018-10-19T14:35:00Z42.55-83.189.3-0.9210101410.030.129921TRUETRUEVFRMETAR222.02018-10-19 14:46:23E¥(5   3KVVV 191435Z AUTO 32012G24KT 10SM CLR 11/04 A2985 RMK AO2KVVV2018-10-19T14:35:00Z45.3-96.4211.04.0320122410.029.84941TRUETRUEVFRMETAR335.02018-10-19 14:46:23K¥)5    3KVWU 191435Z AUTO 29007KT 273V333 10SM BKN085 08/03 A2971 RMK AO2KVWU2018-10-19T14:35:00Z48.15-94.528.03.0290710.029.71063TRUETRUEVFRMETAR360.02018-10-19 14:46:23F¥(5   3KY19 191435Z AUTO 32020G27KT 10SM CLR 09/02 A3007 RMK AO2KY192018-10-19T14:35:00Z46.77-100.99.02.0320202710.030.070866TRUETRUEVFRMETAR593.02018-10-19 14:46:23 ;oJ¥)5   3KUBE 191435Z AUTO 21012G17KT 10SM SCT020 11/06 A2975 RMK AO2KUBE2018-10-19T14:35:00Z45.5-91.9811.06.0210121710.029.749016TRUETRUEVFRMETAR379.02018-10-19 14:46:23A¥(y5    3KUKT 191435Z AUTO 23005KT 10SM CLR 10/02 A3030 RMK A01KUKT2018-10-19T14:35:00Z40.43-75.3810.02.0230510.030.301182TRUETRUEVFRSPECI160.02018-10-19 14:46:23F¥(5   3KULM 191435Z AUTO 24014G19KT 10SM CLR 13/09 A2981 RMK AO2KULM2018-10-19T14:35:00Z44.32-94.513.09.0240141910.029.811024TRUETRUEVFRMETAR308.02018-10-19 14:46:23?¥(y5    3KUOX 191435Z AUTO 00000KT 10SM CLR 12/09 A3028 RMK AO2KUOX2018-10-19T14:35:00Z34.38-89.5312.09.00010.030.280512TRUETRUEVFRMETAR137.02018-10-19 14:46:23 3\{>¥(y5    3KTME 191435Z AUTO 07005KT 10SM CLR 20/16 A3018 RMK AO2KTME2018-10-19T14:35:00Z29.8-95.920.016.070510.030.180119TRUETRUEVFRMETAR51.02018-10-19 14:46:23[¥)#5    3KTNU 191435Z AUTO 20010G18KT 4SM HZ BKN048 BKN060 10/08 A3000 RMK AO2 PWINOKTNU2018-10-19T14:35:00Z41.67-93.0210.08.020010184.030.0TRUETRUETRUEHZMVFRMETAR290.02018-10-19 14:46:23Q¥)5    3KTPF 191435Z AUTO 05004KT 10SM SCT016 SCT022 BKN110 27/24 A3021 RMK AO2KTPF2018-10-19T14:35:00Z27.92-82.4527.024.050410.030.209646TRUETRUEVFRMETAR3.02018-10-19 14:46:23G¥(5   3KTWM 191435Z AUTO 23015G24KT 10SM CLR 12/06 A2960 RMK AO2KTWM2018-10-19T14:35:00Z47.03-91.7512.06.0230152410.029.601377TRUETRUEVFRMETAR328.02018-10-19 14:46:23 7_@¥!(y5    3KSYM 191435Z AUTO 16004KT 10SM CLR 10/04 A3029 RMK AO2KSYM2018-10-19T14:35:00Z38.22-83.5810.04.0160410.030.28937TRUETRUEVFRMETAR313.02018-10-19 14:46:23N¥ )5    3KTEW 191435Z AUTO 22006KT 10SM CLR 10/M01 A3011 RMK AO2 T01031007KTEW2018-10-19T14:35:00Z42.57-84.4210.3-0.7220610.030.109253TRUETRUEVFRMETAR280.02018-10-19 14:46:23R¥)5   3KTKC 191435Z AUTO 24018G23KT 10SM CLR 13/09 A2983 RMK AO2 T01310090KTKC2018-10-19T14:35:00Z44.25-95.6213.19.0240182310.029.828741TRUETRUEVFRMETAR408.02018-10-19 14:46:23C¥(}5     3KTKX 191435Z AUTO 23005KT 2SM HZ CLR 14/07 A3026 RMK AO2KTKX2018-10-19T14:35:00Z36.22-90.0214.07.023052.030.259842TRUETRUEHZIFRMETAR80.02018-10-19 14:46:23 |!N|L¥%) 5     3KSOW 191435Z AUTO 01005KT M1/4SM FG OVC001 03/03 A3034 RMK AO2KSOW2018-10-19T14:35:00Z34.27-110.03.03.01050.2530.339567TRUETRUEFGLIFRMETAR1954.02018-10-19 14:46:23M¥$) 5    3KSRR 191435Z AUTO 25003KT 10SM FEW004 SCT009 07/07 A3036 RMK AO2KSRR2018-10-19T14:35:00Z33.47-105.527.07.0250310.030.360237TRUETRUEVFRMETAR2076.02018-10-19 14:46:23g¥#)55      3KSTE 191435Z AUTO 21007KT 10SM -DZ BKN027 OVC075 09/06 A2989 RMK AO2 P0001 T00860063KSTE2018-10-19T14:35:00Z44.55-89.538.66.3210710.029.890747TRUETRUE-DZMVFR0.01METAR338.02018-10-19 14:46:23l¥")A5     3KSWO 191435Z 19007KT 10SM OVC005 13/11 A3023 RMK AO2 RAE1359 CIG 004V009 P0000 T01280111 $KSWO2018-10-19T14:35:00Z36.17-97.0812.811.1190710.030.230314TRUETRUEIFR0.005METAR290.02018-10-19 14:46:23 ;wD¥)(5    3KSEM 191435Z AUTO 09005KT 10SM OVC012 20/15 A3026 RMK AO2KSEM2018-10-19T14:35:00Z32.35-86.9820.015.090510.030.259842TRUETRUEMVFRMETAR51.02018-10-19 14:46:23S¥()5   3KSHL 191435Z AUTO 22011G19KT 10SM BKN009 BKN013 11/11 A2989 RMK AO2KSHL2018-10-19T14:35:00Z43.22-95.8211.011.0220111910.029.890747TRUETRUEIFRMETAR432.02018-10-19 14:46:23>¥'(y5    3KSMS 191435Z AUTO VRB04KT 10SM CLR 17/11 A3037 RMK AO2KSMS2018-10-19T14:35:00Z34.0-80.3717.011.00410.030.369095TRUETRUEVFRMETAR56.02018-10-19 14:46:23?¥&({5    3KSNC 191435Z AUTO VRB06KT 10SM CLR 10/M00 A3023 RMK AO2KSNC2018-10-19T14:35:00Z41.38-72.510.00.00610.030.230314TRUETRUEVFRMETAR127.02018-10-19 14:46:23 3l?¥-(y5    3KM40 191435Z AUTO 00000KT 10SM CLR 15/14 A3028 RMK AO2KM402018-10-19T14:35:00Z33.87-88.4815.014.00010.030.280512TRUETRUEVFRMETAR69.02018-10-19 14:46:23G¥,(5     3KS33 191435Z AUTO 13006KT 5SM HZ CLR 01/M04 A3034 RMK AO2KS332018-10-19T14:35:00Z44.67-121.151.0-4.013065.030.339567TRUETRUEHZMVFRMETAR743.02018-10-19 14:46:23A¥+(y5    3KSAZ 191435Z AUTO 30010KT 10SM CLR 10/05 A2974 RMK AO2KSAZ2018-10-19T14:35:00Z46.37-94.810.05.03001010.029.740158TRUETRUEVFRMETAR392.02018-10-19 14:46:23G¥*(5    3KSDA 191435Z AUTO 21013KT 10SM OVC029 13/11 A3005 RMK AO2KSDA2018-10-19T14:35:00Z40.75-95.4213.011.02101310.030.050198TRUETRUEMVFRMETAR296.02018-10-19 14:46:23 1f@¥1(y5    3KL08 191435Z AUTO 00000KT 10SM CLR 11/01 A3004 RMK AO2KL082018-10-19T14:35:00Z33.27-116.3211.01.00010.030.041338TRUETRUEVFRSPECI159.02018-10-19 14:46:23T¥0)5   3KLDM 191435Z AUTO 22013G22KT 10SM SCT120 13/07 A2996 RMK AO2 T01250071KLDM2018-10-19T14:35:00Z43.97-86.412.57.1220132210.029.958662TRUETRUEVFRMETAR197.02018-10-19 14:46:23E¥/(5    3KLRJ 191435Z AUTO 22013KT 10SM SCT014 12/10 A2991 RMK AO2KLRJ2018-10-19T14:35:00Z42.77-96.212.010.02201310.029.911417TRUETRUEVFRSPECI365.02018-10-19 14:46:23I¥.) 5    3KM21 191435Z AUTO 00000KT 10SM CLR 09/05 A3028 RMK AO2 T00880045KM212018-10-19T14:35:00Z37.22-87.158.84.50010.030.280512TRUETRUEVFRMETAR129.02018-10-19 14:46:23 9h[¥5)!5    3KISQ 191435Z AUTO 21012G22KT 10SM -RA OVC085 08/05 A2977 RMK AO2 T00810053KISQ2018-10-19T14:35:00Z45.97-86.178.15.3210122210.029.769686TRUETRUE-RAVFRMETAR209.02018-10-19 14:46:23>¥4(w5    3KJVW 191435Z AUTO 11003KT 9SM CLR 18/13 A3024 RMK AO2KJVW2018-10-19T14:35:00Z32.3-90.4218.013.011039.030.239174TRUETRUEVFRMETAR76.02018-10-19 14:46:23K¥3) 5     3KJZI 191435Z AUTO 01007KT 6SM HZ CLR 21/16 A3032 RMK AO2 PWINOKJZI2018-10-19T14:35:00Z32.7-80.021.016.01076.030.318897TRUETRUETRUEHZVFRMETAR6.02018-10-19 14:46:23A¥2(y5    3KKY8 191435Z AUTO 17005KT 10SM CLR 11/06 A3026 RMK A01KKY82018-10-19T14:35:00Z37.95-86.8711.06.0170510.030.259842TRUETRUEVFRMETAR126.02018-10-19 14:46:23 !Ig>¥9(y5    3KHZL 191435Z AUTO 00000KT 10SM CLR 11/00 A3028 RMK AO2KHZL2018-10-19T14:35:00Z40.98-76.011.00.00010.030.280512TRUETRUEVFRMETAR489.02018-10-19 14:46:23\¥8)'5   3KI75 191435Z AUTO 21010G16KT 10SM SCT021 OVC034 13/08 A3004 RMK AO2 T01270082KI752018-10-19T14:35:00Z41.05-93.6812.78.2210101610.030.041338TRUETRUEVFRSPECI339.02018-10-19 14:46:23R¥7)5   3KICL 191435Z AUTO 21011G16KT 9SM SCT021 OVC027 12/10 A3008 RMK AO2KICL2018-10-19T14:35:00Z40.72-95.0212.010.021011169.030.079725TRUETRUEMVFRMETAR303.02018-10-19 14:46:23Y¥6)!5   3KIKV 191435Z AUTO 21011G18KT 10SM SCT041 BKN050 OVC070 12/08 A3001 RMK AO2KIKV2018-10-19T14:35:00Z41.68-93.5712.08.0210111810.030.008858TRUETRUEVFRMETAR275.02018-10-19 14:46:23 .\>¥=(w5    3KHEG 191435Z AUTO 03010KT 8SM CLR 27/22 A3027 RMK AO2KHEG2018-10-19T14:35:00Z30.28-81.827.022.030108.030.268702TRUETRUEVFRMETAR27.02018-10-19 14:46:23S¥<)5   3KHNR 191435Z AUTO 22014G20KT 10SM SCT016 SCT034 13/11 A2999 RMK AO2KHNR2018-10-19T14:35:00Z41.58-95.3313.011.0220142010.029.991142TRUETRUEVFRMETAR375.02018-10-19 14:46:23L¥;)5   3KHPT 191435Z AUTO 21013G17KT 10SM OVC030 10/09 A2994 RMK AO2KHPT2018-10-19T14:35:00Z42.58-93.2310.09.0210131710.029.940945TRUETRUEMVFRMETAR358.02018-10-19 14:46:23L¥:)5     3KHZE 191435Z AUTO 31011KT 10SM CLR 09/03 A3013 RMK AO2 TSNOKHZE2018-10-19T14:35:00Z47.28-101.589.03.03101110.030.129921TRUETRUETRUEVFRMETAR553.02018-10-19 14:46:23 4]>¥A(y5    3KGPC 191435Z AUTO 00000KT 10SM CLR 08/01 A3024 RMK AO2KGPC2018-10-19T14:35:00Z39.63-86.828.01.00010.030.239174TRUETRUEVFRMETAR257.02018-10-19 14:46:23>¥@(w5  3KGWR 191435Z AUTO 32006G15KT 10SM 09/03 A2991 RMK A01KGWR2018-10-19T14:35:00Z46.22-97.659.03.032061510.029.911417TRUETRUESPECI386.02018-10-19 14:46:23Q¥?)5   3KGYL 191435Z AUTO 21009G16KT 10SM CLR 14/09 A2979 RMK AO2 T01350086KGYL2018-10-19T14:35:00Z44.77-94.0813.58.621091610.029.790354TRUETRUEVFRMETAR302.02018-10-19 14:46:23F¥>(5   3KHCO 191435Z AUTO 31014G19KT 10SM CLR 09/02 A2983 RMK AO2KHCO2018-10-19T14:35:00Z48.75-96.939.02.0310141910.029.828741TRUETRUEVFRMETAR250.02018-10-19 14:46:23 *]T¥E)5   3KFXY 191435Z AUTO 22013G18KT 10SM BKN011 OVC016 11/11 A2990 RMK AO2KFXY2018-10-19T14:35:00Z43.23-93.6211.011.0220131810.029.899607TRUETRUEMVFRMETAR375.02018-10-19 14:46:23O¥D)5    3KGCD 191435Z AUTO 12006KT 10SM CLR 05/M01 A3036 RMK AO2 T00461012KGCD2018-10-19T14:35:00Z44.38-118.974.6-1.2120610.030.360237TRUETRUEVFRMETAR1127.02018-10-19 14:46:23G¥C(5   3KGHW 191435Z AUTO 28014G23KT 10SM CLR 10/07 A2979 RMK AO2KGHW2018-10-19T14:35:00Z45.63-95.3210.07.0280142310.029.790354TRUETRUEVFRMETAR425.02018-10-19 14:46:23P¥B)5    3KGNT 191435Z AUTO 32006KT 10SM OVC023 06/03 A3040 RMK AO2 T00560031KGNT2018-10-19T14:35:00Z35.17-107.95.63.1320610.030.398623TRUETRUEMVFRSPECI1987.02018-10-19 14:46:23 ;tO¥I) 5     3KFFL 191435Z AUTO 20007KT 10SM OVC050 11/05 A3006 RMK AO2 PWINOKFFL2018-10-19T14:35:00Z41.03-91.9711.05.0200710.030.059055TRUETRUETRUEVFRMETAR244.02018-10-19 14:46:23E¥H(5   3KFFM 191435Z AUTO 34013G19KT 10SM CLR 08/03 A2985 RMK AO2KFFM2018-10-19T14:35:00Z46.28-96.158.03.0340131910.029.84941TRUETRUEVFRMETAR361.02018-10-19 14:46:23A¥G(y5    3KFMH 191435Z AUTO 26015KT 10SM CLR 12/03 A3022 RMK AO2KFMH2018-10-19T14:35:00Z41.63-70.5212.03.02601510.030.221457TRUETRUEVFRMETAR40.02018-10-19 14:46:23?¥F(y5    3KFRH 191435Z AUTO 19004KT 10SM CLR 08/00 A3026 RMK AO1KFRH2018-10-19T14:35:00Z38.5-86.638.00.0190410.030.259842TRUETRUEVFRMETAR241.02018-10-19 14:46:23 *Pb¥M)75     3KEFT 191435Z AUTO 20010KT 10SM -DZ SCT037 SCT060 BKN085 07/04 A3002 RMK AO2 T00720040KEFT2018-10-19T14:35:00Z42.62-89.67.24.02001010.030.02067TRUETRUE-DZVFRMETAR331.02018-10-19 14:46:23E¥L(5   3KELO 191435Z AUTO 25009G14KT 10SM CLR 11/06 A2958 RMK AO2KELO2018-10-19T14:35:00Z47.82-91.8211.06.025091410.029.58071TRUETRUEVFRMETAR443.02018-10-19 14:46:23T¥K)5   3KERY 191435Z AUTO 21018G25KT 10SM BKN110 11/07 A2973 RMK AO2 T01080070KERY2018-10-19T14:35:00Z46.3-85.4510.87.0210182510.029.731298TRUETRUEVFRMETAR265.02018-10-19 14:46:23P¥J)5   3KEVM 191435Z AUTO 26009G15KT 10SM CLR 11/07 A2962 RMK AO2 T01110066KEVM2018-10-19T14:35:00Z47.42-92.511.16.626091510.029.619095TRUETRUEVFRMETAR421.02018-10-19 14:46:23 Qb¥Q)55    3KDEH 191435Z AUTO 21008G18KT 170V230 6SM BR FEW009 SCT031 SCT037 09/09 A2992 RMK AO2KDEH2018-10-19T14:35:00Z43.27-91.729.09.02108186.029.920275TRUETRUEBRVFRMETAR353.02018-10-19 14:46:23D¥P(5    3KDNA 191435Z AUTO 02005KT 10SM BKN055 12/09 A3027 RMK AO2KDNA2018-10-19T14:35:00Z31.88-106.712.09.020510.030.268702TRUETRUEVFRMETAR1253.02018-10-19 14:46:23H¥O(5   3KDNS 191435Z AUTO 22012G21KT 10SM CLR 13/10 A2999 RMK AO2KDNS2018-10-19T14:35:00Z41.97-95.3713.010.0220122110.029.991142TRUETRUEVFRMETAR388.02018-10-19 14:46:23[¥N)5      3KEDC 191435Z AUTO 01006KT 3SM -RA BKN015 BKN065 15/15 A3020 RMK AO2 P0002KEDC2018-10-19T14:35:00Z30.4-97.5715.015.01063.030.200787TRUETRUE-RAMVFR0.02METAR189.02018-10-19 14:46:23 (YU¥U)5   3KD25 191435Z AUTO 22009G21KT 10SM OVC017 10/09 A2970 RMK AO2 T01020086KD252018-10-19T14:35:00Z46.12-89.8810.28.622092110.029.698818TRUETRUEMVFRSPECI491.02018-10-19 14:46:23C¥T({5    3KD50 191435Z AUTO 29012KT 10SM CLR 05/M02 A3016 RMK AO2KD502018-10-19T14:35:00Z48.93-103.35.0-2.02901210.030.159449TRUETRUEVFRMETAR595.02018-10-19 14:46:23I¥S)5   3KD60 191435Z AUTO 30012G18KT 10SM CLR 04/M01 A3016 RMK AO2KD602018-10-19T14:35:00Z48.38-102.94.0-1.0300121810.030.159449TRUETRUEVFRMETAR693.02018-10-19 14:46:23R¥R)5   3KD95 191435Z AUTO 26010G16KT 10SM CLR 13/01 A3007 RMK AO2 T01280010KD952018-10-19T14:35:00Z43.07-83.2712.81.0260101610.030.070866TRUETRUEVFRMETAR255.02018-10-19 14:46:23  ON¥Y) 5    3KCNC 191435Z AUTO 22015KT 10SM BKN027 OVC037 12/08 A3004 RMK AO2KCNC2018-10-19T14:35:00Z41.02-93.3712.08.02201510.030.041338TRUETRUEMVFRMETAR320.02018-10-19 14:46:23@¥X(y5    3KCOQ 191435Z AUTO 23010KT 10SM CLR 12/06 A2966 RMK AO2KCOQ2018-10-19T14:35:00Z46.7-92.512.06.02301010.029.660433TRUETRUEVFRMETAR390.02018-10-19 14:46:23K¥W)5     3KCPT 191435Z AUTO 02004KT 9SM -DZ OVC018 14/14 A3025 RMK AO2KCPT2018-10-19T14:35:00Z32.35-97.4314.014.02049.030.250984TRUETRUE-DZMVFRMETAR260.02018-10-19 14:46:23Z¥V)!5   3KCSQ 191435Z AUTO 23015G23KT 10SM FEW016 BKN024 OVC029 12/09 A3005 RMK AO2KCSQ2018-10-19T14:35:00Z41.02-94.3712.09.0230152310.030.050198TRUETRUEMVFRSPECI394.02018-10-19 14:46:23 9r@¥](y5    3KCKI 191435Z AUTO 07003KT 10SM CLR 17/11 A3035 RMK AO2KCKI2018-10-19T14:35:00Z33.72-79.8517.011.070310.030.351377TRUETRUEVFRMETAR21.02018-10-19 14:46:23I¥\)5     3KCLS 191435Z AUTO 00000KT 1/4SM FG OVC004 07/07 A3028 RMK AO2KCLS2018-10-19T14:35:00Z46.68-122.987.07.0000.2530.280512TRUETRUEFGLIFRMETAR54.02018-10-19 14:46:23A¥[(y5    3KCLW 191435Z AUTO 10007KT 10SM CLR 26/23 A3021 RMK AO2KCLW2018-10-19T14:35:00Z27.98-82.7526.023.0100710.030.209646TRUETRUEVFRMETAR22.02018-10-19 14:46:23A¥Z({5    3KCMR 191435Z AUTO 14004KT 10SM CLR 03/M02 A3029 RMK AO2KCMR2018-10-19T14:35:00Z35.3-112.23.0-2.0140410.030.28937TRUETRUEVFRMETAR2036.02018-10-19 14:46:23 2lK¥a) 5    3KCFJ 191435Z AUTO 21007KT 10SM CLR 08/02 A3023 RMK AO2 T00810024KCFJ2018-10-19T14:35:00Z39.98-86.928.12.4210710.030.230314TRUETRUEVFRMETAR244.02018-10-19 14:46:23Q¥`)5   3KCFS 191435Z AUTO 22009G19KT 10SM CLR 11/02 A3003 RMK AO2 T01060020KCFS2018-10-19T14:35:00Z43.47-83.4510.62.022091910.030.029528TRUETRUEVFRMETAR214.02018-10-19 14:46:23@¥_(y5    3KCGC 191435Z AUTO 10005KT 10SM CLR 28/23 A3022 RMK AO2KCGC2018-10-19T14:35:00Z28.87-82.5728.023.0100510.030.221457TRUETRUEVFRMETAR3.02018-10-19 14:46:23H¥^(5   3KCIN 191435Z AUTO 22017G24KT 10SM CLR 13/11 A2996 RMK AO2KCIN2018-10-19T14:35:00Z42.03-94.7713.011.0220172410.029.958662TRUETRUEVFRMETAR375.02018-10-19 14:46:23 9tF¥e(5   3KCBK 191435Z AUTO 31013G17KT 10SM CLR 09/04 A3015 RMK AO2KCBK2018-10-19T14:35:00Z39.43-101.059.04.0310131710.030.15059TRUETRUEVFRMETAR971.02018-10-19 14:46:23R¥d)5    3KCCY 191435Z AUTO 21012KT 7SM BKN006 BKN009 OVC014 10/09 A2993 RMK AO2KCCY2018-10-19T14:35:00Z43.07-92.6210.09.0210127.029.929134TRUETRUEIFRMETAR343.02018-10-19 14:46:23?¥c(y5    3KCDN 191435Z AUTO 08005KT 10SM CLR 15/08 A3037 RMK AO2KCDN2018-10-19T14:35:00Z34.28-80.5715.08.080510.030.369095TRUETRUEVFRMETAR92.02018-10-19 14:46:23A¥b(y5    3KCEY 191435Z AUTO 20003KT 10SM CLR 13/07 A3027 RMK AO1KCEY2018-10-19T14:35:00Z36.67-88.3713.07.0200310.030.268702TRUETRUEVFRMETAR176.02018-10-19 14:46:23 3jP¥i)5    3KCAD 191435Z AUTO 23015KT 10SM SCT120 10/06 A2994 RMK AO2 T01070064KCAD2018-10-19T14:35:00Z44.27-85.4210.76.42301510.029.940945TRUETRUEVFRMETAR398.02018-10-19 14:46:23P¥h) 5     3KCAV 191435Z AUTO 21017KT 10SM OVC046 11/09 A2993 RMK AO2 PWINOKCAV2018-10-19T14:35:00Z42.75-93.7711.09.02101710.029.929134TRUETRUETRUEVFRMETAR354.02018-10-19 14:46:23C¥g(5   3KCBF 191435Z AUTO 22015G23KT 10SM CLR 13/11 A3000 RMK AO2KCBF2018-10-19T14:35:00Z41.27-95.7713.011.0220152310.030.0TRUETRUEVFRSPECI382.02018-10-19 14:46:23G¥f(5   3KCBG 191435Z AUTO 22010G17KT 10SM CLR 14/06 A2974 RMK AO2KCBG2018-10-19T14:35:00Z45.57-93.2714.06.0220101710.029.740158TRUETRUEVFRMETAR287.02018-10-19 14:46:23 8kR¥m)5     3KBKN 191435Z AUTO 18009KT 6SM -RA BKN006 OVC041 12/12 A3024 RMK AO2KBKN2018-10-19T14:35:00Z36.75-97.3512.012.018096.030.239174TRUETRUE-RAIFRMETAR314.02018-10-19 14:46:23O¥l)5    3KBNW 191435Z AUTO 21010KT 180V240 10SM OVC034 11/10 A2996 RMK AO2KBNW2018-10-19T14:35:00Z42.03-93.8311.010.02101010.029.958662TRUETRUEVFRMETAR354.02018-10-19 14:46:23G¥k(5   3KBVU 191435Z AUTO 03010G15KT 10SM CLR 17/00 A3023 RMK AO2KBVU2018-10-19T14:35:00Z35.95-114.8717.00.030101510.030.230314TRUETRUEVFRMETAR671.02018-10-19 14:46:23B¥j({5    3KBWW 191435Z AUTO 32015KT 10SM CLR 07/M00 A3009 RMK AO2KBWW2018-10-19T14:35:00Z46.17-103.37.00.03201510.030.088583TRUETRUEVFRMETAR910.02018-10-19 14:46:23 3MR¥q) 5     3KAXA 191435Z AUTO 22015KT 10SM OVC012 11/10 A2990 RMK AO2 PWINOKAXA2018-10-19T14:35:00Z43.07-94.2711.010.02201510.029.899607TRUETRUETRUEMVFRMETAR372.02018-10-19 14:46:23A¥p(y5    3KBAC 191435Z AUTO 31013KT 10SM CLR 08/02 A2993 RMK AO2KBAC2018-10-19T14:35:00Z46.93-98.028.02.03101310.029.929134TRUETRUEVFRMETAR427.02018-10-19 14:46:23`¥o)15    3KBCK 191435Z AUTO 21010KT 110V230 10SM SCT039 OVC049 10/10 A2986 RMK AO2 T01030101KBCK2018-10-19T14:35:00Z44.25-90.8510.310.12101010.029.861221TRUETRUEVFRMETAR255.02018-10-19 14:46:23G¥n(5   3KBDH 191435Z AUTO 26011G17KT 10SM CLR 11/08 A2982 RMK AO2KBDH2018-10-19T14:35:00Z45.12-95.1311.08.0260111710.029.819881TRUETRUEVFRMETAR247.02018-10-19 14:46:23 1aH¥u)5     3KAQX 191435Z AUTO VRB03KT 10SM CLR 18/12 A3033 RMK AO2 TSNOKAQX2018-10-19T14:35:00Z32.98-81.2718.012.00310.030.33071TRUETRUETRUEVFRMETAR49.02018-10-19 14:46:23U¥t)5     3KATS 191435Z AUTO 00000KT 5SM BR SCT006 BKN018 BKN080 09/09 A3031 RMK AO2KATS2018-10-19T14:35:00Z32.85-104.479.09.0005.030.31004TRUETRUEBRMVFRMETAR1081.02018-10-19 14:46:23J¥s)5   3KAUM 191435Z AUTO 23010G15KT 10SM OVC009 09/08 A2989 RMK AO2KAUM2018-10-19T14:35:00Z43.67-92.929.08.0230101510.029.890747TRUETRUEIFRMETAR375.02018-10-19 14:46:23I¥r)5     3KAWG 191435Z AUTO 20011KT 6SM HZ BKN055 11/07 A3006 RMK AO2KAWG2018-10-19T14:35:00Z41.27-91.6711.07.0200116.030.059055TRUETRUEHZVFRMETAR230.02018-10-19 14:46:23 8LqD¥y(5    3KADU 191435Z AUTO 21011KT 10SM BKN031 12/09 A2999 RMK AO2KADU2018-10-19T14:35:00Z41.7-94.9212.09.02101110.029.991142TRUETRUEVFRMETAR392.02018-10-19 14:46:23U¥x)5   3KAEJ 191435Z AUTO 33014G22KT 10SM CLR 05/M03 A3043 RMK AO2 T00461026KAEJ2018-10-19T14:35:00Z38.82-106.124.6-2.6330142210.030.431103TRUETRUEVFRMETAR2422.02018-10-19 14:46:23f¥w)15     3KAIG 191435Z AUTO 23016G19KT 1 3/4SM RA OVC009 08/08 A2983 RMK AO2 P0004 T00800078KAIG2018-10-19T14:35:00Z45.15-89.128.07.823016191.7529.828741TRUETRUERAIFR0.04METAR464.02018-10-19 14:46:23B¥v(5    3KAIO 191435Z AUTO 21016KT 10SM OVC030 12/11 A3000 RMK AO2KAIO2018-10-19T14:35:00Z41.38-95.0312.011.02101610.030.0TRUETRUEMVFRMETAR360.02018-10-19 14:46:23 '>y'F¥~(5   3K6B9 191435Z AUTO 20008G13KT 10SM CLR 10/04 A3012 RMK AO2K6B92018-10-19T14:35:00Z42.92-76.4310.04.020081310.030.121063TRUETRUEVFRMETAR316.02018-10-19 14:46:23>¥}(y5    3K6L4 191435Z AUTO 00000KT 10SM CLR 10/05 A3029 RMK AO2K6L42018-10-19T14:35:00Z37.85-81.9210.05.00010.030.28937TRUETRUEVFRMETAR508.02018-10-19 14:46:23<¥|(q5   3K7L2 191435Z AUTO 31011KT 10SM 10/02 A3007 RMK AO2K7L22018-10-19T14:35:00Z46.22-100.2510.02.03101110.030.070866TRUETRUEMETAR543.02018-10-19 14:46:23?¥{(w5  3K96D 191435Z AUTO 31019G27KT 10SM 09/10 A2987 RMK AO2K96D2018-10-19T14:35:00Z48.93-97.99.010.0310192710.029.870079TRUETRUEMETAR290.02018-10-19 14:46:23<¥z(u5     3K9D7 191435Z AUTO 30012KT 10SM CLR 08/ A2996 RMK AO2K9D72018-10-19T14:35:00Z48.48-99.238.03001210.029.958662TRUETRUEVFRMETAR452.02018-10-19 14:46:23 :oF¦(5   3K46D 191435Z AUTO 31020G25KT 10SM CLR 08/01 A2999 RMK AO2K46D2018-10-19T14:35:00Z47.45-99.158.01.0310202510.029.991142TRUETRUEVFRMETAR490.02018-10-19 14:46:23?¦(y5    3K4A6 191435Z AUTO 00000KT 10SM CLR 13/11 A3032 RMK AO2K4A62018-10-19T14:35:00Z34.68-86.013.011.00010.030.318897TRUETRUEVFRMETAR198.02018-10-19 14:46:23E¦)5     3K4M9 191435Z AUTO 00000KT 9SM CLR 10/08 A3029 RMK AO2 PWINOK4M92018-10-19T14:35:00Z36.4-90.6510.08.0009.030.28937TRUETRUETRUEVFRMETAR90.02018-10-19 14:46:23@¥(y5    3K5H4 191435Z AUTO 31017KT 10SM CLR 08/01 A3002 RMK AO2K5H42018-10-19T14:35:00Z47.78-99.938.01.03101710.030.02067TRUETRUEVFRMETAR490.02018-10-19 14:46:23 /^B¦(5    3K24J 191435Z AUTO 03004KT 10SM OVC060 24/21 A3026 RMK A01K24J2018-10-19T14:35:00Z30.3-83.0324.021.030410.030.259842TRUETRUEVFRMETAR32.02018-10-19 14:46:23L¦)5     3K2D5 191435Z AUTO 32015KT 10SM CLR 09/03 A2994 RMK AO2 PWINOK2D52018-10-19T14:35:00Z46.17-98.089.03.03201510.029.940945TRUETRUETRUEVFRMETAR407.02018-10-19 14:46:23K¦) 5    3K2I0 191435Z AUTO 20004KT 10SM CLR 10/07 A3026 RMK AO2 T01000067K2I02018-10-19T14:35:00Z37.35-87.410.06.7200410.030.259842TRUETRUEVFRMETAR134.02018-10-19 14:46:23K¦)5     3K42J 191435Z AUTO 06007KT 9SM FEW016 26/23 A3024 RMK A01 TSNOK42J2018-10-19T14:35:00Z29.85-82.0526.023.06079.030.239174TRUETRUETRUEVFRMETAR60.02018-10-19 14:46:23 6fI¦ )5   3K06D 191435Z AUTO 32020G28KT 10SM CLR 08/M01 A2996 RMK AO2K06D2018-10-19T14:35:00Z48.88-99.628.0-1.0320202810.029.958662TRUETRUEVFRMETAR556.02018-10-19 14:46:23H¦ )5   3K08D 191435Z AUTO 31013G21KT 10SM CLR 06/M01 A3013 RMK AO2K08D2018-10-19T14:35:00Z48.3-102.46.0-1.0310132110.030.129921TRUETRUEVFRMETAR684.02018-10-19 14:46:23J¦) 5     3K0S9 191435Z AUTO 00000KT M1/4SM FG OVC001 01/01 A3028 RMK AO2K0S92018-10-19T14:35:00Z48.05-122.821.01.0000.2530.280512TRUETRUEFGLIFRMETAR33.02018-10-19 14:46:23D¦({5    3K20U 191435Z AUTO 31012KT 10SM CLR 07/M01 A3023 RMK AO2K20U2018-10-19T14:35:00Z46.93-103.987.0-1.03101210.030.230314TRUETRUEVFRMETAR840.02018-10-19 14:46:23  _J¦) 5    3KVDF 191435Z AUTO 00000KT 10SM SCT010 BKN014 28/23 A3022 RMK AO2KVDF2018-10-19T14:35:00Z28.02-82.3328.023.00010.030.221457TRUETRUEMVFRSPECI7.02018-10-19 14:46:23:¦ ({5   3YLEC 191435Z AUTO 20022G34KT //// // ////// 16/08 Q1014YLEC2018-10-19T14:35:00Z-30.6138.4316.08.0200223429.940945TRUESPECI262.02018-10-19 14:46:23f¦ )C5   3YMAV 191435Z AUTO 27015G25KT 9999 // NCD 21/10 Q1006 RF00.0/000.0 PRESENT WEATHER SENSOR USYMAV2018-10-19T14:35:00Z-38.03144.4821.010.027015256.2129.704725TRUEVFRSPECI8.02018-10-19 14:46:23o¦ )15       3PATE 191435Z AUTO 09011KT 1/2SM -SN FZFG OVC002 M01/M01 A2967 RMK AO2 P0000 FZRANOPATE2018-10-19T14:35:00Z65.23-166.33-1.0-1.090110.529.66929TRUETRUETRUE-SN FZFGLIFR0.005METAR90.02018-10-19 14:46:23 :r\¦)/5    3KSVC 191435Z AUTO 00000KT 10SM SCT033 BKN039 BKN047 10/08 A3028 RMK AO2 T00960080KSVC2018-10-19T14:35:00Z32.63-108.159.68.00010.030.280512TRUETRUEVFRMETAR1659.02018-10-19 14:46:23D¦({5    3KSVE 191435Z AUTO 27004KT 10SM CLR 00/M05 A3036 RMK AO2KSVE2018-10-19T14:35:00Z40.37-120.570.0-5.0270410.030.360237TRUETRUEVFRMETAR1263.02018-10-19 14:46:23B¦(y5    3KTVY 191435Z AUTO 18005KT 10SM CLR 04/01 A3041 RMK AO2KTVY2018-10-19T14:35:00Z40.62-112.354.01.0180510.030.410433TRUETRUEVFRMETAR1317.02018-10-19 14:46:23@¦({5    3KUTA 191435Z AUTO 00000KT 10SM 11/08 A3027 RMK AO2 TSNOKUTA2018-10-19T14:35:00Z34.68-90.3511.08.00010.030.268702TRUETRUETRUESPECI59.02018-10-19 14:46:23 ;VxR¦)5   3KRNH 191435Z AUTO 22015G20KT 10SM CLR 11/08 A2977 RMK AO2 T01120075KRNH2018-10-19T14:35:00Z45.15-92.5311.27.5220152010.029.769686TRUETRUEVFRMETAR304.02018-10-19 14:46:23X¦)5   3KRPD 191435Z AUTO 21011G17KT 10SM BKN025 12/M01 A2977 RMK AO2 T01231008KRPD2018-10-19T14:35:00Z45.42-91.7712.3-0.8210111710.029.769686TRUETRUEMVFRMETAR338.02018-10-19 14:46:23_¦)-5     3KRYV 191435Z AUTO 21008G14KT 10SM -RA OVC090 08/06 A3000 RMK AO2 P0004 T00760063KRYV2018-10-19T14:35:00Z43.17-88.727.66.321081410.030.0TRUETRUE-RAVFR0.04METAR254.02018-10-19 14:46:23?¦(y5    3KSIK 191435Z AUTO 22003KT 10SM CLR 12/06 A3028 RMK AO2KSIK2018-10-19T14:35:00Z36.9-89.5712.06.0220310.030.280512TRUETRUEVFRSPECI96.02018-10-19 14:46:23 2aQ¦)5   3KOGS 191435Z AUTO 21015G21KT 10SM CLR 12/05 A2999 RMK AO2 T01150050KOGS2018-10-19T14:35:00Z44.67-75.4711.55.0210152110.029.991142TRUETRUEVFRMETAR91.02018-10-19 14:46:23K¦) 5    3KPSO 191435Z AUTO 00000KT 10SM CLR 03/03 A3041 RMK AO2 T00310026KPSO2018-10-19T14:35:00Z37.28-107.053.12.60010.030.410433TRUETRUEVFRMETAR2334.02018-10-19 14:46:23g¦)35      3KPTS 191435Z AUTO 20010KT 5SM -RA BKN006 OVC021 12/12 A3022 RMK AO2 P0002 T01190118KPTS2018-10-19T14:35:00Z37.45-94.7311.911.8200105.030.221457TRUETRUE-RAIFR0.02SPECI290.02018-10-19 14:46:23[¦)'5   3KRCX 191435Z AUTO 19012G19KT 10SM BKN015 OVC020 11/09 A2977 RMK AO2 T01100090KRCX2018-10-19T14:35:00Z45.5-91.011.09.0190121910.029.769686TRUETRUEMVFRMETAR377.02018-10-19 14:46:23 ;lK¦)5     3KDVO 191435Z AUTO 34003KT M1/4SM FG VV000 06/06 A3014 RMK AO2KDVO2018-10-19T14:35:00Z38.15-122.556.06.034030.2530.138779TRUETRUEFGLIFR0METAR1.02018-10-19 14:46:23^¦)/5    3KE11 191435Z AUTO 00000KT 10SM SCT008 SCT012 OVC020 10/10 A3030 RMK AO2 T01000100KE112018-10-19T14:35:00Z32.33-102.5310.010.00010.030.301182TRUETRUEMVFRMETAR967.02018-10-19 14:46:23I¦)5     3KMBO 191435Z AUTO 00000KT 10SM CLR 18/12 A3024 RMK AO2 PWINOKMBO2018-10-19T14:35:00Z32.43-90.118.012.00010.030.239174TRUETRUETRUEVFRSPECI99.02018-10-19 14:46:23?¦(y5    3KMNI 191435Z AUTO 07004KT 10SM CLR 16/09 A3034 RMK AO2KMNI2018-10-19T14:35:00Z33.58-80.2216.09.070410.030.339567TRUETRUEVFRSPECI32.02018-10-19 14:46:23 5dQ¦")5     3KCVB 191435Z AUTO 00000KT 2SM DZ OVC007 17/17 A3020 RMK AO2 T01690169KCVB2018-10-19T14:35:00Z29.35-98.8516.916.9002.030.200787TRUETRUEDZIFRMETAR235.02018-10-19 14:46:23K¦!) 5    3KCXE 191435Z AUTO 16005KT 10SM CLR 13/07 A3037 RMK AO1 T01300070KCXE2018-10-19T14:35:00Z36.78-78.513.07.0160510.030.369095TRUETRUEVFRSPECI153.02018-10-19 14:46:23Z¦ )+5    3KDED 191435Z AUTO 06008KT 030V090 10SM SCT028 BKN037 BKN070 26/22 A3023 RMK AO2KDED2018-10-19T14:35:00Z29.07-81.2826.022.060810.030.230314TRUETRUEVFRSPECI24.02018-10-19 14:46:23e¦)+5      3KDUC 191435Z AUTO 18005KT 5SM -RA BR OVC005 12/12 A3027 RMK AO2 P0002 T01230120KDUC2018-10-19T14:35:00Z34.47-97.9712.312.018055.030.268702TRUETRUE-RA BRIFR0.02SPECI339.02018-10-19 14:46:23 0\h¦&);5     3KCHK 191435Z AUTO 19005KT 10SM BKN011 BKN040 OVC048 12/12 A3022 RMK AO2 P0001 T01230115KCHK2018-10-19T14:35:00Z35.1-97.9712.311.5190510.030.221457TRUETRUEMVFR0.01SPECI351.02018-10-19 14:46:23I¦%) 5    3KCJR 191435Z AUTO 00000KT 10SM CLR 11/05 A3036 RMK AO2 T01050053KCJR2018-10-19T14:35:00Z38.53-77.8710.55.30010.030.360237TRUETRUEVFRSPECI97.02018-10-19 14:46:23N¦$)5    3KCTJ 191435Z AUTO 00000KT 10SM OVC021 14/10 A3037 RMK AO2 T01410097KCTJ2018-10-19T14:35:00Z33.63-85.1514.19.70010.030.369095TRUETRUEMVFRSPECI354.02018-10-19 14:46:23J¦#) 5    3KCTY 191435Z AUTO 07009KT 10SM CLR 27/22 A3024 RMK AO2 T02710223KCTY2018-10-19T14:35:00Z29.63-83.127.122.370910.030.239174TRUETRUEVFRSPECI13.02018-10-19 14:46:23 ._^¦*)-5    3KBPG 191435Z AUTO 32003KT 7SM BKN004 BKN025 OVC034 11/10 A3030 RMK AO2 T01060100KBPG2018-10-19T14:35:00Z32.22-101.5210.610.032037.030.301182TRUETRUELIFRMETAR784.02018-10-19 14:46:23G¦)) 5    3KBVN 191435Z AUTO 27005KT 10SM CLR 11/09 A3000 RMK AO2 T01140091KBVN2018-10-19T14:35:00Z41.73-98.0511.49.1270510.030.0TRUETRUEVFRMETAR551.02018-10-19 14:46:23I¦() 5     3KBVS 191435Z AUTO 00000KT M1/4SM FG OVC002 06/06 A3029 RMK A01KBVS2018-10-19T14:35:00Z48.47-122.426.06.0000.2530.28937TRUETRUEFGLIFRMETAR43.02018-10-19 14:46:23L¦') 5    3KCFD 191435Z AUTO 03003KT 10SM CLR 17/15 A3020 RMK AO2 T01660150KCFD2018-10-19T14:35:00Z30.72-96.3316.615.030310.030.200787TRUETRUEVFRMETAR112.02018-10-19 14:46:23 /\J¦.)5     3KBBD 191435Z AUTO 34007KT 4SM BR OVC003 12/12 A3025 RMK AO2KBBD2018-10-19T14:35:00Z31.18-99.3212.012.034074.030.250984TRUETRUEBRLIFRMETAR557.02018-10-19 14:46:23N¦-) 5    3KBIE 191435Z AUTO 23015KT 10SM CLR 15/10 A3005 RMK AO2 T01450100KBIE2018-10-19T14:35:00Z40.28-96.7514.510.02301510.030.050198TRUETRUEVFRMETAR403.02018-10-19 14:46:23M¦,)5    3KBKS 191435Z AUTO 33007KT 3SM OVC003 18/16 A3013 RMK AO1 T01750161KBKS2018-10-19T14:35:00Z27.2-98.1217.516.133073.030.129921TRUETRUELIFRMETAR34.02018-10-19 14:46:23K¦+) 5    3KBMT 191435Z AUTO 07005KT 10SM CLR 23/15 A3018 RMK AO2 T02250149KBMT2018-10-19T14:35:00Z30.07-94.2222.514.970510.030.180119TRUETRUEVFRMETAR10.02018-10-19 14:46:23 6_C¦2(5    3KAQR 191435Z AUTO 00000KT 10SM OVC025 12/11 A3028 RMK AO2KAQR2018-10-19T14:35:00Z34.4-96.1512.011.00010.030.280512TRUETRUEMVFRSPECI189.02018-10-19 14:46:23K¦1) 5    3KASL 191435Z AUTO 09003KT 10SM CLR 14/10 A3025 RMK AO1 T01410101KASL2018-10-19T14:35:00Z32.52-94.314.110.190310.030.250984TRUETRUEVFRMETAR109.02018-10-19 14:46:23Q¦0)5   3KAUH 191435Z AUTO 25010G18KT 10SM CLR 12/10 A3005 RMK AO2 T01150096KAUH2018-10-19T14:35:00Z40.88-98.011.59.6250101810.030.050198TRUETRUEVFRMETAR550.02018-10-19 14:46:23D¦/({5    3KAUN 191435Z AUTO 10005KT 10SM CLR 13/M01 A3016 RMK A01KAUN2018-10-19T14:35:00Z38.95-121.0813.0-1.0100510.030.159449TRUETRUEVFRMETAR467.02018-10-19 14:46:23 !IqT¦6)5   3KAFK 191435Z AUTO 22011G14KT 10SM OVC035 14/10 A3005 RMK AO2 T01350099KAFK2018-10-19T14:35:00Z40.6-95.8513.59.9220111410.030.050198TRUETRUEVFRMETAR354.02018-10-19 14:46:23R¦5)5   3KAHQ 191435Z AUTO 23011G20KT 10SM CLR 14/10 A3001 RMK AO2 T01350101KAHQ2018-10-19T14:35:00Z41.23-96.613.510.1230112010.030.008858TRUETRUEVFRMETAR374.02018-10-19 14:46:23R¦4)5   3KANW 191435Z AUTO 31016G21KT 10SM CLR 11/03 A3006 RMK AO2 T01060033KANW2018-10-19T14:35:00Z42.57-100.010.63.3310162110.030.059055TRUETRUEVFRMETAR789.02018-10-19 14:46:23Y¦3)5    3KAPY 191435Z AUTO 32009G14KT 3SM BR OVC004 15/15 A3017 RMK AO2 T01500147KAPY2018-10-19T14:35:00Z26.97-99.2515.014.73209143.030.171259TRUETRUEBRLIFRMETAR129.02018-10-19 14:46:23 /TP¦:)5    3KT20 191435Z AUTO 01005KT 10SM OVC013 18/18 A3016 RMK AO2 T01800180KT202018-10-19T14:35:00Z29.52-97.4718.018.010510.030.159449TRUETRUEMVFRMETAR108.02018-10-19 14:46:23N¦9) 5      3K1F0 191435Z AUTO 00000KT 12/11 A3026 RMK AO2 P0003 PWINO TSNOK1F02018-10-19T14:35:00Z34.15-97.1212.011.00030.259842TRUETRUETRUETRUE0.03SPECI257.02018-10-19 14:46:23U¦8)5   3K1K1 191435Z AUTO 22009G17KT 10SM OVC007 11/10 A3018 RMK AO2 T01100102K1K12018-10-19T14:35:00Z37.77-97.1211.010.222091710.030.180119TRUETRUEIFRSPECI416.02018-10-19 14:46:23K¦7) 5    3K3F3 191435Z AUTO 09003KT 10SM CLR 17/13 A3027 RMK AO2 T01700125K3F32018-10-19T14:35:00Z32.07-93.7717.012.590310.030.268702TRUETRUEVFRSPECI96.02018-10-19 14:46:23 -Y\¦>)/5    3KRWV 191435Z AUTO 02004KT 10SM SCT044 SCT050 SCT120 17/14 A3019 RMK AO2 T01730145KRWV2018-10-19T14:35:00Z30.52-96.717.314.520410.030.188976TRUETRUEVFRMETAR119.02018-10-19 14:46:23N¦=)5    3KSBS 191435Z AUTO 00000KT 10SM CLR M02/M02 A3046 RMK AO1 T10231023KSBS2018-10-19T14:35:00Z40.52-106.87-2.3-2.30010.030.46063TRUETRUEVFRMETAR2096.02018-10-19 14:46:23N¦<)5    3KSJS 191435Z AUTO 19005KT 10SM SCT002 07/06 A3030 RMK AO2 T00700061KSJS2018-10-19T14:35:00Z37.75-82.637.06.1190510.030.301182TRUETRUEVFRSPECI372.02018-10-19 14:46:23M¦;)5     3KSOA 191435Z AUTO 36004KT 7SM -RA OVC003 12/12 A3028 RMK AO2KSOA2018-10-19T14:35:00Z30.58-100.6512.012.036047.030.280512TRUETRUE-RALIFRMETAR652.02018-10-19 14:46:23 ,\U¦B)!5    3KRAS 191435Z AUTO 36008KT 10SM SCT043 OVC050 21/21 A3012 RMK AO2 T02140208KRAS2018-10-19T14:35:00Z27.82-97.0821.420.8360810.030.121063TRUETRUEVFRMETAR2.02018-10-19 14:46:23S¦A)5     3KRLD 191435Z AUTO 00000KT 1/2SM FG VV005 01/01 A3035 RMK AO2 T00120012KRLD2018-10-19T14:35:00Z46.3-119.31.21.2000.530.351377TRUETRUEFGLIFR500METAR120.02018-10-19 14:46:23J¦@) 5    3KRMN 191435Z AUTO 16003KT 10SM CLR 13/08 A3039 RMK AO2 T01270075KRMN2018-10-19T14:35:00Z38.4-77.4512.77.5160310.030.389763TRUETRUEVFRSPECI65.02018-10-19 14:46:23N¦?)5    3KRPJ 191435Z AUTO 20009KT 10SM OVC100 09/02 A3009 RMK AO2 T00850023KRPJ2018-10-19T14:35:00Z41.88-89.088.52.3200910.030.088583TRUETRUEVFRMETAR238.02018-10-19 14:46:23 HdM¦F)5    3KPRG 191435Z AUTO 20009KT 10SM SCT120 09/03 A3023 RMK AO2 T00880028KPRG2018-10-19T14:35:00Z39.7-87.678.82.8200910.030.230314TRUETRUEVFRMETAR199.02018-10-19 14:46:23^¦E)-5     3KPSN 191435Z AUTO 00000KT 10SM SCT038 OVC046 15/12 A3023 RMK AO2 P0001 T01530128KPSN2018-10-19T14:35:00Z31.78-95.715.312.80010.030.230314TRUETRUEVFR0.01METAR129.02018-10-19 14:46:23P¦D)5    3KPVW 191435Z AUTO 24006KT 10SM OVC085 09/08 A3026 RMK AO2 T00850084KPVW2018-10-19T14:35:00Z34.17-101.728.58.4240610.030.259842TRUETRUEVFRMETAR1028.02018-10-19 14:46:23\¦C)/5    3KPXE 191435Z AUTO 05006KT 10SM SCT020 BKN035 OVC042 15/12 A3033 RMK AO2 T01500124KPXE2018-10-19T14:35:00Z32.52-83.7715.012.450610.030.33071TRUETRUEVFRSPECI127.02018-10-19 14:46:23 +bL¦J) 5     3KPLU 191435Z AUTO 00000KT M1/4SM -DZ OVC002 05/05 A3028 RMK AO2KPLU2018-10-19T14:35:00Z47.1-122.285.05.0000.2530.280512TRUETRUE-DZLIFRMETAR164.02018-10-19 14:46:23>¦I(y5    3KPMU 191435Z AUTO 00000KT 10SM CLR 13/10 A3027 RMK AO2KPMU2018-10-19T14:35:00Z34.37-89.913.010.00010.030.268702TRUETRUEVFRSPECI67.02018-10-19 14:46:23C¦H({5    3KPOY 191435Z AUTO 29006KT 10SM CLR 07/M06 A3034 RMK AO2KPOY2018-10-19T14:35:00Z44.87-108.87.0-6.0290610.030.339567TRUETRUEVFRMETAR1552.02018-10-19 14:46:23O¦G)5    3KPPQ 191435Z AUTO 20009KT 10SM OVC060 11/04 A3018 RMK AO2 T01100042KPPQ2018-10-19T14:35:00Z39.63-90.7811.04.2200910.030.180119TRUETRUEVFRMETAR216.02018-10-19 14:46:23 /]?¦N(y5    3KOKV 191435Z AUTO 23003KT 10SM CLR 09/03 A3033 RMK AO2KOKV2018-10-19T14:35:00Z39.13-78.159.03.0230310.030.33071TRUETRUEVFRSPECI222.02018-10-19 14:46:23R¦M)5   3KONL 191435Z AUTO 29011G15KT 10SM CLR 13/06 A2999 RMK AO2 T01300062KONL2018-10-19T14:35:00Z42.47-98.6713.06.2290111510.029.991142TRUETRUEVFRMETAR619.02018-10-19 14:46:23L¦L) 5    3KONM 191435Z AUTO 01007KT 10SM CLR 10/06 A3032 RMK AO2 T01020062KONM2018-10-19T14:35:00Z34.02-106.910.26.210710.030.318897TRUETRUEVFRMETAR1410.02018-10-19 14:46:23K¦K) 5    3KPBX 191435Z AUTO 14003KT 10SM CLR 06/06 A3030 RMK AO2 T00610061KPBX2018-10-19T14:35:00Z37.57-82.576.16.1140310.030.301182TRUETRUEVFRSPECI449.02018-10-19 14:46:23 -]J¦R) 5    3KMKJ 191435Z AUTO 00000KT 10SM CLR 13/08 A3036 RMK AO2 T01270081KMKJ2018-10-19T14:35:00Z36.88-81.3312.78.10010.030.360237TRUETRUEVFRSPECI780.02018-10-19 14:46:23Q¦Q)5   3KMLE 191435Z AUTO 23010G15KT 10SM CLR 15/11 A3002 RMK AO2 T01460108KMLE2018-10-19T14:35:00Z41.2-96.1214.610.8230101510.030.02067TRUETRUEVFRMETAR320.02018-10-19 14:46:23J¦P) 5    3KMWO 191435Z AUTO 23005KT 10SM CLR 07/04 A3028 RMK AO2 T00740035KMWO2018-10-19T14:35:00Z39.53-84.47.43.5230510.030.280512TRUETRUEVFRMETAR198.02018-10-19 14:46:23M¦O) 5    3KOGA 191435Z AUTO 32018KT 10SM CLR 12/02 A3015 RMK AO2 T01160020KOGA2018-10-19T14:35:00Z41.12-101.7711.62.03201810.030.15059TRUETRUEVFRMETAR999.02018-10-19 14:46:23 0X<¦V(y5    3KLUA 191435Z AUTO 00000KT 10SM CLR 07/06 A3033 RMK AO2KLUA2018-10-19T14:35:00Z38.67-78.57.06.00010.030.33071TRUETRUEVFRSPECI275.02018-10-19 14:46:23>¦U(}5    3KLVL 191435Z AUTO 10SM CLR 13/08 A3038 RMK AO1 T01300084KLVL2018-10-19T14:35:00Z36.78-77.813.08.410.030.380905TRUETRUEVFRSPECI100.02018-10-19 14:46:23R¦T)5   3KLXN 191435Z AUTO 30010G15KT 10SM CLR 10/07 A3008 RMK AO2 T01010067KLXN2018-10-19T14:35:00Z40.78-99.7710.16.7300101510.030.079725TRUETRUEVFRMETAR734.02018-10-19 14:46:23J¦S) 5    3KM30 191435Z AUTO 00000KT 10SM CLR 12/06 A3028 RMK AO2 T01150055KM302018-10-19T14:35:00Z37.18-88.7511.55.50010.030.280512TRUETRUEVFRMETAR117.02018-10-19 14:46:23 &S?¦Z(y5    3KJYO 191435Z AUTO 00000KT 10SM CLR 11/06 A3035 RMK AO2KJYO2018-10-19T14:35:00Z39.07-77.5711.06.00010.030.351377TRUETRUEVFRSPECI119.02018-10-19 14:46:23F¦Y(5   3KJYR 191435Z AUTO 24016G19KT 10SM CLR 12/09 A3004 RMK AO2KJYR2018-10-19T14:35:00Z40.9-97.6212.09.0240161910.030.041338TRUETRUEVFRMETAR509.02018-10-19 14:46:23M¦X) 5    3KLCG 191435Z AUTO 24012KT 10SM CLR 12/09 A2995 RMK AO2 T01190094KLCG2018-10-19T14:35:00Z42.25-96.9811.99.42401210.029.949802TRUETRUEVFRMETAR436.02018-10-19 14:46:23T¦W)5    3KLKU 191435Z AUTO 19007KT 150V220 10SM CLR 12/07 A3039 RMK AO2 T01240066KLKU2018-10-19T14:35:00Z38.02-77.9712.46.6190710.030.389763TRUETRUEVFRSPECI150.02018-10-19 14:46:23 <sN¦^) 5    3KIBM 191435Z AUTO 31013KT 10SM CLR 10/00 A3027 RMK AO2 T00970000KIBM2018-10-19T14:35:00Z41.18-103.689.70.03101310.030.268702TRUETRUEVFRMETAR1501.02018-10-19 14:46:23O¦])5     3KJCA 191435Z AUTO 09004KT 5SM HZ CLR 14/09 A3036 RMK AO2 T01440093KJCA2018-10-19T14:35:00Z34.18-83.5714.49.39045.030.360237TRUETRUEHZMVFRSPECI290.02018-10-19 14:46:23C¦\(5    3KJDD 191435Z AUTO 00000KT 10SM OVC028 14/11 A3024 RMK AO2KJDD2018-10-19T14:35:00Z32.75-95.514.011.00010.030.239174TRUETRUEMVFRMETAR132.02018-10-19 14:46:23>¦[(y5    3KJGG 191435Z AUTO 00000KT 10SM CLR 14/04 A3039 RMK AO1KJGG2018-10-19T14:35:00Z37.23-76.7214.04.00010.030.389763TRUETRUEVFRSPECI15.02018-10-19 14:46:23Y8(8@HPX`hpx (08@HPX`hpx (08@HPX`hpxΕ¥~ϕ¦Е¦ѕ¦ ҕ¦ӕ¦ԕ¦Օ¦֕¦ו¦"ؕ¦&ٕ¦*Ε¥~ϕ¦Е¦ѕ¦ ҕ¦ӕ¦ԕ¦Օ¦֕¦ו¦"ؕ¦&ٕ¦*ڕ¦.ە¦2ܕ¦6ݕ¦:ޕ¦>ߕ¦B¦F¦J¦N¦R¦V¦Z¦^¦b¦f¦j¦n¦r¦v¦z¦~§§§ §§§§§§"§&§*§/§3§7§;§?§D§I§M§Q§U§Y§]§a§e §i §m §q §u §y§}¨¨¨ ¨¨¨¨¨ ¨%¨*¨/¨4¨8¨=¨B¨G¨L ¨Q!¨V"¨[#¨`$¨e%¨j&¨o'¨s .[R¦b)5   3KHJH 191435Z AUTO 24012G19KT 10SM CLR 13/09 A3007 RMK AO2 T01330094KHJH2018-10-19T14:35:00Z40.15-97.5813.39.4240121910.030.070866TRUETRUEVFRMETAR447.02018-10-19 14:46:23J¦a) 5    3KHLX 191435Z AUTO 20005KT 10SM CLR 10/05 A3033 RMK AO2 T00980052KHLX2018-10-19T14:35:00Z36.77-80.829.85.2200510.030.33071TRUETRUEVFRSPECI834.02018-10-19 14:46:23M¦`) 5    3KHQG 191435Z AUTO 30010KT 10SM CLR 09/07 A3019 RMK AO2 T00900069KHQG2018-10-19T14:35:00Z37.17-101.379.06.93001010.030.188976TRUETRUEVFRSPECI956.02018-10-19 14:46:23L¦_) 5    3KHWY 191435Z AUTO 17004KT 10SM CLR 11/05 A3034 RMK AO2 T01090045KHWY2018-10-19T14:35:00Z38.58-77.7210.94.5170410.030.339567TRUETRUEVFRSPECI103.02018-10-19 14:46:23 /AhR¦f)5    3KGOP 191435Z AUTO 32003KT 7SM SCT004 SCT007 OVC014 14/14 A3025 RMK AO2KGOP2018-10-19T14:35:00Z31.42-97.814.014.032037.030.250984TRUETRUEMVFRMETAR276.02018-10-19 14:46:23S¦e)5   3KGRN 191435Z AUTO 32014G18KT 10SM CLR 10/01 A3019 RMK AO2 T01000009KGRN2018-10-19T14:35:00Z42.8-102.1710.00.9320141810.030.188976TRUETRUEVFRMETAR1086.02018-10-19 14:46:23h¦d)/5       3KGYI 191435Z AUTO 06003KT 7SM -DZ OVC021 12/11 A3027 RMK AO2 P0001 T01200111 TSNOKGYI2018-10-19T14:35:00Z33.72-96.6712.011.16037.030.268702TRUETRUETRUE-DZMVFR0.01METAR228.02018-10-19 14:46:23K¦c) 5    3KHDE 191435Z AUTO 26008KT 10SM CLR 10/08 A3007 RMK AO2 T00950084KHDE2018-10-19T14:35:00Z40.45-99.329.58.4260810.030.070866TRUETRUEVFRMETAR705.02018-10-19 14:46:23 -X^¦j))5   3KSYN 191435Z AUTO 23016G25KT 210V310 10SM OVC018 12/09 A2980 RMK AO2 T01200090KSYN2018-10-19T14:35:00Z44.47-93.0212.09.0230162510.029.799213TRUETRUEMVFRMETAR280.02018-10-19 14:46:23N¦i)5    3KFOA 191435Z AUTO 19003KT 10SM OVC110 09/05 A3025 RMK AO2 T00850054KFOA2018-10-19T14:35:00Z38.67-88.458.55.4190310.030.250984TRUETRUEVFRMETAR144.02018-10-19 14:46:23O¦h)5    3KFZG 191435Z AUTO 07004KT 10SM OVC050 20/14 A3032 RMK AO2 T01980141KFZG2018-10-19T14:35:00Z31.68-83.2719.814.170410.030.318897TRUETRUEVFRSPECI111.02018-10-19 14:46:23M¦g)5   3KGHG 191435Z AUTO 24007G16KT 210V270 10SM CLR 10/M00 A3020 RMK AO2KGHG2018-10-19T14:35:00Z42.1-70.6710.00.024071610.030.200787TRUETRUEVFRMETAR4.02018-10-19 14:46:23 VD¦n(5   3KFGN 191435Z AUTO 31014G19KT 10SM CLR 07/01 A2971 RMK AO2KFGN2018-10-19T14:35:00Z49.32-94.97.01.0310141910.029.71063TRUETRUEVFRMETAR328.02018-10-19 14:46:23@¦m(y5    3KI23 191435Z AUTO 21009KT 10SM CLR 09/01 A3027 RMK AO1KI232018-10-19T14:35:00Z39.57-83.429.01.0210910.030.268702TRUETRUEVFRMETAR299.02018-10-19 14:46:23A¦l(y5    3KIMS 191435Z AUTO 19004KT 10SM CLR 11/03 A3027 RMK AO1KIMS2018-10-19T14:35:00Z38.75-85.4711.03.0190410.030.268702TRUETRUEVFRMETAR250.02018-10-19 14:46:23]¦k)'5   3KSGS 191435Z AUTO 22013G17KT 10SM BKN020 BKN090 13/09 A2979 RMK AO2 T01260088KSGS2018-10-19T14:35:00Z44.87-93.0312.68.8220131710.029.790354TRUETRUEMVFRMETAR250.02018-10-19 14:46:23 )XG¦r) 5    3KW99 191435Z AUTO 00000KT 10SM CLR 05/04 A3031 RMK AO2 T00520038KW992018-10-19T14:35:00Z39.0-79.155.23.80010.030.31004TRUETRUEVFRMETAR293.02018-10-19 14:46:239¦q(o5   3KXIH 191435Z AUTO 10018KT 8SM 26/23 A3013 RMK A01KXIH2018-10-19T14:35:00Z29.18-94.5226.023.0100188.030.129921TRUETRUESPECI75.02018-10-19 14:46:23K¦p) 5    3KCDI 191435Z AUTO 19004KT 10SM CLR 08/03 A3028 RMK AO2 T00800031KCDI2018-10-19T14:35:00Z39.97-81.588.03.1190410.030.280512TRUETRUEVFRMETAR244.02018-10-19 14:46:23Q¦o)5   3KD39 191435Z AUTO 27014G21KT 10SM CLR 11/07 A2976 RMK AO2 T01080066KD392018-10-19T14:35:00Z45.7-94.9310.86.6270142110.029.760826TRUETRUEVFRMETAR380.02018-10-19 14:46:23 /XA¦v(y5    3KVKY 191435Z AUTO 14008KT 10SM CLR 28/24 A3021 RMK A01KVKY2018-10-19T14:35:00Z29.25-88.4328.024.0140810.030.209646TRUETRUEVFRSPECI32.02018-10-19 14:46:23@¦u(w5    3KVOA 191435Z AUTO 10012KT 9SM CLR 31/25 A3019 RMK A01KVOA2018-10-19T14:35:00Z29.23-87.7831.025.0100129.030.188976TRUETRUEVFRSPECI53.02018-10-19 14:46:23Q¦t)5    3KVQT 191435Z AUTO 12020KT 8SM SCT023 SCT031 BKN040 29/25 A3015 RMK A01KVQT2018-10-19T14:35:00Z28.27-92.2729.025.0120208.030.15059TRUETRUEVFRMETAR25.02018-10-19 14:46:23K¦s) 5    3KW81 191435Z AUTO 18004KT 10SM CLR 13/06 A3036 RMK AO1 T01290061KW812018-10-19T14:35:00Z37.18-78.112.96.1180410.030.360237TRUETRUEVFRSPECI129.02018-10-19 14:46:23 0`K¦z) 5    3K5A6 191435Z AUTO 00000KT 10SM CLR 16/10 A3026 RMK AO2 T01620103K5A62018-10-19T14:35:00Z33.47-89.7316.210.30010.030.259842TRUETRUEVFRMETAR111.02018-10-19 14:46:23N¦y) 5     3K5C1 191435Z AUTO 36003KT 2SM OVC004 14/14 A3021 RMK AO1 P0002K5C12018-10-19T14:35:00Z29.72-98.714.014.036032.030.209646TRUETRUELIFR0.02METAR423.02018-10-19 14:46:23J¦x) 5    3K5M9 191435Z AUTO 00000KT 10SM CLR 11/03 A3027 RMK AO2 T01100031K5M92018-10-19T14:35:00Z37.33-88.1211.03.10010.030.268702TRUETRUEVFRMETAR199.02018-10-19 14:46:23J¦w) 5    3KVBW 191435Z AUTO 11003KT 10SM CLR 08/05 A3031 RMK AO2 T00780047KVBW2018-10-19T14:35:00Z38.37-78.977.84.7110310.030.31004TRUETRUEVFRSPECI355.02018-10-19 14:46:23 3bJ¦~) 5    3K11R 191435Z AUTO 00000KT 10SM CLR 19/16 A3018 RMK AO2 T01890159K11R2018-10-19T14:35:00Z30.22-96.3718.915.90010.030.180119TRUETRUEVFRMETAR94.02018-10-19 14:46:23\¦})/5    3K2J3 191435Z AUTO 07005KT 10SM BKN032 BKN042 OVC050 16/09 A3034 RMK AO2 T01600090K2J32018-10-19T14:35:00Z32.98-82.3816.09.070510.030.339567TRUETRUEVFRMETAR100.02018-10-19 14:46:23K¦|)5   3K3AU 191435Z AUTO 20009G15KT 10SM OVC005 11/11 A3018 RMK AO2K3AU2018-10-19T14:35:00Z37.67-97.0811.011.020091510.030.180119TRUETRUEIFRMETAR405.02018-10-19 14:46:23G¦{(5   3K3K3 191435Z AUTO 28010G15KT 10SM CLR 07/05 A3021 RMK AO2K3K32018-10-19T14:35:00Z38.0-101.757.05.0280101510.030.209646TRUETRUEVFRMETAR1013.02018-10-19 14:46:23 -Qg?§(y5    3KOYM 191435Z AUTO 25008KT 10SM CLR 06/00 A3027 RMK AO2KOYM2018-10-19T14:35:00Z41.42-78.56.00.0250810.030.268702TRUETRUEVFRMETAR590.02018-10-19 14:46:23d§)-5      3KOZA 191435Z AUTO 36004KT 10SM DZ SCT005 SCT010 OVC019 12/11 A3028 RMK AO2 P0001KOZA2018-10-19T14:35:00Z30.73-101.212.011.0360410.030.280512TRUETRUEDZMVFR0.01METAR726.02018-10-19 14:46:23V§)!5    3KPEQ 191435Z AUTO 00000KT 10SM SCT008 OVC028 10/09 A3030 RMK AO2 T01020086KPEQ2018-10-19T14:35:00Z31.38-103.5210.28.60010.030.301182TRUETRUEMVFRMETAR797.02018-10-19 14:46:23M¦)5    3K06C 191435Z AUTO 22005KT 10SM SCT120 08/01 A3008 RMK AO2 T00810012K06C2018-10-19T14:35:00Z41.98-88.18.11.2220510.030.079725TRUETRUEVFRMETAR244.02018-10-19 14:46:23 9jJ§) 5    3KOPL 191435Z AUTO 08005KT 10SM CLR 21/14 A3021 RMK AO2 T02140140KOPL2018-10-19T14:35:00Z30.55-92.121.414.080510.030.209646TRUETRUEVFRMETAR23.02018-10-19 14:46:23E§(5    3KOPN 191435Z AUTO 12005KT 10SM OVC013 14/08 A3035 RMK AO2KOPN2018-10-19T14:35:00Z32.95-84.2714.08.0120510.030.351377TRUETRUEMVFRMETAR243.02018-10-19 14:46:23I§) 5    3KORG 191435Z AUTO 08007KT 10SM CLR 22/17 A3020 RMK AO2 T02190173KORG2018-10-19T14:35:00Z30.07-93.821.917.380710.030.200787TRUETRUEVFRMETAR4.02018-10-19 14:46:23A§(y5    3KOWX 191435Z AUTO 22011KT 10SM CLR 08/01 A3022 RMK AO1KOWX2018-10-19T14:35:00Z41.03-83.988.01.02201110.030.221457TRUETRUEVFRMETAR233.02018-10-19 14:46:23 /a?§ (y5    3KLOM 191435Z AUTO 24006KT 10SM CLR 11/01 A3033 RMK AO1KLOM2018-10-19T14:35:00Z40.13-75.2711.01.0240610.030.33071TRUETRUEVFRMETAR92.02018-10-19 14:46:23M§ )5    3KLOT 191435Z AUTO 21011KT 10SM OVC120 09/02 A3011 RMK AO2 T00900019KLOT2018-10-19T14:35:00Z41.6-88.19.01.92101110.030.109253TRUETRUEVFRMETAR205.02018-10-19 14:46:23H§) 5    3KLWB 191435Z AUTO 00000KT 10SM CLR 05/02 A3034 RMK AO2 T00510020KLWB2018-10-19T14:35:00Z37.87-80.45.12.00010.030.339567TRUETRUEVFRMETAR702.02018-10-19 14:46:23K§) 5    3KMZZ 191435Z AUTO 23009KT 10SM CLR 09/04 A3022 RMK AO2 T00850038KMZZ2018-10-19T14:35:00Z40.48-85.688.53.8230910.030.221457TRUETRUEVFRMETAR262.02018-10-19 14:46:23 0]Q§)5    3KJZP 191435Z AUTO 19010KT 10SM CLR 15/05 A3037 RMK AO2 T01460052 PNOKJZP2018-10-19T14:35:00Z34.45-84.4714.65.21901010.030.369095TRUETRUEVFRMETAR468.02018-10-19 14:46:23A§ ({5    3KL35 191435Z AUTO 00000KT 10SM CLR 02/M03 A3031 RMK AO2KL352018-10-19T14:35:00Z34.27-116.852.0-3.00010.030.31004TRUETRUEVFRMETAR2059.02018-10-19 14:46:23M§ )5    3KLNN 191435Z AUTO 21008KT 10SM CLR 09/M01 A3019 RMK AO1 T00881012KLNN2018-10-19T14:35:00Z41.67-81.378.8-1.2210810.030.188976TRUETRUEVFRMETAR191.02018-10-19 14:46:23J§ ) 5    3KLNQ 191435Z AUTO 08005KT 10SM CLR 28/22 A3020 RMK AO2 T02800221KLNQ2018-10-19T14:35:00Z29.35-89.4328.022.180510.030.200787TRUETRUEVFRMETAR1.02018-10-19 14:46:23 ,\J§) 5    3KIYA 191435Z AUTO 09004KT 10SM CLR 22/18 A3020 RMK AO2 T02190181KIYA2018-10-19T14:35:00Z29.98-92.0821.918.190410.030.200787TRUETRUEVFRMETAR5.02018-10-19 14:46:23O§) 5    3KJHN 191435Z AUTO 30012KT 10SM CLR 11/06 A3020 RMK AO2 T01110064KJHN2018-10-19T14:35:00Z37.58-101.7311.16.43001210.030.200787TRUETRUEVFRMETAR1013.02018-10-19 14:46:23J§) 5    3KJKA 191435Z AUTO 08007KT 10SM CLR 25/21 A3022 RMK AO2 T02480206KJKA2018-10-19T14:35:00Z30.28-87.6724.820.680710.030.221457TRUETRUEVFRMETAR5.02018-10-19 14:46:23N§)5    3KJOT 191435Z AUTO 21008KT 10SM OVC120 10/02 A3011 RMK AO2 T00960024KJOT2018-10-19T14:35:00Z41.52-88.189.62.4210810.030.109253TRUETRUEVFRMETAR177.02018-10-19 14:46:23 &PL§) 5    3KHTO 191435Z AUTO 27011KT 10SM CLR 11/01 A3025 RMK AO2 T01100011KHTO2018-10-19T14:35:00Z40.95-72.2511.01.12701110.030.250984TRUETRUEVFRMETAR17.02018-10-19 14:46:23K§) 5    3KI68 191435Z AUTO 18007KT 10SM CLR 08/04 A3026 RMK AO1 T00820040KI682018-10-19T14:35:00Z39.47-84.258.24.0180710.030.259842TRUETRUEVFRMETAR274.02018-10-19 14:46:23P§)5    3KIDP 191435Z AUTO 18009KT 10SM OVC006 11/11 A3022 RMK AO2 T01120107KIDP2018-10-19T14:35:00Z37.17-95.7811.210.7180910.030.221457TRUETRUEIFRMETAR251.02018-10-19 14:46:23T§)5   3KIKK 191435Z AUTO 22011G18KT 10SM SCT120 10/01 A3017 RMK AO2 T00990011KIKK2018-10-19T14:35:00Z41.07-87.859.91.1220111810.030.171259TRUETRUEVFRMETAR192.02018-10-19 14:46:23 +bA§(y5    3KF70 191435Z AUTO 01004KT 10SM CLR 11/03 A3006 RMK AO1KF702018-10-19T14:35:00Z33.57-117.1311.03.010410.030.059055TRUETRUEVFRMETAR412.02018-10-19 14:46:23I§) 5    3KFKN 191435Z AUTO 15003KT 10SM CLR 14/05 A3039 RMK AO2 T01400053KFKN2018-10-19T14:35:00Z36.7-76.914.05.3150310.030.389763TRUETRUEVFRSPECI12.02018-10-19 14:46:23C§(}5    3KHCR 191435Z AUTO 00000KT 10SM CLR M01/M01 A3046 RMK AO2KHCR2018-10-19T14:35:00Z40.48-111.43-1.0-1.00010.030.46063TRUETRUEVFRMETAR1706.02018-10-19 14:46:23O§)5    3KHHW 191435Z AUTO 09003KT 10SM OVC025 14/07 A3026 RMK AO2 T01420073KHHW2018-10-19T14:35:00Z34.03-95.5514.27.390310.030.259842TRUETRUEMVFRMETAR144.02018-10-19 14:46:23 -[V§)#5    3KEFK 191435Z AUTO 19009KT 160V220 10SM SCT034 06/00 A3001 RMK AO2 T00640000KEFK2018-10-19T14:35:00Z44.88-72.236.40.0190910.030.008858TRUETRUEVFRMETAR284.02018-10-19 14:46:23L§)5    3KELA 191435Z AUTO 07005KT 10SM SCT120 20/17 A3015 RMK AO2 T01950169KELA2018-10-19T14:35:00Z29.6-96.3219.516.970510.030.15059TRUETRUEVFRMETAR56.02018-10-19 14:46:23j§)?5      3KETN 191435Z AUTO 00000KT 5SM BR BKN003 BKN009 OVC018 12/12 A3026 RMK AO2 P0001 T01220118KETN2018-10-19T14:35:00Z32.42-98.8212.211.8005.030.259842TRUETRUEBRLIFR0.01METAR446.02018-10-19 14:46:23]§)'5   3KEZZ 191435Z AUTO 21015G22KT 10SM BKN021 OVC027 12/08 A3012 RMK AO2 T01230084KEZZ2018-10-19T14:35:00Z39.72-94.2812.38.4210152210.030.121063TRUETRUEMVFRSPECI317.02018-10-19 14:46:23 ._B§"(y5    3K2M2 191435Z AUTO 16009KT 10SM CLR 15/10 A3027 RMK A01K2M22018-10-19T14:35:00Z35.23-87.2515.010.0160910.030.268702TRUETRUEVFRMETAR286.02018-10-19 14:46:23=§!(y5    3K3L4 191435Z AUTO 08005KT 10SM CLR 22/18 A3018 RMK A01K3L42018-10-19T14:35:00Z29.8-92.822.018.080510.030.180119TRUETRUEVFRMETAR2.02018-10-19 14:46:23I§ )5    3K3S8 191435Z AUTO 00000KT 10SM FEW055 FEW065 02/M00 A3028 RMK AO2K3S82018-10-19T14:35:00Z42.5-123.42.00.00010.030.280512TRUETRUEVFRMETAR343.02018-10-19 14:46:23L§) 5    3K40J 191435Z AUTO 10006KT 10SM CLR 26/21 A3026 RMK AO2 T02640213K40J2018-10-19T14:35:00Z30.07-83.5726.421.3100610.030.259842TRUETRUEVFRMETAR13.02018-10-19 14:46:23 7p@§&(y5    3K1M5 191435Z AUTO 19009KT 10SM CLR 14/08 A3026 RMK A01K1M52018-10-19T14:35:00Z36.6-86.4814.08.0190910.030.259842TRUETRUEVFRMETAR250.02018-10-19 14:46:23J§%)5   3K21D 191435Z AUTO 21014G17KT 10SM SCT022 12/09 A2979 RMK AO2K21D2018-10-19T14:35:00Z45.0-92.8512.09.0210141710.029.790354TRUETRUEVFRMETAR285.02018-10-19 14:46:23A§$(}5    3K2A0 191435Z AUTO 00000KT 9SM BKN004 11/10 A3033 RMK A01K2A02018-10-19T14:35:00Z35.48-84.9311.010.0009.030.33071TRUETRUELIFRMETAR219.02018-10-19 14:46:23C§#(5   3K2LS 191435Z AUTO VRB05G12KT 10SM CLR 25/21 A3021 RMK AO2K2LS2018-10-19T14:35:00Z29.42-90.325.021.0051210.030.209646TRUETRUEVFRMETAR-2.02018-10-19 14:46:23 ,YI§*) 5    3K0R4 191435Z AUTO 00000KT 10SM CLR 19/12 A3023 RMK AO2 T01940120K0R42018-10-19T14:35:00Z31.57-91.519.412.00010.030.230314TRUETRUEVFRMETAR17.02018-10-19 14:46:23L§)) 5    3K19S 191435Z AUTO 28006KT 10SM CLR 09/07 A3017 RMK AO2 T00920068K19S2018-10-19T14:35:00Z37.48-100.839.26.8280610.030.171259TRUETRUEVFRMETAR886.02018-10-19 14:46:23M§()5    3K1A6 191435Z AUTO 00000KT 10SM BKN002 06/06 A3035 RMK AO2 T00570057K1A62018-10-19T14:35:00Z36.62-83.735.75.70010.030.351377TRUETRUELIFRMETAR352.02018-10-19 14:46:23N§')5    3K1H2 191435Z AUTO 16004KT 10SM OVC110 08/03 A3026 RMK AO2 T00800031K1H22018-10-19T14:35:00Z39.07-88.538.03.1160410.030.259842TRUETRUEVFRMETAR179.02018-10-19 14:46:23 <xA§/(y5    3KPHT 191435Z AUTO 19004KT 10SM CLR 13/07 A3027 RMK A01KPHT2018-10-19T14:35:00Z36.33-88.3813.07.0190410.030.268702TRUETRUEVFRMETAR177.02018-10-19 14:46:23O§.)5    3KPNT 191435Z AUTO 20013KT 10SM BKN110 11/03 A3015 RMK AO2 T01080030KPNT2018-10-19T14:35:00Z40.92-88.6210.83.02001310.030.15059TRUETRUEVFRMETAR201.02018-10-19 14:46:23C§-(}5    3K05U 191435Z AUTO 21005KT 10SM CLR M02/M07 A3044 RMK A01K05U2018-10-19T14:35:00Z39.6-116.0-2.0-7.0210510.030.43996TRUETRUEVFRMETAR1816.02018-10-19 14:46:23>§,(y5    3K0A9 191435Z AUTO 00000KT 10SM CLR 13/08 A3033 RMK AO2K0A92018-10-19T14:35:00Z36.37-82.1713.08.00010.030.33071TRUETRUEVFRMETAR486.02018-10-19 14:46:23>§+(y5    3K0R0 191435Z AUTO 00000KT 10SM CLR 21/13 A3028 RMK AO2K0R02018-10-19T14:35:00Z31.3-89.8221.013.00010.030.280512TRUETRUEVFRMETAR81.02018-10-19 14:46:23 9qT§3)5    3KOWI 191435Z AUTO 22015KT 10SM FEW014 BKN031 OVC055 13/11 A3015 RMK AO2KOWI2018-10-19T14:35:00Z38.53-95.2513.011.02201510.030.15059TRUETRUEVFRMETAR292.02018-10-19 14:46:23@§2(y5    3KOXI 191435Z AUTO 20009KT 10SM CLR 08/00 A3016 RMK AO1KOXI2018-10-19T14:35:00Z41.33-86.678.00.0200910.030.159449TRUETRUEVFRMETAR209.02018-10-19 14:46:23B§1(y5    3KP08 191435Z AUTO 07009KT 10SM CLR 19/10 A3008 RMK AO2KP082018-10-19T14:35:00Z32.93-111.4319.010.070910.030.079725TRUETRUEVFRMETAR481.02018-10-19 14:46:23A§0(y5    3KPCW 191435Z AUTO 23010KT 10SM CLR 09/01 A3017 RMK AO2KPCW2018-10-19T14:35:00Z41.52-82.879.01.02301010.030.171259TRUETRUEVFRMETAR178.02018-10-19 14:46:23 9eI§7) 5     3KO69 191435Z AUTO 00000KT M1/4SM FG OVC002 08/08 A3014 RMK A01KO692018-10-19T14:35:00Z38.25-122.68.08.0000.2530.138779TRUETRUEFGLIFRMETAR28.02018-10-19 14:46:23^§6)/5    3KOKM 191435Z AUTO 17005KT 10SM BKN006 BKN014 OVC029 12/12 A3026 RMK AO2 T01210121KOKM2018-10-19T14:35:00Z35.67-95.9512.112.1170510.030.259842TRUETRUEIFRMETAR220.02018-10-19 14:46:23N§5)5    3KOLY 191435Z AUTO 18003KT 10SM OVC110 08/05 A3027 RMK AO2 T00770045KOLY2018-10-19T14:35:00Z38.72-88.187.74.5180310.030.268702TRUETRUEVFRMETAR147.02018-10-19 14:46:23A§4(y5    3KOMH 191435Z AUTO 19003KT 10SM CLR 11/06 A3034 RMK AO2KOMH2018-10-19T14:35:00Z38.25-78.0511.06.0190310.030.339567TRUETRUEVFRMETAR142.02018-10-19 14:46:23 9g@§;(y5    3KMRC 191435Z AUTO 00000KT 10SM CLR 11/10 A3027 RMK A01KMRC2018-10-19T14:35:00Z35.55-87.1811.010.00010.030.268702TRUETRUEVFRMETAR208.02018-10-19 14:46:23Y§:))5    3KMRJ 191435Z AUTO 21009G16KT 10SM -RA SCT035 BKN065 OVC075 08/08 A3000 RMK AO2KMRJ2018-10-19T14:35:00Z42.88-90.238.08.021091610.030.0TRUETRUE-RAVFRMETAR359.02018-10-19 14:46:23L§9)5   3KMYZ 191435Z AUTO 24009G14KT 10SM OVC013 12/10 A3009 RMK AO2KMYZ2018-10-19T14:35:00Z39.85-96.6312.010.024091410.030.088583TRUETRUEMVFRMETAR319.02018-10-19 14:46:23A§8({5    3KN38 191435Z AUTO 22013KT 10SM CLR 07/M00 A3020 RMK AO2KN382018-10-19T14:35:00Z41.73-77.47.00.02201310.030.200787TRUETRUEVFRMETAR577.02018-10-19 14:46:23 ;vR§?)5    3KMGR 191435Z AUTO 10003KT 10SM SCT040 BKN046 BKN060 21/15 A3028 RMK AO2KMGR2018-10-19T14:35:00Z31.08-83.821.015.0100310.030.280512TRUETRUEVFRMETAR90.02018-10-19 14:46:23?§>(y5    3KMMI 191435Z AUTO 00000KT 10SM CLR 13/10 A3035 RMK A01KMMI2018-10-19T14:35:00Z35.4-84.5713.010.00010.030.351377TRUETRUEVFRMETAR266.02018-10-19 14:46:23?§=(y5    3KMNV 191435Z AUTO 00000KT 10SM CLR 13/12 A3033 RMK A01KMNV2018-10-19T14:35:00Z35.55-84.3813.012.00010.030.33071TRUETRUEVFRMETAR314.02018-10-19 14:46:23?§<(y5    3KMOR 191435Z AUTO 00000KT 10SM CLR 12/08 A3032 RMK A01KMOR2018-10-19T14:35:00Z36.18-83.3712.08.00010.030.318897TRUETRUEVFRMETAR400.02018-10-19 14:46:23 6kA§D(y5    3KM91 191435Z AUTO 19006KT 10SM CLR 13/08 A3025 RMK A01KM912018-10-19T14:35:00Z36.53-86.9213.08.0190610.030.250984TRUETRUEVFRMETAR215.02018-10-19 14:46:23?§C(y5    3KMBT 191435Z AUTO 00000KT 10SM CLR 14/08 A3027 RMK A01KMBT2018-10-19T14:35:00Z35.88-86.3814.08.00010.030.268702TRUETRUEVFRMETAR188.02018-10-19 14:46:23@§B(}5     3KMCC 191435Z AUTO 00000KT 5SM HZ CLR 09/04 A3015 RMK AO2KMCC2018-10-19T14:35:00Z38.67-121.49.04.0005.030.15059TRUETRUEHZMVFRMETAR23.02018-10-19 14:46:23E§A)5   3KMDD 191435Z AUTO 33003KT 10SM 12/12 A3029 RMK AO2 T01150115KMDD2018-10-19T14:35:00Z32.03-102.111.511.5330310.030.28937TRUETRUEMETAR854.02018-10-19 14:46:23D§@(}5    3KMEV 191435Z AUTO 00000KT 10SM CLR M07/M09 A3037 RMK AO2KMEV2018-10-19T14:35:00Z38.98-119.75-7.0-9.00010.030.369095TRUETRUEVFRMETAR1439.02018-10-19 14:46:23  7r A§I(y5    3KM02 191435Z AUTO 21006KT 10SM CLR 15/09 A3026 RMK A01KM022018-10-19T14:35:00Z36.13-87.4315.09.0210610.030.259842TRUETRUEVFRMETAR272.02018-10-19 14:46:23>§H(y5    3KM04 191435Z AUTO 00000KT 10SM CLR 12/09 A3026 RMK A01KM042018-10-19T14:35:00Z35.58-89.5812.09.00010.030.259842TRUETRUEVFRMETAR85.02018-10-19 14:46:23A§G(y5    3KM08 191435Z AUTO 15003KT 10SM CLR 12/08 A3027 RMK A01KM082018-10-19T14:35:00Z35.22-89.0512.08.0150310.030.268702TRUETRUEVFRMETAR152.02018-10-19 14:46:23?§F(y5    3KM54 191435Z AUTO 00000KT 10SM CLR 12/08 A3026 RMK A01KM542018-10-19T14:35:00Z36.18-86.3212.08.00010.030.259842TRUETRUEVFRMETAR180.02018-10-19 14:46:23C§E({5    3KM75 191435Z AUTO 23006KT 10SM CLR 04/M01 A3030 RMK A01KM752018-10-19T14:35:00Z48.37-107.924.0-1.0230610.030.301182TRUETRUEVFRMETAR687.02018-10-19 14:46:23 +gO§M)5    3KLAM 191435Z AUTO 04004KT 10SM SCT001 03/03 A3039 RMK AO2 T00250025KLAM2018-10-19T14:35:00Z35.87-106.272.52.540410.030.389763TRUETRUEVFRMETAR2179.02018-10-19 14:46:23N§L)5    3KLGC 191435Z AUTO 00000KT 10SM OVC022 17/12 A3032 RMK AO2 T01700122KLGC2018-10-19T14:35:00Z33.0-85.0717.012.20010.030.318897TRUETRUEMVFRMETAR211.02018-10-19 14:46:23>§K(y5    3KLUG 191435Z AUTO 00000KT 10SM CLR 12/09 A3027 RMK A01KLUG2018-10-19T14:35:00Z35.52-86.812.09.00010.030.268702TRUETRUEVFRMETAR219.02018-10-19 14:46:23O§J)5    3KLVN 191435Z AUTO 22007KT 173V263 10SM OVC018 13/10 A2980 RMK AO2KLVN2018-10-19T14:35:00Z44.63-93.2313.010.0220710.029.799213TRUETRUEMVFRMETAR293.02018-10-19 14:46:23 ;wK§Q) 5    3K3N8 191435Z AUTO 32009KT 10SM CLR 08/03 A2981 RMK AO2 T00770025K3N82018-10-19T14:35:00Z47.25-95.887.72.5320910.029.811024TRUETRUEVFRMETAR383.02018-10-19 14:46:23O§P)5    3K54J 191435Z AUTO 11005KT 10SM OVC006 21/19 A3027 RMK AO2 T02070186K54J2018-10-19T14:35:00Z30.73-86.1520.718.6110510.030.268702TRUETRUEIFRMETAR88.02018-10-19 14:46:23>§O(w5    3KJTC 191435Z AUTO 00000KT 7SM CLR 02/01 A3035 RMK AO2KJTC2018-10-19T14:35:00Z34.13-109.322.01.0007.030.351377TRUETRUEVFRMETAR2150.02018-10-19 14:46:23?§N(y5    3KJWN 191435Z AUTO 00000KT 10SM CLR 11/07 A3026 RMK A01KJWN2018-10-19T14:35:00Z36.18-86.8811.07.00010.030.259842TRUETRUEVFRMETAR151.02018-10-19 14:46:23 0YK§U) 5    3K49A 191435Z AUTO 05003KT 10SM CLR 16/09 A3037 RMK AO2 T01630091K49A2018-10-19T14:35:00Z34.63-84.5316.39.150310.030.369095TRUETRUEVFRMETAR453.02018-10-19 14:46:23C§T(5    3K54A 191435Z AUTO 08008KT 10SM FEW017 28/24 A3018 RMK AO2K54A2018-10-19T14:35:00Z26.85-82.2528.024.080810.030.180119TRUETRUEVFRMETAR14.02018-10-19 14:46:23Q§S)5   3K57C 191435Z AUTO 24006G14KT 10SM OVC100 09/02 A3002 RMK AO2 T00900017K57C2018-10-19T14:35:00Z42.8-88.379.01.724061410.030.02067TRUETRUEVFRMETAR262.02018-10-19 14:46:23J§R)5     3K5T9 191435Z AUTO 32008KT 6SM BR OVC005 14/13 A3022 RMK A01K5T92018-10-19T14:35:00Z28.85-100.5214.013.032086.030.221457TRUETRUEBRIFRMETAR270.02018-10-19 14:46:23 8oA§Y(y5    3K6I2 191435Z AUTO 18007KT 10SM CLR 12/04 A3027 RMK AO2K6I22018-10-19T14:35:00Z37.63-85.2512.04.0180710.030.268702TRUETRUEVFRMETAR264.02018-10-19 14:46:23G§X)5    3K6S0 191435Z AUTO 28007KT 10SM OVC110 09/M03 A3036 RMK A01K6S02018-10-19T14:35:00Z45.8-109.979.0-3.0280710.030.360237TRUETRUEVFRMETAR1363.02018-10-19 14:46:23C§W(5    3K8A0 191435Z AUTO 00000KT 10SM BKN013 16/13 A3029 RMK AO2K8A02018-10-19T14:35:00Z34.23-86.2516.013.00010.030.28937TRUETRUEMVFRMETAR315.02018-10-19 14:46:23B§V(5    3K3J7 191435Z AUTO 00000KT 10SM BKN039 16/10 A3032 RMK AO2K3J72018-10-19T14:35:00Z33.6-83.1316.010.00010.030.318897TRUETRUEVFRMETAR206.02018-10-19 14:46:23 3l\§])5      3KADH 191435Z AUTO 15003KT 5SM -RA SCT003 OVC017 11/11 A3027 RMK AO2 P0017KADH2018-10-19T14:35:00Z34.8-96.6711.011.015035.030.268702TRUETRUE-RAMVFR0.17METAR308.02018-10-19 14:46:23P§\)5    3KA08 191435Z AUTO 14005KT 10SM OVC010 19/15 A3026 RMK AO2 T01890150KA082018-10-19T14:35:00Z32.52-87.3818.915.0140510.030.259842TRUETRUEMVFRMETAR69.02018-10-19 14:46:23A§[(y5    3K8A3 191435Z AUTO 21006KT 10SM CLR 14/08 A3027 RMK A01K8A32018-10-19T14:35:00Z36.42-85.3214.08.0210610.030.268702TRUETRUEVFRMETAR419.02018-10-19 14:46:23G§Z)5     3K65S 191435Z AUTO 00000KT 5SM BR CLR M01/M02 A3038 RMK AO2K65S2018-10-19T14:35:00Z48.73-116.3-1.0-2.0005.030.380905TRUETRUEBRMVFRMETAR713.02018-10-19 14:46:23 6bN§a) 5    3KAVK 191435Z AUTO 20011KT 10SM FEW007 BKN120 13/13 A3017 RMK AO2KAVK2018-10-19T14:35:00Z36.77-98.6713.013.02001110.030.171259TRUETRUEVFRMETAR449.02018-10-19 14:46:23>§`(}5    3KAPS 191435Z AUTO 10SM CLR 25/18 A3022 RMK AO2 T02510176KAPS2018-10-19T14:35:00Z30.08-90.5825.117.610.030.221457TRUETRUEVFRMETAR2.02018-10-19 14:46:23N§_)5    3KAJG 191435Z AUTO 21004KT 10SM SCT120 08/05 A3026 RMK AO2 T00800048KAJG2018-10-19T14:35:00Z38.62-87.738.04.8210410.030.259842TRUETRUEVFRMETAR131.02018-10-19 14:46:23D§^(}5    3KAFO 191435Z AUTO 00000KT 10SM CLR M05/M07 A3047 RMK AO2KAFO2018-10-19T14:35:00Z42.72-110.95-5.0-7.00010.030.469488TRUETRUEVFRMETAR1897.02018-10-19 14:46:23 4lO§e)5    3KC09 191435Z AUTO 21011KT 10SM OVC120 10/02 A3011 RMK AO2 T00950020KC092018-10-19T14:35:00Z41.43-88.429.52.02101110.030.109253TRUETRUEVFRMETAR178.02018-10-19 14:46:23A§d(y5    3KBGF 191435Z AUTO 20008KT 10SM CLR 17/10 A3029 RMK A01KBGF2018-10-19T14:35:00Z35.18-86.0717.010.0200810.030.28937TRUETRUEVFRMETAR299.02018-10-19 14:46:23B§c(5    3KBHC 191435Z AUTO 06006KT 10SM OVC050 18/12 A3030 RMK AO2KBHC2018-10-19T14:35:00Z31.72-82.418.012.060610.030.301182TRUETRUEVFRMETAR61.02018-10-19 14:46:23F§b)5   3KBDG 191435Z AUTO 29003KT 10SM 07/01 A3045 RMK AO1 T00650014KBDG2018-10-19T14:35:00Z37.58-109.476.51.4290310.030.448818TRUETRUEMETAR1788.02018-10-19 14:46:23 9ti§i)55     3PAOH 191434Z AUTO 11016G23KT 10SM -RA BKN030 BKN065 OVC090 11/09 A2964 RMK AO2 P0001PAOH2018-10-19T14:34:00Z58.1-135.4511.09.0110162310.029.639763TRUETRUE-RAMVFR0.01SPECI9.02018-10-19 14:46:23\§h)'5   3KC75 191435Z AUTO 20011G16KT 10SM BKN080 OVC090 10/03 A3012 RMK AO2 T01000028KC752018-10-19T14:35:00Z41.02-89.3810.02.8200111610.030.121063TRUETRUEVFRMETAR173.02018-10-19 14:46:23?§g(y5    3KC65 191435Z AUTO 20008KT 10SM CLR 09/01 A3016 RMK A01KC652018-10-19T14:35:00Z41.37-86.39.01.0200810.030.159449TRUETRUEVFRMETAR244.02018-10-19 14:46:23A§f(y5    3KBXK 191435Z AUTO 00000KT 10SM CLR 14/10 A3005 RMK AO1KBXK2018-10-19T14:35:00Z33.42-112.6814.010.00010.030.050198TRUETRUEVFRMETAR315.02018-10-19 14:46:23 HuT§m)!5    3KRIL 191434Z AUTO VRB03KT 10SM SCT024 BKN033 06/03 A3046 RMK AO2 T00560028KRIL2018-10-19T14:34:00Z39.53-107.735.62.80310.030.46063TRUETRUEVFRMETAR1678.02018-10-19 14:46:23M§l)5    3KRND 191434Z 02007KT 2SM -RA BR OVC003 16/15 A3017 RMK SLP214KRND2018-10-19T14:34:00Z29.52-98.2716.015.02072.030.1712591021.4-RA BRLIFRSPECI232.02018-10-19 14:46:23G§k(5   3KETH 191434Z AUTO 31016G21KT 10SM CLR 12/02 A2987 RMK AO2KETH2018-10-19T14:34:00Z45.78-96.5512.02.0310162110.029.870079TRUETRUEVFRMETAR313.02018-10-19 14:46:23e§j)15    3CYPD 191434Z AUTO 29016G25KT 250V310 9SM -RA BKN034 OVC042 02/M05 A2996 RMK SLP153CYPD2018-10-19T14:34:00Z45.67-61.372.0-5.029016259.029.9586621015.3TRUE-RAVFRSPECI114.02018-10-19 14:46:23 $@XB§q(y5    3K2V6 191434Z AUTO 30011KT 10SM CLR 08/02 A3022 RMK AO2K2V62018-10-19T14:34:00Z40.1-102.728.02.03001110.030.221457TRUETRUEVFRMETAR1261.02018-10-19 14:46:23b§p)!5     3KDEW 191434Z AUTO 33004KT 3/4SM BR VV002 M03/M03 A3035 RMK AO2 T10281033 $KDEW2018-10-19T14:34:00Z47.97-117.43-2.8-3.333040.7530.351377TRUETRUETRUEBRLIFR200METAR674.02018-10-19 14:46:23^§o)/5    3KINK 191434Z AUTO 34003KT 10SM FEW014 BKN022 OVC034 11/09 A3028 RMK AO2 T01060094KINK2018-10-19T14:34:00Z31.78-103.210.69.4340310.030.280512TRUETRUEMVFRMETAR855.02018-10-19 14:46:23V§n)5     3KVUO 191434Z AUTO 36003KT 1/4SM FG VV002 08/07 A3026 RMK AO2 T00780072KVUO2018-10-19T14:34:00Z45.62-122.657.87.236030.2530.259842TRUETRUEFGLIFR200METAR8.02018-10-19 14:46:23 ?-UJ?§u)e5  3CYQX 191433Z 34011G17KT 6SM -SHSN FEW007 BKN015 BKN030 BKN250 02/00 A2962 RMK SF2CU3SC1CI1 VIS SE-S 2 SLP038CYQX2018-10-19T14:33:00Z48.95-54.582.00.034011176.029.6190951003.8-SHSNBKN25000MVFRSPECI151.02018-10-19 14:46:23§t)_5      3PAYA 191433Z AUTO 12017G27KT 5SM -RA BR OVC020 11/09 A2933 RMK AO2 PK WND 12027/1427 P0010 T01110089 TSNOPAYA2018-10-19T14:33:00Z59.52-139.6711.18.912017275.029.329725TRUETRUETRUE-RA BRMVFR0.1SPECI11.02018-10-19 14:46:23R§s)5   3CYFT 191433Z 29014KT 15SM BKN016 OVC120 M02/M05 A2971 RMK ST5AC3 SLP066CYFT2018-10-19T14:33:00Z55.07-59.17-2.0-5.02901415.029.710631006.6MVFRSPECI71.02018-10-19 14:46:23M§r)5    3LEHC 191434Z 03004KT 300V070 9999 RA FEW018 FEW030TCU BKN060 18/14 Q1017LEHC2018-10-19T14:34:00Z42.08-0.3218.014.03046.2130.029528RAVFRSPECI539.02018-10-19 14:46:23 NN@§y(w5    3KMYP 191433Z AUTO 11010KT M04/M05 A3060 RMK AO2 PWINOKMYP2018-10-19T14:33:00Z38.48-106.32-4.0-5.01101030.59941TRUETRUETRUESPECI3667.02018-10-19 14:46:23z§x)O5     3KHLR 191433Z AUTO 35004KT 1/2SM +RA FG FEW005 OVC018 14/13 A3019 RMK AO2 CIG 011V018 SLP220 RVRNOKHLR2018-10-19T14:33:00Z31.13-97.7214.013.035040.530.1889761022.0TRUETRUE+RA FGLIFRSPECI283.02018-10-19 14:46:23A§w(y5    3KFOZ 191433Z AUTO 29005KT 10SM CLR 11/04 A2966 RMK AO2KFOZ2018-10-19T14:33:00Z47.77-93.6511.04.0290510.029.660433TRUETRUEVFRMETAR411.02018-10-19 14:46:23e§v)35    3CYLU 191433Z 29015KT 1/2SM SN BLSN BKN007 OVC012 M05/M07 A2977 RMK SN5ST2SC1 SLP089CYLU2018-10-19T14:33:00Z58.72-65.97-5.0-7.0290150.529.7696861008.9SN BLSNLIFRSPECI60.02018-10-19 14:46:23 9PD§}(5    3KCUL 191432Z AUTO 17004KT 10SM SCT110 11/06 A3027 RMK AO2KCUL2018-10-19T14:32:00Z38.08-88.1211.06.0170410.030.268702TRUETRUEVFRMETAR118.02018-10-19 14:46:23H§|) 5    3SLTJ 191432Z 15007KT 3000 -RA SCT010 BKN020 OVC070 15/14 Q1024SLTJ2018-10-19T14:32:00Z-21.55-64.7215.014.015071.8630.236221-RAIFRMETAR1858.02018-10-19 14:46:23c§{)55   3KLWD 191433Z AUTO 22014G23KT 10SM SCT018 BKN022 OVC039 12/08 A3006 RMK AO2 T01220083KLWD2018-10-19T14:33:00Z40.63-93.912.28.3220142310.030.059055TRUETRUEMVFRSPECI346.02018-10-19 14:46:23A§z(y5    3KORB 191433Z AUTO 29005KT 10SM CLR 10/04 A2959 RMK AO2KORB2018-10-19T14:33:00Z48.02-92.8710.04.0290510.029.589567TRUETRUEVFRMETAR397.02018-10-19 14:46:23 UFUk¨)A5      3KUNO 191432Z AUTO 18003KT 5SM -RA FEW060 BKN075 OVC110 08/06 A3027 RMK AO2 P0008 T00830056KUNO2018-10-19T14:32:00Z36.88-91.98.35.618035.030.268702TRUETRUE-RAMVFR0.08SPECI372.02018-10-19 14:46:23G¨)5    3KFHU 191432Z 00000KT 9SM FEW002 09/09 A3020 RMK AO2A SLP194KFHU2018-10-19T14:32:00Z31.58-110.359.09.0009.030.2007871019.4TRUEVFRSPECI1438.02018-10-19 14:46:23}§)m5     3PASY 191432Z AUTO 00000KT 2 1/2SM BR SCT010 SCT017 OVC023 06/05 A2927 RMK AO2 RAE12 CIG 009V023 OVC V BKN SLP915PASY2018-10-19T14:32:00Z52.72174.126.05.0002.529.27067991.5TRUETRUEBRIFRSPECI31.02018-10-19 14:46:23d§~)/5      3KFTW 191432Z 36003KT 5SM -RA BR FEW005 OVC021 13/13 A3024 RMK AO2 P0011 T01330128KFTW2018-10-19T14:32:00Z32.83-97.3713.312.836035.030.239174TRUE-RA BRMVFR0.11SPECI214.02018-10-19 14:46:23 &CyP¨)#5    3UMKK 191430Z 33002MPS 9999 SCT026 11/08 Q1023 R24/60D NOSIG RMK QFE766/1021UMKK2018-10-19T14:30:00Z54.8820.611.08.033046.2130.206694TRUEVFRMETAR21.02018-10-19 14:46:23D¨)5   3ETNH 191431Z 29005KT 9999 BKN037 SCT300 12/04 Q1025 BLU FCST CANCELETNH2018-10-19T14:31:00Z54.329.5512.04.029056.2130.265747VFRSPECI17.02018-10-19 14:46:23]¨)5    3KTTS 191431Z AUTO 08008KT 10SM SCT020 BKN060 29/24 A3020 RMK AO2 SLP231 $KTTS2018-10-19T14:31:00Z28.62-80.7229.024.080810.030.2007871023.1TRUETRUETRUEVFRSPECI3.02018-10-19 14:46:23T¨)5    3PALU 191431Z AUTO 10006KT 10SM BKN016 M01/M03 A2984 RMK AO2 SLP103PALU2018-10-19T14:31:00Z68.88-166.1-1.0-3.0100610.029.8405511010.3TRUETRUEMVFRSPECI3.02018-10-19 14:46:23 <d¨ )35      3KRPH 191430Z AUTO 00000KT 5SM -RA SCT003 OVC006 13/13 A3024 RMK AO2 P0002 T01270127KRPH2018-10-19T14:30:00Z33.12-98.5512.712.7005.030.239174TRUETRUE-RAIFR0.02METAR342.02018-10-19 14:46:23A¨ )5    3UTFN 191430Z 33004KT 9000 NSC 07/M01 Q1028 R28/CLRD70 NOSIGUTFN2018-10-19T14:30:00Z40.9871.577.0-1.033045.5930.35433TRUEVFRMETAR490.02018-10-19 14:46:233¨(w5   3UTFA 191430Z 01002KT 9000 NSC 08/M00 Q1028 R88/09//70UTFA2018-10-19T14:30:00Z40.7372.38.00.01025.5930.35433VFRMETAR477.02018-10-19 14:46:232¨(e5    3HSSS 191430Z 30005KT CAVOK 38/04 Q1008 NOSIGHSSS2018-10-19T14:30:00Z15.5832.5338.04.030056.2129.763779TRUEVFRMETAR380.02018-10-19 14:46:23>¨(u5     3RJBB 191430Z AUTO 05010KT 9999 NCD 19/13 Q1018 NOSIGRJBB2018-10-19T14:30:00Z34.42135.2519.013.050106.2130.059055TRUETRUEVFRMETAR8.02018-10-19 14:46:23 &?x&J¨) 5    3KW78 191430Z AUTO 00000KT 10SM CLR 12/08 A3037 RMK AO1 T01150075KW782018-10-19T14:30:00Z36.68-78.8511.57.50010.030.369095TRUETRUEVFRMETAR129.02018-10-19 14:46:23=¨)5   3HKEL 191430Z VRB03KT 9999 FEW019CB SCT020 BKN080 18/13 Q1022HKEL2018-10-19T14:30:00Z0.435.2318.013.0036.2130.177166VFRMETAR2133.02018-10-19 14:46:239¨ (w5   3HKJK 191430Z 07018KT 9999 FEW027CB SCT028 25/12 Q1018HKJK2018-10-19T14:30:00Z-1.3236.9225.012.070186.2130.059055VFRMETAR1624.02018-10-19 14:46:23A¨ )5   3HRYR 191430Z 31013KT 9999 FEW023CB BKN025 17/16 Q1018 RERAHRYR2018-10-19T14:30:00Z-1.9730.1217.016.0310136.2130.059055MVFRMETAR1497.02018-10-19 14:46:23;¨ )5   3HUEN 191430Z 26008KT 9999 SCT020 FEW022CB BKN120 20/20 Q1016HUEN2018-10-19T14:30:00Z0.0332.4520.020.026086.2130.0VFRMETAR1155.02018-10-19 14:46:23 1`=¨(}5    3KI16 191430Z AUTO 10SM CLR 07/06 A3037 RMK AO2 T00740055KI162018-10-19T14:30:00Z37.6-81.577.45.510.030.369095TRUETRUEVFRMETAR544.02018-10-19 14:46:23C¨(5    3KLCQ 191430Z AUTO 08006KT 10SM SCT055 25/21 A3025 RMK AO2KLCQ2018-10-19T14:30:00Z30.18-82.5825.021.080610.030.250984TRUETRUEVFRMETAR61.02018-10-19 14:46:23K¨) 5    3KMDQ 191430Z AUTO 14008KT 10SM CLR 16/10 A3029 RMK A02 T01610095KMDQ2018-10-19T14:30:00Z34.87-86.5516.19.5140810.030.28937TRUETRUEVFRMETAR230.02018-10-19 14:46:23I¨) 5    3KPSK 191430Z AUTO 00000KT 10SM CLR 08/07 A3036 RMK AO2 T00780066KPSK2018-10-19T14:30:00Z37.12-80.677.86.60010.030.360237TRUETRUEVFRMETAR642.02018-10-19 14:46:23 9ZM¨)5    3KD73 191430Z AUTO 08007KT 10SM OVC033 15/09 A3036 RMK AO2 T01480094KD732018-10-19T14:30:00Z33.78-83.714.89.480710.030.360237TRUETRUEVFRMETAR267.02018-10-19 14:46:23N¨)5    3KDKB 191430Z AUTO 21010KT 10SM OVC110 08/02 A3009 RMK AO2 T00810021KDKB2018-10-19T14:30:00Z41.93-88.78.12.12101010.030.088583TRUETRUEVFRMETAR279.02018-10-19 14:46:23Y¨)!5    3KHBV 191430Z AUTO 34010KT 10SM BKN004 OVC010 15/15 A3016 RMK AO2 T01500145KHBV2018-10-19T14:30:00Z27.35-98.7315.014.53401010.030.159449TRUETRUELIFRMETAR202.02018-10-19 14:46:23A¨(5    3KHOE 191430Z AUTO 00000KT 10SM OVC060 20/15 A3029 RMK AO2KHOE2018-10-19T14:30:00Z31.05-82.7820.015.00010.030.28937TRUETRUEVFRMETAR57.02018-10-19 14:46:23 -f2¨(c5    3LFRV 191430Z AUTO 02012KT CAVOK 19/12 Q1022LFRV2018-10-19T14:30:00Z47.72-2.7219.012.020126.2130.177166TRUEVFRMETAR133.02018-10-19 14:46:23A¨(5     3LFRZ 191430Z AUTO 03009KT 360V060 CAVOK 20/12 Q1022 NOSIGLFRZ2018-10-19T14:30:00Z47.32-2.1720.012.03096.2130.177166TRUETRUEVFRMETAR4.02018-10-19 14:46:23A¨(y5    3KCNI 191430Z AUTO 10007KT 10SM CLR 16/05 A3036 RMK AO2KCNI2018-10-19T14:30:00Z34.32-84.4216.05.0100710.030.360237TRUETRUEVFRMETAR372.02018-10-19 14:46:23M¨) 5    3KCPU 191430Z AUTO 13004KT 10SM CLR 10/01 A3016 RMK AO2 T01000005KCPU2018-10-19T14:30:00Z38.15-120.6510.00.5130410.030.159449TRUETRUEVFRMETAR404.02018-10-19 14:46:23 !)c!=¨ (5     3LFMI 191430Z AUTO 30007KT 280V340 CAVOK 25/15 Q1016 NOSIGLFMI2018-10-19T14:30:00Z43.524.9225.015.030076.2130.0TRUETRUEVFRMETAR24.02018-10-19 14:46:239¨(s5    3LFOV 191430Z AUTO 04009KT 360V070 CAVOK 19/12 Q1023LFOV2018-10-19T14:30:00Z48.03-0.7519.012.04096.2130.206694TRUEVFRMETAR101.02018-10-19 14:46:23:¨(o5     3LFRI 191430Z AUTO 02012KT CAVOK 20/12 Q1021 NOSIGLFRI2018-10-19T14:30:00Z46.7-1.3720.012.020126.2130.147638TRUETRUEVFRMETAR91.02018-10-19 14:46:23@¨(5     3LFRM 191430Z AUTO 03007KT 350V060 CAVOK 16/11 Q1023 NOSIGLFRM2018-10-19T14:30:00Z47.950.216.011.03076.2130.206694TRUETRUEVFRMETAR52.02018-10-19 14:46:23Q¨)5     3LFRO 191430Z AUTO 03006KT 350V090 9999 BKN020 OVC026 16/12 Q1025 NOSIGLFRO2018-10-19T14:30:00Z48.75-3.4716.012.03066.2130.265747TRUETRUEMVFRMETAR89.02018-10-19 14:46:23 9qJ¨%) 5     3LFOE 191430Z AUTO 02006KT 330V070 7000 SCT024 17/11 Q1023 NOSIGLFOE2018-10-19T14:30:00Z49.021.2217.011.02064.3530.206694TRUETRUEMVFRMETAR146.02018-10-19 14:46:23>¨$(u5     3LFOJ 191430Z AUTO 02011KT 9000 NSC 21/11 Q1021 NOSIGLFOJ2018-10-19T14:30:00Z47.971.7521.011.020115.5930.147638TRUETRUEVFRMETAR125.02018-10-19 14:46:239¨#(o5    3LFRJ 191430Z AUTO 04012KT 9999 BKN021 16/12 Q1025LFRJ2018-10-19T14:30:00Z48.52-4.1516.012.040126.2130.265747TRUEMVFRMETAR115.02018-10-19 14:46:23B¨"(5     3LFRL 191430Z AUTO 05008KT 020V080 CAVOK 18/12 Q1024 NOSIGLFRL2018-10-19T14:30:00Z48.27-4.4218.012.05086.2130.236221TRUETRUEVFRMETAR82.02018-10-19 14:46:23A¨!(5     3LFBA 191430Z AUTO 10005KT 070V140 CAVOK 22/16 Q1018 NOSIGLFBA2018-10-19T14:30:00Z44.170.622.016.010056.2130.059055TRUETRUEVFRMETAR60.02018-10-19 14:46:23 K>wK2¨*(s5    3LFKS 191430Z AUTO 13003KT 100V170 CAVOK 22/19 Q1016LFKS2018-10-19T14:30:00Z41.929.422.019.013036.2130.0TRUEVFRMETAR22.02018-10-19 14:46:23.¨)(o5   3LFMC 191430Z AUTO 13008KT 9999 ////// 25/16 Q1016LFMC2018-10-19T14:30:00Z43.376.3725.016.013086.2130.0TRUEMETAR78.02018-10-19 14:46:23:¨((o5     3LFMO 191430Z AUTO 29003KT CAVOK 24/13 Q1017 NOSIGLFMO2018-10-19T14:30:00Z44.124.8724.013.029036.2130.029528TRUETRUEVFRMETAR55.02018-10-19 14:46:23A¨'(5     3LFMY 191430Z AUTO 34007KT 300V360 CAVOK 24/14 Q1017 NOSIGLFMY2018-10-19T14:30:00Z43.65.0824.014.034076.2130.029528TRUETRUEVFRMETAR60.02018-10-19 14:46:23<¨&(y5    3LFOC 191430Z AUTO 01009KT 340V040 7000 NSC 18/12 Q1022LFOC2018-10-19T14:30:00Z48.031.3718.012.01094.3530.177166TRUEMVFRMETAR127.02018-10-19 14:46:23 8:r81¨/(c5    3LFSG 191430Z AUTO 03010KT CAVOK 19/10 Q1021LFSG2018-10-19T14:30:00Z48.336.0719.010.030106.2130.147638TRUEVFRMETAR330.02018-10-19 14:46:23C¨.(5     3LFBC 191430Z AUTO 32008KT 300V360 CAVOK 22/14 Q1018 NOSIGLFBC2018-10-19T14:30:00Z44.52-1.1222.014.032086.2130.059055TRUETRUEVFRMETAR33.02018-10-19 14:46:234¨-(i5    3LFBG 191430Z AUTO 02014KT 9000 NSC 21/12 Q1019LFBG2018-10-19T14:30:00Z45.67-0.3221.012.020145.5930.088583TRUEVFRMETAR31.02018-10-19 14:46:23B¨,(5     3LFBM 191430Z AUTO 14003KT 120V180 CAVOK 23/14 Q1018 NOSIGLFBM2018-10-19T14:30:00Z43.92-0.523.014.014036.2130.059055TRUETRUEVFRMETAR63.02018-10-19 14:46:23@¨+)5   3LFBY 191430Z AUTO 24004KT 200V280 9000 // ////// 23/16 Q1018LFBY2018-10-19T14:30:00Z43.67-1.0723.016.024045.5930.059055TRUEMETAR32.02018-10-19 14:46:23 7wJ¨4) 5     3LFBZ 191430Z AUTO 29008KT 260V320 9999 FEW009 19/16 Q1019 NOSIGLFBZ2018-10-19T14:30:00Z43.47-1.5219.016.029086.2130.088583TRUETRUEVFRMETAR71.02018-10-19 14:46:23D¨3) 5     3LFKB 191430Z AUTO 13004KT 9999 SCT020 BKN026 23/19 Q1016 NOSIGLFKB2018-10-19T14:30:00Z42.539.4723.019.013046.2130.0TRUETRUEMVFRMETAR12.02018-10-19 14:46:23C¨2(5     3LFLB 191430Z AUTO 34003KT 290V010 CAVOK 22/12 Q1019 NOSIGLFLB2018-10-19T14:30:00Z45.635.8722.012.034036.2130.088583TRUETRUEVFRMETAR239.02018-10-19 14:46:23:¨1(o5     3LFML 191430Z AUTO 27004KT CAVOK 25/15 Q1017 NOSIGLFML2018-10-19T14:30:00Z43.455.2225.015.027046.2130.029528TRUETRUEVFRMETAR36.02018-10-19 14:46:23C¨0(5     3LFCK 191430Z AUTO 29004KT 260V320 CAVOK 22/15 Q1019 NOSIGLFCK2018-10-19T14:30:00Z43.552.2822.015.029046.2130.088583TRUETRUEVFRMETAR240.02018-10-19 14:46:23 1gB¨8(5     3LFBL 191430Z AUTO 05010KT 020V080 CAVOK 21/08 Q1019 NOSIGLFBL2018-10-19T14:30:00Z45.871.1721.08.050106.2130.088583TRUETRUEVFRMETAR402.02018-10-19 14:46:23B¨7(5     3LFBO 191430Z AUTO 05004KT 020V100 CAVOK 21/15 Q1018 NOSIGLFBO2018-10-19T14:30:00Z43.621.3721.015.05046.2130.059055TRUETRUEVFRMETAR153.02018-10-19 14:46:23D¨6(5     3LFBP 191430Z AUTO 32007KT 280V350 CAVOK 21/16 Q1018 NOSIGLFBP2018-10-19T14:30:00Z43.37-0.4221.016.032076.2130.059055TRUETRUEVFRMETAR185.02018-10-19 14:46:23I¨5) 5     3LFBT 191430Z AUTO 36007KT 330V040 9999 BKN034 21/14 Q1018 NOSIGLFBT2018-10-19T14:30:00Z43.170.021.014.036076.2130.059055TRUETRUEVFRMETAR363.02018-10-19 14:46:23 #8y#:¨=(u5    3LFPO 191430Z 36010KT 330V030 CAVOK 18/11 Q1022 NOSIGLFPO2018-10-19T14:30:00Z48.722.3818.011.0360106.2130.177166TRUEVFRMETAR96.02018-10-19 14:46:23G¨<) 5     3LFQQ 191430Z AUTO 36006KT 330V030 9999 SCT037 16/09 Q1024 NOSIGLFQQ2018-10-19T14:30:00Z50.573.116.09.036066.2130.236221TRUETRUEVFRMETAR52.02018-10-19 14:46:23C¨;({5     3LFRB 191430Z AUTO 05012KT 9999 BKN021 17/12 Q1024 NOSIGLFRB2018-10-19T14:30:00Z48.45-4.4217.012.050126.2130.236221TRUETRUEMVFRMETAR103.02018-10-19 14:46:239¨:(o5     3LFRS 191430Z AUTO 06009KT CAVOK 20/12 Q1021 NOSIGLFRS2018-10-19T14:30:00Z47.17-1.620.012.06096.2130.147638TRUETRUEVFRMETAR27.02018-10-19 14:46:23B¨9(5     3LFBI 191430Z AUTO 04008KT 020V080 CAVOK 19/12 Q1021 NOSIGLFBI2018-10-19T14:30:00Z46.570.3219.012.04086.2130.147638TRUETRUEVFRMETAR120.02018-10-19 14:46:23 A<A:¨B(o5     3LFBD 191430Z AUTO 02010KT CAVOK 22/12 Q1018 NOSIGLFBD2018-10-19T14:30:00Z44.82-0.722.012.020106.2130.059055TRUETRUEVFRMETAR61.02018-10-19 14:46:239¨A(o5     3LFBH 191430Z AUTO 08013KT CAVOK 22/12 Q1020 NOSIGLFBH2018-10-19T14:30:00Z46.18-1.222.012.080136.2130.11811TRUETRUEVFRMETAR10.02018-10-19 14:46:23:¨@(u5    3LFLL 191430Z 34004KT 270V050 CAVOK 21/10 Q1019 NOSIGLFLL2018-10-19T14:30:00Z45.725.0721.010.034046.2130.088583TRUEVFRMETAR240.02018-10-19 14:46:236¨?(5    3LFMN 191430Z VRB01KT 9999 FEW053 SCT260 23/16 Q1016 NOSIGLFMN2018-10-19T14:30:00Z43.637.223.016.0016.2130.0TRUEVFRMETAR10.02018-10-19 14:46:23>¨>({5    3LFPG 191430Z 02010KT 350V070 8000 NSC 17/11 Q1023 NOSIGLFPG2018-10-19T14:30:00Z49.022.5217.011.020104.9730.206694TRUEMVFRMETAR109.02018-10-19 14:46:23 BF¨G)5     3LFOT 191430Z AUTO 01009KT 340V070 9000 NSC 19/12 Q1021 NOSIGLFOT2018-10-19T14:30:00Z47.430.7219.012.01095.5930.147638TRUETRUEVFRMETAR108.02018-10-19 14:46:23I¨F) 5     3LFRG 191430Z AUTO 03005KT 360V060 9999 FEW027 17/10 Q1024 NOSIGLFRG2018-10-19T14:30:00Z49.370.1517.010.03056.2130.236221TRUETRUEVFRMETAR146.02018-10-19 14:46:23B¨E(5     3LFST 191430Z AUTO 02008KT 340V050 CAVOK 20/11 Q1021 NOSIGLFST2018-10-19T14:30:00Z48.537.6220.011.02086.2130.147638TRUETRUEVFRMETAR154.02018-10-19 14:46:23;¨D(5     3LFTH 191430Z AUTO 11005KT 070V140 CAVOK 23/17 Q1016 NOSIGLFTH2018-10-19T14:30:00Z43.16.1523.017.011056.2130.0TRUETRUEVFRMETAR4.02018-10-19 14:46:238¨C(o5     3LFTW 191430Z AUTO VRB02KT CAVOK 25/14 Q1017 NOSIGLFTW2018-10-19T14:30:00Z43.754.4225.014.0026.2130.029528TRUETRUEVFRMETAR96.02018-10-19 14:46:23 (8v(8¨L(s5    3LFQB 191430Z AUTO 01006KT 330V050 CAVOK 20/12 Q1021LFQB2018-10-19T14:30:00Z48.324.0220.012.01066.2130.147638TRUEVFRMETAR118.02018-10-19 14:46:23A¨K(5     3LFBE 191430Z AUTO 04004KT 330V080 CAVOK 23/12 Q1018 NOSIGLFBE2018-10-19T14:30:00Z44.820.5223.012.04046.2130.059055TRUETRUEVFRMETAR52.02018-10-19 14:46:23C¨J(5     3LFGJ 191430Z AUTO 36005KT 330V040 CAVOK 21/11 Q1019 NOSIGLFGJ2018-10-19T14:30:00Z47.055.4321.011.036056.2130.088583TRUETRUEVFRMETAR196.02018-10-19 14:46:23<¨I(5     3LFMD 191430Z AUTO 17004KT 110V220 CAVOK 23/15 Q1016 NOSIGLFMD2018-10-19T14:30:00Z43.536.9523.015.017046.2130.0TRUETRUEVFRMETAR9.02018-10-19 14:46:23B¨H(5     3LFMH 191430Z AUTO 35005KT 320V020 CAVOK 20/08 Q1019 NOSIGLFMH2018-10-19T14:30:00Z45.524.2820.08.035056.2130.088583TRUETRUEVFRMETAR402.02018-10-19 14:46:23 />n/8¨Q(s5    3LFLU 191430Z AUTO 02006KT 340V040 CAVOK 23/10 Q1017LFLU2018-10-19T14:30:00Z44.924.9823.010.02066.2130.029528TRUEVFRMETAR160.02018-10-19 14:46:23;¨P(o5     3LFLX 191430Z AUTO 36010KT CAVOK 20/11 Q1020 NOSIGLFLX2018-10-19T14:30:00Z46.851.7220.011.0360106.2130.11811TRUETRUEVFRMETAR157.02018-10-19 14:46:23:¨O(o5     3LFOH 191430Z AUTO 02011KT CAVOK 16/09 Q1024 NOSIGLFOH2018-10-19T14:30:00Z49.520.0716.09.020116.2130.236221TRUETRUEVFRMETAR103.02018-10-19 14:46:23J¨N) 5     3LFOP 191430Z AUTO 01009KT 340V050 9999 BKN024 17/11 Q1024 NOSIGLFOP2018-10-19T14:30:00Z49.371.1717.011.01096.2130.236221TRUETRUEMVFRMETAR157.02018-10-19 14:46:23<¨M(5    3LFQA 191430Z AUTO 01008KT 350V070 9999 FEW027 19/10 Q1022LFQA2018-10-19T14:30:00Z49.24.1519.010.01086.2130.177166TRUEVFRMETAR95.02018-10-19 14:46:23 171<¨V(u5     3LFOA 191430Z AUTO 04011KT 9000 NSC 20/09 Q1020 NOSIGLFOA2018-10-19T14:30:00Z47.032.6320.09.040115.5930.11811TRUETRUEVFRMETAR179.02018-10-19 14:46:23A¨U(5     3LFPV 191430Z AUTO 04008KT 350V080 CAVOK 18/11 Q1022 NOSIGLFPV2018-10-19T14:30:00Z48.772.218.011.04086.2130.177166TRUETRUEVFRMETAR179.02018-10-19 14:46:23A¨T(5     3LFLN 191430Z AUTO 07004KT 020V110 CAVOK 19/11 Q1020 NOSIGLFLN2018-10-19T14:30:00Z46.424.0219.011.07046.2130.11811TRUETRUEVFRMETAR244.02018-10-19 14:46:230¨S(c5    3LFSN 191430Z AUTO 04009KT CAVOK 20/10 Q1021LFSN2018-10-19T14:30:00Z48.676.2220.010.04096.2130.147638TRUEVFRMETAR217.02018-10-19 14:46:23C¨R(5     3LFLP 191430Z AUTO 28007KT 240V310 CAVOK 20/10 Q1019 NOSIGLFLP2018-10-19T14:30:00Z45.926.0820.010.028076.2130.088583TRUETRUEVFRMETAR463.02018-10-19 14:46:23 GD G<¨[({5    3LFSB 191430Z 36007KT 320V020 9000 NSC 16/10 Q1021 NOSIGLFSB2018-10-19T14:30:00Z47.67.5216.010.036075.5930.147638TRUEVFRMETAR271.02018-10-19 14:46:236¨Z(s5    3LFSI 191430Z AUTO 06004KT 360V130 CAVOK 22/09 Q1021LFSI2018-10-19T14:30:00Z48.624.922.09.06046.2130.147638TRUEVFRMETAR140.02018-10-19 14:46:238¨Y(s5    3LFSO 191430Z AUTO 04006KT 350V090 CAVOK 19/10 Q1021LFSO2018-10-19T14:30:00Z48.575.9719.010.04066.2130.147638TRUEVFRMETAR350.02018-10-19 14:46:23;¨X(y5    3LFSX 191430Z AUTO 27003KT 190V310 9999 NCD 22/11 Q1020LFSX2018-10-19T14:30:00Z47.776.3322.011.027036.2130.11811TRUEVFRMETAR273.02018-10-19 14:46:236¨W(s5    3LFYR 191430Z AUTO 04006KT 360V090 CAVOK 21/11 Q1020LFYR2018-10-19T14:30:00Z47.321.6721.011.04066.2130.11811TRUEVFRMETAR86.02018-10-19 14:46:23 8pI¨`) 5     3LFOB 191430Z AUTO 02007KT 340V050 9000 FEW026 17/11 Q1023 NOSIGLFOB2018-10-19T14:30:00Z49.472.1217.011.02075.5930.206694TRUETRUEVFRMETAR111.02018-10-19 14:46:23>¨_(u5     3LFOK 191430Z AUTO 01011KT 9000 NSC 19/12 Q1021 NOSIGLFOK2018-10-19T14:30:00Z48.784.1819.012.010115.5930.147638TRUETRUEVFRMETAR162.02018-10-19 14:46:23B¨^(5     3LFPB 191430Z AUTO 36008KT 330V030 CAVOK 17/10 Q1023 NOSIGLFPB2018-10-19T14:30:00Z48.972.4517.010.036086.2130.206694TRUETRUEVFRMETAR65.02018-10-19 14:46:23B¨]({5     3LFRD 191430Z AUTO 02010KT 9999 BKN022 17/11 Q1024 NOSIGLFRD2018-10-19T14:30:00Z48.58-2.0717.011.020106.2130.236221TRUETRUEMVFRMETAR59.02018-10-19 14:46:23B¨\(5     3LFRN 191430Z AUTO 01008KT 340V060 CAVOK 19/11 Q1023 NOSIGLFRN2018-10-19T14:30:00Z48.07-1.7219.011.01086.2130.206694TRUETRUEVFRMETAR37.02018-10-19 14:46:23 %8y%A¨e({5     3LFAQ 191430Z AUTO 01010KT 8000 SCT026 16/11 Q1024 NOSIGLFAQ2018-10-19T14:30:00Z49.972.716.011.010104.9730.236221TRUETRUEMVFRMETAR111.02018-10-19 14:46:23C¨d(5     3LFLY 191430Z AUTO 35004KT 310V040 CAVOK 21/10 Q1019 NOSIGLFLY2018-10-19T14:30:00Z45.724.9521.010.035046.2130.088583TRUETRUEVFRMETAR201.02018-10-19 14:46:23>¨c(5    3LFMK 191430Z AUTO 06007KT CAVOK 22/14 Q1017 BECMG 28010KTLFMK2018-10-19T14:30:00Z43.222.3222.014.06076.2130.029528TRUEVFRSPECI130.02018-10-19 14:46:239¨b(o5     3LFMT 191430Z AUTO 13003KT CAVOK 24/14 Q1017 NOSIGLFMT2018-10-19T14:30:00Z43.573.9724.014.013036.2130.029528TRUETRUEVFRMETAR6.02018-10-19 14:46:23B¨a(5     3LFMU 191430Z AUTO 16004KT 140V200 CAVOK 22/14 Q1017 NOSIGLFMU2018-10-19T14:30:00Z43.323.3522.014.016046.2130.029528TRUETRUEVFRMETAR17.02018-10-19 14:46:23 MBM.¨j(c5    3LFPT 191430Z AUTO 05008KT CAVOK 17/11 Q1023LFPT2018-10-19T14:30:00Z49.12.0317.011.05086.2130.206694TRUEVFRMETAR99.02018-10-19 14:46:23;¨i(o5     3LFRH 191430Z AUTO 04010KT CAVOK 19/12 Q1023 NOSIGLFRH2018-10-19T14:30:00Z47.77-3.4519.012.040106.2130.206694TRUETRUEVFRMETAR44.02018-10-19 14:46:23;¨h(o5     3LFRQ 191430Z AUTO 05010KT CAVOK 19/12 Q1023 NOSIGLFRQ2018-10-19T14:30:00Z47.97-4.1719.012.050106.2130.206694TRUETRUEVFRMETAR94.02018-10-19 14:46:239¨g(o5    3LFRT 191430Z AUTO 03011KT 9999 BKN018 15/11 Q1025LFRT2018-10-19T14:30:00Z48.52-2.8515.011.030116.2130.265747TRUEMVFRMETAR136.02018-10-19 14:46:238¨f(s5    3LFSD 191430Z AUTO 15005KT 110V180 CAVOK 20/11 Q1020LFSD2018-10-19T14:30:00Z47.275.0720.011.015056.2130.11811TRUEVFRMETAR227.02018-10-19 14:46:23 B};¨o(o5     3LFPN 191430Z AUTO 36008KT CAVOK 18/11 Q1022 NOSIGLFPN2018-10-19T14:30:00Z48.752.1218.011.036086.2130.177166TRUETRUEVFRMETAR164.02018-10-19 14:46:23J¨n) 5     3LFRC 191430Z AUTO 02009KT 350V050 9999 BKN021 14/09 Q1026 NOSIGLFRC2018-10-19T14:30:00Z49.63-1.4714.09.02096.2130.295275TRUETRUEMVFRMETAR138.02018-10-19 14:46:23I¨m) 5     3LFRK 191430Z AUTO 03008KT 360V060 9999 SCT024 16/11 Q1025 NOSIGLFRK2018-10-19T14:30:00Z49.17-0.4516.011.03086.2130.265747TRUETRUEVFRMETAR67.02018-10-19 14:46:23?¨l(5    3LFRU 191430Z AUTO 05011KT 020V080 9999 BKN022 17/12 Q1024LFRU2018-10-19T14:30:00Z48.6-3.8217.012.050116.2130.236221TRUEMVFRMETAR86.02018-10-19 14:46:238¨k(s5    3LFPM 191430Z AUTO 36007KT 330V040 CAVOK 19/12 Q1022LFPM2018-10-19T14:30:00Z48.622.6719.012.036076.2130.177166TRUEVFRMETAR92.02018-10-19 14:46:23 4~H¨s) 5     3LFAT 191430Z AUTO 01005KT 340V070 9999 BKN038 17/10 Q1025 NOSIGLFAT2018-10-19T14:30:00Z50.521.6217.010.01056.2130.265747TRUETRUEVFRMETAR14.02018-10-19 14:46:23;¨r(o5     3LFBU 191430Z AUTO 02012KT CAVOK 20/13 Q1019 NOSIGLFBU2018-10-19T14:30:00Z45.720.2220.013.020126.2130.088583TRUETRUEVFRMETAR133.02018-10-19 14:46:230¨q(c5    3LFGA 191430Z AUTO 36007KT CAVOK 19/10 Q1021LFGA2018-10-19T14:30:00Z48.17.3519.010.036076.2130.147638TRUEVFRMETAR191.02018-10-19 14:46:23F¨p)5     3LFJR 191430Z AUTO 03005KT 320V080 6000 NSC 17/12 Q1022 NOSIGLFJR2018-10-19T14:30:00Z47.57-0.317.012.03053.7330.177166TRUETRUEMVFRMETAR60.02018-10-19 14:46:23 &`&9¨x)5   3GCLA 191430Z 01006KT 300V070 9999 FEW035 BKN060 23/16 Q1016GCLA2018-10-19T14:30:00Z28.62-17.7523.016.01066.2130.0VFRMETAR31.02018-10-19 14:46:239¨w(q5    3GCLP 191430Z 03021KT 9999 FEW035 25/16 Q1013 NOSIGGCLP2018-10-19T14:30:00Z27.92-15.3725.016.030216.2129.911417TRUEVFRMETAR25.02018-10-19 14:46:236¨v(u5   3GCFV 191430Z 01014KT 340V040 9999 SCT045 26/16 Q1012GCFV2018-10-19T14:30:00Z28.43-13.8726.016.010146.2129.88189VFRMETAR23.02018-10-19 14:46:23/¨u(e5   3GCHI 191430Z 03013KT 9999 FEW025 24/16 Q1015GCHI2018-10-19T14:30:00Z27.82-17.8724.016.030136.2129.970472VFRMETAR30.02018-10-19 14:46:23e¨t)M5   3GCGM 191430Z 23008KT 200V260 9999 SCT041 23/13 Q1015 RMK R09/24006KT 160V290 ARP/24007KT 190V280GCGM2018-10-19T14:30:00Z28.03-17.2223.013.023086.2129.970472VFRMETAR219.02018-10-19 14:46:23 Cf=¨|)5   3LEAM 191430Z 15005KT 100V190 9999 FEW030 SCT090 22/11 Q1012LEAM2018-10-19T14:30:00Z36.85-2.3722.011.015056.2129.88189VFRMETAR21.02018-10-19 14:46:23R¨{)-5   3GCXO 191430Z 31010KT 280V340 9999 FEW003 SCT007 BKN018 16/15 Q1016 TEMPO 4000 RAGCXO2018-10-19T14:30:00Z28.48-16.3516.015.0310106.2130.0MVFRSPECI632.02018-10-19 14:46:23W¨z)%5     3GCTS 191430Z 31007KT 290V060 9999 -RA FEW030 BKN041 23/15 Q1014 WS R07 NOSIGGCTS2018-10-19T14:30:00Z28.05-16.5723.015.031076.2129.940945TRUE-RAVFRSPECI72.02018-10-19 14:46:237¨y(s5   3GCRR 191430Z 35015KT 9999 FEW035 SCT045 25/16 Q1013GCRR2018-10-19T14:30:00Z28.93-13.5825.016.0350156.2129.911417VFRMETAR40.02018-10-19 14:46:23 -_9©({5   3LEDA 191430Z 08014KT 050V110 9999 FEW045TCU 23/15 Q1015LEDA2018-10-19T14:30:00Z41.730.5323.015.080146.2129.970472VFRMETAR350.02018-10-19 14:46:23H¨)5   3LEST 191430Z 06010G22KT 010V120 9999 BKN028 19/14 Q1018 NOSIGLEST2018-10-19T14:30:00Z42.88-8.4219.014.06010226.2130.059055TRUEMVFRMETAR367.02018-10-19 14:46:23H¨~)5    3LEBB 191430Z 32008KT 280V350 9000 FEW016 BKN031 19/17 Q1019 NOSIGLEBB2018-10-19T14:30:00Z43.28-2.9219.017.032085.5930.088583TRUEVFRMETAR34.02018-10-19 14:46:23M¨})5     3LEAS 191430Z 06006KT 020V100 5000 BR FEW015 SCT033 18/16 Q1020 NOSIGLEAS2018-10-19T14:30:00Z43.53-6.0218.016.06063.1130.11811TRUEBRMVFRMETAR134.02018-10-19 14:46:23 4;v4-©(e5   3LEMH 191430Z 10008KT 9999 FEW018 23/18 Q1014LEMH2018-10-19T14:30:00Z39.874.2223.018.010086.2129.940945VFRMETAR82.02018-10-19 14:46:23?©) 5   3LERS 191430Z 06009KT 020V100 9999 FEW025TCU SCT040 23/15 Q1014LERS2018-10-19T14:30:00Z41.131.1723.015.06096.2129.940945VFRMETAR76.02018-10-19 14:46:23D©)5   3LESO 191430Z 29007KT 250V330 9999 FEW008 SCT013 BKN021 19/16 Q1019LESO2018-10-19T14:30:00Z43.35-1.819.016.029076.2130.088583MVFRMETAR8.02018-10-19 14:46:23?©)5   3LESA 191430Z 07017KT 040V100 9999 BKN030 BKN040 17/11 Q1015LESA2018-10-19T14:30:00Z40.95-5.517.011.070176.2129.970472MVFRMETAR795.02018-10-19 14:46:23?©)5   3LEVD 191430Z 06020KT 040V100 9999 SCT030 BKN040 18/10 Q1017LEVD2018-10-19T14:30:00Z41.72-4.8318.010.060206.2130.029528VFRMETAR854.02018-10-19 14:46:23 0=z0A© )5   3LEVT 191430Z 36011KT 320V030 9000 BKN018 BKN040 17/14 Q1019LEVT2018-10-19T14:30:00Z42.87-2.7217.014.0360115.5930.088583MVFRMETAR509.02018-10-19 14:46:235© (u5   3LEJR 191430Z 02005KT 350V060 9999 BKN054 20/11 Q1010LEJR2018-10-19T14:30:00Z36.75-6.0720.011.02056.2129.822834VFRMETAR30.02018-10-19 14:46:23B©)5    3LECO 191430Z 05008KT 360V100 9999 BKN030 20/14 Q1019 NOSIGLECO2018-10-19T14:30:00Z43.28-8.3720.014.05086.2130.088583TRUEMVFRMETAR103.02018-10-19 14:46:23=©)5   3LEGE 191430Z 05008KT 360V070 9999 FEW025 SCT045 21/16 Q1017LEGE2018-10-19T14:30:00Z41.882.7721.016.05086.2130.029528VFRMETAR129.02018-10-19 14:46:23=©)5   3LEGR 191430Z 25006KT 210V270 9999 FEW040 SCT060 17/09 Q1012LEGR2018-10-19T14:30:00Z37.17-3.7717.09.025066.2129.88189VFRMETAR559.02018-10-19 14:46:23  @ H©)5    3LEPA 191430Z 24009KT 210V280 9999 FEW022CB BKN032 23/20 Q1013 NOSIGLEPA2018-10-19T14:30:00Z39.532.7223.020.024096.2129.911417TRUEVFRMETAR8.02018-10-19 14:46:23J©)5    3LEIB 191430Z 22007KT 180V260 9999 FEW018 FEW025TCU 23/18 Q1013 NOSIGLEIB2018-10-19T14:30:00Z38.871.3723.018.022076.2129.911417TRUEVFRMETAR12.02018-10-19 14:46:23@© )5    3LEAL 191430Z 12006KT 080V170 9999 FEW025 23/11 Q1012 NOSIGLEAL2018-10-19T14:30:00Z38.27-0.5523.011.012066.2129.88189TRUEVFRMETAR31.02018-10-19 14:46:236© (q5    3LEBL 191430Z 07015KT 9999 FEW030 22/17 Q1015 NOSIGLEBL2018-10-19T14:30:00Z41.272.0722.017.070156.2129.970472TRUEVFRMETAR6.02018-10-19 14:46:23:© )5   3LEZG 191430Z 31005KT 270V340 9999 FEW030 BKN080 20/16 Q1016LEZG2018-10-19T14:30:00Z41.67-1.0220.016.031056.2130.0VFRMETAR258.02018-10-19 14:46:23 +kM©)5     3LFCR 191430Z AUTO 27004KT 210V310 8000 2900 NSC 22/12 Q1019 NOSIGLFCR2018-10-19T14:30:00Z44.382.4722.012.027044.9730.088583TRUETRUEMVFRSPECI580.02018-10-19 14:46:23@©)5    3LEZL 191430Z 10007KT 060V140 9999 FEW040 22/10 Q1010 NOSIGLEZL2018-10-19T14:30:00Z37.42-5.922.010.010076.2129.822834TRUEVFRMETAR31.02018-10-19 14:46:234©(q5    3LEVC 191430Z VRB02KT 9999 FEW030 22/17 Q1012 NOSIGLEVC2018-10-19T14:30:00Z39.5-0.4722.017.0026.2129.88189TRUEVFRMETAR62.02018-10-19 14:46:23:©(u5    3LEVX 191430Z 03007KT 330V090 CAVOK 23/14 Q1015 NOSIGLEVX2018-10-19T14:30:00Z42.22-8.6223.014.03076.2129.970472TRUEVFRMETAR256.02018-10-19 14:46:23O©)#5    3LEMG 191430Z 08007KT 050V110 9999 FEW020 FEW030TCU BKN075 19/14 Q1011 NOSIGLEMG2018-10-19T14:30:00Z36.67-4.519.014.08076.2129.852362TRUEVFRMETAR7.02018-10-19 14:46:23 BcB©(5     3LFLS 191430Z AUTO 03004KT 360V070 CAVOK 21/10 Q1019 NOSIGLFLS2018-10-19T14:30:00Z45.375.3221.010.03046.2130.088583TRUETRUEVFRMETAR386.02018-10-19 14:46:23W©))5     3LFMP 191430Z AUTO 07005KT 9999 FEW029/// BKN110/// BKN140/// 21/14 Q1017 NOSIGLFMP2018-10-19T14:30:00Z42.722.8721.014.07056.2130.029528TRUETRUEVFRMETAR48.02018-10-19 14:46:23Y©)95   3LEMD 191430Z 03008KT 330V080 9999 FEW020 SCT045 BKN060 17/15 Q1014 R88/29//95 TEMPO RALEMD2018-10-19T14:30:00Z40.48-3.5717.015.03086.2129.940945VFRSPECI582.02018-10-19 14:46:238©(o5     3LFMV 191430Z AUTO 34004KT CAVOK 24/15 Q1017 NOSIGLFMV2018-10-19T14:30:00Z43.94.924.015.034046.2130.029528TRUETRUEVFRMETAR38.02018-10-19 14:46:23 -8z-:©(o5     3LFJL 191430Z AUTO 02008KT CAVOK 20/10 Q1022 NOSIGLFJL2018-10-19T14:30:00Z48.976.2520.010.02086.2130.177166TRUETRUEVFRMETAR264.02018-10-19 14:46:23A©(5     3LFKC 191430Z AUTO 34005KT 300V030 CAVOK 23/17 Q1015 NOSIGLFKC2018-10-19T14:30:00Z42.528.823.017.034056.2129.970472TRUETRUEVFRMETAR58.02018-10-19 14:46:23@©(5     3LFKF 191430Z AUTO 07008KT 040V120 CAVOK 24/16 Q1015 NOSIGLFKF2018-10-19T14:30:00Z41.59.0824.016.07086.2129.970472TRUETRUEVFRMETAR23.02018-10-19 14:46:238©(o5     3LFKJ 191430Z AUTO 24005KT CAVOK 25/19 Q1015 NOSIGLFKJ2018-10-19T14:30:00Z41.928.825.019.024056.2129.970472TRUETRUEVFRMETAR9.02018-10-19 14:46:23B©(5     3LFLC 191430Z AUTO 36005KT 310V060 CAVOK 20/09 Q1019 NOSIGLFLC2018-10-19T14:30:00Z45.773.1720.09.036056.2130.088583TRUETRUEVFRMETAR330.02018-10-19 14:46:23 @.w@5©"(u5   3LJMB 191430Z 03005KT 350V060 9999 SCT040 20/10 Q1020LJMB2018-10-19T14:30:00Z46.4715.6720.010.03056.2130.11811VFRMETAR265.02018-10-19 14:46:23/©!(i5   3LJPZ 191430Z 29003KT 240V320 CAVOK 23/12 Q1017LJPZ2018-10-19T14:30:00Z45.4713.6223.012.029036.2130.029528VFRMETAR2.02018-10-19 14:46:23A© )5    3LJLJ 191430Z 15004KT 110V200 9999 FEW038 19/11 Q1020 NOSIGLJLJ2018-10-19T14:30:00Z46.2214.4719.011.015046.2130.11811TRUEVFRMETAR385.02018-10-19 14:46:231©(i5    3LJCE 191430Z AUTO VRB01KT 9999 NCD 20/12 Q1020LJCE2018-10-19T14:30:00Z45.915.5220.012.0016.2130.11811TRUEVFRMETAR155.02018-10-19 14:46:23L©)5     3LFSL 191430Z AUTO 34005KT 290V010 9999 2800 NSC 23/11 Q1018 NOSIGLFSL2018-10-19T14:30:00Z45.031.4823.011.034056.2130.059055TRUETRUEVFRSPECI310.02018-10-19 14:46:23 )YK©&)5    3UTDD 191430Z VRB02MPS 9999 NSC 10/01 Q1025 R09/D NOSIG RMK QFE700/0933UTDD2018-10-19T14:30:00Z38.5368.8210.01.0046.2130.265747TRUEVFRMETAR803.02018-10-19 14:46:23F©%)5   3UTDK 191430Z 03002MPS 9999 NSC 12/07 Q1025 R01/09//70 RMK QFE711/0948UTDK2018-10-19T14:30:00Z37.9869.812.07.03046.2130.265747VFRMETAR699.02018-10-19 14:46:23J©$)5   3UTDT 191430Z VRB01MPS 6000 FEW200 11/07 Q1024 R35/////// RMK QFE728/0971UTDT2018-10-19T14:30:00Z37.8768.8711.07.0023.7330.236221MVFRMETAR449.02018-10-19 14:46:23Q©#)#5    3UTDL 191430Z 10003MPS 9999 NSC 10/03 Q1027 R26/CLRD70 NOSIG RMK QFE732/0976UTDL2018-10-19T14:30:00Z40.2269.710.03.010066.2130.324802TRUEVFRSPECI442.02018-10-19 14:46:23 *ZxT©*)-5    3UAUU 191430Z 15002MPS 9999 OVC035CB 06/04 Q1012 R33/290045 NOSIG RMK QFE744/0992UAUU2018-10-19T14:30:00Z53.263.556.04.015046.2129.88189TRUEVFRSPECI182.02018-10-19 14:46:23\©))95    3UAKD 191430Z 27004MPS 9999 SCT050 OVC100 02/M03 Q1021 R22/0///65 NOSIG RMK QFE732/0977UAKD2018-10-19T14:30:00Z47.767.732.0-3.027086.2130.147638TRUEVFRSPECI381.02018-10-19 14:46:23J©()5    3UCFM 191430Z 14004MPS 110V180 8000 NSC 06/01 Q1026 R08/CLRD70 NOSIGUCFM2018-10-19T14:30:00Z43.0774.486.01.014084.9730.295275TRUEMVFRMETAR633.02018-10-19 14:46:23P©')'5    3UCFO 191430Z VRB01MPS 2800 BR FU NSC 04/M00 Q1027 R12/CLRD70 TEMPO 1500 BR FUUCFO2018-10-19T14:30:00Z40.672.84.00.0021.7430.324802BR FUIFRMETAR884.02018-10-19 14:46:23 ,UO©.)5    3UARR 191430Z 21005MPS CAVOK 11/01 Q1021 R22/CLRD70 NOSIG RMK QFE762/1016UARR2018-10-19T14:30:00Z51.1551.5311.01.0210106.2130.147638TRUEVFRSPECI38.02018-10-19 14:46:23N©-)5    3UATE 191430Z 21001MPS CAVOK 14/10 Q1024 R30/0///70 NOSIG RMK QFE766/1022UATE2018-10-19T14:30:00Z43.8751.114.010.021026.2130.236221TRUEVFRMETAR22.02018-10-19 14:46:23Q©,)5    3UATG 191430Z 16003MPS CAVOK 11/M03 Q1025 R14/CLRD70 NOSIG RMK QFE771/1028UATG2018-10-19T14:30:00Z47.1251.8311.0-3.016066.2130.265747TRUEVFRSPECI-22.02018-10-19 14:46:23N©+)5    3UATT 191430Z 26005MPS CAVOK 10/M04 Q1022 R31/70D NOSIG RMK QFE746/0995UATT2018-10-19T14:30:00Z50.2557.210.0-4.0260106.2130.177166TRUEVFRMETAR227.02018-10-19 14:46:23 t7cti©2)K5     3UAKK 191430Z 24008MPS 9999 -SHSN SCT013 OVC019CB M01/M02 Q1016 R23/550545 NOSIG RMK QFE715/0953UAKK2018-10-19T14:30:00Z49.6773.33-1.0-2.0240166.2130.0TRUE-SHSNMVFRSPECI538.02018-10-19 14:46:23N©1)5    3UAOO 191430Z 30002MPS CAVOK 06/M04 Q1026 R23/CLRD70 NOSIG RMK QFE757/1010UAOO2018-10-19T14:30:00Z44.765.66.0-4.030046.2130.295275TRUEVFRSPECI129.02018-10-19 14:46:23\©0);5    3UASK 191430Z 18004MPS 9999 BKN044CB BKN150 04/01 Q1019 R12/290250 NOSIG RMK QFE739/0986UASK2018-10-19T14:30:00Z50.0382.54.01.018086.2130.088583TRUEVFRMETAR286.02018-10-19 14:46:23a©/)95     3UASP 191430Z 18004MPS 9999 -SHSN BKN024CB 00/00 Q1013 R21/0///70 NOSIG RMK QFE748/0998UASP2018-10-19T14:30:00Z52.277.070.00.018086.2129.911417TRUE-SHSNMVFRSPECI125.02018-10-19 14:46:23 [*+K[j©6)G5     3UAAT 191430Z 27005MPS 5000 -SHRA BKN013 OVC024CB 02/01 Q1025 R20/19//60 NOSIG RMK QFE716/0955UAAT2018-10-19T14:30:00Z45.1278.452.01.0270103.1130.265747TRUE-SHRAMVFRMETAR591.02018-10-19 14:46:23Z©5)55    3UADD 191430Z 24003MPS 200V260 9999 NSC 07/M02 Q1025 R13/0///65 NOSIG RMK QFE711/0949UADD2018-10-19T14:30:00Z42.8571.37.0-2.024066.2130.265747TRUEVFRSPECI665.02018-10-19 14:46:23y©4)m5    3UACC 191430Z 27005MPS 240V300 3300 SHSN SCT010 BKN030CB M01/M01 Q1015 R22/5/0340 TEMPO 1000 SHSN RMK QFE730/0974UACC2018-10-19T14:30:00Z51.0271.47-1.0-1.0270102.0529.970472SHSNIFRMETAR355.02018-10-19 14:46:23P©3)5    3UAII 191430Z 19002MPS CAVOK 06/M02 Q1026 R28/0///70 NOSIG RMK QFE732/0976UAII2018-10-19T14:30:00Z42.3769.486.0-2.019046.2130.295275TRUEVFRSPECI422.02018-10-19 14:46:23 M/©;(g5    3ZYTL 191430Z VRB01MPS CAVOK 07/03 Q1028 NOSIGZYTL2018-10-19T14:30:00Z38.97121.537.03.0026.2130.35433TRUEVFRMETAR97.02018-10-19 14:46:236©:(o5    3ZYTX 191430Z VRB01MPS 6000 NSC 03/M03 Q1027 NOSIGZYTX2018-10-19T14:30:00Z41.63123.483.0-3.0023.7330.324802TRUEMVFRMETAR35.02018-10-19 14:46:23@©9)5    3UDYZ 191430Z 28001KT 9999 NSC 18/03 Q1018 R09/010070 NOSIGUDYZ2018-10-19T14:30:00Z40.1544.418.03.028016.2130.059055TRUEVFRSPECI865.02018-10-19 14:46:23B©8)5    3UDSG 191430Z 25004KT 9000 NSC 15/01 Q1021 R02/CLRD70 NOSIGUDSG2018-10-19T14:30:00Z40.7543.8715.01.025045.5930.147638TRUEVFRMETAR1524.02018-10-19 14:46:23e©7)O5    3UAAA 191430Z 20002MPS 170V230 4700 BR BKN050CB OVC100 05/01 Q1026 R23L/1///60 TEMPO 3000 -SHRA BRUAAA2018-10-19T14:30:00Z43.3577.035.01.020042.9230.295275BRIFRMETAR681.02018-10-19 14:46:23 TITA©@)5    3ZGGG 191430Z 06002MPS 040V100 6000 BKN033 22/20 Q1019 NOSIGZGGG2018-10-19T14:30:00Z23.4113.322.020.06043.7330.088583TRUEMVFRMETAR15.02018-10-19 14:46:232©?(g5    3ZSHC 191430Z 00000MPS CAVOK 15/11 Q1025 NOSIGZSHC2018-10-19T14:30:00Z30.22120.4315.011.0006.2130.265747TRUEVFRMETAR43.02018-10-19 14:46:238©>(s5    3ZSPD 191430Z 33004MPS 9999 BKN040 17/12 Q1026 NOSIGZSPD2018-10-19T14:30:00Z31.15121.817.012.033086.2130.295275TRUEVFRMETAR4.02018-10-19 14:46:232©=(g5    3ZSSS 191430Z 35003MPS CAVOK 16/12 Q1026 NOSIGZSSS2018-10-19T14:30:00Z31.2121.3316.012.035066.2130.295275TRUEVFRMETAR7.02018-10-19 14:46:231©<(i5    3ZWWW 191430Z VRB01MPS CAVOK 04/M00 Q1022 NOSIGZWWW2018-10-19T14:30:00Z43.8887.474.00.0026.2130.177166TRUEVFRMETAR654.02018-10-19 14:46:23 DDDF©E) 5    3LEVS 191430Z 01004KT 330V100 5000 -RA SCT015 BKN025 15/14 Q1014LEVS2018-10-19T14:30:00Z40.37-3.7715.014.01043.1129.940945-RAMVFRMETAR687.02018-10-19 14:46:238©D)5   3LELL 191430Z 05010KT 010V120 9999 FEW040 SCT060 23/15 Q1016LELL2018-10-19T14:30:00Z41.522.123.015.050106.2130.0VFRMETAR250.02018-10-19 14:46:233©C(m5    3ZBAA 191430Z VRB01MPS 8000 NSC 06/04 Q1028 NOSIGZBAA2018-10-19T14:30:00Z40.07116.586.04.0024.9730.35433TRUEMVFRMETAR30.02018-10-19 14:46:237©B(s5     3ZBTJ 191430Z 23002MPS 4500 HZ NSC 09/04 Q1028 NOSIGZBTJ2018-10-19T14:30:00Z39.12117.359.04.023042.830.35433TRUEHZIFRMETAR3.02018-10-19 14:46:236©A(i5    3ZBYN 191430Z 08007MPS CAVOK 10/M04 Q1026 NOSIGZBYN2018-10-19T14:30:00Z37.77112.6310.0-4.080146.2130.295275TRUEVFRMETAR779.02018-10-19 14:46:23 YEY1©J(e5    3RKSI 191430Z 33008KT CAVOK 13/06 Q1026 NOSIGRKSI2018-10-19T14:30:00Z37.47126.4513.06.033086.2130.295275TRUEVFRMETAR7.02018-10-19 14:46:23,©I(e5   3LESU 191430Z 05009KT 9999 BKN065 20/11 Q1018LESU2018-10-19T14:30:00Z42.331.420.011.05096.2130.059055VFRMETAR800.02018-10-19 14:46:23C©H)5    3LEBT 191430Z AUTO 10004KT 020V170 9999 SCT011/// 21/19 Q1013LEBT2018-10-19T14:30:00Z39.58-0.4521.019.010046.2129.911417TRUEVFRMETAR50.02018-10-19 14:46:234©G(s5   3LELO 191430Z VRB01KT 9999 FEW040 SCT050 23/13 Q1017LELO2018-10-19T14:30:00Z42.45-2.3223.013.0016.2130.029528VFRMETAR363.02018-10-19 14:46:235©F(o5    3LEBR 191430Z AUTO VRB02KT 9999 BKN067 22/12 Q1017LEBR2018-10-19T14:30:00Z42.2-1.4322.012.0026.2130.029528TRUEVFRMETAR295.02018-10-19 14:46:23 (<{(>©O)5   3LPCS 191430Z 08007KT 010V120 9999 FEW018 BKN030 23/13 Q1011LPCS2018-10-19T14:30:00Z38.73-9.3523.013.08076.2129.852362MVFRMETAR99.02018-10-19 14:46:238©N(s5    3UMGG 191430Z VRB01MPS CAVOK 18/12 Q1018 R28/D NOSIGUMGG2018-10-19T14:30:00Z52.5331.0218.012.0026.2130.059055TRUEVFRMETAR144.02018-10-19 14:46:23K©M)5    3UMMG 191430Z 34004MPS 9000 BKN015 OVC066 13/09 Q1020 R17/CLRD// NOSIGUMMG2018-10-19T14:30:00Z53.624.0513.09.034085.5930.11811TRUEMVFRSPECI135.02018-10-19 14:46:23;©L(s5    3UMMS 191430Z 33005MPS CAVOK 14/10 Q1019 R31/D NOSIGUMMS2018-10-19T14:30:00Z53.8828.0314.010.0330106.2130.088583TRUEVFRMETAR205.02018-10-19 14:46:23>©K)5    3OPRN 191430Z 05006KT 9999 FEW040 23/12 Q1016 NOSIG RMK A3002OPRN2018-10-19T14:30:00Z33.6273.0823.012.05066.2130.0TRUEVFRSPECI508.02018-10-19 14:46:23 US+UP©T)5    3LRBM 191430Z AUTO 27009KT 9999 FEW018/// SCT180/// BKN240/// 17/12 Q1018LRBM2018-10-19T14:30:00Z47.6723.4717.012.027096.2130.059055TRUEVFRMETAR185.02018-10-19 14:46:230©S(i5   3LRCL 191430Z 31008KT 270V340 CAVOK 18/07 Q1018LRCL2018-10-19T14:30:00Z46.7823.6818.07.031086.2130.059055VFRMETAR413.02018-10-19 14:46:233©R(g5    3LROD 191430Z 35005KT 9999 -RA NSC 17/12 Q1019LROD2018-10-19T14:30:00Z47.0321.9217.012.035056.2130.088583-RAVFRMETAR140.02018-10-19 14:46:233©Q(o5   3LRSM 191430Z 35004KT CAVOK 17/12 Q1018 R01/21//95LRSM2018-10-19T14:30:00Z47.722.8817.012.035046.2130.059055VFRMETAR124.02018-10-19 14:46:23'©P(Y5   3LRTM 191430Z 00000KT CAVOK 19/10 Q1017LRTM2018-10-19T14:30:00Z46.4724.4219.010.0006.2130.029528VFRMETAR309.02018-10-19 14:46:23 IB$©Y(Y5   3LRCV 191430Z 25005KT CAVOK 20/11 Q1016LRCV2018-10-19T14:30:00Z44.3223.8820.011.025056.2130.0VFRMETAR191.02018-10-19 14:46:23(©X(Y5   3LRIA 191430Z 34004KT CAVOK 18/06 Q1017LRIA2018-10-19T14:30:00Z47.1727.6218.06.034046.2130.029528VFRMETAR104.02018-10-19 14:46:23+©W(_5   3LRSV 191430Z 02006KT 8000 NSC 16/09 Q1018LRSV2018-10-19T14:30:00Z47.6826.3516.09.02064.9730.059055MVFRMETAR351.02018-10-19 14:46:23"©V(Y5   3LRTC 191430Z 36005KT CAVOK 20/10 Q1016LRTC2018-10-19T14:30:00Z45.0728.7220.010.036056.2130.0VFRMETAR6.02018-10-19 14:46:231©U(i5   3LRAR 191430Z 34004KT 320V020 CAVOK 18/11 Q1019LRAR2018-10-19T14:30:00Z46.1821.2718.011.034046.2130.088583VFRMETAR118.02018-10-19 14:46:23 iR&i7©^(k5    3LRCK 191430Z 10004KT 7000 NSC 18/13 Q1017 NOSIGLRCK2018-10-19T14:30:00Z44.3728.4818.013.010044.3530.029528TRUEMVFRMETAR108.02018-10-19 14:46:232©](q5    3LROP 191430Z 17003KT 9999 FEW035 20/13 Q1016 NOSIGLROP2018-10-19T14:30:00Z44.5726.120.013.017036.2130.0TRUEVFRMETAR95.02018-10-19 14:46:238©\(q5    3LRSB 191430Z 35006KT 9999 FEW060 19/08 Q1018 NOSIGLRSB2018-10-19T14:30:00Z45.7824.0819.08.035066.2130.059055TRUEVFRMETAR444.02018-10-19 14:46:230©[(e5    3LRTR 191430Z 00000KT CAVOK 18/12 Q1018 NOSIGLRTR2018-10-19T14:30:00Z45.8221.3318.012.0006.2130.059055TRUEVFRMETAR88.02018-10-19 14:46:23(©Z(Y5   3LRBC 191430Z 34004KT CAVOK 19/09 Q1017LRBC2018-10-19T14:30:00Z46.5226.9219.09.034046.2130.029528VFRMETAR185.02018-10-19 14:46:23 hBh/©c(e5   3LPHR 191430Z 19005KT 9999 FEW018 22/17 Q1026LPHR2018-10-19T14:30:00Z38.52-28.7222.017.019056.2130.295275VFRMETAR41.02018-10-19 14:46:230©b(e5   3LPFL 191430Z 17013KT 9999 FEW019 22/19 Q1025LPFL2018-10-19T14:30:00Z39.45-31.1222.019.0170136.2130.265747VFRMETAR29.02018-10-19 14:46:23/©a(e5   3LPAZ 191430Z 03008KT 9999 BKN032 20/13 Q1027LPAZ2018-10-19T14:30:00Z36.97-25.1720.013.03086.2130.324802VFRMETAR100.02018-10-19 14:46:234©`(s5   3LPPD 191430Z VRB03KT 9999 FEW025 SCT035 20/13 Q1027LPPD2018-10-19T14:30:00Z37.72-25.6820.013.0036.2130.324802VFRMETAR72.02018-10-19 14:46:238©_(u5    3LRBS 191430Z 07003KT 360V120 CAVOK 20/12 Q1017 NOSIGLRBS2018-10-19T14:30:00Z44.526.0820.012.07036.2130.029528TRUEVFRMETAR91.02018-10-19 14:46:23 lF l.©h(e5   3LPFR 191430Z 12012KT 9999 FEW020 20/10 Q1010LPFR2018-10-19T14:30:00Z37.02-7.9720.010.0120126.2129.822834VFRMETAR4.02018-10-19 14:46:232©g(u5   3LPMA 191430Z 01011KT 310V060 9999 BKN015 20/15 Q1016LPMA2018-10-19T14:30:00Z32.7-16.7720.015.010116.2130.0MVFRMETAR55.02018-10-19 14:46:231©f(i5   3LPPR 191430Z 34010KT 310V010 CAVOK 23/14 Q1013LPPR2018-10-19T14:30:00Z41.22-8.6723.014.0340106.2129.911417VFRMETAR73.02018-10-19 14:46:231©e(s5   3LPPS 191430Z 01018KT 9999 SCT014 SCT030 22/15 Q1016LPPS2018-10-19T14:30:00Z33.07-16.3522.015.010186.2130.0VFRMETAR82.02018-10-19 14:46:234©d(s5   3LPPT 191430Z 06008KT 9999 FEW035 SCT048 23/14 Q1012LPPT2018-10-19T14:30:00Z38.77-9.1223.014.06086.2129.88189VFRMETAR123.02018-10-19 14:46:23 "?W"6©m(u5   3LELN 191430Z 04014KT 010V070 9999 FEW050 19/08 Q1018LELN2018-10-19T14:30:00Z42.57-5.6519.08.040146.2130.059055VFRMETAR914.02018-10-19 14:46:236©l(u5   3GEML 191430Z 12005KT 060V170 9999 FEW020 20/12 Q1011GEML2018-10-19T14:30:00Z35.27-2.9520.012.012056.2129.852362VFRMETAR55.02018-10-19 14:46:237©k(s5   3LEBG 191430Z 03013KT 9999 BKN016 OVC023 15/12 Q1019LEBG2018-10-19T14:30:00Z42.37-3.6215.012.030136.2130.088583MVFRMETAR891.02018-10-19 14:46:23b©j)?5     3LECH 191430Z AUTO 04009KT 350V080 9000 -RA SCT007/// BKN014/// OVC055/// 17/16 Q1014 RETSLECH2018-10-19T14:30:00Z40.20.0717.016.04095.5929.940945TRUE-RAMVFRMETAR337.02018-10-19 14:46:23;©i(w5     3LETL 191430Z AUTO 31004KT 4300 +RA OVC070 10/10 Q1016LETL2018-10-19T14:30:00Z40.42-1.2210.010.031042.6730.0TRUE+RAIFRMETAR1013.02018-10-19 14:46:23 1<y1M©r)5     3VOTR 191430Z 09006KT 4000 BR SCT016 FEW025CB BKN080 27/26 Q1011 NOSIGVOTR2018-10-19T14:30:00Z10.7778.7227.026.09062.4929.852362TRUEBRIFRMETAR88.02018-10-19 14:46:239©q(q5     3VANP 191430Z 00000KT 3000 HZ NSC 27/21 Q1014 NOSIGVANP2018-10-19T14:30:00Z21.0879.0527.021.0001.8629.940945TRUEHZIFRMETAR310.02018-10-19 14:46:230©p(e5   3LEPP 191430Z 31011KT 9999 FEW042 20/13 Q1017LEPP2018-10-19T14:30:00Z42.77-1.6520.013.0310116.2130.029528VFRMETAR459.02018-10-19 14:46:23=©o)5   3LEXJ 191430Z 36004KT 320V040 9000 SCT015 BKN024 19/17 Q1020LEXJ2018-10-19T14:30:00Z43.42-3.8219.017.036045.5930.11811MVFRMETAR6.02018-10-19 14:46:23>©n)5    3LELC 191430Z 12007KT 090V150 9999 FEW035 23/13 Q1012 NOSIGLELC2018-10-19T14:30:00Z37.77-0.823.013.012076.2129.88189TRUEVFRMETAR3.02018-10-19 14:46:23 @YI©v)5    3UWSS 191430Z 23003MPS CAVOK 16/06 Q1020 R30/010095 NOSIG RMK QFE751UWSS2018-10-19T14:30:00Z51.5746.0716.06.023066.2130.11811TRUEVFRSPECI166.02018-10-19 14:46:23Q©u)-5    3UWWW 191430Z 22003MPS 180V250 CAVOK 14/08 Q1016 R33/CLRD60 NOSIG RMK QFE751/1002UWWW2018-10-19T14:30:00Z53.550.1714.08.022066.2130.0TRUEVFRSPECI146.02018-10-19 14:46:23a©t)15   3KHHV 191430Z AUTO 13012G21KT 070V160 10SM FEW075 SCT095 BKN120 28/24 A3010 RMK A01KHHV2018-10-19T14:30:00Z26.93-94.6828.024.0130122110.030.100393TRUETRUEVFRMETAR25.02018-10-19 14:46:23:©s(q5    3VABP 191430Z 14005KT 6000 FEW025 26/19 Q1015 NOSIGVABP2018-10-19T14:30:00Z23.2777.3326.019.014053.7329.970472TRUEMVFRMETAR523.02018-10-19 14:46:23 /^S©z)'5    3UWKD 191430Z 23002MPS 190V260 CAVOK 16/09 Q1012 R29/70D NOSIG RMK QFE748/0997UWKD2018-10-19T14:30:00Z55.6249.2816.09.023046.2129.88189TRUEVFRMETAR126.02018-10-19 14:46:23O©y)5    3UWKE 191430Z 23008MPS CAVOK 11/06 Q1012 R21/090070 NOSIG RMK QFE742/0989UWKE2018-10-19T14:30:00Z55.5752.0811.06.0230166.2129.88189TRUEVFRSPECI196.02018-10-19 14:46:23K©x)5    3UWKS 191430Z 23006MPS CAVOK 14/08 Q1011 R24/010060 NOSIG RMK QFE744UWKS2018-10-19T14:30:00Z56.0847.3514.08.0230126.2129.852362TRUEVFRMETAR170.02018-10-19 14:46:23K©w)5    3UWOO 191430Z 20003MPS CAVOK 11/03 Q1019 R26/60D NOSIG RMK QFE754/1005UWOO2018-10-19T14:30:00Z51.855.4711.03.020066.2130.088583TRUEVFRMETAR109.02018-10-19 14:46:23 *RQ©~)#5    3UIBB 191430Z AUTO 05002MPS 010V090 9999 // NCD 00/M03 Q1017 RMK QFE719/0959UIBB2018-10-19T14:30:00Z56.37101.70.0-3.05046.2130.029528TRUEVFRMETAR490.02018-10-19 14:46:23K©})5    3UIII 191430Z 31004MPS CAVOK 02/01 Q1014 R30/60D NOSIG RMK QFE716/0955UIII2018-10-19T14:30:00Z52.27104.42.01.031086.2129.940945TRUEVFRMETAR513.02018-10-19 14:46:23R©|)%5    3UIUU 191430Z 03003MPS 9999 FEW046 02/M07 Q1014 R26/60D NOSIG RMK QFE716/0955UIUU2018-10-19T14:30:00Z51.8107.452.0-7.03066.2129.940945TRUEVFRMETAR515.02018-10-19 14:46:23P©{)5    3USPP 191430Z 23007MPS 9000 FEW015 07/06 Q1006 R21/090060 NOSIG RMK QFE744USPP2018-10-19T14:30:00Z57.9256.027.06.0230145.5929.704725TRUEVFRSPECI123.02018-10-19 14:46:23 2g>ª(}5    3UUOB 191430Z 14001MPS CAVOK 17/07 Q1017 R11/010060 NOSIGUUOB2018-10-19T14:30:00Z50.6536.5817.07.014026.2130.029528TRUEVFRMETAR224.02018-10-19 14:46:23Jª)5    3UUOK 191430Z 17002MPS CAVOK 17/06 Q1016 R12/CLRD65 NOSIG RMK QFE744/0993UUOK2018-10-19T14:30:00Z51.7536.2817.06.017046.2130.0TRUEVFRMETAR209.02018-10-19 14:46:23Eª) 5    3UWGG 191430Z 25003MPS 9999 SCT030 15/11 Q1012 R18L/090070 NOSIGUWGG2018-10-19T14:30:00Z56.2343.7815.011.025066.2129.88189TRUEVFRMETAR73.02018-10-19 14:46:23H©)5    3UIAA 191430Z AUTO VRB01MPS 9999 NCD M02/M08 Q1017 RMK QFE704/0939UIAA2018-10-19T14:30:00Z52.02113.32-2.0-8.0026.2130.029528TRUEVFRMETAR685.02018-10-19 14:46:23 +Q{Yª)95   3USSS 191430Z 20002MPS 9999 OVC011 07/06 Q1009 R26R/290040 TEMPO BKN005 RMK QFE736/0981USSS2018-10-19T14:30:00Z56.7560.827.06.020046.2129.793306MVFRSPECI233.02018-10-19 14:46:23Pª)5    3USCM 191430Z 26005MPS 9999 BKN030 09/03 Q1014 R18/090060 NOSIG RMK QFE723USCM2018-10-19T14:30:00Z53.458.759.03.0260106.2129.940945TRUEMVFRMETAR435.02018-10-19 14:46:23Tª))5    3ULWC 191430Z 27003MPS 9999 FEW026 09/02 Q1013 R21/010060 NOSIG RMK QFE749/0999ULWC2018-10-19T14:30:00Z59.2838.029.02.027066.2129.911417TRUEVFRMETAR115.02018-10-19 14:46:23Oª)5    3UUBC 191430Z 28002MPS CAVOK 15/08 Q1015 R31/CLRD60 NOSIG RMK QFE744/0993UUBC2018-10-19T14:30:00Z54.5536.3715.08.028046.2129.970472TRUEVFRMETAR199.02018-10-19 14:46:23 w%LwOª )5    3UWUU 191430Z 22004MPS CAVOK 08/06 Q1013 R14R/0///60 NOSIG RMK QFE750/1000UWUU2018-10-19T14:30:00Z54.5755.878.06.022086.2129.911417TRUEVFRSPECI137.02018-10-19 14:46:23Sª )%5     3USCC 191430Z 25003MPS 5000 BR SCT020 05/04 Q1011 R27/250055 NOSIG RMK QFE738USCC2018-10-19T14:30:00Z55.361.55.04.025063.1129.852362TRUEBRMVFRSPECI234.02018-10-19 14:46:23Nª)5    3USNN 191430Z 22004MPS 9999 OVC006 01/01 Q1009 R21/290255 NOSIG RMK QFE752USNN2018-10-19T14:30:00Z60.9576.481.01.022086.2129.793306TRUEIFRSPECI54.02018-10-19 14:46:23ª){5    3USRR 191430Z 25002MPS 5000 -SHSN BR SCT003 BKN029CB M00/M00 Q1008 R25/290050 TEMPO BKN002 BKN015CB RMK OBST OBSC QFE751USRR2018-10-19T14:30:00Z61.3373.420.00.025043.1129.763779-SHSN BRMVFRSPECI44.02018-10-19 14:46:23 <seª)I5    3URSS 191430Z 25001MPS 9999 NSC 20/14 Q1015 R02/090070 R06/////// NOSIG RMK R06/29003MPS QFE760URSS2018-10-19T14:30:00Z43.4539.9520.014.025026.2129.970472TRUEVFRMETAR16.02018-10-19 14:46:23Oª )5    3URWA 191430Z 13004MPS CAVOK 12/01 Q1023 R09/010070 NOSIG RMK QFE769/1026URWA2018-10-19T14:30:00Z46.2848.0212.01.013086.2130.206694TRUEVFRSPECI-20.02018-10-19 14:46:23Cª ) 5   3URWI 191430Z 10003MPS 9999 FEW/// 12/10 Q1021 R09/010065 NOSIGURWI2018-10-19T14:30:00Z46.3744.3312.010.010066.2130.147638TRUESPECI150.02018-10-19 14:46:23>ª (}5    3URWW 191430Z 12003MPS CAVOK 12/02 Q1021 R06/010070 NOSIGURWW2018-10-19T14:30:00Z48.7844.3312.02.012066.2130.147638TRUEVFRSPECI147.02018-10-19 14:46:23 #R}]ª)55     3URMN 191430Z 25003MPS 2500 HZ OVC008 11/09 Q1019 R24/010070 NOSIG RMK MT OBSC QFE728URMN2018-10-19T14:30:00Z43.5243.6311.09.025061.5530.088583TRUEHZIFRMETAR445.02018-10-19 14:46:23Oª)#5    3URMO 191430Z 06002MPS 9999 NSC 14/10 Q1020 R09/010070 NOSIG RMK QFE721/0961URMO2018-10-19T14:30:00Z43.244.614.010.06046.2130.11811TRUEVFRMETAR510.02018-10-19 14:46:23Kª)5    3URMT 191430Z 15006MPS CAVOK 14/09 Q1018 R07/010070 NOSIG RMK QFE724URMT2018-10-19T14:30:00Z45.1242.1214.09.0150126.2130.059055TRUEVFRSPECI453.02018-10-19 14:46:23Wª)55   3URRP 191430Z 12007MPS CAVOK 18/10 Q1017 R05/CLRD70 TEMPO 12010G15MPS RMK QFE758/1011URRP2018-10-19T14:30:00Z47.539.9218.010.0120146.2130.029528VFRMETAR65.02018-10-19 14:46:23 (BiKª)5    3URKK 191430Z 10002MPS CAVOK 19/13 Q1015 R23L/CLRD70 NOSIG RMK QFE758URKK2018-10-19T14:30:00Z45.0339.1519.013.010046.2129.970472TRUEVFRSPECI34.02018-10-19 14:46:23Sª))5    3URMG 191430Z 00000MPS 9999 SCT029 15/10 Q1019 R08/000070 NOSIG RMK QFE750/1000URMG2018-10-19T14:30:00Z43.3745.715.010.0006.2130.088583TRUEVFRMETAR263.02018-10-19 14:46:23`ª)G5   3URML 191430Z 16005MPS 9999 SCT027 17/14 Q1019 R14/01//70 BECMG 5000 BR BKN008 RMK QFE764/1019URML2018-10-19T14:30:00Z42.8247.6517.014.0160106.2130.088583VFRSPECI4.02018-10-19 14:46:23Rª)#5    3URMM 191430Z 13006MPS 9999 NSC 14/09 Q1019 R12/090070 NOSIG RMK QFE736/0982URMM2018-10-19T14:30:00Z44.2243.114.09.0130126.2130.088583TRUEVFRMETAR314.02018-10-19 14:46:23 .SMª)5    3UUEE 191430Z 32004MPS CAVOK 14/10 Q1015 R24L/CLRD62 R24C/CLRD62 NOSIGUUEE2018-10-19T14:30:00Z55.9737.4214.010.032086.2129.970472TRUEVFRMETAR190.02018-10-19 14:46:23>ª(}5    3UUWW 191430Z 29003MPS CAVOK 14/10 Q1015 R24/000070 NOSIGUUWW2018-10-19T14:30:00Z55.637.2714.010.029066.2129.970472TRUEVFRMETAR203.02018-10-19 14:46:23Uª))5    3UUMO 191430Z 33003MPS 9999 BKN040 14/10 Q1014 R26/090060 NOSIG RMK QFE745/0994UUMO2018-10-19T14:30:00Z55.5237.514.010.033066.2129.940945TRUEVFRMETAR174.02018-10-19 14:46:23Lª))5   3URKA 191430Z 21002MPS 9999 FEW/// 17/15 Q1016 R22/010070 NOSIG RMK QFE757/1009URKA2018-10-19T14:30:00Z45.037.3517.015.021046.2130.0TRUEMETAR53.02018-10-19 14:46:23 2`.ª(e5    3VASU 191430Z 00000KT 5000 FU NSC 30/22 Q1011VASU2018-10-19T14:30:00Z21.1272.7330.022.0003.1129.852362FUMVFRMETAR5.02018-10-19 14:46:23Cª) 5    3ULLI 191430Z 29006MPS 9999 BKN027 09/04 Q1017 R88/090060 NOSIGULLI2018-10-19T14:30:00Z59.830.279.04.0290126.2130.029528TRUEMVFRMETAR4.02018-10-19 14:46:23Gª) 5    3UUBW 191430Z 30003MPS 8000 BKN040 15/10 Q1014 R30/010060 NOSIGUUBW2018-10-19T14:30:00Z55.5538.1515.010.030064.9729.940945TRUEMVFRMETAR115.02018-10-19 14:46:23Lª)5    3UUDD 191430Z 27002MPS 240V320 9999 SCT035 16/10 Q1015 R88/010095 NOSIGUUDD2018-10-19T14:30:00Z55.437.916.010.027046.2129.970472TRUEVFRMETAR168.02018-10-19 14:46:23Hª)5    3UUDL 191430Z 25003MPS CAVOK 07/06 Q1013 R23/290150 NOSIG RMK QFE752UUDL2018-10-19T14:30:00Z57.5740.177.06.025066.2129.911417TRUEVFRMETAR88.02018-10-19 14:46:23Y88@HPX`hpx (08@HPX`hpx (08@HPX`hpx)¨|*©+©,© -©.©/©0©1©"2©&3©*4©.)¨|*©+©,© -©.©/©0©1©"2©&3©*4©.5©26©67©;8©@9©E:©J;©O<©T=©Y>©^?©c@©hA©mB©rC©vD©zE©~FªGªHª IªJªKªLªMªOª$Pª(Qª,Rª0Sª4Tª8Uª=VªBWªGXªKYªOZªS[ªX\ª]]ªb^ªg_ªl`ªqaªvbªzcª~d«e«f« g«h«i«j«k«"l«'m«,n«0o«4p«9q«=r«As«Et«Iu«Mv«Qw«Ux«Zy«_z«d{«i|«m}«r~«v«z«~¬¬ @5ª$(k5    3VOHY 191430Z VRB03KT 6000 NSC 27/17 Q1017 NOSIGVOHY2018-10-19T14:30:00Z17.4578.4527.017.0033.7330.029528TRUEMVFRMETAR545.02018-10-19 14:46:23Wª#)-5    3UHHH 191430Z 30003MPS 9999 FEW016 03/M01 Q1017 R23L/090060 NOSIG RMK QFE756/1008UHHH2018-10-19T14:30:00Z48.52135.183.0-1.030066.2130.029528TRUEVFRMETAR72.02018-10-19 14:46:23Nª")5    3UHWW 191430Z 36001MPS 9999 NSC 01/M01 Q1022 R25L/0///70 NOSIG RMK QFE766UHWW2018-10-19T14:30:00Z43.4132.151.0-1.036026.2130.177166TRUEVFRMETAR14.02018-10-19 14:46:234ª!(q5     3VERC 191430Z 00000KT 4000 HZ NSC 25/16 Q1016 NOSIGVERC2018-10-19T14:30:00Z23.3285.3225.016.0002.4930.0TRUEHZIFRMETAR652.02018-10-19 14:46:23:ª (q5     3VEBN 191430Z 22005KT 3500 HZ NSC 28/21 Q1011 NOSIGVEBN2018-10-19T14:30:00Z25.4582.8528.021.022052.1729.852362TRUEHZIFRMETAR83.02018-10-19 14:46:23 ByTª()5     3WBSB 191430Z 11003KT 9000 -TSRA SCT014 FEW015CB BKN150 25/25 Q1014 NOSIGWBSB2018-10-19T14:30:00Z4.92114.9225.025.011035.5929.940945TRUE-TSRAVFRMETAR15.02018-10-19 14:46:23Nª')5    3WMKK 191430Z 30003KT 250V350 9999 FEW030 SCT140 BKN280 27/23 Q1012 NOSIGWMKK2018-10-19T14:30:00Z2.75101.7227.023.030036.2129.88189TRUEVFRMETAR22.02018-10-19 14:46:23Cª&) 5    3WMKP 191430Z VRB02KT 9000 FEW025 SCT140 BKN270 26/23 Q1012 NOSIGWMKP2018-10-19T14:30:00Z5.28100.2726.023.0025.5929.88189TRUEVFRMETAR4.02018-10-19 14:46:238ª%(q5     3VAAH 191430Z 00000KT 4000 FU NSC 33/18 Q1011 NOSIGVAAH2018-10-19T14:30:00Z23.0772.6233.018.0002.4929.852362TRUEFUIFRMETAR55.02018-10-19 14:46:23 #O@ª,(5    3RJTT 191430Z 35012KT 9999 FEW020 BKN/// 18/14 Q1017 NOSIGRJTT2018-10-19T14:30:00Z35.53139.7718.014.0350126.2130.029528TRUEVFRMETAR8.02018-10-19 14:46:23>ª+)5   3ROAH 191430Z 05005KT 9999 FEW035 22/14 Q1020 RMK 1CU035 A3012ROAH2018-10-19T14:30:00Z26.17127.6522.014.05056.2130.11811VFRMETAR8.02018-10-19 14:46:23Nª*)5     3WBGG 191430Z VRB02KT 9999 -RA FEW015CB SCT020 BKN150 24/24 Q1013 NOSIGWBGG2018-10-19T14:30:00Z1.47110.3524.024.0026.2129.911417TRUE-RAVFRMETAR27.02018-10-19 14:46:23Wª))5    3WBKK 191430Z 11006KT 9999 FEW014 FEW016CB SCT140 BKN270 25/23 Q1014 NOSIGWBKK2018-10-19T14:30:00Z5.92116.0325.023.011066.2129.940945TRUEBKN27000VFRMETAR3.02018-10-19 14:46:23 5IHª0) 5    3RJAA 191430Z 33007KT 9999 FEW020 BKN100 BKN/// 15/13 Q1017 NOSIGRJAA2018-10-19T14:30:00Z35.77140.3715.013.033076.2130.029528TRUEVFRMETAR44.02018-10-19 14:46:23>ª/)5   3RJCC 191430Z 33003KT 9999 FEW020 02/01 Q1020 RMK 1CU020 A3014RJCC2018-10-19T14:30:00Z42.77141.672.01.033036.2130.11811VFRMETAR30.02018-10-19 14:46:23fª.)K5    3RJFF 191430Z AUTO 06003KT 020V100 9999 SCT033 BKN037 BKN070 //////TCU 16/13 Q1022 BECMG 36007KTRJFF2018-10-19T14:30:00Z33.57130.4316.013.06036.2130.177166TRUEVFRMETAR12.02018-10-19 14:46:23Eª-) 5    3RJGG 191430Z 01004KT 9999 FEW020 SCT030 BKN/// 17/15 Q1017 NOSIGRJGG2018-10-19T14:30:00Z34.87136.817.015.01046.2130.029528TRUEVFRMETAR5.02018-10-19 14:46:23 =y@ª4({5     3FMEP 191430Z AUTO VRB01KT 9999 FEW044 24/20 Q1015 NOSIGFMEP2018-10-19T14:30:00Z-21.3255.4224.020.0016.2129.970472TRUETRUEVFRMETAR18.02018-10-19 14:46:23<ª3(u5     3NZAA 191430Z AUTO 08002KT 9999 NCD 10/09 Q1029 NOSIGNZAA2018-10-19T14:30:00Z-37.02174.810.09.08026.2130.383858TRUETRUEVFRMETAR6.02018-10-19 14:46:23>ª2(u5     3NZWN 191430Z AUTO 03017KT 9999 NCD 13/10 Q1024 NOSIGNZWN2018-10-19T14:30:00Z-41.32174.813.010.030176.2130.236221TRUETRUEVFRMETAR7.02018-10-19 14:46:23=ª1(u5     3NZCH 191430Z AUTO 23004KT 9999 NCD 08/05 Q1020 NOSIGNZCH2018-10-19T14:30:00Z-43.47172.558.05.023046.2130.11811TRUETRUEVFRMETAR34.02018-10-19 14:46:23 7n?ª8(5    3VVTS 191430Z 08008KT 9999 FEW017 BKN050 25/25 Q1011 NOSIGVVTS2018-10-19T14:30:00Z10.82106.6725.025.08086.2129.852362TRUEVFRMETAR19.02018-10-19 14:46:23Cª7)5    3VVDN 191430Z 26003KT 8000 SCT013 FEW015TCU 27/25 Q1015 NOSIGVVDN2018-10-19T14:30:00Z16.02108.227.025.026034.9729.970472TRUEMVFRMETAR7.02018-10-19 14:46:237ª6(q5     3VEBS 191430Z 00000KT 3000 HZ NSC 28/26 Q1012 NOSIGVEBS2018-10-19T14:30:00Z20.2585.8228.026.0001.8629.88189TRUEHZIFRMETAR46.02018-10-19 14:46:23ª5)5    3FMEE 191430Z AUTO 26005KT 9999 SCT017/// BKN023/// BKN033/// ///CB 25/20 Q1015 TEMPO 4000 SHRA BKN014 SCT020TCU BECMG 34010KTFMEE2018-10-19T14:30:00Z-20.8755.5225.020.026056.2129.970472TRUEMVFRMETAR25.02018-10-19 14:46:23 :}Pª=)5     3VVCR 191430Z 31004KT 5000 RA SCT013 BKN050 25/25 Q1014 NOSIG RMK CB/SWVVCR2018-10-19T14:30:00Z12.0109.2225.025.031043.1129.940945TRUERAMVFRMETAR12.02018-10-19 14:46:23Fª<)5     3VVCT 191430Z 00000KT 8000 -RA FEW013 BKN040 24/24 Q1011 NOSIGVVCT2018-10-19T14:30:00Z10.08105.7224.024.0004.9729.852362TRUE-RAMVFRMETAR3.02018-10-19 14:46:239ª;(q5    3VVNB 191430Z 30004KT 9000 BKN025 23/23 Q1017 NOSIGVVNB2018-10-19T14:30:00Z21.22105.823.023.030045.5930.029528TRUEMVFRMETAR12.02018-10-19 14:46:237ª:(q5    3VVPB 191430Z 08005KT 9999 FEW017 28/26 Q1015 NOSIGVVPB2018-10-19T14:30:00Z16.38107.728.026.08056.2129.970472TRUEVFRMETAR17.02018-10-19 14:46:23@ª9(5    3VVPQ 191430Z 26007KT 8000 SCT015 BKN040 25/24 Q1011 NOSIGVVPQ2018-10-19T14:30:00Z10.23103.9725.024.026074.9729.852362TRUEMVFRMETAR4.02018-10-19 14:46:23 HJ H?ªB(5    3VTBU 191430Z 33003KT 6000 FEW020 SCT100 28/24 Q1011 NOSIGVTBU2018-10-19T14:30:00Z12.68101.028.024.033033.7329.852362TRUEMVFRMETAR5.02018-10-19 14:46:237ªA(q5    3VTCC 191430Z 00000KT 9999 FEW035 27/23 Q1015 NOSIGVTCC2018-10-19T14:30:00Z18.7798.9727.023.0006.2129.970472TRUEVFRMETAR314.02018-10-19 14:46:23=ª@(5    3VTSP 191430Z VRB01KT 8000 FEW020 BKN100 26/23 Q1013 NOSIGVTSP2018-10-19T14:30:00Z8.1298.3226.023.0014.9729.911417TRUEMVFRMETAR10.02018-10-19 14:46:237ª?(q5    3VTSS 191430Z 11002KT 9999 FEW020 25/24 Q1012 NOSIGVTSS2018-10-19T14:30:00Z6.92100.3825.024.011026.2129.88189TRUEVFRMETAR35.02018-10-19 14:46:230ª>(k5    3VVCI 191430Z 08005KT 8000 NSC 25/23 Q1016 NOSIGVVCI2018-10-19T14:30:00Z20.82106.7325.023.08054.9730.0TRUEMVFRMETAR3.02018-10-19 14:46:23 JBJ>ªG(w5     3VLVT 191430Z 06004KT 4000 BR BKN050 28/25 Q1013 NOSIGVLVT2018-10-19T14:30:00Z17.98102.5728.025.06042.4929.911417TRUEBRIFRMETAR171.02018-10-19 14:46:23.ªF(e5   3VYMD 191430Z 24001KT 6000 FEW020 24/23 Q1011VYMD2018-10-19T14:30:00Z21.795.9824.023.024013.7329.852362MVFRMETAR91.02018-10-19 14:46:23>ªE)5   3VYYY 191430Z 23004KT 6000 SCT016 FEW020CB BKN100 29/26 Q1012VYYY2018-10-19T14:30:00Z16.996.1329.026.023043.7329.88189MVFRMETAR33.02018-10-19 14:46:236ªD(q5    3VTBD 191430Z 31002KT 9999 FEW030 30/24 Q1012 NOSIGVTBD2018-10-19T14:30:00Z13.92100.630.024.031026.2129.88189TRUEVFRMETAR3.02018-10-19 14:46:238ªC(q5    3VTBS 191430Z 24003KT 9999 FEW020 29/25 Q1011 NOSIGVTBS2018-10-19T14:30:00Z13.68100.7529.025.024036.2129.852362TRUEVFRMETAR2.02018-10-19 14:46:23 8|DªK(}5    3KWYS 191430Z AUTO 00000KT 10SM CLR M06/M07 A3045 RMK AO2KWYS2018-10-19T14:30:00Z44.67-111.12-6.0-7.00010.030.448818TRUETRUEVFRMETAR2025.02018-10-19 14:46:23PªJ)#5    3VDPP 191430Z VRB02KT 9000 -RA SCT015 FEW017CB BKN040 25/25 Q1011 CB/E/SE/SWVDPP2018-10-19T14:30:00Z11.55104.8325.025.0025.5929.852362-RAVFRMETAR10.02018-10-19 14:46:236ªI(s5   3VDSR 191430Z 36002KT 9000 SCT015 BKN040 26/25 Q1010VDSR2018-10-19T14:30:00Z13.42103.8326.025.036025.5929.822834VFRMETAR15.02018-10-19 14:46:23BªH)5   3VDSV 191430Z VRB01KT 9000 SCT015 FEW017CB BKN040 24/24 Q1012 CB:SVDSV2018-10-19T14:30:00Z10.58103.6324.024.0015.5929.88189VFRMETAR10.02018-10-19 14:46:23 1`FªO(}5    3KC07 191430Z AUTO 28010KT 10SM CLR M02/M02 A3051 RMK AO2KC072018-10-19T14:30:00Z40.35-106.7-2.0-2.02801010.030.510826TRUETRUEVFRMETAR3224.02018-10-19 14:46:23SªN)5     3KCCU 191430Z AUTO 00000KT 1/4SM FZFG OVC003 M02/M05 A3053 RMK AO2KCCU2018-10-19T14:30:00Z39.48-106.15-2.0-5.0000.2530.528543TRUETRUEFZFGLIFRMETAR3680.02018-10-19 14:46:23KªM) 5    3KEIK 191430Z AUTO 00000KT 10SM CLR 08/02 A3036 RMK AO2 T00800019KEIK2018-10-19T14:30:00Z40.02-105.058.01.90010.030.360237TRUETRUEVFRSPECI1564.02018-10-19 14:46:23IªL(5   3KHEQ 191430Z AUTO 30010G17KT 10SM CLR 12/03 A3018 RMK AO2KHEQ2018-10-19T14:30:00Z40.57-102.2812.03.0300101710.030.180119TRUETRUEVFRMETAR1137.02018-10-19 14:46:23 7mPªS)5    3K4BM 191430Z AUTO 05007KT 10SM CLR 00/M08 A3052 RMK AO2 LTG DSNT NWK4BM2018-10-19T14:30:00Z39.05-105.520.0-8.050710.030.519686TRUETRUEVFRMETAR3438.02018-10-19 14:46:23EªR(}5    3K5SM 191430Z AUTO 06004KT 10SM CLR M04/M05 A3055 RMK AO2K5SM2018-10-19T14:30:00Z39.43-107.38-4.0-5.060410.030.549213TRUETRUEVFRMETAR3232.02018-10-19 14:46:23DªQ({5    3K7BM 191430Z AUTO 27006KT 10SM CLR 02/M07 A3047 RMK AO2K7BM2018-10-19T14:30:00Z38.78-106.222.0-7.0270610.030.469488TRUETRUEVFRMETAR2995.02018-10-19 14:46:23CªP({5    3KBDU 191430Z AUTO 00000KT 10SM CLR 11/M02 A3030 RMK AO2KBDU2018-10-19T14:30:00Z40.03-105.2311.0-2.00010.030.301182TRUETRUEVFRMETAR1612.02018-10-19 14:46:23 )*f)8ªX(w5    3UKKK 191430Z 00000MPS CAVOK 17/09 Q1017 R26/70D NOSIGUKKK2018-10-19T14:30:00Z50.430.4517.09.0006.2130.029528TRUEVFRMETAR179.02018-10-19 14:46:236ªW(q5    3UKKM 191430Z AUTO 32001MPS 9999 // NSC 17/09 Q1017UKKM2018-10-19T14:30:00Z50.630.217.09.032026.2130.029528TRUEVFRSPECI157.02018-10-19 14:46:23=ªV(}5    3UKOH 191430Z 28001MPS CAVOK 19/12 Q1015 R03/CLRD65 NOSIGUKOH2018-10-19T14:30:00Z46.6732.519.012.028026.2129.970472TRUEVFRMETAR45.02018-10-19 14:46:23>ªU(}5    3UKWW 191430Z 33002MPS CAVOK 17/10 Q1017 R13/0///65 NOSIGUKWW2018-10-19T14:30:00Z49.2528.617.010.033046.2130.029528TRUEVFRMETAR293.02018-10-19 14:46:23PªT)5    3K20V 191430Z AUTO 00000KT 10SM BKN021 BKN031 M01/M02 A3051 RMK AO2K20V2018-10-19T14:30:00Z40.05-106.37-1.0-2.00010.030.510826TRUETRUEMVFRMETAR2259.02018-10-19 14:46:23  0b =ª])5   3EIME 191430Z 25008KT 9999 FEW018 SCT022 BKN027 14/10 Q1025EIME2018-10-19T14:30:00Z53.3-6.4514.010.025086.2130.265747MVFRMETAR93.02018-10-19 14:46:236ª\(u5   3EIWF 191430Z 24008KT 210V270 9999 FEW022 14/11 Q1026EIWF2018-10-19T14:30:00Z52.18-7.0814.011.024086.2130.295275VFRMETAR36.02018-10-19 14:46:23=ª[(}5    3UKLR 191430Z 34002MPS CAVOK 16/09 Q1018 R29/090070 NOSIGUKLR2018-10-19T14:30:00Z50.626.1316.09.034046.2130.059055TRUEVFRSPECI230.02018-10-19 14:46:23HªZ) 5    3UKLI 191430Z 31003MPS 250V340 CAVOK 17/10 Q1019 R28/090070 NOSIGUKLI2018-10-19T14:30:00Z48.8824.6817.010.031066.2130.088583TRUEVFRSPECI280.02018-10-19 14:46:23JªY)5    3UKLU 191430Z 33003MPS 280V010 9999 NSC 20/05 Q1018 R10/090070 NOSIGUKLU2018-10-19T14:30:00Z48.6322.2720.05.033066.2130.059055TRUEVFRSPECI117.02018-10-19 14:46:23 FK F?ªb)5    3DTTJ 191430Z 31005KT 260V360 9999 FEW020 26/13 Q1012 NOSIGDTTJ2018-10-19T14:30:00Z33.8710.7726.013.031056.2129.88189TRUEVFRMETAR4.02018-10-19 14:46:236ªa(u5   3LEBA 191430Z 21004KT 140V260 9999 FEW035 22/10 Q1011LEBA2018-10-19T14:30:00Z37.85-4.8222.010.021046.2129.852362VFRMETAR92.02018-10-19 14:46:23Rª`)5     3VOCI 191430Z 26006KT 3500 -TSRA SCT012 FEW025CB BKN080 27/24 Q1011 NOSIGVOCI2018-10-19T14:30:00Z10.1576.427.024.026062.1729.852362TRUE-TSRAIFRMETAR8.02018-10-19 14:46:23&ª_(Y5   3EIDL 191430Z 31005KT CAVOK 13/07 Q1023EIDL2018-10-19T14:30:00Z55.05-8.3313.07.031056.2130.206694VFRMETAR9.02018-10-19 14:46:23/ª^(e5   3EIKY 191430Z 18006KT 9999 OVC020 15/11 Q1025EIKY2018-10-19T14:30:00Z52.18-9.5215.011.018066.2130.265747MVFRMETAR34.02018-10-19 14:46:23 dEd3ªg(s5   3DAOO 191430Z 22002KT 9999 FEW023 BKN026 21/09 Q1012DAOO2018-10-19T14:30:00Z35.62-0.621.09.022026.2129.88189MVFRMETAR90.02018-10-19 14:46:23%ªf(Y5   3DAUH 191430Z 04003KT CAVOK 30/08 Q1012DAUH2018-10-19T14:30:00Z31.676.1530.08.04036.2129.88189VFRMETAR142.02018-10-19 14:46:237ªe(q5    3DTMB 191430Z 36008KT 9999 SCT020 24/17 Q1013 NOSIGDTMB2018-10-19T14:30:00Z35.7710.7524.017.036086.2129.911417TRUEVFRMETAR2.02018-10-19 14:46:23:ªd)5   3DTNH 191430Z AUTO 09004KT 030V130 9999NDV SCT055 24/17 Q1013DTNH2018-10-19T14:30:00Z36.0710.4324.017.090429.911417TRUEMETAR2.02018-10-19 14:46:235ªc(u5   3DTTA 191430Z 35008KT 310V010 9999 SCT023 24/18 Q1013DTTA2018-10-19T14:30:00Z36.8510.2224.018.035086.2129.911417VFRMETAR4.02018-10-19 14:46:23 kM&k5ªl(u5   3DAAG 191430Z 07010KT 040V100 9999 FEW026 24/18 Q1013DAAG2018-10-19T14:30:00Z36.723.2224.018.070106.2129.911417VFRMETAR25.02018-10-19 14:46:231ªk(i5   3DAAT 191430Z 23013KT 200V270 CAVOK 31/02 Q1018DAAT2018-10-19T14:30:00Z22.825.4731.02.0230136.2130.059055VFRMETAR1377.02018-10-19 14:46:233ªj(s5   3DABB 191430Z 02010KT 9999 FEW023 BKN200 24/19 Q1013DABB2018-10-19T14:30:00Z36.827.8224.019.020106.2129.911417VFRMETAR4.02018-10-19 14:46:231ªi(y5   3DABC 191430Z VRB02KT 9999 FEW020TCU SCT026 22/13 Q1016DABC2018-10-19T14:30:00Z36.276.6222.013.0026.2130.0VFRMETAR694.02018-10-19 14:46:23-ªh(e5   3DAON 191430Z 00000KT 9999 BKN026 20/11 Q1012DAON2018-10-19T14:30:00Z35.02-1.4720.011.0006.2129.88189MVFRMETAR247.02018-10-19 14:46:23 -9-hªq)C5     3UEEE 191430Z 00000MPS 9999 -SHSN SCT008 OVC023CB M04/M05 Q1014 R23L/490239 NOSIG RMK QFE752UEEE2018-10-19T14:30:00Z62.08129.77-4.0-5.0006.2129.940945TRUE-SHSNMVFRMETAR103.02018-10-19 14:46:23.ªp(e5   3WIBB 191430Z 24005KT 8000 SCT015 25/22 Q1012WIBB2018-10-19T14:30:00Z0.47101.4525.022.024054.9729.88189MVFRMETAR31.02018-10-19 14:46:232ªo(m5    3WIOO 191430Z 00000KT 6000 -RA SCT012 26/24 Q1012WIOO2018-10-19T14:30:00Z-0.15109.426.024.0003.7329.88189-RAMVFRMETAR3.02018-10-19 14:46:23,ªn(e5   3WALL 191430Z 21002KT 9000 FEW020 28/25 Q1012WALL2018-10-19T14:30:00Z-1.27116.928.025.021025.5929.88189VFRMETAR3.02018-10-19 14:46:23Aªm)5    3WIPP 191430Z 10006KT 050V110 6000 FEW010 27/25 Q1012 NOSIGWIPP2018-10-19T14:30:00Z-2.88104.727.025.010063.7329.88189TRUEMVFRMETAR10.02018-10-19 14:46:23 2Cx26ªv(q5    3WARR 191430Z VRB01KT 8000 FEW020 27/21 Q1012 NOSIGWARR2018-10-19T14:30:00Z-7.37112.7827.021.0014.9729.88189TRUEMVFRMETAR2.02018-10-19 14:46:23<ªu({5    3GQNO 191430Z 04009KT 010V070 8000 NSC 35/12 Q1008 NOSIGGQNO2018-10-19T14:30:00Z18.3-15.9735.012.04094.9729.763779TRUEMVFRMETAR4.02018-10-19 14:46:23Bªt)5    3GABS 191430Z 23004KT 160V300 9999 FEW030 34/22 Q1010 NOSIGGABS2018-10-19T14:30:00Z12.52-7.9534.022.023046.2129.822834TRUEVFRMETAR381.02018-10-19 14:46:23Eªs)5    3WATT 191430Z 12004KT 070V140 8000 FEW018 26/26 Q1014 NOSIGWATT2018-10-19T14:30:00Z-10.17123.6726.026.012044.9729.940945TRUEMVFRMETAR102.02018-10-19 14:46:237ªr(q5    3WAHS 191430Z 02005KT 6000 SCT014 29/22 Q1012 NOSIGWAHS2018-10-19T14:30:00Z-6.98110.3829.022.02053.7329.88189TRUEMVFRMETAR5.02018-10-19 14:46:23 @`ªz)I5   3USHH 191430Z 18002MPS 9999 BKN006CB M00/M01 Q1008 R24/190060 TEMPO 2000 BR BKN003CB RMK QFE752USHH2018-10-19T14:30:00Z61.0369.080.0-1.018046.2129.763779IFRMETAR23.02018-10-19 14:46:23,ªy(e5   3WIDD 191430Z 00000KT 9999 FEW014 26/24 Q1014WIDD2018-10-19T14:30:00Z1.12104.1226.024.0006.2129.940945VFRMETAR38.02018-10-19 14:46:239ªx(q5    3WAAA 191430Z 18002KT 8000 SCT019 26/25 Q1012 NOSIGWAAA2018-10-19T14:30:00Z-5.07119.5326.025.018024.9729.88189TRUEMVFRMETAR14.02018-10-19 14:46:23:ªw(q5    3WADD 191430Z 14003KT 9999 FEW017 26/23 Q1014 NOSIGWADD2018-10-19T14:30:00Z-8.73115.1726.023.014036.2129.940945TRUEVFRMETAR216.02018-10-19 14:46:23 l.Nl\ª~)A5    3UNNT 191430Z 17003MPS 9999 FEW033 01/M01 Q1016 R25/190065 R16/190065 NOSIG RMK QFE752/1003UNNT2018-10-19T14:30:00Z55.0282.631.0-1.017066.2130.0TRUEVFRSPECI111.02018-10-19 14:46:23Zª})35    3UNOO 191430Z 20001MPS 8000 SCT019 BKN033CB 00/M01 Q1011 R25/CLRD60 NOSIG RMK QFE750UNOO2018-10-19T14:30:00Z54.9773.320.0-1.020024.9729.852362TRUEMVFRSPECI95.02018-10-19 14:46:23:ª|(5    3UNTT 191430Z 19003MPS CAVOK 04/M01 Q1016 NOSIG RMK QFE747UNTT2018-10-19T14:30:00Z56.3885.224.0-1.019066.2130.0TRUEVFRMETAR182.02018-10-19 14:46:23 ª{)5    3USTR 191430Z 19003MPS 1100 0700NW R12/P2000 FG BKN002 OVC016CB 01/00 Q1009 R12/190063 TEMPO 0400 SHRASN FG VV002 RMK QBB080 QFE748/0998USTR2018-10-19T14:30:00Z57.1765.321.00.019060.6829.793306FGLIFRSPECI115.02018-10-19 14:46:23 /^M«)5     3UNAA 191430Z 00000MPS 2100 BR NSC 01/00 Q1019 R02/090065 NOSIG RMK QFE742UNAA2018-10-19T14:30:00Z53.7591.41.00.0001.330.088583TRUEBRIFRSPECI245.02018-10-19 14:46:23O«)5    3UNBB 191430Z 16004MPS 9999 SCT030 03/01 Q1017 R24/290150 NOSIG RMK QFE740UNBB2018-10-19T14:30:00Z53.3783.533.01.016086.2130.029528TRUEVFRSPECI255.02018-10-19 14:46:23K«)5    3UNEE 191430Z 15003MPS CAVOK 04/M03 Q1018 R23/CLRD60 NOSIG RMK QFE740UNEE2018-10-19T14:30:00Z55.2786.084.0-3.015066.2130.059055TRUEVFRSPECI260.02018-10-19 14:46:23Kª)5    3UNKL 191430Z 00000MPS CAVOK M02/M02 Q1018 R29/CLRD65 NOSIG RMK QFE738UNKL2018-10-19T14:30:00Z56.1792.48-2.0-2.0006.2130.059055TRUEVFRSPECI276.02018-10-19 14:46:23 (:n(=«({5    3UTST 191430Z 25002KT CAVOK 13/04 Q1024 R88/CLRD70 NOSIGUTST2018-10-19T14:30:00Z37.2867.3213.04.025026.2130.236221TRUEVFRMETAR302.02018-10-19 14:46:23>«(5    3UTTT 191430Z 00000KT CAVOK 11/M01 Q1027 R26R/CLRD70 NOSIGUTTT2018-10-19T14:30:00Z41.2769.2711.0-1.0006.2130.324802TRUEVFRMETAR489.02018-10-19 14:46:239«(q5     3VILK 191430Z 00000KT 3000 HZ NSC 28/21 Q1011 NOSIGVILK2018-10-19T14:30:00Z26.7580.8728.021.0001.8629.852362TRUEHZIFRMETAR128.02018-10-19 14:46:23F«)5    3KMVH 191430Z AUTO 00000KT 10SM FEW120 04/M02 A3037 RMK AO2KMVH2018-10-19T14:30:00Z46.83-108.934.0-2.00010.030.369095TRUETRUEVFRMETAR1355.02018-10-19 14:46:23@«(y5    3KO32 191430Z AUTO 00000KT 10SM CLR 10/03 A3014 RMK AO2KO322018-10-19T14:30:00Z36.67-119.4510.03.00010.030.138779TRUETRUEVFRMETAR117.02018-10-19 14:46:23 3:3:« ({5    3UTNU 191430Z 00000KT CAVOK 11/04 Q1026 R13/CLRD70 NOSIGUTNU2018-10-19T14:30:00Z41.5860.6311.04.0006.2130.295275TRUEVFRMETAR98.02018-10-19 14:46:23C« )5    3UTSA 191430Z 33004KT 9999 NSC 13/M03 Q1026 R25/CLRD70 NOSIGUTSA2018-10-19T14:30:00Z40.1265.1713.0-3.033046.2130.295275TRUEVFRMETAR346.02018-10-19 14:46:23=« (}5    3UTSB 191430Z 02004KT CAVOK 12/M00 Q1025 R01/CLRD70 NOSIGUTSB2018-10-19T14:30:00Z39.7764.4812.00.02046.2130.265747TRUEVFRMETAR226.02018-10-19 14:46:235« (q5   3UTSK 191430Z 01004KT CAVOK 14/M01 Q1025 R16/CLRD70UTSK2018-10-19T14:30:00Z38.8365.7714.0-1.01046.2130.265747VFRMETAR1365.02018-10-19 14:46:23@«)5    3UTSS 191430Z VRB02KT 6000 NSC 09/M01 Q1025 R09/CLRD70 NOSIGUTSS2018-10-19T14:30:00Z39.766.989.0-1.0023.7330.265747TRUEMVFRMETAR724.02018-10-19 14:46:23 ?zS«)!5    3RCSS 191430Z 11012KT 9999 FEW015 BKN030 BKN050 21/18 Q1021 NOSIG RMK A3016RCSS2018-10-19T14:30:00Z25.07121.5321.018.0110126.2130.147638TRUEMVFRMETAR6.02018-10-19 14:46:23@«)5   3RCNN 191430Z 02008KT 8000 FEW012 SCT080 21/18 Q1018 RMK A3007RCNN2018-10-19T14:30:00Z22.93120.221.018.02084.9730.059055MVFRMETAR19.02018-10-19 14:46:23?«(5    3VMMC 191430Z 09015KT 9999 FEW020 SCT030 25/22 Q1018 NOSIGVMMC2018-10-19T14:30:00Z22.15113.5825.022.090156.2130.059055TRUEVFRMETAR6.02018-10-19 14:46:23;« ({5    3UTNN 191430Z 07004KT CAVOK 13/03 Q1026 R33/CLRD60 NOSIGUTNN2018-10-19T14:30:00Z42.4859.6313.03.07046.2130.295275TRUEVFRMETAR67.02018-10-19 14:46:23 !PE«)5    3YBHM 191430Z AUTO 11016KT 9999 // SCT017 24/21 Q1016 RF00.0/000.0YBHM2018-10-19T14:30:00Z-20.35148.9524.021.0110166.2130.0TRUEVFRMETAR5.02018-10-19 14:46:23G«) 5    3YBMA 191430Z AUTO 25003KT 9999 // NCD 17/04 Q1013 RF00.0/000.0YBMA2018-10-19T14:30:00Z-20.67139.4717.04.025036.2129.911417TRUEVFRMETAR344.02018-10-19 14:46:23K«)5    3RCTP 191430Z 07011KT 9999 FEW015 BKN035 22/18 Q1021 NOSIG RMK A3015RCTP2018-10-19T14:30:00Z25.07121.2222.018.070116.2130.147638TRUEVFRMETAR33.02018-10-19 14:46:23Y«)15    3RCKH 191430Z 23006KT 190V260 9999 FEW015 BKN040 BKN070 27/21 Q1018 NOSIG RMK A3006RCKH2018-10-19T14:30:00Z22.57120.3327.021.023066.2130.059055TRUEVFRMETAR9.02018-10-19 14:46:23 !0p!8«(o5    3YHID 191430Z AUTO 10010KT 9999 // NCD 26/22 Q1012YHID2018-10-19T14:30:00Z-10.58142.326.022.0100106.2129.88189TRUEVFRMETAR13.02018-10-19 14:46:23A«)5    3YSTW 191430Z AUTO 18006KT 140V270 9999 // SCT064 16/13 Q1016YSTW2018-10-19T14:30:00Z-31.07150.8516.013.018066.2130.0TRUEVFRMETAR410.02018-10-19 14:46:23D«) 5    3YGEL 191430Z AUTO 14005KT 9999 // NCD 11/07 Q1022 RF00.0/000.2YGEL2018-10-19T14:30:00Z-28.8114.711.07.014056.2130.177166TRUEVFRMETAR37.02018-10-19 14:46:23:«(u5    3YAMB 191430Z AUTO 00000KT 9999 // SCT026 17/15 Q1018YAMB2018-10-19T14:30:00Z-27.63152.7217.015.0006.2130.059055TRUEVFRMETAR28.02018-10-19 14:46:23J«)5    3YGLA 191430Z AUTO 11005KT 9999 // SCT033 22/18 Q1017 RF00.0/000.0YGLA2018-10-19T14:30:00Z-23.87151.2222.018.011056.2130.029528TRUEVFRMETAR52.02018-10-19 14:46:23 2NH«) 5    3YPWR 191430Z AUTO 21018KT 9999 // NCD 15/07 Q1017 RF00.0/000.0YPWR2018-10-19T14:30:00Z-31.12136.8215.07.0210186.2130.029528TRUEVFRMETAR167.02018-10-19 14:46:236«(o5    3YPEA 191430Z AUTO 00000KT 9999 // NCD 10/08 Q1022YPEA2018-10-19T14:30:00Z-31.67116.0210.08.0006.2130.177166TRUEVFRMETAR49.02018-10-19 14:46:23^«)=5    3YSRI 191430Z AUTO 00000KT 9999 // NCD 18/18 Q1014 RF00.0/000.0 PRESENT WEATHER SENSOR USYSRI2018-10-19T14:30:00Z-33.6150.7718.018.0006.2129.940945TRUEVFRMETAR21.02018-10-19 14:46:23H«)5    3YPJT 191430Z AUTO 01004KT 9999 // BKN048 13/10 Q1022 RF00.0/000.0YPJT2018-10-19T14:30:00Z-32.1115.8813.010.01046.2130.177166TRUEVFRMETAR30.02018-10-19 14:46:23 /tC«")5    3YCFS 191430Z AUTO 36007KT 9999 // BKN038 BKN105 20/16 Q1018YCFS2018-10-19T14:30:00Z-30.32153.1220.016.036076.2130.059055TRUEVFRMETAR5.02018-10-19 14:46:23B«!)5    3YLHI 191430Z AUTO 14005KT 9999 // SCT034 SCT041 18/14 Q1020YLHI2018-10-19T14:30:00Z-31.53159.0718.014.014056.2130.11811TRUEVFRMETAR2.02018-10-19 14:46:23B« (5     3LFLW 191430Z AUTO 34003KT 260V030 CAVOK 22/08 Q1019 NOSIGLFLW2018-10-19T14:30:00Z44.882.4222.08.034036.2130.088583TRUETRUEVFRMETAR639.02018-10-19 14:46:235«(s5    3LFQG 191430Z AUTO 01010KT 340V040 CAVOK 22/09 Q1020LFQG2018-10-19T14:30:00Z47.03.122.09.010106.2130.11811TRUEVFRMETAR181.02018-10-19 14:46:23K«)5    3YSDU 191430Z AUTO 11004KT 9999 // SCT100 19/13 Q1014 RF00.0/000.0YSDU2018-10-19T14:30:00Z-32.22148.5719.013.011046.2129.940945TRUEVFRMETAR275.02018-10-19 14:46:23 )9l)0«'(g5   3YMHB 191430Z 35004KT CAVOK 16/09 Q1006 BKN150YMHB2018-10-19T14:30:00Z-42.82147.5216.09.035046.2129.704725VFRMETAR27.02018-10-19 14:46:23I«&) 5    3YMLT 191430Z AUTO 15003KT 7000 // NCD 10/10 Q1008 RF00.0/000.0YMLT2018-10-19T14:30:00Z-41.52147.1810.010.015034.3529.763779TRUEMVFRMETAR178.02018-10-19 14:46:238«%(o5    3YPPD 191430Z AUTO 26004KT 9999 // NCD 22/19 Q1014YPPD2018-10-19T14:30:00Z-20.37118.6222.019.026046.2129.940945TRUEVFRMETAR6.02018-10-19 14:46:23G«$) 5    3YBRK 191430Z AUTO 12004KT 9999 // NCD 21/18 Q1017 RF00.0/000.0YBRK2018-10-19T14:30:00Z-23.37150.4721.018.012046.2130.029528TRUEVFRMETAR14.02018-10-19 14:46:23A«#)5    3YWLM 191430Z AUTO 04007KT 9999 // SCT082 SCT100 19/17 Q1014YWLM2018-10-19T14:30:00Z-32.8151.8319.017.04076.2129.940945TRUEVFRMETAR9.02018-10-19 14:46:23 )K)B«,) 5    3YPLM 191430Z AUTO 22015KT 9999 // NCD 19/13 Q1016 RF00.0/000.0YPLM2018-10-19T14:30:00Z-22.22114.0719.013.0220156.2130.0TRUEVFRMETAR6.02018-10-19 14:46:239«+(o5    3YPTN 191430Z AUTO 05006KT 9999 // NCD 30/18 Q1010YPTN2018-10-19T14:30:00Z-14.52132.3830.018.05066.2129.822834TRUEVFRMETAR109.02018-10-19 14:46:23I«*)5    3YBTL 191430Z AUTO 07009KT 9999 // SCT021 BKN034 OVC045 25/21 Q1015YBTL2018-10-19T14:30:00Z-19.25146.7525.021.07096.2129.970472TRUEVFRMETAR6.02018-10-19 14:46:23F«)) 5    3YBRM 191430Z AUTO 27006KT 9999 // NCD 26/23 Q1013 RF00.0/000.0YBRM2018-10-19T14:30:00Z-17.93122.2226.023.027066.2129.911417TRUEVFRMETAR9.02018-10-19 14:46:23/«((u5   3YPCC 191430Z AUTO 12013KT //// // SCT024 26/21 Q1016YPCC2018-10-19T14:30:00Z-12.1796.8226.021.01201330.0TRUEMETAR3.02018-10-19 14:46:23 4l@«0(5    3YBCS 191430Z 18008KT 9999 FEW023 SCT110 25/21 Q1014 NOSIGYBCS2018-10-19T14:30:00Z-16.87145.7525.021.018086.2129.940945TRUEVFRMETAR7.02018-10-19 14:46:237«/(o5    3YSCB 191430Z AUTO 00000KT 9999 // NCD 12/05 Q1015YSCB2018-10-19T14:30:00Z-35.28149.1712.05.0006.2129.970472TRUEVFRMETAR577.02018-10-19 14:46:23B«.)5    3YBCG 191430Z AUTO 24001KT 9999 // SCT023 SCT038 18/17 Q1018YBCG2018-10-19T14:30:00Z-28.17153.518.017.024016.2130.059055TRUEVFRMETAR6.02018-10-19 14:46:23F«-) 5    3YPKG 191430Z AUTO 09001KT 9999 // NCD 12/02 Q1022 RF00.0/000.0YPKG2018-10-19T14:30:00Z-30.77121.4512.02.09016.2130.177166TRUEVFRMETAR360.02018-10-19 14:46:23 gk«4)W5   3YMML 191430Z 36013KT CAVOK 21/05 Q1006 FM1530 24018G32KT 9999 -SHRA SCT090 FM1430 MOD TURB BLW 5000FTYMML2018-10-19T14:30:00Z-37.67144.8221.05.0360136.2129.704725VFRMETAR141.02018-10-19 14:46:239«3(q5    3YPPH 191430Z 05005KT 9999 BKN043 13/10 Q1022 NOSIGYPPH2018-10-19T14:30:00Z-31.93115.9813.010.05056.2130.177166TRUEVFRMETAR13.02018-10-19 14:46:232«2(e5    3YSSY 191430Z 05005KT CAVOK 18/17 Q1014 NOSIGYSSY2018-10-19T14:30:00Z-33.95151.1718.017.05056.2129.940945TRUEVFRMETAR3.02018-10-19 14:46:23[«1)=5    3YBAS 191430Z AUTO 17011KT 9999 // NCD 27/08 Q1016 RF00.0/000.0 PRESENT WEATHER SENSOR USYBAS2018-10-19T14:30:00Z-23.8133.927.08.0170116.2130.0TRUEVFRMETAR541.02018-10-19 14:46:23 RI«9)5    3YPKU 191430Z AUTO 01001KT 9999 // SCT093 27/20 Q1011 RF00.0/000.0YPKU2018-10-19T14:30:00Z-15.77128.6827.020.01016.2129.852362TRUEVFRMETAR45.02018-10-19 14:46:23E«8) 5    3YPGV 191430Z AUTO 04004KT 9999 // NCD 26/23 Q1012 RF00.0/000.0YPGV2018-10-19T14:30:00Z-12.27136.8226.023.04046.2129.88189TRUEVFRMETAR55.02018-10-19 14:46:23M«7))5   3YPAD 191430Z 24014KT CAVOK 14/08 Q1016 INTER 1700/1730 5000 SHRA FEW015 BKN030YPAD2018-10-19T14:30:00Z-34.95138.5214.08.0240146.2130.0VFRMETAR4.02018-10-19 14:46:23G«6) 5    3YBBN 191430Z 05003KT 9999 FEW025 BKN034 OVC046 20/17 Q1018 NOSIGYBBN2018-10-19T14:30:00Z-27.38153.1320.017.05036.2130.059055TRUEVFRMETAR5.02018-10-19 14:46:23(«5(Y5   3YPDN 191430Z 28005KT CAVOK 29/23 Q1012YPDN2018-10-19T14:30:00Z-12.42130.929.023.028056.2129.88189VFRMETAR30.02018-10-19 14:46:23 3gJ«=)5    3UUOO 191430Z 16002MPS CAVOK 12/05 Q1017 R12/090070 NOSIG RMK QFE749UUOO2018-10-19T14:30:00Z51.8239.2312.05.016046.2130.029528TRUEVFRSPECI157.02018-10-19 14:46:23]«<)35   3UUYY 191430Z 26006G11MPS 9999 BKN020CB 07/04 Q1001 R18/29//51 NOSIG RMK QFE742/0989UUYY2018-10-19T14:30:00Z61.6550.827.04.026012216.2129.557087TRUEMVFRMETAR119.02018-10-19 14:46:23F«;) 5    3YCIN 191430Z AUTO 26005KT 9999 // NCD 27/23 Q1012 RF00.0/000.0YCIN2018-10-19T14:30:00Z-17.58123.8327.023.026056.2129.88189TRUEVFRMETAR91.02018-10-19 14:46:23G«:) 5    3YFRT 191430Z AUTO 15004KT 9999 // NCD 10/05 Q1022 RF00.0/000.0YFRT2018-10-19T14:30:00Z-30.83128.1210.05.015046.2130.177166TRUEVFRMETAR156.02018-10-19 14:46:23 ~P~L«A)5   3KCPW 191429Z AUTO 34011G17KT 10SM CLR M05/M07 A3053 RMK AO2KCPW2018-10-19T14:29:00Z37.45-106.8-5.0-7.0340111710.030.528543TRUETRUEVFRMETAR3584.02018-10-19 14:46:23H«@) 5    3K8W2 191430Z AUTO 00000KT 10SM CLR 09/04 A3032 RMK AO1 T00860037K8W22018-10-19T14:30:00Z38.65-78.78.63.70010.030.318897TRUETRUEVFRMETAR297.02018-10-19 14:46:23o«?)Y5     3ULMM 191430Z 27002MPS 220V300 6000 -DZ BKN003 01/00 Q1009 R31/290060 NOSIG RMK QBB110 OBST OBSC QFE749ULMM2018-10-19T14:30:00Z68.7832.751.00.027043.7329.793306TRUE-DZLIFRSPECI51.02018-10-19 14:46:23g«>)I5     3ULAA 191430Z 31003MPS 270V330 8000 -SHRA OVC014CB 05/04 Q1004 R26/290060 NOSIG RMK QFE752/1003ULAA2018-10-19T14:30:00Z64.640.725.04.031064.9729.64567TRUE-SHRAMVFRSPECI19.02018-10-19 14:46:23 JQ«E)5    3KGNB 191425Z AUTO 00000KT 10SM OVC032 00/M01 A3049 RMK AO2 T10021011KGNB2018-10-19T14:25:00Z40.08-105.92-0.2-1.10010.030.490158TRUETRUEVFRSPECI2500.02018-10-19 14:46:233«D(k5    3OPKC 191425Z 00000KT 6000 NSC 31/14 Q1012 NOSIGOPKC2018-10-19T14:25:00Z24.8867.1731.014.0003.7329.88189TRUEMVFRMETAR22.02018-10-19 14:46:23F«C)5    3OPLA 191425Z 00000KT 5000 FU NSC 24/13 Q1013 RMK QFE988 RMK A29.92OPLA2018-10-19T14:25:00Z31.5274.424.013.0003.1129.911417FUMVFRSPECI217.02018-10-19 14:46:23d«B)/5     3KTCM 191428Z 00000KT 1/8SM R16/1400V1600FT FG VV000 06/06 A3028 RMK AO2A SLP259 $KTCM2018-10-19T14:28:00Z47.12-122.476.06.0000.1330.2805121025.9TRUETRUEFGLIFR0SPECI98.02018-10-19 14:46:23 4ma«I)55    3CYEK 191422Z 30016KT 15SM -SN BKN012 OVC065 M07/M09 A2950 RMK SC7SC1 VIA CYQB SLP992CYEK2018-10-19T14:22:00Z61.1-94.07-7.0-9.03001615.029.500984999.2-SNMVFRSPECI10.02018-10-19 14:46:23D«H({5    3KMNH 191424Z AUTO 27005KT 10SM CLR 06/M01 A3037 RMK AO2KMNH2018-10-19T14:24:00Z39.22-104.656.0-1.0270510.030.369095TRUETRUEVFRMETAR2152.02018-10-19 14:46:23A«G) 5   3EBBE 191425Z 03005KT 9999 FEW022 BKN250 15/09 Q1024 BLACKBLU BLUEBBE2018-10-19T14:25:00Z50.754.7715.09.03056.2130.236221VFRSPECI127.02018-10-19 14:46:23F«F)5    3EBDT 191425Z AUTO 02005KT 9999 FEW032/// BKN039/// 16/09 Q1024 BLUEBDT2018-10-19T14:25:00Z51.025.0716.09.02056.2130.236221TRUEVFRMETAR54.02018-10-19 14:46:23 &\F«M(}5    3K46U 191420Z AUTO 13007KT 10SM CLR M01/M04 A3047 RMK A01K46U2018-10-19T14:20:00Z43.18-111.05-1.0-4.0130710.030.469488TRUETRUEVFRMETAR1717.02018-10-19 14:46:23F«L(5   3KJSL 191420Z AUTO 09015G23KT 10SM CLR 29/22 A3011 RMK A01KJSL2018-10-19T14:20:00Z26.23-95.2529.022.090152310.030.109253TRUETRUEVFRMETAR10.02018-10-19 14:46:23D«K({5    3KMHV 191420Z AUTO 36008KT 10SM CLR 13/M07 A3019 RMK A01KMHV2018-10-19T14:20:00Z35.07-118.1513.0-7.0360810.030.188976TRUETRUEVFRMETAR849.02018-10-19 14:46:23T«J)5     3KGZN 191420Z AUTO 00000KT 1 1/4SM BR BKN003 OVC015 12/12 A3025 RMK AO2KGZN2018-10-19T14:20:00Z32.37-99.0212.012.0001.2530.250984TRUETRUEBRLIFRMETAR522.02018-10-19 14:46:23 5yV«Q)-5    3CWNL 191400Z AUTO 23013KT 09/06 RMK AO1 PK WND 22019/1320 SLP106 T00930055 56030CWNL2018-10-19T14:00:00Z45.62-82.979.35.5230131010.6TRUETRUE-3.0METAR183.02018-10-19 14:46:23V«P)-5    3CWPS 191400Z AUTO 17028KT 10/06 RMK AO1 PK WND 18032/1332 SLP199 T00980058 58018CWPS2018-10-19T14:00:00Z42.57-80.039.85.8170281019.9TRUETRUE-1.8METAR175.02018-10-19 14:46:236«O({5    3CWEF 191400Z AUTO 03/M02 RMK AO1 SLP085 T00341016 51022CWEF2018-10-19T14:00:00Z47.22-60.123.4-1.61008.5TRUETRUE2.2METAR26.02018-10-19 14:46:23E«N(}5    3K33V 191415Z AUTO 13004KT 10SM CLR M04/M07 A3046 RMK AO1K33V2018-10-19T14:15:00Z40.75-106.28-4.0-7.0130410.030.46063TRUETRUEVFRMETAR2484.02018-10-19 14:46:23 $[yA«U) 5    3CWDA 191400Z AUTO 33009KT 02/02 RMK AO1 SLP043 T00160016 51031CWDA2018-10-19T14:00:00Z50.72-56.121.61.633091004.3TRUETRUE3.1METAR29.02018-10-19 14:46:23\«T)35    3CWMZ 191400Z AUTO 24028G33KT 10/06 RMK AO1 PK WND 24036/1316 SLP129 T01020062 56021CWMZ2018-10-19T14:00:00Z45.02-80.3710.26.224028331012.9TRUETRUE-2.1METAR191.02018-10-19 14:46:23C«S)5   3CXAT 191400Z AUTO 09003KT M20/M24 RMK AO1 SOG 06 SLP103 T12001239CXAT2018-10-19T14:00:00Z73.0-85.03-20.0-23.99031010.3TRUETRUEMETAR19.02018-10-19 14:46:23V«R)-5    3CWCI 191400Z AUTO 23021KT 08/06 RMK AO1 PK WND 23027/1339 SLP038 T00790058 58023CWCI2018-10-19T14:00:00Z47.32-85.827.95.8230211003.8TRUETRUE-2.3METAR187.02018-10-19 14:46:23 =Fv=1«Z(e5    3VEGY 191400Z 13007KT 3000 BR NSC 25/23 Q1011VEGY2018-10-19T14:00:00Z24.7584.9525.023.013071.8629.852362BRIFRMETAR116.02018-10-19 14:46:237«Y(k5    3VERP 191400Z 21002KT 6000 NSC 28/21 Q1014 NOSIGVERP2018-10-19T14:00:00Z21.1881.7328.021.021023.7329.940945TRUEMVFRMETAR316.02018-10-19 14:46:23?«X(w5     3VAID 191400Z 20002KT 5000 HZ SCT100 28/17 Q1015 NOSIGVAID2018-10-19T14:00:00Z22.7275.7828.017.020023.1129.970472TRUEHZMVFRMETAR567.02018-10-19 14:46:23J«W)5    3CXWB 191400Z AUTO 00000KT M09/M10 RMK AO1 SOG 01 SLP074 T10931095 50002CXWB2018-10-19T14:00:00Z65.88-89.45-9.3-9.5001007.4TRUETRUE0.2METAR18.02018-10-19 14:46:234«V(s5   3HDAM 191400Z 09005KT 9999 SCT020 SCT133 28/25 Q1011HDAM2018-10-19T14:00:00Z11.5543.1728.025.09056.2129.852362VFRMETAR49.02018-10-19 14:46:23 B%gB>«_)5   3KCWA 191447Z 20010KT 10SM SCT025 SCT034 OVC065 08/08 A2986KCWA2018-10-19T14:47:00Z44.78-89.678.08.02001010.029.861221VFRMETAR389.02018-10-19 14:48:57,«^(_5   3KGYR 191447Z 03005KT 10SM SKC 18/08 A3006KGYR2018-10-19T14:47:00Z33.42-112.3718.08.030510.030.059055VFRMETAR295.02018-10-19 14:48:57)«](_5   3KFDK 191447Z 00000KT 10SM SKC 12/05 A3036KFDK2018-10-19T14:47:00Z39.42-77.3712.05.00010.030.360237VFRMETAR92.02018-10-19 14:48:578«\(o5    3KASG 191448Z 19005KT 3SM -RABR OVC026 09/09 A3029KASG2018-10-19T14:48:00Z36.17-94.129.09.019053.030.28937-RA BRMVFRMETAR412.02018-10-19 14:48:57U«[)5    3KNZY 191352Z 00000KT 10SM CLR 14/08 A2998 RMK AO2 SLP152 T01440083 PNO $KNZY2018-10-19T13:52:00Z32.7-117.2214.48.30010.029.979331015.2TRUETRUEVFRMETAR8.02018-10-19 14:46:23 =K =J«d)5    3KSKX 191446Z AUTO VRB04KT 10SM OVC016 04/02 A3044 RMK AO2 $KSKX2018-10-19T14:46:00Z36.45-105.674.02.00410.030.43996TRUETRUETRUEMVFRMETAR2161.02018-10-19 14:48:57F«c)5    3YBHM 191446Z AUTO 11015KT 9999 // BKN017 24/21 Q1016 RF00.0/000.0YBHM2018-10-19T14:46:00Z-20.35148.9524.021.0110156.2130.0TRUEMVFRSPECI5.02018-10-19 14:48:57=«b(y5    3CYBD 191446Z 00000KT 1SM BR SKC 04/04 A3021 RMK SLP232CYBD2018-10-19T14:46:00Z52.37-126.574.04.0001.030.2096461023.2BRIFRSPECI35.02018-10-19 14:48:57)«a(]5   3KHUM 191447Z 10006KT 7SM CLR 26/21 A3020KHUM2018-10-19T14:47:00Z29.57-90.6726.021.010067.030.200787VFRMETAR3.02018-10-19 14:48:57/«`(e5    3KSQL 191447Z 00000KT 10SM HZ SKC 12/10 A3013KSQL2018-10-19T14:47:00Z37.52-122.2512.010.00010.030.129921HZVFRMETAR1.02018-10-19 14:48:57 A$uAA«i)5   3KUES 191445Z 21009G15KT 10SM -RA SCT050 OVC090 08/02 A3002KUES2018-10-19T14:45:00Z43.05-88.258.02.021091510.030.02067-RAVFRMETAR278.02018-10-19 14:48:571«h(e5  3KAID 191445Z 20010G15KT 10SM CLR 09/02 A3024KAID2018-10-19T14:45:00Z40.12-85.629.02.0200101510.030.239174VFRMETAR280.02018-10-19 14:48:570«g(e5   3KCGF 191445Z 21012KT 10SM BKN200 10/00 A3019KCGF2018-10-19T14:45:00Z41.57-81.4710.00.02101210.030.188976VFRMETAR268.02018-10-19 14:48:57)«f(_5   3KMER 191445Z 00000KT 10SM SKC 07/05 A3013KMER2018-10-19T14:45:00Z37.38-120.577.05.00010.030.129921VFRMETAR57.02018-10-19 14:48:57V«e)5   3CYPD 191446Z AUTO 28018G27KT 9SM BKN037 OVC045 03/M04 A2996 RMK SLP153CYPD2018-10-19T14:46:00Z45.67-61.373.0-4.028018279.029.9586621015.3TRUEVFRSPECI114.02018-10-19 14:48:57 K{A«m(5    3KPGV 191445Z AUTO 14003KT 10SM SCT033 16/06 A3039 RMK AO2KPGV2018-10-19T14:45:00Z35.62-77.416.06.0140310.030.389763TRUETRUEVFRSPECI8.02018-10-19 14:48:57M«l)5    3KRNT 191445Z 00000KT 7SM OVC003 07/04 A3028 RMK AO2 CIG 002V006 T00670044KRNT2018-10-19T14:45:00Z47.5-122.226.74.4007.030.280512TRUELIFRMETAR21.02018-10-19 14:48:57J«k) 5    3KSUT 191445Z AUTO 08003KT 10SM CLR 21/13 A3035 RMK AO2 T02100125KSUT2018-10-19T14:45:00Z33.93-78.0821.012.580310.030.351377TRUETRUEVFRSPECI8.02018-10-19 14:48:57/«j(c5   3KTRK 191445Z 00000KT 10SM SKC M05/M08 A3041KTRK2018-10-19T14:45:00Z39.32-120.12-5.0-8.00010.030.410433VFRMETAR1798.02018-10-19 14:48:57 ".x"<«r(y5  3KATW 191445Z 21014G20KT 10SM BKN065 OVC100 10/03 A2989KATW2018-10-19T14:45:00Z44.27-88.5210.03.0210142010.029.890747VFRMETAR280.02018-10-19 14:48:570«q(e5   3KBOW 191445Z 10006KT 10SM BKN018 27/23 A3022KBOW2018-10-19T14:45:00Z27.93-81.7727.023.0100610.030.221457MVFRMETAR39.02018-10-19 14:48:57X«p)5     3KDEW 191445Z AUTO 00000KT 3SM BR CLR M02/M03 A3035 RMK AO2 T10221033 $KDEW2018-10-19T14:45:00Z47.97-117.43-2.2-3.3003.030.351377TRUETRUETRUEBRMVFRMETAR674.02018-10-19 14:48:570«o(e5   3KGYY 191445Z 20010KT 10SM OVC130 10/00 A3013KGYY2018-10-19T14:45:00Z41.62-87.4210.00.02001010.030.129921VFRMETAR180.02018-10-19 14:48:57L«n) 5    3KHNZ 191445Z AUTO 20006KT 10SM CLR 12/05 A3038 RMK AO2 T01230054KHNZ2018-10-19T14:45:00Z36.37-78.5312.35.4200610.030.380905TRUETRUEVFRSPECI161.02018-10-19 14:48:57 <W«v)!5    3CYBX 191444Z 36011KT 10SM -SN SCT032 OVC042 02/M04 A2970 RMK SC4SC4 SLP062CYBX2018-10-19T14:44:00Z51.45-57.172.0-4.03601110.029.6988181006.2-SNVFRSPECI35.02018-10-19 14:48:57*«u(_5   3KESN 191445Z 21005KT 10SM SKC 14/06 A3039KESN2018-10-19T14:45:00Z38.8-76.0714.06.0210510.030.389763VFRMETAR22.02018-10-19 14:48:57W«t)5      3KFTW 191445Z 02003KT 10SM -RA OVC007 14/13 A3024 RMK AO2 P0012 T01390128KFTW2018-10-19T14:45:00Z32.83-97.3713.912.820310.030.239174TRUE-RAIFR0.12SPECI214.02018-10-19 14:48:57a«s)=5    3KPWA 191445Z 20008KT 10SM BKN009 BKN023 OVC041 13/12 A3024 RMK AO2 CIG 006V011 T01280122KPWA2018-10-19T14:45:00Z35.53-97.6512.812.2200810.030.239174TRUEIFRMETAR397.02018-10-19 14:48:57 -]X«z)5     3PFKT 191444Z AUTO 11010KT 10SM BKN011 OVC050 02/M01 A2969 RMK AO2 FZRANOPFKT2018-10-19T14:44:00Z65.33-166.472.0-1.01101010.029.68996TRUETRUETRUEMVFRSPECI9.02018-10-19 14:48:57J«y) 5    3KMKY 191444Z AUTO 07008KT 10SM BKN023 BKN027 29/23 A3018 RMK AO2KMKY2018-10-19T14:44:00Z26.0-81.6729.023.070810.030.180119TRUETRUEMVFRSPECI2.02018-10-19 14:48:57F«x(5   3KJKJ 191444Z AUTO 31011G16KT 10SM CLR 09/02 A2986 RMK AO2KJKJ2018-10-19T14:44:00Z46.83-96.679.02.0310111610.029.861221TRUETRUEVFRMETAR280.02018-10-19 14:48:57«w)i5        3KILE 191444Z AUTO 35005KT 5SM -RA BKN005 BKN017 OVC037 A3023 RMK AO2 UPE1358RAB1358 CIG 003V010 P0021 FZRANO $KILE2018-10-19T14:44:00Z31.07-97.6735055.030.230314TRUETRUETRUETRUE-RAIFR0.21SPECI258.02018-10-19 14:48:57 -bX«~)%5    3CYXT 191444Z 12003KT 1/2SM FG BKN078 OVC160 06/06 A3013 RMK FG3AC3AC2 SLP212CYXT2018-10-19T14:44:00Z54.47-128.576.06.012030.530.1299211021.2FGLIFRSPECI217.02018-10-19 14:48:57M«})5     3KBFI 191444Z 14003KT 1/8SM FG VV001 08/07 A3028 RMK AO2 T00780067KBFI2018-10-19T14:44:00Z47.55-122.327.86.714030.1330.280512TRUEFGLIFR100SPECI4.02018-10-19 14:48:57E«|) 5    3KTMB 191444Z 09014KT 10SM FEW031 31/22 A3016 RMK AO2 T03060222KTMB2018-10-19T14:44:00Z25.65-80.4330.622.2901410.030.159449TRUEVFRSPECI2.02018-10-19 14:48:57M«{)5    3KUAO 191444Z AUTO 00000KT 1SM VV004 03/03 A3027 RMK AO2 T00330033KUAO2018-10-19T14:44:00Z45.25-122.773.33.3001.030.268702TRUETRUELIFR400METAR59.02018-10-19 14:48:57 r-OrW¬)!5   3MMNL 191442Z 29006KT 5SM OVC006 14/14 A3019 RMK SLP214 52007 989 8/6// HZYMMNL2018-10-19T14:42:00Z27.42-99.5714.014.029065.030.1889761021.4IFR0.7METAR148.02018-10-19 14:48:57X¬)+5   3CYKA 191442Z 12004KT 40SM FEW002 FEW180 BKN250 03/02 A3038 RMK SF1AC1CI3 SLP303CYKA2018-10-19T14:42:00Z50.7-120.453.02.0120440.030.3809051030.3VFRSPECI346.02018-10-19 14:48:57g¬)75    3KFDR 191443Z AUTO 19005KT 10SM OVC004 13/13 A3023 RMK AO2 RAE01B14E33 T01280128 PNO $KFDR2018-10-19T14:43:00Z34.35-98.9812.812.8190510.030.230314TRUETRUETRUELIFRSPECI386.02018-10-19 14:48:57`«)55   3KHUT 191443Z 23010G19KT 10SM BKN010 OVC014 13/12 A3015 RMK AO2 CIG 007V012 T01280117KHUT2018-10-19T14:43:00Z38.07-97.8712.811.7230101910.030.15059TRUEMVFRSPECI467.02018-10-19 14:48:57 !]K¬) 5    3KGWW 191440Z AUTO 13003KT 10SM CLR 15/09 A3038 RMK AO2 T01490089KGWW2018-10-19T14:40:00Z35.47-77.9714.98.9130310.030.380905TRUETRUEVFRMETAR41.02018-10-19 14:48:57J¬) 5    3KRHP 191440Z AUTO 00000KT 10SM CLR 13/10 A3035 RMK AO2 T01260095KRHP2018-10-19T14:40:00Z35.18-83.8512.69.50010.030.351377TRUETRUEVFRMETAR518.02018-10-19 14:48:57>¬(y5    3KUKF 191440Z AUTO 00000KT 10SM CLR 11/07 A3041 RMK AO2KUKF2018-10-19T14:40:00Z36.22-81.111.07.00010.030.410433TRUETRUEVFRMETAR396.02018-10-19 14:48:57Y¬)/5    3PKWA 191440Z AUTO 00000KT 10SM SCT024 BKN039 OVC100 27/24 A2981 RMK AO2 T02690236PKWA2018-10-19T14:40:00Z8.72167.7226.923.60010.029.811024TRUETRUEVFRMETAR8.02018-10-19 14:48:57 'a5¬ (i5    3KLHZ 191440Z AUTO 10SM CLR 13/08 A3040 RMK AO2KLHZ2018-10-19T14:40:00Z36.02-78.3313.08.010.030.398623TRUETRUEVFRMETAR113.02018-10-19 14:48:57H¬ ) 5    3KMQI 191440Z AUTO 04003KT 10SM CLR 16/07 A3039 RMK AO2 T01600070KMQI2018-10-19T14:40:00Z35.92-75.716.07.040310.030.389763TRUETRUEVFRMETAR4.02018-10-19 14:48:57@¬ (y5    3KJNX 191440Z AUTO 16003KT 10SM CLR 15/09 A3038 RMK AO2KJNX2018-10-19T14:40:00Z35.53-78.3815.09.0160310.030.380905TRUETRUEVFRSPECI50.02018-10-19 14:48:57@¬(y5    3KIXA 191440Z AUTO 19004KT 10SM CLR 13/07 A3038 RMK AO2KIXA2018-10-19T14:40:00Z36.33-77.6313.07.0190410.030.380905TRUETRUEVFRMETAR44.02018-10-19 14:48:57S¬)5     3K24A 191440Z AUTO 00000KT M1/4SM FG OVC001 08/08 A3038 RMK AO2 T00770077K24A2018-10-19T14:40:00Z35.32-83.27.77.7000.2530.380905TRUETRUEFGLIFRMETAR871.02018-10-19 14:48:57 0`L¬) 5    3KSVH 191440Z AUTO 25003KT 10SM CLR 13/08 A3036 RMK AO2 T01290077KSVH2018-10-19T14:40:00Z35.75-80.9512.97.7250310.030.360237TRUETRUEVFRMETAR294.02018-10-19 14:48:57A¬(y5    3KTDF 191440Z AUTO 17005KT 10SM CLR 13/07 A3038 RMK AO2KTDF2018-10-19T14:40:00Z36.28-78.9813.07.0170510.030.380905TRUETRUEVFRMETAR186.02018-10-19 14:48:57J¬ ) 5    3KMWK 191440Z AUTO 00000KT 10SM CLR 12/07 A3038 RMK AO2 T01220074KMWK2018-10-19T14:40:00Z36.47-80.5512.27.40010.030.380905TRUETRUEVFRMETAR380.02018-10-19 14:48:57J¬ ) 5    3KMRN 191440Z AUTO 00000KT 10SM CLR 11/08 A3039 RMK AO2 T01070081KMRN2018-10-19T14:40:00Z35.82-81.6210.78.10010.030.389763TRUETRUEVFRMETAR387.02018-10-19 14:48:57 0`<¬(}5    3KONX 191440Z AUTO 10SM CLR 15/05 A3039 RMK AO2 T01490049KONX2018-10-19T14:40:00Z36.4-76.0214.94.910.030.389763TRUETRUEVFRMETAR5.02018-10-19 14:48:57L¬) 5    3KRCZ 191440Z AUTO 11004KT 10SM CLR 15/08 A3037 RMK AO2 T01540077KRCZ2018-10-19T14:40:00Z34.88-79.7715.47.7110410.030.369095TRUETRUEVFRMETAR109.02018-10-19 14:48:57J¬) 5    3KRUQ 191440Z AUTO 00000KT 10SM CLR 12/07 A3037 RMK AO2 T01200068KRUQ2018-10-19T14:40:00Z35.65-80.5212.06.80010.030.369095TRUETRUEVFRMETAR236.02018-10-19 14:48:57J¬) 5    3KSCR 191440Z AUTO 14004KT 10SM CLR 14/07 A3037 RMK AO2 T01440070KSCR2018-10-19T14:40:00Z35.7-79.514.47.0140410.030.369095TRUETRUEVFRMETAR188.02018-10-19 14:48:57 0iH¬) 5    3KEYF 191440Z AUTO 00000KT 10SM CLR 17/10 A3037 RMK AO2 T01660097KEYF2018-10-19T14:40:00Z34.6-78.5816.69.70010.030.369095TRUETRUEVFRMETAR41.02018-10-19 14:48:57H¬) 5    3KFFA 191440Z AUTO 00000KT 10SM CLR 16/07 A3037 RMK AO2 T01590066KFFA2018-10-19T14:40:00Z36.02-75.6715.96.60010.030.369095TRUETRUEVFRMETAR4.02018-10-19 14:48:57A¬(y5    3KFQD 191440Z AUTO 19006KT 10SM CLR 12/07 A3038 RMK AO2KFQD2018-10-19T14:40:00Z35.42-81.9312.07.0190610.030.380905TRUETRUEVFRMETAR329.02018-10-19 14:48:57J¬)5    3MMIO 191440Z 00000KT 1/2SM FG OVC002 14/10 A3026 RMK 8/5// VRB CONDMMIO2018-10-19T14:40:00Z25.55-100.9314.010.0000.530.259842FGLIFRMETAR1790.02018-10-19 14:48:57 /^?¬(y5    3KDPL 191440Z AUTO 10004KT 10SM CLR 16/09 A3038 RMK AO2KDPL2018-10-19T14:40:00Z35.0-77.9716.09.0100410.030.380905TRUETRUEVFRMETAR42.02018-10-19 14:48:57H¬) 5    3KEDE 191440Z AUTO 00000KT 10SM CLR 16/07 A3039 RMK AO2 T01600073KEDE2018-10-19T14:40:00Z36.02-76.5716.07.30010.030.389763TRUETRUEVFRMETAR6.02018-10-19 14:48:57K¬) 5    3KEHO 191440Z AUTO 16003KT 10SM CLR 12/07 A3037 RMK AO2 T01240065KEHO2018-10-19T14:40:00Z35.25-81.612.46.5160310.030.369095TRUETRUEVFRMETAR258.02018-10-19 14:48:57K¬) 5    3KETC 191440Z AUTO 12004KT 10SM CLR 15/07 A3039 RMK AO2 T01460070KETC2018-10-19T14:40:00Z35.93-77.5514.67.0120410.030.389763TRUETRUEVFRMETAR17.02018-10-19 14:48:57 1`P¬)5     3K1A5 191440Z AUTO 00000KT 3SM BR OVC002 08/08 A3038 RMK AO2 T00780078K1A52018-10-19T14:40:00Z35.22-83.427.87.8003.030.380905TRUETRUEBRLIFRMETAR616.02018-10-19 14:48:57I¬) 5    3K7W6 191440Z AUTO 07004KT 10SM CLR 17/04 A3038 RMK AO2 T01680040K7W62018-10-19T14:40:00Z35.55-75.9516.84.070410.030.380905TRUETRUEVFRMETAR2.02018-10-19 14:48:57K¬) 5    3KASJ 191440Z AUTO 18004KT 10SM CLR 14/06 A3039 RMK AO2 T01360064KASJ2018-10-19T14:40:00Z36.28-77.1713.66.4180410.030.389763TRUETRUEVFRMETAR21.02018-10-19 14:48:57I¬) 5    3KCTZ 191440Z AUTO 00000KT 10SM CLR 18/10 A3038 RMK AO2 T01750095KCTZ2018-10-19T14:40:00Z34.98-78.3717.59.50010.030.380905TRUETRUEVFRMETAR45.02018-10-19 14:48:57 :pI¬#) 5    3KHRJ 191435Z AUTO 00000KT 10SM CLR 15/09 A3038 RMK AO2 T01510091KHRJ2018-10-19T14:35:00Z35.38-78.7315.19.10010.030.380905TRUETRUEVFRMETAR60.02018-10-19 14:48:57K¬") 5    3KVUJ 191435Z AUTO 16003KT 10SM CLR 14/08 A3042 RMK AO2 T01370077KVUJ2018-10-19T14:35:00Z35.42-80.1513.77.7160310.030.41929TRUETRUEVFRMETAR186.02018-10-19 14:48:57D¬!(}5     3KHYW 191435Z AUTO 03004KT 5SM HZ CLR 18/12 A3035 RMK AO2KHYW2018-10-19T14:35:00Z33.83-79.1218.012.03045.030.351377TRUETRUEHZMVFRMETAR11.02018-10-19 14:48:57@¬ (y5    3KEDJ 191435Z AUTO 21007KT 10SM CLR 07/01 A3024 RMK AO1KEDJ2018-10-19T14:35:00Z40.37-83.827.01.0210710.030.239174TRUETRUEVFRMETAR342.02018-10-19 14:48:57 <<k<8¬((u5   3SBJP 191400Z 09010KT 030V110 9999 BKN030 31/18 Q1013SBJP2018-10-19T14:00:00Z-7.15-34.9531.018.090106.2129.911417MVFRMETAR66.02018-10-19 14:48:57.¬'(e5   3SBCP 191400Z 20008KT 9999 SCT020 28/21 Q1009SBCP2018-10-19T14:00:00Z-21.7-41.328.021.020086.2129.793306VFRMETAR11.02018-10-19 14:48:577¬&(q5     3VIAR 191430Z 00000KT 3000 HZ NSC 22/18 Q1013 NOSIGVIAR2018-10-19T14:30:00Z31.774.822.018.0001.8629.911417TRUEHZIFRMETAR234.02018-10-19 14:48:57K¬%) 5    3KCPC 191435Z AUTO 06006KT 10SM CLR 17/10 A3036 RMK AO2 T01720104KCPC2018-10-19T14:35:00Z34.28-78.7217.210.460610.030.360237TRUETRUEVFRMETAR29.02018-10-19 14:48:57>¬$(}5    3KEXX 191435Z AUTO 10SM CLR 13/07 A3037 RMK AO2 T01290072KEXX2018-10-19T14:35:00Z35.78-80.312.97.210.030.369095TRUETRUEVFRMETAR223.02018-10-19 14:48:57 YEY7¬-(u5   3SBSG 191400Z 14014KT 110V170 9999 SCT040 30/19 Q1012SBSG2018-10-19T14:00:00Z-5.77-35.3730.019.0140146.2129.88189VFRSPECI83.02018-10-19 14:48:573¬,(e5   3SBBG 191400Z 12014KT 9999 BKN027 22/15 Q1022SBBG2018-10-19T14:00:00Z-31.38-54.1222.015.0120146.2130.177166MVFRSPECI180.02018-10-19 14:48:57A¬+)5    3SYCJ 191400Z 14004KT 060V190 9999 BKN018 31/25 Q1010 NOSIGSYCJ2018-10-19T14:00:00Z6.5-58.2531.025.014046.2129.822834TRUEMVFRSPECI30.02018-10-19 14:48:57)¬*(Y5   3SBTF 191400Z 26005KT CAVOK 30/24 Q1011SBTF2018-10-19T14:00:00Z-3.37-64.7230.024.026056.2129.852362VFRSPECI47.02018-10-19 14:48:575¬)(s5   3SBVT 191400Z 07003KT 9999 FEW040 SCT070 31/24 Q1009SBVT2018-10-19T14:00:00Z-20.27-40.2731.024.07036.2129.793306VFRMETAR4.02018-10-19 14:48:57 +<w+1¬2(s5   3SBNF 191400Z 12009KT 9999 SCT030 BKN100 24/19 Q1016SBNF2018-10-19T14:00:00Z-26.88-48.6524.019.012096.2130.0VFRMETAR5.02018-10-19 14:48:57G¬1) 5    3SBCY 191400Z 17006KT 9999 TS SCT020 FEW025CB BKN100 27/22 Q1011SBCY2018-10-19T14:00:00Z-15.65-56.1227.022.017066.2129.852362TSVFRMETAR182.02018-10-19 14:48:57B¬0)5   3SBRP 191400Z 27003KT 240V310 9999 FEW010 BKN020 26/20 Q1019SBRP2018-10-19T14:00:00Z-21.12-47.7726.020.027036.2130.088583MVFRMETAR549.02018-10-19 14:48:57?¬/)5   3SBRJ 191400Z 20009KT 9999 SCT023 BKN030 BKN070 27/21 Q1011SBRJ2018-10-19T14:00:00Z-22.88-43.1727.021.020096.2129.852362MVFRMETAR3.02018-10-19 14:48:57>¬.(5    3SYEC 191400Z 06012KT 9999 SCT020 BKN024 30/24 Q1010 NOSIGSYEC2018-10-19T14:00:00Z6.8-58.130.024.060126.2129.822834TRUEMVFRMETAR10.02018-10-19 14:48:57 mKm ¬6)_5      3KTPL 191451Z AUTO 32004KT 6SM -RA BR SCT005 BKN016 15/15 A3023 RMK AO2 SLP252 P0006 60012 T01500150 53010KTPL2018-10-19T14:51:00Z31.13-97.415.015.032046.030.2303141025.2TRUETRUE-RA BRMVFR1.00.060.12METAR208.02018-10-19 14:54:17 ¬5)s5    3PKMR 191451Z 00000KT 15SM FEW015 SCT050 BKN110 OVC300 27/25 A2978 RMK SHRAB20E45 SLP085 60002 8/878 T02690247 57015PKMR2018-10-19T14:51:00Z7.08171.3826.924.70015.029.7785431008.5OVC30000VFR-1.50.02METAR4.02018-10-19 14:54:177¬4(q5    3SMZO 191400Z 07008KT 9999 FEW020 32/23 Q1009 NOSIGSMZO2018-10-19T14:00:00Z5.82-55.1832.023.07086.2129.793306TRUEVFRMETAR10.02018-10-19 14:48:57/¬3(e5   3SBTE 191400Z 12006KT 9999 FEW025 34/19 Q1009SBTE2018-10-19T14:00:00Z-5.03-42.8234.019.012066.2129.793306VFRMETAR69.02018-10-19 14:48:57 5nB¬:(y5    3KUSE 191450Z AUTO 23012KT 10SM CLR 10/02 A3016 RMK AO2KUSE2018-10-19T14:50:00Z41.62-84.1310.02.02301210.030.159449TRUETRUEVFRMETAR238.02018-10-19 14:54:17A¬9(y5    3KAQP 191451Z AUTO 32015KT 10SM CLR 13/04 A2984 RMK AO2KAQP2018-10-19T14:51:00Z45.22-96.013.04.03201510.029.840551TRUETRUEVFRMETAR311.02018-10-19 14:54:17`¬8)'5    3KOCF 191451Z VRB05KT 10SM BKN090 27/22 A3024 RMK AO2 SLP240 T02720217 50012 $KOCF2018-10-19T14:51:00Z29.17-82.2227.221.70510.030.2391741024.0TRUETRUEVFR1.2METAR27.02018-10-19 14:54:17_¬7)!5    3KOXC 191451Z 21006KT 10SM CLR 08/01 A3022 RMK AO2 SLP252 T00830006 58015 $KOXC2018-10-19T14:51:00Z41.47-73.138.30.6210610.030.2214571025.2TRUETRUEVFR-1.5METAR222.02018-10-19 14:54:17 7{K¬?) 5     3CYQZ 191450Z AUTO VRB02KT 6SM BR OVC100 02/02 A3030 RMK SLP283CYQZ2018-10-19T14:50:00Z53.02-122.522.02.0026.030.3011821028.3TRUEBRVFRSPECI545.02018-10-19 14:54:17K¬>)5    3YMLT 191450Z AUTO 23002KT 6000 // SCT115 10/09 Q1007 RF00.0/000.0YMLT2018-10-19T14:50:00Z-41.52147.1810.09.023023.7329.734253TRUEMVFRSPECI178.02018-10-19 14:54:177¬=(s5   3KHOB 191450Z 32005KT 10SM BKN008 BKN022 10/09 A3031KHOB2018-10-19T14:50:00Z32.67-103.2210.09.0320510.030.31004IFRMETAR1115.02018-10-19 14:54:176¬<(s5   3KOLV 191450Z 16005KT 10SM FEW150 BKN250 13/09 A3025KOLV2018-10-19T14:50:00Z34.98-89.7813.09.0160510.030.250984VFRMETAR122.02018-10-19 14:54:17C¬;)5  3KSAW 191450Z 21014G19KT 10SM SCT036 SCT044 OVC110 10/06 A2968KSAW2018-10-19T14:50:00Z46.35-87.410.06.0210141910.029.681103VFRMETAR372.02018-10-19 14:54:17 NGNJ¬D) 5    3KIPJ 191450Z AUTO 00000KT 10SM CLR 14/07 A3036 RMK AO2 T01360067KIPJ2018-10-19T14:50:00Z35.48-81.1713.66.70010.030.360237TRUETRUEVFRSPECI267.02018-10-19 14:54:17,¬C(e5   3KHXD 191450Z 03010KT 10SM FEW040 21/16 A3031KHXD2018-10-19T14:50:00Z32.22-80.721.016.0301010.030.31004VFRMETAR6.02018-10-19 14:54:17*¬B(e5   3EYPA 191450Z VRB02KT 9999 FEW005 09/08 Q1023EYPA2018-10-19T14:50:00Z55.9721.089.08.0026.2130.206694VFRMETAR10.02018-10-19 14:54:17A¬A(5    3EYVI 191450Z 32006KT 7000 SCT009 BKN016 11/10 Q1021 NOSIGEYVI2018-10-19T14:50:00Z54.6325.2811.010.032064.3530.147638TRUEMVFRMETAR197.02018-10-19 14:54:173¬@(m5    3EYSA 191450Z 02003KT CAVOK 10/05 Q1022 BLU NOSIGEYSA2018-10-19T14:50:00Z55.923.410.05.02036.2130.177166TRUEVFRMETAR135.02018-10-19 14:54:17 2mt¬H)O5        3KILE 191450Z AUTO 34005KT 4SM RA SCT005 BKN016 OVC045 A3023 RMK AO2 UPE1358RAB1358 P0023 FZRANO $KILE2018-10-19T14:50:00Z31.07-97.6734054.030.230314TRUETRUETRUETRUERAMVFR0.23SPECI258.02018-10-19 14:54:17H¬G) 5    3OAKB 191450Z 12004KT CAVOK 13/M03 Q1023 NOSIG RMK A3021 BLU BLUOAKB2018-10-19T14:50:00Z34.5569.2213.0-3.012046.2130.206694TRUEVFRMETAR1791.02018-10-19 14:54:17?¬F(}5    3KSIF 191450Z AUTO 10SM CLR 12/08 A3037 RMK AO2 T01170077KSIF2018-10-19T14:50:00Z36.43-79.8511.77.710.030.369095TRUETRUEVFRSPECI211.02018-10-19 14:54:17H¬E) 5    3KTTA 191450Z AUTO 00000KT 10SM CLR 13/09 A3038 RMK AO2 T01260091KTTA2018-10-19T14:50:00Z35.58-79.112.69.10010.030.380905TRUETRUEVFRSPECI75.02018-10-19 14:54:17 ;n8¬L(u5    3KPDK 191450Z VRB04KT 10SM OVC031 16/08 A3034 RMK AO2KPDK2018-10-19T14:50:00Z33.88-84.316.08.00410.030.339567TRUEVFRSPECI302.02018-10-19 14:54:17<¬K({5     3ESUT 191450Z AUTO 00000KT 9999 DZ OVC013/// 05/03 Q1015ESUT2018-10-19T14:50:00Z65.815.085.03.0006.2129.970472TRUEDZMVFRMETAR463.02018-10-19 14:54:17G¬J)5    3KOMN 191450Z 09005KT 10SM VCSH SCT015 BKN060 25/24 A3024 RMK RAE15KOMN2018-10-19T14:50:00Z29.3-81.1225.024.090510.030.239174VCSHVFRSPECI9.02018-10-19 14:54:17?¬I(y5    3KOUN 191450Z 16007KT 2 1/2SM +RA BR OVC005 12/11 A3023KOUN2018-10-19T14:50:00Z35.25-97.4712.011.016072.530.230314+RA BRIFRMETAR357.02018-10-19 14:54:17 c+cB¬P)5    3MSSS 191450Z 35003KT 9999 5000NW BR FEW013 22/21 Q1017 A3002MSSS2018-10-19T14:50:00Z13.7-89.1222.021.035036.2130.029528BRVFRMETAR616.02018-10-19 14:54:17g¬O);5   3CYLU 191450Z 30012G21KT 8SM -SN SCT007 BKN010 OVC021 M04/M07 A2977 RMK ST4ST2SC2 SLP089CYLU2018-10-19T14:50:00Z58.72-65.97-4.0-7.030012218.029.7696861008.9-SNMVFRSPECI60.02018-10-19 14:54:17e¬N))5    3KDAG 191450Z AUTO 27005KT 10SM CLR 10/M01 A3019 RMK AO2 SLP212 T01001006 53013KDAG2018-10-19T14:50:00Z34.85-116.7810.0-0.6270510.030.1889761021.2TRUETRUEVFR1.3METAR587.02018-10-19 14:54:17w¬M)O5    3KMCW 191450Z AUTO 22017G24KT 10SM FEW008 BKN015 11/11 A2991 RMK AO2 PK WND 21026/1435 RAE05 P0000KMCW2018-10-19T14:50:00Z43.15-93.3311.011.0220172410.029.911417TRUETRUEMVFR0.005SPECI369.02018-10-19 14:54:17 X m X.¬U(c5    3EFOU 191450Z AUTO 31008KT CAVOK 08/04 Q1012EFOU2018-10-19T14:50:00Z64.9225.378.04.031086.2129.88189TRUEVFRMETAR15.02018-10-19 14:54:170¬T(c5    3EFRO 191450Z AUTO 31005KT CAVOK 05/02 Q1011EFRO2018-10-19T14:50:00Z66.5725.825.02.031056.2129.852362TRUEVFRMETAR201.02018-10-19 14:54:17%¬S(Y5   3EFMA 191450Z 26003KT CAVOK 08/03 Q1021EFMA2018-10-19T14:50:00Z60.1219.888.03.026036.2130.147638VFRMETAR6.02018-10-19 14:54:17-¬R(e5   3EFIV 191450Z 25003KT 9999 OVC005 02/01 Q1010EFIV2018-10-19T14:50:00Z68.6227.422.01.025036.2129.822834IFRMETAR148.02018-10-19 14:54:17Z¬Q)55    3MSLP 191450Z VRB03KT 9999 FEW015 FEW037CB SCT077 27/24 Q1013 A2993 NOSIG RMK CB SW WMSLP2018-10-19T14:50:00Z13.43-89.0527.024.0036.2129.911417TRUEVFRMETAR25.02018-10-19 14:54:17 oQ#o.¬Z(e5   3TJIG 191450Z 10012KT 10SM SCT045 29/23 A3001TJIG2018-10-19T14:50:00Z18.45-66.129.023.01001210.030.008858VFRMETAR3.02018-10-19 14:54:176¬Y(q5    3EFHK 191450Z 26008KT 9999 FEW035 09/03 Q1018 NOSIGEFHK2018-10-19T14:50:00Z60.3224.979.03.026086.2130.059055TRUEVFRMETAR56.02018-10-19 14:54:177¬X(o5    3EFTP 191450Z AUTO 26010KT 9999 FEW023 07/03 Q1018EFTP2018-10-19T14:50:00Z61.4223.627.03.0260106.2130.059055TRUEVFRMETAR112.02018-10-19 14:54:17/¬W(c5    3EFTU 191450Z AUTO 28006KT CAVOK 08/03 Q1019EFTU2018-10-19T14:50:00Z60.5222.278.03.028066.2130.088583TRUEVFRMETAR59.02018-10-19 14:54:17)¬V(c5    3EFVA 191450Z AUTO 26003KT CAVOK 08/03 Q1016EFVA2018-10-19T14:50:00Z63.0321.778.03.026036.2130.0TRUEVFRMETAR4.02018-10-19 14:54:17 uO*u/¬_(e5   3KVQQ 191450Z 03005KT 10SM BKN022 29/22 A3025KVQQ2018-10-19T14:50:00Z30.22-81.8829.022.030510.030.250984MVFRMETAR25.02018-10-19 14:54:17/¬^(a5   3KWHP 191450Z 30008KT 10SM SKC 20/M02 A3007KWHP2018-10-19T14:50:00Z34.25-118.4220.0-2.0300810.030.070866VFRMETAR306.02018-10-19 14:54:175¬](w5   3OAMS 191450Z 15003KT 9999 FEW080 15/02 Q1024 BLU+BLU+OAMS2018-10-19T14:50:00Z36.767.215.02.015036.2130.236221VFRMETAR378.02018-10-19 14:54:17/¬\(e5   3KHQZ 191450Z 00000KT 10SM OVC025 14/13 A3025KHQZ2018-10-19T14:50:00Z32.75-96.5314.013.00010.030.250984MVFRMETAR136.02018-10-19 14:54:17+¬[(_5   3KNQA 191450Z 14005KT 10SM CLR 14/08 A3025KNQA2018-10-19T14:50:00Z35.35-89.8714.08.0140510.030.250984VFRMETAR86.02018-10-19 14:54:17 hPh-¬d(e5   3KBAK 191450Z 19007KT 10SM BKN150 09/01 A3025KBAK2018-10-19T14:50:00Z39.27-85.99.01.0190710.030.250984VFRMETAR200.02018-10-19 14:54:172¬c(e5    3LATI 191450Z 33007KT CAVOK 23/16 Q1015 NOSIGLATI2018-10-19T14:50:00Z41.4219.7223.016.033076.2129.970472TRUEVFRMETAR90.02018-10-19 14:54:17<¬b({5    3KGPM 191450Z 00000KT 10SM -RA SCT004 BKN020 14/14 A3026KGPM2018-10-19T14:50:00Z32.7-97.0514.014.00010.030.259842-RAMVFRMETAR180.02018-10-19 14:54:175¬a(q5    3ETNG 191450Z 03003KT 9999 SCT033 18/09 Q1023 NOSIGETNG2018-10-19T14:50:00Z50.976.0318.09.03036.2130.206694TRUEVFRMETAR98.02018-10-19 14:54:17*¬`(_5   3KTZR 191450Z 20008KT 10SM SKC 08/02 A3026KTZR2018-10-19T14:50:00Z39.9-83.138.02.0200810.030.259842VFRMETAR276.02018-10-19 14:54:17 RA<¬i({5    3EVRA 191450Z 35003KT CAVOK 10/05 Q1022 R36/090095 NOSIGEVRA2018-10-19T14:50:00Z56.9223.9710.05.035036.2130.177166TRUEVFRMETAR10.02018-10-19 14:54:17/¬h(o5    3TJBQ 191450Z 08011KT 10SM SCT021 BKN080 29/ A3001TJBQ2018-10-19T14:50:00Z18.5-67.1329.0801110.030.008858VFRMETAR72.02018-10-19 14:54:17,¬g(e5   3EGEO 191450Z 28010KT 9999 FEW022 13/07 Q1022EGEO2018-10-19T14:50:00Z56.47-5.413.07.0280106.2130.177166VFRMETAR6.02018-10-19 14:54:17$¬f([5   3ESNL 191450Z 28006KT CAVOK 04/M01 Q1016ESNL2018-10-19T14:50:00Z64.5518.724.0-1.028066.2130.0VFRMETAR214.02018-10-19 14:54:17(¬e([5   3ESNX 191450Z 25005KT CAVOK 06/M00 Q1014ESNX2018-10-19T14:50:00Z65.5819.286.00.025056.2129.940945VFRMETAR379.02018-10-19 14:54:17 1M¬m)5   3KBFW 191449Z AUTO 24007G15KT 210V290 10SM CLR 13/07 A2958 RMK AO2KBFW2018-10-19T14:49:00Z47.25-91.413.07.024071510.029.58071TRUETRUEVFRSPECI331.02018-10-19 14:54:17/¬l(e5    3EETN 191450Z 27012KT CAVOK 09/05 Q1020 NOSIGEETN2018-10-19T14:50:00Z59.424.829.05.0270126.2130.11811TRUEVFRMETAR40.02018-10-19 14:54:17+¬k(e5   3EYKA 191450Z VRB02KT 9999 SCT034 12/05 Q1021EYKA2018-10-19T14:50:00Z54.9724.0812.05.0026.2130.147638VFRMETAR77.02018-10-19 14:54:17I¬j)#5   3EKVG 191450Z AUTO 26017KT 9999NDV SCT021/// SCT037/// BKN053/// 09/05 Q1010EKVG2018-10-19T14:50:00Z62.07-7.39.05.02601729.822834TRUEMETAR85.02018-10-19 14:54:17 OlM¬q)5   3KTQE 191449Z AUTO 22011G19KT 10SM BKN019 14/11 A2999 RMK AO2KTQE2018-10-19T14:49:00Z41.77-96.1814.011.0220111910.029.991142TRUETRUEMVFRSPECI312.02018-10-19 14:54:17]¬p)%5     3PHLI 191449Z AUTO 27008KT 10SM FEW020 SCT026 BKN044 21/18 A2992 RMK AO2 TSNOPHLI2018-10-19T14:49:00Z21.97-159.3321.018.0270810.029.920275TRUETRUETRUEVFRSPECI45.02018-10-19 14:54:17B¬o(}5    3SBCT 191449Z 11010KT 6000 VCSH BKN005 OVC012 17/16 Q1019SBCT2018-10-19T14:49:00Z-25.52-49.1717.016.0110103.7330.088583VCSHIFRSPECI908.02018-10-19 14:54:17c¬n))5      3KBMQ 191449Z AUTO VRB03KT 6SM -RA BR OVC009 14/14 A3024 RMK AO2 RAE09B48 P0000KBMQ2018-10-19T14:49:00Z30.73-98.2314.014.0036.030.239174TRUETRUE-RA BRIFR0.005SPECI389.02018-10-19 14:54:17 9\)¬u(_5   3KTOA 191448Z 00000KT 10SM SKC 17/03 A3002KTOA2018-10-19T14:48:00Z33.78-118.3217.03.00010.030.02067VFRMETAR31.02018-10-19 14:54:17W¬t)5      3KSMN 191449Z AUTO 00000KT 1 1/4SM BR CLR M01/M02 A3046 RMK AO2 FZRANOKSMN2018-10-19T14:49:00Z45.12-113.87-1.0-2.0001.2530.46063TRUETRUETRUEBRIFRSPECI1233.02018-10-19 14:54:17`¬s)-5     3CYPO 191449Z AUTO 11007KT 070V140 3SM -SN SCT023 OVC031 M03/M04 A2945 RMK SLP977CYPO2018-10-19T14:49:00Z54.98-85.43-3.0-4.011073.029.450787997.7TRUE-SNMVFRSPECI53.02018-10-19 14:54:17[¬r)15     3CYAT 191449Z AUTO /////KT 9SM -SN -UP OVC003 00/ A2944 RMK WND MISG TD MISG SLP973CYAT2018-10-19T14:49:00Z52.93-82.430.09.029.438976997.3TRUE-SN UPLIFRSPECI9.02018-10-19 14:54:17  5jA¬y) 5   3LEHC 191448Z 02003KT 350V050 9999 FEW030TCU SCT065 18/15 Q1017LEHC2018-10-19T14:48:00Z42.08-0.3218.015.02036.2130.029528VFRSPECI539.02018-10-19 14:54:17E¬x) 5    3LEVS 191448Z 03004KT 320V100 3000 -RA SCT010 BKN020 15/14 Q1014LEVS2018-10-19T14:48:00Z40.37-3.7715.014.03041.8629.940945-RAIFRSPECI687.02018-10-19 14:54:17e¬w))5      3KHYI 191448Z 36008KT 3SM -RA BR OVC007 16/16 A3020 RMK AO2 CIG 004V010 P0000 $KHYI2018-10-19T14:48:00Z29.88-97.8716.016.036083.030.200787TRUETRUE-RA BRIFR0.005SPECI182.02018-10-19 14:54:17Z¬v)#5    3KRYY 191448Z 11007KT 10SM SCT029 16/08 A3034 RMK AO2 SLP995 T01560083 50002KRYY2018-10-19T14:48:00Z34.02-84.615.68.3110710.030.339567999.5TRUEVFR0.2METAR317.02018-10-19 14:54:17 -V~-¬}(a5   3KSUN 191448Z 30006KT 10SM SKC 03/M02 A3042KSUN2018-10-19T14:48:00Z43.5-114.283.0-2.0300610.030.41929VFRMETAR1620.02018-10-19 14:54:17R¬|)5     3CYNA 191448Z AUTO 32012KT 1SM -SN OVC018 M01/M02 A2978 RMK SLP086CYNA2018-10-19T14:48:00Z50.17-61.82-1.0-2.0320121.029.7785431008.6TRUE-SNIFRSPECI11.02018-10-19 14:54:17Q¬{)5    3PAPN 191448Z AUTO 00000KT 10SM FEW013 BKN018 OVC055 04/03 A2937 RMK AO2PAPN2018-10-19T14:48:00Z57.58-157.574.03.00010.029.371063TRUETRUEMVFRSPECI18.02018-10-19 14:54:17M¬z) 5     3PASM 191448Z AUTO 00000KT 10SM BKN026 02/01 A2953 RMK AO2 FZRANOPASM2018-10-19T14:48:00Z62.07-163.32.01.00010.029.530512TRUETRUETRUEMVFRSPECI92.02018-10-19 14:54:17 )Ik[­)5      3KMKO 191448Z AUTO 15005KT 8SM -RA SCT005 OVC031 11/11 A3029 RMK AO2 P0001KMKO2018-10-19T14:48:00Z35.65-95.3711.011.015058.030.28937TRUETRUE-RAVFR0.01SPECI185.02018-10-19 14:54:17X­)5     3KGJT 191448Z 00000KT 1/2SM R11/0700V1000FT FG VV001 03/03 A3044 RMK AO2 $KGJT2018-10-19T14:48:00Z39.12-108.523.03.0000.530.43996TRUETRUEFGLIFR100SPECI1475.02018-10-19 14:54:17Z¬)!5   3KLXT 191448Z AUTO 22012G20KT 10SM BKN029 BKN050 OVC080 13/10 A3015 RMK AO2KLXT2018-10-19T14:48:00Z38.97-94.3713.010.0220122010.030.15059TRUETRUEMVFRSPECI306.02018-10-19 14:54:17Q¬~)5    3KJDN 191448Z AUTO 28004KT 07/01 A3031 RMK AO1 SLP281 T00720006 53025KJDN2018-10-19T14:48:00Z47.33-106.957.20.6280430.310041028.1TRUETRUE2.5METAR801.02018-10-19 14:54:17 r7"r*­(_5   3KBVI 191447Z 19006KT 10SM CLR 09/00 A3025KBVI2018-10-19T14:47:00Z40.77-80.49.00.0190610.030.250984VFRMETAR382.02018-10-19 14:54:170­(i5  3KSUA 191447Z 09008G15KT 7SM SCT022 30/22 A3020KSUA2018-10-19T14:47:00Z27.18-80.2230.022.0908157.030.200787VFRMETAR6.02018-10-19 14:54:17)­(_5   3KPAO 191447Z 00000KT 10SM SKC 10/09 A3014KPAO2018-10-19T14:47:00Z37.47-122.1210.09.00010.030.138779VFRMETAR2.02018-10-19 14:54:17*­(_5   3KPOC 191447Z 00000KT 10SM CLR 15/03 A3005KPOC2018-10-19T14:47:00Z34.1-117.7715.03.00010.030.050198VFRMETAR308.02018-10-19 14:54:17C­)5    3KROW 191448Z 28005KT 10SM FEW006 OVC026 10/08 A3031 RMK AO2KROW2018-10-19T14:48:00Z33.3-104.510.08.0280510.030.31004TRUEMVFRSPECI1112.02018-10-19 14:54:17 "ma­ )%5      3KNFW 191447Z 35003KT 2 1/2SM RA BR FEW006 OVC021 14/13 A3026 RMK AO2 P0009 $KNFW2018-10-19T14:47:00Z32.78-97.4314.013.035032.530.259842TRUETRUERA BRIFR0.09METAR198.02018-10-19 14:54:17f­ )+5    3KCQT 191447Z AUTO 00000KT 10SM CLR 17/06 A3001 RMK AO2 SLP161 T01720061 53007 $KCQT2018-10-19T14:47:00Z34.02-118.2817.26.10010.030.0088581016.1TRUETRUETRUEVFR0.7METAR56.02018-10-19 14:54:17/­(e5   3KAEG 191447Z 36009KT 10SM FEW030 08/04 A3037KAEG2018-10-19T14:47:00Z35.13-106.88.04.0360910.030.369095VFRMETAR1779.02018-10-19 14:54:17X­)5      3KSPS 191447Z 13003KT 5SM -RA BR BKN005 OVC024 12/12 A3025 RMK AO2 P0004KSPS2018-10-19T14:47:00Z33.98-98.512.012.013035.030.250984TRUE-RA BRIFR0.04METAR308.02018-10-19 14:54:17 POvN­)5    3KUAO 191446Z AUTO 00000KT 2 1/2SM SCT004 03/03 A3027 RMK AO2 T00280028KUAO2018-10-19T14:46:00Z45.25-122.772.82.8002.530.268702TRUETRUEIFRSPECI59.02018-10-19 14:54:17S­ )5     3KALI 191446Z AUTO 33006KT 3SM BR OVC003 17/17 A3013 RMK AO2 T01720167KALI2018-10-19T14:46:00Z27.73-98.0217.216.733063.030.129921TRUETRUEBRLIFRSPECI53.02018-10-19 14:54:17{­ )K5      3KHST 191447Z AUTO 07010KT 10SM -DZ FEW025 30/23 A3016 RMK AO2 DZB47 SLP216 FZRANO VISNO RWY24 $KHST2018-10-19T14:47:00Z25.47-80.3730.023.0701010.030.1594491021.6TRUETRUETRUETRUE-DZVFRSPECI2.02018-10-19 14:54:17*­ (_5   3KGYH 191447Z 00000KT 10SM CLR 15/07 A3036KGYH2018-10-19T14:47:00Z34.75-82.3815.07.00010.030.360237VFRMETAR292.02018-10-19 14:54:17 ^P^8­(y5    3KBBG 191445Z 00000KT 3SM -RA SCT030 OVC048 08/08 A3027KBBG2018-10-19T14:45:00Z36.53-93.28.08.0003.030.268702-RAMVFRMETAR397.02018-10-19 14:54:17-­(a5   3KBJC 191445Z 28004KT 30SM SKC 13/M03 A3033KBJC2018-10-19T14:45:00Z39.9-105.113.0-3.0280430.030.33071VFRMETAR1724.02018-10-19 14:54:17J­)5    3PALP 191445Z VRB02KTKT 190V270 3SM BR SCT002 BKN075 OVC090 M06/M07 A2988PALP2018-10-19T14:45:00Z70.33-150.93-6.0-7.03.029.878937BRMVFRMETAR5.02018-10-19 14:54:17+­(_5   3KSCH 191445Z 18004KT 15SM CLR 09/01 A3016KSCH2018-10-19T14:45:00Z42.85-73.929.01.0180415.030.159449VFRMETAR115.02018-10-19 14:54:17*­(o5  3CWPF 191445Z AUTO 01003KT 06/06 RMK AO1 T00550055CWPF2018-10-19T14:45:00Z48.43-123.435.55.5103TRUETRUEMETAR12.02018-10-19 14:54:17 PZ*­(_5   3KEMT 191445Z 00000KT 10SM CLR 13/06 A3003KEMT2018-10-19T14:45:00Z34.07-118.0213.06.00010.030.029528VFRMETAR90.02018-10-19 14:54:17!­)#5     3KGRK 191445Z AUTO 01007KT 2SM RA BR FEW006 SCT014 OVC028 14/13 A3021 RMK AO2 VIS 1 3/4V2 3/4 VIS 3/4 RWY15 CIG 016V028 CIG 019 RWY15 SLP228KGRK2018-10-19T14:45:00Z31.07-97.8314.013.01072.030.2096461022.8TRUETRUERA BRIFRSPECI309.02018-10-19 14:54:17I­) 5    3KGEV 191445Z AUTO 00000KT 10SM CLR 09/06 A3034 RMK AO2 T00930057KGEV2018-10-19T14:45:00Z36.43-81.429.35.70010.030.339567TRUETRUEVFRMETAR969.02018-10-19 14:54:17*­(_5   3KMTN 191445Z 18005KT 10SM SKC 13/07 A3035KMTN2018-10-19T14:45:00Z39.32-76.4213.07.0180510.030.351377VFRMETAR7.02018-10-19 14:54:17 7qK­) 5    3KCBE 191440Z AUTO 14003KT 10SM CLR 05/03 A3036 RMK AO2 T00480027KCBE2018-10-19T14:40:00Z39.62-78.774.82.7140310.030.360237TRUETRUEVFRMETAR236.02018-10-19 14:54:17K­) 5    3KCGS 191442Z AUTO 16005KT 10SM CLR 12/05 A3034 RMK AO1 T01240046KCGS2018-10-19T14:42:00Z38.98-76.9212.44.6160510.030.339567TRUETRUEVFRMETAR15.02018-10-19 14:54:17@­(y5    3K2W6 191443Z AUTO 22009KT 10SM CLR 13/05 A3037 RMK AO1K2W62018-10-19T14:43:00Z38.32-76.5513.05.0220910.030.369095TRUETRUEVFRMETAR44.02018-10-19 14:54:17C­) 5    3CMGB 191445Z AUTO 20006KT 10/03 RMK AO1 SLP155 T01000027 58017CMGB2018-10-19T14:45:00Z45.37-72.7710.02.720061015.5TRUETRUE-1.7SPECI86.02018-10-19 14:54:17 1i@­({5    3KDMW 191440Z AUTO 19006KT 10SM CLR 12/M01 A3031 RMK AO2KDMW2018-10-19T14:40:00Z39.6-77.012.0-1.0190610.030.31004TRUETRUEVFRMETAR241.02018-10-19 14:54:17I­) 5    3KW29 191440Z AUTO 24008KT 200V280 10SM CLR 13/05 A3035 RMK AO2KW292018-10-19T14:40:00Z38.98-76.3313.05.0240810.030.351377TRUETRUEVFRMETAR15.02018-10-19 14:54:17B­({5    3K2G4 191440Z AUTO 20004KT 10SM CLR 08/M03 A3025 RMK AO1K2G42018-10-19T14:40:00Z39.58-79.338.0-3.0200410.030.250984TRUETRUEVFRMETAR894.02018-10-19 14:54:17I­) 5    3KAFP 191440Z AUTO 00000KT 10SM CLR 13/09 A3037 RMK AO2 T01320085KAFP2018-10-19T14:40:00Z35.02-80.0813.28.50010.030.369095TRUETRUEVFRMETAR92.02018-10-19 14:54:17 =vC­$(5    3KFYG 191415Z AUTO 19004KT 10SM OVC060 12/04 A3021 RMK AO2KFYG2018-10-19T14:15:00Z38.58-91.012.04.0190410.030.209646TRUETRUEVFRSPECI149.02018-10-19 14:54:17@­#)5     3YPXM 191430Z AUTO 13010KT 9999 // BKN015 BKN030 BKN036 Q1017YPXM2018-10-19T14:30:00Z-10.45105.67130106.2130.029528TRUEMVFRSPECI259.02018-10-19 14:54:17D­"({5    3KPVF 191435Z AUTO 12004KT 10SM CLR 17/M04 A3021 RMK AO1KPVF2018-10-19T14:35:00Z38.72-120.7517.0-4.0120410.030.209646TRUETRUEVFRMETAR789.02018-10-19 14:54:17A­!(5    3KLRO 191435Z AUTO 02004KT 10SM FEW044 22/17 A3032 RMK AO2KLRO2018-10-19T14:35:00Z32.9-79.7822.017.020410.030.318897TRUETRUEVFRSPECI4.02018-10-19 14:54:17=­ (y5    3KCGE 191440Z AUTO VRB05KT 10SM CLR 14/05 A3036 RMK A01KCGE2018-10-19T14:40:00Z38.53-76.0314.05.00510.030.360237TRUETRUEVFRMETAR6.02018-10-19 14:54:17 M~J­()5   3MMCB 191502Z RTD 00000KT 15SM FEW100 BKN200 23/16 A3016 RMK 8/052 CU NMMCB2018-10-19T15:02:00Z18.83-99.2723.016.00015.030.159449VFRMETAR1560.02018-10-19 15:05:16+­'(a5   3KOQU 191350Z 27010KT 15SM SKC 09/M03 A3025KOQU2018-10-19T13:50:00Z41.6-71.429.0-3.02701015.030.250984VFRMETAR6.02018-10-19 14:54:17I­&)5   3KNMM 191356Z 00000KT 10SM BKN280 16/12 A3026 RMK SLP256 T01560117KNMM2018-10-19T13:56:00Z32.53-88.5715.611.70010.030.2598421025.6VFRSPECI97.02018-10-19 14:54:17-­%(q5  3CZMU 191400Z AUTO 28009KT 01/M04 RMK AO1 T00121038CZMU2018-10-19T14:00:00Z53.57-112.31.2-3.82809TRUETRUEMETAR683.02018-10-19 14:54:17  k­,)55     3PADM 191502Z AUTO 03004KT 10SM CLR 01/00 A2954 RMK AO2 SLP011 T00110000 58015 FZRANOPADM2018-10-19T15:02:00Z61.87-162.031.10.030410.029.539371001.1TRUETRUETRUEVFR-1.5METAR31.02018-10-19 15:05:16 ­+)u5     3PAMD 191502Z AUTO 06035G49KT 3SM -RA BR BKN005 OVC013 09/09 A2873 RMK AO2 PK WND 07049/1500 CIG 004V009 PRESFR P0001PAMD2018-10-19T15:02:00Z59.43-146.39.09.06035493.028.730314TRUETRUE-RA BRIFR0.01METAR14.02018-10-19 15:05:16p­*);5     3PAMO 191502Z AUTO 04010KT 10SM SCT080 02/01 A2951 RMK AO2 SLP000 T00220011 58017 FZRANOPAMO2018-10-19T15:02:00Z62.1-163.682.21.1401010.029.5098421000.0TRUETRUETRUEVFR-1.7METAR103.02018-10-19 15:05:16o­));5     3PASM 191502Z AUTO 04003KT 10SM OVC026 02/01 A2952 RMK AO2 SLP014 T00220011 58017 FZRANOPASM2018-10-19T15:02:00Z62.07-163.32.21.140310.029.5187021001.4TRUETRUETRUEMVFR-1.7METAR92.02018-10-19 15:05:16Y88@HPX`hpx (08@HPX`hpx (08@HPX`hpx¬¬¬¬¬¬#¬(¬-¬2¬6¬:¬?¬¬¬¬¬¬#¬(¬-¬2¬6¬:¬?¬D¬H¬L¬P¬U¬Z¬_¬d¬i¬m¬q¬u¬y¬}­­­ ­­­­­­$­(­,­0­4­9­>­C­G­L­Q­V­[­`­e­j­o­t­y­~®®® ®®®®•®$Õ®(ĕ®-ŕ®2ƕ®7Ǖ®<ȕ®Aɕ®Fʕ®K˕®P̕®U͕®ZΕ®_ϕ®dЕ®iѕ®nҕ®sӕ®xԕ®}Օ¯֕¯ו¯ ؕ¯ٕ¯ڕ¯ە¯ܕ¯$ݕ¯)  .SK­0)5    3KUAO 191501Z AUTO 00000KT 2SM BKN002 04/03 A3027 RMK AO2 T00390033KUAO2018-10-19T15:01:00Z45.25-122.773.93.3002.030.268702TRUETRUELIFRMETAR59.02018-10-19 15:05:16U­/)5     3KCNY 191501Z AUTO 33006KT 1SM BR VV001 03/03 A3042 RMK AO2 T00330033KCNY2018-10-19T15:01:00Z38.77-109.753.33.333061.030.41929TRUETRUEBRLIFR100METAR1390.02018-10-19 15:05:16V­.)5     3KROG 191501Z 18005KT 5SM RA BR SCT011 OVC032 09/08 A3027 RMK AO2 PNO $KROG2018-10-19T15:01:00Z36.37-94.089.08.018055.030.268702TRUETRUERA BRMVFRSPECI415.02018-10-19 15:05:16p­-)95     3PAFS 191501Z AUTO 07005KT 10SM CLR M01/M02 A2945 RMK AO2 SLP992 T10111017 58044 FZRANOPAFS2018-10-19T15:01:00Z63.02-154.35-1.1-1.770510.029.450787999.2TRUETRUETRUEVFR-4.4METAR126.02018-10-19 15:05:16 X8­4(q5    3ORBI 191500Z 03007KT 8000 OVC030 27/13 Q1014 NOSIGORBI2018-10-19T15:00:00Z33.2744.2327.013.03074.9729.940945TRUEMVFRMETAR35.02018-10-19 15:05:16Q­3)5    3MHTG 191500Z 36004KT 8000 FEW008 SCT024 BKN080 20/18 Q1021 A3015 NOSIGMHTG2018-10-19T15:00:00Z14.07-87.2220.018.036044.9730.147638TRUEMVFRMETAR1004.02018-10-19 15:05:16=­2(w5     3WIII 191500Z 20006KT 4000 HZ SCT020 28/24 Q1013 NOSIGWIII2018-10-19T15:00:00Z-6.13106.6728.024.020062.4929.911417TRUEHZIFRMETAR8.02018-10-19 15:05:16_­1))5      3KMCN 191501Z 06006KT 2 1/2SM -RA BR OVC005 13/13 A3033 RMK AO2 P0000 T01330133KMCN2018-10-19T15:01:00Z32.68-83.6513.313.36062.530.33071TRUE-RA BRIFR0.005METAR109.02018-10-19 15:05:16 IH I<­9(u5    3SCEL 191500Z 20007KT 160V250 CAVOK 20/08 Q1017 NOSIGSCEL2018-10-19T15:00:00Z-33.37-70.7720.08.020076.2130.029528TRUEVFRMETAR476.02018-10-19 15:05:16@­8)5   3SBBV 191500Z 32006KT 9999 BKN030 FEW035TCU BKN080 28/22 Q1012SBBV2018-10-19T15:00:00Z2.85-60.728.022.032066.2129.88189MVFRMETAR140.02018-10-19 15:05:16@­7)5   3SBPS 191500Z 05012KT 010V080 9999 SCT020 BKN100 31/22 Q1009SBPS2018-10-19T15:00:00Z-16.43-39.0731.022.050126.2129.793306VFRMETAR51.02018-10-19 15:05:16+­6(e5   3MPDA 191500Z VRB02KT 9999 FEW030 28/23 Q1011MPDA2018-10-19T15:00:00Z8.4-82.4328.023.0026.2129.852362VFRMETAR27.02018-10-19 15:05:162­5(y5   3MPSM 191500Z 31002KT(E) 9999 FEW018 SCT090 27/24 Q1012MPSM2018-10-19T15:00:00Z8.35-80.1327.024.06.2129.88189VFRMETAR0.02018-10-19 15:05:16 XFX0­>(e5   3SBMO 191500Z 07013KT 9999 SCT042 32/19 Q1011SBMO2018-10-19T15:00:00Z-9.52-35.7732.019.070136.2129.852362VFRMETAR115.02018-10-19 15:05:167­=(y5   3TUPJ 191500Z 08007KT 10SM SCT018 30/24 A2999 RMK Q1015TUPJ2018-10-19T15:00:00Z18.43-64.5230.024.080710.029.991142VFRMETAR4.02018-10-19 15:05:16F­<)5     3OJAM 191500Z 31004KT 4000 DU SCT030 SCT200 24/11 Q1015 NOSIGOJAM2018-10-19T15:00:00Z31.9735.9724.011.031042.4929.970472TRUEDUIFRMETAR773.02018-10-19 15:05:16)­;(Y5   3SBMN 191500Z 18006KT CAVOK 32/24 Q1010SBMN2018-10-19T15:00:00Z-3.13-59.9732.024.018066.2129.822834VFRMETAR84.02018-10-19 15:05:164­:(s5   3SBSJ 191500Z 21005KT 9999 SCT017 BKN023 22/18 Q1016SBSJ2018-10-19T15:00:00Z-23.22-45.8722.018.021056.2130.0MVFRMETAR646.02018-10-19 15:05:16 7@o78­C(q5    3SMJP 191500Z 19007KT 9999 FEW025 33/23 Q1009 NOSIGSMJP2018-10-19T15:00:00Z5.45-55.1733.023.019076.2129.793306TRUEVFRMETAR16.02018-10-19 15:05:167­B(q5    3SMZO 191500Z 04003KT 9999 FEW030 33/22 Q1008 NOSIGSMZO2018-10-19T15:00:00Z5.82-55.1833.022.04036.2129.763779TRUEVFRMETAR10.02018-10-19 15:05:167­A(q5    3WAJJ 191500Z 00000KT 9999 SCT013 26/23 Q1011 NOSIGWAJJ2018-10-19T15:00:00Z-2.58140.5226.023.0006.2129.852362TRUEVFRMETAR88.02018-10-19 15:05:16K­@)5    3UBBL 191500Z 16005KT 9999 NSC 18/15 Q1021 R15/CLRD// NOSIG RMK MT OPUBBL2018-10-19T15:00:00Z38.7548.8218.015.016056.2130.147638TRUEVFRMETAR10.02018-10-19 15:05:16:­?(q5    3WADL 191500Z 17003KT 7000 SCT016 25/23 Q1015 NOSIGWADL2018-10-19T15:00:00Z-8.75116.2825.023.017034.3529.970472TRUEMVFRMETAR97.02018-10-19 15:05:16 <_y+­G(e5    3LWSK 191500Z 00000KT CAVOK 22/09 Q1016 NOSIGLWSK2018-10-19T15:00:00Z41.9721.6322.09.0006.2130.0TRUEVFRMETAR239.02018-10-19 15:05:16`­F)95    3ZMUB 191500Z 16004MPS 130V190 9999 FEW033 SCT100 06/M15 Q1018 NOSIG RMK QFE655.9 20 NTZMUB2018-10-19T15:00:00Z47.83106.786.0-15.016086.2130.059055TRUEVFRMETAR1330.02018-10-19 15:05:16W­E)+5    3NGFU 191500Z 10012KT 9999 2000E SHRA SCT015CB SCT017TCU 29/25 Q1008 RMK CB TO ENGFU2018-10-19T15:00:00Z-8.52179.2229.025.0100126.2129.763779SHRAVFRMETAR1.02018-10-19 15:05:16>­D(5    3MPTO 191500Z 24004KT 9999 SCT016 BKN090 29/25 Q1012 NOSIGMPTO2018-10-19T15:00:00Z9.05-79.3729.025.024046.2129.88189TRUEVFRMETAR45.02018-10-19 15:05:16 =3=1­L(e5   3SBLO 191500Z 11008KT 9999 SCT030 27/19 Q1015SBLO2018-10-19T15:00:00Z-23.32-51.1227.019.011086.2129.970472VFRMETAR570.02018-10-19 15:05:16A­K)5   3NIUE 191500Z 13012KT 9999 SCT018 SCT030 BKN100 22/17 Q1015NIUE2018-10-19T15:00:00Z-19.07-169.9222.017.0130126.2129.970472VFRMETAR20.02018-10-19 15:05:16@­J(5    3GVSV 191500Z 06025KT 9999 FEW024 BKN100 29/20 Q1011 NOSIGGVSV2018-10-19T15:00:00Z16.83-25.0729.020.060256.2129.852362TRUEVFRMETAR20.02018-10-19 15:05:16,­I(Y5   3SCVM 191500Z 32010KT CAVOK 16/10 Q1019SCVM2018-10-19T15:00:00Z-32.95-71.4816.010.0320106.2130.088583VFRMETAR141.02018-10-19 15:05:16G­H)5     3OJAI 191500Z 30011KT 5000 HZ SCT035 SCT100 25/13 Q1015 NOSIGOJAI2018-10-19T15:00:00Z31.7236.025.013.0300113.1129.970472TRUEHZMVFRMETAR730.02018-10-19 15:05:16 47{4I­Q)5    3SPJC 191500Z 27005KT 230V320 9999 OVC022 19/15 Q1016 NOSIG RMK PP000SPJC2018-10-19T15:00:00Z-12.02-77.1219.015.027056.2130.0TRUEMVFRMETAR13.02018-10-19 15:05:16>­P(y5    3KCVW 191500Z AUTO 07008KT 10SM CLR 22/18 A3016 RMK A01KCVW2018-10-19T15:00:00Z29.78-93.322.018.070810.030.159449TRUETRUEVFRMETAR1.02018-10-19 15:05:16.­O(e5   3FQVL 191500Z 12009KT 9999 FEW020 25/16 Q1015FQVL2018-10-19T15:00:00Z-22.035.3225.016.012096.2129.970472VFRMETAR21.02018-10-19 15:05:166­N(s5   3FIMR 191500Z 06006KT 9999 BKN017 SCT050 24/22 Q1017FIMR2018-10-19T15:00:00Z-19.7563.3724.022.06066.2130.029528MVFRMETAR31.02018-10-19 15:05:16C­M)5   3SKBQ 191500Z VRB02KT 9999 FEW010CB BKN012 27/25 A2991 RMK CB SW/WSKBQ2018-10-19T15:00:00Z10.9-74.7727.025.0026.2129.911417MVFRMETAR10.02018-10-19 15:05:16 ECE<­V)5   3SKCL 191500Z VRB05KT 9000 SCT020 BKN250 27/20 A3006 RMK HZSKCL2018-10-19T15:00:00Z3.53-76.3727.020.0055.5930.059055VFRMETAR969.02018-10-19 15:05:165­U(s5   3SKCG 191500Z 12005KT 9999 SCT015 SCT200 30/27 A2988SKCG2018-10-19T15:00:00Z10.43-75.5230.027.012056.2129.878937VFRMETAR1.02018-10-19 15:05:16@­T(}5    3SKCC 191500Z 12004KT 8000 VCFG SCT015 SCT080 27/23 A2999SKCC2018-10-19T15:00:00Z7.92-72.5227.023.012044.9729.991142VCFGMVFRMETAR317.02018-10-19 15:05:165­S(s5   3SKLT 191500Z 10003KT 9999 FEW015 BKN100 28/25 A2982SKLT2018-10-19T15:00:00Z-4.2-69.9328.025.010036.2129.819881VFRMETAR84.02018-10-19 15:05:167­R(s5   3SKRG 191500Z 03004KT 9999 BKN017 SCT080 18/15 A3034SKRG2018-10-19T15:00:00Z6.17-75.4218.015.03046.2130.339567MVFRMETAR2137.02018-10-19 15:05:16 .Ew.6­[(s5   3SBVT 191500Z 16009KT 9999 SCT040 BKN070 30/23 Q1009SBVT2018-10-19T15:00:00Z-20.27-40.2730.023.016096.2129.793306VFRMETAR4.02018-10-19 15:05:167­Z(s5   3SBCR 191500Z 20003KT 9999 FEW025 BKN100 29/23 Q1011SBCR2018-10-19T15:00:00Z-19.0-57.6729.023.020036.2129.852362VFRMETAR141.02018-10-19 15:05:16J­Y)5    3LEMO 191500Z 09011KT 060V120 9999 FEW040TCU BKN054 21/09 Q1010 NOSIGLEMO2018-10-19T15:00:00Z37.17-5.6221.09.090116.2129.822834TRUEVFRMETAR88.02018-10-19 15:05:16H­X)5    3TNCM 191500Z 08010KT 050V120 9999 SCT019 30/22 Q1014 A2996 NOSIG TNCM2018-10-19T15:00:00Z18.05-63.1230.022.080106.2129.940945TRUEVFRMETAR4.02018-10-19 15:05:165­W(s5   3SKBO 191500Z 09004KT 9999 SCT020 BKN200 18/10 A3037SKBO2018-10-19T15:00:00Z4.7-74.1218.010.09046.2130.369095VFRMETAR2548.02018-10-19 15:05:16 :P:6­`(q5    3WAMM 191500Z 00000KT 9000 SCT021 24/24 Q1013 NOSIGWAMM2018-10-19T15:00:00Z1.55124.9224.024.0005.5929.911417TRUEVFRMETAR80.02018-10-19 15:05:16h­_)+5    3KNEL 191500Z AUTO 26012KT 10SM CLR 14/01 A3029 RMK AO2 SLP255 T01390011 58007 $KNEL2018-10-19T15:00:00Z40.02-74.3313.91.12601210.030.289371025.5TRUETRUETRUEVFR-0.7METAR31.02018-10-19 15:05:162­^(e5   3SBPK 191500Z 15011KT 9999 BKN030 23/13 Q1022SBPK2018-10-19T15:00:00Z-31.72-52.3323.013.0150116.2130.177166MVFRMETAR13.02018-10-19 15:05:16.­](e5   3SBCJ 191500Z 04004KT 9999 SCT015 27/21 Q1014SBCJ2018-10-19T15:00:00Z-6.12-50.027.021.04046.2129.940945VFRMETAR621.02018-10-19 15:05:16*­\(Y5   3SBCZ 191500Z 27003KT CAVOK 31/25 Q1010SBCZ2018-10-19T15:00:00Z-7.62-72.7731.025.027036.2129.822834VFRMETAR170.02018-10-19 15:05:16 5I5?­e)5   3SKBG 191500Z 17008KT 9999 FEW007 BKN070 22/19 A3005 WS R17SKBG2018-10-19T15:00:00Z7.13-73.1822.019.017086.2130.050198VFRMETAR1189.02018-10-19 15:05:167­d(s5   3SKPE 191500Z 26004KT 9999 SCT016 SCT200 23/19 A3013SKPE2018-10-19T15:00:00Z4.82-75.7323.019.026046.2130.129921VFRMETAR1346.02018-10-19 15:05:16B­c)5   3SBSP 191500Z 20012KT 9999 FEW009 SCT011 OVC012 20/16 Q1018SBSP2018-10-19T15:00:00Z-23.62-46.6320.016.0200126.2130.059055MVFRMETAR803.02018-10-19 15:05:16D­b)5    3SBEG 191500Z 21005KT 3000 RA FU SCT020 FEW025TCU 30/24 Q1010SBEG2018-10-19T15:00:00Z-3.02-60.0330.024.021051.8629.822834RA FUIFRMETAR2.02018-10-19 15:05:161­a(e5   3SBRP 191500Z 04004KT 9999 BKN030 27/20 Q1013SBRP2018-10-19T15:00:00Z-21.12-47.7727.020.04046.2129.911417MVFRMETAR549.02018-10-19 15:05:16 5D55­j(o5    3SVSA 191500Z /////KT 8000 VCFG BKN020 25/23 Q1015SVSA2018-10-19T15:00:00Z7.83-72.4525.023.04.9729.970472VCFGMVFRMETAR378.02018-10-19 15:05:16;­i(y5   3SBMA 191500Z 29003KT 9999 BKN022 FEW023TCU 33/25 Q1010SBMA2018-10-19T15:00:00Z-5.37-49.1333.025.029036.2129.822834MVFRMETAR102.02018-10-19 15:05:16U­h)+5    3UBBN 191500Z 01004KT 9999 FEW100 16/01 Q1018 R14R/CLRD// NOSIG RMK MT OP QFE688UBBN2018-10-19T15:00:00Z39.1845.4516.01.01046.2130.059055TRUEVFRMETAR873.02018-10-19 15:05:162­g(e5    3OKBK 191500Z 15004KT CAVOK 30/20 Q1013 NOSIGOKBK2018-10-19T15:00:00Z29.2247.9730.020.015046.2129.911417TRUEVFRMETAR55.02018-10-19 15:05:166­f(u5   3SKSP 191500Z 05009KT 020V120 9999 FEW018 30/26 A2992SKSP2018-10-19T15:00:00Z12.57-81.7230.026.05096.2129.920275VFRMETAR-2.02018-10-19 15:05:16 }N2}/­o(e5   3TQPF 191500Z 07010KT 9999 SCT021 30/21 Q1015TQPF2018-10-19T15:00:00Z18.18-63.0330.021.070106.2129.970472VFRMETAR31.02018-10-19 15:05:16.­n(e5   3TKPK 191500Z 04012KT 9999 SCT020 29/23 Q1014TKPK2018-10-19T15:00:00Z17.3-62.7229.023.040126.2129.940945VFRMETAR48.02018-10-19 15:05:161­m(e5   3SVBM 191500Z 27008KT 9000 OVC013 24/21 Q1015SVBM2018-10-19T15:00:00Z10.05-69.3724.021.027085.5929.970472MVFRMETAR614.02018-10-19 15:05:16+­l(e5   3SVBC 191500Z /////KT 9999 BKN013 25/23 Q1013SVBC2018-10-19T15:00:00Z10.12-64.6725.023.06.2129.911417MVFRMETAR7.02018-10-19 15:05:16,­k(e5   3SVMD 191500Z /////KT 9999 BKN027 26/22 Q1020SVMD2018-10-19T15:00:00Z8.58-71.1726.022.06.2130.11811MVFRMETAR1498.02018-10-19 15:05:16 fG(f<­t(5    3MDJB 191500Z 01012KT 9999 BKN018 SCT080 30/23 Q1016 NOSIGMDJB2018-10-19T15:00:00Z18.57-69.9830.023.010126.2130.0TRUEMVFRMETAR30.02018-10-19 15:05:163­s(q5    3MDSD 191500Z 07009KT 9999 SCT020 30/25 Q1016 NOSIGMDSD2018-10-19T15:00:00Z18.42-69.6730.025.07096.2130.0TRUEVFRMETAR18.02018-10-19 15:05:162­r(o5    3MDLR 191500Z 09004KT 7000 VCSH BKN018 28/27 Q1016MDLR2018-10-19T15:00:00Z18.45-68.9228.027.09044.3530.0VCSHMVFRMETAR8.02018-10-19 15:05:16(­q(e5   3MDCY 191500Z 00000KT 9999 SCT020 28/24 Q1016MDCY2018-10-19T15:00:00Z19.27-69.7328.024.0006.2130.0VFRMETAR10.02018-10-19 15:05:163­p(o5   3MDAB 191500Z 02004KT 9999 BKN018 27/24 Q1015 RERAMDAB2018-10-19T15:00:00Z19.2-69.4327.024.02046.2129.970472MVFRMETAR35.02018-10-19 15:05:16 uQ8u=­y(5    3MRLB 191500Z VRB02KT 9999 FEW015 SCT140 28/23 A2990 NOSIGMRLB2018-10-19T15:00:00Z10.6-85.5528.023.0026.2129.899607TRUEVFRMETAR82.02018-10-19 15:05:16'­x(e5   3MDPP 191500Z 00000KT 9999 SCT022 25/26 Q1016MDPP2018-10-19T15:00:00Z19.75-70.5725.026.0006.2130.0VFRMETAR5.02018-10-19 15:05:165­w(s5   3MDST 191500Z 08004KT 9999 BKN019 BKN080 26/25 Q1017MDST2018-10-19T15:00:00Z19.4-70.626.025.08046.2130.029528MVFRMETAR184.02018-10-19 15:05:16+­v(e5   3MDPC 191500Z 06010KT 9999 BKN022 30/24 Q1016MDPC2018-10-19T15:00:00Z18.57-68.3730.024.060106.2130.0MVFRMETAR12.02018-10-19 15:05:16)­u(e5   3MDBH 191500Z 13005KT 9999 FEW025 31/23 Q1016MDBH2018-10-19T15:00:00Z18.25-71.1231.023.013056.2130.0VFRMETAR3.02018-10-19 15:05:16 >pL­~)5   3MTCH 191500Z 07010KT 9999 SCT024CB BKN060 28/20 Q1017 A3005 RMK/CB/ALLQDSMTCH2018-10-19T15:00:00Z19.75-72.1828.020.070106.2130.029528VFRMETAR2.02018-10-19 15:05:166­}(s5   3GBYD 191500Z 22007KT 9999 SCT013 SCT120 32/25 Q1008GBYD2018-10-19T15:00:00Z13.33-16.6532.025.022076.2129.763779VFRMETAR36.02018-10-19 15:05:16>­|({5     3OPST 191500Z 00000KT 4000 FU NSC 23/12 Q1014 NOSIG RH51OPST2018-10-19T15:00:00Z32.5374.3723.012.0002.4929.940945TRUEFUIFRMETAR247.02018-10-19 15:05:16H­{) 5    3NFFN 191500Z 11003KT 9999 SCT026 SCT048 BKN110 24/22 Q1012 NOSIGNFFN2018-10-19T15:00:00Z-17.75177.4524.022.011036.2129.88189TRUEVFRMETAR18.02018-10-19 15:05:16<­z(y5    3SBCB 191500Z 27020KT 3500 BR BKN012 BKN050 25/22 Q1010SBCB2018-10-19T15:00:00Z-22.92-42.0825.022.0270202.1729.822834BRIFRMETAR4.02018-10-19 15:05:16 <I<9®(s5   3NFTV 191500Z 15011KT 9999 SCT017 BKN040 24/18 Q1014NFTV2018-10-19T15:00:00Z-18.58-173.9724.018.0150116.2129.940945VFRMETAR71.02018-10-19 15:05:16T®)-5    3OPMT 191500Z 00000KT 4000 HZ BKN120 28/15 Q1013 TEMPO 36025KT 2000 TSRA FEW030CBOPMT2018-10-19T15:00:00Z30.1871.4228.015.0002.4929.911417HZIFRMETAR123.02018-10-19 15:05:163®(k5    3VABO 191500Z 00000KT 6000 NSC 30/21 Q1012 NOSIGVABO2018-10-19T15:00:00Z22.3373.2230.021.0003.7329.88189TRUEMVFRMETAR39.02018-10-19 15:05:165®(s5   3SBPV 191500Z 36003KT 9999 FEW030 BKN100 30/24 Q1011SBPV2018-10-19T15:00:00Z-8.72-63.930.024.036036.2129.852362VFRMETAR88.02018-10-19 15:05:161­(o5   3MPPA 191500Z 22005KT 9999 FEW016 28/25 Q1012 REDZMPPA2018-10-19T15:00:00Z8.92-79.628.025.022056.2129.88189VFRMETAR13.02018-10-19 15:05:16 %VE®)5    3FMMI 191500Z 27007KT 240V300 9999 FEW020CB 24/10 Q1018 NOSIGFMMI2018-10-19T15:00:00Z-18.847.4724.010.027076.2130.059055TRUEVFRMETAR1276.02018-10-19 15:05:169®(q5    3MRPV 191500Z 12007KT 9999 FEW040 24/16 A3008 NOSIGMRPV2018-10-19T15:00:00Z9.95-84.1524.016.012076.2130.079725TRUEVFRMETAR994.02018-10-19 15:05:16I®)5    3VOML 191500Z 07004KT 6000 FEW012 FEW025CB BKN080 27/24 Q1012 NOSIGVOML2018-10-19T15:00:00Z12.9774.8827.024.07043.7329.88189TRUEMVFRMETAR103.02018-10-19 15:05:16U®)+5    3SOCA 191500Z AUTO 11007KT 050V190 9999 BKN038 BKN048 33/22 Q1009 TEMPO FEW010CBSOCA2018-10-19T15:00:00Z4.82-52.3733.022.011076.2129.793306TRUEVFRMETAR9.02018-10-19 15:05:16 D8® (q5    3OEJN 191500Z 27008KT 9999 FEW040 31/23 Q1010 NOSIGOEJN2018-10-19T15:00:00Z21.6839.1531.023.027086.2129.822834TRUEVFRMETAR15.02018-10-19 15:05:167® (q5    3OEDR 191500Z 28006KT 9999 SCT040 27/16 Q1012 NOSIGOEDR2018-10-19T15:00:00Z26.2750.1727.016.028066.2129.88189TRUEVFRMETAR17.02018-10-19 15:05:167® (q5    3OEDF 191500Z 26003KT 9999 BKN040 27/15 Q1013 NOSIGOEDF2018-10-19T15:00:00Z26.4749.827.015.026036.2129.911417TRUEVFRMETAR22.02018-10-19 15:05:16y®)g5     3MZBZ 191500Z 06012KT 9999 -SHRA FEW010 BKN016 30/27 A2998 Q1015 NOSIG RMK CB TOP-NE/SE DIST SHWRS-NE/SE/SW/NWMZBZ2018-10-19T15:00:00Z17.52-88.330.027.060126.2129.970472TRUE-SHRAMVFRMETAR5.02018-10-19 15:05:16 ]B]/®(e5   3SBAR 191500Z 07015KT 9999 FEW019 28/21 Q1011SBAR2018-10-19T15:00:00Z-10.97-37.0728.021.070156.2129.852362VFRMETAR9.02018-10-19 15:05:166®(s5   3ORSU 191500Z 29008KT 6000 SCT045 BKN080 22/10 Q1020ORSU2018-10-19T15:00:00Z35.5745.3222.010.029083.7330.11811MVFRMETAR761.02018-10-19 15:05:161®(k5    3AGGH 191500Z 00000KT 9999 HZ FEW013 25/24 Q1009AGGH2018-10-19T15:00:00Z-9.42160.0525.024.0006.2129.793306HZVFRMETAR9.02018-10-19 15:05:167® (q5    3OEMA 191500Z 10008KT 9999 SCT045 33/06 Q1014 NOSIGOEMA2018-10-19T15:00:00Z24.5539.733.06.010086.2129.940945TRUEVFRMETAR631.02018-10-19 15:05:168® (q5    3OERK 191500Z 13002KT 9999 SCT040 30/09 Q1015 NOSIGOERK2018-10-19T15:00:00Z24.9546.7230.09.013026.2129.970472TRUEVFRMETAR612.02018-10-19 15:05:16 O6O0®(e5   3SBPL 191500Z 04012KT 9999 SCT035 33/19 Q1011SBPL2018-10-19T15:00:00Z-9.37-40.5733.019.040126.2129.852362VFRMETAR375.02018-10-19 15:05:168®(q5    3TAPA 191500Z 08009KT 9999 SCT019 29/23 Q1013 NOSIGTAPA2018-10-19T15:00:00Z17.12-61.7829.023.08096.2129.911417TRUEVFRMETAR14.02018-10-19 15:05:16?®(y5    3KTGI 191500Z AUTO 22005KT 10SM CLR 16/06 A3036 RMK AO1KTGI2018-10-19T15:00:00Z37.82-75.9816.06.0220510.030.360237TRUETRUEVFRMETAR2.02018-10-19 15:05:16(®(k5    3MPBO 191500Z 28005KT 9999 SCT018TCU ///// Q1015MPBO2018-10-19T15:00:00Z9.35-82.2528056.2129.970472VFRMETAR3.02018-10-19 15:05:16D®)5   3SBCF 191500Z 25007KT 9999 BKN030 FEW035TCU BKN080 28/16 Q1014SBCF2018-10-19T15:00:00Z-19.63-43.9728.016.025076.2129.940945MVFRMETAR828.02018-10-19 15:05:16 F5F.®(i5   3LDRI 191500Z 05008KT 010V090 CAVOK 23/08 Q1017LDRI2018-10-19T15:00:00Z45.2214.5723.08.05086.2130.029528VFRMETAR85.02018-10-19 15:05:16@®)5    3LDZA 191500Z 05007KT 020V080 9999 FEW040 19/10 Q1020 NOSIGLDZA2018-10-19T15:00:00Z45.7216.0719.010.05076.2130.11811TRUEVFRMETAR107.02018-10-19 15:05:169®(u5    3LDZD 191500Z 30007KT 280V340 CAVOK 23/10 Q1017 NOSIGLDZD2018-10-19T15:00:00Z44.115.3723.010.030076.2130.029528TRUEVFRMETAR84.02018-10-19 15:05:160®(u5   3LDSP 191500Z 22006KT CAVOK 23/15 Q1016 BECMG 30006KTLDSP2018-10-19T15:00:00Z43.5216.323.015.022066.2130.0VFRMETAR21.02018-10-19 15:05:16E®)5     3LHBP 191500Z VRB03KT 9999 -RA FEW046 BKN086 16/13 Q1020 NOSIGLHBP2018-10-19T15:00:00Z47.4219.2716.013.0036.2130.11811TRUE-RAVFRMETAR185.02018-10-19 15:05:16 [H[:®(o5    3YCBP 191500Z AUTO 19019KT 9999 // NCD 16/05 Q1018YCBP2018-10-19T15:00:00Z-29.03134.7216.05.0190196.2130.059055TRUEVFRMETAR226.02018-10-19 15:05:166®(w5   3YCCY 191500Z AUTO 24006KT //// // ////// 21/M03 Q1011YCCY2018-10-19T15:00:00Z-20.67140.521.0-3.0240629.852362TRUEMETAR570.02018-10-19 15:05:16.®(e5    3LDDU 191500Z 29008KT CAVOK 20/16 Q1016 NOSIGLDDU2018-10-19T15:00:00Z42.5718.2720.016.029086.2130.0TRUEVFRMETAR165.02018-10-19 15:05:167®(m5    3LDOS 191500Z 34015KT 8000 -RA SCT033 15/13 Q1019LDOS2018-10-19T15:00:00Z45.4718.8215.013.0340154.9730.088583-RAMVFRMETAR89.02018-10-19 15:05:162®(e5    3LDPL 191500Z 29006KT CAVOK 21/16 Q1017 NOSIGLDPL2018-10-19T15:00:00Z44.8813.9221.016.029066.2130.029528TRUEVFRMETAR63.02018-10-19 15:05:16 RA R4®$(u5   3YBWX 191500Z AUTO 25012KT //// // ////// 22/18 Q1014YBWX2018-10-19T15:00:00Z-20.88115.422.018.02501229.940945TRUEMETAR6.02018-10-19 15:05:169®#(o5    3YCAR 191500Z AUTO 17017KT 9999 // NCD 19/13 Q1019YCAR2018-10-19T15:00:00Z-24.88113.6719.013.0170176.2130.088583TRUEVFRMETAR8.02018-10-19 15:05:163®"(u5   3YCAS 191500Z AUTO 00000KT //// // ////// 16/15 Q1018YCAS2018-10-19T15:00:00Z-28.88153.0716.015.00030.059055TRUEMETAR26.02018-10-19 15:05:167®!(o5    3YCBA 191500Z AUTO 06006KT 9999 // NCD 23/08 Q1010YCBA2018-10-19T15:00:00Z-31.53145.823.08.06066.2129.822834TRUEVFRMETAR221.02018-10-19 15:05:169® (u5    3YCBB 191500Z AUTO 36010KT 9999 // SCT082 20/13 Q1016YCBB2018-10-19T15:00:00Z-31.33149.2720.013.0360106.2130.0TRUEVFRMETAR645.02018-10-19 15:05:16 C?®((5    3VHHH 191500Z 09013KT 9999 FEW022 SCT032 25/20 Q1019 NOSIGVHHH2018-10-19T15:00:00Z22.32113.9225.020.090136.2130.088583TRUEVFRMETAR9.02018-10-19 15:05:16I®')5    3YBTL 191500Z AUTO 07009KT 9999 // SCT021 SCT027 BKN046 25/21 Q1015YBTL2018-10-19T15:00:00Z-19.25146.7525.021.07096.2129.970472TRUEVFRMETAR6.02018-10-19 15:05:168®&(o5    3YBUD 191500Z AUTO 19006KT 9999 // NCD 18/17 Q1017YBUD2018-10-19T15:00:00Z-24.9152.3218.017.019066.2130.029528TRUEVFRMETAR82.02018-10-19 15:05:167®%(o5    3YBWP 191500Z AUTO 07009KT 9999 // NCD 26/19 Q1012YBWP2018-10-19T15:00:00Z-12.68141.9226.019.07096.2129.88189TRUEVFRMETAR12.02018-10-19 15:05:16 2j24®-(q5   3OMRK 191500Z 33004KT 9999 SCT040 30/19 Q1013 A2992OMRK2018-10-19T15:00:00Z25.6255.9230.019.033046.2129.911417VFRMETAR31.02018-10-19 15:05:164®,(s5   3NGTA 191500Z 10007KT 9999 FEW020 SCT300 28/24 Q1008NGTA2018-10-19T15:00:00Z1.37173.1328.024.010076.2129.763779VFRMETAR2.02018-10-19 15:05:16>®+)5   3LRCT 191500Z 32011KT 9999 BKN080 BKN150 18/08 Q1018 BLU BLULRCT2018-10-19T15:00:00Z46.523.8818.08.0320116.2130.059055VFRMETAR331.02018-10-19 15:05:16(®*(Y5   3SBPB 191500Z 08020KT CAVOK 33/18 Q1008SBPB2018-10-19T15:00:00Z-2.92-41.7533.018.080206.2129.763779VFRMETAR5.02018-10-19 15:05:16b®))A5    3TFFR 191500Z AUTO 08011KT 050V110 9999 FEW033 SCT039 29/22 Q1013 TEMPO 3000 SHRA SCT015TCUTFFR2018-10-19T15:00:00Z16.27-61.5329.022.080116.2129.911417TRUEVFRMETAR11.02018-10-19 15:05:16 6>6>®2({5    3SBBR 191500Z 00000KT 9999 -RA BKN006 BKN080 20/18 Q1018SBBR2018-10-19T15:00:00Z-15.87-47.9220.018.0006.2130.059055-RAIFRMETAR1061.02018-10-19 15:05:16<®1(q5    3FWCL 191500Z 14010KT 9999 BKN030 29/18 Q1015 NOSIGFWCL2018-10-19T15:00:00Z-15.6734.9729.018.0140106.2129.970472TRUEMVFRMETAR767.02018-10-19 15:05:16@®0)5    3FSIA 191500Z 23003KT 200V270 9999 FEW025 28/22 Q1011 NOSIGFSIA2018-10-19T15:00:00Z-4.6755.5228.022.023036.2129.852362TRUEVFRMETAR3.02018-10-19 15:05:166®/(u5   3MYNN 191500Z 08010KT 050V110 9999 SCT020 30/22 A3016MYNN2018-10-19T15:00:00Z25.03-77.4730.022.080106.2130.159449VFRMETAR3.02018-10-19 15:05:16<®.(u5    3GOBD 191500Z 34010KT 310V020 CAVOK 32/22 Q1008 NOSIGGOBD2018-10-19T15:00:00Z14.67-17.0732.022.0340106.2129.763779TRUEVFRMETAR88.02018-10-19 15:05:16 OUO;®7({5    3UTAT 191500Z 05006KT CAVOK 13/05 Q1026 R08/CLRD70 NOSIGUTAT2018-10-19T15:00:00Z41.7759.8313.05.05066.2130.295275TRUEVFRMETAR83.02018-10-19 15:05:167®6(w5   3MKJP 191500Z 20006KT 9999 FEW020 FEW022CB 30/24 Q1015MKJP2018-10-19T15:00:00Z17.92-76.7830.024.020066.2129.970472VFRMETAR3.02018-10-19 15:05:162®5(e5    3HSSS 191500Z 30005KT CAVOK 38/04 Q1008 NOSIGHSSS2018-10-19T15:00:00Z15.5832.5338.04.030056.2129.763779TRUEVFRMETAR380.02018-10-19 15:05:16J®4)5   3GLRB 191500Z 22008KT 9999 BKN018 FEW027CB 30/25 Q1008 RMK CB-NE/E/S/SWGLRB2018-10-19T15:00:00Z6.25-10.3330.025.022086.2129.763779MVFRMETAR18.02018-10-19 15:05:16%®3(Y5   3SAWH 191500Z 00000KT CAVOK 05/01 Q1025SAWH2018-10-19T15:00:00Z-54.85-68.35.01.0006.2130.265747VFRMETAR14.02018-10-19 15:05:16 CGC6®<(q5    3TNCA 191500Z 06016KT 9999 SCT020 30/24 Q1012 NOSIGTNCA2018-10-19T15:00:00Z12.5-70.030.024.060166.2129.88189TRUEVFRMETAR18.02018-10-19 15:05:169®;(y5   3SPLO 191500Z 15007KT 9999 OVC030 19/15 Q1015 RMK PP000SPLO2018-10-19T15:00:00Z-17.7-71.3519.015.015076.2129.970472MVFRMETAR9.02018-10-19 15:05:16A®:)5    3UTAA 191500Z 11004KT 9999 NSC 17/03 Q1023 R88/CLRD70 NOSIGUTAA2018-10-19T15:00:00Z37.9858.3717.03.011046.2130.206694TRUEVFRMETAR210.02018-10-19 15:05:16<®9(}5    3UTAK 191500Z 32004KT CAVOK 13/01 Q1023 R16R/CLRD70 NOSIGUTAK2018-10-19T15:00:00Z40.0553.013.01.032046.2130.206694TRUEVFRMETAR85.02018-10-19 15:05:163®8(k5    3UTAM 191500Z 00000KT 6000 NSC 14/05 Q1025 NOSIGUTAM2018-10-19T15:00:00Z37.6261.914.05.0003.7330.265747TRUEMVFRMETAR222.02018-10-19 15:05:16 ZJwZ0®A(g5   3TRPG 191500Z 609010KT 9999 SCT021 27/23 Q1014TRPG2018-10-19T15:00:00Z16.78-62.227.023.090106.2129.940945VFRMETAR168.02018-10-19 15:05:16+®@(Y5   3SBFI 191500Z 12011KT CAVOK 26/19 Q1015SBFI2018-10-19T15:00:00Z-25.6-54.4826.019.0120116.2129.970472VFRMETAR243.02018-10-19 15:05:160®?(e5   3SADF 191500Z 11013KT 9999 FEW030 18/10 Q1026SADF2018-10-19T15:00:00Z-34.45-58.5818.010.0110136.2130.295275VFRMETAR4.02018-10-19 15:05:16M®>)5    3TGPY 191500Z 10015KT 5000 -SHRA SCT015 SCT035 26/24 Q1011 TEMPO SHRATGPY2018-10-19T15:00:00Z12.0-61.7826.024.0100153.1129.852362-SHRAMVFRMETAR7.02018-10-19 15:05:160®=(c5    3NTAA 191500Z AUTO VRB02KT CAVOK 24/19 Q1012NTAA2018-10-19T15:00:00Z-17.55-149.6224.019.0026.2129.88189TRUEVFRMETAR2.02018-10-19 15:05:16 QAQ8®F(o5    3YMEN 191500Z AUTO 36011KT 9999 // NCD 23/06 Q1005YMEN2018-10-19T15:00:00Z-37.72144.923.06.0360116.2129.675198TRUEVFRMETAR86.02018-10-19 15:05:16+®E(Y5   3YMML 191500Z 36013KT CAVOK 21/05 Q1006YMML2018-10-19T15:00:00Z-37.67144.8221.05.0360136.2129.704725VFRMETAR141.02018-10-19 15:05:169®D(o5    3YMOR 191500Z AUTO 04011KT 9999 // NCD 21/15 Q1015YMOR2018-10-19T15:00:00Z-29.5149.8521.015.040116.2129.970472TRUEVFRMETAR214.02018-10-19 15:05:16<®C)5   3WSSL 191500Z VRB02KT 9999 FEW018 FEW020CB BKN300 27/23 Q1012WSSL2018-10-19T15:00:00Z1.42103.8727.023.0026.2129.88189VFRMETAR14.02018-10-19 15:05:169®B(o5     3FMCZ 191500Z AUTO 01007KT CAVOK 27/22 Q1013 NOSIGFMCZ2018-10-19T15:00:00Z-12.845.2727.022.01076.2129.911417TRUETRUEVFRMETAR7.02018-10-19 15:05:16 fCf3®K(s5   3SBGO 191500Z 34007KT 9999 FEW025 BKN100 24/21 Q1016SBGO2018-10-19T15:00:00Z-16.62-49.2224.021.034076.2130.0VFRMETAR747.02018-10-19 15:05:16)®J(Y5   3FDSK 191500Z 04007KT CAVOK 28/13 Q1013FDSK2018-10-19T15:00:00Z-26.3531.7228.013.04076.2129.911417VFRMETAR324.02018-10-19 15:05:167®I(s5   3FQCH 191500Z 13004KT 9999 BKN008 OVC015 21/20 Q1019FQCH2018-10-19T15:00:00Z-19.1533.4321.020.013046.2130.088583IFRMETAR732.02018-10-19 15:05:162®H(e5    3LQBK 191500Z 35005KT CAVOK 19/12 Q1019 NOSIGLQBK2018-10-19T15:00:00Z44.9317.319.012.035056.2130.088583TRUEVFRMETAR122.02018-10-19 15:05:167®G(w5   3FYGF 191500Z 08006KT 9999 FEW035CB SCT040 35/08 Q1015FYGF2018-10-19T15:00:00Z-19.618.1235.08.08066.2129.970472VFRMETAR1400.02018-10-19 15:05:16 *'`*;®P(y5    3OPPS 191500Z 13004KT 4000 HZ FEW040 FEW100 21/10 Q1015OPPS2018-10-19T15:00:00Z34.0271.5221.010.013042.4929.970472HZIFRMETAR360.02018-10-19 15:05:169®O(s5   3SBGR 191500Z 19007KT 9999 BKN020 OVC030 21/18 Q1017SBGR2018-10-19T15:00:00Z-23.42-46.4721.018.019076.2130.029528MVFRMETAR750.02018-10-19 15:05:160®N(e5   3SBFN 191500Z 12020KT 9999 FEW019 32/22 Q1011SBFN2018-10-19T15:00:00Z-3.85-32.4232.022.0120206.2129.852362VFRMETAR56.02018-10-19 15:05:16A®M(5    3GVBA 191500Z 03014KT 9999 BKN014 BKN200 28/21 Q1011 NOSIGGVBA2018-10-19T15:00:00Z16.13-22.8828.021.030146.2129.852362TRUEMVFRMETAR22.02018-10-19 15:05:16S®L)%5    3UBBQ 191500Z 16003KT 9999 SCT050 17/10 Q1020 R16/CLRD// NOSIG RMK MT PT OBSCUBBQ2018-10-19T15:00:00Z40.8247.7217.010.016036.2130.11811TRUEVFRMETAR338.02018-10-19 15:05:16 (L(5®U(s5   3BIRK 191500Z 21016KT 9999 FEW020 BKN037 06/02 Q0997BIRK2018-10-19T15:00:00Z64.13-21.936.02.0210166.2129.438976VFRMETAR61.02018-10-19 15:05:16O®T)5    3EIDW 191500Z 24005KT 210V300 9999 FEW018 SCT024 BKN030 14/09 Q1025 NOSIGEIDW2018-10-19T15:00:00Z53.42-6.2514.09.024056.2130.265747TRUEMVFRMETAR85.02018-10-19 15:05:16N®S)5     3EINN 191500Z 22006KT 9999 -DZ FEW015 BKN021 BKN032 15/11 Q1025 NOSIGEINN2018-10-19T15:00:00Z52.7-8.9215.011.022066.2130.265747TRUE-DZMVFRMETAR20.02018-10-19 15:05:16:®R(q5    3EICK 191500Z 23006KT 9999 BKN013 13/10 Q1026 NOSIGEICK2018-10-19T15:00:00Z51.85-8.4713.010.023066.2130.295275TRUEMVFRMETAR162.02018-10-19 15:05:16.®Q(e5   3PLCH 191500Z 12003KT 9999 FEW020 27/23 Q1008PLCH2018-10-19T15:00:00Z1.98-157.3527.023.012036.2129.763779VFRMETAR3.02018-10-19 15:05:16 YDY?®Z)5   3OISY 191500Z 30004KT 9999 FEW035CB SCT045 BKN080 18/00 Q1024OISY2018-10-19T15:00:00Z30.751.5518.00.030046.2130.236221VFRMETAR1811.02018-10-19 15:05:161®Y(g5   3OITZ 191500Z 32004KT 9999 SCT035 16/M03 Q1023OITZ2018-10-19T15:00:00Z36.7748.3716.0-3.032046.2130.206694VFRMETAR1663.02018-10-19 15:05:16.®X(e5   3BIAR 191500Z 17014KT 9999 BKN045 09/03 Q0993BIAR2018-10-19T15:00:00Z65.67-18.079.03.0170146.2129.320866VFRMETAR27.02018-10-19 15:05:165®W(s5   3BIEG 191500Z 21013KT 9999 FEW050 SCT100 10/01 Q0996BIEG2018-10-19T15:00:00Z65.27-14.410.01.0210136.2129.409449VFRMETAR38.02018-10-19 15:05:166®V(w5   3BIKF 191500Z 22021KT 9999 FEW020CB BKN042 06/03 Q0996BIKF2018-10-19T15:00:00Z63.98-22.66.03.0220216.2129.409449VFRMETAR54.02018-10-19 15:05:16 {SF{E®_)5   3OICI 191500Z 04002KT 9999 FEW030CB SCT040 BKN090 15/10 Q1022 A3021OICI2018-10-19T15:00:00Z33.5846.415.010.04026.2130.177166VFRMETAR1343.02018-10-19 15:05:16*®^(_5   3OIKQ 191500Z 24006KT 8000 NSC 28/21 Q1012OIKQ2018-10-19T15:00:00Z26.7555.928.021.024064.9729.88189MVFRMETAR12.02018-10-19 15:05:16(®](Y5   3OINN 191500Z 19002KT CAVOK 18/14 Q1020OINN2018-10-19T15:00:00Z36.6751.4718.014.019026.2130.11811VFRMETAR-19.02018-10-19 15:05:16)®\(Y5   3OINR 191500Z 21002KT CAVOK 18/14 Q1019OINR2018-10-19T15:00:00Z36.8850.6718.014.021026.2130.088583VFRMETAR-20.02018-10-19 15:05:16'®[(Y5   3OISL 191500Z 00000KT CAVOK 27/13 Q1015OISL2018-10-19T15:00:00Z27.6754.3727.013.0006.2129.970472VFRMETAR805.02018-10-19 15:05:16 iV*i;®d(s5    3OIZH 191500Z 36006KT CAVOK 17/M02 Q1023 A3023 NOSIGOIZH2018-10-19T15:00:00Z29.4760.9217.0-2.036066.2130.206694TRUEVFRMETAR1370.02018-10-19 15:05:16.®c(e5   3LZPP 191500Z 33008KT 9999 FEW040 19/11 Q1020LZPP2018-10-19T15:00:00Z48.6217.8319.011.033086.2130.11811VFRMETAR161.02018-10-19 15:05:16>®b)5   3LZSL 191500Z 31008KT 9999 FEW055 FEW059CB SCT071 18/07 Q1020LZSL2018-10-19T15:00:00Z48.6319.1318.07.031086.2130.11811VFRMETAR313.02018-10-19 15:05:16.®a(e5   3LZZI 191500Z 04008KT 9999 BKN045 15/10 Q1021LZZI2018-10-19T15:00:00Z49.2318.6215.010.04086.2130.147638VFRMETAR311.02018-10-19 15:05:16$®`(Y5   3OIAM 191500Z 00000KT CAVOK 30/11 Q1012OIAM2018-10-19T15:00:00Z30.5549.1530.011.0006.2129.88189VFRMETAR4.02018-10-19 15:05:16 G;y G>®i(}5    3OIKB 191500Z 22006KT 9999 FEW035 30/20 Q1011 A2988 NOSIGOIKB2018-10-19T15:00:00Z27.2256.3730.020.022066.2129.852362TRUEVFRMETAR10.02018-10-19 15:05:162®h(g5   3OIKK 191500Z 36010KT CAVOK 17/M08 Q1024 A3026OIKK2018-10-19T15:00:00Z30.2556.9717.0-8.0360106.2130.236221VFRMETAR1754.02018-10-19 15:05:160®g(g5   3OIMM 191500Z 12008KT CAVOK 14/M01 Q1024 A3025OIMM2018-10-19T15:00:00Z36.2359.6214.0-1.012086.2130.236221VFRMETAR980.02018-10-19 15:05:16<®f(5   3OISS 191500Z 27004KT 9999 FEW040 SCT190 21/03 Q1021 A3016OISS2018-10-19T15:00:00Z29.5252.5721.03.027046.2130.147638VFRMETAR1491.02018-10-19 15:05:16?®e(}5    3OITT 191500Z 23004KT 9999 FEW040 18/01 Q1021 A3018 NOSIGOITT2018-10-19T15:00:00Z38.1346.2318.01.023046.2130.147638TRUEVFRMETAR1361.02018-10-19 15:05:16 <<w <I®n)5    3LKPR 191500Z 36006KT 310V030 9999 BKN017 BKN042 14/10 Q1023 NOSIGLKPR2018-10-19T15:00:00Z50.114.2714.010.036066.2130.206694TRUEMVFRMETAR365.02018-10-19 15:05:169®m(q5    3LKTB 191500Z 08008KT 8000 SCT048 16/11 Q1021 NOSIGLKTB2018-10-19T15:00:00Z49.1316.6816.011.08084.9730.147638TRUEMVFRMETAR246.02018-10-19 15:05:16'®l(Y5   3OIAW 191500Z 03002KT CAVOK 30/12 Q1011OIAW2018-10-19T15:00:00Z31.3248.7730.012.03026.2129.852362VFRMETAR22.02018-10-19 15:05:16?®k)5   3OIFM 191500Z 33006KT 9999 FEW035CB SCT040 20/02 Q1023 A3022OIFM2018-10-19T15:00:00Z32.7551.8720.02.033066.2130.206694VFRMETAR1542.02018-10-19 15:05:16>®j(}5    3OIII 191500Z 18004KT 9999 FEW045 20/01 Q1022 A3018 NOSIGOIII2018-10-19T15:00:00Z35.6851.320.01.018046.2130.177166TRUEVFRMETAR1191.02018-10-19 15:05:16 g=g-®s(e5   3LQMO 191500Z 34004KT 9999 FEW045 26/09 Q1013LQMO2018-10-19T15:00:00Z43.2817.8326.09.034046.2129.911417VFRMETAR48.02018-10-19 15:05:168®r(q5    3LQSA 191500Z 32005KT 9999 FEW045 19/09 Q1018 NOSIGLQSA2018-10-19T15:00:00Z43.8218.3219.09.032056.2130.059055TRUEVFRMETAR511.02018-10-19 15:05:16-®q(e5   3LQTZ 191500Z 03004KT 9999 FEW045 20/08 Q1018LQTZ2018-10-19T15:00:00Z44.4718.7320.08.03046.2130.059055VFRMETAR306.02018-10-19 15:05:16,®p(e5   3LKKV 191500Z VRB01KT 9999 BKN018 12/09 Q1023LKKV2018-10-19T15:00:00Z50.212.9212.09.0016.2130.206694MVFRMETAR604.02018-10-19 15:05:16=®o(w5     3LKMT 191500Z 04006KT 2200 BR OVC005 11/10 Q1023 NOSIGLKMT2018-10-19T15:00:00Z49.6718.1211.010.04061.3730.206694TRUEBRIFRMETAR256.02018-10-19 15:05:16 *"b*9®x(o5    3YMAV 191500Z AUTO 27018KT 9999 // NCD 19/12 Q1007YMAV2018-10-19T15:00:00Z-38.03144.4819.012.0270186.2129.734253TRUEVFRMETAR8.02018-10-19 15:05:169®w(o5    3YMAY 191500Z AUTO 06003KT 9999 // NCD 15/12 Q1010YMAY2018-10-19T15:00:00Z-36.07146.9315.012.06036.2129.822834TRUEVFRMETAR171.02018-10-19 15:05:164®v(o5    3YMDG 191500Z AUTO 09002KT 9999 // NCD 16/16 Q1016YMDG2018-10-19T15:00:00Z-32.57149.6216.016.09026.2130.0TRUEVFRMETAR471.02018-10-19 15:05:16:®u(q5    3YMEK 191500Z AUTO 12006KT 9999 // NCD 17/M04 Q1020YMEK2018-10-19T15:00:00Z-26.62118.5517.0-4.012066.2130.11811TRUEVFRMETAR522.02018-10-19 15:05:16X®t)/5    3EIKN 191500Z 20007KT 150V240 9000 -DZ BKN003 BKN011 13/13 Q1023 TEMPO 0300 BKN002EIKN2018-10-19T15:00:00Z53.92-8.8213.013.020075.5930.206694-DZLIFRMETAR64.02018-10-19 15:05:16 CB CB®}(}5    3SBCT 191500Z 10011KT 6000 VCSH BKN005 OVC014 18/17 Q1019SBCT2018-10-19T15:00:00Z-25.52-49.1718.017.0100113.7330.088583VCSHIFRMETAR908.02018-10-19 15:05:163®|(s5   3BIHN 191500Z 23020KT 9999 FEW018 FEW038 08/05 Q0999BIHN2018-10-19T15:00:00Z64.3-15.238.05.0230206.2129.498032VFRMETAR7.02018-10-19 15:05:16E®{)5    3UBBB 191500Z 14014KT 9999 SCT028 19/15 Q1021 R88/CLRD// NOSIGUBBB2018-10-19T15:00:00Z40.4550.0719.015.0140146.2130.147638TRUEVFRMETAR-6.02018-10-19 15:05:16-®z(e5   3MKJS 191500Z 09017KT 9999 SCT022 31/24 Q1015MKJS2018-10-19T15:00:00Z18.5-77.9231.024.090176.2129.970472VFRMETAR1.02018-10-19 15:05:168®y(o5    3YLRE 191500Z AUTO 04008KT 9999 // NCD 25/12 Q1012YLRE2018-10-19T15:00:00Z-23.43144.2825.012.04086.2129.88189TRUEVFRMETAR193.02018-10-19 15:05:16 $C$?¯(5    3GMTA 191500Z 04006KT 9999 BKN030 BKN080 22/19 Q1009 NOSIGGMTA2018-10-19T15:00:00Z35.17-3.8522.019.04066.2129.793306TRUEMVFRMETAR14.02018-10-19 15:05:16G¯)5    3GMTN 191500Z 09006KT 060V120 9999 SCT023 SCT100 19/12 Q1010 NOSIGGMTN2018-10-19T15:00:00Z35.57-5.3219.012.09066.2129.822834TRUEVFRMETAR10.02018-10-19 15:05:16H¯)5    3WSSS 191500Z 29004KT 260V350 9999 FEW018 BKN300 28/23 Q1013 NOSIGWSSS2018-10-19T15:00:00Z1.37103.9728.023.029046.2129.911417TRUEVFRMETAR16.02018-10-19 15:05:169®(u5   3SBKP 191500Z 19011KT 150V220 9999 BKN033 25/17 Q1015SBKP2018-10-19T15:00:00Z-23.0-47.1225.017.0190116.2129.970472VFRMETAR661.02018-10-19 15:05:167®~(y5    3OPRN 191500Z 05006KT CAVOK 23/11 Q1016 NOSIG RMK A3003OPRN2018-10-19T15:00:00Z33.6273.0823.011.05066.2130.0TRUEVFRMETAR508.02018-10-19 15:05:16 25i29¯(q5    3GMMD 191500Z 26011KT 9999 SCT030 21/10 Q1009 NOSIGGMMD2018-10-19T15:00:00Z32.4-6.3221.010.0260116.2129.793306TRUEVFRMETAR509.02018-10-19 15:05:162¯(e5    3GMMH 191500Z 01017KT CAVOK 23/15 Q1012 NOSIGGMMH2018-10-19T15:00:00Z23.72-15.9323.015.010176.2129.88189TRUEVFRMETAR11.02018-10-19 15:05:16:¯(q5    3GMML 191500Z 33014KT 9999 BKN030 24/15 Q1013 NOSIGGMML2018-10-19T15:00:00Z27.13-13.2324.015.0330146.2129.911417TRUEMVFRMETAR6.02018-10-19 15:05:16F¯)5     3GMMW 191500Z 09008KT 9999 -RA FEW020 SCT100 19/08 Q1011 NOSIGGMMW2018-10-19T15:00:00Z34.98-3.0219.08.09086.2129.852362TRUE-RAVFRMETAR175.02018-10-19 15:05:16E¯)5    3GMMZ 191500Z 11004KT 9999 SCT040 FEW050TCU 23/M01 Q1009 NOSIGGMMZ2018-10-19T15:00:00Z30.92-6.923.0-1.011046.2129.793306TRUEVFRMETAR1140.02018-10-19 15:05:16 3mK¯ )5    3GMTT 191500Z 14012KT 8000 BKN016 FEW020TCU SCT100 20/11 Q1009 NOSIGGMTT2018-10-19T15:00:00Z35.72-5.920.011.0140124.9729.793306TRUEMVFRMETAR21.02018-10-19 15:05:16:¯ (q5    3GMAG 191500Z 02014KT 9999 SCT016 23/11 Q1009 NOSIGGMAG2018-10-19T15:00:00Z29.03-10.0523.011.020146.2129.793306TRUEVFRMETAR333.02018-10-19 15:05:16<¯ (q5    3GMAT 191500Z 34012KT 9999 BKN013 22/15 Q1011 NOSIGGMAT2018-10-19T15:00:00Z28.43-11.1522.015.0340126.2129.852362TRUEMVFRMETAR200.02018-10-19 15:05:16@¯ )5    3GMFK 191500Z 05008KT 360V080 9999 FEW026 22/03 Q1010 NOSIGGMFK2018-10-19T15:00:00Z31.95-4.422.03.05086.2129.822834TRUEVFRMETAR1045.02018-10-19 15:05:16G¯)5    3GMFO 191500Z 06004KT 030V110 9999 FEW030 SCT040 18/10 Q1012 NOSIGGMFO2018-10-19T15:00:00Z34.77-1.9218.010.06046.2129.88189TRUEVFRMETAR470.02018-10-19 15:05:16 0dS¯)+5   3GMFF 191500Z 06005KT 330V100 9999 FEW016 BKN030 FEW040CB 16/12 Q1011 TEMPO SHRAGMFF2018-10-19T15:00:00Z33.92-4.9716.012.06056.2129.852362MVFRMETAR579.02018-10-19 15:05:16P¯)5    3GMME 191500Z 35004KT 300V020 8000 SCT013 BKN016 BKN100 18/12 Q1009 NOSIGGMME2018-10-19T15:00:00Z34.03-6.7718.012.035044.9729.793306TRUEMVFRMETAR75.02018-10-19 15:05:16F¯)5    3GMMN 191500Z 34014KT 9999 BKN016 SCT020TCU 19/15 Q1010 NOSIGGMMN2018-10-19T15:00:00Z33.37-7.5719.015.0340146.2129.822834TRUEMVFRMETAR206.02018-10-19 15:05:16J¯ )5    3GMMX 191500Z 26010KT 220V300 9999 SCT026 SCT093 23/10 Q1010 NOSIGGMMX2018-10-19T15:00:00Z31.62-8.0223.010.0260106.2129.822834TRUEVFRMETAR466.02018-10-19 15:05:16 c8c4¯(k5    3EPRA 191500Z 33008KT 3000 BR BKN008 10/10 Q1022EPRA2018-10-19T15:00:00Z51.3821.2210.010.033081.8630.177166BRIFRMETAR178.02018-10-19 15:05:16,¯(e5   3EPSC 191500Z 28006KT 9999 FEW017 12/09 Q1024EPSC2018-10-19T15:00:00Z53.5814.912.09.028066.2130.236221VFRMETAR47.02018-10-19 15:05:16.¯(e5   3EPSY 191500Z 34004KT 9999 FEW033 13/07 Q1022EPSY2018-10-19T15:00:00Z53.4720.9313.07.034046.2130.177166VFRMETAR141.02018-10-19 15:05:16/¯(e5   3EPWR 191500Z 31003KT 7000 OVC011 13/10 Q1024EPWR2018-10-19T15:00:00Z51.116.8713.010.031034.3530.236221MVFRMETAR121.02018-10-19 15:05:16B¯)5    3GMAD 191500Z 26011KT 220V280 9999 FEW016 23/14 Q1009 NOSIGGMAD2018-10-19T15:00:00Z30.32-9.4223.014.0260116.2129.793306TRUEVFRMETAR74.02018-10-19 15:05:16 cB#c:¯(q5    3EPWA 191500Z 32007KT 9999 BKN016 14/10 Q1022 NOSIGEPWA2018-10-19T15:00:00Z52.1720.9714.010.032076.2130.177166TRUEMVFRMETAR107.02018-10-19 15:05:16+¯(e5   3EPBY 191500Z 29003KT 9999 SCT040 14/06 Q1023EPBY2018-10-19T15:00:00Z53.118.014.06.029036.2130.206694VFRMETAR71.02018-10-19 15:05:16:¯(y5    3EPKT 191500Z 31004KT 2100 BR BKN003 OVC005 10/09 Q1023EPKT2018-10-19T15:00:00Z50.4719.0810.09.031041.330.206694BRLIFRMETAR284.02018-10-19 15:05:16(¯(Y5   3EPLB 191500Z 33004KT CAVOK 16/11 Q1020EPLB2018-10-19T15:00:00Z51.2322.7216.011.033046.2130.11811VFRMETAR206.02018-10-19 15:05:168¯(u5   3EPMO 191500Z 32003KT 280V010 9999 BKN023 14/10 Q1022EPMO2018-10-19T15:00:00Z52.4520.6514.010.032036.2130.177166MVFRMETAR104.02018-10-19 15:05:16 wP$w'¯(Y5   3EPGD 191500Z 08007KT CAVOK 11/05 Q1023EPGD2018-10-19T15:00:00Z54.3718.4711.05.08076.2130.206694VFRMETAR138.02018-10-19 15:05:163¯(k5    3EPKK 191500Z 25009KT 3000 BR SCT013 12/10 Q1022EPKK2018-10-19T15:00:00Z50.0719.812.010.025091.8630.177166BRIFRMETAR237.02018-10-19 15:05:16;¯(y5    3EPLL 191500Z 30003KT 5000 BR BKN010 OVC017 12/10 Q1023EPLL2018-10-19T15:00:00Z51.7219.412.010.030033.1130.206694BRMVFRMETAR184.02018-10-19 15:05:16,¯(e5   3EPPO 191500Z VRB02KT 7000 BKN009 13/13 Q1023EPPO2018-10-19T15:00:00Z52.4216.8213.013.0024.3530.206694IFRMETAR92.02018-10-19 15:05:16*¯(_5   3EPRZ 191500Z 28004KT 9000 NSC 16/11 Q1020EPRZ2018-10-19T15:00:00Z50.122.0516.011.028045.5930.11811VFRMETAR202.02018-10-19 15:05:16 S1w S1¯$(o5   3NCPY 191500Z AUTO 05010KT //// ////// 28/23 Q1009NCPY2018-10-19T15:00:00Z-9.02-158.0728.023.0501029.793306TRUEMETAR2.02018-10-19 15:05:160¯#(o5   3NCMH 191500Z AUTO 04003KT //// ////// 27/25 Q1009NCMH2018-10-19T15:00:00Z-10.38-161.027.025.040329.793306TRUEMETAR0.02018-10-19 15:05:161¯"(o5   3NCRK 191500Z AUTO 05002KT //// ////// 27/24 Q1008NCRK2018-10-19T15:00:00Z-10.05-161.0827.024.050229.763779TRUEMETAR5.02018-10-19 15:05:164¯!(s5   3WSAP 191500Z 27003KT 9999 FEW018 BKN300 29/24 Q1012WSAP2018-10-19T15:00:00Z1.37103.9229.024.027036.2129.88189VFRMETAR32.02018-10-19 15:05:16I¯ )5    3VOBL 191500Z 04005KT 020V080 6000 SCT012 FEW025CB 23/22 Q1017 NOSIGVOBL2018-10-19T15:00:00Z13.277.723.022.04053.7330.029528TRUEMVFRMETAR915.02018-10-19 15:05:16 ^I^8¯)(q5     3VIJP 191500Z VRB03KT 2000 HZ NSC 28/09 Q1013 NOSIGVIJP2018-10-19T15:00:00Z26.8275.7828.09.0031.2429.911417TRUEHZIFRMETAR390.02018-10-19 15:05:169¯((q5     3VORY 191500Z 09007KT 5000 HZ NSC 28/23 Q1013 NOSIGVORY2018-10-19T15:00:00Z17.181.8228.023.09073.1129.911417TRUEHZMVFRMETAR46.02018-10-19 15:05:16+¯'(_5   3VARK 191500Z 29004KT 6000 NSC 31/14 Q1012VARK2018-10-19T15:00:00Z22.370.7731.014.029043.7329.88189MVFRMETAR138.02018-10-19 15:05:167¯&(s5   3NCRG 191500Z 14013KT 9999 FEW020 BKN050 21/15 Q1014NCRG2018-10-19T15:00:00Z-21.2-159.8221.015.0140136.2129.940945VFRMETAR7.02018-10-19 15:05:161¯%(o5   3NCMK 191500Z AUTO 01006KT //// ////// 22/19 Q1011NCMK2018-10-19T15:00:00Z-20.15-157.3822.019.010629.852362TRUEMETAR9.02018-10-19 15:05:16 V7¯.(}5    3UKDR 191500Z 00000MPS CAVOK 18/07 Q1016 R18/09//70 NOSIGUKDR2018-10-19T15:00:00Z48.0533.2218.07.0006.2130.0TRUEVFRMETAR124.02018-10-19 15:05:16:¯-(w5     3VOBZ 191500Z 00000KT 3000 BR FEW020 26/22 Q1012 NOSIGVOBZ2018-10-19T15:00:00Z16.5280.7826.022.0001.8629.88189TRUEBRIFRMETAR24.02018-10-19 15:05:166¯,(s5   3VOTP 191500Z 06006KT 6000 FEW020 SCT100 27/22 Q1013VOTP2018-10-19T15:00:00Z13.6379.5527.022.06063.7329.911417MVFRMETAR107.02018-10-19 15:05:16B¯+)5     3VOTV 191500Z 15003KT 4000 HZ SCT012 SCT080 27/24 Q1012 NOSIGVOTV2018-10-19T15:00:00Z8.4776.9527.024.015032.4929.88189TRUEHZIFRMETAR8.02018-10-19 15:05:16\¯*)%5    3VOCL 191500Z 09003KT 5000 BR FEW008 SCT012 FEW025CB BKN080 27/24 Q1012 NOSIGVOCL2018-10-19T15:00:00Z11.1375.9527.024.09033.1129.88189TRUEBRBKN8000MVFRMETAR104.02018-10-19 15:05:16 &*g&9¯3(}5    3UKHH 191500Z 11003MPS CAVOK 16/05 Q1016 R07/0///72 NOSIGUKHH2018-10-19T15:00:00Z49.9236.2816.05.011066.2130.0TRUEVFRMETAR155.02018-10-19 15:05:167¯2(}5    3UKOO 191500Z 00000MPS CAVOK 16/10 Q1016 R16/090060 NOSIGUKOO2018-10-19T15:00:00Z46.4230.6816.010.0006.2130.0TRUEVFRMETAR35.02018-10-19 15:05:16?¯1(5    3UKDE 191500Z 27001MPS CAVOK 17/09 Q1015 R20L/CLRD70 NOSIGUKDE2018-10-19T15:00:00Z47.8735.3217.09.027026.2129.970472TRUEVFRMETAR113.02018-10-19 15:05:16=¯0(}5    3UKDD 191500Z 28002MPS CAVOK 16/08 Q1015 R26/090070 NOSIGUKDD2018-10-19T15:00:00Z48.3735.116.08.028046.2129.970472TRUEVFRMETAR149.02018-10-19 15:05:16P¯/)5     3UKLL 191500Z 29002MPS 250V310 5000 BR NSC 13/11 Q1020 R31/CLRD// NOSIGUKLL2018-10-19T15:00:00Z49.8223.9313.011.029043.1130.11811TRUEBRMVFRMETAR325.02018-10-19 15:05:16 5xr¯7)G5      3KRKP 191500Z AUTO 04007KT 3SM -RA BR SCT004 BKN019 BKN075 22/21 A3010 RMK AO2 P0000 T02170206KRKP2018-10-19T15:00:00Z28.08-97.0521.720.64073.030.100393TRUETRUE-RA BRMVFR0.005METAR6.02018-10-19 15:05:16O¯6)5    3KVEL 191500Z AUTO 00000KT 10SM BKN021 03/02 A3047 RMK AO2 T00330017KVEL2018-10-19T15:00:00Z40.45-109.523.31.70010.030.469488TRUETRUEMVFRSPECI1604.02018-10-19 15:05:167¯5(s5   3SBCG 191500Z 06003KT 9999 FEW023 SCT100 28/20 Q1014SBCG2018-10-19T15:00:00Z-20.47-54.6728.020.06036.2129.940945VFRMETAR567.02018-10-19 15:05:16E¯4) 5    3UKBB 191500Z 30001MPS 9999 FEW040 14/10 Q1017 R88/CLRD// NOSIGUKBB2018-10-19T15:00:00Z50.3330.914.010.030026.2130.029528TRUEVFRMETAR119.02018-10-19 15:05:16 ^&G^c¯;)95    3KBVO 191500Z AUTO 19004KT 10SM BKN007 OVC011 12/12 A3024 RMK AO2 CIG 004V009 T01220117KBVO2018-10-19T15:00:00Z36.77-96.0212.211.7190410.030.239174TRUETRUEIFRSPECI210.02018-10-19 15:05:16Y¯:)55    3KCSM 191500Z 10SM OVC002 12/11 A3023 RMK AO2 PK WND 21027/1454 CIG 002V006 T01170111KCSM2018-10-19T15:00:00Z35.35-99.211.711.110.030.230314TRUELIFRSPECI588.02018-10-19 15:05:16d¯9)55     3KGJT 191500Z 00000KT M1/4SM R11/0700V1000FT FG VV001 04/04 A3044 RMK AO2 T00390039 $KGJT2018-10-19T15:00:00Z39.12-108.523.93.9000.2530.43996TRUETRUEFGLIFR100SPECI1475.02018-10-19 15:05:16j¯8)95      3KMWL 191500Z AUTO 00000KT 2SM +RA BR FEW003 OVC023 13/13 A3024 RMK AO2 P0003 T01330128KMWL2018-10-19T15:00:00Z32.78-98.0713.312.8002.030.239174TRUETRUE+RA BRIFR0.03METAR284.02018-10-19 15:05:16 *!Z*,¯@(o5   3YTRE 191500Z AUTO 03005KT //// // NCD 19/16 Q1016YTRE2018-10-19T15:00:00Z-31.88152.5219.016.030530.0TRUEMETAR12.02018-10-19 15:05:169¯?(u5   3YWGT 191500Z AUTO 20001KT 9999 // ////// 15/12 Q1008YWGT2018-10-19T15:00:00Z-36.42146.315.012.020016.2129.763779TRUEMETAR153.02018-10-19 15:05:169¯>(o5    3YWHA 191500Z AUTO 21012KT 9999 // NCD 14/07 Q1017YWHA2018-10-19T15:00:00Z-33.07137.5214.07.0210126.2130.029528TRUEVFRMETAR13.02018-10-19 15:05:16A¯=)5    3YWLM 191500Z AUTO 04006KT 9999 // SCT074 BKN100 19/17 Q1014YWLM2018-10-19T15:00:00Z-32.8151.8319.017.04066.2129.940945TRUEVFRMETAR9.02018-10-19 15:05:16Y¯<)/5    3PKWA 191500Z AUTO 00000KT 10SM SCT026 SCT046 OVC100 27/24 A2981 RMK AO2 T02710236PKWA2018-10-19T15:00:00Z8.72167.7227.123.60010.029.811024TRUETRUEVFRMETAR8.02018-10-19 15:05:16 PC P4¯E(s5   3BIIS 191500Z 24009KT 9999 FEW020 BKN030 08/02 Q0990BIIS2018-10-19T15:00:00Z66.05-23.138.02.024096.2129.232283MVFRMETAR3.02018-10-19 15:05:165¯D(o5    3YSTW 191500Z AUTO 20007KT 9999 // NCD 16/13 Q1016YSTW2018-10-19T15:00:00Z-31.07150.8516.013.020076.2130.0TRUEVFRMETAR410.02018-10-19 15:05:168¯C(o5    3YSWG 191500Z AUTO 09009KT 9999 // NCD 20/08 Q1010YSWG2018-10-19T15:00:00Z-35.13147.4720.08.09096.2129.822834TRUEVFRMETAR213.02018-10-19 15:05:16:¯B(o5    3YTEF 191500Z AUTO 14012KT 9999 // NCD 26/03 Q1015YTEF2018-10-19T15:00:00Z-21.72122.2326.03.0140126.2129.970472TRUEVFRMETAR296.02018-10-19 15:05:167¯A(o5    3YTNK 191500Z AUTO 04005KT 9999 // NCD 28/05 Q1012YTNK2018-10-19T15:00:00Z-19.63134.1828.05.04056.2129.88189TRUEVFRMETAR377.02018-10-19 15:05:16 MJM3¯J(e5    3LYNI 191500Z 32009KT CAVOK 19/10 Q1017 NOSIGLYNI2018-10-19T15:00:00Z43.3221.8819.010.032096.2130.029528TRUEVFRMETAR202.02018-10-19 15:05:168¯I(q5    3LYPG 191500Z 21004KT 9999 FEW050 25/10 Q1014 NOSIGLYPG2018-10-19T15:00:00Z42.3719.2525.010.021046.2129.940945TRUEVFRMETAR43.02018-10-19 15:05:16A¯H)5    3LYKV 191500Z 02005KT 260V050 9999 SCT040 20/10 Q1018 NOSIGLYKV2018-10-19T15:00:00Z43.8220.5820.010.02056.2130.059055TRUEVFRMETAR209.02018-10-19 15:05:169¯G(u5    3LYBT 191500Z 04004KT 360V060 CAVOK 21/10 Q1018 NOSIGLYBT2018-10-19T15:00:00Z44.9320.2521.010.04046.2130.059055TRUEVFRMETAR80.02018-10-19 15:05:160¯F(e5    3LYBE 191500Z 02005KT CAVOK 21/09 Q1018 NOSIGLYBE2018-10-19T15:00:00Z44.8220.2821.09.02056.2130.059055TRUEVFRMETAR99.02018-10-19 15:05:16 gEg2¯O(e5   3SUAA 191500Z 14012KT 9999 BKN020 18/12 Q1025SUAA2018-10-19T15:00:00Z-34.77-56.2518.012.0140126.2130.265747MVFRMETAR54.02018-10-19 15:05:160¯N(e5   3SUAG 191500Z 11020KT 9999 FEW020 23/15 Q1019SUAG2018-10-19T15:00:00Z-30.4-56.523.015.0110206.2130.088583VFRMETAR123.02018-10-19 15:05:161¯M(e5    3LYVR 191500Z 02008KT CAVOK 19/10 Q1018 NOSIGLYVR2018-10-19T15:00:00Z45.1321.3219.010.02086.2130.059055TRUEVFRMETAR85.02018-10-19 15:05:163¯L(u5   3LYUZ 191500Z 35004KT 240V040 9999 FEW023 15/07 Q1020LYUZ2018-10-19T15:00:00Z43.919.715.07.035046.2130.11811VFRMETAR904.02018-10-19 15:05:165¯K(q5    3LYTV 191500Z VRB01KT 9999 FEW050 23/16 Q1015 NOSIGLYTV2018-10-19T15:00:00Z42.3818.7223.016.0016.2129.970472TRUEVFRMETAR5.02018-10-19 15:05:16 YNY7¯T(u5   3SBRF 191500Z 10008KT 060V140 9999 SCT025 29/22 Q1011SBRF2018-10-19T15:00:00Z-8.13-34.9229.022.010086.2129.852362VFRMETAR19.02018-10-19 15:05:16=¯S({5    3UBEE 191500Z 15003KT CAVOK 19/12 Q1019 R30/CLRD// NOSIGUBEE2018-10-19T15:00:00Z40.6347.1519.012.015036.2130.088583TRUEVFRMETAR15.02018-10-19 15:05:16.¯R(e5   3SBSV 191500Z 07019KT 9999 SCT023 30/25 Q1010SBSV2018-10-19T15:00:00Z-12.9-38.3230.025.070196.2129.822834VFRMETAR6.02018-10-19 15:05:16;¯Q(u5    3MROC 191500Z 17007KT 100V240 CAVOK 27/18 A3004 NOSIGMROC2018-10-19T15:00:00Z10.0-84.2227.018.017076.2130.041338TRUEVFRMETAR920.02018-10-19 15:05:16,¯P(e5   3LWOH 191500Z 00000KT 9999 FEW050 19/08 Q1017LWOH2018-10-19T15:00:00Z41.1820.7519.08.0006.2130.029528VFRMETAR761.02018-10-19 15:05:16 W1z W/¯Y(e5   3SBTE 191500Z 14006KT 9999 FEW030 35/18 Q1008SBTE2018-10-19T15:00:00Z-5.03-42.8235.018.014066.2129.763779VFRMETAR69.02018-10-19 15:05:164¯X(s5   3LBPG 191500Z 15004KT 9999 BKN100 BKN200 22/09 Q1015LBPG2018-10-19T15:00:00Z42.2824.7222.09.015046.2129.970472VFRMETAR58.02018-10-19 15:05:16.¯W(e5   3LBPL 191500Z 34004KT 9999 SCT200 19/10 Q1017LBPL2018-10-19T15:00:00Z43.4524.519.010.034046.2130.029528VFRMETAR101.02018-10-19 15:05:161¯V(e5    3BKPR 191500Z 02005KT CAVOK 20/06 Q1017 NOSIGBKPR2018-10-19T15:00:00Z42.5821.0320.06.02056.2130.029528TRUEVFRMETAR576.02018-10-19 15:05:16I¯U)5    3MHRO 191500Z 12012KT 9999 FEW024CB BKN200 29/25 Q1014 A2995 NOSIGMHRO2018-10-19T15:00:00Z16.32-86.5329.025.0120126.2129.940945TRUEVFRMETAR5.02018-10-19 15:05:16 W;yW6¯^(q5    3LBSF 191500Z 02007KT 9999 FEW061 19/09 Q1017 NOSIGLBSF2018-10-19T15:00:00Z42.723.4219.09.02076.2130.029528TRUEVFRMETAR530.02018-10-19 15:05:16-¯](e5    3LBWN 191500Z 11007KT CAVOK 18/14 Q1016 NOSIGLBWN2018-10-19T15:00:00Z43.2227.8218.014.011076.2130.0TRUEVFRMETAR43.02018-10-19 15:05:16-¯\(e5    3LBBG 191500Z 12004KT CAVOK 18/14 Q1016 NOSIGLBBG2018-10-19T15:00:00Z42.5727.5218.014.012046.2130.0TRUEVFRMETAR28.02018-10-19 15:05:16<¯[(u5     3LBPD 191500Z AUTO 00000KT 9999 NCD 22/10 Q1015 NOSIGLBPD2018-10-19T15:00:00Z42.1324.822.010.0006.2129.970472TRUETRUEVFRMETAR185.02018-10-19 15:05:16?¯Z)5     3LBGO 191500Z AUTO 01001KT 9999 OVC076/// 20/13 Q1016 NOSIGLBGO2018-10-19T15:00:00Z43.1525.7220.013.01016.2130.0TRUETRUEVFRMETAR86.02018-10-19 15:05:16 ?K ?F¯c) 5    3LZTT 191500Z 06003KT 9999 FEW016 SCT026 BKN093 13/09 Q1021 NOSIGLZTT2018-10-19T15:00:00Z49.0720.2513.09.06036.2130.147638TRUEVFRMETAR707.02018-10-19 15:05:167¯b(u5   3SBPA 191500Z 16012KT 130V190 9999 BKN040 24/14 Q1019SBPA2018-10-19T15:00:00Z-30.0-51.1724.014.0160126.2130.088583VFRMETAR3.02018-10-19 15:05:162¯a(e5   3NFTF 191500Z 11010KT 9999 SCT016 22/15 Q1018NFTF2018-10-19T15:00:00Z-21.23-175.1522.015.0110106.2130.059055VFRMETAR38.02018-10-19 15:05:16E¯`) 5    3NWWW 191500Z AUTO 00000KT 9000 NSC 22/21 Q1013 TEMPO 1000 BCFGNWWW2018-10-19T15:00:00Z-22.02166.2222.021.0005.5929.911417TRUEVFRMETAR16.02018-10-19 15:05:16/¯_(e5   3SBJP 191500Z 10011KT 9999 SCT030 31/18 Q1012SBJP2018-10-19T15:00:00Z-7.15-34.9531.018.0100116.2129.88189VFRMETAR66.02018-10-19 15:05:16 GE¯h)5    3UBBG 191500Z 10006KT 9999 FEW100 19/11 Q1019 R30/CLRD// NOSIGUBBG2018-10-19T15:00:00Z40.7346.3219.011.010066.2130.088583TRUEVFRMETAR330.02018-10-19 15:05:16f¯g)O5    3TFFF 191500Z AUTO 11013KT 070V140 9999 FEW024 SCT029 BKN064 29/23 Q1012 TEMPO 4000 SHRA SCT018TCUTFFF2018-10-19T15:00:00Z14.6-61.029.023.0110136.2129.88189TRUEVFRMETAR5.02018-10-19 15:05:166¯f(s5   3SESA 191500Z 24010KT 9999 SCT012 OVC014 22/20 Q1014SESA2018-10-19T15:00:00Z-2.2-80.9722.020.0240106.2129.940945MVFRMETAR8.02018-10-19 15:05:165¯e(k5    3LZIB 191500Z 32009KT 9000 NSC 19/10 Q1020 NOSIGLZIB2018-10-19T15:00:00Z48.1717.2219.010.032095.5930.11811TRUEVFRMETAR134.02018-10-19 15:05:163¯d(e5    3LZKZ 191500Z 02011KT CAVOK 18/10 Q1019 NOSIGLZKZ2018-10-19T15:00:00Z48.6721.2318.010.020116.2130.088583TRUEVFRMETAR232.02018-10-19 15:05:16 a?a8¯m(u5    3OMDB 191500Z 02004KT 350V090 CAVOK 32/19 Q1013 NOSIGOMDB2018-10-19T15:00:00Z25.2555.3732.019.02046.2129.911417TRUEVFRMETAR5.02018-10-19 15:05:161¯l(e5    3OMDW 191500Z 33005KT CAVOK 31/19 Q1014 NOSIGOMDW2018-10-19T15:00:00Z24.955.1731.019.033056.2129.940945TRUEVFRMETAR25.02018-10-19 15:05:165¯k(s5   3OMFJ 191500Z 14007KT 7000 NSC 30/22 Q1013 RMK A2992OMFJ2018-10-19T15:00:00Z25.156.3230.022.014074.3529.911417MVFRMETAR28.02018-10-19 15:05:16(¯j(Y5   3OMSJ 191500Z 32003KT CAVOK 31/22 Q1013OMSJ2018-10-19T15:00:00Z25.3255.5231.022.032036.2129.911417VFRMETAR33.02018-10-19 15:05:16;¯i(q5    3SUMU 191500Z 12011KT 9999 BKN026 19/13 Q1025 NOSIGSUMU2018-10-19T15:00:00Z-34.82-56.019.013.0120116.2130.265747TRUEMVFRMETAR32.02018-10-19 15:05:16 VIV:¯r({5   3YLEC 191500Z AUTO 20023G35KT //// // ////// 16/08 Q1014YLEC2018-10-19T15:00:00Z-30.6138.4316.08.0200233529.940945TRUESPECI262.02018-10-19 15:05:16A¯q(5    3TBPB 191500Z 10017KT 9999 SCT014 SCT038 28/24 Q1011 NOSIGTBPB2018-10-19T15:00:00Z13.07-59.4828.024.0100176.2129.852362TRUEVFRMETAR52.02018-10-19 15:05:161¯p(e5    3OMAA 191500Z 35007KT CAVOK 31/19 Q1012 NOSIGOMAA2018-10-19T15:00:00Z24.4254.6331.019.035076.2129.88189TRUEVFRMETAR27.02018-10-19 15:05:16/¯o(e5    3OMAD 191500Z 03004KT CAVOK 30/20 Q1012 NOSIGOMAD2018-10-19T15:00:00Z24.4254.4730.020.03046.2129.88189TRUEVFRMETAR3.02018-10-19 15:05:161¯n(e5    3OMAL 191500Z 08008KT CAVOK 30/15 Q1014 NOSIGOMAL2018-10-19T15:00:00Z24.2555.630.015.08086.2129.940945TRUEVFRMETAR262.02018-10-19 15:05:16 /p<¯w(u5    3YKRY 191500Z AUTO 00000KT 9999 // OVC012 15/14 Q1019YKRY2018-10-19T15:00:00Z-26.57151.8315.014.0006.2130.088583TRUEMVFRSPECI434.02018-10-19 15:05:16K¯v)5    3YSNF 191500Z AUTO 07016KT 7000 // BKN008 OVC012 OVC017 18/17 Q1020YSNF2018-10-19T15:00:00Z-29.02167.9218.017.070164.3530.11811TRUEIFRSPECI109.02018-10-19 15:05:16>¯u(u5   3YMIA 191500Z AUTO 23016G26KT 9999 // NCD 16/09 Q1011YMIA2018-10-19T15:00:00Z-34.23142.0816.09.023016266.2129.852362TRUEVFRMETAR51.02018-10-19 15:05:169¯t(u5    3YMER 191500Z AUTO 00000KT 1400 // OVC001 15/14 Q1011YMER2018-10-19T15:00:00Z-36.92149.915.014.0000.8729.852362TRUELIFRMETAR2.02018-10-19 15:05:16K¯s)5    3YMLT 191500Z AUTO 15003KT 3300 // SCT115 11/10 Q1007 RF00.0/000.0YMLT2018-10-19T15:00:00Z-41.52147.1811.010.015032.0529.734253TRUEIFRSPECI178.02018-10-19 15:05:16 K?¯{) 5   3SPTN 191500Z 25005KT 200V320 9999 SCT030 18/11 Q1016 RMK PP000SPTN2018-10-19T15:00:00Z-18.07-70.2818.011.025056.2130.0VFRMETAR458.02018-10-19 15:05:16^¯z)95    3SPZO 191500Z 08003KT 9999 SCT050 BKN100 19/04 Q1032 NOSIG RMK BIRD HAZARD RWY 28 PP000SPZO2018-10-19T15:00:00Z-13.55-71.9719.04.08036.2130.47244TRUEVFRMETAR3249.02018-10-19 15:05:163¯y(q5    3MWCR 191500Z 08018KT 9000 -SHRA FEW016 30/25 Q1016MWCR2018-10-19T15:00:00Z19.3-81.3730.025.080185.5930.0-SHRAVFRMETAR3.02018-10-19 15:05:16/¯x(e5   3MWCB 191500Z 09012KT 9999 BKN016 30/25 Q1017MWCB2018-10-19T15:00:00Z19.68-79.8830.025.090126.2130.029528MVFRMETAR2.02018-10-19 15:05:16 $jf¯)G5    3SPQT 191500Z 35006KT 300V020 9999 SCT030 SCT100 31/25 Q1011 NOSIG FRMK HAZARD RWY 06/24 PP000SPQT2018-10-19T15:00:00Z-3.78-73.3231.025.035066.2129.852362TRUEVFRMETAR126.02018-10-19 15:05:16@¯~({5    3SPQU 191500Z VRB06KT CAVOK 21/M13 Q1026 NOSIG RMK PP000SPQU2018-10-19T15:00:00Z-16.33-71.5721.0-13.0066.2130.295275TRUEVFRMETAR2554.02018-10-19 15:05:164¯}(y5   3SPRU 191500Z 15009KT 9999 SCT027 20/14 Q1016 RMK PP000SPRU2018-10-19T15:00:00Z-8.08-79.1220.014.015096.2130.0VFRMETAR30.02018-10-19 15:05:16V¯|)-5   3SPSO 191500Z 31008KT 8000 NSC 19/15 Q1015 RMK SCT230 BIRD HAZARD RWY 22/04 PP000SPSO2018-10-19T15:00:00Z-13.73-76.2219.015.031084.9729.970472MVFRMETAR10.02018-10-19 15:05:16 !O/°(e5   3TKPN 191500Z 08010KT 9999 FEW020 29/22 Q1014TKPN2018-10-19T15:00:00Z17.18-62.5729.022.080106.2129.940945VFRMETAR17.02018-10-19 15:05:168°(q5     3VILK 191500Z 00000KT 3000 HZ NSC 28/20 Q1012 NOSIGVILK2018-10-19T15:00:00Z26.7580.8728.020.0001.8629.88189TRUEHZIFRMETAR128.02018-10-19 15:05:16L°)5    3UBBY 191500Z 10008KT 9999 NSC 16/11 Q1023 R33/////// NOSIG RMK MT OPUBBY2018-10-19T15:00:00Z41.5746.6716.011.010086.2130.206694TRUEVFRMETAR390.02018-10-19 15:05:16Y°)55   3SPHI 191500Z 19008KT 150V220 9999 BKN014 21/16 Q1015 RMK BIRD HAZARD RWY 19/01 PP000SPHI2018-10-19T15:00:00Z-6.77-79.8221.016.019086.2129.970472MVFRMETAR34.02018-10-19 15:05:16 &]4°(w5   3UTFF 191500Z VRB02KT 9000 NSC 08/M01 Q1028 R18/CLRD70UTFF2018-10-19T15:00:00Z40.3771.778.0-1.0025.5930.35433VFRMETAR577.02018-10-19 15:05:16X°))5    3LUKK 191500Z 36005KT 6000 -SHRA SCT049CB 16/10 Q1017 R26/CLRD// TEMPO BKN040CBLUKK2018-10-19T15:00:00Z46.9328.9316.010.036053.7330.029528-SHRAMVFRMETAR122.02018-10-19 15:05:16C°({5    3KGOO 191500Z AUTO 10004KT 10SM CLR 17/M07 A3022 RMK AO1KGOO2018-10-19T15:00:00Z39.22-121.017.0-7.0100410.030.221457TRUETRUEVFRMETAR962.02018-10-19 15:05:16T°)5    3KHSD 191500Z AUTO 20008KT 10SM SCT012 BKN021 BKN075 13/12 A3023 RMK A01KHSD2018-10-19T15:00:00Z35.6-97.7213.012.0200810.030.230314TRUETRUEMVFRMETAR364.02018-10-19 15:05:16 uI4u9° (o5    3SCRM 191500Z 27011KT 2000 BR OVC003 M01/M01 Q1006SCRM2018-10-19T15:00:00Z-62.18-58.98-1.0-1.0270111.2429.704725BRLIFRMETAR45.02018-10-19 15:05:16+° (Y5   3SCGE 191500Z 20005KT CAVOK 14/10 Q1018SCGE2018-10-19T15:00:00Z-37.38-72.4214.010.020056.2130.059055VFRMETAR114.02018-10-19 15:05:16*° (Y5   3SCIC 191500Z 27003KT CAVOK 17/09 Q1017SCIC2018-10-19T15:00:00Z-34.97-71.2217.09.027036.2130.029528VFRMETAR242.02018-10-19 15:05:16.° (e5   3SCCY 191500Z 22004KT 9999 OVC040 08/02 Q1025SCCY2018-10-19T15:00:00Z-45.57-72.18.02.022046.2130.265747VFRMETAR311.02018-10-19 15:05:161°(e5   3SCIR 191500Z 32011KT 9999 BKN030 15/08 Q1021SCIR2018-10-19T15:00:00Z-33.67-78.9315.08.0320116.2130.147638MVFRMETAR29.02018-10-19 15:05:16 UBU>°)5   3SBRJ 191500Z 22009KT 9999 FEW023 BKN040 BKN080 27/21 Q1010SBRJ2018-10-19T15:00:00Z-22.88-43.1727.021.022096.2129.822834VFRMETAR3.02018-10-19 15:05:16B°(5    3SCIP 191500Z 35004KT 9999 SCT025 BKN053 21/16 Q1023 NOSIGSCIP2018-10-19T15:00:00Z-27.17-109.4321.016.035046.2130.206694TRUEVFRMETAR69.02018-10-19 15:05:16&°(Y5   3SCPQ 191500Z VRB04KT CAVOK 15/06 Q1018SCPQ2018-10-19T15:00:00Z-42.33-73.7215.06.0046.2130.059055VFRMETAR5.02018-10-19 15:05:16/°(i5   3SCTN 191500Z 12006KT 060V180 CAVOK 18/04 Q1018SCTN2018-10-19T15:00:00Z-42.92-72.718.04.012066.2130.059055VFRMETAR4.02018-10-19 15:05:168° (s5   3SCCH 191500Z 32003KT 9999 FEW012 BKN200 14/10 Q1018SCCH2018-10-19T15:00:00Z-36.57-72.0214.010.032036.2130.059055VFRMETAR148.02018-10-19 15:05:16 yI&y'°(Y5   3SCQP 191500Z VRB03KT CAVOK 15/09 Q1017SCQP2018-10-19T15:00:00Z-38.92-72.6515.09.0036.2130.029528VFRMETAR97.02018-10-19 15:05:16B°)5    3SCTE 191500Z 24004KT 200V290 9999 BKN070 16/08 Q1017 NOSIGSCTE2018-10-19T15:00:00Z-41.42-73.0716.08.024046.2130.029528TRUEVFRMETAR86.02018-10-19 15:05:16(°(Y5   3SCVD 191500Z VRB01KT CAVOK 16/10 Q1017SCVD2018-10-19T15:00:00Z-39.65-73.0716.010.0016.2130.029528VFRMETAR14.02018-10-19 15:05:16'°(Y5   3SCNT 191500Z 00000KT CAVOK 11/01 Q1024SCNT2018-10-19T15:00:00Z-51.67-72.5311.01.0006.2130.236221VFRMETAR67.02018-10-19 15:05:161°(e5    3SCCI 191500Z 11005KT CAVOK 08/03 Q1025 NOSIGSCCI2018-10-19T15:00:00Z-53.0-70.838.03.011056.2130.265747TRUEVFRMETAR37.02018-10-19 15:05:16 uR2u7°(u5   3SCIE 191500Z 25007KT 210V280 9999 FEW026 14/08 Q1018SCIE2018-10-19T15:00:00Z-36.77-73.0714.08.025076.2130.059055VFRMETAR16.02018-10-19 15:05:162°(i5   3SCAT 191500Z 28008KT 230V310 CAVOK 17/09 Q1018SCAT2018-10-19T15:00:00Z-27.27-70.7717.09.028086.2130.059055VFRMETAR204.02018-10-19 15:05:161°(e5   3SCDA 191500Z 25010KT 9999 SCT030 18/10 Q1015SCDA2018-10-19T15:00:00Z-20.52-70.1718.010.0250106.2129.970472VFRMETAR52.02018-10-19 15:05:16+°(Y5   3SCSE 191500Z 26013KT CAVOK 17/11 Q1018SCSE2018-10-19T15:00:00Z-29.92-71.217.011.0260136.2130.059055VFRMETAR146.02018-10-19 15:05:16(°(Y5   3SCJO 191500Z 30004KT CAVOK 14/08 Q1017SCJO2018-10-19T15:00:00Z-40.6-73.0314.08.030046.2130.029528VFRMETAR65.02018-10-19 15:05:16 hOh/° (e5   3SBCP 191500Z 16010KT 9999 FEW020 30/22 Q1008SBCP2018-10-19T15:00:00Z-21.7-41.330.022.0160106.2129.763779VFRMETAR11.02018-10-19 15:05:168°(q5    3SCFA 191500Z 21013KT 9999 BKN027 17/10 Q1016 NOSIGSCFA2018-10-19T15:00:00Z-23.42-70.4217.010.0210136.2130.0TRUEMVFRMETAR120.02018-10-19 15:05:161°(e5   3SCAR 191500Z 25008KT 9999 BKN025 19/11 Q1015SCAR2018-10-19T15:00:00Z-18.35-70.3219.011.025086.2129.970472MVFRMETAR59.02018-10-19 15:05:167°(s5   3SCBA 191500Z 12009KT 9999 BKN020 OVC070 08/01 Q1026SCBA2018-10-19T15:00:00Z-45.92-71.678.01.012096.2130.295275MVFRMETAR524.02018-10-19 15:05:16+°([5   3SCCF 191500Z 03004KT CAVOK 23/M16 Q1025SCCF2018-10-19T15:00:00Z-22.5-68.923.0-16.03046.2130.265747VFRMETAR2312.02018-10-19 15:05:16 (BnW°$)35   3SPMS 191500Z 31003KT 9999 SCT020 SCT120 31/25 Q1011 RMK BIRD HAZARD RWY 09/27 PP000SPMS2018-10-19T15:00:00Z-5.9-76.1231.025.031036.2129.852362VFRMETAR179.02018-10-19 15:05:16N°#)%5   3SPST 191500Z 00000KT 9999 SCT025 30/23 Q1012 RMK BIRD HAZARD RWY 17/35 PP000SPST2018-10-19T15:00:00Z-6.52-76.3730.023.0006.2129.88189VFRMETAR282.02018-10-19 15:05:16`°")C5   3SPTU 191500Z 29007KT 250V330 9999 FEW020 BKN180 32/23 Q1009 RMK BIRD HAZARD RWY 01/19 PP000SPTU2018-10-19T15:00:00Z-12.62-69.232.023.029076.2129.793306VFRMETAR266.02018-10-19 15:05:16R°!)%5   3SPYL 191500Z 15014KT 9999 BKN020 22/17 Q1015 RMK BIRD HAZARD RWY 17/35 PP000SPYL2018-10-19T15:00:00Z-4.57-81.2522.017.0150146.2129.970472MVFRMETAR90.02018-10-19 15:05:16 "i1°((m5   3SPJI 191500Z 00000KT CAVOK 31/24 Q1020 RMK PP000SPJI2018-10-19T15:00:00Z-7.17-76.7231.024.0006.2130.11811VFRMETAR363.02018-10-19 15:05:16C°')5   3SPJL 191500Z 15003KT 9999 SCT020 SCT100 12/04 Q1036 RMK PP000SPJL2018-10-19T15:00:00Z-15.47-70.1512.04.015036.2130.590551VFRMETAR3827.02018-10-19 15:05:163°&(m5   3SPJR 191500Z VRB03KT CAVOK 18/10 Q1027 RMK PP000SPJR2018-10-19T15:00:00Z-7.12-78.4718.010.0036.2130.324802VFRMETAR2622.02018-10-19 15:05:16X°%)35   3SPME 191500Z 30011KT 9999 FEW012 BKN017 24/18 Q1014 RMK BIRD HAZARD RWY 32/14 PP000SPME2018-10-19T15:00:00Z-3.53-80.424.018.0300116.2129.940945MVFRMETAR27.02018-10-19 15:05:16 "b_°,)C5   3SPCL 191500Z 16004KT 100V220 9999 SCT025 BKN090 30/25 Q1012 RMK BIRD HAZARD RWY 02/20 PP000SPCL2018-10-19T15:00:00Z-8.38-74.5830.025.016046.2129.88189VFRMETAR149.02018-10-19 15:05:16Z°+)55    3SPGM 191500Z 00000KT 8000 -RA FEW040 OVC090 21/21 Q1017 RMK BIRD HAZARD RWY 19 PP020SPGM2018-10-19T15:00:00Z-9.28-76.021.021.0004.9730.029528-RAMVFRMETAR665.02018-10-19 15:05:16:°*(y5   3SPHO 191500Z 05006KT 9999 FEW040 21/09 Q1027 RMK PP000SPHO2018-10-19T15:00:00Z-13.17-74.2221.09.05066.2130.324802VFRMETAR2749.02018-10-19 15:05:16X°))35   3SPHY 191500Z 36005KT 9999 FEW012 SCT060 13/03 Q1035 RMK BIRD HAZARD RWY 03/21 PP000SPHY2018-10-19T15:00:00Z-13.7-73.3513.03.036056.2130.561024VFRMETAR3548.02018-10-19 15:05:16 2&w2:°1(y5   3SESM 191500Z 13005KT 9999 FEW033 28/20 Q1017 RMK A3004SESM2018-10-19T15:00:00Z-1.5-78.0728.020.013056.2130.029528VFRMETAR1056.02018-10-19 15:05:16B°0)5   3SEMC 191500Z 12003KT 9999 FEW030 SCT100 24/20 Q1018 RMK A3006SEMC2018-10-19T15:00:00Z-2.3-78.1224.020.012036.2130.059055VFRMETAR1052.02018-10-19 15:05:167°/(q5   3SEGS 191500Z 16012KT 9999 BKN020 24/17 Q1015 A2999SEGS2018-10-19T15:00:00Z-0.45-90.2724.017.0160126.2129.970472MVFRMETAR16.02018-10-19 15:05:16)°.(Y5   3SBUG 191500Z 09017KT CAVOK 25/16 Q1020SBUG2018-10-19T15:00:00Z-29.77-57.0225.016.090176.2130.11811VFRMETAR74.02018-10-19 15:05:16T°-)/5   3OBBI 191500Z 20003KT 130V250 8000 FEW030TCU 29/22 Q1013 TEMPO 24020G30KT FEW045CBOBBI2018-10-19T15:00:00Z26.2750.6329.022.020034.9729.911417MVFRMETAR2.02018-10-19 15:05:16 .9f.7°6(s5   3SECU 191500Z 08004KT 9999 FEW030 BKN100 15/12 Q1027SECU2018-10-19T15:00:00Z-2.87-78.9715.012.08046.2130.324802VFRMETAR2531.02018-10-19 15:05:161°5(g5   3SECA 191500 21003KT 160V330 CAVOK 26/15 Q1018SECA2018-10-19T15:00:00Z-4.0-79.3726.015.021036.2130.059055VFRMETAR1121.02018-10-19 15:05:16>°4)5   3SENL 191500Z 01002KT 9999 FEW023 BKN100 29/23 Q1012 RMK A2991SENL2018-10-19T15:00:00Z0.1-76.8729.023.01026.2129.88189VFRMETAR293.02018-10-19 15:05:16M°3)5    3SEST 191500Z 19008KT 9999 -RADZ SCT008 OVC030 21/19 Q1015 RMK A2997SEST2018-10-19T15:00:00Z-0.9-89.5821.019.019086.2129.970472-RA -DZMVFRMETAR6.02018-10-19 15:05:16A°2)5   3SECO 191500Z 11002KT 9999 FEW020 BKN100 28/23 Q1012 RMK A2991SECO2018-10-19T15:00:00Z-0.45-76.9828.023.011026.2129.88189VFRMETAR220.02018-10-19 15:05:16 cKc4°;(q5   3SETN 191500Z 31007KT 9999 FEW020 27/22 Q1013 A2992SETN2018-10-19T15:00:00Z0.98-79.6327.022.031076.2129.911417VFRMETAR10.02018-10-19 15:05:167°:(s5   3SERO 191500Z 29003KT 9999 FEW013 OVC016 23/19 Q1014SERO2018-10-19T15:00:00Z-3.43-79.9823.019.029036.2129.940945MVFRMETAR51.02018-10-19 15:05:164°9(s5   3SETU 191500Z 08008KT 9999 SCT026 SCT100 18/09 Q1033SETU2018-10-19T15:00:00Z0.82-77.718.09.08086.2130.501968VFRMETAR2940.02018-10-19 15:05:161°8(e5   3SEAM 191500Z 12003KT 9999 FEW030 20/12 Q1029SEAM2018-10-19T15:00:00Z-1.18-78.5720.012.012036.2130.383858VFRMETAR2520.02018-10-19 15:05:16/°7(e5   3SERB 191500Z 08008KT 9999 FEW040 18/09 Q1030SERB2018-10-19T15:00:00Z-1.62-78.6718.09.08086.2130.413385VFRMETAR2796.02018-10-19 15:05:16 !k9°@(}5    3FIMP 191500Z 02007KT 9999 VCSH SCT015 SCT250 25/20 Q1016FIMP2018-10-19T15:00:00Z-20.4257.6725.020.02076.2130.0VCSHVFRMETAR57.02018-10-19 15:05:16M°?)5    3SEQM 191500Z 30005KT 9999 FEW020 SCT300 19/11 Q1027 NOSIG RMK A3032SEQM2018-10-19T15:00:00Z-0.12-78.3519.011.030056.2130.324802TRUEVFRMETAR2400.02018-10-19 15:05:16;°>(y5   3SEMT 191500Z 22010KT 9999 BKN023 26/22 Q1014 RMK A2996SEMT2018-10-19T15:00:00Z-0.95-80.6726.022.0220106.2129.940945MVFRMETAR14.02018-10-19 15:05:160°=(e5   3SELT 191500Z 17006KT 9999 FEW026 17/08 Q1030SELT2018-10-19T15:00:00Z-0.92-78.6217.08.017066.2130.413385VFRMETAR2785.02018-10-19 15:05:16Y°<)15    3SEGU 191500Z 21009KT 180V250 9999 FEW023 BKN033 BKN100 26/20 Q1013 NOSIG RMK A2992SEGU2018-10-19T15:00:00Z-2.13-79.8726.020.021096.2129.911417TRUEVFRMETAR9.02018-10-19 15:05:16 8A8-°E(e5   3SBMQ 191500Z 08008KT 9999 SCT023 33/21 Q1010SBMQ2018-10-19T15:00:00Z0.05-51.0733.021.08086.2129.822834VFRMETAR15.02018-10-19 15:05:16[°D);5  3LFVP 191500Z 28024G35KT 9999 SCT023 BKN066 06/00 Q1007 TEMPO 3000 SHRA BR BKN010 OVC015LFVP2018-10-19T15:00:00Z46.77-56.186.00.028024356.2129.734253VFRMETAR8.02018-10-19 15:05:167°C(k5    3GQPP 191500Z 34015KT 7000 NSC 25/14 Q1010 NOSIGGQPP2018-10-19T15:00:00Z20.92-17.0225.014.0340154.3529.822834TRUEMVFRMETAR3.02018-10-19 15:05:162°B(s5   3SBNF 191500Z 12011KT 9999 FEW035 SCT100 24/24 Q1016SBNF2018-10-19T15:00:00Z-26.88-48.6524.024.0120116.2130.0VFRMETAR5.02018-10-19 15:05:169°A(q5    3FQMA 191500Z 08012KT 9999 FEW025 25/17 Q1013 NOSIGFQMA2018-10-19T15:00:00Z-25.9232.5725.017.080126.2129.911417TRUEVFRMETAR44.02018-10-19 15:05:16 [J[4°J(s5   3OSDI 191500Z 06002KT 9999 FEW030 SCT100 27/07 Q1014OSDI2018-10-19T15:00:00Z33.4236.5227.07.06026.2129.940945VFRMETAR605.02018-10-19 15:05:168°I(y5    3OSLK 191500Z 10004KT 3000 HZ FEW030 SCT100 26/21 Q1012OSLK2018-10-19T15:00:00Z35.435.9526.021.010041.8629.88189HZIFRMETAR48.02018-10-19 15:05:16*°H(y5     3OSKL 191500Z 02014KT 5000 BR SCT026 BKN100 22/12Q 1016OSKL2018-10-19T15:00:00Z37.0341.220143.11BRMVFRMETAR455.02018-10-19 15:05:16A°G(5    3GVAC 191500Z 04015KT 9999 BKN014 BKN100 29/20 Q1011 NOSIGGVAC2018-10-19T15:00:00Z16.72-22.9329.020.040156.2129.852362TRUEMVFRMETAR55.02018-10-19 15:05:160°F(e5   3SBNT 191500Z 10014KT 9999 FEW030 31/20 Q1011SBNT2018-10-19T15:00:00Z-5.92-35.2531.020.0100146.2129.852362VFRMETAR49.02018-10-19 15:05:16 _P_/°O(e5   3SBSL 191500Z 06016KT 9999 BKN020 32/22 Q1009SBSL2018-10-19T15:00:00Z-2.6-44.2232.022.060166.2129.793306MVFRMETAR53.02018-10-19 15:05:16=°N) 5   3MHCA 191500Z 18002KT 9999 SCT026TCU BKN080 27/24 Q1016 TCU NNWMHCA2018-10-19T15:00:00Z14.9-85.7827.024.018026.2130.0VFRMETAR442.02018-10-19 15:05:16-°M(e5   3MYGF 191500Z 12003KT 9999 SCT025 31/23 A3017MYGF2018-10-19T15:00:00Z26.55-78.731.023.012036.2130.171259VFRMETAR2.02018-10-19 15:05:16@°L(5    3GVNP 191500Z 02017KT 9999 FEW014 BKN100 31/21 Q1011 NOSIGGVNP2018-10-19T15:00:00Z14.95-23.4831.021.020176.2129.852362TRUEVFRMETAR70.02018-10-19 15:05:16*°K(e5   3FQIN 191500Z 18008KT 9999 FEW020 25/16 Q1016FQIN2018-10-19T15:00:00Z-23.8735.3725.016.018086.2130.0VFRMETAR15.02018-10-19 15:05:16 (K|(;°T(q5    3SABE 191500Z 12013KT 9999 BKN026 18/13 Q1026 NOSIGSABE2018-10-19T15:00:00Z-34.57-58.4218.013.0120136.2130.295275TRUEMVFRMETAR6.02018-10-19 15:05:16Q°S) 5     3SACO 191500Z 16007KT 1800 -DZ BR BKN004 BKN009 16/15 Q1023 NOSIGSACO2018-10-19T15:00:00Z-31.32-64.2216.015.016071.1230.206694TRUE-DZ BRLIFRMETAR474.02018-10-19 15:05:166°R(w5   3SAEZ 191500Z 14008KT 110V180 SCT029 19/13 Q1026 NOSIGSAEZ2018-10-19T15:00:00Z-34.82-58.5219.013.0140830.295275TRUEMETAR20.02018-10-19 15:05:16I°Q(5   3KSTK 191500Z AUTO 33016G20KT 10SM CLR 13/01 A3022 RMK AO2KSTK2018-10-19T15:00:00Z40.62-103.2713.01.0330162010.030.221457TRUETRUEVFRMETAR1231.02018-10-19 15:05:16/°P(e5   3SBFZ 191500Z 08017KT 9999 SCT030 31/20 Q1011SBFZ2018-10-19T15:00:00Z-3.77-38.5231.020.080176.2129.852362VFRMETAR25.02018-10-19 15:05:16 pJp)°Y(Y5   3OIIE 191500Z 12006KT CAVOK 21/01 Q1021OIIE2018-10-19T15:00:00Z35.4251.1521.01.012066.2130.147638VFRMETAR1008.02018-10-19 15:05:16'°X(Y5   3OINZ 191500Z 10004KT CAVOK 16/10 Q1021OINZ2018-10-19T15:00:00Z36.6353.216.010.010046.2130.147638VFRMETAR11.02018-10-19 15:05:16B°W)5    3OITR 191500Z 00000KT 7000 FEW035CB SCT040 13/04 Q1021 NOSIGOITR2018-10-19T15:00:00Z37.6745.0713.04.0004.3530.147638TRUEMVFRMETAR1312.02018-10-19 15:05:160°V(g5   3OIYY 191500Z 31004KT 9999 FEW035 22/M01 Q1022OIYY2018-10-19T15:00:00Z31.954.2822.0-1.031046.2130.177166VFRMETAR1236.02018-10-19 15:05:160°U(e5   3SAAR 191500Z 09017KT 9999 FEW025 22/14 Q1022SAAR2018-10-19T15:00:00Z-32.92-60.7722.014.090176.2130.177166VFRMETAR25.02018-10-19 15:05:16 jTsj%°^(Y5   3OITP 191500Z 06004KT CAVOK 19/11 Q1020OITP2018-10-19T15:00:00Z39.647.8819.011.06046.2130.11811VFRMETAR77.02018-10-19 15:05:16&°](Y5   3OIAA 191500Z 07006KT CAVOK 32/12 Q1012OIAA2018-10-19T15:00:00Z30.3748.2532.012.07066.2129.88189VFRMETAR11.02018-10-19 15:05:16,°\(_5   3OIBK 191500Z 28004KT 7000 NSC 29/22 Q1013OIBK2018-10-19T15:00:00Z26.5353.9829.022.028044.3529.911417MVFRMETAR30.02018-10-19 15:05:16[°[)35    3OICC 191500Z 06004KT 9999 -SHRA SCT035CB SCT040 OVC080 18/07 Q1022 A3020 TEMPO SHRAOICC2018-10-19T15:00:00Z34.3547.1718.07.06046.2130.177166-SHRAVFRMETAR1322.02018-10-19 15:05:16&°Z(Y5   3OIGG 191500Z 01004KT CAVOK 18/14 Q1020OIGG2018-10-19T15:00:00Z37.3349.618.014.01046.2130.11811VFRMETAR-13.02018-10-19 15:05:16Y898@HPX`hpx (08@HPX`hpx (08@HPX`hpxߕ¯3¯7¯;¯@¯E¯J¯O¯T¯Y¯^¯c¯hߕ¯3¯7¯;¯@¯E¯J¯O¯T¯Y¯^¯c¯h¯m¯r¯w¯{¯°°° °°°° °$°(°,°1°6°;°@°E°J°O°T°Y°^°c°h°m°r °w °{ ° ± ±± ±±±±±±"±&±*±.±2±6±:±>±B±F±J±N ±R!±U"±Y#±]$±a%±e&±i'±m(±q)±u*±x+±|,²-².²/² 0²1²2²3²4²5²#6²'7²+8²/ UL U1°c(e5   3SUSO 191500Z 14018KT 9999 FEW020 23/16 Q1021SUSO2018-10-19T15:00:00Z-31.43-57.9823.016.0140186.2130.147638VFRMETAR34.02018-10-19 15:05:16E°b)5     3VOCB 191500Z 00000KT 5000 HZ FEW015 SCT080 27/22 Q1014 NOSIGVOCB2018-10-19T15:00:00Z11.0277.0327.022.0003.1129.940945TRUEHZMVFRMETAR399.02018-10-19 15:05:166°a(w5   3OIAH 191500Z 01008KT 9999 FEW035CB SCT040 28/03 Q1017OIAH2018-10-19T15:00:00Z30.3350.8328.03.01086.2130.029528VFRMETAR738.02018-10-19 15:05:163°`(s5   3OISF 191500Z 00000KT 9999 SCT040 SCT200 23/07 Q1018OISF2018-10-19T15:00:00Z28.953.7223.07.0006.2130.059055VFRMETAR1383.02018-10-19 15:05:16.°_(e5   3OISR 191500Z 25004KT 9999 FEW040 27/18 Q1015OISR2018-10-19T15:00:00Z27.3753.227.018.025046.2129.970472VFRMETAR408.02018-10-19 15:05:16 DID+°h([5   3SAWG 191500Z 36004KT CAVOK 14/M02 Q1025SAWG2018-10-19T15:00:00Z-51.62-69.3214.0-2.036046.2130.265747VFRMETAR19.02018-10-19 15:05:16@°g)5   3SAZM 191500Z 15014KT 120V180 9999 SCT019 SCT027 12/08 Q1029SAZM2018-10-19T15:00:00Z-37.92-57.5712.08.0150146.2130.383858VFRMETAR21.02018-10-19 15:05:16J°f)5    3SAZS 191500Z 09005KT 4000 -RA BR SCT018 BKN026 OVC035 05/03 Q1024SAZS2018-10-19T15:00:00Z-41.13-71.175.03.09052.4930.236221-RA BRIFRMETAR840.02018-10-19 15:05:168°e(u5   3SULS 191500Z 15013KT 110V180 9999 SCT017 19/10 Q1025SULS2018-10-19T15:00:00Z-34.87-55.119.010.0150136.2130.265747VFRMETAR30.02018-10-19 15:05:161°d(e5   3SUDU 191500Z 13010KT 9999 BKN026 21/13 Q1024SUDU2018-10-19T15:00:00Z-33.35-56.521.013.0130106.2130.236221MVFRMETAR93.02018-10-19 15:05:16 =S=:°m(s5   3SARP 191500Z 14010KT 9999 BKN020 OVC200 26/19 Q1017SARP2018-10-19T15:00:00Z-27.38-55.9726.019.0140106.2130.029528MVFRMETAR125.02018-10-19 15:05:16I°l) 5    3SASA 191500Z 32003KT 6000 -DZ FEW003 SCT015 OVC040 19/18 Q1022SASA2018-10-19T15:00:00Z-24.85-65.4719.018.032033.7330.177166-DZMVFRMETAR1216.02018-10-19 15:05:16E°k) 5    3SASJ 191500Z 00000KT 9999 -RA SCT015 SCT030 OVC045 22/18 Q1021SASJ2018-10-19T15:00:00Z-24.37-65.122.018.0006.2130.147638-RAVFRMETAR1167.02018-10-19 15:05:166°j(u5   3SAVC 191500Z 07013KT 020V120 9999 FEW040 10/02 Q1032SAVC2018-10-19T15:00:00Z-45.77-67.4710.02.070136.2130.47244VFRMETAR46.02018-10-19 15:05:16'°i(Y5   3SAWE 191500Z 07005KT CAVOK 08/04 Q1026SAWE2018-10-19T15:00:00Z-53.78-67.758.04.07056.2130.295275VFRMETAR22.02018-10-19 15:05:16 VI#VG°r) 5    3SANT 191500Z 14006KT 3000 -RA SCT005 SCT007 OVC040 21/20 Q1019SANT2018-10-19T15:00:00Z-26.85-65.0821.020.014061.8630.088583-RAIFRMETAR450.02018-10-19 15:05:162°q(e5   3SARC 191500Z 11012KT 9999 OVC020 25/21 Q1017SARC2018-10-19T15:00:00Z-27.43-58.7725.021.0110126.2130.029528MVFRMETAR62.02018-10-19 15:05:168°p(s5   3SARF 191500Z 11017KT 9999 FEW020 BKN100 28/21 Q1015SARF2018-10-19T15:00:00Z-26.22-58.2228.021.0110176.2129.970472VFRMETAR60.02018-10-19 15:05:16*°o(Y5   3SARI 191500Z 09008KT CAVOK 26/19 Q1015SARI2018-10-19T15:00:00Z-25.72-54.4726.019.09086.2129.970472VFRMETAR270.02018-10-19 15:05:161°n(e5   3SARL 191500Z 11016KT 9999 FEW020 25/16 Q1019SARL2018-10-19T15:00:00Z-29.67-57.1325.016.0110166.2130.088583VFRMETAR70.02018-10-19 15:05:16 'Dv'1°w(w5     3OPSK 191459Z 00000KT 4000 HZ NSC 25/16 QNH 1010 NOSIGOPSK2018-10-19T14:59:00Z27.7268.825.016.0002.49TRUEHZIFRMETAR58.02018-10-19 15:05:16T°v))5     3CYAT 191459Z AUTO /////KT 9SM -SN OVC003 00/ A2944 RMK WND MISG TD MISG SLP970CYAT2018-10-19T14:59:00Z52.93-82.430.09.029.438976997.0TRUE-SNLIFRSPECI9.02018-10-19 15:05:168°u(q5    3HECA 191500Z 33007KT 6000 SCT025 28/14 Q1012 NOSIGHECA2018-10-19T15:00:00Z30.1231.3828.014.033073.7329.88189TRUEMVFRMETAR74.02018-10-19 15:05:16H°t)5    3MHLM 191500Z 09004KT 9999 FEW025CB BKN080 26/23 Q1014 A2995 NOSIGMHLM2018-10-19T15:00:00Z15.45-87.9326.023.09046.2129.940945TRUEVFRMETAR26.02018-10-19 15:05:166°s(s5   3SAME 191500Z 09006KT 9999 BKN040 SCT100 16/12 Q1020SAME2018-10-19T15:00:00Z-32.82-68.7716.012.09066.2130.11811VFRMETAR704.02018-10-19 15:05:16 Alv°{)_5    3MHSC 191459Z 29001KT 9999 FEW007 BKN110 23/21 A3007 RMK AO2A SLPNO WND DATA ESTMD ALSTG/SLP ESTMD RVRNO $MHSC2018-10-19T14:59:00Z14.37-87.6223.021.029016.2130.070866TRUETRUEVFRMETAR626.02018-10-19 15:05:16Y°z)'5     3CYYW 191459Z AUTO 31007KT 9SM -RA SCT065 SCT076 OVC091 07/03 A2943 RMK SLP970CYYW2018-10-19T14:59:00Z50.3-88.97.03.031079.029.430119997.0TRUE-RAVFRSPECI351.02018-10-19 15:05:16O°y)5    3CBBC 191459Z AUTO 18002KT 9SM SCT012 OVC017 09/08 A3021 RMK SLP234CBBC2018-10-19T14:59:00Z52.18-128.159.08.018029.030.2096461023.4TRUEMVFRSPECI43.02018-10-19 15:05:169°x(s5     3OPNH 191459Z 00000KT 5000M FU NSC 29/12 Q1012 NOSIGOPNH2018-10-19T14:59:00Z26.2268.3729.012.0003.1129.88189TRUEFUMVFRMETAR38.02018-10-19 15:05:16 9ah°)+5    3KNOZ 191459Z AUTO 36011KT 10SM CLR 21/04 A3002 RMK AO2 SLP116 T02060039 53013 $KNOZ2018-10-19T14:59:00Z32.5-114.4520.63.93601110.030.020671011.6TRUETRUETRUEVFR1.3METAR103.02018-10-19 15:05:16X°~)5    3KNGU 191459Z 19004KT 10SM CLR 16/04 A3038 RMK AO2 SLP288 T01610044 58005KNGU2018-10-19T14:59:00Z36.92-76.2716.14.4190410.030.3809051028.8TRUEVFR-0.5METAR5.02018-10-19 15:05:16R°})5   3KAMN 191459Z AUTO 23010G17KT 10SM CLR 11/04 A3004 RMK AO2 T01050041KAMN2018-10-19T14:59:00Z43.32-84.6810.54.1230101710.030.041338TRUETRUEVFRMETAR230.02018-10-19 15:05:16A°|(5    3KJES 191459Z AUTO 00000KT 10SM OVC060 23/16 A3029 RMK AO2KJES2018-10-19T14:59:00Z31.55-81.8823.016.00010.030.28937TRUETRUEVFRMETAR33.02018-10-19 15:05:16 4c3±(q5   3KTIX 191458Z 10004KT 7SM BKN018 BKN035 28/24 A3021KTIX2018-10-19T14:58:00Z28.5-80.828.024.010047.030.209646MVFRMETAR11.02018-10-19 15:05:16J±)5    3YBHM 191458Z AUTO 11015KT 9999 // SCT017 23/21 Q1015 RF00.0/000.0YBHM2018-10-19T14:58:00Z-20.35148.9523.021.0110156.2129.970472TRUEVFRSPECI5.02018-10-19 15:05:16K±) 5    3KFFX 191458Z AUTO 22008KT 10SM CLR 13/06 A3001 RMK AO2 T01250062KFFX2018-10-19T14:58:00Z43.43-86.012.56.2220810.030.008858TRUETRUEVFRMETAR236.02018-10-19 15:05:16F±(5   3KDVP 191459Z AUTO 25019G25KT 10SM CLR 11/07 A2985 RMK AO2KDVP2018-10-19T14:59:00Z43.98-95.7811.07.0250192510.029.84941TRUETRUEVFRMETAR495.02018-10-19 15:05:16 Q&=Qf±)+5    3KBAB 191458Z AUTO 01003KT 10SM CLR 08/03 A3013 RMK AO2 SLP206 T00820026 52014 $KBAB2018-10-19T14:58:00Z39.12-121.428.22.610310.030.1299211020.6TRUETRUETRUEVFR1.4METAR34.02018-10-19 15:05:16c±)'5    3KHUA 191458Z AUTO 17006KT 10SM CLR 17/11 A3027 RMK AO2 SLP250 T01690110 50002KHUA2018-10-19T14:58:00Z34.68-86.6816.911.0170610.030.2687021025.0TRUETRUEVFR0.2METAR209.02018-10-19 15:05:16B±) 5   3MMMD 191458Z 08007KT 7SM BKN012 BKN080 29/24 A3003 RMK 8/530 CIMMMD2018-10-19T14:58:00Z20.95-89.6529.024.08077.030.029528MVFRMETAR10.02018-10-19 15:05:16 ±)c5     3KPOE 191458Z AUTO 10004KT 10SM CLR 20/13 A3020 RMK AO2 PK WND 23065/43 SLP227 P0061 60061 T02010132 50008 $KPOE2018-10-19T14:58:00Z31.05-93.220.113.2100410.030.2007871022.7TRUETRUETRUEVFR0.80.610.61METAR101.02018-10-19 15:05:16 J,5Je± )+5    3KSUU 191458Z AUTO 00000KT 10SM CLR 08/04 A3012 RMK AO2 SLP206 T00760042 52012 $KSUU2018-10-19T14:58:00Z38.27-121.927.64.20010.030.1210631020.6TRUETRUETRUEVFR1.2METAR19.02018-10-19 15:05:16q± )?5    3K4MR 191458Z AUTO 27009KT 10SM FEW075 FEW110 09/08 A3030 RMK AO2 SLP247 T00870076 53012 $K4MR2018-10-19T14:58:00Z34.3-103.88.77.6270910.030.3011821024.7TRUETRUETRUEVFR1.2METAR1326.02018-10-19 15:05:16c± ))5    3K9L2 191458Z AUTO 00000KT 10SM CLR 07/M12 A3019 RMK AO2 SLP219 T00701118 52013K9L22018-10-19T14:58:00Z34.97-117.877.0-11.80010.030.1889761021.9TRUETRUEVFR1.3METAR701.02018-10-19 15:05:16e±))5    3KAFF 191458Z AUTO 36008KT 10SM CLR 10/M02 A3036 RMK AO2 SLP256 T00951018 52024KAFF2018-10-19T14:58:00Z38.97-104.829.5-1.8360810.030.3602371025.6TRUETRUEVFR2.4METAR2003.02018-10-19 15:05:16 Y :Y[±)%5    3K1YT 191458Z AUTO 00000KT 10SM M 03/00 A3032 RMK AO2 SLPNO T00271003 52016 $K1YT2018-10-19T14:58:00Z46.67-120.452.7-0.30010.030.318897TRUETRUETRUE1.6METAR438.02018-10-19 15:05:16`±)%5    3KBKF 191458Z 24006KT 10SM FEW110 11/00 A3034 RMK AO2A SLP239 T01081004 52025KBKF2018-10-19T14:58:00Z39.72-104.7510.8-0.4240610.030.3395671023.9TRUEVFR2.5METAR1726.02018-10-19 15:05:16l± )-5    3KFEW 191458Z AUTO 31013KT 10SM CLR 10/M02 A3037 RMK AO2 SLP260 T00961020 52025 $KFEW2018-10-19T14:58:00Z41.13-104.879.6-2.03101310.030.3690951026.0TRUETRUETRUEVFR2.5METAR1878.02018-10-19 15:05:16h± )+5    3KLUF 191458Z AUTO 01009KT 10SM CLR 20/08 A3005 RMK AO2 SLP169 T01980075 52009 $KLUF2018-10-19T14:58:00Z33.52-112.3719.87.510910.030.0501981016.9TRUETRUETRUEVFR0.9METAR332.02018-10-19 15:05:16 8 8b±)%5    3KGXF 191458Z AUTO 35003KT 9SM CLR 19/12 A3003 RMK AO2 SLP161 T01850116 52009KGXF2018-10-19T14:58:00Z32.87-112.7218.511.635039.030.0295281016.1TRUETRUEVFR0.9METAR262.02018-10-19 15:05:16j±)+5    3KDMA 191458Z AUTO 13009KT 10SM CLR 16/10 A3008 RMK AO2 SLP159 T01620103 52008 $KDMA2018-10-19T14:58:00Z32.17-110.8716.210.3130910.030.0797251015.9TRUETRUETRUEVFR0.8METAR824.02018-10-19 15:05:16q±)35   3KCWN 191458Z AUTO 35011G18KT 10SM CLR 12/M07 A3031 RMK AO2 SLP141 T01161066 52024 $KCWN2018-10-19T14:58:00Z38.75-104.8511.6-6.6350111810.030.310041014.1TRUETRUETRUEVFR2.4METAR2040.02018-10-19 15:05:16s±)?5    3KCVS 191458Z AUTO 26008KT 10SM FEW005 OVC110 09/07 A3030 RMK AO2 SLP248 T00930072 52013 $KCVS2018-10-19T14:58:00Z34.37-103.329.37.2260810.030.3011821024.8TRUETRUETRUEVFR1.3METAR1309.02018-10-19 15:05:16 A''A`±)#5    3KSKA 191458Z 11005KT 10SM CLR 01/01 A3034 RMK AO2A SLP290 T00140014 52014 $KSKA2018-10-19T14:58:00Z47.62-117.651.41.4110510.030.3395671029.0TRUETRUEVFR1.4METAR750.02018-10-19 15:05:16z±)Q5     3KTCM 191458Z 13003KT M1/8SM R16/0800V1200FT FG VV000 06/06 A3028 RMK AO2A SLP259 T00600060 52012 $KTCM2018-10-19T14:58:00Z47.12-122.476.06.013030.1330.2805121025.9TRUETRUEFGLIFR1.20METAR98.02018-10-19 15:05:16d±)+5    3KHEY 191458Z AUTO 15006KT 9SM OVC015 23/19 A3026 RMK AO2 SLP247 T02280189 51008KHEY2018-10-19T14:58:00Z31.35-85.6522.818.915069.030.2598421024.7TRUETRUEMVFR0.8METAR97.02018-10-19 15:05:16i±)+5    3KFCS 191458Z AUTO 36006KT 10SM CLR 10/00 A3033 RMK AO2 SLP271 T01020000 52024 $KFCS2018-10-19T14:58:00Z38.67-104.7710.20.0360610.030.330711027.1TRUETRUETRUEVFR2.4METAR1789.02018-10-19 15:05:16 & &Z±)!5    3KEDW 191458Z 00000KT 90SM CLR 09/M09 A3018 RMK AO2A SLP215 T00881092 52012KEDW2018-10-19T14:58:00Z34.88-117.878.8-9.20090.030.1801191021.5TRUEVFR1.2METAR702.02018-10-19 15:05:16±)m5      3KHLR 191458Z AUTO 01006KT 5/8SM RA BR FEW007 OVC038 14/13 A3019 RMK AO2 SLP220 P0053 60053 T01400134 53012 RVRNOKHLR2018-10-19T14:58:00Z31.13-97.7214.013.41060.6330.1889761022.0TRUETRUERA BRLIFR1.20.530.53METAR283.02018-10-19 15:05:16h±)-5    3KINS 191458Z AUTO 00000KT 10SM CLR 08/M05 A3027 RMK AO2 SLP232 T00831049 52013 $KINS2018-10-19T14:58:00Z36.58-115.678.3-4.90010.030.2687021023.2TRUETRUETRUEVFR1.3METAR955.02018-10-19 15:05:16m±)35    3KRIV 191458Z AUTO 32003KT 10SM CLR 19/01 A3006 RMK AO2 SLP171 T01940014 53008 PNO $KRIV2018-10-19T14:58:00Z33.87-117.2719.41.4320310.030.0590551017.1TRUETRUETRUEVFR0.8METAR469.02018-10-19 15:05:16 &g±)95    3KFHU 191458Z 00000KT 10SM BKN003 10/09 A3020 RMK AO2A BKN V SCT SLP194 T00950091 52009KFHU2018-10-19T14:58:00Z31.58-110.359.59.10010.030.2007871019.4TRUELIFR0.9METAR1438.02018-10-19 15:05:16±)5      3KGRK 191458Z AUTO 35005KT 7SM RA FEW006 BKN029 OVC044 14/13 A3021 RMK AO2 VIS 3/4 RWY15 SLP228 P0025 60027 T01410134 52010KGRK2018-10-19T14:58:00Z31.07-97.8314.113.435057.030.2096461022.8TRUETRUERAMVFR1.00.250.27METAR309.02018-10-19 15:05:16h±)+5    3KMUO 191458Z AUTO 12006KT 10SM CLR 03/01 A3037 RMK AO2 SLP293 T00280013 52019 $KMUO2018-10-19T14:58:00Z43.03-115.872.81.3120610.030.3690951029.3TRUETRUETRUEVFR1.9METAR913.02018-10-19 15:05:16f±)-5    3KLOR 191458Z AUTO 11005KT 10SM OVC015 23/19 A3027 RMK AO2 SLP232 T02290193 51009KLOR2018-10-19T14:58:00Z31.35-85.7522.919.3110510.030.2687021023.2TRUETRUEMVFR0.9METAR74.02018-10-19 15:05:16 s±")=5    3PAFB 191458Z AUTO 08004KT 10SM CLR M01/M03 A2953 RMK AO2 PRESFR SLP007 T10071034 57054 $PAFB2018-10-19T14:58:00Z64.83-147.62-0.7-3.480410.029.5305121000.7TRUETRUETRUEVFR-5.4METAR137.02018-10-19 15:05:16&±!) 5     3PASY 191458Z AUTO 23003KT 2 1/4SM BR SCT011 SCT019 BKN025 OVC032 06/05 A2927 RMK AO2 RAE12 SLP915 P0001 60002 T00640052 57016 $PASY2018-10-19T14:58:00Z52.72174.126.45.223032.2529.27067991.5TRUETRUETRUEBROVC3200IFR-1.60.010.02METAR31.02018-10-19 15:05:16[± )5    3PWAK 191458Z AUTO 08017KT 9999 SCT016 27/24 A2992 RMK AO2 SLP138 57011PWAK2018-10-19T14:58:00Z19.28166.6527.024.080176.2129.9202751013.8TRUETRUEVFR-1.1METAR4.02018-10-19 15:05:16 V$EVi±&)+5    3K1DW 191458Z AUTO 33015KT 10SM CLR 10/00 A3032 RMK AO2 SLP243 T00990003 52030 $K1DW2018-10-19T14:58:00Z41.37-103.89.90.33301510.030.3188971024.3TRUETRUETRUEVFR3.0METAR1546.02018-10-19 15:05:16Y±%)5    3KAPG 191458Z 24008KT 10SM SCT250 13/04 A3033 RMK SLP274 T01270038 58015 $KAPG2018-10-19T14:58:00Z39.47-76.1712.73.8240810.030.330711027.4TRUEVFR-1.5METAR18.02018-10-19 15:05:16i±$);5    3PAFR 191458Z AUTO 00000KT 10SM OVC110 02/01 A2910 RMK AO2 PRESFR SLP862 T00200014 57098PAFR2018-10-19T14:58:00Z61.27-149.652.01.40010.029.09941986.2TRUETRUEVFR-9.8METAR115.02018-10-19 15:05:16g±#)-5    3KSXS 191458Z AUTO 14008KT 10SM OVC013 23/19 A3026 RMK AO2 SLP246 T02260189 51008KSXS2018-10-19T14:58:00Z31.37-85.8522.618.9140810.030.2598421024.6TRUETRUEMVFR0.8METAR122.02018-10-19 15:05:16 Y/<Y]±*)!5    3KMEI 191458Z 00000KT 10SM CLR 19/13 A3025 RMK AO2 SLP243 T01940128 53005 $KMEI2018-10-19T14:58:00Z32.33-88.7519.412.80010.030.2509841024.3TRUETRUEVFR0.5METAR89.02018-10-19 15:05:16m±))15    3KBIF 191458Z AUTO 01009KT 10SM OVC019 12/10 A3027 RMK AO2 SLP221 T01210098 53010 $KBIF2018-10-19T14:58:00Z31.85-106.3812.19.810910.030.2687021022.1TRUETRUETRUEMVFR1.0METAR1203.02018-10-19 15:05:16`±()'5    3KMRH 191458Z AUTO 08006KT 10SM CLR 19/11 A3037 RMK AO2 SLP284 T01890106 58000KMRH2018-10-19T14:58:00Z34.73-76.6518.910.680610.030.3690951028.4TRUETRUEVFR0.0METAR3.02018-10-19 15:05:16e±')-5    3K0J4 191458Z AUTO 11006KT 10SM OVC007 22/18 A3028 RMK AO2 SLP251 T02170183 51011K0J42018-10-19T14:58:00Z31.05-86.3221.718.3110610.030.2805121025.1TRUETRUEIFR1.1METAR96.02018-10-19 15:05:16 |/3m|k±.)35    3CZSJ 191457Z AUTO 32015G21KT 9SM -RASN FEW011 BKN029 OVC043 01/M01 A2957 RMK SLP030CZSJ2018-10-19T14:57:00Z53.07-93.351.0-1.032015219.029.5688971003.0TRUE-RA -SNMVFRSPECI290.02018-10-19 15:05:16@±-(y5    3K4I3 191458Z AUTO 19004KT 10SM CLR 08/03 A3024 RMK AO2K4I32018-10-19T14:58:00Z40.33-82.538.03.0190410.030.239174TRUETRUEVFRMETAR363.02018-10-19 15:05:16v±,)K5      3KBMQ 191458Z AUTO 36004KT 1 1/4SM +RA BR OVC009 14/14 A3024 RMK AO2 VIS 1V2 1/2 P0004 T01440139KBMQ2018-10-19T14:58:00Z30.73-98.2314.413.936041.2530.239174TRUETRUE+RA BRIFR0.04METAR389.02018-10-19 15:05:16K±+) 5    3KTTF 191458Z AUTO 24009KT 10SM CLR 09/01 A3014 RMK AO2 T00920014KTTF2018-10-19T14:58:00Z41.93-83.429.21.4240910.030.138779TRUETRUEVFRMETAR188.02018-10-19 15:05:16 uAIuN±2)5   3KXVG 191457Z AUTO 31008G14KT 280V330 10SM CLR 11/04 A2970 RMK AO2KXVG2018-10-19T14:57:00Z46.98-94.211.04.031081410.029.698818TRUETRUEVFRMETAR407.02018-10-19 15:05:16r±1)A5    3PHNG 191457Z AUTO 00000KT 10SM FEW022 FEW028 24/22 A2988 RMK AO2 SLP113 T02440222 55007 $ PHNG2018-10-19T14:57:00Z21.43-157.7724.422.20010.029.8789371011.3TRUETRUETRUEVFR-0.7METAR3.02018-10-19 15:05:16R±0)5    3KNYL 191457Z 02005KT 7SM CLR 21/04 A3002 RMK AO2 SLP163 T02060044 $KNYL2018-10-19T14:57:00Z32.63-114.6220.64.42057.030.020671016.3TRUETRUEVFRMETAR65.02018-10-19 15:05:16a±/)%5   3KFLG 191457Z 06015G21KT 10SM CLR 06/M01 A3034 RMK AO2 SLP235 T00561011 53009KFLG2018-10-19T14:57:00Z35.13-111.675.6-1.160152110.030.3395671023.5TRUEVFR0.9METAR2134.02018-10-19 15:05:16 5NK±6) 5    3KHAI 191457Z AUTO 22010KT 10SM CLR 10/01 A3013 RMK AO2 T00950013KHAI2018-10-19T14:57:00Z41.97-85.69.51.32201010.030.129921TRUETRUEVFRMETAR251.02018-10-19 15:05:16G±5(5   3KJMR 191457Z AUTO 24010G16KT 10SM CLR 12/07 A2972 RMK AO2KJMR2018-10-19T14:57:00Z45.88-93.2712.07.0240101610.029.719488TRUETRUEVFRMETAR309.02018-10-19 15:05:16a±4)'5    3KEAR 191457Z AUTO 26009KT 10SM CLR 11/08 A3007 RMK AO2 SLP179 T01110078 53012KEAR2018-10-19T14:57:00Z40.72-99.011.17.8260910.030.0708661017.9TRUETRUEVFR1.2METAR649.02018-10-19 15:05:16E±3)5    3K14Y 191457Z AUTO 31011G17KT CLR 11/06 A2977 RMK AO2 PWINOK14Y2018-10-19T14:57:00Z45.9-94.8711.06.0310111729.769686TRUETRUETRUEMETAR406.02018-10-19 15:05:16 Y!=Y^±:)%5     3CYNA 191457Z AUTO 32012KT 1 1/4SM -SN FEW008 OVC019 M01/M02 A2978 RMK SLP087CYNA2018-10-19T14:57:00Z50.17-61.82-1.0-2.0320121.2529.7785431008.7TRUE-SNIFRSPECI11.02018-10-19 15:05:16^±9)!5    3KNTD 191457Z 04012KT 10SM CLR 21/01 A3003 RMK AO2 SLP169 T02060011 53007 $KNTD2018-10-19T14:57:00Z34.12-119.1220.61.1401210.030.0295281016.9TRUETRUEVFR0.7METAR4.02018-10-19 15:05:16_±8)5     3KNSI 191457Z AUTO 30009KT 10SM CLR 21/ A3002 RMK AO2 SLP161 T0206 51007 $KNSI2018-10-19T14:57:00Z33.22-119.4520.6300910.030.020671016.1TRUETRUETRUEVFR0.7METAR154.02018-10-19 15:05:16t±7)?5    3PAJC 191457Z AUTO 26009G20KT 10SM OVC025 07/02 A2942 RMK AO2 SLP964 60001 T00670022 56016PAJC2018-10-19T14:57:00Z56.32-158.376.72.226092010.029.421259996.4TRUETRUEMVFR-1.60.01METAR15.02018-10-19 15:05:16 PYF±>(5   3KNY0 191457Z AUTO 27013G16KT 10SM CLR 08/02 A3013 RMK AO2KNY02018-10-19T14:57:00Z42.98-74.338.02.0270131610.030.129921TRUETRUEVFRMETAR271.02018-10-19 15:05:16K±=)5     3KSFY 191457Z AUTO 21003KT 10SM -RA OVC075 09/06 A3005 RMK AO2KSFY2018-10-19T14:57:00Z42.05-90.129.06.0210310.030.050198TRUETRUE-RAVFRMETAR188.02018-10-19 15:05:16q±<)?5    3KNJM 191457Z AUTO 10008KT 10SM CLR 19/11 A3037 RMK AO2 SLP289 6//// T01890106 58000 PNO $KNJM2018-10-19T14:57:00Z34.67-77.0218.910.6100810.030.3690951028.9TRUETRUETRUEVFR0.0METAR7.02018-10-19 15:05:16*±;(_5   3KRHV 191457Z 00000KT 10SM SKC 10/09 A3012KRHV2018-10-19T14:57:00Z37.32-121.8210.09.00010.030.121063VFRMETAR41.02018-10-19 15:05:16 9tzi±B);5    3KBVX 191456Z AUTO 00000KT 10SM SCT055 OVC085 11/07 A3029 RMK AO2 SLP259 T01060067 51011KBVX2018-10-19T14:56:00Z35.73-91.6510.66.70010.030.289371025.9TRUETRUEVFR1.1METAR141.02018-10-19 15:05:16t±A)C5     3KHST 191457Z AUTO 06011KT 10SM SCT026 30/23 A3016 RMK AO2 DZE57 SLP216 FZRANO VISNO RWY24 $KHST2018-10-19T14:57:00Z25.47-80.3730.023.0601110.030.1594491021.6TRUETRUETRUETRUEVFRMETAR2.02018-10-19 15:05:16?±@(y5    3KHZR 191457Z AUTO 00000KT 10SM CLR 22/13 A3023 RMK AO2KHZR2018-10-19T14:57:00Z30.72-91.4822.013.00010.030.230314TRUETRUEVFRMETAR12.02018-10-19 15:05:16A±?(y5    3KMTV 191457Z AUTO 21004KT 10SM CLR 13/07 A3037 RMK AO2KMTV2018-10-19T14:57:00Z36.63-80.0213.07.0210410.030.369095TRUETRUEVFRMETAR287.02018-10-19 15:05:16 g)2Wgj±F)+5    3KCGZ 191456Z AUTO 06011KT 10SM CLR 19/11 A3007 RMK AO2 SLP173 T01940106 53006 $KCGZ2018-10-19T14:56:00Z32.95-111.7719.410.6601110.030.0708661017.3TRUETRUETRUEVFR0.6METAR446.02018-10-19 15:05:16U±E)5    3KSLI 191456Z 33006KT 10SM CLR 15/09 A3000 RMK AO2A SLP162 T01470086 52008KSLI2018-10-19T14:56:00Z33.77-118.0314.78.6330610.030.01016.2TRUEVFR0.8METAR11.02018-10-19 15:05:16q±D)?5    3KVAD 191456Z AUTO 10006KT 10SM FEW049 BKN060 23/17 A3027 RMK AO2 SLP251 T02250174 52009 $KVAD2018-10-19T14:56:00Z30.97-83.222.517.4100610.030.2687021025.1TRUETRUETRUEVFR0.9METAR71.02018-10-19 15:05:16Q±C)5   3MUGM 191456Z 09004KT 9999 FEW035 32/23 A3003 RMK SLP169 T03170228 51012MUGM2018-10-19T14:56:00Z19.9-75.231.722.89046.2130.0295281016.9VFR1.2METAR17.02018-10-19 15:05:16 I1Ib±J)'5    3KBTP 191456Z AUTO 22004KT 10SM CLR 08/01 A3026 RMK AO2 SLP261 T00830006 58016KBTP2018-10-19T14:56:00Z40.77-79.958.30.6220410.030.2598421026.1TRUETRUEVFR-1.6METAR380.02018-10-19 15:05:16^±I)#5    3KBMI 191456Z 21014KT 10SM OVC085 10/03 A3016 RMK AO2 SLP241 T01000028 58017KBMI2018-10-19T14:56:00Z40.47-88.9210.02.82101410.030.1594491024.1TRUEVFR-1.7METAR267.02018-10-19 15:05:16v±H)A5      3KBOK 191456Z AUTO 05003KT 3/4SM BR OVC003 08/08 A3022 RMK AO2 SLP248 60000 T00780078 51007KBOK2018-10-19T14:56:00Z42.07-124.287.87.85030.7530.2214571024.8TRUETRUEBRLIFR0.70.005METAR140.02018-10-19 15:05:16i±G)-5   3KCIU 191456Z AUTO 24014G19KT 10SM CLR 13/07 A2974 RMK AO2 SLP100 T01330072 58028KCIU2018-10-19T14:56:00Z46.25-84.4713.37.2240141910.029.7401581010.0TRUETRUEVFR-2.8METAR244.02018-10-19 15:05:16 ^*^F±N(5   3KFFM 191456Z AUTO 34015G19KT 10SM CLR 09/03 A2986 RMK AO2KFFM2018-10-19T14:56:00Z46.28-96.159.03.0340151910.029.861221TRUETRUEVFRMETAR361.02018-10-19 15:05:16a±M)'5    3KFCI 191456Z AUTO 18006KT 10SM CLR 14/07 A3036 RMK AO2 SLP302 T01440067 58007KFCI2018-10-19T14:56:00Z37.4-77.5214.46.7180610.030.3602371030.2TRUETRUEVFR-0.7METAR72.02018-10-19 15:05:16|±L)I5      3KFAM 191456Z AUTO 10SM -RA OVC060 11/05 A3025 RMK AO2 RAB50 SLP246 P0000 60000 T01060050 50001KFAM2018-10-19T14:56:00Z37.77-90.4210.65.010.030.2509841024.6TRUETRUE-RAVFR0.10.0050.005METAR288.02018-10-19 15:05:16g±K)-5    3KEWK 191456Z AUTO 22012KT 10SM OVC005 12/11 A3016 RMK AO2 SLP211 T01170106 55000KEWK2018-10-19T14:56:00Z38.03-97.2711.710.62201210.030.1594491021.1TRUETRUEIFR0.0METAR467.02018-10-19 15:05:16 B(B`±R)'5    3K7N0 191456Z AUTO 08006KT 10SM CLR 24/18 A3022 RMK AO2 SLP232 T02390183 50010K7N02018-10-19T14:56:00Z29.95-90.0723.918.380610.030.2214571023.2TRUETRUEVFR1.0METAR0.02018-10-19 15:05:16b±Q)'5    3K1M4 191456Z AUTO 17008KT 10SM CLR 18/12 A3030 RMK AO2 SLP281 T01780122 51004K1M42018-10-19T14:56:00Z34.28-87.617.812.2170810.030.3011821028.1TRUETRUEVFR0.4METAR284.02018-10-19 15:05:16±P)Y5      3KFLP 191456Z AUTO 00000KT 10SM RA BKN037 OVC070 09/07 A3030 RMK AO2 SLP261 P0011 60012 T00890072 50015KFLP2018-10-19T14:56:00Z36.28-92.588.97.20010.030.3011821026.1TRUETRUERAVFR1.50.110.12METAR219.02018-10-19 15:05:16b±O)'5    3KFKL 191456Z AUTO 22007KT 10SM CLR 07/00 A3023 RMK AO2 SLP248 T00720000 58015KFKL2018-10-19T14:56:00Z41.37-79.877.20.0220710.030.2303141024.8TRUETRUEVFR-1.5METAR469.02018-10-19 15:05:16 e±U)?5   3ROTM 191456Z VRB04KT 9999 SCT040 BKN140 18/16 A3014 RMK SLP194 STNPR29840 T01840156 58003ROTM2018-10-19T14:56:00Z26.27127.7518.415.6046.2130.1387791019.4VFR-0.3METAR75.02018-10-19 15:05:16±T)[5     3KFOD 191456Z AUTO 22013KT 10SM FEW014 12/10 A2995 RMK AO2 RAB1359E09 SLP169 P0000 60003 T01220100 57002KFOD2018-10-19T14:56:00Z42.53-94.1712.210.02201310.029.9498021016.9TRUETRUEVFR-0.20.0050.03METAR355.02018-10-19 15:05:16s±S)?5    3KFNL 191456Z AUTO 02004KT 10SM CLR 10/01 A3032 RMK AO2 SLP246 6//// T01000006 53027 PNO $KFNL2018-10-19T14:56:00Z40.45-105.0210.00.620410.030.3188971024.6TRUETRUETRUEVFR2.7METAR1529.02018-10-19 15:05:16 ?+?f±Y)-5    3KGBD 191456Z AUTO 22012KT 10SM FEW013 13/09 A3014 RMK AO2 SLP204 T01280094 53003KGBD2018-10-19T14:56:00Z38.35-98.8712.89.42201210.030.1387791020.4TRUETRUEVFR0.3METAR575.02018-10-19 15:05:16b±X)'5    3KGAI 191456Z AUTO 23007KT 10SM CLR 13/04 A3033 RMK AO2 SLP304 T01280044 58011KGAI2018-10-19T14:56:00Z39.17-77.1712.84.4230710.030.330711030.4TRUETRUEVFR-1.1METAR165.02018-10-19 15:05:16e±W)-5    3KGAD 191456Z AUTO 06005KT 10SM OVC020 16/13 A3031 RMK AO2 SLP268 T01610128 50002KGAD2018-10-19T14:56:00Z33.97-86.0716.112.860510.030.310041026.8TRUETRUEMVFR0.2METAR173.02018-10-19 15:05:16|±V)K5   3KFRM 191456Z AUTO 23014G21KT 10SM OVC012 12/09 A2985 RMK AO2 SLP113 6//// T01220094 56010 PNO $KFRM2018-10-19T14:56:00Z43.63-94.4212.29.4230142110.029.849411011.3TRUETRUETRUEMVFR-1.0METAR354.02018-10-19 15:05:16 ">"±]){5      3KGTU 191456Z 36005KT 5SM -RA BR FEW003 BKN012 BKN026 15/14 A3023 RMK AO2 CIG 007V019 SLP233 P0010 60018 T01500144 51010KGTU2018-10-19T14:56:00Z30.68-97.6815.014.436055.030.2303141023.3TRUE-RA BRMVFR1.00.10.18METAR240.02018-10-19 15:05:16Y±\)5    3KGTR 191456Z 15005KT 10SM CLR 18/13 A3027 RMK AO2 SLP252 T01780128 50007KGTR2018-10-19T14:56:00Z33.45-88.5717.812.8150510.030.2687021025.2TRUEVFR0.7METAR80.02018-10-19 15:05:16s±[)?5    3KGPZ 191456Z AUTO 29013KT 10SM CLR 11/06 A2968 RMK AO2 SLP054 6//// T01110056 53005 PNO $KGPZ2018-10-19T14:56:00Z47.22-93.5211.15.62901310.029.6811031005.4TRUETRUETRUEVFR0.5METAR413.02018-10-19 15:05:16d±Z))5    3KGDV 191456Z AUTO 31009KT 10SM CLR 09/M01 A3027 RMK AO2 SLP261 T00891011 51033KGDV2018-10-19T14:56:00Z47.12-104.788.9-1.1310910.030.2687021026.1TRUETRUEVFR3.3METAR749.02018-10-19 15:05:16 j$<Rjb±a)'5    3PHBK 191456Z AUTO 08005KT 10SM CLR 22/18 A2989 RMK AO2 SLP123 T02170178 55008PHBK2018-10-19T14:56:00Z22.03-159.7821.717.880510.029.8907471012.3TRUETRUEVFR-0.8METAR8.02018-10-19 15:05:16d±`)%5    3KPRN 191456Z AUTO 17005KT 10SM OVC011 23/18 A3026 RMK AO2 SLP241 T02330183 $KPRN2018-10-19T14:56:00Z31.85-86.6223.318.3170510.030.2598421024.1TRUETRUETRUEMVFRMETAR138.02018-10-19 15:05:16b±_)15    3KNCA 191456Z 05005KT 10SM FEW030 FEW200 18/10 A3036 RMK AO2 SLP284 T01830100 58001KNCA2018-10-19T14:56:00Z34.72-77.4518.310.050510.030.3602371028.4TRUEVFR-0.1METAR8.02018-10-19 15:05:16V±^)5    3KNTU 191456Z VRB03KT 10SM CLR 16/05 A3037 RMK AO2 SLP285 T01560050 58003KNTU2018-10-19T14:56:00Z36.82-76.0215.65.00310.030.3690951028.5TRUEVFR-0.3METAR7.02018-10-19 15:05:16 J-LJ|±e)W5     3KJRB 191456Z AUTO 27011KT 10SM CLR 12/02 A3029 RMK AO2 PK WND 29040/1358 SLP255 60004 T01170017 58017KJRB2018-10-19T14:56:00Z40.7-74.0211.71.72701110.030.289371025.5TRUETRUEVFR-1.70.04METAR7.02018-10-19 15:05:16[±d)#5    3KISM 191456Z 08007KT 10SM SCT035 28/24 A3022 RMK AO2 SLP235 T02780239 50013KISM2018-10-19T14:56:00Z28.28-81.4327.823.980710.030.2214571023.5TRUEVFR1.3METAR25.02018-10-19 15:05:16j±c)15     3KALK 191456Z AUTO 08012KT 6SM BR BKN002 10/09 A3020 RMK AO2 SLP170 T01000089 53008KALK2018-10-19T14:56:00Z31.6-110.4310.08.980126.030.2007871017.0TRUETRUEBRLIFR0.8METAR1453.02018-10-19 15:05:16]±b)!5    3KNRS 191456Z 04006KT 10SM CLR 18/03 A3001 RMK AO2 SLP160 T01780028 53010 $KNRS2018-10-19T14:56:00Z32.57-117.1217.82.840610.030.0088581016.0TRUETRUEVFR1.0METAR7.02018-10-19 15:05:16 A5 AY±i)5    3KITH 191456Z 20009KT 10SM CLR 11/02 A3015 RMK AO2 SLP217 T01060022 58020KITH2018-10-19T14:56:00Z42.47-76.4510.62.2200910.030.150591021.7TRUEVFR-2.0METAR335.02018-10-19 15:05:16±h)o5   3KIWD 191456Z AUTO 23015G24KT 10SM OVC028 12/08 A2965 RMK AO2 PK WND 24026/1426 SLP042 6//// T01220078 58024 PNO $KIWD2018-10-19T14:56:00Z46.52-90.1212.27.8230152410.029.6486231004.2TRUETRUETRUEMVFR-2.4METAR375.02018-10-19 15:05:16]±g)!5    3KJAC 191456Z 02003KT 10SM CLR M02/M05 A3048 RMK AO2 SLP360 T10221050 51016KJAC2018-10-19T14:56:00Z43.62-110.73-2.2-5.020310.030.4812981036.0TRUEVFR1.6METAR1961.02018-10-19 15:05:16b±f)'5    3KJHW 191456Z AUTO 21009KT 10SM CLR 07/01 A3017 RMK AO2 SLP234 T00720006 58018KJHW2018-10-19T14:56:00Z42.13-79.277.20.6210910.030.1712591023.4TRUETRUEVFR-1.8METAR525.02018-10-19 15:05:16 Q,CQl±m)15    3KMXF 191456Z AUTO 10003KT 10SM OVC017 21/15 A3026 RMK AO2 SLP249 T02110154 50007 $KMXF2018-10-19T14:56:00Z32.37-86.3721.115.4100310.030.2598421024.9TRUETRUETRUEMVFR0.7METAR51.02018-10-19 15:05:16c±l))5    3KMHS 191456Z AUTO 00000KT 10SM CLR 03/M01 A3030 RMK AO2 SLP284 T00281011 53010KMHS2018-10-19T14:56:00Z41.32-122.322.8-1.10010.030.3011821028.4TRUETRUEVFR1.0METAR1078.02018-10-19 15:05:16d±k)15     3KKLS 191456Z AUTO 03004KT 1SM BR OVC003 07/07 A3029 RMK AO2 SLP262 T00720072 53008KKLS2018-10-19T14:56:00Z46.12-122.97.27.23041.030.289371026.2TRUETRUEBRLIFR0.8METAR5.02018-10-19 15:05:16d±j)'5    3KLBL 191456Z AUTO 31011KT 10SM CLR 11/08 A3019 RMK AO2 SLP219 T01110078 53012KLBL2018-10-19T14:56:00Z37.03-100.9711.17.83101110.030.1889761021.9TRUETRUEVFR1.2METAR879.02018-10-19 15:05:16 !!l±q)15    3KGUS 191456Z AUTO 22010KT 10SM OVC140 10/03 A3017 RMK AO2 SLP224 T00970030 57018 $KGUS2018-10-19T14:56:00Z40.63-86.159.73.02201010.030.1712591022.4TRUETRUETRUEVFR-1.8METAR247.02018-10-19 15:05:16~±p)E5      3KHOP 191456Z AUTO 21004KT 10SM CLR 14/06 A3026 RMK AO2 SLP249 60000 T01360062 55005 FZRANO $KHOP2018-10-19T14:56:00Z36.67-87.513.66.2210410.030.2598421024.9TRUETRUETRUETRUEVFR-0.50.005METAR174.02018-10-19 15:05:16u±o)?5     3KMCF 191456Z AUTO 11005KT 10SM FEW018 29/23 A3020 RMK AO2 SLP230 T02860228 50012 FZRANO $KMCF2018-10-19T14:56:00Z27.85-82.5228.622.8110510.030.2007871023.0TRUETRUETRUETRUEVFR1.2METAR4.02018-10-19 15:05:16h±n)+5    3KMUI 191456Z AUTO 21007KT 10SM CLR 11/02 A3029 RMK AO2 SLP263 T01050021 58014 $KMUI2018-10-19T14:56:00Z40.42-76.5710.52.1210710.030.289371026.3TRUETRUETRUEVFR-1.4METAR149.02018-10-19 15:05:16 ,)2,±u)W5     3KBLV 191456Z AUTO 20006KT 6SM HZ BKN075 11/05 A3021 RMK AO2 VIS 1 7/8 RWY32R SLP235 T01080047 55010 $KBLV2018-10-19T14:56:00Z38.53-89.8310.84.720066.030.2096461023.5TRUETRUETRUEHZVFR-1.0METAR138.02018-10-19 15:05:16q±t)55     3KDAA 191456Z AUTO 18005KT 10SM CLR 13/08 A3034 RMK AO2 SLP278 T01330079 58010 TSNO $KDAA2018-10-19T14:56:00Z38.72-77.1713.37.9180510.030.3395671027.8TRUETRUETRUETRUEVFR-1.0METAR21.02018-10-19 15:05:16h±s)+5    3KDOV 191456Z AUTO 23010KT 10SM CLR 14/03 A3034 RMK AO2 SLP277 T01370029 57011 $KDOV2018-10-19T14:56:00Z39.12-75.4713.72.92301010.030.3395671027.7TRUETRUETRUEVFR-1.1METAR9.02018-10-19 15:05:16c±r)'5    3KFTK 191456Z AUTO 18004KT 10SM CLR 12/05 A3026 RMK AO2 SLP253 T01170049 57014KFTK2018-10-19T14:56:00Z37.88-85.9711.74.9180410.030.2598421025.3TRUETRUEVFR-1.4METAR230.02018-10-19 15:05:16 u±x)?5     3KSVN 191456Z AUTO 02004KT 10SM BKN060 20/15 A3027 RMK AO2 SLP253 T02010149 50005 FZRANO $KSVN2018-10-19T14:56:00Z32.02-81.1520.114.920410.030.2687021025.3TRUETRUETRUETRUEVFR0.5METAR13.02018-10-19 15:05:16±w)m5     3KXMR 191456Z AUTO 10010KT 10SM SCT029 SCT034 29/24 A3019 RMK AO2 RAB1356E10 SLP226 P0002 60002 T02880237 51013 $KXMR2018-10-19T14:56:00Z28.47-80.5728.823.71001010.030.1889761022.6TRUETRUETRUEVFR1.30.020.02METAR3.02018-10-19 15:05:16u±v)95     3BGTL 191456Z AUTO 12010KT 9999 CLR M14/M16 A2966 RMK AO2 SLP032 T11391159 55000 TSNO $BGTL2018-10-19T14:56:00Z76.53-68.7-13.9-15.9120106.2129.6604331003.2TRUETRUETRUETRUEVFR0.0METAR77.02018-10-19 15:05:16 L)<Lj±|)15    3KLHW 191456Z AUTO 02004KT 10SM OVC060 19/13 A3028 RMK AO2 SLP257 T01870131 50007 $KLHW2018-10-19T14:56:00Z31.87-81.5718.713.120410.030.2805121025.7TRUETRUETRUEVFR0.7METAR14.02018-10-19 15:05:16g±{)75    3KLRF 191456Z 00000KT 10SM BKN080 BKN150 11/08 A3027 RMK AO2A SLP254 T01130078 52010 $KLRF2018-10-19T14:56:00Z34.92-92.1511.37.80010.030.2687021025.4TRUETRUEVFR1.0METAR95.02018-10-19 15:05:16c±z)-5    3KLSF 191456Z AUTO 07005KT 10SM OVC050 20/14 A3029 RMK AO2 SLP261 T02040141 50006KLSF2018-10-19T14:56:00Z32.32-84.9720.414.170510.030.289371026.1TRUETRUEVFR0.6METAR71.02018-10-19 15:05:16h±y)+5    3KPOB 191456Z AUTO 10003KT 10SM CLR 16/08 A3037 RMK AO2 SLP287 T01590084 58003 $KPOB2018-10-19T14:56:00Z35.17-79.0215.98.4100310.030.3690951028.7TRUETRUETRUEVFR-0.3METAR66.02018-10-19 15:05:16 #"²)c5     3KWRB 191456Z 06004KT 7SM OVC006 14/13 A3032 RMK AO2A DZE02 CIG 005 RWY33 SLP269 P0000 60000 T01390131 51009KWRB2018-10-19T14:56:00Z32.62-83.5813.913.16047.030.3188971026.9TRUEIFR0.90.0050.005METAR90.02018-10-19 15:05:16{±)O5    3KWRI 191456Z AUTO 26010KT 10SM CLR 13/01 A3027 RMK AO2 SLP251 T01320009 58014 RVRNO VISNO RWY06 $KWRI2018-10-19T14:56:00Z40.02-74.5813.20.92601010.030.2687021025.1TRUETRUETRUEVFR-1.4METAR41.02018-10-19 15:05:16k±~)15    3KCBM 191456Z AUTO 14003KT 10SM FEW220 18/12 A3026 RMK AO2 SLP249 T01750122 50005 $KCBM2018-10-19T14:56:00Z33.63-88.4517.512.2140310.030.2598421024.9TRUETRUETRUEVFR0.5METAR67.02018-10-19 15:05:16f±})+5    3KGSB 191456Z AUTO 00000KT 10SM CLR 16/09 A3036 RMK AO2 SLP284 T01620087 58001 $KGSB2018-10-19T14:56:00Z35.32-77.9716.28.70010.030.3602371028.4TRUETRUETRUEVFR-0.1METAR33.02018-10-19 15:05:16 ²)M5      3KTBN 191456Z AUTO 20006KT 10SM -RA BKN037 08/06 A3024 RMK AO2 SLP247 P0003 60003 T00800058 58001KTBN2018-10-19T14:56:00Z37.72-92.128.05.8200610.030.2391741024.7TRUETRUE-RAVFR-0.10.030.03METAR353.02018-10-19 15:05:16x²)M5    3KTTS 191456Z AUTO 09012KT 10SM SCT020 SCT036 BKN060 28/23 A3020 RMK AO2 SLP231 T02810234 50011 $KTTS2018-10-19T14:56:00Z28.62-80.7228.123.4901210.030.2007871023.1TRUETRUETRUEVFR1.1METAR3.02018-10-19 15:05:16²)o5     3KVOK 191456Z AUTO 21008KT 10SM SCT024 SCT060 10/08 A2989 RMK AO2 RAE47DZB47E48 SLP127 P0003 60003 T01030084 57025KVOK2018-10-19T14:56:00Z43.92-90.2710.38.4210810.029.8907471012.7TRUETRUEVFR-2.50.030.03METAR277.02018-10-19 15:05:16 + +e²)-5    3KOZR 191456Z AUTO 09006KT 10SM OVC015 23/19 A3026 RMK AO2 SLP248 T02330188 51009KOZR2018-10-19T14:56:00Z31.28-85.7223.318.890610.030.2598421024.8TRUETRUEMVFR0.9METAR93.02018-10-19 15:05:16m²)15   3KRDR 191456Z AUTO 33013G19KT 10SM CLR 11/01 A2987 RMK AO2 SLP123 T01100010 52027 $KRDR2018-10-19T14:56:00Z47.97-97.411.01.0330131910.029.8700791012.3TRUETRUETRUEVFR2.7METAR278.02018-10-19 15:05:16²)]5      3KRND 191456Z 01006KT 6SM BR OVC003 16/16 A3018 RMK AO2A RAE41DZB41E54 SLP217 P0004 60016 T01640156 52012KRND2018-10-19T14:56:00Z29.52-98.2716.415.61066.030.1801191021.7TRUEBRLIFR1.20.040.16METAR232.02018-10-19 15:05:16h²)75    3KSSC 191456Z 07004KT 10SM FEW035 SCT250 18/10 A3035 RMK AO2A SLP279 T01780099 50003 $KSSC2018-10-19T14:56:00Z33.97-80.4717.89.970410.030.3513771027.9TRUETRUEVFR0.3METAR74.02018-10-19 15:05:16 00\² )#5    3TJSJ 191456Z 06013KT 10SM SCT036 31/23 A2999 RMK AO2 SLP153 T03060233 50008TJSJ2018-10-19T14:56:00Z18.43-66.0230.623.3601310.029.9911421015.3TRUEVFR0.8METAR21.02018-10-19 15:05:16o² )C5    3KNDZ 191456Z 09008KT 10SM SCT008 BKN013 BKN250 24/21 A3024 RMK AO2 SLP226 T02390211 51011 $KNDZ2018-10-19T14:56:00Z30.7-87.0223.921.190810.030.2391741022.6TRUETRUEMVFR1.1METAR54.02018-10-19 15:05:16z² )A5      3KNOG 191456Z AUTO 34010KT 3SM BR OVC003 18/18 A3014 RMK AO2 SLP186 60000 T01780178 51011 $KNOG2018-10-19T14:56:00Z27.9-98.0517.817.8340103.030.1387791018.6TRUETRUETRUEBRLIFR1.10.005METAR78.02018-10-19 15:05:16s²)75   3KOFF 191456Z AUTO 23010G15KT 10SM SCT020 15/11 A3001 RMK AO2 SLP165 T01460108 57005 $KOFF2018-10-19T14:56:00Z41.12-95.9214.610.8230101510.030.0088581016.5TRUETRUETRUEVFR-0.5METAR319.02018-10-19 15:05:16 a6Fa_²)'5    3KUKI 191456Z AUTO 00000KT 10SM CLR 06/03 A3018 RMK AO2 SLP215 T00610033 51012KUKI2018-10-19T14:56:00Z39.12-123.26.13.30010.030.1801191021.5TRUETRUEVFR1.2METAR187.02018-10-19 15:05:16j²)35   3KVPZ 191456Z AUTO 21012G20KT 10SM FEW110 10/00 A3015 RMK AO2 SLP214 T01000000 58013KVPZ2018-10-19T14:56:00Z41.45-87.010.00.0210122010.030.150591021.4TRUETRUEVFR-1.3METAR231.02018-10-19 15:05:16[² )5    3KWJF 191456Z 19003KT 10SM CLR 06/M08 A3020 RMK AO2 SLP232 T00561078 53012KWJF2018-10-19T14:56:00Z34.72-118.225.6-7.8190310.030.2007871023.2TRUEVFR1.2METAR715.02018-10-19 15:05:16c² )+5    3KWMC 191456Z AUTO 00000KT 10SM CLR M02/M07 A3039 RMK AO2 SLP300 T10171072 53014KWMC2018-10-19T14:56:00Z40.9-117.8-1.7-7.20010.030.3897631030.0TRUETRUEVFR1.4METAR1310.02018-10-19 15:05:16 d;Sdi²)=5    3KSFO 191456Z 29005KT 10SM FEW003 11/11 A3012 RMK AO2 SLP200 FOG IN GAP W T01110106 51006KSFO2018-10-19T14:56:00Z37.62-122.3711.110.6290510.030.1210631020.0TRUEVFR0.6METAR3.02018-10-19 15:05:16b²)15    3KSHV 191456Z 07003KT 10SM SCT160 OVC280 16/11 A3023 RMK AO2 SLP234 T01560106 51008KSHV2018-10-19T14:56:00Z32.45-93.8315.610.670310.030.2303141023.4TRUEVFR0.8METAR83.02018-10-19 15:05:16T²)5    3KSLE 191456Z 00000KT 10SM CLR 04/02 A3025 RMK AO2 SLP245 T00390022 51013KSLE2018-10-19T14:56:00Z44.9-123.03.92.20010.030.2509841024.5TRUEVFR1.3METAR59.02018-10-19 15:05:16e²))5    3KTPH 191456Z AUTO 04010KT 10SM CLR 07/M06 A3039 RMK AO2 SLP267 T00671061 51014KTPH2018-10-19T14:56:00Z38.05-117.086.7-6.1401010.030.3897631026.7TRUETRUEVFR1.4METAR1652.02018-10-19 15:05:16 V*DVh²)15     3KCEC 191456Z AUTO 01003KT 5SM BR OVC004 10/09 A3022 RMK AO2 SLP235 T01000094 53009KCEC2018-10-19T14:56:00Z41.77-124.2210.09.41035.030.2214571023.5TRUETRUEBRLIFR0.9METAR17.02018-10-19 15:05:16`²)15    3KCHS 191456Z VRB04KT 10SM FEW050 FEW250 21/16 A3032 RMK AO2 SLP265 T02110156 50005KCHS2018-10-19T14:56:00Z32.9-80.0321.115.60410.030.3188971026.5TRUEVFR0.5METAR13.02018-10-19 15:05:16V²)5    3KSBP 191456Z 00000KT 10SM CLR 08/07 A3007 RMK AO2 SLP184 T00830067 52006KSBP2018-10-19T14:56:00Z35.23-120.638.36.70010.030.0708661018.4TRUEVFR0.6METAR59.02018-10-19 15:05:16t²)U5    3KSDF 191456Z 00000KT 10SM R35R/2800VP6000FT FEW180 FEW250 11/04 A3026 RMK AO2 SLP247 T01110044 56016KSDF2018-10-19T14:56:00Z38.18-85.7311.14.40010.030.2598421024.7TRUEVFR-1.6METAR146.02018-10-19 15:05:16 b4Kbc²))5    3KBIH 191456Z AUTO 00000KT 10SM CLR 04/M07 A3034 RMK AO2 SLP262 T00441067 53015KBIH2018-10-19T14:56:00Z37.37-118.354.4-6.70010.030.3395671026.2TRUETRUEVFR1.5METAR1253.02018-10-19 15:05:16c²)'5    3KBJJ 191456Z AUTO 20011KT 10SM CLR 07/01 A3022 RMK AO2 SLP243 T00720011 58021KBJJ2018-10-19T14:56:00Z40.87-81.887.21.12001110.030.2214571024.3TRUETRUEVFR-2.1METAR343.02018-10-19 15:05:16\²)5    3KBZN 191456Z 10004KT 10SM CLR 02/M01 A3039 RMK AO2 SLP313 T00221011 53017KBZN2018-10-19T14:56:00Z45.78-111.172.2-1.1100410.030.3897631031.3TRUEVFR1.7METAR1361.02018-10-19 15:05:16d²)15    3KCAE 191456Z 11004KT 10SM BKN029 BKN250 18/10 A3035 RMK AO2 SLP275 T01830100 50001KCAE2018-10-19T14:56:00Z33.93-81.1218.310.0110410.030.3513771027.5TRUEMVFR0.1METAR70.02018-10-19 15:05:16 f+DfX²)5    3KRDM 191456Z 17004KT 8SM CLR 02/M06 A3033 RMK AO2 SLP277 T00221061 53012KRDM2018-10-19T14:56:00Z44.25-121.152.2-6.117048.030.330711027.7TRUEVFR1.2METAR938.02018-10-19 15:05:16a²)'5    3KAND 191456Z AUTO 06004KT 10SM CLR 16/07 A3035 RMK AO2 SLP274 T01610072 58001KAND2018-10-19T14:56:00Z34.5-82.7216.17.260410.030.3513771027.4TRUETRUEVFR-0.1METAR239.02018-10-19 15:05:16i²)-5   3KART 191456Z AUTO 21017G23KT 10SM CLR 12/07 A3005 RMK AO2 SLP174 T01170072 58018KART2018-10-19T14:56:00Z43.98-76.0311.77.2210172310.030.0501981017.4TRUETRUEVFR-1.8METAR100.02018-10-19 15:05:16`²))5   3KBED 191456Z 26010G16KT 10SM FEW200 11/01 A3015 RMK AO2 SLP226 T01060006 58023KBED2018-10-19T14:56:00Z42.47-71.310.60.6260101610.030.150591022.6TRUEVFR-2.3METAR50.02018-10-19 15:05:16 y-Diyj²#)?5    3KMOB 191456Z 11004KT 10SM FEW025 FEW050 BKN250 24/18 A3023 RMK AO2 SLP236 T02390183 51010KMOB2018-10-19T14:56:00Z30.68-88.2523.918.3110410.030.2303141023.6TRUEVFR1.0METAR63.02018-10-19 15:05:16U²")5    3KNUQ 191456Z 00000KT 8SM CLR 12/10 A3014 RMK AO2 SLP208 T01220100 53008KNUQ2018-10-19T14:56:00Z37.4-122.0512.210.0008.030.1387791020.8TRUEVFR0.8METAR12.02018-10-19 15:05:16c²!)'5    3KOFK 191456Z AUTO 26010KT 10SM CLR 12/09 A2997 RMK AO2 SLP149 T01220094 53003KOFK2018-10-19T14:56:00Z41.98-97.4312.29.42601010.029.9704721014.9TRUETRUEVFR0.3METAR470.02018-10-19 15:05:16M² )5   3KPWK 191456Z 22012G18KT 1 1/2SM SCT120 11/00 A3009 RMK AO2 T01060000KPWK2018-10-19T14:56:00Z42.12-87.910.60.022012181.530.088583TRUEIFRMETAR203.02018-10-19 15:05:16 Z-EgZ²')S5     3KLNR 191456Z AUTO 21011G18KT 10SM -RA OVC070 11/08 A2997 RMK AO2 SLP147 P0001 60003 T01060083 57019KLNR2018-10-19T14:56:00Z43.22-90.1810.68.3210111810.029.9704721014.7TRUETRUE-RAVFR-1.90.010.03METAR217.02018-10-19 15:05:16X²&)5    3KLWS 191456Z 07003KT 10SM CLR 05/01 A3037 RMK AO2 SLP289 T00500011 51018KLWS2018-10-19T14:56:00Z46.37-117.025.01.170310.030.3690951028.9TRUEVFR1.8METAR438.02018-10-19 15:05:16b²%)/5    3KMDT 191456Z 00000KT 10SM FEW250 09/03 A3030 RMK AO2 SLP262 T00890028 58013 PNO $KMDT2018-10-19T14:56:00Z40.2-76.778.92.80010.030.3011821026.2TRUETRUEVFR-1.3METAR95.02018-10-19 15:05:16M²$)5    3KMJQ 191456Z 23015G22KT 10SM OVC012 11/08 A2986 RMK AO2 PWINOKMJQ2018-10-19T14:56:00Z43.63-94.9711.08.0230152210.029.861221TRUETRUEMVFRMETAR441.02018-10-19 15:05:16 e6Nec²+))5    3KEKO 191456Z AUTO 08003KT 10SM CLR 00/M06 A3044 RMK AO2 SLP314 T00001056 53016KEKO2018-10-19T14:56:00Z40.82-115.780.0-5.680310.030.439961031.4TRUETRUEVFR1.6METAR1547.02018-10-19 15:05:16b²*)'5    3KELZ 191456Z AUTO 23011KT 10SM CLR 09/02 A3017 RMK AO2 SLP230 T00940017 58013KELZ2018-10-19T14:56:00Z42.1-77.989.41.72301110.030.1712591023.0TRUETRUEVFR-1.3METAR646.02018-10-19 15:05:16a²)))5   3KFSD 191456Z 25008G15KT 10SM FEW210 13/08 A2989 RMK AO2 SLP121 T01330083 53001KFSD2018-10-19T14:56:00Z43.58-96.7513.38.325081510.029.8907471012.1TRUEVFR0.1METAR436.02018-10-19 15:05:16]²()/5    3KFST 191456Z AUTO 00000KT 10SM FEW007 BKN017 OVC032 10/09 A3030 RMK AO2 T01000089KFST2018-10-19T14:56:00Z30.92-102.9210.08.90010.030.301182TRUETRUEMVFRMETAR918.02018-10-19 15:05:16 P"9Pc²/)15    3KDAY 191456Z 20009KT 10SM FEW040 SCT190 10/01 A3025 RMK AO2 SLP246 T01000006 58014KDAY2018-10-19T14:56:00Z39.9-84.2210.00.6200910.030.2509841024.6TRUEVFR-1.4METAR305.02018-10-19 15:05:16c².))5    3KDIK 191456Z AUTO 32012KT 10SM CLR 08/M01 A3016 RMK AO2 SLP225 T00781006 51033KDIK2018-10-19T14:56:00Z46.8-102.87.8-0.63201210.030.1594491022.5TRUETRUEVFR3.3METAR788.02018-10-19 15:05:16h²-)-5    3KDUG 191456Z AUTO 33007KT 10SM FEW065 11/10 A3019 RMK AO2 SLP190 T01110100 53009KDUG2018-10-19T14:56:00Z31.47-109.5811.110.0330710.030.1889761019.0TRUETRUEVFR0.9METAR1265.02018-10-19 15:05:16j²,)+5    3KEED 191456Z AUTO 36014KT 10SM CLR 22/02 A3012 RMK AO2 SLP175 T02170022 53013 $KEED2018-10-19T14:56:00Z34.77-114.6221.72.23601410.030.1210631017.5TRUETRUETRUEVFR1.3METAR302.02018-10-19 15:05:16 r!A[rc²3)'5    3KJMS 191456Z AUTO 32014KT 10SM CLR 11/01 A2995 RMK AO2 SLP148 T01060011 51034KJMS2018-10-19T14:56:00Z46.93-98.6710.61.13201410.029.9498021014.8TRUETRUEVFR3.4METAR455.02018-10-19 15:05:16`²2)#5   3KJXN 191456Z 22014G21KT 10SM CLR 10/01 A3012 RMK AO2 SLP205 T01000006 56014KJXN2018-10-19T14:56:00Z42.27-84.4710.00.6220142110.030.1210631020.5TRUEVFR-1.4METAR305.02018-10-19 15:05:16Z²1)5    3KLAS 191456Z 16003KT 10SM CLR 16/01 A3024 RMK AO2 SLP227 T01610011 53013KLAS2018-10-19T14:56:00Z36.07-115.1716.11.1160310.030.2391741022.7TRUEVFR1.3METAR636.02018-10-19 15:05:16Y²0)5    3KCXY 191456Z 27004KT 10SM CLR 12/02 A3031 RMK AO2 SLP266 T01220017 58013KCXY2018-10-19T14:56:00Z40.22-76.8512.21.7270410.030.310041026.6TRUEVFR-1.3METAR106.02018-10-19 15:05:16 g1GgZ²7)5    3KHYA 191456Z 25013KT 10SM CLR 13/03 A3019 RMK AO2 SLP222 T01280028 58023KHYA2018-10-19T14:56:00Z41.67-70.2712.82.82501310.030.1889761022.2TRUEVFR-2.3METAR22.02018-10-19 15:05:16d²6)'5    3KINW 191456Z AUTO 32010KT 10SM CLR 07/04 A3035 RMK AO2 SLP263 T00670039 53012KINW2018-10-19T14:56:00Z35.03-110.726.73.93201010.030.3513771026.3TRUETRUEVFR1.2METAR1490.02018-10-19 15:05:16[²5)#5    3KISP 191456Z 26010KT 10SM SCT250 13/01 A3025 RMK AO2 SLP245 T01280006 58018KISP2018-10-19T14:56:00Z40.8-73.112.80.62601010.030.2509841024.5TRUEVFR-1.8METAR43.02018-10-19 15:05:16h²4)?5    3KJAX 191456Z 04007KT 10SM SCT018 SCT060 BKN250 28/22 A3024 RMK AO2 SLP242 T02780222 51008KJAX2018-10-19T14:56:00Z30.5-81.6827.822.240710.030.2391741024.2TRUEVFR0.8METAR10.02018-10-19 15:05:16 j0IjY²;)5    3KGON 191456Z 25010KT 10SM CLR 12/04 A3023 RMK AO2 SLP235 T01170044 58019KGON2018-10-19T14:56:00Z41.33-72.0511.74.42501010.030.2303141023.5TRUEVFR-1.9METAR3.02018-10-19 15:05:16a²:)'5    3KGRD 191456Z AUTO 04004KT 10SM CLR 16/08 A3037 RMK AO2 SLP282 T01560083 50000KGRD2018-10-19T14:56:00Z34.25-82.1515.68.340410.030.3690951028.2TRUETRUEVFR0.0METAR185.02018-10-19 15:05:16a²9)-5    3KHPN 191456Z 25008KT 180V290 10SM CLR 10/00 A3024 RMK AO2 SLP244 T01000000 58016KHPN2018-10-19T14:56:00Z41.07-73.710.00.0250810.030.2391741024.4TRUEVFR-1.6METAR121.02018-10-19 15:05:16c²8)'5    3KHWV 191456Z AUTO 24010KT 10SM CLR 12/00 A3025 RMK AO2 SLP244 T01220000 58019KHWV2018-10-19T14:56:00Z40.82-72.8712.20.02401010.030.2509841024.4TRUETRUEVFR-1.9METAR21.02018-10-19 15:05:16 E <6Ek²?)+5    3PHHI 191456Z AUTO 30003KT 10SM CLR 19/19 A2991 RMK AO2 SLP120 T01910188 55006 $PHHI2018-10-19T14:56:00Z21.48-158.0519.118.8300310.029.9114171012.0TRUETRUETRUEVFR-0.6METAR255.02018-10-19 15:05:16²>)M5      3RKJK 191456Z AUTO 03004KT 10SM CLR 12/08 A3030 RMK AO2 SLP265 T01200079 401890077 50004 FZRANO $RKJK2018-10-19T14:56:00Z35.9126.6212.07.930410.030.3011821026.5TRUETRUETRUETRUEVFR0.418.97.7METAR9.02018-10-19 15:05:16^²=)'5    3KNFE 191456Z AUTO VRB04KT 10SM CLR 18/07 A3038 RMK AO2 SLP288 T01780067 58003KNFE2018-10-19T14:56:00Z36.7-76.1317.86.70410.030.3809051028.8TRUETRUEVFR-0.3METAR5.02018-10-19 15:05:16Z²<)5    3KMQE 191456Z AUTO 23010G18KT 09/M01 A3016 RMK AO1 SLP227 T00891006 58019KMQE2018-10-19T14:56:00Z42.22-71.128.9-0.6230101830.1594491022.7TRUETRUE-1.9METAR199.02018-10-19 15:05:16 E.AEv²C)G5    3PAEI 191456Z AUTO 00000KT 10SM CLR M06/M08 A2952 RMK AO2 SLP006 T10591077 57056 VISNO RWY32 $PAEI2018-10-19T14:56:00Z64.67-147.1-5.9-7.70010.029.5187021000.6TRUETRUETRUEVFR-5.6METAR167.02018-10-19 15:05:16g²B)+5    3KFAF 191456Z AUTO 21005KT 10SM CLR 15/04 A3035 RMK AO2 SLP281 T01480042 58005 $KFAF2018-10-19T14:56:00Z37.12-76.6214.84.2210510.030.3513771028.1TRUETRUETRUEVFR-0.5METAR4.02018-10-19 15:05:16a²A)'5    3KBIX 191456Z AUTO 02004KT 10SM CLR 23/17 A3022 RMK AO2 SLP236 T02280166 52012KBIX2018-10-19T14:56:00Z30.42-88.9222.816.620410.030.2214571023.6TRUETRUEVFR1.2METAR10.02018-10-19 15:05:16e²@)+5    3KLFI 191456Z AUTO 00000KT 10SM CLR 15/04 A3037 RMK AO2 SLP291 T01520043 58005 $KLFI2018-10-19T14:56:00Z37.07-76.3715.24.30010.030.3690951029.1TRUETRUETRUEVFR-0.5METAR3.02018-10-19 15:05:16 '²G)Y5     3PHSF 191456Z AUTO 00000KT 10SM SCT190 12/11 A3024 RMK AO2 SLPNO WND DATA ESTMD T01210109 55008 PWINO $PHSF2018-10-19T14:56:00Z19.77-155.5512.110.90010.030.239174TRUETRUETRUETRUEVFR-0.8METAR1887.02018-10-19 15:05:16²F)Y5    3KGTB 191456Z AUTO 24015G22KT 10SM CLR 11/07 A3003 RMK AO2 PK WND 23027/23 SLP174 60000 T01110068 58016KGTB2018-10-19T14:56:00Z44.07-75.7211.16.8240152210.030.0295281017.4TRUETRUEVFR-1.60.005METAR207.02018-10-19 15:05:16f²E)+5    3KHFF 191456Z AUTO 00000KT 10SM CLR 16/09 A3037 RMK AO2 SLP300 T01550085 58002 $KHFF2018-10-19T14:56:00Z35.02-79.515.58.50010.030.3690951030.0TRUETRUETRUEVFR-0.2METAR115.02018-10-19 15:05:16g²D)+5    3KADW 191456Z AUTO 22008KT 10SM CLR 14/06 A3033 RMK AO2 SLP279 T01370056 58010 $KADW2018-10-19T14:56:00Z38.82-76.8713.75.6220810.030.330711027.9TRUETRUETRUEVFR-1.0METAR86.02018-10-19 15:05:16 <#<]²K)'5    3KCEF 191456Z 19007KT 10SM FEW200 09/M01 A3018 RMK AO2A SLP228 T00871011 58016KCEF2018-10-19T14:56:00Z42.2-72.528.7-1.1190710.030.1801191022.8TRUEVFR-1.6METAR75.02018-10-19 15:05:16~²J)Q5   3KMIB 191456Z AUTO 31020G26KT 10SM CLR 08/00 A3006 RMK AO2 PK WND 31026/48 SLP194 T00770000 52032 $KMIB2018-10-19T14:56:00Z48.42-101.337.70.0310202610.030.0590551019.4TRUETRUETRUEVFR3.2METAR508.02018-10-19 15:05:16g²I)+5    3ETEB 191456Z AUTO 03005KT 9999 CLR 16/09 A3019 RMK AO2 SLP234 T01580085 57005 $ETEB2018-10-19T14:56:00Z49.3210.6215.88.53056.2130.1889761023.4TRUETRUETRUEVFR-0.5METAR467.02018-10-19 15:05:16j²H)15    3ETIK 191456Z AUTO 04007KT 9999 SCT038 17/10 A3020 RMK AO2 SLP230 T01720098 56004 $ETIK2018-10-19T14:56:00Z49.4710.3717.29.84076.2130.2007871023.0TRUETRUETRUEVFR-0.4METAR325.02018-10-19 15:05:16 % %p²O)?5    3KCOF 191456Z AUTO 09012KT 10SM SCT021 SCT037 29/25 A3019 RMK AO2 SLP228 T02930246 50012 $KCOF2018-10-19T14:56:00Z28.23-80.629.324.6901210.030.1889761022.8TRUETRUETRUEVFR1.2METAR3.02018-10-19 15:05:16²N)S5      3KDLF 191456Z 32010KT 10SM -DZ SCT008 OVC012 14/13 A3022 RMK AO2A DZB55 SLP231 60005 T01420132 52010KDLF2018-10-19T14:56:00Z29.37-100.7714.213.23201010.030.2214571023.1TRUE-DZMVFR1.00.05METAR330.02018-10-19 15:05:16i²M)35     3KNGP 191456Z 34006KT 1 1/2SM BR OVC003 23/22 A3010 RMK AO2 SLP191 T02280217 51014 $KNGP2018-10-19T14:56:00Z27.68-97.2722.821.734061.530.1003931019.1TRUETRUEBRLIFR1.4METAR6.02018-10-19 15:05:16k²L)75    3KMEH 191456Z AUTO 00000KT 10SM CLR M03/M05 A3035 RMK AO2 SLP299 I3000 T10331050 53011KMEH2018-10-19T14:56:00Z45.52-118.42-3.3-5.00010.030.3513771029.9TRUETRUEVFR1.1METAR1136.02018-10-19 15:05:16 :4O:²S)e5      3KFSI 191456Z AUTO 18006KT 3SM -RA BR BKN004 12/12 A3024 RMK AO2 BKN V OVC SLP239 P0023 60036 T01210121 52008KFSI2018-10-19T14:56:00Z34.65-98.412.112.118063.030.2391741023.9TRUETRUE-RA BRLIFR0.80.230.36METAR362.02018-10-19 15:05:16_²R)#5    3ETAR 191456Z 01005KT 9999 CLR 18/11 A3017 RMK AO2A SLP221 T01840182 57006 $ETAR2018-10-19T14:56:00Z49.427.5818.411.01056.2130.1712591022.1TRUETRUEVFR-0.6METAR238.02018-10-19 15:05:16^²Q))5    3K2DP 191456Z AUTO 03004KT 10SM CLR 17/06 A3037 RMK AO2 SLPNO T01660064 58001 $K2DP2018-10-19T14:56:00Z35.68-75.916.66.430410.030.369095TRUETRUETRUEVFR-0.1METAR3.02018-10-19 15:05:16b²P)-5    3KBAD 191456Z AUTO 00000KT 10SM FEW200 15/10 A3023 RMK AO2 SLP239 T01470101 50007KBAD2018-10-19T14:56:00Z32.5-93.6714.710.10010.030.2303141023.9TRUETRUEVFR0.7METAR51.02018-10-19 15:05:16 c²V))5    3KMSV 191456Z AUTO 25006KT 10SM CLR 07/M01 A3022 RMK AO2 SLP246 T00671006 56011KMSV2018-10-19T14:56:00Z41.7-74.786.7-0.6250610.030.2214571024.6TRUETRUEVFR-1.1METAR428.02018-10-19 15:05:16²U)5       3KLTS 191456Z AUTO 22005KT 7SM -RA OVC004 M A3025 RMK AO2 RAB03E17DZB17E18DZB23E38RAB40 SLPNO ALSTG ESTMD P0003 60003 53003 $KLTS2018-10-19T14:56:00Z34.67-99.2722057.030.250984TRUETRUETRUE-RALIFR0.30.030.03METAR420.02018-10-19 15:05:16 ²T)o5     3KDYS 191456Z 31003KT 10SM SCT005 OVC018 13/10 A3026 RMK AO2A RAE1357DZB1359E08 SLP233 P0000 60021 T01320102 52012KDYS2018-10-19T14:56:00Z32.42-99.8313.210.2310310.030.2598421023.3TRUEMVFR1.20.0050.21METAR545.02018-10-19 15:05:16  ²Y)[5     3KMNM 191456Z AUTO 25008KT 10SM -RA SCT065 OVC080 11/07 A2983 RMK AO2 SLP123 6//// T01110067 58019 PNO $KMNM2018-10-19T14:56:00Z45.12-87.6211.16.7250810.029.8287411012.3TRUETRUETRUE-RAVFR-1.9METAR191.02018-10-19 15:05:16W²X)5    3KMQY 191456Z VRB03KT 10SM CLR 14/09 A3029 RMK AO2 SLP219 T01390089 58009KMQY2018-10-19T14:56:00Z36.02-86.5213.98.90310.030.289371021.9TRUEVFR-0.9METAR166.02018-10-19 15:05:16²W)c5      3KMRF 191456Z AUTO 03004KT 1/2SM -RA FG 12/12 A3031 RMK AO2 RAB33 SLP238 P0000 60000 T01170117 53014 RVRNO $KMRF2018-10-19T14:56:00Z30.37-104.0211.711.73040.530.310041023.8TRUETRUETRUE-RA FG1.40.0050.005METAR1481.02018-10-19 15:05:16 5!5f²])-5   3KMJX 191456Z AUTO 26011G15KT 10SM CLR 14/01 A3031 RMK AO2 SLP269 T01390011 58018KMJX2018-10-19T14:56:00Z39.93-74.313.91.1260111510.030.310041026.9TRUETRUEVFR-1.8METAR25.02018-10-19 15:05:16h²\)-5    3KMKT 191456Z AUTO 22013KT 10SM OVC017 12/09 A2983 RMK AO2 SLP103 T01220089 58006KMKT2018-10-19T14:56:00Z44.22-93.9212.28.92201310.029.8287411010.3TRUETRUEMVFR-0.6METAR311.02018-10-19 15:05:16k²[);5    3KMKY 191456Z AUTO 07010KT 10SM SCT023 BKN027 29/23 A3018 RMK AO2 SLP220 T02940228 51013KMKY2018-10-19T14:56:00Z26.0-81.6729.422.8701010.030.1801191022.0TRUETRUEMVFR1.3METAR2.02018-10-19 15:05:16z²Z)Q5   3KMML 191456Z AUTO 27020G26KT 10SM CLR 14/08 A2984 RMK AO2 PK WND 27026/1455 SLP107 T01390083 53013KMML2018-10-19T14:56:00Z44.45-95.8213.98.3270202610.029.8405511010.7TRUETRUEVFR1.3METAR359.02018-10-19 15:05:16 u;\ua²a)!5    3KNUC 191456Z 12011KT 10SM CLR 19/16 A3001 RMK AO2 SLP161 T01940161 53006 $KNUC2018-10-19T14:56:00Z33.02-118.5719.416.11201110.030.0088581016.1TRUETRUEVFR0.6METAR55.02018-10-19 15:05:16Y²`)5    3KD07 191456Z AUTO 32017G22KT 11/02 A3016 RMK AO1 SLP220 T01060017 51039KD072018-10-19T14:56:00Z45.03-102.0210.61.7320172230.1594491022.0TRUETRUE3.9METAR784.02018-10-19 15:05:16Y²_)5    3KHNB 191456Z AUTO 18007KT 10SM CLR 11/04 A3026 RMK AO2 SLP248 T01060044KHNB2018-10-19T14:56:00Z38.25-86.9510.64.4180710.030.2598421024.8TRUETRUEVFRMETAR161.02018-10-19 15:05:16`²^)!5    3KHND 191456Z 15003KT 10SM CLR 12/01 A3027 RMK AO2 SLP245 T01220006 53012 $KHND2018-10-19T14:56:00Z35.98-115.1312.20.6150310.030.2687021024.5TRUETRUEVFR1.2METAR749.02018-10-19 15:05:16 //h²e)+5    3KFBG 191456Z AUTO 14003KT 10SM CLR 17/08 A3036 RMK AO2 SLP284 T01660080 58002 $KFBG2018-10-19T14:56:00Z35.12-78.9216.68.0140310.030.3602371028.4TRUETRUETRUEVFR-0.2METAR74.02018-10-19 15:05:16|²d)S5    3KFRI 191456Z AUTO 22013KT 10SM SCT018 OVC027 13/10 A3012 RMK AO2 CIG 017V027 SLP197 T01320104 55004KFRI2018-10-19T14:56:00Z39.03-96.7713.210.42201310.030.1210631019.7TRUETRUEMVFR-0.4METAR325.02018-10-19 15:05:16k²c)-5    3KNID 191456Z AUTO 24003KT 10SM CLR 10/M08 A3021 RMK AO2 SLP228 T01001083 51013 $KNID2018-10-19T14:56:00Z35.67-117.6710.0-8.3240310.030.2096461022.8TRUETRUETRUEVFR1.3METAR696.02018-10-19 15:05:16j²b)?5    3K8D3 191456Z AUTO 33018G28KT 11/02 A2988 RMK AO1 PK WND 32030/1432 SLP116 T01110022 53042K8D32018-10-19T14:56:00Z45.67-96.9811.12.2330182829.8789371011.6TRUETRUE4.2METAR354.02018-10-19 15:05:16 W&MWp²i)95      3KSKF 191456Z 02005KT 4SM BR OVC005 17/16 A3016 RMK AO2A SLP211 60002 T01690164 53013 $KSKF2018-10-19T14:56:00Z29.37-98.5716.916.42054.030.1594491021.1TRUETRUEBRIFR1.30.02METAR210.02018-10-19 15:05:16S²h)5    3KGNR 191456Z AUTO 14006KT 01/M04 A2998 RMK AO1 SLP170 T00061044 58015KGNR2018-10-19T14:56:00Z45.47-69.550.6-4.4140629.979331017.0TRUETRUE-1.5METAR427.02018-10-19 15:05:16h²g)55    3KNSE 191456Z VRB06KT 10SM SCT009 BKN015 24/21 A3024 RMK AO2 SLP226 T02390211 53012 $KNSE2018-10-19T14:56:00Z30.73-87.0223.921.10610.030.2391741022.6TRUETRUEMVFR1.2METAR61.02018-10-19 15:05:16f²f)+5    3ETOU 191456Z AUTO 02004KT 9999 CLR 18/10 A3020 RMK AO2 SLP228 T01790095 56006 $ETOU2018-10-19T14:56:00Z50.038.3217.99.52046.2130.2007871022.8TRUETRUETRUEVFR-0.6METAR141.02018-10-19 15:05:16 K .K]²m)%5    3KPSM 191456Z 24008KT 10SM SCT250 09/00 A3012 RMK AO2A SLP203 T00881003 58024KPSM2018-10-19T14:56:00Z43.07-70.828.8-0.3240810.030.1210631020.3TRUEVFR-2.4METAR31.02018-10-19 15:05:16^²l)!5    3KRCA 191456Z 34019KT 10SM CLR 12/M01 A3021 RMK AO2A SLP235 T01171008 52037KRCA2018-10-19T14:56:00Z44.13-103.0811.7-0.83401910.030.2096461023.5TRUEVFR3.7METAR999.02018-10-19 15:05:16r²k)75   3KRYM 191456Z AUTO 30016G21KT 10SM FEW240 13/07 A2974 RMK AO2 SLP075 T01280069 55001 $KRYM2018-10-19T14:56:00Z46.08-94.3712.86.9300162110.029.7401581007.5TRUETRUETRUEVFR-0.1METAR351.02018-10-19 15:05:16p²j)E5    3KMGE 191456Z 10009KT 10SM SCT025 BKN032 BKN250 16/08 A3033 RMK AO2A SLP269 T01610083 50001 $KMGE2018-10-19T14:56:00Z33.92-84.5216.18.3100910.030.330711026.9TRUETRUEVFR0.1METAR326.02018-10-19 15:05:16 ,',e²q))5    3KSXT 191456Z AUTO 11009KT 10SM CLR 15/M02 A3028 RMK AO2 SLP220 T01501017 53008KSXT2018-10-19T14:56:00Z42.6-123.3715.0-1.7110910.030.2805121022.0TRUETRUEVFR0.8METAR1170.02018-10-19 15:05:16 ²p)Y5      3KCWI 191456Z AUTO 21011KT 10SM -RA OVC075 10/06 A3005 RMK AO2 RAB10 SLP204 P0000 60000 T01000056 58023KCWI2018-10-19T14:56:00Z41.82-90.3210.05.62101110.030.0501981020.4TRUETRUE-RAVFR-2.30.0050.005METAR216.02018-10-19 15:05:16a²o))5    3KDIJ 191456Z AUTO 00000KT 10SM CLR 02/M02 A3046 RMK AO2 SLP333 T00171017 51015KDIJ2018-10-19T14:56:00Z43.75-111.11.7-1.70010.030.460631033.3TRUETRUEVFR1.5METAR1899.02018-10-19 15:05:16l²n)75    3KMTC 191456Z 23010KT 10SM SCT190 BKN220 11/01 A3009 RMK AO2A SLP198 T01070007 58015 $KMTC2018-10-19T14:56:00Z42.62-82.8210.70.72301010.030.0885831019.8TRUETRUEVFR-1.5METAR177.02018-10-19 15:05:16 P8Pb²u)%5    3KSDY 191456Z AUTO 31012KT 10SM 08/M01 A3023 RMK AO2 SLP251 T00781011 51028 $KSDY2018-10-19T14:56:00Z47.7-104.27.8-1.13101210.030.2303141025.1TRUETRUETRUE2.8METAR605.02018-10-19 15:05:16a²t)'5    3KSFM 191456Z AUTO 24007KT 10SM CLR 09/00 A3012 RMK AO2 SLP205 T00890000 58023KSFM2018-10-19T14:56:00Z43.38-70.728.90.0240710.030.1210631020.5TRUETRUEVFR-2.3METAR74.02018-10-19 15:05:16l²s)95    3KSFZ 191456Z AUTO 24007KT 200V260 10SM CLR 10/M01 A3020 RMK AO2 SLP173 T01001006 58018KSFZ2018-10-19T14:56:00Z41.92-71.510.0-0.6240710.030.2007871017.3TRUETRUEVFR-1.8METAR134.02018-10-19 15:05:16i²r)+5    3KSGH 191456Z AUTO 19008KT 10SM CLR 10/02 A3024 RMK AO2 SLP248 T01000017 58019 $KSGH2018-10-19T14:56:00Z39.83-83.8310.01.7190810.030.2391741024.8TRUETRUETRUEVFR-1.9METAR321.02018-10-19 15:05:16 I+DIu²y)E5      3KPWT 191456Z AUTO 00000KT M1/4SM FG BKN002 01/01 A3028 RMK AO2 SLP274 T00110011 53010 FZRANOKPWT2018-10-19T14:56:00Z47.5-122.751.11.1000.2530.2805121027.4TRUETRUETRUEFGLIFR1.0METAR147.02018-10-19 15:05:16a²x)'5    3KRKD 191456Z AUTO 24008KT 10SM CLR 08/00 A3010 RMK AO2 SLP194 T00830000 58020KRKD2018-10-19T14:56:00Z44.07-69.088.30.0240810.030.1003931019.4TRUETRUEVFR-2.0METAR17.02018-10-19 15:05:16Q²w)5   3KROS 191456Z AUTO 23011G18KT 10SM CLR 14/08 A2973 RMK AO2 T01360075KROS2018-10-19T14:56:00Z45.7-92.9513.67.5230111810.029.731298TRUETRUEVFRMETAR281.02018-10-19 15:05:16x²v)G5   3KRUT 191456Z AUTO 22009G15KT 190V250 10SM SCT028 08/02 A3010 RMK AO2 SLP217 T00830017 58020 $KRUT2018-10-19T14:56:00Z43.52-72.958.31.722091510.030.1003931021.7TRUETRUETRUEVFR-2.0METAR240.02018-10-19 15:05:16 < $<b²})'5    3KPVC 191456Z AUTO 24014KT 10SM CLR 11/02 A3020 RMK AO2 SLP225 T01060017 58017KPVC2018-10-19T14:56:00Z42.07-70.2210.61.72401410.030.2007871022.5TRUETRUEVFR-1.7METAR2.02018-10-19 15:05:16_²|)'5    3KPVG 191456Z AUTO 00000KT 10SM CLR 16/04 A3039 RMK AO2 SLP291 T01560039 58005KPVG2018-10-19T14:56:00Z36.78-76.4515.63.90010.030.3897631029.1TRUETRUEVFR-0.5METAR7.02018-10-19 15:05:16Z²{)5    3KPVU 191456Z 15003KT 10SM CLR 05/01 A3045 RMK AO2 SLP311 T00500006 53017KPVU2018-10-19T14:56:00Z40.22-111.725.00.6150310.030.4488181031.1TRUEVFR1.7METAR1369.02018-10-19 15:05:16²z)q5      3KPWG 191456Z AUTO 36005KT 2 1/2SM BR FEW008 OVC018 14/14 A3023 RMK AO2 RAB44E55 SLP250 P0007 60007 T01440144 53007KPWG2018-10-19T14:56:00Z31.47-97.3214.414.436052.530.2303141025.0TRUETRUEBRIFR0.70.070.07METAR180.02018-10-19 15:05:16 N1FNr³)=5     3KPQI 191456Z AUTO 21007KT 10SM OVC060 01/M06 A3003 RMK AO2 SLP214 T00061061 58015 FZRANOKPQI2018-10-19T14:56:00Z46.67-68.030.6-6.1210710.030.0295281021.4TRUETRUETRUEVFR-1.5METAR146.02018-10-19 15:05:16e³)-5    3KPRX 191456Z AUTO 09003KT 10SM OVC023 14/09 A3026 RMK AO2 SLP262 T01390089 53006KPRX2018-10-19T14:56:00Z33.62-95.4513.98.990310.030.2598421026.2TRUETRUEMVFR0.6METAR167.02018-10-19 15:05:16a²)'5    3KPTN 191456Z AUTO 10006KT 10SM CLR 25/21 A3020 RMK AO2 SLP226 T02500206 51007KPTN2018-10-19T14:56:00Z29.72-91.3225.020.6100610.030.2007871022.6TRUETRUEVFR0.7METAR3.02018-10-19 15:05:16b²~)'5    3KPTV 191456Z AUTO 10004KT 10SM CLR 11/03 A3015 RMK AO2 SLP222 T01110028 51009KPTV2018-10-19T14:56:00Z36.02-119.0711.12.8100410.030.150591022.2TRUETRUEVFR0.9METAR135.02018-10-19 15:05:16 1g³)/5     3KSGJ 191456Z 05012KT 10SM BKN015 27/22 A3025 RMK AO2 SLP242 60000 T02720217 51012KSGJ2018-10-19T14:56:00Z29.97-81.3227.221.7501210.030.2509841024.2TRUEMVFR1.20.005METAR3.02018-10-19 15:05:16+³(_5   3KISO 191456Z 11005KT 10SM CLR 17/09 A3038KISO2018-10-19T14:56:00Z35.32-77.6217.09.0110510.030.380905VFRMETAR29.02018-10-19 15:05:16`³)!5    3KNJK 191456Z 33008KT 10SM CLR 20/01 A3004 RMK AO2 SLP188 T02000006 51013 $KNJK2018-10-19T14:56:00Z32.82-115.6720.00.6330810.030.0413381018.8TRUETRUEVFR1.3METAR-13.02018-10-19 15:05:16c³)95    3KNXF 191456Z AUTO 00000KT 9SM CLR 17/07 A3000 RMK AO2 SLP244 6//// T01720072 53007 PNOKNXF2018-10-19T14:56:00Z33.28-117.4517.27.2009.030.01024.4TRUETRUEVFR0.7METAR27.02018-10-19 15:05:16 7!*7m³ )75     3KADF 191456Z AUTO 36003KT 10SM BKN030 14/09 A3027 RMK AO2 SLP255 T01390094 50002 TSNOKADF2018-10-19T14:56:00Z34.1-93.0713.99.4360310.030.2687021025.5TRUETRUETRUEMVFR0.2METAR56.02018-10-19 15:05:16n³)75     3KGUC 191456Z AUTO VRB03KT 10SM CLR 00/M03 A3049 RMK AO2 SLP330 T00001033 53016 FZRANOKGUC2018-10-19T14:56:00Z38.52-106.920.0-3.30310.030.4901581033.0TRUETRUETRUEVFR1.6METAR2339.02018-10-19 15:05:16}³)E5    3KGVQ 191456Z AUTO 23011G22KT 10SM CLR 11/04 A3008 RMK AO2 SLP217 P0001 60001 T01110044 58017KGVQ2018-10-19T14:56:00Z43.03-78.1711.14.4230112210.030.0797251021.7TRUETRUEVFR-1.70.010.01METAR278.02018-10-19 15:05:16Y³)5    3KGXY 191456Z 30004KT 10SM CLR 08/02 A3031 RMK AO2 SLP268 T00780017 53026KGXY2018-10-19T14:56:00Z40.42-104.627.81.7300410.030.310041026.8TRUEVFR2.6METAR1420.02018-10-19 15:05:16 _;R_m³ )75    3KAJO 191456Z AUTO 13007KT 10SM CLR 18/03 A3005 RMK AO2 SLP182 6//// T01780033 53009 $KAJO2018-10-19T14:56:00Z33.9-117.617.83.3130710.030.0501981018.2TRUETRUETRUEVFR0.9METAR163.02018-10-19 15:05:16c³ )-5    3KARG 191456Z AUTO 34005KT 10SM FEW120 11/07 A3029 RMK AO2 SLP260 T01060072 53008KARG2018-10-19T14:56:00Z36.12-90.9210.67.2340510.030.289371026.0TRUETRUEVFR0.8METAR83.02018-10-19 15:05:16W³ )5    3KASH 191456Z 27007KT 10SM CLR 09/01 A3015 RMK AO2 SLP222 T00940011 58021KASH2018-10-19T14:56:00Z42.78-71.529.41.1270710.030.150591022.2TRUEVFR-2.1METAR61.02018-10-19 15:05:16b³ )'5    3KAFJ 191456Z AUTO 20005KT 10SM CLR 09/02 A3030 RMK AO2 SLP266 T00940017 58015KAFJ2018-10-19T14:56:00Z40.12-80.279.41.7200510.030.3011821026.6TRUETRUEVFR-1.5METAR361.02018-10-19 15:05:16 ""W³)5    3KMYR 191456Z 04008KT 10SM CLR 21/13 A3035 RMK AO2 SLP276 T02110133 50002KMYR2018-10-19T14:56:00Z33.67-78.9221.113.340810.030.3513771027.6TRUEVFR0.2METAR8.02018-10-19 15:05:16j³)35     3KOAJ 191456Z AUTO 05005KT 10SM CLR 17/09 A3037 RMK AO2 SLP290 60001 T01720094 58000KOAJ2018-10-19T14:56:00Z34.82-77.6217.29.450510.030.3690951029.0TRUETRUEVFR0.00.01METAR29.02018-10-19 15:05:16}³)G5     3KOCH 191456Z AUTO 08005KT 10SM 17/13 A3022 RMK AO2 RAE19 SLP236 P0000 60000 T01670128 53004 $KOCH2018-10-19T14:56:00Z31.57-94.7216.712.880510.030.2214571023.6TRUETRUETRUE0.40.0050.005METAR108.02018-10-19 15:05:16³)]5     3KAIZ 191456Z AUTO 21012KT 10SM OVC048 11/06 A3022 RMK AO2 RAE11B27E44 SLP234 P0000 60000 T01110061 58008KAIZ2018-10-19T14:56:00Z38.1-92.5311.16.12101210.030.2214571023.4TRUETRUEVFR-0.80.0050.005METAR265.02018-10-19 15:05:16 U".US³)5    3KP28 191456Z AUTO 20008KT 13/12 A3017 RMK AO1 SLP215 T01280122 53002KP282018-10-19T14:56:00Z37.28-98.5512.812.2200830.1712591021.5TRUETRUE0.2METAR469.02018-10-19 15:05:16n³)=5     3OTBH 191456Z 32003KT 9000 HZ FEW160 SCT190 29/16 A2993 RMK AO2A SLP136 T02860162 51012 $OTBH2018-10-19T14:56:00Z25.1251.3228.616.232035.5929.9291341013.6TRUETRUEHZVFR1.2METAR40.02018-10-19 15:05:16l³)35   3KMTW 191456Z AUTO 22013G19KT 10SM FEW110 13/05 A2992 RMK AO2 SLP154 T01280050 58021KMTW2018-10-19T14:56:00Z44.12-87.6712.85.0220131910.029.9202751015.4TRUETRUEVFR-2.1METAR198.02018-10-19 15:05:16f³)-5    3KMVN 191456Z AUTO 21008KT 10SM BKN110 10/06 A3026 RMK AO2 SLP248 T01000061 58005KMVN2018-10-19T14:56:00Z38.32-88.8710.06.1210810.030.2598421024.8TRUETRUEVFR-0.5METAR146.02018-10-19 15:05:16 Z#DBZb³)'5     3KP53 191456Z AUTO 20010G22KT 11/06 A2969 RMK AO1 SLP055 60002 T01110056 56027KP532018-10-19T14:56:00Z46.42-86.6511.15.6200102229.689961005.5TRUETRUE-2.70.02METAR187.02018-10-19 15:05:16|³)Q5     3KNUW 191456Z 11003KT 1/8SM FG VV003 09/07 A3032 RMK AO2 TWR VIS 1/4 SLP267 T00940072 51009 VISNO $KNUW2018-10-19T14:56:00Z48.35-122.659.47.211030.1330.3188971026.7TRUETRUEFGLIFR0.9300METAR14.02018-10-19 15:05:16Y³)5    3K2WX 191456Z AUTO 31021G25KT 09/M01 A3019 RMK AO1 SLP231 T00941011 51033K2WX2018-10-19T14:56:00Z45.6-103.559.4-1.1310212530.1889761023.1TRUETRUE3.3METAR915.02018-10-19 15:05:16W³)5    3KNFL 191456Z 00000KT 8SM CLR 03/M03 A3036 RMK AO2 SLP237 T00331028 53016KNFL2018-10-19T14:56:00Z39.42-118.73.3-2.8008.030.3602371023.7TRUEVFR1.6METAR1199.02018-10-19 15:05:16 [_³)'5    3KNBC 191456Z VRB05KT 10SM SCT040 22/16 A3031 RMK AO2 SLP262 T02220161 50003 $KNBC2018-10-19T14:56:00Z32.47-80.7222.216.10510.030.310041026.2TRUETRUEVFR0.3METAR12.02018-10-19 15:05:16U³)5    3KP60 191456Z AUTO 00000KT M03/M04 A3049 RMK AO1 SLP345 T10281044 51012KP602018-10-19T14:56:00Z44.55-110.42-2.8-4.40030.4901581034.5TRUETRUE1.2METAR2388.02018-10-19 15:05:16;³(w5     3KABH 191456Z AUTO 36013KT A3032 RMK AO2 SLPNO 52023 $KABH2018-10-19T14:56:00Z38.75-104.33601330.318897TRUETRUETRUE2.3METAR1840.02018-10-19 15:05:16^³))5    3KNLC 191456Z 35003KT 9SM CLR 09/M01 A3014 RMK AO2 SLP205 RH/47 T00891011 53010KNLC2018-10-19T14:56:00Z36.32-119.958.9-1.135039.030.1387791020.5TRUEVFR1.0METAR72.02018-10-19 15:05:16 6+6o³!)=5     3KLGD 191456Z AUTO 00000KT 7SM FEW001 M01/M02 A3039 RMK AO2 SLP418 T10111022 53016 FZRANOKLGD2018-10-19T14:56:00Z45.27-118.0-1.1-2.2007.030.3897631041.8TRUETRUETRUEVFR1.6METAR827.02018-10-19 15:05:16`³ )'5    3KLPC 191456Z AUTO 09005KT 10SM CLR 08/07 A3007 RMK AO2 SLP186 T00830072 53003KLPC2018-10-19T14:56:00Z34.67-120.478.37.290510.030.0708661018.6TRUETRUEVFR0.3METAR27.02018-10-19 15:05:16a³)'5     3KLRD 191456Z 30007KT 4SM BR OVC004 15/14 A3019 RMK AO2 SLP237 T01500144 53013KLRD2018-10-19T14:56:00Z27.55-99.4715.014.430074.030.1889761023.7TRUEBRLIFR1.3METAR155.02018-10-19 15:05:16³)U5      3KNQI 191456Z 32009KT 3SM BR OVC004 19/18 A3012 RMK AO2 SLP197 RAB09E43 P0002 60002 T01890178 53008 $KNQI2018-10-19T14:56:00Z27.5-97.8218.917.832093.030.1210631019.7TRUETRUEBRLIFR0.80.020.02METAR15.02018-10-19 15:05:16 P)OPy³%)Q5    3KDWU 191456Z AUTO 00000KT 10SM FEW005 06/06 A3030 RMK AO2 RAE00 SLP265 6//// T00610056 56013 PNO $KDWU2018-10-19T14:56:00Z38.55-82.736.15.60010.030.3011821026.5TRUETRUETRUEVFR-1.3METAR166.02018-10-19 15:05:16T³$)5    3KGNA 191456Z AUTO 26012KT 10/06 A2955 RMK AO1 SLP008 T01000061 57022KGNA2018-10-19T14:56:00Z47.75-90.3510.06.12601229.5511821000.8TRUETRUE-2.2METAR185.02018-10-19 15:05:16h³#)+5    3KLCI 191456Z AUTO 23008KT 10SM CLR 07/00 A3011 RMK AO2 SLP214 T00720000 58019 $KLCI2018-10-19T14:56:00Z43.57-71.427.20.0230810.030.1092531021.4TRUETRUETRUEVFR-1.9METAR166.02018-10-19 15:05:16c³"))5    3KLEW 191456Z AUTO 23005KT 10SM CLR 08/M01 A3008 RMK AO2 SLP205 T00781006 58023KLEW2018-10-19T14:56:00Z44.03-70.277.8-0.6230510.030.0797251020.5TRUETRUEVFR-2.3METAR88.02018-10-19 15:05:16 5/5_³))%5    3KEUL 191456Z AUTO 03004KT 7SM CLR 03/02 A3036 RMK AO2 SLP290 T00280017 53015KEUL2018-10-19T14:56:00Z43.62-116.622.81.73047.030.3602371029.0TRUETRUEVFR1.5METAR740.02018-10-19 15:05:16³()c5      3KHYI 191456Z 36008KT 3SM -RA BR OVC009 17/16 A3020 RMK AO2 CIG 005V010 SLP223 P0000 60005 T01670156 53003 $KHYI2018-10-19T14:56:00Z29.88-97.8716.715.636083.030.2007871022.3TRUETRUE-RA BRIFR0.30.0050.05METAR182.02018-10-19 15:05:16c³')'5    3KHYS 191456Z AUTO 26012KT 10SM CLR 12/09 A3013 RMK AO2 SLP204 T01170089 53005KHYS2018-10-19T14:56:00Z38.85-99.2711.78.92601210.030.1299211020.4TRUETRUEVFR0.5METAR609.02018-10-19 15:05:16b³&)'5    3KDVL 191456Z AUTO 31018KT 10SM CLR 09/01 A2995 RMK AO2 SLP160 T00890011 51026KDVL2018-10-19T14:56:00Z48.12-98.928.91.13101810.029.9498021016.0TRUETRUEVFR2.6METAR443.02018-10-19 15:05:16  ³,)]5     3KSZL 191456Z 23012KT 10SM SCT029 BKN045 BKN070 12/09 A3013 RMK AO2A SLP207 P0000 60000 T01220088 58005 $KSZL2018-10-19T14:56:00Z38.72-93.5312.28.82301210.030.1299211020.7TRUETRUEVFR-0.50.0050.005METAR265.02018-10-19 15:05:16@³+)G5      3KTIK 191456Z 18007KT 2SM -RA BR OVC005 12/12 A3024 RMK AO2A DZE04DZB11E19RAB19 CIG 005 RWY13 CIG 006 RWY31 CIG 006 RWY36 SLP246 P0002 60003 T01180118 53005 $KTIK2018-10-19T14:56:00Z35.42-97.3711.811.818072.030.2391741024.6TRUETRUE-RA BRIFR0.50.020.03METAR394.02018-10-19 15:05:16d³*))5    3KDRA 191456Z AUTO VRB03KT 10SM CLR 14/M01 A3026 RMK AO2 SLP220 T01441011 53011KDRA2018-10-19T14:56:00Z36.62-116.0314.4-1.10310.030.2598421022.0TRUETRUEVFR1.1METAR1006.02018-10-19 15:05:16 c³/)55    3OAKN 191456Z VRB03KT 9999 CLR 17/M07 A3013 RMK AO2A SLP177 Q1020 PA3111 DA4126 52011OAKN2018-10-19T14:56:00Z31.565.8317.0-7.0036.2130.1299211017.7TRUEVFR1.1METAR1010.02018-10-19 15:05:16³.)W5      3RODN 191456Z 04006KT 10SM FEW043 SCT150 17/14 A3013 RMK AO2A SLP209 60000 T01710138 402500159 50001 $RODN2018-10-19T14:56:00Z26.35127.7717.113.840610.030.1299211020.9TRUETRUEVFR0.125.015.90.005METAR45.02018-10-19 15:05:16k³-)75    3PGUA 191456Z 36006KT 10SM SCT012 SCT017 26/24 A2985 RMK AO2A SLP099 T02590239 57009 $PGUA2018-10-19T14:56:00Z13.57144.9225.923.9360610.029.849411009.9TRUETRUEVFR-0.9METAR187.02018-10-19 15:05:16 , ",p³3)?5    3KEKQ 191456Z AUTO VRB06KT 10SM CLR 15/09 A3029 RMK AO2 SLP285 6//// T01500089 58013 PNO $KEKQ2018-10-19T14:56:00Z36.85-84.8515.08.90610.030.289371028.5TRUETRUETRUEVFR-1.3METAR294.02018-10-19 15:05:16c³2)-5    3KEKY 191456Z AUTO VRB06KT 10SM OVC008 18/13 A3029 RMK AO2 SLP273 T01780133 50006KEKY2018-10-19T14:56:00Z33.32-86.9317.813.30610.030.289371027.3TRUETRUEIFR0.6METAR213.02018-10-19 15:05:16b³1))5    3KENV 191456Z AUTO 00000KT 10SM CLR 05/M01 A3042 RMK AO2 SLP308 T00501006 53019KENV2018-10-19T14:56:00Z40.72-114.025.0-0.60010.030.419291030.8TRUETRUEVFR1.9METAR1292.02018-10-19 15:05:16³0)S5     3KESC 191456Z AUTO 21014G19KT 10SM -RA OVC080 10/08 A2977 RMK AO2 SLP109 P0001 60001 T01000078 58022KESC2018-10-19T14:56:00Z45.75-87.0810.07.8210141910.029.7696861010.9TRUETRUE-RAVFR-2.20.010.01METAR187.02018-10-19 15:05:16 B6IB³7)Y5    3KEAU 191456Z 22014G23KT 10SM OVC017 12/09 A2979 RMK AO2 PK WND 19026/1421 SLP088 60000 T01170089 56029KEAU2018-10-19T14:56:00Z44.87-91.4711.78.9220142310.029.7903541008.8TRUEMVFR-2.90.005METAR276.02018-10-19 15:05:16g³6)+5    3KEEN 191456Z AUTO 22009KT 10SM CLR 08/01 A3015 RMK AO2 SLP231 T00830006 58020 $KEEN2018-10-19T14:56:00Z42.88-72.278.30.6220910.030.150591023.1TRUETRUETRUEVFR-2.0METAR149.02018-10-19 15:05:16\³5)#5    3KEGE 191456Z 00000KT 10SM OVC025 01/01 A3051 RMK AO2 SLP344 T00110006 53019KEGE2018-10-19T14:56:00Z39.63-106.921.10.60010.030.5108261034.4TRUEMVFR1.9METAR1993.02018-10-19 15:05:16b³4)'5    3KEHR 191456Z AUTO 25006KT 10SM CLR 12/05 A3028 RMK AO2 SLP267 T01170050 51001KEHR2018-10-19T14:56:00Z37.82-87.6711.75.0250610.030.2805121026.7TRUETRUEVFR0.1METAR117.02018-10-19 15:05:16 S !;Sb³;)+5    3PMDY 191456Z AUTO 00000KT 9SM FEW020 22/19 A3014 RMK AO2 SLP205 T02220194 58006PMDY2018-10-19T14:56:00Z28.22-177.3722.219.4009.030.1387791020.5TRUETRUEVFR-0.6METAR4.02018-10-19 15:05:16`³:)'5    3KNYG 191456Z 19009KT 10SM FEW200 14/08 A3036 RMK AO2 SLP281 T01390078 58009 $KNYG2018-10-19T14:56:00Z38.5-77.2813.97.8190910.030.3602371028.1TRUETRUEVFR-0.9METAR4.02018-10-19 15:05:16e³9)-5    3K79J 191456Z AUTO 12006KT 10SM OVC011 23/18 A3027 RMK AO2 SLP245 T02330183 51010K79J2018-10-19T14:56:00Z31.32-86.423.318.3120610.030.2687021024.5TRUETRUEMVFR1.0METAR94.02018-10-19 15:05:16n³8)?5    3KDYR 191456Z AUTO 00000KT 10SM CLR 14/08 A3028 RMK AO2 SLP270 6//// T01390078 53001 PNO $KDYR2018-10-19T14:56:00Z36.0-89.413.97.80010.030.2805121027.0TRUETRUETRUEVFR0.1METAR103.02018-10-19 15:05:16 [GQ[p³?)95     3PFYU 191456Z AUTO 00000KT 10SM CLR M07/M08 A2978 RMK AO2 SLP109 T10721078 58033 FZRANOPFYU2018-10-19T14:56:00Z66.57-145.27-7.2-7.80010.029.7785431010.9TRUETRUETRUEVFR-3.3METAR131.02018-10-19 15:05:17p³>)?5     3PPIZ 191456Z AUTO 03007KT 10SM OVC048 M04/M05 A2985 RMK AO2 SLP112 T10441050 58016 FZRANOPPIZ2018-10-19T14:56:00Z69.73-163.0-4.4-5.030710.029.849411011.2TRUETRUETRUEVFR-1.6METAR8.02018-10-19 15:05:17I³=)5   3KNMM 191456Z 00000KT 10SM BKN280 18/13 A3026 RMK SLP256 T01830133KNMM2018-10-19T14:56:00Z32.53-88.5718.313.30010.030.2598421025.6VFRMETAR97.02018-10-19 15:05:17d³<)'5    3PHNY 191456Z AUTO 03009KT 10SM CLR 22/20 A2996 RMK AO2 SLP123 T02170200 55005PHNY2018-10-19T14:56:00Z20.77-156.9321.720.030910.029.9586621012.3TRUETRUEVFR-0.5METAR399.02018-10-19 15:05:16  ³C)k5   3PAWG 191456Z 08013G17KT 10SM FEW028 BKN045 OVC080 11/08 A2991 RMK AO2 PRESFR SLP128 6//// T01110083 58025 PNO $PAWG2018-10-19T14:56:00Z56.48-132.3711.18.380131710.029.9114171012.8TRUETRUEVFR-2.5METAR11.02018-10-19 15:05:17q³B);5     3PAWM 191456Z AUTO 35011KT 10SM BKN048 01/00 A2962 RMK AO2 SLP036 T00110000 58020 FZRANOPAWM2018-10-19T14:56:00Z64.68-163.421.10.03501110.029.6190951003.6TRUETRUETRUEVFR-2.0METAR82.02018-10-19 15:05:17p³A)=5   3PAWS 191456Z AUTO 06015G21KT 10SM CLR 09/M03 A2915 RMK AO2 PRESFR SLP888 T00941028 58094PAWS2018-10-19T14:56:00Z61.57-149.539.4-2.860152110.029.149607988.8TRUETRUEVFR-9.4METAR107.02018-10-19 15:05:17o³@);5     3PFKT 191456Z AUTO 10009KT 10SM OVC011 01/00 A2969 RMK AO2 SLP055 T00110000 56017 FZRANOPFKT2018-10-19T14:56:00Z65.33-166.471.10.0100910.029.689961005.5TRUETRUETRUEMVFR-1.7METAR9.02018-10-19 15:05:17Y88@HPX`hpx (08@HPX`hpx (08@HPX`hpx:²7;²;<²?=²C>²G?²K@²OA²SB²VC²YD²]E²a:²7;²;<²?=²C>²G?²K@²OA²SB²VC²YD²]E²aF²eG²iH²mI²qJ²uK²yL²}M³N³O³ P³ Q³R³S³T³U³!V³%W³)X³,Y³/Z³3[³7\³;]³?^³C`³Fa³Ib³Lc³Od³Re³Vf³Zg³^h³ai³dj³hk³ll³om³sn³wo³{p³q´r´s´ t´ u´v´w´x´y´!z´%{´)|´-}´1~´5´9´=´A´E´I´M´Q´U´Y´]´a´e´i´m´q´u´y´}µµµ u³F)A5     3PALG 191456Z AUTO VRB03KT 10SM BKN080 01/M01 A2947 RMK AO2 SLP984 T00061006 56024 FZRANO $PALG2018-10-19T14:56:00Z61.53-160.330.6-0.60310.029.471457998.4TRUETRUETRUETRUEVFR-2.4METAR17.02018-10-19 15:05:17³E)m5     3PAVC 191456Z AUTO 26014KT 10SM FEW019 SCT025 BKN031 04/01 A2957 RMK AO2 RAE45 SLP017 P0000 60000 T00390011 58002PAVC2018-10-19T14:56:00Z55.12-162.273.91.12601410.029.5688971001.7TRUETRUEVFR-0.20.0050.005METAR47.02018-10-19 15:05:17³D)5     3PAVD 191456Z 09014G24KT 070V140 8SM RA BKN037 OVC045 09/03 A2913 RMK AO2 PK WND 08040/1429 SLP888 P0004 60004 T00890028 56083PAVD2018-10-19T14:56:00Z61.13-146.258.92.89014248.029.128937988.8TRUERAVFR-8.30.040.04METAR37.02018-10-19 15:05:17 ³I)y5    3PAKF 191456Z AUTO VRB06G15KT 5SM -RA SCT018 BKN023 BKN032 04/01 A2959 RMK AO2 RAB34 SLP021 6//// T00390006 56007 PNO $PAKF2018-10-19T14:56:00Z54.85-163.423.90.606155.029.5895671002.1TRUETRUETRUE-RAMVFR-0.7METAR6.02018-10-19 15:05:17&³H)5    3PAKH 191456Z AUTO 32021G25KT 10SM BKN090 OVC110 07/05 A2919 RMK AO2 PK WND 31028/1426 RAE1358 SLP887 P0000 60001 T00720050 56020 $PAKH2018-10-19T14:56:00Z56.93-154.187.25.0320212510.029.190945988.7TRUETRUETRUEVFR-2.00.0050.01METAR14.02018-10-19 15:05:17 ³G)y5    3PAKI 191456Z AUTO 09006KT 10SM FEW015 BKN022 OVC028 06/06 A2942 RMK AO2 RAE02B45E56 SLP966 6//// T00610056 56014 PNO $PAKI2018-10-19T14:56:00Z59.93-164.036.15.690610.029.421259996.6TRUETRUETRUEMVFR-1.4METAR4.02018-10-19 15:05:17  n³L)95     3PAIN 191456Z AUTO 00000KT 10SM CLR M04/M06 A2940 RMK AO2 SLP984 T10441056 58068 FZRANOPAIN2018-10-19T14:56:00Z63.73-148.92-4.4-5.60010.029.40059998.4TRUETRUETRUEVFR-6.8METAR524.02018-10-19 15:05:17u³K)I5     3PAIW 191456Z AUTO 08010KT 10SM FEW004 OVC019 01/00 A2971 RMK AO2 SLP063 T00060000 58015 FZRANOPAIW2018-10-19T14:56:00Z65.62-168.10.60.0801010.029.710631006.3TRUETRUETRUEMVFR-1.5METAR7.02018-10-19 15:05:17p³J)75     3PAJZ 191456Z AUTO 28007KT 8SM CLR 02/01 A2941 RMK AO2 SLP966 T00220011 56038 FZRANO $PAJZ2018-10-19T14:56:00Z59.73-157.272.21.128078.029.409449996.6TRUETRUETRUETRUEVFR-3.8METAR82.02018-10-19 15:05:17 (³O)5     3PAHY 191456Z AUTO 12018G28KT 080V140 4SM -RA BR OVC010 11/11 A2989 RMK AO2 PK WND 12036/1426 SLP221 P0000 6//// T01110106 56017 $PAHY2018-10-19T14:56:00Z55.2-132.8311.110.612018284.029.8907471022.1TRUETRUETRUE-RA BRMVFR-1.70.005METAR1.02018-10-19 15:05:17t³N)=5     3PAIG 191456Z AUTO 27006KT 10SM OVC040 06/04 A2931 RMK AO2 SLP937 60000 T00610039 56041 $PAIG2018-10-19T14:56:00Z59.32-155.96.13.9270610.029.309055993.7TRUETRUETRUEVFR-4.10.005METAR28.02018-10-19 15:05:17 ³M)q5      3PAIK 191456Z AUTO 00000KT 2 1/2SM BR BKN002 BKN095 M01/M01 A2976 RMK AO2 CIG 001V005 SLP082 T10061006 58019 FZRANOPAIK2018-10-19T14:56:00Z66.98-160.43-0.6-0.6002.529.7608261008.2TRUETRUETRUEBRLIFR-1.9METAR51.02018-10-19 15:05:17 ³R)5     3PAGM 191456Z AUTO 36021KT 10SM -RA SCT015 OVC021 03/01 A2969 RMK AO2 UPB05E19RAB25E36B53 SLP060 6//// T00330006 58022 PNO $PAGM2018-10-19T14:56:00Z63.77-171.733.30.63602110.029.689961006.0TRUETRUETRUE-RAMVFR-2.2METAR8.02018-10-19 15:05:17³Q)w5     3PAGS 191456Z AUTO 14017G22KT 10SM -RA SCT032 OVC041 11/08 A2963 RMK AO2 WSHFT 1423 SLP033 P0003 60008 T01110083 56047PAGS2018-10-19T14:56:00Z58.42-135.7311.18.3140172210.029.6309051003.3TRUETRUE-RAVFR-4.70.030.08METAR9.02018-10-19 15:05:17~³P)M5     3PAHL 191456Z AUTO 06009G15KT 10SM SCT085 02/01 A2968 RMK AO2 SLP061 60000 T00170006 58025 FZRANOPAHL2018-10-19T14:56:00Z65.7-156.351.70.66091510.029.6811031006.1TRUETRUETRUEVFR-2.50.005METAR65.02018-10-19 15:05:17 909q³V)?5     3PABL 191456Z AUTO 00000KT 10SM OVC100 M01/M02 A2970 RMK AO2 SLP060 T10111017 58020 FZRANOPABL2018-10-19T14:56:00Z65.98-161.15-1.1-1.70010.029.6988181006.0TRUETRUETRUEVFR-2.0METAR7.02018-10-19 15:05:17g³U)15     3PADU 191456Z 20008KT 10SM OVC045 06/M01 A2965 RMK AO2 SLP045 60000 T00561006 58018PADU2018-10-19T14:56:00Z53.9-166.535.6-0.6200810.029.6486231004.5TRUEVFR-1.80.005METAR4.02018-10-19 15:05:17r³T)?5     3PAGA 191456Z AUTO 00000KT 10SM FEW090 M02/M02 A2963 RMK AO2 SLP034 T10171022 58034 FZRANOPAGA2018-10-19T14:56:00Z64.73-156.93-1.7-2.20010.029.6309051003.4TRUETRUETRUEVFR-3.4METAR46.02018-10-19 15:05:17e³S)-5    3PAGH 191456Z AUTO 10009KT 10SM OVC090 03/02 A2975 RMK AO2 SLP078 T00330017 58024PAGH2018-10-19T14:56:00Z66.88-157.173.31.7100910.029.7490161007.8TRUETRUEVFR-2.4METAR60.02018-10-19 15:05:17  6³Z)g5       3PATE 191456Z AUTO 10009KT 3/4SM -SN BR OVC002 M01/M01 A2967 RMK AO2 SLP053 P0000 60000 T10061006 58017 FZRANOPATE2018-10-19T14:56:00Z65.23-166.33-0.6-0.610090.7529.669291005.3TRUETRUETRUE-SN BRLIFR-1.70.0050.005METAR90.02018-10-19 15:05:17d³Y)-5    3PATG 191456Z AUTO 33006KT 10SM BKN055 04/04 A2943 RMK AO2 SLP059 T00440039 56021PATG2018-10-19T14:56:00Z59.05-160.384.43.9330610.029.4301191005.9TRUETRUEVFR-2.1METAR4.02018-10-19 15:05:17a³X)-5    3PAUN 191456Z AUTO 08006KT 10SM OVC100 03/01 A2958 RMK AO2 SLP020 T00330011 56028PAUN2018-10-19T14:56:00Z63.88-160.83.31.180610.029.580711002.0TRUETRUEVFR-2.8METAR6.02018-10-19 15:05:17s³W)E5    3PAVA 191456Z AUTO 05009KT 10SM OVC070 04/03 A2950 RMK AO2 SLP073 6//// T00390033 58017 PNO $PAVA2018-10-19T14:56:00Z61.53-165.63.93.350910.029.5009841007.3TRUETRUETRUEVFR-1.7METAR23.02018-10-19 15:05:17 /  /k³^);5    3PASD 191456Z 30010KT 10SM FEW033 06/01 A2953 RMK AO2 SLP001 6//// T00610011 56006 PNO $PASD2018-10-19T14:56:00Z55.33-160.56.11.13001010.029.5305121000.1TRUETRUEVFR-0.6METAR7.02018-10-19 15:05:17n³]);5     3PASH 191456Z AUTO 07005KT 10SM OVC007 02/01 A2972 RMK AO2 SLP066 T00170006 58014 FZRANOPASH2018-10-19T14:56:00Z66.27-166.081.70.670510.029.7194881006.6TRUETRUETRUEIFR-1.4METAR2.02018-10-19 15:05:17o³\)95     3PASK 191456Z AUTO 04009KT 10SM CLR 01/01 A2973 RMK AO2 SLP065 T00110006 58023 FZRANO $PASK2018-10-19T14:56:00Z66.6-160.01.10.640910.029.7312981006.5TRUETRUETRUETRUEVFR-2.3METAR8.02018-10-19 15:05:17q³[)95    3PASX 191456Z AUTO 02013G20KT 10SM CLR 08/01 A2917 RMK AO2 SLP888 60000 T00780011 57079PASX2018-10-19T14:56:00Z60.48-151.037.81.120132010.029.170275988.8TRUETRUEVFR-7.90.005METAR32.02018-10-19 15:05:17 r³a);5     3PARS 191456Z AUTO 00000KT 10SM CLR 00/M01 A2949 RMK AO2 SLP990 T00001006 56023 FZRANO $PARS2018-10-19T14:56:00Z61.77-161.320.0-0.60010.029.489174999.0TRUETRUETRUETRUEVFR-2.3METAR16.02018-10-19 15:05:17q³`)95     3PARY 191456Z AUTO 06004KT 10SM CLR M01/M02 A2959 RMK AO2 SLP050 T10061017 58033 FZRANOPARY2018-10-19T14:56:00Z64.73-155.47-0.6-1.760410.029.5895671005.0TRUETRUETRUEVFR-3.3METAR199.02018-10-19 15:05:17³_)w5     3PASA 191456Z AUTO 03006KT 10SM FEW020 BKN031 OVC038 03/00 A2967 RMK AO2 RAB15E30 SLP048 P0000 60000 T00280000 58020 $PASA2018-10-19T14:56:00Z63.68-170.52.80.030610.029.669291004.8TRUETRUETRUEVFR-2.00.0050.005METAR16.02018-10-19 15:05:17  ³d)[5     3PAPG 191456Z 13007G25KT 10SM -RA OVC024 12/08 A2988 RMK AO2 RAE16B55 SLP121 P0000 60004 T01220083 58023PAPG2018-10-19T14:56:00Z56.82-132.9712.28.313072510.029.8789371012.1TRUE-RAMVFR-2.30.0050.04METAR15.02018-10-19 15:05:17³c)u5      3PAPH 191456Z AUTO 30012KT 10SM -RA SCT011 BKN018 OVC023 07/06 A2942 RMK AO2 RAB00 SLP966 P0000 60000 T00670056 56017PAPH2018-10-19T14:56:00Z56.95-158.626.75.63001210.029.421259996.6TRUETRUE-RAMVFR-1.70.0050.005METAR29.02018-10-19 15:05:17o³b)=5     3PAPO 191456Z AUTO 08009KT 10SM OVC048 00/M03 A2979 RMK AO2 SLP088 T00001028 58016 FZRANOPAPO2018-10-19T14:56:00Z68.35-166.80.0-2.880910.029.7903541008.8TRUETRUETRUEVFR-1.6METAR6.02018-10-19 15:05:17 $³h)s5   3PAMM 191456Z AUTO 15013G26KT 10SM FEW030 BKN044 OVC055 13/08 A3000 RMK AO2 PK WND 19027/1418 SLP151 T01330083 55008PAMM2018-10-19T14:56:00Z55.13-131.5813.38.3150132610.030.01015.1TRUETRUEVFR-0.8METAR1.02018-10-19 15:05:17l³g)55     3PANW 191456Z AUTO 33009KT 10SM CLR 02/01 A2937 RMK AO2 SLP963 T00220011 56035 FZRANOPANW2018-10-19T14:56:00Z59.45-157.372.21.1330910.029.371063996.3TRUETRUETRUEVFR-3.5METAR92.02018-10-19 15:05:17k³f);5    3PAOO 191456Z AUTO 35005KT 10SM FEW039 OVC049 06/04 A2945 RMK AO2 SLP985 T00560039 58016PAOO2018-10-19T14:56:00Z60.53-165.125.63.9350510.029.450787998.5TRUETRUEVFR-1.6METAR18.02018-10-19 15:05:17s³e)E5     3PAOU 191456Z AUTO 27012KT 8SM SCT037 SCT047 06/01 A2951 RMK AO2 SLP993 60000 T00610006 58010PAOU2018-10-19T14:56:00Z56.0-161.176.10.6270128.029.509842999.3TRUETRUEVFR-1.00.005METAR4.02018-10-19 15:05:17 ?&;?v³l)A5    3PAKK 191456Z AUTO 36010G15KT 10SM FEW070 02/01 A2959 RMK AO2 SLP035 T00220011 58023 FZRANOPAKK2018-10-19T14:56:00Z64.93-161.152.21.1360101510.029.5895671003.5TRUETRUETRUEVFR-2.3METAR47.02018-10-19 15:05:17e³k)+5    3PAMB 191456Z AUTO 02006KT 10SM CLR 03/03 A2940 RMK AO2 SLP963 T00330028 56026 $PAMB2018-10-19T14:56:00Z58.98-159.053.32.820610.029.40059996.3TRUETRUETRUEVFR-2.6METAR16.02018-10-19 15:05:17m³j)75     3PAMH 191456Z AUTO 03006KT 10SM CLR 02/M01 A2947 RMK AO2 SLP736 T00221011 58054 FZRANOPAMH2018-10-19T14:56:00Z63.9-152.322.2-1.130610.029.471457973.6TRUETRUETRUEVFR-5.4METAR214.02018-10-19 15:05:17a³i)#5    3PAMK 191456Z AUTO 10006KT 10SM 03/02 A2957 RMK AO2 SLP017 T00330017 58023 $PAMK2018-10-19T14:56:00Z63.48-162.123.31.7100610.029.5688971001.7TRUETRUETRUE-2.3METAR28.02018-10-19 15:05:17 ³o)i5      3PAGN 191456Z AUTO 10010KT 10SM -RA SCT034 SCT045 OVC065 11/08 A2973 RMK AO2 SLP057 P0000 60001 T01110083 56030PAGN2018-10-19T14:56:00Z57.5-134.5811.18.31001010.029.7312981005.7TRUETRUE-RAVFR-3.00.0050.01METAR2.02018-10-19 15:05:17j³n)55     3PAHX 191456Z AUTO 01009KT 10SM CLR 01/01 A2953 RMK AO2 SLP999 T00110006 58026 FZRANOPAHX2018-10-19T14:56:00Z62.7-159.571.10.610910.029.530512999.9TRUETRUETRUEVFR-2.6METAR24.02018-10-19 15:05:17z³m)Q5    3PAII 191456Z AUTO 35005KT 10SM SCT075 04/04 A2937 RMK AO2 RAE17 SLP948 6//// T00440039 57025 PNO $PAII2018-10-19T14:56:00Z58.18-157.384.43.9350510.029.371063994.8TRUETRUETRUEVFR-2.5METAR30.02018-10-19 15:05:17 & &h³s)55    3PABV 191456Z AUTO 17003KT 10SM CLR 04/02 A2913 RMK AO2 PRESFR SLP873 T00390022 58099PABV2018-10-19T14:56:00Z61.42-149.523.92.2170310.029.128937987.3TRUETRUEVFR-9.9METAR29.02018-10-19 15:05:17a³r)-5    3PACM 191456Z AUTO 00000KT 10SM OVC003 03/03 A2954 RMK AO2 SLP999 T00330028 58014PACM2018-10-19T14:56:00Z61.85-165.573.32.80010.029.53937999.9TRUETRUELIFR-1.4METAR4.02018-10-19 15:05:17 ³q)W5     3PAFE 191456Z AUTO 11013G23KT 6SM -RA BR OVC013 11/09 A2979 RMK AO2 SLP101 P0001 60004 T01060094 56030PAFE2018-10-19T14:56:00Z56.97-133.9210.69.411013236.029.7903541010.1TRUETRUE-RA BRMVFR-3.00.010.04METAR9.02018-10-19 15:05:17n³p);5     3PAFM 191456Z AUTO 03006KT 10SM OVC085 02/02 A2977 RMK AO2 SLP096 T00220017 58024 FZRANOPAFM2018-10-19T14:56:00Z67.1-157.852.21.730610.029.7696861009.6TRUETRUETRUEVFR-2.4METAR88.02018-10-19 15:05:17 49'4m³w)35    3KWVL 191456Z AUTO 21006KT 10SM OVC043 08/M02 A3005 RMK AO2 SLP206 T00831017 58021 $KWVL2018-10-19T14:56:00Z44.52-69.678.3-1.7210610.030.0501981020.6TRUETRUETRUEVFR-2.1METAR101.02018-10-19 15:05:17 ³v)o5    3KY50 191456Z AUTO 21011G18KT 10SM -RA FEW055 SCT070 OVC090 10/07 A2991 RMK AO2 RAB25 SLP158 6//// T01000067 58025KY502018-10-19T14:56:00Z44.03-89.310.06.7210111810.029.9114171015.8TRUETRUE-RAVFR-2.5METAR262.02018-10-19 15:05:17X³u)#5   3KY63 191456Z AUTO 31013G20KT 280V350 10SM CLR 09/04 A2984 RMK AO2 T00880037KY632018-10-19T14:56:00Z45.98-96.08.83.7310132010.029.840551TRUETRUEVFRMETAR367.02018-10-19 15:05:17c³t)'5    3KYKN 191456Z AUTO 26014KT 10SM CLR 14/08 A2993 RMK AO2 SLP147 T01390078 53013KYKN2018-10-19T14:56:00Z42.92-97.3713.97.82601410.029.9291341014.7TRUETRUEVFR1.3METAR398.02018-10-19 15:05:17 = #=`³{)'5    3KUCP 191456Z AUTO VRB06KT 10SM CLR 08/01 A3024 RMK AO2 SLP264 T00780011 58021KUCP2018-10-19T14:56:00Z41.03-80.427.81.10610.030.2391741026.4TRUETRUEVFR-2.1METAR327.02018-10-19 15:05:17a³z)'5    3KUDG 191456Z AUTO 05004KT 10SM CLR 17/11 A3037 RMK AO2 SLP291 T01720106 58000KUDG2018-10-19T14:56:00Z34.45-79.8817.210.650410.030.3690951029.1TRUETRUEVFR0.0METAR59.02018-10-19 15:05:17 ³y)_5      3KVBT 191456Z AUTO 18004KT 3SM -RA BR BKN028 OVC035 09/08 A3029 RMK AO2 SLP259 P0013 60021 T00890078 56000KVBT2018-10-19T14:56:00Z36.35-94.228.97.818043.030.289371025.9TRUETRUE-RA BRMVFR0.00.130.21METAR395.02018-10-19 15:05:17`³x)'5    3KVIS 191456Z AUTO 12003KT 10SM CLR 09/04 A3014 RMK AO2 SLP216 T00890044 53010KVIS2018-10-19T14:56:00Z36.32-119.48.94.4120310.030.1387791021.6TRUETRUEVFR1.0METAR89.02018-10-19 15:05:17 )a³)-5    3KSRC 191456Z AUTO 00000KT 10SM BKN085 13/08 A3029 RMK AO2 SLP267 T01330083 53008KSRC2018-10-19T14:56:00Z35.22-91.7313.38.30010.030.289371026.7TRUETRUEVFR0.8METAR80.02018-10-19 15:05:17#³~)5    3KSUE 191456Z AUTO 21015G23KT 10SM FEW080 OVC095 12/06 A2985 RMK AO2 PK WND 21026/1412 RAB38E49 SLP132 P0000 60000 T01170056 58024KSUE2018-10-19T14:56:00Z44.85-87.4211.75.6210152310.029.849411013.2TRUETRUEVFR-2.40.0050.005METAR221.02018-10-19 15:05:17R³})5   3KTKC 191456Z AUTO 24015G24KT 10SM CLR 14/09 A2983 RMK AO2 T01370090KTKC2018-10-19T14:56:00Z44.25-95.6213.79.0240152410.029.828741TRUETRUEVFRMETAR408.02018-10-19 15:05:17y³|)Q5   3KTVF 191456Z AUTO 32016G23KT 10SM CLR 09/02 A2982 RMK AO2 PK WND 34026/1429 SLP103 T00940017 51032KTVF2018-10-19T14:56:00Z48.07-96.179.41.7320162310.029.8198811010.3TRUETRUEVFR3.2METAR340.02018-10-19 15:05:17 %%j´)75     3PPIT 191456Z AUTO 04006KT 10SM OVC070 04/04 A2945 RMK AO2 SLP973 T00390039 57019 TSNOPPIT2018-10-19T14:56:00Z60.9-162.433.93.940610.029.450787997.3TRUETRUETRUEVFR-1.9METAR4.02018-10-19 15:05:17|´)S5      3KSMN 191456Z AUTO 00000KT 1 1/2SM BR CLR 01/M02 A3046 RMK AO2 VIS 1V5 SLP341 T00061017 51020 FZRANOKSMN2018-10-19T14:56:00Z45.12-113.870.6-1.7001.530.460631034.1TRUETRUETRUEBRIFR2.0METAR1233.02018-10-19 15:05:17`´)'5    3KSOP 191456Z AUTO VRB04KT 10SM CLR 15/08 A3038 RMK AO2 SLP307 T01500078 58003KSOP2018-10-19T14:56:00Z35.22-79.415.07.80410.030.3809051030.7TRUETRUEVFR-0.3METAR141.02018-10-19 15:05:17}´)W5    3KSQI 191456Z AUTO VRB04KT 10SM BKN085 10/03 A3007 RMK AO2 RAB27E48 SLP209 6//// T01000033 58022 PNO $KSQI2018-10-19T14:56:00Z41.75-89.6710.03.30410.030.0708661020.9TRUETRUETRUEVFR-2.2METAR197.02018-10-19 15:05:17 = %=b´)'5    3PFEL 191456Z AUTO 35009KT 10SM CLR 04/02 A2962 RMK AO2 SLP029 T00440017 58026PFEL2018-10-19T14:56:00Z64.62-162.274.41.7350910.029.6190951002.9TRUETRUEVFR-2.6METAR49.02018-10-19 15:05:17l´);5     3PFKW 191456Z AUTO 06005KT 10SM FEW075 02/02 A2945 RMK AO2 SLP972 T00220017 56021 FZRANOPFKW2018-10-19T14:56:00Z60.8-161.432.21.760510.029.450787997.2TRUETRUETRUEVFR-2.1METAR8.02018-10-19 15:05:17p´);5     3PFNO 191456Z AUTO 07016KT 10SM OVC090 02/01 A2972 RMK AO2 SLP065 T00170011 58020 FZRANOPFNO2018-10-19T14:56:00Z66.82-161.021.71.1701610.029.7194881006.5TRUETRUETRUEVFR-2.0METAR17.02018-10-19 15:05:17m´)95     3PFWS 191456Z AUTO 34008KT 10SM OVC090 03/03 A2937 RMK AO2 SLP950 60000 T00330028 56030PFWS2018-10-19T14:56:00Z58.7-157.03.32.8340810.029.371063995.0TRUETRUEVFR-3.00.005METAR49.02018-10-19 15:05:17 *%´ )5     3PAOH 191456Z AUTO 10015G21KT 10SM -RA SCT030 BKN060 OVC090 11/09 A2963 RMK AO2 PK WND 13027/1442 SLP034 P0001 60003 T01110089 56041PAOH2018-10-19T14:56:00Z58.1-135.4511.18.9100152110.029.6309051003.4TRUETRUE-RAVFR-4.10.010.03METAR9.02018-10-19 15:05:17k´ );5    3PAPN 191456Z AUTO 32003KT 10SM SCT018 OVC055 04/03 A2937 RMK AO2 SLP947 T00390033 56021PAPN2018-10-19T14:56:00Z57.58-157.573.93.3320310.029.371063994.7TRUETRUEVFR-2.1METAR18.02018-10-19 15:05:17_´)'5    3PASL 191456Z AUTO VRB04KT 10SM CLR 03/01 A2943 RMK AO2 SLP963 T00330006 58044PASL2018-10-19T14:56:00Z61.72-157.153.30.60410.029.430119996.3TRUETRUEVFR-4.4METAR55.02018-10-19 15:05:17   p´ )95     3PAKP 191456Z AUTO 00000KT 10SM CLR M06/M07 A2976 RMK AO2 SLP124 T10611072 58014 FZRANOPAKP2018-10-19T14:56:00Z68.13-151.73-6.1-7.20010.029.7608261012.4TRUETRUETRUEVFR-1.4METAR642.02018-10-19 15:05:17t´ )I5     3PANA 191456Z AUTO 07005KT 10SM BKN065 OVC085 02/01 A2945 RMK AO2 SLP972 T00170011 56019 FZRANOPANA2018-10-19T14:56:00Z60.68-161.981.71.170510.029.450787997.2TRUETRUETRUEVFR-1.9METAR5.02018-10-19 15:05:17~´ )Q5     3PANI 191456Z AUTO 00000KT 10SM CLR 04/01 A2946 RMK AO2 RAB10E22 SLP946 P0000 60000 T00390006 58030PANI2018-10-19T14:56:00Z61.58-159.533.90.60010.029.459646994.6TRUETRUEVFR-3.00.0050.005METAR26.02018-10-19 15:05:17 a9aR´)5   3KLWA 191456Z AUTO 22013G17KT 10SM CLR 12/03 A3009 RMK AO2 T01180030KLWA2018-10-19T14:56:00Z42.35-86.2511.83.0220131710.030.088583TRUETRUEVFRMETAR203.02018-10-19 15:05:17[´)#5    3KLZU 191456Z 09005KT 10SM SCT033 16/08 A3034 RMK AO2 SLP284 T01610083 50002KLZU2018-10-19T14:56:00Z33.98-83.9716.18.390510.030.3395671028.4TRUEVFR0.2METAR323.02018-10-19 15:05:17_´)#5    3KM19 191456Z AUTO 32005KT 10SM 12/08 A3029 RMK AO2 SLP264 T01170078 53010 $KM192018-10-19T14:56:00Z35.65-91.1711.77.8320510.030.289371026.4TRUETRUETRUE1.0METAR73.02018-10-19 15:05:17{´)C5    3KMBL 191456Z AUTO 21010G20KT 9SM CLR 14/07 A2993 RMK AO2 SLP157 P0004 60004 T01390067 58028KMBL2018-10-19T14:56:00Z44.27-86.2513.96.721010209.029.9291341015.7TRUETRUEVFR-2.80.040.04METAR189.02018-10-19 15:05:17 $:4´(o5   3MMPE 191456Z 36010KT 10SM SKC 21/09 A2994 RMK RTSMMPE2018-10-19T14:56:00Z31.35-113.5221.09.03601010.029.940945VFRMETAR9.02018-10-19 15:05:17d´)'5    3KNXP 191456Z AUTO 30010KT 10SM CLR 16/01 A3023 RMK AO2 SLP210 T01610011 53010KNXP2018-10-19T14:56:00Z34.28-116.1716.11.13001010.030.2303141021.0TRUETRUEVFR1.0METAR626.02018-10-19 15:05:17i´)15    3ETIC 191456Z AUTO 00000KT 9999 OVC030 15/09 A3020 RMK AO2 SLP235 T01470091 57004 $ETIC2018-10-19T14:56:00Z49.711.9314.79.1006.2130.2007871023.5TRUETRUETRUEMVFR-0.4METAR415.02018-10-19 15:05:17g´)+5    3ETIH 191456Z AUTO 00000KT 9999 CLR 16/12 A3021 RMK AO2 SLP234 T01570117 55002 $ETIH2018-10-19T14:56:00Z49.2211.8215.711.7006.2130.2096461023.4TRUETRUETRUEVFR-0.2METAR442.02018-10-19 15:05:17 $$j´)75     3KAWO 191456Z AUTO 00000KT M1/4SM FG OVC002 03/03 A3030 RMK AO2 SLP263 T00280028 53006KAWO2018-10-19T14:56:00Z48.17-122.172.82.8000.2530.3011821026.3TRUETRUEFGLIFR0.6METAR42.02018-10-19 15:05:17t´)I5    3KAUO 191456Z AUTO 12007KT 10SM FEW015 BKN027 OVC035 18/13 A3031 RMK AO2 SLP281 T01830128 51006KAUO2018-10-19T14:56:00Z32.62-85.4218.312.8120710.030.310041028.1TRUETRUEMVFR0.6METAR236.02018-10-19 15:05:17´)M5      3RJTY 191456Z AUTO 29004KT 10SM CLR 14/11 A3013 RMK AO2 SLP205 T01370110 401770119 58005 FZRANO $RJTY2018-10-19T14:56:00Z35.75139.3313.711.0290410.030.1299211020.5TRUETRUETRUETRUEVFR-0.517.711.9METAR139.02018-10-19 15:05:17_´)'5    3KAQV 191456Z AUTO VRB04KT 10SM CLR 19/13 A3021 RMK AO2 SLP227 T01890128 51007KAQV2018-10-19T14:56:00Z31.4-93.318.912.80410.030.2096461022.7TRUETRUEVFR0.7METAR111.02018-10-19 15:05:17 5+85}´)K5      3KSLG 191456Z AUTO 18006KT 9SM -RA OVC029 09/08 A3028 RMK AO2 SLP253 P0005 60014 T00940078 50006KSLG2018-10-19T14:56:00Z36.2-94.479.47.818069.030.2805121025.3TRUETRUE-RAMVFR0.60.050.14METAR300.02018-10-19 15:05:17m´)35     3KBLM 191456Z AUTO 23011KT 10SM CLR 12/01 A3030 RMK AO2 SLP266 60002 T01220011 58016KBLM2018-10-19T14:56:00Z40.17-74.1212.21.12301110.030.3011821026.6TRUETRUEVFR-1.60.02METAR48.02018-10-19 15:05:17f´)/5    3KBHB 191456Z AUTO 24009KT 10SM OVC060 07/M02 A3011 RMK AO2 SLP200 T00721017 58014KBHB2018-10-19T14:56:00Z44.45-68.377.2-1.7240910.030.1092531020.0TRUETRUEVFR-1.4METAR26.02018-10-19 15:05:17c´)'5    3KBKX 191456Z AUTO 30012KT 10SM CLR 12/08 A2989 RMK AO2 SLP136 T01170083 53012KBKX2018-10-19T14:56:00Z44.28-96.8211.78.33001210.029.8907471013.6TRUETRUEVFR1.2METAR502.02018-10-19 15:05:17 W!>Wa´!)+5    3KSGT 191456Z AUTO 18003KT 9SM OVC090 14/09 A3027 RMK AO2 SLP251 T01440089 53003KSGT2018-10-19T14:56:00Z34.6-91.5714.48.918039.030.2687021025.1TRUETRUEVFR0.3METAR68.02018-10-19 15:05:17]´ )%5    3KSGU 191456Z AUTO 00000KT 8SM CLR 09/02 A3033 RMK AO2 SLP260 T00940017 52016KSGU2018-10-19T14:56:00Z37.07-113.529.41.7008.030.330711026.0TRUETRUEVFR1.6METAR896.02018-10-19 15:05:17i´)=5    3KSJX 191456Z AUTO 23019G28KT 10SM -RA SCT065 BKN080 OVC100 11/08 A2981 RMK AO2 T01130076KSJX2018-10-19T14:56:00Z45.7-85.5711.37.6230192810.029.811024TRUETRUE-RAVFRMETAR204.02018-10-19 15:05:17j´)15    3KSKX 191456Z AUTO VRB03KT 10SM OVC016 04/02 A3044 RMK AO2 SLP308 T00440022 53016 $KSKX2018-10-19T14:56:00Z36.45-105.674.42.20310.030.439961030.8TRUETRUETRUEMVFR1.6METAR2161.02018-10-19 15:05:17 5 '5l´%);5     3KCVO 191456Z AUTO 00000KT 10SM FEW004 02/01 A3027 RMK AO2 SLP251 T00170006 51015 FZRANOKCVO2018-10-19T14:56:00Z44.5-123.271.70.60010.030.2687021025.1TRUETRUETRUEVFR1.5METAR75.02018-10-19 15:05:17L´$) 5    3KI69 191456Z AUTO 17005KT 10SM CLR 11/03 A3027 RMK AO2 T01080026KI692018-10-19T14:56:00Z39.08-84.2210.82.6170510.030.268702TRUETRUEVFRMETAR255.02018-10-19 15:05:17 ´#)s5        3KILE 191456Z AUTO 36006KT 4SM RA SCT005 BKN030 OVC035 A3023 RMK AO2 UPE1358RAB1358 SLPNO P0026 60027 51010 FZRANO $KILE2018-10-19T14:56:00Z31.07-97.6736064.030.230314TRUETRUETRUETRUERAMVFR1.00.260.27METAR258.02018-10-19 15:05:17n´")55     3KHDN 191456Z AUTO 10008KT 10SM CLR 01/00 A3049 RMK AO2 SLP331 T00110000 53017 FZRANOKHDN2018-10-19T14:56:00Z40.47-107.221.10.0100810.030.4901581033.1TRUETRUETRUEVFR1.7METAR2012.02018-10-19 15:05:17 >  )>e´)))5    3KCOD 191456Z AUTO 26004KT 10SM CLR 08/M03 A3038 RMK AO2 SLP289 T00781028 53021KCOD2018-10-19T14:56:00Z44.52-109.027.8-2.8260410.030.3809051028.9TRUETRUEVFR2.1METAR1553.02018-10-19 15:05:17q´()?5    3KCOE 191456Z AUTO 09006KT 10SM CLR 03/02 A3037 RMK AO2 SLP314 6//// T00280022 53015 PNO $KCOE2018-10-19T14:56:00Z47.77-116.822.82.290610.030.3690951031.4TRUETRUETRUEVFR1.5METAR707.02018-10-19 15:05:17g´')/5    3KCTB 191456Z AUTO 28005KT 10SM OVC090 04/M01 A3035 RMK AO2 SLP290 T00441006 51013KCTB2018-10-19T14:56:00Z48.6-112.374.4-0.6280510.030.3513771029.0TRUETRUEVFR1.3METAR1175.02018-10-19 15:05:17m´&);5    3KCVN 191456Z AUTO 27010KT 10SM FEW003 BKN110 09/08 A3029 RMK AO2 SLP255 T00940078 51014KCVN2018-10-19T14:56:00Z34.42-103.079.47.82701010.030.289371025.5TRUETRUEVFR1.4METAR1284.02018-10-19 15:05:17 V8?Vc´-)'5    3KOLU 191456Z AUTO 24014KT 10SM CLR 13/09 A3001 RMK AO2 SLP164 T01280094 53002KOLU2018-10-19T14:56:00Z41.45-97.3212.89.42401410.030.0088581016.4TRUETRUEVFR0.2METAR440.02018-10-19 15:05:17s´,)K5     3KOTH 191456Z 06005KT 1SM BR OVC003 09/08 A3026 RMK AO2 SLP248 6//// T00890083 53011 RVRNO PNO $KOTH2018-10-19T14:56:00Z43.42-124.258.98.36051.030.2598421024.8TRUETRUEBRLIFR1.1METAR4.02018-10-19 15:05:17Z´+)5    3KOWB 191456Z 19004KT 10SM CLR 11/06 A3026 RMK AO2 SLP264 T01110056 58006KOWB2018-10-19T14:56:00Z37.72-87.1711.15.6190410.030.2598421026.4TRUEVFR-0.6METAR124.02018-10-19 15:05:17b´*)'5    3KPIB 191456Z AUTO 11004KT 10SM CLR 21/14 A3026 RMK AO2 SLP245 T02110139 53012KPIB2018-10-19T14:56:00Z31.47-89.3221.113.9110410.030.2598421024.5TRUETRUEVFR1.2METAR91.02018-10-19 15:05:17 j'7jG´1(5   3KCBG 191455Z AUTO 22010G18KT 10SM CLR 15/07 A2974 RMK AO2KCBG2018-10-19T14:55:00Z45.57-93.2715.07.0220101810.029.740158TRUETRUEVFRMETAR287.02018-10-19 15:05:17j´0)-5   3KCAO 191455Z AUTO 33015G22KT 10SM CLR 13/02 A3027 RMK AO2 SLP226 T01330022 53021KCAO2018-10-19T14:55:00Z36.45-103.1513.32.2330152210.030.2687021022.6TRUETRUEVFR2.1METAR1514.02018-10-19 15:05:17i´/)55    3KHEF 191456Z 17005KT 10SM CLR 12/07 A3034 RMK AO2 SLP288 6//// T01170067 58011 PNO $KHEF2018-10-19T14:56:00Z38.72-77.5211.76.7170510.030.3395671028.8TRUETRUEVFR-1.1METAR59.02018-10-19 15:05:17d´.)'5    3KOKK 191456Z AUTO 21011KT 10SM CLR 11/02 A3019 RMK AO2 SLP229 T01060017 58019KOKK2018-10-19T14:56:00Z40.53-86.0710.61.72101110.030.1889761022.9TRUETRUEVFR-1.9METAR253.02018-10-19 15:05:17 .cL´5) 5    3KBKT 191455Z AUTO 19007KT 10SM CLR 14/08 A3037 RMK AO1 T01410075KBKT2018-10-19T14:55:00Z37.07-77.9514.17.5190710.030.369095TRUETRUEVFRMETAR134.02018-10-19 15:05:17K´4) 5    3KBMT 191455Z AUTO 06005KT 10SM CLR 24/16 A3018 RMK AO2 T02380158KBMT2018-10-19T14:55:00Z30.07-94.2223.815.860510.030.180119TRUETRUEVFRMETAR10.02018-10-19 15:05:17E´3)5   3KBQP 191455Z AUTO 10003KT 10SM 19/11 A3026 RMK AO2 T01890106KBQP2018-10-19T14:55:00Z32.75-91.8818.910.6100310.030.259842TRUETRUEMETAR51.02018-10-19 15:05:17L´2) 5    3KBVN 191455Z AUTO 28005KT 10SM CLR 12/09 A3001 RMK AO2 T01240093KBVN2018-10-19T14:55:00Z41.73-98.0512.49.3280510.030.008858TRUETRUEVFRMETAR551.02018-10-19 15:05:17 -fC´9({5    3KAUN 191455Z AUTO 09005KT 10SM CLR 15/M01 A3016 RMK A01KAUN2018-10-19T14:55:00Z38.95-121.0815.0-1.090510.030.159449TRUETRUEVFRMETAR467.02018-10-19 15:05:17S´8)5   3KBIE 191455Z AUTO 24014G18KT 10SM CLR 15/10 A3006 RMK AO2 T01520102KBIE2018-10-19T14:55:00Z40.28-96.7515.210.2240141810.030.059055TRUETRUEVFRMETAR403.02018-10-19 15:05:17A´7(5    3KBIJ 191455Z AUTO 08005KT 10SM SCT040 22/16 A3028 RMK AO2KBIJ2018-10-19T14:55:00Z31.4-84.922.016.080510.030.280512TRUETRUEVFRMETAR65.02018-10-19 15:05:17M´6)5    3KBKS 191455Z AUTO 32007KT 3SM OVC003 18/16 A3013 RMK AO1 T01760164KBKS2018-10-19T14:55:00Z27.2-98.1217.616.432073.030.129921TRUETRUELIFRMETAR34.02018-10-19 15:05:17 )RzQ´=)5    3KALX 191455Z AUTO 10005KT 10SM BKN016 18/15 A3030 RMK AO2 T01770149KALX2018-10-19T14:55:00Z32.92-85.9717.714.9100510.030.301182TRUETRUEMVFRMETAR209.02018-10-19 15:05:17R´<)5   3KANW 191455Z AUTO 32018G22KT 10SM CLR 11/04 A3008 RMK AO2 T01120035KANW2018-10-19T14:55:00Z42.57-100.011.23.5320182210.030.079725TRUETRUEVFRMETAR789.02018-10-19 15:05:17Q´;)5    3KAPY 191455Z AUTO 31006KT 10SM OVC004 15/15 A3017 RMK AO2 T01520150KAPY2018-10-19T14:55:00Z26.97-99.2515.215.0310610.030.171259TRUETRUELIFRMETAR129.02018-10-19 15:05:17Q´:)5   3KAUH 191455Z AUTO 25010G16KT 10SM CLR 12/10 A3005 RMK AO2 T01240097KAUH2018-10-19T14:55:00Z40.88-98.012.49.7250101610.030.050198TRUETRUEVFRMETAR550.02018-10-19 15:05:17 )TQ´A)5    3K1K1 191455Z AUTO 22010KT 10SM OVC005 11/11 A3018 RMK AO2 T01110105K1K12018-10-19T14:55:00Z37.77-97.1211.110.52201010.030.180119TRUETRUEIFRMETAR416.02018-10-19 15:05:17L´@) 5    3K5R8 191455Z AUTO 10004KT 10SM CLR 21/15 A3020 RMK AO2 T02070146K5R82018-10-19T14:55:00Z30.43-93.4720.714.6100410.030.200787TRUETRUEVFRMETAR24.02018-10-19 15:05:17O´?)5    3KAFK 191455Z AUTO 23015KT 10SM BKN037 14/10 A3004 RMK AO2 T01410098KAFK2018-10-19T14:55:00Z40.6-95.8514.19.82301510.030.041338TRUETRUEVFRMETAR354.02018-10-19 15:05:17Q´>)5   3KAHQ 191455Z AUTO 23012G20KT 10SM CLR 14/10 A3002 RMK AO2 T01420101KAHQ2018-10-19T14:55:00Z41.23-96.614.210.1230122010.030.02067TRUETRUEVFRMETAR374.02018-10-19 15:05:17 :_hR´E)5   3KCFE 191455Z AUTO 22012G17KT 10SM CLR 13/07 A2977 RMK AO2 T01330074KCFE2018-10-19T14:55:00Z45.17-93.8513.37.4220121710.029.769686TRUETRUEVFRMETAR295.02018-10-19 15:05:17q´D)G5     3KCHK 191455Z AUTO 18005KT 10SM SCT011 BKN044 OVC085 12/12 A3021 RMK AO2 P0001 T01240116 60003KCHK2018-10-19T14:55:00Z35.1-97.9712.411.6180510.030.209646TRUETRUEVFR0.010.03METAR351.02018-10-19 15:05:17U´C)5     3K0E0 191455Z AUTO 01006KT 3/4SM BR OVC003 05/05 A3037 RMK AO2 T00480048K0E02018-10-19T14:55:00Z34.98-106.04.84.81060.7530.369095TRUETRUEBRLIFRMETAR1890.02018-10-19 15:05:17@´B)5   3K0V4 191455Z AUTO 19007KT CLR 13/08 A3035 RMK AO1 T01300076K0V42018-10-19T14:55:00Z37.15-79.0213.07.6190730.351377TRUETRUEMETAR182.02018-10-19 15:05:17 6e<´I(y5    3KMAW 191455Z AUTO 00000KT 10SM CLR 13/06 A3028 RMK AO2KMAW2018-10-19T14:55:00Z36.6-90.013.06.00010.030.280512TRUETRUEVFRSPECI90.02018-10-19 15:05:17I´H) 5     3KBVS 191455Z AUTO 00000KT M1/4SM FG OVC002 06/06 A3029 RMK A01KBVS2018-10-19T14:55:00Z48.47-122.426.06.0000.2530.28937TRUETRUEFGLIFRMETAR43.02018-10-19 15:05:17K´G) 5    3KCDI 191455Z AUTO 19003KT 10SM CLR 09/03 A3027 RMK AO2 T00850028KCDI2018-10-19T14:55:00Z39.97-81.588.52.8190310.030.268702TRUETRUEVFRMETAR244.02018-10-19 15:05:17D´F)5    3KCFD 191455Z AUTO 10SM SCT060 17/15 A3020 RMK AO2 T01700151KCFD2018-10-19T14:55:00Z30.72-96.3317.015.110.030.200787TRUETRUEVFRMETAR112.02018-10-19 15:05:17 7eB´M(y5    3K2C8 191455Z AUTO 31014KT 10SM CLR 10/00 A2986 RMK AO2K2C82018-10-19T14:55:00Z48.78-97.6310.00.03101410.029.861221TRUETRUEVFRMETAR272.02018-10-19 15:05:17H´L(5   3K2V5 191455Z AUTO 31015G20KT 10SM CLR 12/02 A3020 RMK AO2K2V52018-10-19T14:55:00Z40.1-102.2512.02.0310152010.030.200787TRUETRUEVFRMETAR1118.02018-10-19 15:05:17L´K)5     3KANQ 191455Z AUTO 23015KT 10SM CLR 11/01 A3014 RMK AO2 TSNOKANQ2018-10-19T14:55:00Z41.63-85.0811.01.02301510.030.138779TRUETRUETRUEVFRMETAR303.02018-10-19 15:05:17C´J(5    3KDYB 191455Z AUTO 02006KT 10SM SCT045 18/13 A3034 RMK AO1KDYB2018-10-19T14:55:00Z33.07-80.2818.013.020610.030.339567TRUETRUEVFRSPECI18.02018-10-19 15:05:17 )e@´Q(y5    3KSTF 191455Z AUTO 00000KT 10SM CLR 17/12 A3027 RMK AO2KSTF2018-10-19T14:55:00Z33.43-88.8517.012.00010.030.268702TRUETRUEVFRMETAR102.02018-10-19 15:05:17E´P(5    3KFDW 191455Z AUTO 10004KT 10SM OVC027 15/08 A3036 RMK AO1KFDW2018-10-19T14:55:00Z34.32-81.1215.08.0100410.030.360237TRUETRUEMVFRMETAR176.02018-10-19 15:05:17>´O(y5    3KCKM 191455Z AUTO 00000KT 10SM CLR 14/13 A3026 RMK A01KCKM2018-10-19T14:55:00Z34.3-90.5214.013.00010.030.259842TRUETRUEVFRMETAR53.02018-10-19 15:05:17Q´N)5   3KMCX 191455Z AUTO 21010G14KT 10SM CLR 09/02 A3018 RMK AO2 T00850017KMCX2018-10-19T14:55:00Z40.72-86.778.51.7210101410.030.180119TRUETRUEVFRMETAR206.02018-10-19 15:05:17 ,JQ´U)5   3KEVM 191455Z AUTO 26013G18KT 10SM CLR 12/07 A2962 RMK AO2 T01220066KEVM2018-10-19T14:55:00Z47.42-92.512.26.6260131810.029.619095TRUETRUEVFRMETAR421.02018-10-19 15:05:17@´T(y5    3KD55 191455Z AUTO 31018KT 10SM CLR 08/02 A2991 RMK AO2KD552018-10-19T14:55:00Z48.75-98.48.02.03101810.029.911417TRUETRUEVFRMETAR491.02018-10-19 15:05:17\´S)/5    3KZPH 191455Z AUTO 00000KT 10SM BKN013 BKN020 BKN028 28/24 A3022 RMK AO2 T02810239KZPH2018-10-19T14:55:00Z28.23-82.1528.123.90010.030.221457TRUETRUEMVFRSPECI26.02018-10-19 15:05:17N´R)5    3KC62 191455Z AUTO 22013KT 10SM CLR 10/M01 A3015 RMK AO2 T01021008KC622018-10-19T14:55:00Z41.47-85.2510.2-0.82201310.030.15059TRUETRUEVFRMETAR306.02018-10-19 15:05:17 'OdW´Y)5     3KCQB 191455Z AUTO 17004KT 10SM -RA OVC005 12/12 A3025 RMK AO2 T01190116KCQB2018-10-19T14:55:00Z35.72-96.8211.911.6170410.030.250984TRUETRUE-RAIFRMETAR300.02018-10-19 15:05:17e´X)+5    3KAAT 191455Z AUTO 00000KT 10SM CLR M03/M04 A3037 RMK AO2 SLP292 T10281039 51012KAAT2018-10-19T14:55:00Z41.48-120.57-2.8-3.90010.030.3690951029.2TRUETRUEVFR1.2METAR1331.02018-10-19 15:05:17R´W)5   3KSLH 191455Z AUTO 22016G26KT 10SM CLR 13/07 A2977 RMK AO2 T01300065KSLH2018-10-19T14:55:00Z45.65-84.5213.06.5220162610.029.769686TRUETRUEVFRMETAR195.02018-10-19 15:05:17S´V)5   3KFKS 191455Z AUTO 19009G17KT 10SM BKN110 12/07 A2991 RMK AO2 T01200068KFKS2018-10-19T14:55:00Z44.63-86.212.06.819091710.029.911417TRUETRUEVFRMETAR193.02018-10-19 15:05:17 ,9cB´](}5    3KMYJ 191455Z AUTO 19007KT 7SM OVC050 11/05 A3016 RMK AO2KMYJ2018-10-19T14:55:00Z39.15-91.8211.05.019077.030.159449TRUETRUEVFRSPECI251.02018-10-19 15:05:17P´\)5   3KLDJ 191455Z AUTO 29011G17KT 10SM CLR 11/00 A3028 RMK AO2 T01100000KLDJ2018-10-19T14:55:00Z40.62-74.2511.00.0290111710.030.280512TRUETRUEVFRMETAR7.02018-10-19 15:05:17m´[)A5      3KGGI 191455Z AUTO 19012KT 7SM -RA SCT022 BKN055 OVC070 10/08 A3001 RMK AO2 60001 T01020075KGGI2018-10-19T14:55:00Z41.72-92.7310.27.5190127.030.008858TRUETRUE-RAVFR0.01METAR307.02018-10-19 15:05:17N´Z)5    3KCTJ 191455Z AUTO 12004KT 7SM OVC021 15/10 A3036 RMK AO2 T01480099KCTJ2018-10-19T14:55:00Z33.63-85.1514.89.912047.030.360237TRUETRUEMVFRMETAR354.02018-10-19 15:05:17 'dC´a(5    3KVNC 191455Z AUTO 08011KT 10SM SCT021 29/24 A3019 RMK AO2KVNC2018-10-19T14:55:00Z27.07-82.4329.024.0801110.030.188976TRUETRUEVFRMETAR6.02018-10-19 15:05:17B´`(y5    3KPLD 191455Z AUTO 21011KT 10SM CLR 11/02 A3021 RMK AO2KPLD2018-10-19T14:55:00Z40.45-84.9811.02.02101110.030.209646TRUETRUEVFRMETAR282.02018-10-19 15:05:17=´_(w5    3KMAN 191455Z AUTO 00000KT 8SM CLR 04/03 A3035 RMK A01KMAN2018-10-19T14:55:00Z43.58-116.524.03.0008.030.351377TRUETRUEVFRMETAR774.02018-10-19 15:05:17S´^)5    3KMBY 191455Z AUTO 22008KT 10SM SCT023 BKN048 OVC060 11/06 A3016 RMK AO2KMBY2018-10-19T14:55:00Z39.47-92.4311.06.0220810.030.159449TRUETRUEVFRSPECI264.02018-10-19 15:05:17 &Z>´e(y5    3KIDI 191455Z AUTO VRB03KT 10SM CLR 08/02 A3030 RMK A01KIDI2018-10-19T14:55:00Z40.62-79.088.02.00310.030.301182TRUETRUEVFRMETAR429.02018-10-19 15:05:17J´d) 5    3KMHL 191455Z AUTO 22008KT 10SM SCT043 SCT065 12/07 A3017 RMK AO2KMHL2018-10-19T14:55:00Z39.1-93.212.07.0220810.030.171259TRUETRUEVFRMETAR237.02018-10-19 15:05:17F´c(5   3KSDC 191455Z AUTO 23008G14KT 10SM CLR 12/02 A3010 RMK AO2KSDC2018-10-19T14:55:00Z43.23-77.1212.02.023081410.030.100393TRUETRUEVFRMETAR129.02018-10-19 15:05:17T´b)5   3KSUW 191455Z AUTO 25013G23KT 10SM SCT031 14/07 A2964 RMK AO2 T01420072KSUW2018-10-19T14:55:00Z46.68-92.114.27.2250132310.029.639763TRUETRUEVFRMETAR206.02018-10-19 15:05:17 &TJ´i) 5    3K1P1 191455Z AUTO 00000KT 10SM CLR 07/00 A3010 RMK AO2 T00671002K1P12018-10-19T14:55:00Z43.78-71.756.7-0.20010.030.100393TRUETRUEVFRMETAR154.02018-10-19 15:05:17E´h(5   3K2J9 191455Z AUTO 13004G10KT 10SM CLR 25/20 A3027 RMK AO2K2J92018-10-19T14:55:00Z30.6-84.5525.020.013041010.030.268702TRUETRUEVFRMETAR69.02018-10-19 15:05:17L´g)5     3KGAF 191455Z AUTO 31016KT 10SM CLR 10/02 A2988 RMK AO2 PWINOKGAF2018-10-19T14:55:00Z48.4-97.3710.02.03101610.029.878937TRUETRUETRUEVFRMETAR252.02018-10-19 15:05:17T´f)5    3KGPH 191455Z AUTO 23008KT 10SM SCT024 BKN029 OVC043 13/08 A3014 RMK AO2KGPH2018-10-19T14:55:00Z39.33-94.3213.08.0230810.030.138779TRUETRUEMVFRMETAR235.02018-10-19 15:05:17 { @{?´m(y5    3KFRH 191455Z AUTO 20003KT 10SM CLR 09/00 A3024 RMK AO1KFRH2018-10-19T14:55:00Z38.5-86.639.00.0200310.030.239174TRUETRUEVFRMETAR241.02018-10-19 15:05:17M´l)5   3KFXY 191455Z AUTO 21014G24KT 10SM OVC014 11/11 A2989 RMK AO2KFXY2018-10-19T14:55:00Z43.23-93.6211.011.0210142410.029.890747TRUETRUEMVFRMETAR375.02018-10-19 15:05:17r´k)G5    3KBYS 191455Z AUTO VRB01KT 10SM CLR 13/M04 A3022 RMK AO2 SLP226 WND DATA ESTMD T01301039 52013KBYS2018-10-19T14:55:00Z35.28-116.6213.0-3.90110.030.2214571022.6TRUETRUEVFR1.3METAR716.02018-10-19 15:05:17o´j)E5    3KPAM 191455Z AUTO 08007KT 10SM CLR 25/21 A3025 RMK AO2 SLP242 WND DATA ESTMD T02510205 51009KPAM2018-10-19T14:55:00Z30.07-85.5725.120.580710.030.2509841024.2TRUETRUEVFR0.9METAR5.02018-10-19 15:05:17 9cD´q(5    3KEOK 191455Z AUTO 20008KT 10SM OVC043 11/06 A3009 RMK AO2KEOK2018-10-19T14:55:00Z40.47-91.4211.06.0200810.030.088583TRUETRUEVFRMETAR205.02018-10-19 15:05:17R´p)5    3KFFL 191455Z AUTO 20009G15KT 9SM OVC048 11/06 A3004 RMK AO2 PWINOKFFL2018-10-19T14:55:00Z41.03-91.9711.06.02009159.030.041338TRUETRUETRUEVFRMETAR244.02018-10-19 15:05:17P´o)5    3KFLY 191455Z AUTO 33007KT 10SM CLR 11/M06 A3038 RMK AO2 T01121056KFLY2018-10-19T14:55:00Z38.95-104.5711.2-5.6330710.030.380905TRUETRUEVFRMETAR2096.02018-10-19 15:05:17A´n(y5    3KFMH 191455Z AUTO 23016KT 10SM CLR 12/03 A3021 RMK AO2KFMH2018-10-19T14:55:00Z41.63-70.5212.03.02301610.030.209646TRUETRUEVFRMETAR40.02018-10-19 15:05:17 @oD´u(5    3KDNA 191455Z AUTO 02003KT 10SM SCT055 13/09 A3028 RMK AO2KDNA2018-10-19T14:55:00Z31.88-106.713.09.020310.030.280512TRUETRUEVFRMETAR1253.02018-10-19 15:05:17K´t)5   3KDNS 191455Z AUTO 23010G23KT 10SM FEW015 13/10 A2998 RMK AO2KDNS2018-10-19T14:55:00Z41.97-95.3713.010.0230102310.029.97933TRUETRUEVFRMETAR388.02018-10-19 15:05:17V´s)5      3KEDC 191455Z AUTO 02008KT 1 3/4SM RA BKN013 15/15 A3020 RMK AO2 P0006KEDC2018-10-19T14:55:00Z30.4-97.5715.015.02081.7530.200787TRUETRUERAIFR0.06METAR189.02018-10-19 15:05:17^´r)75     3KEFT 191455Z AUTO 21011KT 10SM -RA SCT029 SCT035 BKN047 07/04 A3000 RMK AO2 T00710041KEFT2018-10-19T14:55:00Z42.62-89.67.14.12101110.030.0TRUETRUE-RAVFRMETAR331.02018-10-19 15:05:17 AxM´y) 5    3KCSQ 191455Z AUTO 23015KT 8SM BKN016 OVC026 12/10 A3005 RMK AO2KCSQ2018-10-19T14:55:00Z41.02-94.3712.010.0230158.030.050198TRUETRUEMVFRMETAR394.02018-10-19 15:05:17C´x({5    3KD50 191455Z AUTO 30013KT 10SM CLR 06/M01 A3016 RMK AO2KD502018-10-19T14:55:00Z48.93-103.36.0-1.03001310.030.159449TRUETRUEVFRMETAR595.02018-10-19 15:05:17I´w)5   3KD60 191455Z AUTO 30010G16KT 10SM CLR 05/M01 A3017 RMK AO2KD602018-10-19T14:55:00Z48.38-102.95.0-1.0300101610.030.171259TRUETRUEVFRMETAR693.02018-10-19 15:05:17j´v)35     3KDEH 191455Z AUTO 21011G19KT 6SM -RA FEW008 SCT013 BKN026 10/10 A2990 RMK AO2 P0008KDEH2018-10-19T14:55:00Z43.27-91.7210.010.021011196.029.899607TRUETRUE-RAMVFR0.08METAR353.02018-10-19 15:05:17 5]C´}(5    3KCLW 191455Z AUTO 09007KT 10SM SCT014 27/23 A3021 RMK AO2KCLW2018-10-19T14:55:00Z27.98-82.7527.023.090710.030.209646TRUETRUEVFRMETAR22.02018-10-19 15:05:17@´|({5    3KCMR 191455Z AUTO 00000KT 10SM CLR 05/M01 A3030 RMK AO2KCMR2018-10-19T14:55:00Z35.3-112.25.0-1.00010.030.301182TRUETRUEVFRMETAR2036.02018-10-19 15:05:17R´{)5   3KCNC 191455Z AUTO 22012G20KT 10SM SCT027 OVC036 12/08 A3003 RMK AO2KCNC2018-10-19T14:55:00Z41.02-93.3712.08.0220122010.030.029528TRUETRUEVFRMETAR320.02018-10-19 15:05:17E´z(5    3KCPT 191455Z AUTO 01006KT 10SM OVC017 14/14 A3026 RMK AO2KCPT2018-10-19T14:55:00Z32.35-97.4314.014.010610.030.259842TRUETRUEMVFRMETAR260.02018-10-19 15:05:17 0lGµ(5   3KGHW 191455Z AUTO 30010G21KT 10SM CLR 10/06 A2979 RMK AO2KGHW2018-10-19T14:55:00Z45.63-95.3210.06.0300102110.029.790354TRUETRUEVFRMETAR425.02018-10-19 15:05:17Pµ)5   3KFPK 191455Z AUTO 22007G16KT 10SM CLR 09/00 A3007 RMK AO2 T00900000KFPK2018-10-19T14:55:00Z42.57-84.829.00.022071610.030.070866TRUETRUEVFRMETAR272.02018-10-19 15:05:17>´(w5    3KCKI 191455Z AUTO 01004KT 7SM CLR 18/11 A3035 RMK AO2KCKI2018-10-19T14:55:00Z33.72-79.8518.011.01047.030.351377TRUETRUEVFRMETAR21.02018-10-19 15:05:17J´~) 5     3KCLS 191455Z AUTO 00000KT M1/4SM FG OVC004 07/07 A3028 RMK AO2KCLS2018-10-19T14:55:00Z46.68-122.987.07.0000.2530.280512TRUETRUEFGLIFRMETAR54.02018-10-19 15:05:17 {%_{^µ)15    3KEZS 191455Z AUTO 23007KT 190V260 10SM SCT070 OVC080 11/07 A2986 RMK AO2 T01110065KEZS2018-10-19T14:55:00Z44.78-88.5711.16.5230710.029.861221TRUETRUEVFRMETAR248.02018-10-19 15:05:17@µ(y5    3KGGE 191455Z AUTO 04006KT 10SM CLR 20/14 A3034 RMK AO2KGGE2018-10-19T14:55:00Z33.32-79.3220.014.040610.030.339567TRUETRUEVFRMETAR12.02018-10-19 15:05:17eµ)C5   3FJDG 191455Z 09009KT 9999 FEW019 FEW080 SCT220 27/27 A2990 RMK SLP122 8/131 T02740265 52020FJDG2018-10-19T14:55:00Z-7.3272.4227.426.59096.2129.8996071012.2VFR2.0METAR3.02018-10-19 15:05:17jµ)?5    3KGPI 191455Z 00000KT 10SM SCT002 M03/M04 A3037 RMK AO2 SLP316 I1000 I3000 T10281039 53017KGPI2018-10-19T14:55:00Z48.32-114.25-2.8-3.90010.030.3690951031.6TRUEVFR1.7METAR908.02018-10-19 15:05:17 &^Cµ (5    3KBNL 191455Z AUTO 04006KT 10SM SCT033 18/11 A3034 RMK AO2KBNL2018-10-19T14:55:00Z33.25-81.3818.011.040610.030.339567TRUETRUEVFRMETAR75.02018-10-19 15:05:17Uµ)5   3KCLI 191455Z AUTO 22011G19KT 10SM OVC095 11/05 A2987 RMK AO2 T01080047KCLI2018-10-19T14:55:00Z44.62-88.7310.84.7220111910.029.870079TRUETRUEVFRSPECI250.02018-10-19 15:05:17Bµ({5    3KCXP 191455Z AUTO 00000KT 10SM CLR 00/M07 A3038 RMK AO2KCXP2018-10-19T14:55:00Z39.18-119.730.0-7.00010.030.380905TRUETRUEVFRMETAR1435.02018-10-19 15:05:17Tµ) 5    3KD57 191455Z AUTO 32014G22KT 10SM CLR 09/M01 A3013 RMK AO2 PWINOKD572018-10-19T14:55:00Z46.82-101.879.0-1.0320142210.030.129921TRUETRUETRUEVFRMETAR637.02018-10-19 15:05:17 :a{Oµ ) 5    3KDUX 191455Z AUTO 25011KT 10SM CLR 10/07 A3024 RMK AO2 T01030071KDUX2018-10-19T14:55:00Z35.85-102.0210.37.12501110.030.239174TRUETRUEVFRMETAR1129.02018-10-19 15:05:17`µ )%5    3KIFA 191455Z AUTO 20011G18KT 10SM OVC030 11/09 A2997 RMK AO2 60008 T01050090KIFA2018-10-19T14:55:00Z42.47-93.2710.59.0200111810.029.970472TRUETRUEMVFR0.08METAR347.02018-10-19 15:05:17Sµ )5    3KDED 191455Z AUTO 06010KT 10SM SCT014 SCT033 BKN060 25/23 A3023 RMK AO2KDED2018-10-19T14:55:00Z29.07-81.2825.023.0601010.030.230314TRUETRUEVFRMETAR24.02018-10-19 15:05:17@µ (y5    3KAIK 191455Z AUTO 05007KT 10SM CLR 17/07 A3037 RMK AO2KAIK2018-10-19T14:55:00Z33.65-81.6817.07.050710.030.369095TRUETRUEVFRMETAR161.02018-10-19 15:05:17 /`wTµ)5     3KELA 191455Z AUTO 07006KT 10SM -RA SCT120 20/18 A3016 RMK AO2 T02010175KELA2018-10-19T14:55:00Z29.6-96.3220.117.570610.030.159449TRUETRUE-RAVFRMETAR56.02018-10-19 15:05:17cµ)-5     3KE11 191455Z AUTO 33003KT 10SM SCT006 OVC022 10/10 A3030 RMK AO2 60001 T01020102KE112018-10-19T14:55:00Z32.33-102.5310.210.2330310.030.301182TRUETRUEMVFR0.01METAR967.02018-10-19 15:05:17Iµ) 5    3KDZJ 191455Z AUTO 00000KT 10SM CLR 14/08 A3035 RMK AO2 T01350080KDZJ2018-10-19T14:55:00Z34.85-84.013.58.00010.030.351377TRUETRUEVFRMETAR582.02018-10-19 15:05:17Kµ) 5     3KDVO 191455Z AUTO 34005KT M1/4SM FG OVC002 06/06 A3014 RMK AO2KDVO2018-10-19T14:55:00Z38.15-122.556.06.034050.2530.138779TRUETRUEFGLIFRMETAR1.02018-10-19 15:05:17 Z%8HZhµ)55      3KF00 191455Z AUTO 02003KT 10SM -RA BKN023 OVC028 12/11 A3026 RMK AO2 T01210113 60003KF002018-10-19T14:55:00Z33.62-96.1812.111.320310.030.259842TRUETRUE-RAMVFR0.03METAR188.02018-10-19 15:05:17jµ)75      3KETN 191455Z AUTO 00000KT 1 3/4SM BR OVC003 12/12 A3026 RMK AO2 P0001 T01230120 60040KETN2018-10-19T14:55:00Z32.42-98.8212.312.0001.7530.259842TRUETRUEBRLIFR0.010.4METAR446.02018-10-19 15:05:17gµ)/5      3KERV 191455Z AUTO 33004KT 2SM DZ OVC006 14/13 A3022 RMK AO2 P0002 60003 T01410128KERV2018-10-19T14:55:00Z29.98-99.0814.112.833042.030.221457TRUETRUEDZIFR0.020.03METAR510.02018-10-19 15:05:17Uµ)!5    3KENL 191455Z AUTO 21005KT 10SM SCT085 OVC100 12/05 A3023 RMK AO2 T01170051KENL2018-10-19T14:55:00Z38.52-89.111.75.1210510.030.230314TRUETRUEVFRMETAR163.02018-10-19 15:05:17 p"Ip µ)s5   3KIRK 191455Z AUTO 23012G26KT 10SM SCT019 BKN029 OVC044 12/07 A3012 RMK AO2 PK WND 25026/1450 SLP206 T01170072 56009KIRK2018-10-19T14:55:00Z40.1-92.5511.77.2230122610.030.1210631020.6TRUETRUEMVFR-0.9METAR293.02018-10-19 15:05:17Aµ(y5    3KF70 191455Z AUTO 02005KT 10SM CLR 13/03 A3006 RMK AO1KF702018-10-19T14:55:00Z33.57-117.1313.03.020510.030.059055TRUETRUEVFRMETAR412.02018-10-19 15:05:17Sµ)5   3KFET 191455Z AUTO 23011G16KT 10SM CLR 15/10 A3001 RMK AO2 T01480101KFET2018-10-19T14:55:00Z41.45-96.5214.810.1230111610.030.008858TRUETRUEVFRMETAR367.02018-10-19 15:05:17Xµ)!5    3KEZZ 191455Z AUTO 21016KT 10SM BKN021 OVC027 13/08 A3012 RMK AO2 T01260084KEZZ2018-10-19T14:55:00Z39.72-94.2812.68.42101610.030.121063TRUETRUEMVFRMETAR317.02018-10-19 15:05:17 M}Iµ) 5    3KW75 191455Z AUTO 19004KT 10SM CLR 14/06 A3037 RMK AO1 T01440058KW752018-10-19T14:55:00Z37.6-76.4514.45.8190410.030.369095TRUETRUEVFRMETAR9.02018-10-19 15:05:17Jµ) 5    3KW96 191455Z AUTO 22005KT 10SM CLR 14/06 A3036 RMK AO1 T01350064KW962018-10-19T14:55:00Z37.5-77.1213.56.4220510.030.360237TRUETRUEVFRMETAR37.02018-10-19 15:05:17Bµ(y5    3KWWR 191455Z AUTO 22013KT 10SM CLR 13/08 A3020 RMK AO2KWWR2018-10-19T14:55:00Z36.45-99.5213.08.02201310.030.200787TRUETRUEVFRMETAR667.02018-10-19 15:05:17eµ)-5    3KINL 191455Z AUTO 30012KT 10SM BKN095 10/03 A2964 RMK AO2 SLP041 T01000033 53011KINL2018-10-19T14:55:00Z48.57-93.410.03.33001210.029.6397631004.1TRUETRUEVFR1.1METAR360.02018-10-19 15:05:17 :uLµ!) 5    3KU42 191455Z AUTO 20006KT 10SM CLR 08/02 A3042 RMK AO1 T00780016KU422018-10-19T14:55:00Z40.62-111.987.81.6200610.030.41929TRUETRUEVFRMETAR1402.02018-10-19 15:05:17Kµ ) 5    3KW13 191455Z AUTO 21003KT 10SM CLR 12/05 A3031 RMK AO1 T01170051KW132018-10-19T14:55:00Z38.08-78.9511.75.1210310.030.31004TRUETRUEVFRMETAR443.02018-10-19 15:05:17?µ(}5    3KW31 191455Z AUTO 10SM CLR 13/07 A3036 RMK AO1 T01280067KW312018-10-19T14:55:00Z36.95-78.1812.86.710.030.360237TRUETRUEVFRMETAR162.02018-10-19 15:05:17@µ(y5    3KW63 191455Z AUTO 19003KT 10SM CLR 14/08 A3037 RMK AO1KW632018-10-19T14:55:00Z36.6-78.5514.08.0190310.030.369095TRUETRUEVFRMETAR129.02018-10-19 15:05:17 MnLµ%) 5    3KLMO 191455Z AUTO 00000KT 10SM CLR 13/04 A3032 RMK AO2 T01280038KLMO2018-10-19T14:55:00Z40.17-105.1712.83.80010.030.318897TRUETRUEVFRMETAR1541.02018-10-19 15:05:17Yµ$)5     3KLNC 191455Z AUTO 00000KT 10SM OVC023 15/13 A3025 RMK AO2 60008 T01450128KLNC2018-10-19T14:55:00Z32.58-96.7214.512.80010.030.250984TRUETRUEMVFR0.08METAR153.02018-10-19 15:05:17@µ#(y5    3KLNP 191455Z AUTO 22006KT 10SM CLR 13/08 A3033 RMK AO2KLNP2018-10-19T14:55:00Z36.97-82.5213.08.0220610.030.33071TRUETRUEVFRMETAR817.02018-10-19 15:05:17gµ")15      3KLUD 191455Z AUTO 00000KT 4SM -RA OVC007 13/13 A3026 RMK AO2 P0009 60023 T01310125KLUD2018-10-19T14:55:00Z33.25-97.5813.112.5004.030.259842TRUETRUE-RAIFR0.090.23METAR319.02018-10-19 15:05:17 -WvYµ))5     3KJWY 191455Z AUTO 00000KT 10SM OVC020 14/14 A3025 RMK AO2 60012 T01400140KJWY2018-10-19T14:55:00Z32.45-96.9214.014.00010.030.250984TRUETRUEMVFR0.12METAR217.02018-10-19 15:05:17[µ()/5    3KJXI 191455Z AUTO 00000KT 10SM SCT018 SCT045 SCT070 14/10 A3024 RMK AO2 T01370104KJXI2018-10-19T14:55:00Z32.7-94.9513.710.40010.030.239174TRUETRUEVFRMETAR127.02018-10-19 15:05:17Pµ')5    3KK88 191455Z AUTO 18009KT 10SM OVC007 11/11 A3020 RMK AO1 T01120112KK882018-10-19T14:55:00Z37.87-95.3811.211.2180910.030.200787TRUETRUEIFRMETAR309.02018-10-19 15:05:17Mµ&)5    3KLHB 191455Z AUTO 00000KT 10SM BKN120 17/14 A3021 RMK AO2 T01680135KLHB2018-10-19T14:55:00Z30.87-96.6216.813.50010.030.209646TRUETRUEVFRMETAR87.02018-10-19 15:05:17  Xbµ-)'5       3KGCM 191455Z AUTO 17006KT 4SM BR BKN005 OVC013 10/10 A3028 RMK AO2 P0001 TSNOKGCM2018-10-19T14:55:00Z36.3-95.4810.010.017064.030.280512TRUETRUETRUEBRIFR0.01METAR221.02018-10-19 15:05:17Nµ,)5    3KFOA 191455Z AUTO 21005KT 10SM SCT110 10/06 A3025 RMK AO2 T00980056KFOA2018-10-19T14:55:00Z38.67-88.459.85.6210510.030.250984TRUETRUEVFRMETAR144.02018-10-19 15:05:17Bµ+(5    3KJSV 191455Z AUTO 07004KT 10SM OVC033 11/09 A3028 RMK AO2KJSV2018-10-19T14:55:00Z35.43-94.811.09.070410.030.280512TRUETRUEVFRMETAR161.02018-10-19 15:05:17Zµ*)5     3KJWG 191455Z AUTO 20008KT 10SM OVC007 13/13 A3022 RMK AO2 60003 T01260126KJWG2018-10-19T14:55:00Z35.87-98.4212.612.6200810.030.221457TRUETRUEIFR0.03METAR472.02018-10-19 15:05:17 +[@µ1(y5    3KGIC 191455Z AUTO 00000KT 10SM CLR 02/00 A3036 RMK AO1KGIC2018-10-19T14:55:00Z45.95-116.122.00.00010.030.360237TRUETRUEVFRMETAR1009.02018-10-19 15:05:17Aµ0(y5    3KJYM 191455Z AUTO 22008KT 10SM CLR 10/00 A3013 RMK AO2KJYM2018-10-19T14:55:00Z41.92-84.5810.00.0220810.030.129921TRUETRUEVFRMETAR360.02018-10-19 15:05:17Jµ/) 5    3KXSA 191455Z AUTO 20005KT 10SM CLR 15/07 A3037 RMK AO2 T01460072KXSA2018-10-19T14:55:00Z37.87-76.914.67.2200510.030.369095TRUETRUEVFRMETAR42.02018-10-19 15:05:17Oµ.)5    3KFZG 191455Z AUTO 08003KT 10SM BKN060 20/15 A3032 RMK AO2 T02040145KFZG2018-10-19T14:55:00Z31.68-83.2720.414.580310.030.318897TRUETRUEVFRMETAR111.02018-10-19 15:05:17 y.BKyLµ5) 5    3KHDE 191455Z AUTO 27009KT 10SM CLR 10/09 A3008 RMK AO2 T01020088KHDE2018-10-19T14:55:00Z40.45-99.3210.28.8270910.030.079725TRUETRUEVFRMETAR705.02018-10-19 15:05:17qµ4);5       3KGYI 191455Z AUTO 00000KT 5SM -RA OVC019 12/11 A3027 RMK AO2 P0003 60012 T01200112 TSNOKGYI2018-10-19T14:55:00Z33.72-96.6712.011.2005.030.268702TRUETRUETRUE-RAMVFR0.030.12METAR228.02018-10-19 15:05:17fµ3)A5     3KGOP 191455Z AUTO 00000KT 1 1/2SM -DZ SCT003 BKN007 OVC014 15/14 A3026 RMK AO2 VIS 1V2 1/2KGOP2018-10-19T14:55:00Z31.42-97.815.014.0001.530.259842TRUETRUE-DZIFRMETAR276.02018-10-19 15:05:17Lµ2)5   3KGHG 191455Z AUTO 23007G13KT 210V270 10SM CLR 11/00 A3018 RMK AO2KGHG2018-10-19T14:55:00Z42.1-70.6711.00.023071310.030.180119TRUETRUEVFRMETAR4.02018-10-19 15:05:17 (VVµ9)5   3KIBM 191455Z AUTO 31015G21KT 10SM CLR 11/M01 A3028 RMK AO2 T01131006KIBM2018-10-19T14:55:00Z41.18-103.6811.3-0.6310152110.030.280512TRUETRUEVFRMETAR1501.02018-10-19 15:05:17Lµ8) 5    3KHQU 191455Z AUTO 14007KT 10SM CLR 17/09 A3039 RMK AO2 T01690086KHQU2018-10-19T14:55:00Z33.53-82.5216.98.6140710.030.389763TRUETRUEVFRMETAR152.02018-10-19 15:05:17Lµ7) 5    3KHQG 191455Z AUTO 30009KT 10SM CLR 10/07 A3019 RMK AO2 T00980073KHQG2018-10-19T14:55:00Z37.17-101.379.87.3300910.030.188976TRUETRUEVFRMETAR956.02018-10-19 15:05:17Rµ6)5   3KHJH 191455Z AUTO 24014G19KT 10SM CLR 14/10 A3008 RMK AO2 T01390095KHJH2018-10-19T14:55:00Z40.15-97.5813.99.5240141910.030.079725TRUETRUEVFRMETAR447.02018-10-19 15:05:17 .h>µ=(y5    3KIZA 191455Z AUTO 00000KT 10SM CLR 07/03 A3008 RMK AO2KIZA2018-10-19T14:55:00Z34.6-120.077.03.00010.030.079725TRUETRUEVFRMETAR205.02018-10-19 15:05:17Kµ<) 5    3KJCA 191455Z AUTO 07005KT 10SM CLR 15/09 A3036 RMK AO2 T01520088KJCA2018-10-19T14:55:00Z34.18-83.5715.28.870510.030.360237TRUETRUEVFRMETAR290.02018-10-19 15:05:17@µ;(w5    3KIMS 191455Z AUTO 18003KT 4SM CLR 11/03 A3027 RMK AO1KIMS2018-10-19T14:55:00Z38.75-85.4711.03.018034.030.268702TRUETRUEMVFRMETAR250.02018-10-19 15:05:17Lµ:) 5    3KHWY 191455Z AUTO 20004KT 10SM CLR 12/04 A3034 RMK AO2 T01200044KHWY2018-10-19T14:55:00Z38.58-77.7212.04.4200410.030.339567TRUETRUEVFRMETAR103.02018-10-19 15:05:17 /bCµA(5    3KLCQ 191455Z AUTO 06004KT 10SM BKN055 25/21 A3026 RMK AO2KLCQ2018-10-19T14:55:00Z30.18-82.5825.021.060410.030.259842TRUETRUEVFRMETAR61.02018-10-19 15:05:17Kµ@) 5    3KLCK 191455Z AUTO 20007KT 10SM CLR 07/01 A3026 RMK AO2 T00670010KLCK2018-10-19T14:55:00Z39.82-82.926.71.0200710.030.259842TRUETRUEVFRMETAR227.02018-10-19 15:05:17Gµ?(5   3KJYR 191455Z AUTO 25014G19KT 10SM CLR 12/10 A3004 RMK AO2KJYR2018-10-19T14:55:00Z40.9-97.6212.010.0250141910.030.041338TRUETRUEVFRMETAR509.02018-10-19 15:05:17Kµ>) 5    3KJDD 191455Z AUTO 00000KT 10SM BKN028 OVC036 14/11 A3024 RMK AO2KJDD2018-10-19T14:55:00Z32.75-95.514.011.00010.030.239174TRUETRUEMVFRMETAR132.02018-10-19 15:05:17 +h>µE(}5    3KLVL 191455Z AUTO 10SM CLR 14/08 A3037 RMK AO1 T01380082KLVL2018-10-19T14:55:00Z36.78-77.813.88.210.030.369095TRUETRUEVFRMETAR100.02018-10-19 15:05:17=µD(y5    3KLUA 191455Z AUTO 00000KT 10SM CLR 09/06 A3032 RMK AO2KLUA2018-10-19T14:55:00Z38.67-78.59.06.00010.030.318897TRUETRUEVFRMETAR275.02018-10-19 15:05:17gµC)55      3KJSO 191455Z AUTO 06003KT 10SM -DZ BKN033 BKN042 13/12 A3024 RMK AO2 P0001 T01410126KJSO2018-10-19T14:55:00Z31.87-95.2213.012.660310.030.239174TRUETRUE-DZVFR0.01METAR206.02018-10-19 15:05:17bµB)/5      3KLBO 191455Z AUTO 21008KT 203V283 10SM RA SCT001 OVC031 08/07 A3025 RMK AO2 P0002KLBO2018-10-19T14:55:00Z37.65-92.658.07.0210810.030.250984TRUETRUERAVFR0.02METAR403.02018-10-19 15:05:17 0]9µI(o5   3KXIH 191455Z AUTO 10018KT 9SM 26/23 A3013 RMK A01KXIH2018-10-19T14:55:00Z29.18-94.5226.023.0100189.030.129921TRUETRUEMETAR75.02018-10-19 15:05:17?µH(y5    3KXPY 191455Z AUTO 09011KT 10SM CLR 27/24 A3018 RMK A01KXPY2018-10-19T14:55:00Z29.12-90.227.024.0901110.030.180119TRUETRUEVFRMETAR2.02018-10-19 15:05:17MµG) 5    3KLXN 191455Z AUTO 30012KT 10SM CLR 11/06 A3009 RMK AO2 T01070064KLXN2018-10-19T14:55:00Z40.78-99.7710.76.43001210.030.088583TRUETRUEVFRMETAR734.02018-10-19 15:05:17JµF) 5    3KLUL 191455Z AUTO 00000KT 10SM CLR 21/13 A3026 RMK AO2 T02060127KLUL2018-10-19T14:55:00Z31.67-89.1720.612.70010.030.259842TRUETRUEVFRMETAR73.02018-10-19 15:05:17 2[EµM(5    3KVKY 191455Z AUTO 13011KT 10SM FEW019 28/24 A3021 RMK A01KVKY2018-10-19T14:55:00Z29.25-88.4328.024.01301110.030.209646TRUETRUEVFRMETAR32.02018-10-19 15:05:17PµL)5   3KVOA 191455Z AUTO 13011G17KT 9SM SCT015 SCT022 30/25 A3019 RMK A01KVOA2018-10-19T14:55:00Z29.23-87.7830.025.013011179.030.188976TRUETRUEVFRMETAR53.02018-10-19 15:05:17QµK)5    3KVQT 191455Z AUTO 13021KT 8SM SCT022 SCT031 BKN040 29/25 A3015 RMK A01KVQT2018-10-19T14:55:00Z28.27-92.2729.025.0130218.030.15059TRUETRUEVFRMETAR25.02018-10-19 15:05:17HµJ) 5    3KW99 191455Z AUTO 00000KT 10SM CLR 06/04 A3030 RMK AO2 T00600041KW992018-10-19T14:55:00Z39.0-79.156.04.10010.030.301182TRUETRUEVFRMETAR293.02018-10-19 15:05:17 1iGµQ(5   3KUYF 191455Z AUTO 19011G14KT 10SM CLR 11/00 A3023 RMK AO2KUYF2018-10-19T14:55:00Z39.93-83.4711.00.0190111410.030.230314TRUETRUEVFRMETAR330.02018-10-19 15:05:17FµP(}5     3KVAF 191455Z AUTO 13019KT 5SM HZ CLR 29/23 A3009 RMK A01KVAF2018-10-19T14:55:00Z27.35-94.6329.023.0130195.030.088583TRUETRUEHZMVFRMETAR46.02018-10-19 15:05:17BµO(y5    3KVBS 191455Z AUTO 14017KT 10SM CLR 24/22 A3016 RMK A01KVBS2018-10-19T14:55:00Z29.48-93.6324.022.01401710.030.159449TRUETRUEVFRMETAR31.02018-10-19 15:05:17IµN) 5    3KVBW 191455Z AUTO 00000KT 10SM CLR 09/05 A3030 RMK AO2 T00860046KVBW2018-10-19T14:55:00Z38.37-78.978.64.60010.030.301182TRUETRUEVFRMETAR355.02018-10-19 15:05:17 4gKµU) 5    3KTYQ 191455Z AUTO 20008KT 10SM CLR 10/02 A3022 RMK AO2 T00950022KTYQ2018-10-19T14:55:00Z40.03-86.259.52.2200810.030.221457TRUETRUEVFRMETAR281.02018-10-19 15:05:17GµT)5    3KU68 191455Z AUTO 00000KT 10SM SCT120 04/M25 A3035 RMK AO2KU682018-10-19T14:55:00Z44.92-108.454.0-25.00010.030.351377TRUETRUEVFRMETAR1247.02018-10-19 15:05:17JµS) 5    3KUNI 191455Z AUTO 23003KT 10SM CLR 08/04 A3029 RMK AO2 T00820044KUNI2018-10-19T14:55:00Z39.22-82.238.24.4230310.030.28937TRUETRUEVFRMETAR193.02018-10-19 15:05:17vµR)K5      3KUVA 191455Z AUTO 34004KT 3SM BR SCT003 BKN011 OVC017 16/16 A3021 RMK AO2 P0001 60002 T01580156KUVA2018-10-19T14:55:00Z29.22-99.7515.815.634043.030.209646TRUETRUEBRMVFR0.010.02METAR287.02018-10-19 15:05:17 %VEµY({5    3KTBX 191455Z AUTO 30016KT 10SM CLR 06/M07 A3048 RMK AO2KTBX2018-10-19T14:55:00Z43.47-108.236.0-7.03001610.030.481298TRUETRUEVFRMETAR2225.02018-10-19 15:05:17NµX)5    3KTMA 191455Z AUTO 07005KT 10SM OVC060 21/14 A3029 RMK AO2 T02060140KTMA2018-10-19T14:55:00Z31.43-83.4820.614.070510.030.28937TRUETRUEVFRMETAR109.02018-10-19 15:05:17IµW) 5    3KTNB 191455Z AUTO 00000KT 10SM CLR 13/05 A3034 RMK AO2 T01340047KTNB2018-10-19T14:55:00Z36.2-81.6513.44.70010.030.339567TRUETRUEVFRMETAR911.02018-10-19 15:05:17UµV)5     3KTQH 191455Z AUTO 15003KT 10SM BKN023 OVC031 09/08 A3028 RMK AO2 P0002KTQH2018-10-19T14:55:00Z35.93-95.09.08.0150310.030.280512TRUETRUEMVFR0.02METAR266.02018-10-19 15:05:17 8mGµ](5   3KRZL 191455Z AUTO 21013G17KT 10SM CLR 10/02 A3017 RMK AO2KRZL2018-10-19T14:55:00Z40.95-87.1810.02.0210131710.030.171259TRUETRUEVFRMETAR213.02018-10-19 15:05:17Hµ\(5   3KSEZ 191455Z AUTO 05010G17KT 10SM CLR 12/03 A3026 RMK AO2KSEZ2018-10-19T14:55:00Z34.85-111.7812.03.050101710.030.259842TRUETRUEVFRMETAR1473.02018-10-19 15:05:17Eµ[) 5    3KSPR 191455Z AUTO 10SM SCT020 BKN024 BKN035 28/24 A3015 RMK A01KSPR2018-10-19T14:55:00Z28.6-91.228.024.010.030.15059TRUETRUEMVFRMETAR31.02018-10-19 15:05:17BµZ(}5    3KSZT 191455Z AUTO 00000KT 10SM CLR M01/M01 A3038 RMK AO2KSZT2018-10-19T14:55:00Z48.3-116.57-1.0-1.00010.030.380905TRUETRUEVFRMETAR648.02018-10-19 15:05:17  R_?µa(y5    3KBYL 191455Z AUTO 14004KT 10SM CLR 12/08 A3028 RMK AO1KBYL2018-10-19T14:55:00Z36.8-84.212.08.0140410.030.280512TRUETRUEVFRMETAR359.02018-10-19 15:05:17mµ`)C5      3KBYY 191455Z AUTO 06007KT 10SM -RA SCT042 BKN060 OVC085 20/19 A3014 RMK AO2 P0001 T01970193KBYY2018-10-19T14:55:00Z28.97-95.8719.719.360710.030.138779TRUETRUE-RAVFR0.01METAR14.02018-10-19 15:05:175µ_(o5   3KCDH 191455Z AUTO 00000KT 9SM 16/08 A3025 RMK AO2KCDH2018-10-19T14:55:00Z33.62-92.7716.08.0009.030.250984TRUETRUEMETAR35.02018-10-19 15:05:17mµ^)=5      3KRYW 191455Z AUTO 01005KT 3SM RA BKN002 OVC008 15/15 A3021 RMK AO2 P0005 60009 T01510151KRYW2018-10-19T14:55:00Z30.5-97.9715.115.11053.030.209646TRUETRUERALIFR0.050.09METAR376.02018-10-19 15:05:17 $GvPµe)5    3KBEC 191455Z AUTO 21010KT 10SM OVC005 11/11 A3017 RMK AO2 T01120105KBEC2018-10-19T14:55:00Z37.7-97.2211.210.52101010.030.171259TRUETRUEIFRMETAR429.02018-10-19 15:05:17Kµd) 5    3KBJI 191455Z AUTO 31012KT 10SM CLR 08/02 A2975 RMK AO2 T00810016KBJI2018-10-19T14:55:00Z47.5-94.928.11.63101210.029.749016TRUETRUEVFRMETAR420.02018-10-19 15:05:17Wµc)!5   3KBQX 191455Z AUTO 12007G12KT 10SM FEW024 SCT065 BKN080 29/25 A3012 RMK A01KBQX2018-10-19T14:55:00Z28.5-95.7229.025.012071210.030.121063TRUETRUEVFRMETAR34.02018-10-19 15:05:17Vµb)5   3KBTA 191455Z AUTO 22016G22KT 10SM SCT016 14/10 A2999 RMK AO2 T01400101KBTA2018-10-19T14:55:00Z41.42-96.1214.010.1220162210.029.991142TRUETRUEVFRMETAR396.02018-10-19 15:05:17 :huµi)M5      3KARM 191455Z AUTO 07004KT 7SM -RA SCT027 BKN046 OVC070 19/17 A3016 RMK AO2 P0001 60006 T01870170KARM2018-10-19T14:55:00Z29.25-96.1518.717.07047.030.159449TRUETRUE-RAVFR0.010.06METAR31.02018-10-19 15:05:17Lµh) 5    3KATP 191455Z AUTO 13017KT 10SM SCT027 BKN036 29/23 A3016 RMK A01KATP2018-10-19T14:55:00Z27.2-90.0329.023.01301710.030.159449TRUETRUEVFRMETAR62.02018-10-19 15:05:17Lµg) 5    3KAVQ 191455Z AUTO 12006KT 10SM CLR 17/10 A3007 RMK AO2 T01660097KAVQ2018-10-19T14:55:00Z32.4-111.2216.69.7120610.030.070866TRUETRUEVFRMETAR619.02018-10-19 15:05:17@µf(y5    3KAZC 191455Z AUTO 00000KT 10SM CLR 08/02 A3038 RMK AO2KAZC2018-10-19T14:55:00Z36.97-113.028.02.00010.030.380905TRUETRUEVFRMETAR1486.02018-10-19 15:05:17 2_]µm))5   3K9MN 191455Z AUTO 24012G24KT 210V300 10SM OVC009 10/09 A2986 RMK AO1 T01030090K9MN2018-10-19T14:55:00Z44.02-92.4810.39.0240122410.029.861221TRUETRUEIFRMETAR355.02018-10-19 15:05:17Bµl(y5    3KA39 191455Z AUTO 01006KT 10SM CLR 17/11 A3011 RMK AO2KA392018-10-19T14:55:00Z32.98-111.9217.011.010610.030.109253TRUETRUEVFRMETAR396.02018-10-19 15:05:17Mµk)5   3KAEL 191455Z AUTO 23013G16KT 10SM OVC011 11/11 A2987 RMK AO2KAEL2018-10-19T14:55:00Z43.68-93.3711.011.0230131610.029.870079TRUETRUEMVFRMETAR383.02018-10-19 15:05:17Hµj) 5    3KAJR 191455Z AUTO 09003KT 7SM CLR 15/07 A3035 RMK AO2 T01500065KAJR2018-10-19T14:55:00Z34.5-83.5515.06.59037.030.351377TRUETRUEVFRMETAR441.02018-10-19 15:05:17 ._Jµq) 5    3K3R7 191455Z AUTO 08006KT 10SM CLR 23/16 A3020 RMK AO2 T02270164K3R72018-10-19T14:55:00Z30.25-92.6722.716.480610.030.200787TRUETRUEVFRMETAR7.02018-10-19 15:05:177µp(w5      3K4S1 191455Z AUTO 00000KT 4SM HZ OVC007 A3022 RMK AO1K4S12018-10-19T14:55:00Z42.42-124.42004.030.221457TRUETRUEHZIFRMETAR5.02018-10-19 15:05:17Iµo)5     3K6S2 191455Z AUTO 09003KT 1/2SM FG OVC001 06/06 A3024 RMK AO2K6S22018-10-19T14:55:00Z43.98-124.126.06.09030.530.239174TRUETRUEFGLIFRMETAR16.02018-10-19 15:05:17Lµn) 5    3K7W4 191455Z AUTO 23006KT 10SM CLR 14/06 A3035 RMK AO1 T01350064K7W42018-10-19T14:55:00Z37.97-77.7513.56.4230610.030.351377TRUETRUEVFRMETAR106.02018-10-19 15:05:17 :{Jµu) 5    3K18A 191455Z AUTO 00000KT 10SM CLR 16/09 A3036 RMK AO2 T01600090K18A2018-10-19T14:55:00Z34.35-83.1316.09.00010.030.360237TRUETRUEVFRMETAR271.02018-10-19 15:05:17Hµt)5   3K18H 191455Z AUTO VRB04G13KT 10SM FEW026 31/23 A3010 RMK A01K18H2018-10-19T14:55:00Z26.13-92.0331.023.0041310.030.100393TRUETRUEVFRMETAR10.02018-10-19 15:05:179µs(q5   3K28J 191455Z AUTO 08008KT 10SM 25/24 A3025 RMK AO2K28J2018-10-19T14:55:00Z29.65-81.5825.024.080810.030.250984TRUETRUEMETAR15.02018-10-19 15:05:17@µr(y5    3K2G9 191455Z AUTO 21008KT 10SM CLR 07/00 A3026 RMK AO2K2G92018-10-19T14:55:00Z40.03-79.027.00.0210810.030.259842TRUETRUEVFRMETAR693.02018-10-19 15:05:17 4eKµy) 5     3KRFI 191455Z AUTO 10SM -RA BKN037 15/12 A3024 RMK AO2 T01520116KRFI2018-10-19T14:55:00Z32.15-94.8515.211.610.030.239174TRUETRUE-RAVFRMETAR135.02018-10-19 15:05:17[µx)5    3KRNO 191455Z 17004KT 10SM CLR 03/M04 A3038 RMK AO2 SLP274 T00281039 53013KRNO2018-10-19T14:55:00Z39.5-119.772.8-3.9170410.030.3809051027.4TRUEVFR1.3METAR1342.02018-10-19 15:05:17Iµw) 5    3KRNV 191455Z AUTO 00000KT 10SM CLR 16/10 A3027 RMK AO2 T01590097KRNV2018-10-19T14:55:00Z33.77-90.7515.99.70010.030.268702TRUETRUEVFRMETAR41.02018-10-19 15:05:17Fµv(5   3K04W 191455Z AUTO 23013G20KT 10SM CLR 12/08 A2970 RMK AO2K04W2018-10-19T14:55:00Z46.02-92.912.08.0230132010.029.698818TRUETRUEVFRMETAR311.02018-10-19 15:05:17 <iVµ})5     3KPOV 191455Z AUTO 22005KT 10SM CLR 09/00 A3021 RMK AO2 T00881001 PWINOKPOV2018-10-19T14:55:00Z41.22-81.258.8-0.1220510.030.209646TRUETRUETRUEVFRMETAR365.02018-10-19 15:05:17Gµ|(5   3KPWC 191455Z AUTO 31011G16KT 10SM CLR 10/04 A2975 RMK AO2KPWC2018-10-19T14:55:00Z46.72-94.3710.04.0310111610.029.749016TRUETRUEVFRMETAR395.02018-10-19 15:05:17Mµ{) 5    3KPYX 191455Z AUTO 26009KT 10SM CLR 13/09 A3019 RMK AO2 T01280093KPYX2018-10-19T14:55:00Z36.42-100.7512.89.3260910.030.188976TRUETRUEVFRMETAR889.02018-10-19 15:05:17>µz(y5    3KRBW 191455Z AUTO 00000KT 10SM CLR 20/13 A3033 RMK AO2KRBW2018-10-19T14:55:00Z32.92-80.6320.013.00010.030.33071TRUETRUEVFRMETAR31.02018-10-19 15:05:17 JiI¶)5   3KMZH 191455Z AUTO 24008G15KT 10SM SCT025 13/06 A2966 RMK AO2KMZH2018-10-19T14:55:00Z46.42-92.813.06.024081510.029.660433TRUETRUEVFRMETAR328.02018-10-19 15:05:17[¶)'5   3KOCQ 191455Z AUTO 22008G15KT 10SM SCT070 OVC080 11/05 A2983 RMK AO1 T01110053KOCQ2018-10-19T14:55:00Z44.87-87.9211.15.322081510.029.828741TRUETRUEVFRMETAR183.02018-10-19 15:05:17Dµ(5    3KOZS 191455Z AUTO 19008KT 10SM OVC036 10/06 A3023 RMK AO2KOZS2018-10-19T14:55:00Z37.97-92.6810.06.0190810.030.230314TRUETRUEVFRMETAR324.02018-10-19 15:05:17fµ~);5     3KPKV 191455Z AUTO 04008KT 10SM BKN004 BKN023 BKN033 21/20 A3013 RMK AO2 60002 T02100199KPKV2018-10-19T14:55:00Z28.65-96.6821.019.940810.030.129921TRUETRUELIFR0.02METAR9.02018-10-19 15:05:17 L|K¶) 5    3KMNE 191455Z AUTO 11003KT 10SM CLR 16/11 A3025 RMK AO2 T01620109KMNE2018-10-19T14:55:00Z32.65-93.316.210.9110310.030.250984TRUETRUEVFRMETAR85.02018-10-19 15:05:17J¶)5     3KMPZ 191455Z AUTO 21009KT 10SM RA OVC048 11/06 A3008 RMK AO2KMPZ2018-10-19T14:55:00Z40.95-91.5211.06.0210910.030.079725TRUETRUERAVFRMETAR224.02018-10-19 15:05:17?¶(y5    3KMQS 191455Z AUTO 00000KT 10SM CLR 12/02 A3032 RMK AO2KMQS2018-10-19T14:55:00Z39.98-75.8712.02.00010.030.318897TRUETRUEVFRMETAR201.02018-10-19 15:05:17i¶)55     3KMZG 191455Z AUTO 20010G16KT 1/2SM FG BKN003 BKN020 BKN025 26/24 A3009 RMK A01 P0011KMZG2018-10-19T14:55:00Z27.73-96.1826.024.020010160.530.088583TRUETRUEFGLIFR0.11METAR29.02018-10-19 15:05:17 *`K¶ ) 5    3KMIS 191455Z AUTO 14007KT 10SM SCT021 SCT031 29/23 A3021 RMK A01KMIS2018-10-19T14:55:00Z29.3-88.8529.023.0140710.030.209646TRUETRUEVFRMETAR32.02018-10-19 15:05:17@¶(}5    3KMKS 191455Z AUTO 04004KT 7SM SCT044 19/14 A3033 RMK AO2KMKS2018-10-19T14:55:00Z33.18-80.0319.014.04047.030.33071TRUETRUEVFRMETAR23.02018-10-19 15:05:17D¶(5    3KMLJ 191455Z AUTO 08003KT 10SM OVC028 16/09 A3034 RMK AO2KMLJ2018-10-19T14:55:00Z33.15-83.2316.09.080310.030.339567TRUETRUEMVFRMETAR117.02018-10-19 15:05:17P¶)5    3KMMH 191455Z AUTO 36003KT 10SM CLR M02/M09 A3044 RMK AO2 T10161086KMMH2018-10-19T14:55:00Z37.62-118.82-1.6-8.6360310.030.43996TRUETRUEVFRMETAR2173.02018-10-19 15:05:17 8_P¶ )5    3KLXY 191455Z AUTO 04003KT 10SM OVC020 16/13 A3021 RMK AO2 T01560128KLXY2018-10-19T14:55:00Z31.63-96.5215.612.840310.030.209646TRUETRUEMVFRMETAR166.02018-10-19 15:05:17R¶ )5   3KMCD 191455Z AUTO 23021G31KT 10SM CLR 13/04 A2977 RMK AO2 T01250041KMCD2018-10-19T14:55:00Z45.85-84.6312.54.1230213110.029.769686TRUETRUEVFRMETAR226.02018-10-19 15:05:17S¶ )5    3KMDJ 191455Z AUTO 12013KT 10SM SCT021 SCT029 SCT035 28/24 A3018 RMK A01KMDJ2018-10-19T14:55:00Z28.65-89.828.024.01201310.030.180119TRUETRUEVFRMETAR31.02018-10-19 15:05:17B¶ (5    3KMEZ 191455Z AUTO 00000KT 10SM OVC021 14/08 A3026 RMK AO2KMEZ2018-10-19T14:55:00Z34.55-94.214.08.00010.030.259842TRUETRUEMVFRMETAR329.02018-10-19 15:05:17 3PX¶)5   3KGDB 191455Z AUTO 27015G20KT 10SM CLR 15/09 A2984 RMK AO2 6//// T01510090KGDB2018-10-19T14:55:00Z44.75-95.5515.19.0270152010.029.840551TRUETRUEVFRMETAR319.02018-10-19 15:05:17B¶(y5    3KGHB 191455Z AUTO 13016KT 10SM CLR 29/22 A3016 RMK A01KGHB2018-10-19T14:55:00Z27.83-91.9829.022.01301610.030.159449TRUETRUEVFRMETAR30.02018-10-19 15:05:17]¶)/5    3KLRU 191455Z AUTO 01008KT 10SM SCT020 SCT045 OVC055 12/10 A3029 RMK AO2 T01200097KLRU2018-10-19T14:55:00Z32.27-106.9212.09.710810.030.28937TRUETRUEVFRMETAR1358.02018-10-19 15:05:17G¶(5   3KLXL 191455Z AUTO 28012G17KT 10SM CLR 12/07 A2974 RMK AO2KLXL2018-10-19T14:55:00Z45.95-94.3312.07.0280121710.029.740158TRUETRUEVFRMETAR342.02018-10-19 15:05:17 -]yD¶(5   3KFGN 191455Z AUTO 31017G23KT 10SM CLR 07/01 A2971 RMK AO2KFGN2018-10-19T14:55:00Z49.32-94.97.01.0310172310.029.71063TRUETRUEVFRMETAR328.02018-10-19 15:05:17^¶)%5    3KFKA 191455Z AUTO 23014G20KT 10SM OVC009 09/08 A2989 RMK AO2 60006 T00900077KFKA2018-10-19T14:55:00Z43.68-92.179.07.7230142010.029.890747TRUETRUEIFR0.06METAR389.02018-10-19 15:05:17J¶) 5    3KFKR 191455Z AUTO 24008KT 7SM CLR 12/03 A3022 RMK AO2 T01220026KFKR2018-10-19T14:55:00Z40.27-86.5712.22.624087.030.221457TRUETRUEVFRMETAR262.02018-10-19 15:05:17M¶)5   3KGBK 191455Z AUTO 08010G21KT 060V120 10SM CLR 29/23 A3012 RMK A01KGBK2018-10-19T14:55:00Z27.2-92.229.023.080102110.030.121063TRUETRUEVFRMETAR59.02018-10-19 15:05:17 <`@¶(w5    3KEMK 191455Z AUTO 19022KT 9SM CLR 29/24 A3012 RMK A01KEMK2018-10-19T14:55:00Z27.82-94.3229.024.0190229.030.121063TRUETRUEVFRMETAR26.02018-10-19 15:05:17V¶)5    3KEVU 191455Z AUTO 23011G22KT 5SM HZ SCT012 OVC018 12/07 A3007 RMK AO2KEVU2018-10-19T14:55:00Z40.35-94.9212.07.023011225.030.070866TRUETRUEHZMVFRMETAR349.02018-10-19 15:05:17[¶)5     3KF05 191455Z AUTO 21006KT 10SM OVC004 14/13 A3026 RMK AO1 60027 T01360134KF052018-10-19T14:55:00Z34.23-99.2813.613.4210610.030.259842TRUETRUELIFR0.27METAR386.02018-10-19 15:05:17]¶)'5     3KF44 191455Z AUTO 02003KT 10SM SCT015 BKN028 OVC065 14/12 A3022 RMK AO2 P0010KF442018-10-19T14:55:00Z32.17-95.8314.012.020310.030.221457TRUETRUEMVFR0.1METAR135.02018-10-19 15:05:17 J}A¶(y5    3KDTL 191455Z AUTO 32014KT 10SM CLR 07/02 A2983 RMK AO2KDTL2018-10-19T14:55:00Z46.82-95.877.02.03201410.029.828741TRUETRUEVFRMETAR426.02018-10-19 15:05:17G¶(5   3KDXX 191455Z AUTO 31019G28KT 10SM CLR 14/06 A2986 RMK AO2KDXX2018-10-19T14:55:00Z44.98-96.1814.06.0310192810.029.861221TRUETRUEVFRMETAR330.02018-10-19 15:05:17M¶) 5    3KE80 191455Z AUTO 02005KT 10SM CLR 11/05 A3035 RMK AO2 T01070054KE802018-10-19T14:55:00Z34.65-106.8310.75.420510.030.351377TRUETRUEVFRMETAR1582.02018-10-19 15:05:17]¶)/5   3KEIR 191455Z AUTO 09007G17KT 050V130 9SM FEW020 SCT029 BKN050 28/24 A3017 RMK A01KEIR2018-10-19T14:55:00Z28.63-91.4828.024.0907179.030.171259TRUETRUEVFRMETAR28.02018-10-19 15:05:17 5na¶!)-5     3KCUH 191455Z AUTO 17005KT 10SM BKN007 OVC011 12/11 A3023 RMK AO2 60002 T01200113KCUH2018-10-19T14:55:00Z35.95-96.7712.011.3170510.030.230314TRUETRUEIFR0.02METAR279.02018-10-19 15:05:17F¶ (5    3KCZT 191455Z AUTO 34005KT 10SM OVC004 15/15 A3019 RMK AO2KCZT2018-10-19T14:55:00Z28.52-99.8215.015.0340510.030.188976TRUETRUELIFRMETAR183.02018-10-19 15:05:17A¶(y5    3KDLP 191455Z AUTO 09010KT 10SM CLR 29/24 A3017 RMK A01KDLP2018-10-19T14:55:00Z29.12-89.5529.024.0901010.030.171259TRUETRUEVFRMETAR36.02018-10-19 15:05:17E¶(5    3KDSF 191455Z AUTO 06014KT 10SM SCT019 29/24 A3018 RMK A01KDSF2018-10-19T14:55:00Z28.35-88.2729.024.0601410.030.180119TRUETRUEVFRMETAR130.02018-10-19 15:05:17Y88@HPX`hpx (08@HPX`hpx (08@HPX`hpxµµµµµ!µ%µ)µ-µ1µ5µ9µ=µµµµµ!µ%µ)µ-µ1µ5µ9µ=µAµEµIµMµQµUµYµ]µaµeµiµmµqµuµyµ}¶¶¶ ¶ ¶¶¶¶¶!¶%¶*¶.¶2¶6¶:¶>•¶BÕ¶Fĕ¶Jŕ¶Oƕ¶SǕ¶Wȕ¶[ɕ¶_ʕ¶c˕¶g̕¶k͕¶oΕ¶sϕ¶wЕ¶{ѕ¶ҕ·ӕ·ԕ· Օ·֕·ו·ؕ·ٕ· ڕ·$ە·(ܕ·-ݕ·1ޕ·5ߕ·9·=·A·E·I·M·Q·U·Y·]·a·e·i·m·q·u 3WA¶%(y5    3KCKZ 191455Z AUTO 25007KT 10SM CLR 10/01 A3030 RMK AO2KCKZ2018-10-19T14:55:00Z40.38-75.2810.01.0250710.030.301182TRUETRUEVFRMETAR173.02018-10-19 15:05:17R¶$)5   3KCNB 191455Z AUTO 31016G23KT 10SM CLR 15/09 A2987 RMK AO2 T01500089KCNB2018-10-19T14:55:00Z44.73-96.2715.08.9310162310.029.870079TRUETRUEVFRMETAR364.02018-10-19 15:05:17V¶#)!5    3KCOM 191455Z AUTO 36003KT 10SM BKN005 OVC014 13/13 A3026 RMK AO2 T01310126KCOM2018-10-19T14:55:00Z31.83-99.413.112.6360310.030.259842TRUETRUEIFRMETAR517.02018-10-19 15:05:17G¶"(5   3KCQM 191455Z AUTO 28010G15KT 10SM CLR 11/06 A2961 RMK AO2KCQM2018-10-19T14:55:00Z47.82-92.6811.06.0280101510.029.610237TRUETRUEVFRMETAR404.02018-10-19 15:05:17 9iA¶*(y5    3KL18 191455Z AUTO 04005KT 10SM CLR 19/02 A3003 RMK AO2KL182018-10-19T14:55:00Z33.35-117.2519.02.040510.030.029528TRUETRUEVFRMETAR216.02018-10-19 15:05:17>¶)(y5    3KLHM 191455Z AUTO 00000KT 10SM CLR 05/02 A3013 RMK AO1KLHM2018-10-19T14:55:00Z38.92-121.355.02.00010.030.129921TRUETRUEVFRMETAR37.02018-10-19 15:05:17F¶((5   3KLJF 191455Z AUTO 26012G17KT 10SM CLR 14/09 A2978 RMK AO2KLJF2018-10-19T14:55:00Z45.1-94.5214.09.0260121710.029.778543TRUETRUEVFRMETAR348.02018-10-19 15:05:17J¶') 5    3KLNA 191455Z AUTO 09007KT 10SM CLR 29/23 A3019 RMK AO2 T02930229KLNA2018-10-19T14:55:00Z26.6-80.0229.322.990710.030.188976TRUETRUEVFRMETAR11.02018-10-19 15:05:17A¶&(y5    3KCKC 191455Z AUTO 24006KT 10SM CLR 11/04 A2955 RMK AO2KCKC2018-10-19T14:55:00Z47.83-90.3711.04.0240610.029.551182TRUETRUEVFRMETAR548.02018-10-19 15:05:17 .]A¶.(y5    3KIOB 191455Z AUTO 22004KT 10SM CLR 11/05 A3028 RMK AO2KIOB2018-10-19T14:55:00Z38.05-83.9811.05.0220410.030.280512TRUETRUEVFRMETAR311.02018-10-19 15:05:17L¶-) 5    3KIRS 191455Z AUTO 23011KT 10SM CLR 11/00 A3014 RMK AO2 T01090002KIRS2018-10-19T14:55:00Z41.8-85.4310.90.22301110.030.138779TRUETRUEVFRMETAR282.02018-10-19 15:05:17K¶,) 5    3KJFZ 191455Z AUTO 23006KT 10SM CLR 12/06 A3032 RMK AO2 T01190064KJFZ2018-10-19T14:55:00Z37.07-81.811.96.4230610.030.318897TRUETRUEVFRMETAR809.02018-10-19 15:05:17L¶+)5    3KJYL 191455Z AUTO 09004KT 10SM SCT037 20/14 A3033 RMK AO2 T01990137KJYL2018-10-19T14:55:00Z32.65-81.619.913.790410.030.33071TRUETRUEVFRMETAR57.02018-10-19 15:05:17 ([O¶2)5   3KHZX 191455Z AUTO 27010G17KT 231V291 10SM CLR 12/07 A2969 RMK AO2KHZX2018-10-19T14:55:00Z46.62-93.3212.07.0270101710.029.68996TRUETRUEVFRMETAR374.02018-10-19 15:05:17N¶1)5    3KIER 191455Z AUTO 12004KT 10SM SCT050 17/12 A3023 RMK AO2 T01730123KIER2018-10-19T14:55:00Z31.73-93.117.312.3120410.030.230314TRUETRUEVFRMETAR37.02018-10-19 15:05:17G¶0)5     3KIKG 191455Z AUTO 3SM BR OVC003 18/18 A3014 RMK AO2 T01780178KIKG2018-10-19T14:55:00Z27.55-98.0317.817.83.030.138779TRUETRUEBRLIFRMETAR40.02018-10-19 15:05:17R¶/)5   3KIKW 191455Z AUTO 22011G16KT 10SM CLR 13/06 A3001 RMK AO2 T01250055KIKW2018-10-19T14:55:00Z43.67-84.2712.55.5220111610.030.008858TRUETRUEVFRMETAR194.02018-10-19 15:05:17 6`M¶6) 5    3KHHF 191455Z AUTO 26010KT 10SM CLR 14/11 A3020 RMK AO2 T01430109KHHF2018-10-19T14:55:00Z35.9-100.414.310.92601010.030.200787TRUETRUEVFRMETAR712.02018-10-19 15:05:17B¶5(y5    3KHQI 191455Z AUTO 10021KT 10SM CLR 29/23 A3012 RMK A01KHQI2018-10-19T14:55:00Z27.93-93.6729.023.01002110.030.121063TRUETRUEVFRMETAR26.02018-10-19 15:05:17P¶4)5    3KHRX 191455Z AUTO 27010KT 7SM OVC100 10/09 A3027 RMK AO2 T01030089KHRX2018-10-19T14:55:00Z34.87-102.3310.38.9270107.030.268702TRUETRUEVFRMETAR1154.02018-10-19 15:05:17D¶3)5    3KHVE 191455Z AUTO 00000KT 1/4SM OVC001 02/02 A3046 RMK AO2KHVE2018-10-19T14:55:00Z38.42-110.72.02.0000.2530.46063TRUETRUELIFRMETAR1350.02018-10-19 15:05:17  [L¶:) 5    3KGUL 191455Z AUTO 12017KT 10SM FEW025 FEW038 29/23 A3013 RMK A01KGUL2018-10-19T14:55:00Z27.3-93.5329.023.01201710.030.129921TRUETRUEVFRMETAR30.02018-10-19 15:05:17R¶9)5   3KHCD 191455Z AUTO 23012G19KT 10SM CLR 14/09 A2980 RMK AO2 T01440088KHCD2018-10-19T14:55:00Z44.87-94.3814.48.8230121910.029.799213TRUETRUEVFRMETAR323.02018-10-19 15:05:17?¶8(y5    3KHDC 191455Z AUTO 00000KT 10SM CLR 22/14 A3023 RMK AO2KHDC2018-10-19T14:55:00Z30.52-90.4222.014.00010.030.230314TRUETRUEVFRMETAR13.02018-10-19 15:05:17Z¶7)5      3KHFJ 191455Z AUTO 21007KT 10SM RA SCT005 OVC027 08/08 A3025 RMK AO2 P0005KHFJ2018-10-19T14:55:00Z36.9-94.028.08.0210710.030.250984TRUETRUERAMVFR0.05METAR401.02018-10-19 15:05:17 -[rJ¶>) 5    3KMWO 191455Z AUTO 21006KT 10SM CLR 09/04 A3026 RMK AO2 T00860036KMWO2018-10-19T14:55:00Z39.53-84.48.63.6210610.030.259842TRUETRUEVFRMETAR198.02018-10-19 15:05:17c¶=)95  !  3ORBD 191455Z 07005KT 6000 DUHZ VCSH SCT100 BKN150 25/14 A2996 RMK WND DATA ALSTG ESTMDORBD2018-10-19T14:55:00Z33.9344.3725.014.07053.7329.958662VCSH DU HZMVFRMETAR49.02018-10-19 15:05:17L¶<) 5    3KGLW 191455Z AUTO 21005KT 10SM CLR 14/07 A3027 RMK AO2 T01400068KGLW2018-10-19T14:55:00Z37.03-85.9514.06.8210510.030.268702TRUETRUEVFRMETAR218.02018-10-19 15:05:17M¶;) 5    3KGRY 191455Z AUTO 12015KT 10SM FEW028 FEW035 28/22 A3016 RMK A01KGRY2018-10-19T14:55:00Z27.63-90.4528.022.01201510.030.159449TRUETRUEVFRMETAR58.02018-10-19 15:05:17 (bM¶B)5   3KONL 191455Z AUTO 30015G20KT 10SM CLR 14/05 A3000 RMK AO2 T01420054KONL2018-10-19T14:55:00Z42.47-98.6714.25.4300152010.030.0TRUETRUEVFRMETAR619.02018-10-19 15:05:17L¶A) 5    3KONM 191455Z AUTO 01008KT 10SM CLR 11/06 A3034 RMK AO2 T01090060KONM2018-10-19T14:55:00Z34.02-106.910.96.010810.030.339567TRUETRUEVFRMETAR1410.02018-10-19 15:05:17@¶@(y5    3KOKV 191455Z AUTO 19003KT 10SM CLR 10/03 A3033 RMK AO2KOKV2018-10-19T14:55:00Z39.13-78.1510.03.0190310.030.33071TRUETRUEVFRMETAR222.02018-10-19 15:05:17R¶?)5   3KOGA 191455Z AUTO 32016G25KT 10SM CLR 12/02 A3015 RMK AO2 T01200020KOGA2018-10-19T14:55:00Z41.12-101.7712.02.0320162510.030.15059TRUETRUEVFRMETAR999.02018-10-19 15:05:17 0_@¶F(y5    3KMAO 191455Z AUTO 07006KT 10SM CLR 17/11 A3036 RMK AO2KMAO2018-10-19T14:55:00Z34.18-79.3317.011.070610.030.360237TRUETRUEVFRMETAR28.02018-10-19 15:05:17K¶E) 5    3KPBX 191455Z AUTO 17004KT 10SM CLR 07/07 A3028 RMK AO2 T00730073KPBX2018-10-19T14:55:00Z37.57-82.577.37.3170410.030.280512TRUETRUEVFRMETAR449.02018-10-19 15:05:17K¶D)5    3KOSA 191455Z AUTO 08003KT 7SM SCT024 14/08 A3025 RMK AO1 T01420082KOSA2018-10-19T14:55:00Z33.1-94.9714.28.28037.030.250984TRUETRUEVFRMETAR111.02018-10-19 15:05:17J¶C)5     3KONP 191455Z AUTO 08005KT 1/4SM FG OVC003 06/06 A3028 RMK AO2KONP2018-10-19T14:55:00Z44.57-124.036.06.08050.2530.280512TRUETRUEFGLIFRMETAR48.02018-10-19 15:05:17 (VU¶J)5   3KPMV 191455Z AUTO 22014G19KT 10SM SCT016 14/11 A3002 RMK AO2 T01440111KPMV2018-10-19T14:55:00Z40.95-95.9214.411.1220141910.030.02067TRUETRUEVFRMETAR367.02018-10-19 15:05:17>¶I(y5    3KPMU 191455Z AUTO 00000KT 10SM CLR 14/10 A3027 RMK AO2KPMU2018-10-19T14:55:00Z34.37-89.914.010.00010.030.268702TRUETRUEVFRMETAR67.02018-10-19 15:05:17L¶H) 5     3KPLU 191455Z AUTO 00000KT M1/4SM -DZ OVC002 05/05 A3028 RMK AO2KPLU2018-10-19T14:55:00Z47.1-122.285.05.0000.2530.280512TRUETRUE-DZLIFRMETAR164.02018-10-19 15:05:17R¶G)5   3KPEX 191455Z AUTO 27021G25KT 10SM CLR 13/09 A2977 RMK AO2 T01280088KPEX2018-10-19T14:55:00Z45.37-94.7312.88.8270212510.029.769686TRUETRUEVFRMETAR360.02018-10-19 15:05:17  *j :¶O({5    3EHMA 191455Z AUTO 11007KT 9999 NSC 13/04 Q1025 W///H///EHMA2018-10-19T14:55:00Z53.55.9513.04.011076.2130.265747TRUEVFRMETAR50.02018-10-19 15:05:17;¶N({5    3EHMG 191455Z AUTO 20005KT 9999 NCD 13/05 Q1026 W///H///EHMG2018-10-19T14:55:00Z53.624.9713.05.020056.2130.295275TRUEVFRMETAR50.02018-10-19 15:05:17C¶M) 5    3EHPG 191455Z AUTO 03006KT 340V050 9999 NSC 13/06 Q1025 W///H///EHPG2018-10-19T14:55:00Z52.373.3513.06.03066.2130.265747TRUEVFRMETAR50.02018-10-19 15:05:17:¶L({5    3EHQE 191455Z AUTO 04008KT 9999 NSC 12/06 Q1025 W///H///EHQE2018-10-19T14:55:00Z52.924.1512.06.04086.2130.265747TRUEVFRMETAR50.02018-10-19 15:05:17P¶K)5    3KPPA 191455Z AUTO 26015KT 10SM SCT120 13/10 A3022 RMK AO2 T01260095KPPA2018-10-19T14:55:00Z35.62-101.012.69.52601510.030.221457TRUETRUEVFRMETAR989.02018-10-19 15:05:17 ;tJ¶S)'5   3EHHW 191455Z AUTO 19004KT 070V230 //// // FEW040/// 13/04 Q1025 RE// W///H///EHHW2018-10-19T14:55:00Z54.036.0313.04.0190430.265747TRUEMETAR0.02018-10-19 15:05:17X¶R)/5    3EHJA 191455Z AUTO 24012KT 9999 FEW015/// SCT022/// BKN031/// 13/10 Q1025 W///H///EHJA2018-10-19T14:55:00Z53.822.9513.010.0240126.2130.265747TRUEVFRMETAR50.02018-10-19 15:05:17A¶Q)5   3EHJR 191455Z AUTO 18009KT //// // ///////// 13/07 Q1025 RE// W16/H6EHJR2018-10-19T14:55:00Z53.223.2213.07.0180930.265747TRUEMETAR50.02018-10-19 15:05:17?¶P)5    3EHKV 191455Z AUTO 18007KT 9999 FEW038 13/06 Q1026 W///H///EHKV2018-10-19T14:55:00Z53.273.6313.06.018076.2130.295275TRUEVFRMETAR50.02018-10-19 15:05:17 :qJ¶W) 5    3KMKJ 191455Z AUTO 00000KT 10SM CLR 13/08 A3035 RMK AO2 T01340080KMKJ2018-10-19T14:55:00Z36.88-81.3313.48.00010.030.351377TRUETRUEVFRMETAR780.02018-10-19 15:05:17M¶V)5    3EHDV 191455Z AUTO 27012KT 9999 FEW013/// BKN038/// 13/09 Q1024 W///H///EHDV2018-10-19T14:55:00Z54.322.9313.09.0270126.2130.236221TRUEVFRMETAR50.02018-10-19 15:05:17C¶U)5   3EHFD 191455Z AUTO 21017KT //// // SCT047/// 13/06 Q1024 RE// W///H///EHFD2018-10-19T14:55:00Z54.854.713.06.02101730.236221TRUEMETAR50.02018-10-19 15:05:17@¶T)5    3EHFZ 191455Z AUTO 20013KT 9999 FEW026 14/08 Q1025 W///H///EHFZ2018-10-19T14:55:00Z54.124.0214.08.0200136.2130.265747TRUEVFRMETAR50.02018-10-19 15:05:17 ![C¶[(}5    3KS52 191455Z AUTO 00000KT 10SM CLR M02/M03 A3039 RMK AO2KS522018-10-19T14:55:00Z48.38-120.15-2.0-3.00010.030.389763TRUETRUEVFRMETAR520.02018-10-19 15:05:17K¶Z) 5    3KSBO 191455Z AUTO 09007KT 10SM BKN034 OVC048 17/11 A3033 RMK AO2KSBO2018-10-19T14:55:00Z32.62-82.3717.011.090710.030.33071TRUETRUEVFRMETAR100.02018-10-19 15:05:17@¶Y(w5    3KRGA 191455Z AUTO 20010KT 7SM CLR 13/07 A3026 RMK AO2KRGA2018-10-19T14:55:00Z37.63-84.3313.07.0200107.030.259842TRUETRUEVFRMETAR305.02018-10-19 15:05:17Y¶X)#5   3KMGG 191455Z AUTO 24009G16KT 200V270 10SM CLR 14/09 A2977 RMK AO2 T01360085KMGG2018-10-19T14:55:00Z45.23-93.9813.68.524091610.029.769686TRUETRUEVFRMETAR313.02018-10-19 15:05:17 @j^¶_))5   3KSYN 191455Z AUTO 26018G26KT 210V310 10SM OVC018 12/09 A2980 RMK AO2 T01210090KSYN2018-10-19T14:55:00Z44.47-93.0212.19.0260182610.029.799213TRUETRUEMVFRMETAR280.02018-10-19 15:05:17P¶^)5    3KSLR 191455Z AUTO 02003KT 10SM OVC026 15/11 A3027 RMK AO2 T01450107KSLR2018-10-19T14:55:00Z33.17-95.6214.510.720310.030.268702TRUETRUEMVFRMETAR149.02018-10-19 15:05:17W¶])5     3KSWW 191455Z AUTO 00000KT 7SM OVC004 12/12 A3029 RMK AO2 60012 T01220122KSWW2018-10-19T14:55:00Z32.47-100.4712.212.2007.030.28937TRUETRUELIFR0.12METAR727.02018-10-19 15:05:17]¶\)'5   3KSGS 191455Z AUTO 23011G16KT 10SM BKN020 BKN090 13/09 A2978 RMK AO2 T01320090KSGS2018-10-19T14:55:00Z44.87-93.0313.29.0230111610.029.778543TRUETRUEMVFRMETAR250.02018-10-19 15:05:17 9iM¶c)5    3PAUT 191455Z AUTO 29006KT 10SM OVC046 05/02 A2963 RMK AO2 T00510018PAUT2018-10-19T14:55:00Z54.15-165.65.11.8290610.029.630905TRUETRUEVFRMETAR25.02018-10-19 15:05:17K¶b) 5    3KW81 191455Z AUTO 20003KT 10SM CLR 14/06 A3036 RMK AO1 T01400057KW812018-10-19T14:55:00Z37.18-78.114.05.7200310.030.360237TRUETRUEVFRMETAR129.02018-10-19 15:05:17J¶a) 5     3KTMK 191455Z AUTO 00000KT 1 3/4SM BR OVC004 04/03 A3029 RMK AO2KTMK2018-10-19T14:55:00Z45.42-123.824.03.0001.7530.28937TRUETRUEBRLIFRMETAR11.02018-10-19 15:05:17A¶`(y5    3KULS 191455Z AUTO 31012KT 10SM CLR 07/05 A3018 RMK AO2KULS2018-10-19T14:55:00Z37.6-101.377.05.03101210.030.180119TRUETRUEVFRMETAR936.02018-10-19 15:05:17 >}G¶g(5   3KMOX 191455Z AUTO 32019G23KT 10SM CLR 11/04 A2982 RMK AO2KMOX2018-10-19T14:55:00Z45.57-95.9711.04.0320192310.029.819881TRUETRUEVFRMETAR344.02018-10-19 15:05:17K¶f) 5    3KMRT 191455Z AUTO 21008KT 10SM CLR 09/02 A3023 RMK AO2 T00890018KMRT2018-10-19T14:55:00Z40.22-83.358.91.8210810.030.230314TRUETRUEVFRMETAR312.02018-10-19 15:05:17;¶e)5   3EHSA 191455Z AUTO 01008KT 9999 ///////// 13/08 Q1025 W15/H5EHSA2018-10-19T14:55:00Z52.03.2813.08.01086.2130.265747TRUEMETAR50.02018-10-19 15:05:17<¶d)5   3EHSC 191455Z AUTO 01008KT 9999 ///////// 13/08 Q1024 W16/H5EHSC2018-10-19T14:55:00Z51.933.6713.08.01086.2130.236221TRUEMETAR50.02018-10-19 15:05:17 ]) E]b¶k))5    3KEGI 191455Z 08003KT 10SM BKN009 23/19 A3024 RMK AO2A SLP240 T02260191 52011 $KEGI2018-10-19T14:55:00Z30.63-86.5222.619.180310.030.2391741024.0TRUETRUEIFR1.1METAR59.02018-10-19 15:05:17U¶j)5   3KMGN 191455Z AUTO 23012G20KT 10SM SCT120 12/06 A2983 RMK AO2 T01250065KMGN2018-10-19T14:55:00Z45.43-84.9212.56.5230122010.029.828741TRUETRUEVFRMETAR209.02018-10-19 15:05:17¶i)i5   3KMKG 191455Z 21013G24KT 10SM SCT090 BKN120 OVC240 13/06 A3003 RMK AO2 PK WND 21027/1440 SLP170 T01280056 58023KMKG2018-10-19T14:55:00Z43.17-86.2312.85.6210132410.030.0295281017.0TRUEVFR-2.3METAR191.02018-10-19 15:05:17Q¶h)5   3KMOP 191455Z AUTO 22009G14KT 10SM CLR 11/04 A2999 RMK AO2 T01120040KMOP2018-10-19T14:55:00Z43.62-84.7311.24.022091410.029.991142TRUETRUEVFRMETAR230.02018-10-19 15:05:17 )FuD¶o)5   3MMPB 191455Z 35011KT 12SM FEW020 SCT200 16/10 A3036 RMK 8/502MMPB2018-10-19T14:55:00Z19.17-98.3716.010.03501112.030.360237VFRMETAR2244.02018-10-19 15:05:17K¶n) 5    3KCTY 191455Z AUTO 07010KT 10SM CLR 28/22 A3024 RMK AO2 T02770223KCTY2018-10-19T14:55:00Z29.63-83.127.722.3701010.030.239174TRUETRUEVFRMETAR13.02018-10-19 15:05:17]¶m)#5      3KCVB 191455Z AUTO 03003KT 3SM BR OVC003 17/17 A3020 RMK AO2 60002 T01720172KCVB2018-10-19T14:55:00Z29.35-98.8517.217.23033.030.200787TRUETRUEBRLIFR0.02METAR235.02018-10-19 15:05:17Q¶l)5   3KD39 191455Z AUTO 30012G17KT 10SM CLR 11/07 A2978 RMK AO2 T01110066KD392018-10-19T14:55:00Z45.7-94.9311.16.6300121710.029.778543TRUETRUEVFRMETAR380.02018-10-19 15:05:17 )n]¶s)#5    3KDLH 191455Z 26016KT 10SM FEW045 13/07 A2963 RMK AO2 SLP038 T01330067 56015KDLH2018-10-19T14:55:00Z46.85-92.213.36.72601610.029.6309051003.8TRUEVFR-1.5METAR435.02018-10-19 15:05:17X¶r)#5   3KDRM 191455Z AUTO 23007G16KT 200V270 10SM CLR 11/06 A2977 RMK AO2 T01130060KDRM2018-10-19T14:55:00Z46.0-83.7511.36.023071610.029.769686TRUETRUEVFRMETAR204.02018-10-19 15:05:175¶q(k5    3OPKC 191455Z 13008KT 6000 NSC 31/13 Q1012 NOSIGOPKC2018-10-19T14:55:00Z24.8867.1731.013.013083.7329.88189TRUEMVFRMETAR22.02018-10-19 15:05:17Q¶p)5     3OPLA 191455Z 32005KT 4000 FU NSC 21/13 Q1014 NOSIG RMK QFE988 RMK A29.94OPLA2018-10-19T14:55:00Z31.5274.421.013.032052.4929.940945TRUEFUIFRMETAR217.02018-10-19 15:05:17  AmY¶w)!5     3KSCK 191455Z 00000KT 6SM HZ CLR 09/05 A3013 RMK AO2 SLP203 T00940050 53011KSCK2018-10-19T14:55:00Z37.88-121.229.45.0006.030.1299211020.3TRUEHZVFR1.1METAR10.02018-10-19 15:05:17N¶v)5     3KSPF 191455Z AUTO 26009KT 10SM CLR 09/M00 A3028 RMK AO2 PWINOKSPF2018-10-19T14:55:00Z44.47-103.779.00.0260910.030.280512TRUETRUETRUEVFRMETAR1188.02018-10-19 15:05:17Y¶u)!5    3KUNU 191455Z AUTO 20009G15KT 10SM -RA OVC070 07/05 A2999 RMK AO2 T00730050KUNU2018-10-19T14:55:00Z43.42-88.77.35.020091510.029.991142TRUETRUE-RAVFRMETAR285.02018-10-19 15:05:17Z¶t)-5    3KVTI 191455Z AUTO 18006KT 10SM SCT038 SCT046 09/07 A2998 RMK AO2 60001 T00910071KVTI2018-10-19T14:55:00Z42.22-92.029.17.1180610.029.97933TRUETRUEVFRSPECI255.02018-10-19 15:05:17 4dM¶{) 5    3KRMY 191455Z AUTO 22009KT 10SM CLR 10/00 A3010 RMK AO2 T01001005KRMY2018-10-19T14:55:00Z42.23-84.9510.0-0.5220910.030.100393TRUETRUEVFRMETAR287.02018-10-19 15:05:17Q¶z)5   3KRNP 191455Z AUTO 22011G20KT 10SM CLR 12/00 A3006 RMK AO2 T01230002KRNP2018-10-19T14:55:00Z43.0-84.1312.30.2220112010.030.059055TRUETRUEVFRMETAR224.02018-10-19 15:05:17J¶y) 5    3KRQB 191455Z AUTO 22007KT 10SM CLR 11/07 A2998 RMK AO2 T01130065KRQB2018-10-19T14:55:00Z43.72-85.511.36.5220710.029.97933TRUETRUEVFRMETAR302.02018-10-19 15:05:17F¶x(5   3KRRT 191455Z AUTO 30014G21KT 10SM CLR 08/02 A2975 RMK AO2KRRT2018-10-19T14:55:00Z48.93-95.338.02.0300142110.029.749016TRUETRUEVFRMETAR327.02018-10-19 15:05:17 (@w?¶(y5    3KCGC 191455Z AUTO 08007KT 10SM CLR 28/23 A3022 RMK AO2KCGC2018-10-19T14:55:00Z28.87-82.5728.023.080710.030.221457TRUETRUEVFRMETAR3.02018-10-19 15:05:17C¶~(y5    3KCIN 191455Z AUTO 24017KT 10SM CLR 13/11 A2997 RMK AO2KCIN2018-10-19T14:55:00Z42.03-94.7713.011.02401710.029.970472TRUETRUEVFRMETAR375.02018-10-19 15:05:17b¶}))5    3KVPS 191455Z 06005KT 10SM BKN007 23/20 A3023 RMK AO2A SLP243 T02300197 52012 $KVPS2018-10-19T14:55:00Z30.47-86.5223.019.760510.030.2303141024.3TRUETRUEIFR1.2METAR26.02018-10-19 15:05:17R¶|)5     3KPMH 191455Z AUTO 16003KT 5SM BR BKN002 01/01 A3030 RMK AO2 T00110011KPMH2018-10-19T14:55:00Z38.83-82.851.11.116035.030.301182TRUETRUEBRLIFRMETAR202.02018-10-19 15:05:17 )bS·)5      3KCCY 191455Z AUTO 20013KT 3SM BR OVC006 10/09 A2992 RMK AO2 P0002KCCY2018-10-19T14:55:00Z43.07-92.6210.09.0200133.029.920275TRUETRUEBRIFR0.02METAR343.02018-10-19 15:05:17?·(y5    3KCDN 191455Z AUTO 04004KT 10SM CLR 16/08 A3037 RMK AO2KCDN2018-10-19T14:55:00Z34.28-80.5716.08.040410.030.369095TRUETRUEVFRMETAR92.02018-10-19 15:05:17A·(y5    3KCEY 191455Z AUTO 22006KT 10SM CLR 14/07 A3026 RMK AO1KCEY2018-10-19T14:55:00Z36.67-88.3714.07.0220610.030.259842TRUETRUEVFRMETAR176.02018-10-19 15:05:17Q·)5   3KCFJ 191455Z AUTO 19011G15KT 10SM CLR 09/02 A3021 RMK AO2 T00920021KCFJ2018-10-19T14:55:00Z39.98-86.929.22.1190111510.030.209646TRUETRUEVFRMETAR244.02018-10-19 15:05:17 2dD·(}5     3KBWW 191455Z AUTO 32015KT 6SM HZ CLR 08/00 A3010 RMK AO2KBWW2018-10-19T14:55:00Z46.17-103.38.00.0320156.030.100393TRUETRUEHZVFRMETAR910.02018-10-19 15:05:17V·)5    3KCAV 191455Z AUTO 21014G22KT 10SM BKN046 12/10 A2993 RMK AO2 PWINOKCAV2018-10-19T14:55:00Z42.75-93.7712.010.0210142210.029.929134TRUETRUETRUEVFRMETAR354.02018-10-19 15:05:17H·)5   3KCBF 191455Z AUTO 22012G19KT 10SM BKN017 14/12 A3000 RMK AO2KCBF2018-10-19T14:55:00Z41.27-95.7714.012.0220121910.030.0TRUETRUEMVFRMETAR382.02018-10-19 15:05:17H·(5   3KCBK 191455Z AUTO 31012G17KT 10SM CLR 10/04 A3016 RMK AO2KCBK2018-10-19T14:55:00Z39.43-101.0510.04.0310121710.030.159449TRUETRUEVFRMETAR971.02018-10-19 15:05:17 8gv· )K5      3KBCK 191455Z AUTO 22006KT 7SM RA BKN014 BKN024 OVC049 10/10 A2987 RMK AO2 P0001 60004 T01030102KBCK2018-10-19T14:55:00Z44.25-90.8510.310.222067.029.870079TRUETRUERAMVFR0.010.04METAR255.02018-10-19 15:05:17K· ) 5    3KBKN 191455Z AUTO 18009KT 9SM BKN007 BKN037 12/12 A3023 RMK AO2KBKN2018-10-19T14:55:00Z36.75-97.3512.012.018099.030.230314TRUETRUEIFRMETAR314.02018-10-19 15:05:17K· )5   3KBNW 191455Z AUTO 21008G16KT 10SM OVC033 11/10 A2996 RMK AO2KBNW2018-10-19T14:55:00Z42.03-93.8311.010.021081610.029.958662TRUETRUEVFRMETAR354.02018-10-19 15:05:17B·(y5    3KBVU 191455Z AUTO 03014KT 10SM CLR 18/00 A3023 RMK AO2KBVU2018-10-19T14:55:00Z35.95-114.8718.00.0301410.030.230314TRUETRUEVFRMETAR671.02018-10-19 15:05:17 4WJ·) 5    3KATS 191455Z AUTO 00000KT 7SM BKN006 OVC021 10/10 A3031 RMK AO2KATS2018-10-19T14:55:00Z32.85-104.4710.010.0007.030.31004TRUETRUEIFRMETAR1081.02018-10-19 15:05:17L·) 5    3KAWG 191455Z AUTO 21009KT 10SM BKN050 BKN055 11/08 A3006 RMK AO2KAWG2018-10-19T14:55:00Z41.27-91.6711.08.0210910.030.059055TRUETRUEVFRMETAR230.02018-10-19 15:05:17W· )5    3KAXA 191455Z AUTO 22017G23KT 10SM OVC013 12/10 A2989 RMK AO2 PWINOKAXA2018-10-19T14:55:00Z43.07-94.2712.010.0220172310.029.890747TRUETRUETRUEMVFRMETAR372.02018-10-19 15:05:17F· (5   3KBAC 191455Z AUTO 31015G20KT 10SM CLR 09/02 A2994 RMK AO2KBAC2018-10-19T14:55:00Z46.93-98.029.02.0310152010.029.940945TRUETRUEVFRMETAR427.02018-10-19 15:05:17 1bhT·)5   3KAEJ 191455Z AUTO 33016G20KT 10SM CLR 05/M03 A3044 RMK AO2 T00521026KAEJ2018-10-19T14:55:00Z38.82-106.125.2-2.6330162010.030.43996TRUETRUEVFRMETAR2422.02018-10-19 15:05:17t·)E5     3KAIG 191455Z AUTO 23015G22KT 7SM -RA BKN007 OVC011 08/08 A2983 RMK AO2 P0004 60007 T00800078KAIG2018-10-19T14:55:00Z45.15-89.128.07.823015227.029.828741TRUETRUE-RAIFR0.040.07METAR464.02018-10-19 15:05:17I·) 5    3KAIO 191455Z AUTO 21015KT 10SM FEW016 BKN034 13/11 A3000 RMK AO2KAIO2018-10-19T14:55:00Z41.38-95.0313.011.02101510.030.0TRUETRUEVFRMETAR360.02018-10-19 15:05:17I·)5     3KAQX 191455Z AUTO 00000KT 10SM CLR 19/12 A3032 RMK AO2 TSNOKAQX2018-10-19T14:55:00Z32.98-81.2719.012.00010.030.318897TRUETRUETRUEVFRMETAR49.02018-10-19 15:05:17 0nA·(y5    3K6B9 191455Z AUTO 22008KT 10SM CLR 11/04 A3011 RMK AO2K6B92018-10-19T14:55:00Z42.92-76.4311.04.0220810.030.109253TRUETRUEVFRMETAR316.02018-10-19 15:05:17>·(y5    3K6L4 191455Z AUTO 00000KT 10SM CLR 10/05 A3029 RMK AO2K6L42018-10-19T14:55:00Z37.85-81.9210.05.00010.030.28937TRUETRUEVFRMETAR508.02018-10-19 15:05:17A·(w5  3K7L2 191455Z AUTO 32015G20KT 10SM 11/02 A3008 RMK AO2K7L22018-10-19T14:55:00Z46.22-100.2511.02.0320152010.030.079725TRUETRUEMETAR543.02018-10-19 15:05:17<·(u5     3K9D7 191455Z AUTO 30014KT 10SM CLR 09/ A2997 RMK AO2K9D72018-10-19T14:55:00Z48.48-99.239.03001410.029.970472TRUETRUEVFRMETAR452.02018-10-19 15:05:17J·)5   3KADU 191455Z AUTO 22013G17KT 10SM SCT031 13/10 A2998 RMK AO2KADU2018-10-19T14:55:00Z41.7-94.9213.010.0220131710.029.97933TRUETRUEVFRMETAR392.02018-10-19 15:05:17 4gF·(5   3K46D 191455Z AUTO 31018G24KT 10SM CLR 09/01 A2999 RMK AO2K46D2018-10-19T14:55:00Z47.45-99.159.01.0310182410.029.991142TRUETRUEVFRMETAR490.02018-10-19 15:05:17?·(y5    3K4A6 191455Z AUTO 00000KT 10SM CLR 14/12 A3032 RMK AO2K4A62018-10-19T14:55:00Z34.68-86.014.012.00010.030.318897TRUETRUEVFRMETAR198.02018-10-19 15:05:17G·)5     3K4M9 191455Z AUTO 00000KT 10SM CLR 12/08 A3029 RMK AO2 PWINOK4M92018-10-19T14:55:00Z36.4-90.6512.08.00010.030.28937TRUETRUETRUEVFRMETAR90.02018-10-19 15:05:17F·(5   3K5H4 191455Z AUTO 31016G22KT 10SM CLR 08/01 A3003 RMK AO2K5H42018-10-19T14:55:00Z47.78-99.938.01.0310162210.030.029528TRUETRUEVFRMETAR490.02018-10-19 15:05:17 'VB· (5    3K24J 191455Z AUTO 04004KT 10SM OVC060 25/21 A3026 RMK A01K24J2018-10-19T14:55:00Z30.3-83.0325.021.040410.030.259842TRUETRUEVFRMETAR32.02018-10-19 15:05:17L·)5     3K2D5 191455Z AUTO 32015KT 10SM CLR 09/03 A2994 RMK AO2 PWINOK2D52018-10-19T14:55:00Z46.17-98.089.03.03201510.029.940945TRUETRUETRUEVFRMETAR407.02018-10-19 15:05:17K·) 5    3K2I0 191455Z AUTO 23003KT 10SM CLR 11/07 A3026 RMK AO2 T01100066K2I02018-10-19T14:55:00Z37.35-87.411.06.6230310.030.259842TRUETRUEVFRMETAR134.02018-10-19 15:05:17S·)5     3K42J 191455Z AUTO 08010KT 9SM FEW016 FEW022 27/23 A3024 RMK A01 TSNOK42J2018-10-19T14:55:00Z29.85-82.0527.023.080109.030.239174TRUETRUETRUEVFRMETAR60.02018-10-19 15:05:17 6fI·$)5   3K06D 191455Z AUTO 32023G32KT 10SM CLR 08/M01 A2996 RMK AO2K06D2018-10-19T14:55:00Z48.88-99.628.0-1.0320233210.029.958662TRUETRUEVFRMETAR556.02018-10-19 15:05:17H·#)5   3K08D 191455Z AUTO 31013G22KT 10SM CLR 07/M01 A3013 RMK AO2K08D2018-10-19T14:55:00Z48.3-102.47.0-1.0310132210.030.129921TRUETRUEVFRMETAR684.02018-10-19 15:05:17J·") 5     3K0S9 191455Z AUTO 00000KT M1/4SM FG OVC001 01/01 A3028 RMK AO2K0S92018-10-19T14:55:00Z48.05-122.821.01.0000.2530.280512TRUETRUEFGLIFRMETAR33.02018-10-19 15:05:17D·!({5    3K20U 191455Z AUTO 31011KT 10SM CLR 07/M01 A3024 RMK AO2K20U2018-10-19T14:55:00Z46.93-103.987.0-1.03101110.030.239174TRUETRUEVFRMETAR840.02018-10-19 15:05:17 8fA·(({5    3KSNC 191455Z AUTO 26006KT 10SM CLR 10/M00 A3022 RMK AO2KSNC2018-10-19T14:55:00Z41.38-72.510.00.0260610.030.221457TRUETRUEVFRMETAR127.02018-10-19 15:05:17L·') 5     3KSOW 191455Z AUTO 01005KT M1/4SM FG OVC001 03/03 A3035 RMK AO2KSOW2018-10-19T14:55:00Z34.27-110.03.03.01050.2530.351377TRUETRUEFGLIFRMETAR1954.02018-10-19 15:05:17R·&)5    3KSRR 191455Z AUTO 00000KT 10SM SCT005 BKN009 BKN042 07/07 A3037 RMK AO2KSRR2018-10-19T14:55:00Z33.47-105.527.07.00010.030.369095TRUETRUEIFRMETAR2076.02018-10-19 15:05:17j·%)95     3KSTE 191455Z AUTO 20007KT 10SM BKN027 OVC075 09/06 A2986 RMK AO2 P0001 60002 T00890061KSTE2018-10-19T14:55:00Z44.55-89.538.96.1200710.029.861221TRUETRUEMVFR0.010.02METAR338.02018-10-19 15:05:17 <F·-(5    3KSDA 191455Z AUTO 21013KT 10SM OVC034 13/11 A3004 RMK AO2KSDA2018-10-19T14:55:00Z40.75-95.4213.011.02101310.030.041338TRUETRUEVFRMETAR296.02018-10-19 15:05:17E·,(5    3KSEM 191455Z AUTO 12005KT 10SM OVC012 20/16 A3026 RMK AO2KSEM2018-10-19T14:55:00Z32.35-86.9820.016.0120510.030.259842TRUETRUEMVFRMETAR51.02018-10-19 15:05:17M·+)5   3KSHL 191455Z AUTO 23013G19KT 10SM BKN011 12/11 A2988 RMK AO2KSHL2018-10-19T14:55:00Z43.22-95.8212.011.0230131910.029.878937TRUETRUEMVFRMETAR432.02018-10-19 15:05:177·*(m5   3KSLB 191455Z AUTO 24018G26KT 12/10 A2993 RMK AO2KSLB2018-10-19T14:55:00Z42.6-95.2212.010.0240182629.929134TRUETRUEMETAR454.02018-10-19 15:05:17>·)(y5    3KSMS 191455Z AUTO VRB08KT 10SM CLR 18/11 A3036 RMK AO2KSMS2018-10-19T14:55:00Z34.0-80.3718.011.00810.030.360237TRUETRUEVFRMETAR56.02018-10-19 15:05:17 9sB·1(5   3KRUG 191455Z AUTO 31018G26KT 10SM CLR 07/01 A3000 RMK AO2KRUG2018-10-19T14:55:00Z48.38-100.027.01.0310182610.030.0TRUETRUEVFRMETAR472.02018-10-19 15:05:17B·0({5    3KS25 191455Z AUTO 29012KT 10SM CLR 07/M00 A3019 RMK AO2KS252018-10-19T14:55:00Z47.8-103.257.00.02901210.030.188976TRUETRUEVFRMETAR644.02018-10-19 15:05:17@·/(y5    3KS32 191455Z AUTO 31015KT 10SM CLR 09/02 A2992 RMK AO2KS322018-10-19T14:55:00Z47.42-98.19.02.03101510.029.920275TRUETRUEVFRMETAR684.02018-10-19 15:05:17A·.(y5    3KS33 191455Z AUTO 14005KT 7SM CLR 00/M04 A3035 RMK AO2KS332018-10-19T14:55:00Z44.67-121.150.0-4.014057.030.351377TRUETRUEVFRMETAR743.02018-10-19 15:05:17 ,W{M·5) 5    3KPLR 191455Z AUTO 06004KT 10SM BKN019 BKN026 17/14 A3030 RMK A01KPLR2018-10-19T14:55:00Z33.57-86.2517.014.060410.030.301182TRUETRUEMVFRMETAR148.02018-10-19 15:05:17V·4)5    3KRCE 191455Z AUTO 20010KT 10SM SCT007 BKN017 OVC080 13/12 A3023 RMK AO2KRCE2018-10-19T14:55:00Z35.48-97.8213.012.02001010.030.230314TRUETRUEMVFRMETAR413.02018-10-19 15:05:17O·3)5    3KRCV 191455Z AUTO 26007KT 10SM CLR 03/M04 A3045 RMK AO2 T00311045KRCV2018-10-19T14:55:00Z37.72-106.353.1-4.5260710.030.448818TRUETRUEVFRMETAR2424.02018-10-19 15:05:17N·2) 5    3KRDK 191455Z AUTO 21011KT 10SM BKN032 OVC037 13/11 A3003 RMK AO2KRDK2018-10-19T14:55:00Z41.02-95.2713.011.02101110.030.029528TRUETRUEVFRMETAR318.02018-10-19 15:05:17 5hE·9(5    3KOXV 191455Z AUTO 21012KT 10SM OVC040 12/09 A3001 RMK AO2KOXV2018-10-19T14:55:00Z41.28-93.1212.09.02101210.030.008858TRUETRUEVFRMETAR283.02018-10-19 15:05:17G·8(5   3KPAN 191455Z AUTO 05006G11KT 10SM CLR 11/03 A3025 RMK AO2KPAN2018-10-19T14:55:00Z34.25-111.3311.03.05061110.030.250984TRUETRUEVFRMETAR1572.02018-10-19 15:05:17J·7) 5    3KPCM 191455Z AUTO 06005KT 10SM SCT019 SCT033 29/22 A3023 RMK AO2KPCM2018-10-19T14:55:00Z28.0-82.1729.022.060510.030.230314TRUETRUEVFRMETAR47.02018-10-19 15:05:17u·6)M5      3KPDC 191455Z AUTO 18005KT 10SM RA SCT046 BKN060 OVC070 10/08 A2997 RMK AO2 P0003 60007 T00970077KPDC2018-10-19T14:55:00Z43.02-91.129.77.7180510.029.970472TRUETRUERAVFR0.030.07METAR201.02018-10-19 15:05:17 2fJ·=)5   3KOLG 191455Z AUTO 23014G22KT 10SM SCT022 12/07 A2968 RMK AO1KOLG2018-10-19T14:55:00Z46.3-91.8212.07.0230142210.029.681103TRUETRUEVFRMETAR336.02018-10-19 15:05:17B·<)5    3KOLZ 191455Z AUTO 20008KT OVC032 09/09 A2997 RMK AO2 PWINOKOLZ2018-10-19T14:55:00Z42.67-91.979.09.0200829.970472TRUETRUETRUEMETAR328.02018-10-19 15:05:17F·;(5    3KORC 191455Z AUTO 24015KT 10SM SCT013 13/11 A2991 RMK AO2KORC2018-10-19T14:55:00Z42.97-96.0713.011.02401510.029.911417TRUETRUEVFRMETAR431.02018-10-19 15:05:17H·:) 5     3KORS 191455Z AUTO 00000KT M1/4SM FG OVC002 08/08 A3027 RMK AO2KORS2018-10-19T14:55:00Z48.7-122.928.08.0000.2530.268702TRUETRUEFGLIFRMETAR9.02018-10-19 15:05:17 ;ZE·A(5    3KMUT 191455Z AUTO 21010KT 10SM OVC060 12/05 A3006 RMK AO2KMUT2018-10-19T14:55:00Z41.37-91.1512.05.02101010.030.059055TRUETRUEVFRMETAR167.02018-10-19 15:05:17B·@(}5    3KMXO 191455Z AUTO 20010KT 9SM BKN060 09/07 A3003 RMK AO2KMXO2018-10-19T14:55:00Z42.22-91.179.07.0200109.030.029528TRUETRUEVFRMETAR259.02018-10-19 15:05:17[·?)'5   3KOEO 191455Z AUTO 22014G19KT 10SM SCT029 SCT110 13/09 A2978 RMK AO2 T01340088KOEO2018-10-19T14:55:00Z45.32-92.713.48.8220141910.029.778543TRUETRUEVFRMETAR275.02018-10-19 15:05:17?·>(y5    3KOLE 191455Z AUTO 23006KT 10SM CLR 07/02 A3015 RMK AO2KOLE2018-10-19T14:55:00Z42.23-78.377.02.0230610.030.15059TRUETRUEVFRMETAR651.02018-10-19 15:05:17 ;Y?·E(y5    3KM40 191455Z AUTO 00000KT 10SM CLR 16/14 A3028 RMK AO2KM402018-10-19T14:55:00Z33.87-88.4816.014.00010.030.280512TRUETRUEVFRMETAR69.02018-10-19 15:05:17?·D(y5    3KMCJ 191455Z AUTO 05006KT 10SM CLR 21/16 A3016 RMK A01KMCJ2018-10-19T14:55:00Z29.72-95.421.016.050610.030.159449TRUETRUEVFRMETAR69.02018-10-19 15:05:17\·C)%5    3KMDZ 191455Z AUTO 21015G23KT 10SM OVC008 09/08 A2979 RMK AO2 60004 T00870078KMDZ2018-10-19T14:55:00Z45.1-90.38.77.8210152310.029.790354TRUETRUEIFR0.04METAR448.02018-10-19 15:05:17?·B(y5    3KMGC 191455Z AUTO 21008KT 10SM CLR 09/00 A3013 RMK AO2KMGC2018-10-19T14:55:00Z41.7-86.829.00.0210810.030.129921TRUETRUEVFRMETAR200.02018-10-19 15:05:17 0XuF·I(5   3KY19 191455Z AUTO 33018G27KT 10SM CLR 09/02 A3009 RMK AO2KY192018-10-19T14:55:00Z46.77-100.99.02.0330182710.030.088583TRUETRUEVFRMETAR593.02018-10-19 15:05:17]·H))5   3KY23 191455Z AUTO 22010G16KT 180V240 10SM OVC019 12/09 A2976 RMK AO2 T01170086KY232018-10-19T14:55:00Z45.3-91.6311.78.6220101610.029.760826TRUETRUEMVFRMETAR322.02018-10-19 15:05:17R·G)5   3KLRJ 191455Z AUTO 23008G15KT 200V260 10SM SCT015 12/11 A2993 RMK AO2KLRJ2018-10-19T14:55:00Z42.77-96.212.011.023081510.029.929134TRUETRUEVFRMETAR365.02018-10-19 15:05:17J·F) 5    3KM21 191455Z AUTO 00000KT 10SM CLR 10/05 A3026 RMK AO2 T01040054KM212018-10-19T14:55:00Z37.22-87.1510.45.40010.030.259842TRUETRUEVFRMETAR129.02018-10-19 15:05:17 ;jY·M)'5     3KTNU 191455Z AUTO 21014KT 10SM FEW028 SCT048 BKN060 11/08 A3000 RMK AO2 PWINOKTNU2018-10-19T14:55:00Z41.67-93.0211.08.02101410.030.0TRUETRUETRUEVFRMETAR290.02018-10-19 15:05:17K·L) 5    3KTPF 191455Z AUTO 03005KT 10SM BKN022 BKN110 28/24 A3021 RMK AO2KTPF2018-10-19T14:55:00Z27.92-82.4528.024.030510.030.209646TRUETRUEMVFRMETAR3.02018-10-19 15:05:17K·K)5   3KUBE 191455Z AUTO 22012G18KT 10SM OVC020 11/07 A2974 RMK AO2KUBE2018-10-19T14:55:00Z45.5-91.9811.07.0220121810.029.740158TRUETRUEMVFRMETAR379.02018-10-19 15:05:17?·J(y5    3KUOX 191455Z AUTO 00000KT 10SM CLR 14/09 A3028 RMK AO2KUOX2018-10-19T14:55:00Z34.38-89.5314.09.00010.030.280512TRUETRUEVFRMETAR137.02018-10-19 15:05:17 <jA·Q(y5    3KKY8 191455Z AUTO 16004KT 10SM CLR 12/06 A3025 RMK A01KKY82018-10-19T14:55:00Z37.95-86.8712.06.0160410.030.250984TRUETRUEVFRMETAR126.02018-10-19 15:05:17B·P(y5    3KL08 191455Z AUTO 32003KT 10SM CLR 14/01 A3005 RMK AO2KL082018-10-19T14:55:00Z33.27-116.3214.01.0320310.030.050198TRUETRUEVFRMETAR159.02018-10-19 15:05:17L·O)5     3KTKX 191455Z AUTO 25005KT M1/4SM HZ VV000 14/07 A3026 RMK AO2KTKX2018-10-19T14:55:00Z36.22-90.0214.07.025050.2530.259842TRUETRUEHZLIFR0METAR80.02018-10-19 15:05:17>·N(y5    3KTME 191455Z AUTO 07007KT 10SM CLR 21/17 A3018 RMK AO2KTME2018-10-19T14:55:00Z29.8-95.921.017.070710.030.180119TRUETRUEVFRMETAR51.02018-10-19 15:05:17 (d`·U)-5    3KICL 191455Z AUTO 21008G15KT 2 1/2SM BR FEW010 BKN019 OVC028 12/11 A3007 RMK AO2KICL2018-10-19T14:55:00Z40.72-95.0212.011.02108152.530.070866TRUETRUEBRIFRMETAR303.02018-10-19 15:05:17R·T)5   3KIKV 191455Z AUTO 21012G17KT 10SM FEW028 OVC038 12/09 A3001 RMK AO2KIKV2018-10-19T14:55:00Z41.68-93.5712.09.0210121710.030.008858TRUETRUEVFRMETAR275.02018-10-19 15:05:17>·S(w5    3KJVW 191455Z AUTO 10003KT 9SM CLR 19/13 A3024 RMK AO2KJVW2018-10-19T14:55:00Z32.3-90.4219.013.010039.030.239174TRUETRUEVFRMETAR76.02018-10-19 15:05:17R·R)5     3KJZI 191455Z AUTO 03007KT 350V050 6SM HZ CLR 22/17 A3031 RMK AO2 PWINOKJZI2018-10-19T14:55:00Z32.7-80.022.017.03076.030.31004TRUETRUETRUEHZVFRMETAR6.02018-10-19 15:05:17 EfL·Y)5   3KHNR 191455Z AUTO 23014G22KT 10SM SCT016 13/11 A2999 RMK AO2KHNR2018-10-19T14:55:00Z41.58-95.3313.011.0230142210.029.991142TRUETRUEVFRMETAR375.02018-10-19 15:05:17Y·X)!5   3KHPT 191455Z AUTO 21015G21KT 10SM SCT030 BKN041 OVC050 11/09 A2993 RMK AO2KHPT2018-10-19T14:55:00Z42.58-93.2311.09.0210152110.029.929134TRUETRUEVFRMETAR358.02018-10-19 15:05:17R·W) 5    3KHZE 191455Z AUTO 31013G19KT 10SM CLR 10/02 A3014 RMK AO2 TSNOKHZE2018-10-19T14:55:00Z47.28-101.5810.02.0310131910.030.138779TRUETRUETRUEVFRMETAR553.02018-10-19 15:05:17]·V)'5   3KI75 191455Z AUTO 21011G16KT 10SM BKN021 OVC036 13/09 A3004 RMK AO2 T01320087KI752018-10-19T14:55:00Z41.05-93.6813.28.7210111610.030.041338TRUETRUEMVFRMETAR339.02018-10-19 15:05:17 =xP·])5    3KGNT 191455Z AUTO 31006KT 10SM OVC023 07/03 A3040 RMK AO2 T00660034KGNT2018-10-19T14:55:00Z35.17-107.96.63.4310610.030.398623TRUETRUEMVFRMETAR1987.02018-10-19 15:05:17?·\(y5    3KGPC 191455Z AUTO 00000KT 10SM CLR 10/02 A3024 RMK AO2KGPC2018-10-19T14:55:00Z39.63-86.8210.02.00010.030.239174TRUETRUEVFRMETAR257.02018-10-19 15:05:17?·[(w5  3KGWR 191455Z AUTO 32006G15KT 10SM 10/03 A2992 RMK A01KGWR2018-10-19T14:55:00Z46.22-97.6510.03.032061510.029.920275TRUETRUEMETAR386.02018-10-19 15:05:17=·Z(w5    3KHEG 191455Z AUTO 03009KT 8SM CLR 27/22 A3027 RMK AO2KHEG2018-10-19T14:55:00Z30.28-81.827.022.03098.030.268702TRUETRUEVFRMETAR27.02018-10-19 15:05:17 +SU·a)5   3KLNL 191455Z AUTO 22009G20KT 10SM OVC017 11/07 A2970 RMK AO2 T01120072KLNL2018-10-19T14:55:00Z46.15-89.2211.27.222092010.029.698818TRUETRUEMVFRMETAR520.02018-10-19 15:05:17I·`) 5    3KLQK 191455Z AUTO 00000KT 10SM CLR 16/09 A3035 RMK AO2 T01580086KLQK2018-10-19T14:55:00Z34.82-82.715.88.60010.030.351377TRUETRUEVFRMETAR309.02018-10-19 15:05:17R·_)5   3KGYL 191455Z AUTO 23012G16KT 10SM CLR 14/09 A2979 RMK AO2 T01370087KGYL2018-10-19T14:55:00Z44.77-94.0813.78.7230121610.029.790354TRUETRUEVFRMETAR302.02018-10-19 15:05:17O·^)5    3KGCD 191455Z AUTO 12005KT 10SM CLR 05/M01 A3037 RMK AO2 T00531012KGCD2018-10-19T14:55:00Z44.38-118.975.3-1.2120510.030.369095TRUETRUEVFRMETAR1127.02018-10-19 15:05:17 AgmJ·e) 5    3KX07 191455Z AUTO 00000KT 10SM BKN022 BKN029 29/23 A3023 RMK A01KX072018-10-19T14:55:00Z27.9-81.6229.023.00010.030.230314TRUETRUEMVFRMETAR39.02018-10-19 15:05:17t·d)K5    3KY51 191455Z AUTO 21012G17KT 5SM SCT017 BKN048 OVC070 09/09 A2990 RMK AO1 P0002 60009 T00870087KY512018-10-19T14:55:00Z43.58-90.98.78.721012175.029.899607TRUETRUEMVFR0.020.09METAR394.02018-10-19 15:05:17T·c)5   3KEGV 191455Z AUTO 23016G20KT 10SM OVC011 10/07 A2971 RMK AO2 T00990071KEGV2018-10-19T14:55:00Z45.93-89.279.97.1230162010.029.71063TRUETRUEMVFRMETAR500.02018-10-19 15:05:179·b(q5   3KLKR 191455Z AUTO 09004KT 10SM 15/08 A3036 RMK AO2KLKR2018-10-19T14:55:00Z34.72-80.8515.08.090410.030.360237TRUETRUEMETAR149.02018-10-19 15:05:17 7jK·i) 5    3KACB 191455Z AUTO 20005KT 10SM CLR 12/06 A2988 RMK AO2 T01210061KACB2018-10-19T14:55:00Z44.98-85.212.16.1200510.029.878937TRUETRUEVFRMETAR190.02018-10-19 15:05:17K·h)5   3KACQ 191455Z AUTO 22013G17KT 10SM OVC011 11/08 A2985 RMK AO2KACQ2018-10-19T14:55:00Z44.07-93.5511.08.0220131710.029.84941TRUETRUEMVFRMETAR343.02018-10-19 15:05:17G·g(5   3KADC 191455Z AUTO 31010G17KT 10SM CLR 10/03 A2977 RMK AO2KADC2018-10-19T14:55:00Z46.45-95.2210.03.0310101710.029.769686TRUETRUEVFRMETAR418.02018-10-19 15:05:17C·f)5    3KADM 191455Z 00000KT 10SM RA SCT005 SCT014 OVC024 13/13 A3027KADM2018-10-19T14:55:00Z34.28-97.0213.013.00010.030.268702RAMVFRMETAR232.02018-10-19 15:05:17 {8{7·m(u5   3MUHA 191455Z 10012KT 070V130 9000 SCT030 29/23 Q1020MUHA2018-10-19T14:55:00Z22.97-82.4229.023.0100125.5930.11811VFRMETAR64.02018-10-19 15:05:17F·l(5   3KAIT 191455Z AUTO 27009G16KT 10SM CLR 12/06 A2968 RMK AO2KAIT2018-10-19T14:55:00Z46.53-93.6712.06.027091610.029.681103TRUETRUEVFRMETAR367.02018-10-19 15:05:17·k)e5   3KANJ 191455Z AUTO 24010G26KT 10SM FEW090 BKN110 14/07 A2973 RMK AO2 PK WND 24027/1429 SLP067 T01390072 58021KANJ2018-10-19T14:55:00Z46.47-84.3713.97.2240102610.029.7312981006.7TRUETRUEVFR-2.1METAR218.02018-10-19 15:05:17k·j)35     3KAST 191455Z AUTO 09004KT 3/4SM BR VV003 09/09 A3026 RMK AO2 SLP248 T00940094 51004KAST2018-10-19T14:55:00Z46.15-123.889.49.49040.7530.2598421024.8TRUETRUEBRLIFR0.4300METAR3.02018-10-19 15:05:17 3bB·q(y5    3KPQN 191455Z AUTO 26013KT 10SM CLR 12/09 A2987 RMK AO2KPQN2018-10-19T14:55:00Z43.97-96.3212.09.02601310.029.870079TRUETRUEVFRMETAR529.02018-10-19 15:05:17Q·p)5   3KPZQ 191455Z AUTO 21010G16KT 10SM CLR 13/06 A2983 RMK AO2 T01280060KPZQ2018-10-19T14:55:00Z45.4-83.8212.86.0210101610.029.828741TRUETRUEVFRMETAR204.02018-10-19 15:05:17K·o) 5    3KONA 191455Z AUTO 21008KT 10SM SCT018 OVC036 11/08 A2987 RMK AO2KONA2018-10-19T14:55:00Z44.07-91.711.08.0210810.029.870079TRUETRUEVFRMETAR200.02018-10-19 15:05:17G·n(5   3KMVE 191455Z AUTO 33010G18KT 10SM CLR 13/06 A2983 RMK AO2KMVE2018-10-19T14:55:00Z44.97-95.7213.06.0330101810.029.828741TRUETRUEVFRMETAR315.02018-10-19 15:05:17 'VK·u) 5    3KHBI 191455Z AUTO 16003KT 10SM CLR 14/06 A3039 RMK AO2 T01350059KHBI2018-10-19T14:55:00Z35.65-79.913.55.9160310.030.389763TRUETRUEVFRSPECI205.02018-10-19 15:05:17F·t(5   3KPNM 191455Z AUTO 23011G19KT 10SM CLR 14/08 A2974 RMK AO2KPNM2018-10-19T14:55:00Z45.57-93.614.08.0230111910.029.740158TRUETRUEVFRMETAR298.02018-10-19 15:05:17K·s) 5    3KACP 191455Z AUTO 08003KT 10SM CLR 20/14 A3022 RMK AO2 T02010143KACP2018-10-19T14:55:00Z30.75-92.6820.114.380310.030.221457TRUETRUEVFRMETAR33.02018-10-19 15:05:17S·r)5   3KOIN 191455Z AUTO 30015G19KT 10SM CLR 11/05 A3016 RMK AO1 T01120051KOIN2018-10-19T14:55:00Z39.83-100.5311.25.1300151910.030.159449TRUETRUEVFRMETAR824.02018-10-19 15:05:17 5Za·y))5     3KRRL 191455Z AUTO 22010G19KT 7SM -DZ OVC008 09/09 A2981 RMK AO2 T00920091 TSNOKRRL2018-10-19T14:55:00Z45.2-89.729.29.122010197.029.811024TRUETRUETRUE-DZIFRMETAR401.02018-10-19 15:05:17S·x)5   3KPBH 191455Z AUTO 22012G21KT 10SM OVC011 10/09 A2973 RMK AO2 T00980087KPBH2018-10-19T14:55:00Z45.7-90.49.88.7220122110.029.731298TRUETRUEMVFRMETAR449.02018-10-19 15:05:17U·w)!5    3KPEA 191455Z AUTO 21009KT 10SM BKN043 BKN050 12/07 A3003 RMK AO2 T01220071KPEA2018-10-19T14:55:00Z41.4-92.9512.27.1210910.030.029528TRUETRUEVFRMETAR270.02018-10-19 15:05:17E·v(5    3KCLK 191455Z AUTO 19008KT 10SM OVC006 12/11 A3023 RMK AO2KCLK2018-10-19T14:55:00Z35.53-98.9312.011.0190810.030.230314TRUETRUEIFRSPECI492.02018-10-19 15:05:17 /je·})'5    3KLIC 191455Z AUTO 32015KT 10SM CLR 12/00 A3030 RMK AO2 SLP234 T01220000 53028KLIC2018-10-19T14:55:00Z39.27-103.6712.20.03201510.030.3011821023.4TRUETRUEVFR2.8METAR1630.02018-10-19 15:05:17c·|))5    3KLLJ 191455Z AUTO 00000KT 10SM CLR 02/M03 A3045 RMK AO2 SLP307 T00221033 53016KLLJ2018-10-19T14:55:00Z44.52-114.222.2-3.30010.030.4488181030.7TRUETRUEVFR1.6METAR1536.02018-10-19 15:05:17?·{(y5    3KSPA 191455Z AUTO 00000KT 10SM CLR 13/06 A3036 RMK AO2KSPA2018-10-19T14:55:00Z34.92-81.9313.06.00010.030.360237TRUETRUEVFRMETAR303.02018-10-19 15:05:17K·z)5    3KRID 191455Z AUTO 21008G15KT 5SM HZ CLR 10/01 A3025 RMK AO2KRID2018-10-19T14:55:00Z39.75-84.8510.01.02108155.030.250984TRUETRUEHZMVFRMETAR348.02018-10-19 15:05:17 /AqR¸)5   3KTVK 191455Z AUTO 18013G16KT 10SM BKN026 BKN032 12/07 A3007 RMK AO2KTVK2018-10-19T14:55:00Z40.68-92.912.07.0180131610.030.070866TRUETRUEMVFRMETAR314.02018-10-19 15:05:17J¸) 5    3KUXL 191455Z AUTO 08005KT 10SM CLR 24/17 A3019 RMK AO2 T02370166KUXL2018-10-19T14:55:00Z30.13-93.3823.716.680510.030.188976TRUETRUEVFRMETAR4.02018-10-19 15:05:17h·)-5   3KHON 191455Z AUTO 33018G24KT 10SM CLR 11/04 A2995 RMK AO2 SLP144 T01060039 53034KHON2018-10-19T14:55:00Z44.38-98.2310.63.9330182410.029.9498021014.4TRUETRUEVFR3.4METAR390.02018-10-19 15:05:17K·~) 5    3KDUH 191455Z AUTO 23005KT 10SM CLR 11/01 A3015 RMK AO2 T01050008KDUH2018-10-19T14:55:00Z41.73-83.6510.50.8230510.030.15059TRUETRUEVFRMETAR204.02018-10-19 15:05:17 /eO¸)5    3KTIP 191455Z AUTO 20008KT 10SM OVC100 11/04 A3018 RMK AO2 T01050036KTIP2018-10-19T14:55:00Z40.28-88.1510.53.6200810.030.180119TRUETRUEVFRMETAR225.02018-10-19 15:05:17F¸)5    3KTOC 191455Z AUTO 00000KT CLR 15/08 A3036 RMK AO2 T01540077 PWINOKTOC2018-10-19T14:55:00Z34.6-83.315.47.70030.360237TRUETRUETRUEMETAR304.02018-10-19 15:05:17D¸({5    3KTSP 191455Z AUTO 11004KT 10SM CLR 07/M08 A3025 RMK AO2KTSP2018-10-19T14:55:00Z35.13-118.437.0-8.0110410.030.250984TRUETRUEVFRMETAR1220.02018-10-19 15:05:17K¸) 5    3KTVI 191455Z AUTO 11004KT 10SM SCT049 OVC060 22/17 A3028 RMK AO2KTVI2018-10-19T14:55:00Z30.9-83.8822.017.0110410.030.280512TRUETRUEVFRMETAR80.02018-10-19 15:05:17 DvO¸ )5    3KSEF 191455Z AUTO 10005KT 10SM SCT021 29/23 A3020 RMK AO2 T02930225KSEF2018-10-19T14:55:00Z27.45-81.3529.322.5100510.030.200787TRUETRUEVFRMETAR19.02018-10-19 15:05:17H¸) 5    3KSFQ 191455Z AUTO 00000KT 10SM CLR 16/04 A3039 RMK AO2 T01550043KSFQ2018-10-19T14:55:00Z36.68-76.615.54.30010.030.389763TRUETRUEVFRMETAR22.02018-10-19 15:05:17G¸) 5    3KSHD 191455Z AUTO 00000KT 10SM CLR 09/04 A3033 RMK AO2 T00920044KSHD2018-10-19T14:55:00Z38.27-78.99.24.40010.030.33071TRUETRUEVFRMETAR366.02018-10-19 15:05:17i¸)15      3KSNL 191455Z AUTO 19004KT 5SM -RA OVC006 11/11 A3026 RMK AO2 P0017 60023 T01110106KSNL2018-10-19T14:55:00Z35.35-96.9511.110.619045.030.259842TRUETRUE-RAIFR0.170.23METAR327.02018-10-19 15:05:17 $C|I¸ ) 5    3KPSK 191455Z AUTO 00000KT 10SM CLR 10/08 A3035 RMK AO2 T00950075KPSK2018-10-19T14:55:00Z37.12-80.679.57.50010.030.351377TRUETRUEVFRMETAR642.02018-10-19 15:05:17A¸ (y5    3KSME 191455Z AUTO 21003KT 10SM CLR 11/07 A3030 RMK AO2KSME2018-10-19T14:55:00Z37.05-84.6211.07.0210310.030.301182TRUETRUEVFRMETAR283.02018-10-19 15:05:17[¸ )5    3KVBG 191455Z 12007KT 10SM CLR 11/08 A3007 RMK AO2A SLP183 T01060083 51004KVBG2018-10-19T14:55:00Z34.73-120.5810.68.3120710.030.0708661018.3TRUEVFR0.4METAR112.02018-10-19 15:05:17V¸ )5     3KRQO 191455Z AUTO 19009KT 10SM -RA OVC006 12/12 A3025 RMK AO2 T01220116KRQO2018-10-19T14:55:00Z35.47-98.012.211.6190910.030.250984TRUETRUE-RAIFRMETAR432.02018-10-19 15:05:17 :rU¸)5    3KEBS 191455Z AUTO 20011KT 10SM FEW018 SCT034 BKN043 12/11 A2993 RMK AO2KEBS2018-10-19T14:55:00Z42.42-93.8712.011.02001110.029.929134TRUETRUEVFRMETAR342.02018-10-19 15:05:17L¸) 5    3KFGX 191455Z AUTO 20005KT 10SM CLR 11/04 A3027 RMK AO2 T01080040KFGX2018-10-19T14:55:00Z38.55-83.7510.84.0200510.030.268702TRUETRUEVFRMETAR278.02018-10-19 15:05:17B¸(y5    3KHII 191455Z AUTO 34007KT 10SM CLR 20/01 A3009 RMK AO2KHII2018-10-19T14:55:00Z34.57-114.3720.01.0340710.030.088583TRUETRUEVFRMETAR238.02018-10-19 15:05:17@¸({5    3KPNA 191455Z AUTO 00000KT 10SM CLR 01/M05 A3045 RMK AO2KPNA2018-10-19T14:55:00Z42.8-109.81.0-5.00010.030.448818TRUETRUEVFRMETAR2160.02018-10-19 15:05:17 9_S¸)!5    3KAZE 191455Z AUTO 00000KT 10SM BKN050 BKN065 21/12 A3029 RMK AO2 T02050117KAZE2018-10-19T14:55:00Z31.88-82.6520.511.70010.030.28937TRUETRUEVFRMETAR78.02018-10-19 15:05:17K¸) 5    3KBMC 191455Z AUTO 00000KT 10SM CLR 03/00 A3043 RMK AO1 T00310001KBMC2018-10-19T14:55:00Z41.55-112.073.10.10010.030.431103TRUETRUEVFRMETAR1288.02018-10-19 15:05:17T¸)5     3KBWD 191455Z AUTO 00000KT 1 1/4SM SCT003 13/13 A3026 RMK AO2 PWINO PNOKBWD2018-10-19T14:55:00Z31.8-98.9513.013.0001.2530.259842TRUETRUETRUEIFRMETAR423.02018-10-19 15:05:17A¸(y5    3KDVK 191455Z AUTO 22007KT 10SM CLR 12/06 A3027 RMK AO2KDVK2018-10-19T14:55:00Z37.58-84.7712.06.0220710.030.268702TRUETRUEVFRMETAR312.02018-10-19 15:05:17 )a^¸)'5    3KEAT 191455Z AUTO 00000KT 10SM CLR 05/00 A3035 RMK AO2 SLP283 T00500000 53014KEAT2018-10-19T14:55:00Z47.4-120.25.00.00010.030.3513771028.3TRUETRUEVFR1.4METAR377.02018-10-19 15:05:17G¸(5   3KELO 191455Z AUTO 26011G17KT 10SM CLR 12/06 A2957 RMK AO2KELO2018-10-19T14:55:00Z47.82-91.8212.06.0260111710.029.568897TRUETRUEVFRMETAR443.02018-10-19 15:05:17B¸(5    3K3J7 191455Z AUTO 00000KT 10SM SCT039 18/10 A3032 RMK AO2K3J72018-10-19T14:55:00Z33.6-83.1318.010.00010.030.318897TRUETRUEVFRMETAR206.02018-10-19 15:05:17Q¸)5   3K3N8 191455Z AUTO 32013G19KT 10SM CLR 09/02 A2982 RMK AO2 T00860020K3N82018-10-19T14:55:00Z47.25-95.888.62.0320131910.029.819881TRUETRUEVFRMETAR383.02018-10-19 15:05:17 6bxO¸)5    3KEDN 191455Z AUTO 12007KT 10SM OVC012 22/20 A3027 RMK AO2 T02200195KEDN2018-10-19T14:55:00Z31.3-85.922.019.5120710.030.268702TRUETRUEMVFRMETAR110.02018-10-19 15:05:17d¸)+5     3KF46 191455Z AUTO 03003KT 10SM OVC023 14/14 A3025 RMK AO2 P0003 60008 T01430143KF462018-10-19T14:55:00Z32.93-96.4314.314.330310.030.250984TRUETRUEMVFR0.030.08METAR176.02018-10-19 15:05:17N¸)5     3K1S5 191455Z AUTO 00000KT 5SM BR CLR 00/00 A3035 RMK AO2 T00040000K1S52018-10-19T14:55:00Z46.33-119.970.40.0005.030.351377TRUETRUEBRMVFRMETAR234.02018-10-19 15:05:17D¸(5    3K74V 191455Z AUTO 00000KT 10SM OVC021 02/01 A3048 RMK AO2K74V2018-10-19T14:55:00Z40.28-110.052.01.00010.030.481298TRUETRUEMVFRMETAR1576.02018-10-19 15:05:17 -cuJ¸!) 5    3KDRI 191455Z AUTO 10004KT 7SM CLR 21/14 A3022 RMK AO2 T02120135KDRI2018-10-19T14:55:00Z30.83-93.3321.213.510047.030.221457TRUETRUEVFRMETAR63.02018-10-19 15:05:17h¸ )/5      3KDZB 191455Z AUTO 33003KT 3SM RA OVC002 15/14 A3023 RMK AO2 P0001 60007 T01460141KDZB2018-10-19T14:55:00Z30.53-98.3714.614.133033.030.230314TRUETRUERALIFR0.010.07METAR334.02018-10-19 15:05:17D¸({5    3KECS 191455Z AUTO 32009KT 10SM CLR 05/M01 A3027 RMK AO2KECS2018-10-19T14:55:00Z43.88-104.325.0-1.0320910.030.268702TRUETRUEVFRMETAR1273.02018-10-19 15:05:17M¸)5     3KECU 191455Z AUTO 02005KT 1/4SM FG OVC003 13/13 A3028 RMK AO2KECU2018-10-19T14:55:00Z29.95-100.1713.013.02050.2530.280512TRUETRUEFGLIFRMETAR725.02018-10-19 15:05:17 NiO¸%)5    3KSLO 191455Z AUTO 20006KT 10SM OVC100 11/04 A3024 RMK AO2 T01100043KSLO2018-10-19T14:55:00Z38.65-88.9711.04.3200610.030.239174TRUETRUEVFRMETAR175.02018-10-19 15:05:17_¸$)/5    3KSNK 191455Z AUTO 31003KT 10SM BKN003 BKN008 OVC042 11/11 A3028 RMK AO2 T01110111KSNK2018-10-19T14:55:00Z32.7-100.9511.111.1310310.030.280512TRUETRUELIFRMETAR741.02018-10-19 15:05:17K¸#) 5    3KSXU 191455Z AUTO 00000KT 10SM CLR 08/05 A3030 RMK AO2 T00750051KSXU2018-10-19T14:55:00Z34.93-104.657.55.10010.030.301182TRUETRUEVFRMETAR1460.02018-10-19 15:05:17[¸")'5   3KTKV 191455Z AUTO 21005G17KT 10SM BKN010 OVC014 09/08 A2977 RMK AO2 T00910080KTKV2018-10-19T14:55:00Z45.47-89.829.18.021051710.029.769686TRUETRUEMVFRMETAR453.02018-10-19 15:05:17 =j@¸)(y5    3KSAA 191455Z AUTO 00000KT 10SM CLR 00/00 A3045 RMK AO2KSAA2018-10-19T14:55:00Z41.45-106.830.00.00010.030.448818TRUETRUEVFRMETAR2138.02018-10-19 15:05:17M¸()5    3KSAR 191455Z AUTO 19006KT 10SM OVC075 10/05 A3025 RMK AO2 T00970051KSAR2018-10-19T14:55:00Z38.15-89.79.75.1190610.030.250984TRUETRUEVFRMETAR164.02018-10-19 15:05:17W¸')!5    3KSCD 191455Z AUTO 13006KT 10SM BKN016 OVC021 19/14 A3030 RMK AO2 T01940143KSCD2018-10-19T14:55:00Z33.17-86.319.414.3130610.030.301182TRUETRUEMVFRMETAR173.02018-10-19 15:05:17`¸&))5     3KSEP 191455Z AUTO 00000KT 3SM OVC005 14/13 A3028 RMK AO2 P0001 60003 T01350125KSEP2018-10-19T14:55:00Z32.22-98.1713.512.5003.030.280512TRUETRUEIFR0.010.03METAR402.02018-10-19 15:05:17 (T:¸-(o5    3KRKR 191455Z AUTO 10SM OVC028 11/10 A3027 RMK AO2KRKR2018-10-19T14:55:00Z35.02-94.6211.010.010.030.268702TRUETRUEMVFRMETAR138.02018-10-19 15:05:17J¸,) 5    3KRSN 191455Z AUTO 00000KT 10SM CLR 18/10 A3028 RMK AO2 T01820102KRSN2018-10-19T14:55:00Z32.52-92.5818.210.20010.030.280512TRUETRUEVFRMETAR95.02018-10-19 15:05:17N¸+)5    3KRSV 191455Z AUTO 19003KT 10SM OVC120 08/05 A3026 RMK AO2 T00770045KRSV2018-10-19T14:55:00Z39.02-87.657.74.5190310.030.259842TRUETRUEVFRMETAR141.02018-10-19 15:05:17R¸*)5   3KRZN 191455Z AUTO 23013G19KT 10SM CLR 13/07 A2972 RMK AO2 T01340070KRZN2018-10-19T14:55:00Z45.82-92.3713.47.0230131910.029.719488TRUETRUEVFRMETAR301.02018-10-19 15:05:17 ~ M~I¸1) 5    3KPTB 191455Z AUTO 00000KT 10SM CLR 15/07 A3037 RMK AO2 T01470072KPTB2018-10-19T14:55:00Z37.17-77.5214.77.20010.030.369095TRUETRUEVFRMETAR59.02018-10-19 15:05:17E¸0(5    3KPUJ 191455Z AUTO 13006KT 10SM OVC023 15/10 A3033 RMK AO2KPUJ2018-10-19T14:55:00Z33.92-84.9315.010.0130610.030.33071TRUETRUEMVFRMETAR393.02018-10-19 15:05:17o¸/)E5     3KPVB 191455Z AUTO 22012KT 7SM SCT043 SCT048 OVC065 08/08 A3001 RMK AO1 P0002 60002 T00840084KPVB2018-10-19T14:55:00Z42.68-90.438.48.4220127.030.008858TRUETRUEVFR0.020.02METAR313.02018-10-19 15:05:17m¸.)=5      3KPVJ 191455Z AUTO 00000KT 3SM RA BKN003 OVC008 12/12 A3025 RMK AO2 P0021 60035 T01160116KPVJ2018-10-19T14:55:00Z34.72-97.2211.611.6003.030.250984TRUETRUERALIFR0.210.35METAR295.02018-10-19 15:05:17 *KsZ¸5)%5     3KPCD 191455Z AUTO 12003KT 4SM HZ SCT070 OVC080 10/06 A3025 RMK AO2 T01000057KPCD2018-10-19T14:55:00Z37.87-89.8710.05.712034.030.250984TRUETRUEHZMVFRMETAR113.02018-10-19 15:05:17R¸4)5     3KPEZ 191455Z AUTO 02003KT 4SM BR OVC005 17/16 A3018 RMK AO2 T01680161KPEZ2018-10-19T14:55:00Z28.95-98.5216.816.12034.030.180119TRUETRUEBRIFRMETAR132.02018-10-19 15:05:17Y¸3)5     3KPIM 191455Z AUTO 00000KT 10SM OVC019 17/14 A3032 RMK AO2 T01670136 PWINOKPIM2018-10-19T14:55:00Z32.83-84.8816.713.60010.030.318897TRUETRUETRUEMVFRMETAR275.02018-10-19 15:05:17P¸2)5    3KPRS 191455Z AUTO 00000KT 10SM OVC018 15/11 A3027 RMK AO2 T01470110KPRS2018-10-19T14:55:00Z29.63-104.3514.711.00010.030.268702TRUETRUEMVFRMETAR896.02018-10-19 15:05:17 QxF¸9(5    3KOJA 191455Z AUTO 21006KT 10SM OVC004 12/12 A3022 RMK AO2KOJA2018-10-19T14:55:00Z35.55-98.6712.012.0210610.030.221457TRUETRUELIFRMETAR490.02018-10-19 15:05:17S¸8)5     3KOOA 191455Z AUTO 21008KT 10SM RA OVC046 11/08 A3005 RMK AO2 T01050075KOOA2018-10-19T14:55:00Z41.23-92.510.57.5210810.030.050198TRUETRUERAVFRMETAR256.02018-10-19 15:05:17A¸7(y5    3KOQN 191455Z AUTO 24010KT 10SM CLR 12/01 A3031 RMK AO2KOQN2018-10-19T14:55:00Z39.98-75.5812.01.02401010.030.31004TRUETRUEVFRMETAR142.02018-10-19 15:05:17b¸6)-5     3KOWP 191455Z AUTO 17004KT 10SM BKN022 OVC026 13/12 A3026 RMK AO2 60007 T01300123KOWP2018-10-19T14:55:00Z36.18-96.1513.012.3170410.030.259842TRUETRUEMVFR0.07METAR272.02018-10-19 15:05:17 *cO¸=)5    3KMQB 191455Z AUTO 20007KT 10SM OVC060 11/04 A3014 RMK AO2 T01070041KMQB2018-10-19T14:55:00Z40.52-90.6510.74.1200710.030.138779TRUETRUEVFRMETAR215.02018-10-19 15:05:17E¸<(5   3KN03 191455Z AUTO 21011G15KT 10SM CLR 08/02 A3013 RMK AO2KN032018-10-19T14:55:00Z42.6-76.228.02.0210111510.030.129921TRUETRUEVFRMETAR366.02018-10-19 15:05:17A¸;({5    3KO54 191455Z AUTO 00000KT 10SM CLR 02/M01 A3027 RMK AO1KO542018-10-19T14:55:00Z40.75-122.922.0-1.00010.030.268702TRUETRUEVFRMETAR717.02018-10-19 15:05:17P¸:)5    3KOBE 191455Z AUTO 08005KT SCT022 BKN029 BKN034 28/22 A3019 RMK AO2 PWINOKOBE2018-10-19T14:55:00Z27.27-80.8528.022.080530.188976TRUETRUETRUEMETAR11.02018-10-19 15:05:17 &\v¸A)M5      3KLZZ 191455Z AUTO 35004KT 3SM +DZ SCT002 SCT009 OVC014 14/13 A3023 RMK AO2 P0006 60006 T01350132KLZZ2018-10-19T14:55:00Z31.1-98.213.513.235043.030.230314TRUETRUE+DZMVFR0.060.06METAR371.02018-10-19 15:05:17I¸@) 5    3KMFV 191455Z AUTO 00000KT 10SM CLR 16/06 A3037 RMK AO2 T01630058KMFV2018-10-19T14:55:00Z37.63-75.7716.35.80010.030.369095TRUETRUEVFRMETAR15.02018-10-19 15:05:17D¸?)5     3KMKN 191455Z 2 1/2SM -DZ OVC003 13/13 A3026 RMK AO2 T01290129KMKN2018-10-19T14:55:00Z31.92-98.612.912.92.530.259842TRUE-DZLIFRMETAR423.02018-10-19 15:05:17T¸>)5     3KMNZ 191455Z AUTO 00000KT 2SM -DZ OVC003 14/14 A3025 RMK AO2 T01380138KMNZ2018-10-19T14:55:00Z31.67-98.1513.813.8002.030.250984TRUETRUE-DZLIFRMETAR396.02018-10-19 15:05:17 :i?¸E(y5    3KCZL 191455Z AUTO 00000KT 10SM CLR 16/08 A3035 RMK AO2KCZL2018-10-19T14:55:00Z34.47-84.9316.08.00010.030.351377TRUETRUEVFRMETAR195.02018-10-19 15:05:17V¸D)5   3KD25 191455Z AUTO 23015G21KT 10SM OVC015 10/09 A2970 RMK AO2 T01020085KD252018-10-19T14:55:00Z46.12-89.8810.28.5230152110.029.698818TRUETRUEMVFRMETAR491.02018-10-19 15:05:17K¸C) 5    3KDLO 191455Z AUTO 12003KT 10SM CLR 07/01 A3014 RMK AO2 T00650011KDLO2018-10-19T14:55:00Z35.75-119.236.51.1120310.030.138779TRUETRUEVFRMETAR96.02018-10-19 15:05:17@¸B(y5    3KDNN 191455Z AUTO 00000KT 10SM CLR 15/12 A3035 RMK AO2KDNN2018-10-19T14:55:00Z34.72-84.8715.012.00010.030.351377TRUETRUEVFRMETAR216.02018-10-19 15:05:17 {.>p{o¸I)A5      3KCMY 191455Z AUTO 00000KT 10SM -RA BKN018 OVC046 09/08 A2990 RMK AO2 P0002 60002 T00910080KCMY2018-10-19T14:55:00Z43.97-90.739.18.00010.029.899607TRUETRUE-RAMVFR0.020.02METAR256.02018-10-19 15:05:17H¸H) 5    3KCPK 191455Z AUTO 00000KT 10SM CLR 15/02 A3038 RMK AO2 T01450024KCPK2018-10-19T14:55:00Z36.67-76.3214.52.40010.030.380905TRUETRUEVFRMETAR6.02018-10-19 15:05:17j¸G)15      3KCWC 191455Z AUTO 10008KT 10SM RA OVC003 13/12 A3028 RMK AO2 P0006 60015 T01250122KCWC2018-10-19T14:55:00Z33.85-98.4812.512.2100810.030.280512TRUETRUERALIFR0.060.15METAR305.02018-10-19 15:05:17L¸F)5    3KCWV 191455Z AUTO 01004KT 10SM OVC050 19/13 A3031 RMK AO2 T01920133KCWV2018-10-19T14:55:00Z32.2-81.8719.213.310410.030.31004TRUETRUEVFRMETAR33.02018-10-19 15:05:17 *SL¸M) 5    3KCDA 191455Z AUTO 16006KT 10SM CLR 06/00 A3004 RMK AO2 T00611002KCDA2018-10-19T14:55:00Z44.57-72.026.1-0.2160610.030.041338TRUETRUEVFRMETAR363.02018-10-19 15:05:17N¸L)5    3KCKF 191455Z AUTO 06003KT 10SM OVC050 20/12 A3032 RMK AO2 T01960122KCKF2018-10-19T14:55:00Z31.98-83.7719.612.260310.030.318897TRUETRUEVFRMETAR91.02018-10-19 15:05:17Q¸K)5    3KCKP 191455Z AUTO 23009KT 10SM OVC015 12/11 A2993 RMK AO2 T01170110KCKP2018-10-19T14:55:00Z42.73-95.5511.711.0230910.029.929134TRUETRUEMVFRMETAR374.02018-10-19 15:05:17P¸J)5    3KCMD 191455Z AUTO 16005KT 10SM OVC011 17/12 A3031 RMK AO2 T01720115KCMD2018-10-19T14:55:00Z34.27-86.8517.211.5160510.030.31004TRUETRUEMVFRMETAR294.02018-10-19 15:05:17 @yH¸Q(5   3KBPC 191455Z AUTO 26012G16KT 10SM CLR 12/09 A3022 RMK AO2KBPC2018-10-19T14:55:00Z35.88-101.0312.09.0260121610.030.221457TRUETRUEVFRMETAR845.02018-10-19 15:05:17A¸P(5    3KBQK 191455Z AUTO 05006KT 10SM SCT013 23/18 A3029 RMK AO2KBQK2018-10-19T14:55:00Z31.25-81.4723.018.050610.030.28937TRUETRUEVFRMETAR8.02018-10-19 15:05:17K¸O) 5    3KBXA 191455Z AUTO 08003KT 10SM CLR 22/14 A3024 RMK AO2 T02200141KBXA2018-10-19T14:55:00Z30.82-89.8722.014.180310.030.239174TRUETRUEVFRMETAR36.02018-10-19 15:05:17i¸N)95     3KC29 191455Z AUTO 22010KT 10SM BKN075 OVC090 09/07 A2998 RMK AO1 P0002 60003 T00910067KC292018-10-19T14:55:00Z43.12-89.539.16.72201010.029.97933TRUETRUEVFR0.020.03METAR283.02018-10-19 15:05:17 #_rK¸U) 5    3KAXH 191455Z AUTO 08006KT 10SM CLR 21/18 A3017 RMK AO2 T02070175KAXH2018-10-19T14:55:00Z29.52-95.4820.717.580610.030.171259TRUETRUEVFRMETAR21.02018-10-19 15:05:17g¸T)/5      3KAXS 191455Z AUTO 22005KT 7SM DZ OVC003 13/13 A3026 RMK AO2 P0001 60002 T01330125KAXS2018-10-19T14:55:00Z34.7-99.3313.312.522057.030.259842TRUETRUEDZLIFR0.010.02METAR437.02018-10-19 15:05:17>¸S(y5    3KBBP 191455Z AUTO 00000KT 10SM CLR 17/08 A3037 RMK AO2KBBP2018-10-19T14:55:00Z34.62-79.7317.08.00010.030.369095TRUETRUEVFRMETAR45.02018-10-19 15:05:17W¸R)5     3KBEA 191455Z AUTO 06004KT 7SM OVC003 20/19 A3013 RMK AO2 60001 T01960193KBEA2018-10-19T14:55:00Z28.37-97.7819.619.36047.030.129921TRUETRUELIFR0.01METAR82.02018-10-19 15:05:17 :dD¸Y(5    3K6A2 191455Z AUTO 07003KT 10SM OVC019 13/09 A3034 RMK AO2K6A22018-10-19T14:55:00Z33.23-84.2713.09.070310.030.339567TRUETRUEMVFRMETAR292.02018-10-19 15:05:17N¸X)5     3KARW 191455Z AUTO 04009KT 5SM HZ SCT039 SCT060 20/16 A3030 RMK AO2KARW2018-10-19T14:55:00Z32.42-80.6320.016.04095.030.301182TRUETRUEHZMVFRMETAR4.02018-10-19 15:05:17P¸W)5    3KASN 191455Z AUTO 10003KT 10SM BKN021 18/12 A3031 RMK AO2 T01840123KASN2018-10-19T14:55:00Z33.57-86.0518.412.3100310.030.31004TRUETRUEMVFRMETAR162.02018-10-19 15:05:17@¸V(y5    3KASW 191455Z AUTO 23005KT 10SM CLR 09/01 A3017 RMK AO2KASW2018-10-19T14:55:00Z41.27-85.839.01.0230510.030.171259TRUETRUEVFRMETAR259.02018-10-19 15:05:17 1l@¸](y5    3K4A9 191455Z AUTO 14003KT 10SM CLR 15/07 A3031 RMK AO2K4A92018-10-19T14:55:00Z34.47-85.7215.07.0140310.030.31004TRUETRUEVFRMETAR267.02018-10-19 15:05:17R¸\)5    3K4O4 191455Z AUTO 00000KT 1 3/4SM OVC026 13/07 A3026 RMK AO2 VIS 1 1/4V5K4O42018-10-19T14:55:00Z33.92-94.8713.07.0001.7530.259842TRUETRUEIFRMETAR144.02018-10-19 15:05:17?¸[(y5    3K4S2 191455Z AUTO 00000KT 10SM CLR 02/01 A3035 RMK AO2K4S22018-10-19T14:55:00Z45.68-121.552.01.00010.030.351377TRUETRUEVFRMETAR192.02018-10-19 15:05:17I¸Z) 5    3K4V0 191455Z AUTO 00000KT 10SM CLR 01/00 A3046 RMK AO2 T00080002K4V02018-10-19T14:55:00Z40.1-108.770.80.20010.030.46063TRUETRUEVFRMETAR1608.02018-10-19 15:05:17 ,QZ@¸a(y5    3K22N 191455Z AUTO 22005KT 10SM CLR 11/00 A3027 RMK AO2K22N2018-10-19T14:55:00Z40.8-75.7711.00.0220510.030.268702TRUETRUEVFRMETAR163.02018-10-19 15:05:17q¸`)M5    3K3D2 191455Z AUTO 22008G17KT 200V270 10SM -RA SCT060 SCT070 OVC090 11/05 A2981 RMK AO2 T01110053K3D22018-10-19T14:55:00Z45.13-87.1811.15.322081710.029.811024TRUETRUE-RAVFRMETAR234.02018-10-19 15:05:17U¸_)!5    3K3LF 191455Z AUTO 19009KT 10SM BKN070 OVC080 10/03 A3022 RMK AO2 T00950031K3LF2018-10-19T14:55:00Z39.17-89.679.53.1190910.030.221457TRUETRUEVFRMETAR210.02018-10-19 15:05:17N¸^)5    3K3T5 191455Z AUTO 03004KT 10SM BKN015 19/17 A3016 RMK AO2 T01850171K3T52018-10-19T14:55:00Z29.9-96.9518.517.130410.030.159449TRUETRUEMVFRMETAR99.02018-10-19 15:05:17 +1m>¸e)5    3EHVL 191455Z AUTO 10006KT 070V130 9999 NCD 13/05 Q1025 BLUEHVL2018-10-19T14:55:00Z53.234.9213.05.010066.2130.265747TRUEVFRMETAR5.02018-10-19 15:05:17>¸d)5    3EHWO 191455Z AUTO 02004KT 310V070 9999 NCD 16/09 Q1024 BLUEHWO2018-10-19T14:55:00Z51.454.3216.09.02046.2130.236221TRUEVFRMETAR17.02018-10-19 15:05:17t¸c)M5      3K0F2 191455Z AUTO 00000KT 7SM -RA SCT003 BKN009 OVC013 13/13 A3026 RMK AO2 P0003 60014 T01300126K0F22018-10-19T14:55:00Z33.6-97.7813.012.6007.030.259842TRUETRUE-RAIFR0.030.14METAR336.02018-10-19 15:05:17O¸b)5    3K1A9 191455Z AUTO 08006KT 10SM OVC019 20/15 A3027 RMK AO2 T02000152K1A92018-10-19T14:55:00Z32.43-86.5220.015.280610.030.268702TRUETRUEMVFRMETAR69.02018-10-19 15:05:17 =B¸i)5    3EHGR 191455Z AUTO 36005KT 320V040 9999 OVC042 16/09 Q1024 BLUEHGR2018-10-19T14:55:00Z51.574.9216.09.036056.2130.236221TRUEVFRMETAR13.02018-10-19 15:05:17L¸h)5    3EHKD 191455Z AUTO 06004KT 040V110 9999 NCD 12/06 Q1025 BLU 09007KT CAVOKEHKD2018-10-19T14:55:00Z52.924.7712.06.06046.2130.265747TRUEVFRMETAR14.02018-10-19 15:05:176¸g(w5    3EHLW 191455Z AUTO VRB02KT 9999 BKN280 13/05 Q1025 BLUEHLW2018-10-19T14:55:00Z53.225.7513.05.0026.2130.265747TRUEVFRMETAR2.02018-10-19 15:05:17=¸f)5    3EHVK 191455Z AUTO 02004KT 340V060 9999 NCD 16/08 Q1024 BLUEHVK2018-10-19T14:55:00Z51.635.716.08.02046.2130.236221TRUEVFRMETAR21.02018-10-19 15:05:17 YC¸m)5     3EHGG 191455Z AUTO 02003KT 330V090 9999 NSC 13/05 Q1025 NOSIGEHGG2018-10-19T14:55:00Z53.126.5713.05.02036.2130.265747TRUETRUEVFRMETAR4.02018-10-19 15:05:17H¸l) 5     3EHRD 191455Z AUTO 03005KT 340V070 9999 OVC030 15/08 Q1025 NOSIGEHRD2018-10-19T14:55:00Z51.954.4515.08.03056.2130.265747TRUETRUEMVFRMETAR-5.02018-10-19 15:05:17>¸k)5    3EHDL 191455Z AUTO 04005KT 350V090 9999 NCD 15/08 Q1024 BLUEHDL2018-10-19T14:55:00Z52.075.8715.08.04056.2130.236221TRUEVFRMETAR52.02018-10-19 15:05:17]¸j)=5    3EHEH 191455Z AUTO 35004KT 320V040 9999 BKN041 BKN045 16/08 Q1024 BLU 01007KT 9999 FEW035EHEH2018-10-19T14:55:00Z51.455.3816.08.035046.2130.236221TRUEVFRMETAR22.02018-10-19 15:05:17 *gN¸q) 5    3KY70 191455Z AUTO 21011KT 10SM CLR 10/00 A3005 RMK AO2 T01001001KY702018-10-19T14:55:00Z42.93-85.0710.0-0.12101110.030.050198TRUETRUEVFRMETAR250.02018-10-19 15:05:17R¸p)5    3NZCM 191455Z 34011KT 9999 -SN OVC045 M15/M19 A2909 RMK SNB15 SLP855NZCM2018-10-19T14:55:00Z-77.85166.67-15.0-19.0340116.2129.090551985.5-SNVFRMETAR8.02018-10-19 15:05:17=¸o)5    3EHAM 191455Z 02004KT 330V080 9999 FEW030 13/07 Q1025 NOSIGEHAM2018-10-19T14:55:00Z52.324.7813.07.02046.2130.265747TRUEVFRMETAR9.02018-10-19 15:05:17P¸n)5     3EHBK 191455Z AUTO 02006KT 330V060 9999 BKN028 OVC032 17/09 Q1023 NOSIGEHBK2018-10-19T14:55:00Z50.925.7717.09.02066.2130.206694TRUETRUEMVFRMETAR116.02018-10-19 15:05:17 6jP¸u)5   3KTWM 191455Z AUTO 24014G18KT 211V281 10SM CLR 13/07 A2960 RMK AO2KTWM2018-10-19T14:55:00Z47.03-91.7513.07.0240141810.029.601377TRUETRUEVFRMETAR328.02018-10-19 15:05:17^¸t)#5    3KUGN 191455Z 22014KT 10SM BKN120 10/01 A3005 RMK AO2 SLP176 T01000011 58019KUGN2018-10-19T14:55:00Z42.42-87.8710.01.12201410.030.0501981017.6TRUEVFR-1.9METAR222.02018-10-19 15:05:17F¸s(5   3KULM 191455Z AUTO 25015G20KT 10SM CLR 14/09 A2981 RMK AO2KULM2018-10-19T14:55:00Z44.32-94.514.09.0250152010.029.811024TRUETRUEVFRMETAR308.02018-10-19 15:05:17D¸r(5    3KVWU 191455Z AUTO 30010KT 10SM SCT085 08/03 A2972 RMK AO2KVWU2018-10-19T14:55:00Z48.15-94.528.03.03001010.029.719488TRUETRUEVFRMETAR360.02018-10-19 15:05:17 /Xn¸y)C5    3PATC 191455Z 03016KT 10SM FEW002 BKN023 BKN047 00/M01 A2967 RMK AO2A SLP051 T10051006 57016PATC2018-10-19T14:55:00Z65.57-167.92-0.5-0.6301610.029.669291005.1TRUEMVFR-1.6METAR83.02018-10-19 15:05:17N¸x)5    3PATL 191455Z VRB01KT 10SM CLR 01/00 A2948 RMK AO2A SLP991 WR// 5////PATL2018-10-19T14:55:00Z62.9-155.971.00.00110.029.480314999.1TRUEVFRMETAR294.02018-10-19 15:05:17Q¸w) 5    3RKSO 191455Z 10004KT 7SM CLR 07/06 A3029 RMK AO2A SLP260 50005 $RKSO2018-10-19T14:55:00Z37.07127.027.06.010047.030.289371026.0TRUETRUEVFR0.5METAR12.02018-10-19 15:05:17K¸v)5   3KTOB 191455Z AUTO 21014G20KT 10SM OVC010 10/08 A2985 RMK AO2KTOB2018-10-19T14:55:00Z44.02-92.8210.08.0210142010.029.84941TRUETRUEMVFRMETAR398.02018-10-19 15:05:17 8[R¸})%5    3KMAF 191455Z 00000KT 10SM BKN006 BKN024 OVC029 12/11 A3029 RMK AO2 T01170106KMAF2018-10-19T14:55:00Z31.95-102.211.710.60010.030.28937TRUEIFRMETAR874.02018-10-19 15:05:17W¸|)5    3KNFG 191455Z 00000KT 10SM CLR 11/07 A3001 RMK AO2 SLP160 T01110072 53008KNFG2018-10-19T14:55:00Z33.28-117.3311.17.20010.030.0088581016.0TRUEVFR0.8METAR24.02018-10-19 15:05:17X¸{)!5    3PALU 191455Z 10007KT 10SM BKN016 M01/M02 A2983 RMK AO2A RCRNR SLP100 5////PALU2018-10-19T14:55:00Z68.88-166.1-1.0-2.0100710.029.8287411010.0TRUEMVFRMETAR3.02018-10-19 15:05:17d¸z)/5    3PASV 191455Z AUTO VRB02KT 10SM BKN240 02/M04 A2929 RMK AO2 SLP928 T00221039 57050PASV2018-10-19T14:55:00Z61.1-155.572.2-3.90210.029.291338992.8TRUETRUEVFR-5.0METAR484.02018-10-19 15:05:17 "8w"G¹)5    3EBCV 191455Z AUTO 02005KT 9000 FEW025/// SCT230/// 16/10 Q1024 BLUEBCV2018-10-19T14:55:00Z50.573.8216.010.02055.5930.236221TRUEVFRMETAR63.02018-10-19 15:05:17G¹)5    3EBDT 191455Z AUTO 01006KT 9999 FEW031/// OVC036/// 16/10 Q1024 BLUEBDT2018-10-19T14:55:00Z51.025.0716.010.01066.2130.236221TRUEVFRMETAR54.02018-10-19 15:05:175¹(q5    3EBFN 191455Z AUTO 02010KT 9999 NCD 14/08 Q1025 BLUEBFN2018-10-19T14:55:00Z51.072.6314.08.020106.2130.265747TRUEVFRMETAR9.02018-10-19 15:05:17;¸(}5    3EBLB 191455Z AUTO VRB03KT 9999 FEW028/// 14/08 Q1023 BLUEBLB2018-10-19T14:55:00Z50.476.1714.08.0036.2130.206694TRUEVFRMETAR570.02018-10-19 15:05:17B¸~(y5    3KLYV 191455Z AUTO 25012KT 10SM CLR 12/08 A2989 RMK AO2KLYV2018-10-19T14:55:00Z43.62-96.2212.08.02501210.029.890747TRUETRUEVFRMETAR436.02018-10-19 15:05:17 $@x$.¹(c5   3KCNW 191455Z 01004KT 7SM OVC019 15/15 A3022KCNW2018-10-19T14:55:00Z31.63-97.0715.015.01047.030.221457MVFRMETAR156.02018-10-19 15:05:17A¹(y5    3KOWX 191455Z AUTO 23012KT 10SM CLR 09/02 A3022 RMK AO1KOWX2018-10-19T14:55:00Z41.03-83.989.02.02301210.030.221457TRUETRUEVFRMETAR233.02018-10-19 15:05:17S¹)+5    3EHFS 191455Z AUTO 03007KT 360V070 9999 SCT024/// BKN027/// 15/09 Q1024 W///H///EHFS2018-10-19T14:55:00Z51.453.615.09.03076.2130.236221TRUEMVFRMETAR32.02018-10-19 15:05:17B¹) 5   3EBBE 191455Z 34005KT 9999 FEW024 BKN250 15/09 Q1024 BLACKBLU BLUEBBE2018-10-19T14:55:00Z50.754.7715.09.034056.2130.236221VFRMETAR127.02018-10-19 15:05:17:¹)5   3EBBL 191455Z VRB02KT 9999 FEW032 BKN042 16/08 Q1024 BLU BLUEBBL2018-10-19T14:55:00Z51.175.4716.08.0026.2130.236221VFRMETAR64.02018-10-19 15:05:17 (;kA¹ (y5    3KRCR 191455Z AUTO 21006KT 10SM CLR 10/02 A3017 RMK AO2KRCR2018-10-19T14:55:00Z41.07-86.1810.02.0210610.030.171259TRUETRUEVFRMETAR241.02018-10-19 15:05:17J¹ ) 5    3KREG 191455Z AUTO 07004KT 10SM CLR 23/17 A3020 RMK AO2 T02300168KREG2018-10-19T14:55:00Z30.17-90.9323.016.870410.030.200787TRUETRUEVFRMETAR4.02018-10-19 15:05:17g¹ )55    3KNBG 191455Z 08009KT 10SM FEW150 BKN250 24/20 A3021 RMK AO2 SLP229 T02390206 53014 $KNBG2018-10-19T14:55:00Z29.82-90.0223.920.680910.030.2096461022.9TRUETRUEVFR1.4METAR1.02018-10-19 15:05:17R¹)5    3KNKX 191455Z 03003KT 9SM CLR 19/04 A3000 RMK AO2 SLP154 T01940039 53009KNKX2018-10-19T14:55:00Z32.87-117.1319.43.93039.030.01015.4TRUEVFR0.9METAR146.02018-10-19 15:05:17 'PyT¹)5   3KPNT 191455Z AUTO 21012G17KT 10SM OVC110 11/03 A3015 RMK AO2 T01130029KPNT2018-10-19T14:55:00Z40.92-88.6211.32.9210121710.030.15059TRUETRUEVFRMETAR201.02018-10-19 15:05:17Q¹)5   3KPPO 191455Z AUTO 21011G15KT 10SM CLR 09/01 A3014 RMK AO2 T00900012KPPO2018-10-19T14:55:00Z41.57-86.739.01.2210111510.030.138779TRUETRUEVFRMETAR248.02018-10-19 15:05:17Q¹ )5    3KPTT 191455Z AUTO 23012KT 10SM OVC011 13/10 A3016 RMK AO2 T01330103KPTT2018-10-19T14:55:00Z37.7-98.7513.310.32301210.030.159449TRUETRUEMVFRMETAR595.02018-10-19 15:05:17S¹ )5     3KRBO 191455Z AUTO 33007KT 2SM BR OVC002 19/19 A3012 RMK AO2 T01900185KRBO2018-10-19T14:55:00Z27.78-97.6819.018.533072.030.121063TRUETRUEBRLIFRMETAR24.02018-10-19 15:05:17Y8J8@HPX`hpx (08@HPX`hpx (08@HPX`hpx·}¸¸¸ ¸ ¸¸¸¸¸!¸%¸)·}¸¸¸ ¸ ¸¸¸¸¸!¸%¸)¸-¸1¸5¸9¸=¸A¸E¸I¸M¸Q¸U¸Y¸] ¸a ¸e ¸i ¸m ¸q¸u¸y¸}¹¹¹ ¹¹¹¹¹¹#¹'¹+¹/¹3¹7 ¹;!¹?"¹C#¹G$¹K%¹O&¹S'¹W(¹[)¹_*¹c+¹g,¹k-¹p.¹u/¹y0¹}1º2º3º 4º 5º6º7º8º9º":º&;º*<º.=º2>º6?º:@º>AºBBºFCºJDºNEºRFºVGºZHº^Iºb &=xI¹) 5    3KORG 191455Z AUTO 09007KT 10SM CLR 23/18 A3020 RMK AO2 T02300181KORG2018-10-19T14:55:00Z30.07-93.823.018.190710.030.200787TRUETRUEVFRMETAR4.02018-10-19 15:05:17?¹(y5    3KOYM 191455Z AUTO 23005KT 10SM CLR 07/00 A3025 RMK AO2KOYM2018-10-19T14:55:00Z41.42-78.57.00.0230510.030.250984TRUETRUEVFRMETAR590.02018-10-19 15:05:17c¹)-5      3KOZA 191455Z AUTO 36005KT 10SM DZ SCT005 SCT010 OVC019 12/11 A3029 RMK AO2 P0001KOZA2018-10-19T14:55:00Z30.73-101.212.011.0360510.030.28937TRUETRUEDZMVFR0.01METAR726.02018-10-19 15:05:17T¹)!5    3KPEQ 191455Z AUTO 00000KT 10SM BKN008 OVC028 10/09 A3031 RMK AO2 T01040086KPEQ2018-10-19T14:55:00Z31.38-103.5210.48.60010.030.31004TRUETRUEIFRMETAR797.02018-10-19 15:05:17 1aQ¹)5   3KMZZ 191455Z AUTO 22013G17KT 10SM CLR 09/04 A3020 RMK AO2 T00930039KMZZ2018-10-19T14:55:00Z40.48-85.689.33.9220131710.030.200787TRUETRUEVFRMETAR262.02018-10-19 15:05:17@¹(y5    3KOMH 191455Z AUTO 19004KT 10SM CLR 11/06 A3033 RMK AO2KOMH2018-10-19T14:55:00Z38.25-78.0511.06.0190410.030.33071TRUETRUEVFRMETAR142.02018-10-19 15:05:17J¹) 5    3KOPL 191455Z AUTO 08004KT 10SM CLR 22/15 A3021 RMK AO2 T02220145KOPL2018-10-19T14:55:00Z30.55-92.122.214.580410.030.209646TRUETRUEVFRMETAR23.02018-10-19 15:05:17I¹)5     3KOPN 191455Z AUTO 08003KT 4SM RA OVC011 13/10 A3035 RMK AO2KOPN2018-10-19T14:55:00Z32.95-84.2713.010.08034.030.351377TRUETRUERAMVFRMETAR243.02018-10-19 15:05:17 2]@¹(y5    3KLOM 191455Z AUTO 24005KT 10SM CLR 12/01 A3032 RMK AO1KLOM2018-10-19T14:55:00Z40.13-75.2712.01.0240510.030.318897TRUETRUEVFRMETAR92.02018-10-19 15:05:17M¹)5    3KLOT 191455Z AUTO 22014KT 10SM BKN110 10/02 A3010 RMK AO2 T00950022KLOT2018-10-19T14:55:00Z41.6-88.19.52.22201410.030.100393TRUETRUEVFRMETAR205.02018-10-19 15:05:17O¹)5    3KLVN 191455Z AUTO 23009KT 113V263 10SM OVC018 14/11 A2979 RMK AO2KLVN2018-10-19T14:55:00Z44.63-93.2314.011.0230910.029.790354TRUETRUEMVFRMETAR293.02018-10-19 15:05:17H¹) 5    3KLWB 191455Z AUTO 00000KT 10SM CLR 07/03 A3032 RMK AO2 T00690032KLWB2018-10-19T14:55:00Z37.87-80.46.93.20010.030.318897TRUETRUEVFRMETAR702.02018-10-19 15:05:17 0]W¹)!5    3KJZP 191455Z AUTO 19010KT 10SM CLR 15/06 A3037 RMK AO2 6//// T01530056 PNOKJZP2018-10-19T14:55:00Z34.45-84.4715.35.61901010.030.369095TRUETRUEVFRMETAR468.02018-10-19 15:05:17B¹({5    3KL35 191455Z AUTO 09003KT 10SM CLR 04/M03 A3031 RMK AO2KL352018-10-19T14:55:00Z34.27-116.854.0-3.090310.030.31004TRUETRUEVFRMETAR2059.02018-10-19 15:05:17M¹)5    3KLNN 191455Z AUTO 20006KT 10SM CLR 09/M01 A3017 RMK AO1 T00901012KLNN2018-10-19T14:55:00Z41.67-81.379.0-1.2200610.030.171259TRUETRUEVFRMETAR191.02018-10-19 15:05:17J¹) 5    3KLNQ 191455Z AUTO 08005KT 10SM CLR 28/22 A3020 RMK AO2 T02830220KLNQ2018-10-19T14:55:00Z29.35-89.4328.322.080510.030.200787TRUETRUEVFRMETAR1.02018-10-19 15:05:17 +[K¹#) 5    3KIYA 191455Z AUTO 11004KT 10SM CLR 23/19 A3020 RMK AO2 T02310189KIYA2018-10-19T14:55:00Z29.98-92.0823.118.9110410.030.200787TRUETRUEVFRMETAR5.02018-10-19 15:05:17O¹") 5    3KJHN 191455Z AUTO 30012KT 10SM CLR 13/07 A3020 RMK AO2 T01280065KJHN2018-10-19T14:55:00Z37.58-101.7312.86.53001210.030.200787TRUETRUEVFRMETAR1013.02018-10-19 15:05:17J¹!) 5    3KJKA 191455Z AUTO 06006KT 10SM CLR 26/21 A3022 RMK AO2 T02570214KJKA2018-10-19T14:55:00Z30.28-87.6725.721.460610.030.221457TRUETRUEVFRMETAR5.02018-10-19 15:05:17O¹ )5    3KJOT 191455Z AUTO 21008KT 10SM OVC120 10/03 A3011 RMK AO2 T01030025KJOT2018-10-19T14:55:00Z41.52-88.1810.32.5210810.030.109253TRUETRUEVFRMETAR177.02018-10-19 15:05:17 =hK¹') 5    3KHTO 191455Z AUTO 25009KT 10SM CLR 11/01 A3024 RMK AO2 T01140011KHTO2018-10-19T14:55:00Z40.95-72.2511.41.1250910.030.239174TRUETRUEVFRMETAR17.02018-10-19 15:05:17O¹&)5    3KI63 191455Z AUTO 20011KT 10SM OVC050 11/04 A3013 RMK AO2 T01110039KI632018-10-19T14:55:00Z39.98-90.811.13.92001110.030.129921TRUETRUEVFRMETAR223.02018-10-19 15:05:17Z¹%)5     3KIDP 191455Z AUTO 18009KT 10SM OVC006 12/11 A3022 RMK AO2 T01150109 60006KIDP2018-10-19T14:55:00Z37.17-95.7811.510.9180910.030.221457TRUETRUEIFR0.06METAR251.02018-10-19 15:05:17]¹$))5   3KIKK 191455Z AUTO 23014G21KT 210V330 10SM BKN110 11/01 A3016 RMK AO2 T01050013KIKK2018-10-19T14:55:00Z41.07-87.8510.51.3230142110.030.159449TRUETRUEVFRMETAR192.02018-10-19 15:05:17 +VK¹+) 5    3KGVE 191455Z AUTO 19005KT 10SM CLR 12/07 A3033 RMK AO1 T01230070KGVE2018-10-19T14:55:00Z38.15-78.1712.37.0190510.030.33071TRUETRUEVFRMETAR138.02018-10-19 15:05:17B¹*({5    3KHCR 191455Z AUTO 00000KT 10SM CLR 00/M01 A3047 RMK AO2KHCR2018-10-19T14:55:00Z40.48-111.430.0-1.00010.030.469488TRUETRUEVFRMETAR1706.02018-10-19 15:05:17O¹))5    3KHHW 191455Z AUTO 08004KT 10SM OVC025 14/07 A3026 RMK AO2 T01430070KHHW2018-10-19T14:55:00Z34.03-95.5514.37.080410.030.259842TRUETRUEMVFRMETAR144.02018-10-19 15:05:17O¹()5    3KHSG 191455Z AUTO 18003KT 10SM CLR 05/M04 A3036 RMK AO2 T00501041KHSG2018-10-19T14:55:00Z43.72-108.385.0-4.1180310.030.360237TRUETRUEVFRMETAR1494.02018-10-19 15:05:17 !(aY¹/)5     3KGDJ 191455Z AUTO 00000KT 10SM OVC015 15/13 A3027 RMK AO2 60009 T01460133KGDJ2018-10-19T14:55:00Z32.45-97.8214.613.30010.030.268702TRUETRUEMVFR0.09METAR237.02018-10-19 15:05:17A¹.(y5    3KGGP 191455Z AUTO 23011KT 10SM CLR 09/02 A3019 RMK AO2KGGP2018-10-19T14:55:00Z40.72-86.379.02.02301110.030.188976TRUETRUEVFRMETAR225.02018-10-19 15:05:17s¹-)K5      3KGLE 191455Z AUTO 00000KT 7SM RA SCT005 SCT010 OVC022 13/12 A3028 RMK AO2 P0007 60015 T01290120KGLE2018-10-19T14:55:00Z33.65-97.212.912.0007.030.280512TRUETRUERAMVFR0.070.15METAR256.02018-10-19 15:05:17Y¹,)!5    3KGNC 191455Z AUTO 33005KT 10SM SCT007 OVC017 11/10 A3034 RMK AO2 T01050099KGNC2018-10-19T14:55:00Z32.68-102.6510.59.9330510.030.339567TRUETRUEMVFRMETAR1010.02018-10-19 15:05:17 %UN¹3)5    3KFWC 191455Z AUTO 19003KT 10SM SCT110 08/05 A3025 RMK AO1 T00840054KFWC2018-10-19T14:55:00Z38.38-88.428.45.4190310.030.250984TRUETRUEVFRMETAR133.02018-10-19 15:05:17E¹2({5    3KFWZ 191455Z AUTO 34009KT 10SM CLR 06/M10 A3040 RMK AO2KFWZ2018-10-19T14:55:00Z42.52-108.786.0-10.0340910.030.398623TRUETRUEVFRMETAR2588.02018-10-19 15:05:17J¹1) 5    3KFYJ 191455Z AUTO 21005KT 10SM CLR 15/06 A3039 RMK AO1 T01450063KFYJ2018-10-19T14:55:00Z37.52-76.7714.56.3210510.030.389763TRUETRUEVFRMETAR7.02018-10-19 15:05:17U¹0)5   3KGBG 191455Z AUTO 19011G15KT 10SM OVC070 11/04 A3010 RMK AO2 T01100040KGBG2018-10-19T14:55:00Z40.93-90.4311.04.0190111510.030.100393TRUETRUEVFRMETAR233.02018-10-19 15:05:17 /hM¹7) 5    3KEHA 191455Z AUTO 31010KT 10SM CLR 12/09 A3021 RMK AO2 T01230086KEHA2018-10-19T14:55:00Z37.0-101.912.38.63101010.030.209646TRUETRUEVFRMETAR1099.02018-10-19 15:05:17U¹6) 5    3KEHY 191455Z AUTO 26014G21KT 10SM CLR 07/M03 A3040 RMK AO2 PWINOKEHY2018-10-19T14:55:00Z41.73-106.477.0-3.0260142110.030.398623TRUETRUETRUEVFRMETAR2225.02018-10-19 15:05:17A¹5({5    3KEMM 191455Z AUTO 00000KT 10SM CLR 01/M02 A3046 RMK AO2KEMM2018-10-19T14:55:00Z41.82-110.551.0-2.00010.030.46063TRUETRUEVFRMETAR2220.02018-10-19 15:05:17K¹4) 5    3KEZF 191455Z AUTO 20007KT 10SM CLR 14/07 A3034 RMK AO2 T01400073KEZF2018-10-19T14:55:00Z38.27-77.4514.07.3200710.030.339567TRUETRUEVFRMETAR26.02018-10-19 15:05:17 1]C¹;({5    3KDUB 191455Z AUTO 30007KT 10SM CLR 02/M04 A3042 RMK AO2KDUB2018-10-19T14:55:00Z43.55-109.682.0-4.0300710.030.41929TRUETRUEVFRMETAR2224.02018-10-19 15:05:17N¹:)5    3KDWX 191455Z AUTO 15007KT 10SM CLR 00/M01 A3050 RMK AO2 T00031012KDWX2018-10-19T14:55:00Z41.03-107.50.3-1.2150710.030.499016TRUETRUEVFRMETAR1996.02018-10-19 15:05:17N¹9) 5    3KEAN 191455Z AUTO 21005KT 10SM CLR 12/00 A3033 RMK AO2 T01171005KEAN2018-10-19T14:55:00Z42.05-104.9311.7-0.5210510.030.33071TRUETRUEVFRMETAR1456.02018-10-19 15:05:17I¹8) 5    3KEBA 191455Z AUTO 00000KT 10SM CLR 17/10 A3037 RMK AO2 T01740097KEBA2018-10-19T14:55:00Z34.1-82.8217.49.70010.030.369095TRUETRUEVFRMETAR184.02018-10-19 15:05:17 -pI¹?) 5    3KCIR 191455Z AUTO 00000KT 10SM CLR 12/06 A3028 RMK AO2 T01210056KCIR2018-10-19T14:55:00Z37.07-89.2212.15.60010.030.280512TRUETRUEVFRMETAR98.02018-10-19 15:05:17C¹>(5    3KDBN 191455Z AUTO 04005KT 10SM OVC028 16/09 A3035 RMK AO2KDBN2018-10-19T14:55:00Z32.57-82.9816.09.040510.030.351377TRUETRUEMVFRMETAR94.02018-10-19 15:05:177¹=(q5   3KDKR 191455Z AUTO 00000KT 10SM 18/13 A3023 RMK AO2KDKR2018-10-19T14:55:00Z31.3-95.418.013.00010.030.230314TRUETRUEMETAR106.02018-10-19 15:05:17M¹<)5    3KDNV 191455Z AUTO 22010KT 10SM SCT120 09/03 A3019 RMK AO2 T00870030KDNV2018-10-19T14:55:00Z40.2-87.68.73.02201010.030.188976TRUETRUEVFRMETAR212.02018-10-19 15:05:17 9eK¹C) 5    3KBCB 191455Z AUTO 30003KT 10SM CLR 09/06 A3037 RMK AO2 T00860062KBCB2018-10-19T14:55:00Z37.22-80.428.66.2300310.030.369095TRUETRUEVFRMETAR650.02018-10-19 15:05:17G¹B(5   3KBWP 191455Z AUTO 33013G21KT 10SM CLR 10/01 A2987 RMK AO1KBWP2018-10-19T14:55:00Z46.25-96.6210.01.0330132110.029.870079TRUETRUEVFRMETAR295.02018-10-19 15:05:17N¹A)5    3KCCO 191455Z AUTO 09006KT 10SM OVC018 16/10 A3033 RMK AO2 T01550096KCCO2018-10-19T14:55:00Z33.32-84.7715.59.690610.030.33071TRUETRUEMVFRMETAR296.02018-10-19 15:05:17A¹@(y5    3KCDD 191455Z AUTO 26004KT 10SM CLR 10/06 A2960 RMK AO2KCDD2018-10-19T14:55:00Z48.27-92.4810.06.0260410.029.601377TRUETRUEVFRMETAR341.02018-10-19 15:05:17 -[L¹G) 5    3KACJ 191455Z AUTO 09004KT 10SM BKN036 OVC060 21/12 A3032 RMK AO2KACJ2018-10-19T14:55:00Z32.12-84.1821.012.090410.030.318897TRUETRUEVFRMETAR143.02018-10-19 15:05:17O¹F)5     3KAQO 191455Z AUTO 01003KT 3SM BR SCT003 OVC009 15/14 A3027 RMK AO2KAQO2018-10-19T14:55:00Z30.78-98.6715.014.01033.030.268702TRUETRUEBRIFRMETAR336.02018-10-19 15:05:17L¹E) 5    3KAXX 191455Z AUTO 00000KT 10SM CLR 01/00 A3045 RMK AO2 T00051005KAXX2018-10-19T14:55:00Z36.42-105.280.5-0.50010.030.448818TRUETRUEVFRMETAR2548.02018-10-19 15:05:17M¹D)5    3KAYS 191455Z AUTO 07005KT 10SM OVC050 22/16 A3028 RMK AO2 T02200157KAYS2018-10-19T14:55:00Z31.25-82.422.015.770510.030.280512TRUETRUEVFRMETAR46.02018-10-19 15:05:17 .gQ¹K)5   3KY49 191455Z AUTO 30013G18KT 10SM CLR 09/02 A2973 RMK AO2 T00930021KY492018-10-19T14:55:00Z47.13-94.659.32.1300131810.029.731298TRUETRUEVFRMETAR416.02018-10-19 15:05:17S¹J)5   3K21D 191455Z AUTO 22012G18KT 10SM BKN020 BKN024 13/10 A2978 RMK AO2K21D2018-10-19T14:55:00Z45.0-92.8513.010.0220121810.029.778543TRUETRUEMVFRMETAR285.02018-10-19 15:05:17A¹I(y5    3K3K3 191455Z AUTO 27008KT 10SM CLR 08/06 A3022 RMK AO2K3K32018-10-19T14:55:00Z38.0-101.758.06.0270810.030.221457TRUETRUEVFRMETAR1013.02018-10-19 15:05:17L¹H) 5    3K5M9 191455Z AUTO 23003KT 10SM CLR 12/04 A3027 RMK AO2 T01220035K5M92018-10-19T14:55:00Z37.33-88.1212.23.5230310.030.268702TRUETRUEVFRMETAR199.02018-10-19 15:05:17 ;_^¹O)+5      3KGMJ 191455Z AUTO 00000KT 4SM RA SCT010 BKN020 OVC028 10/09 A3027 RMK AO2 P0001KGMJ2018-10-19T14:55:00Z36.6-94.7310.09.0004.030.268702TRUETRUERAMVFR0.01METAR254.02018-10-19 15:05:17K¹N) 5    3KI19 191455Z AUTO 20008KT 10SM CLR 11/03 A3025 RMK AO2 T01130028KI192018-10-19T14:55:00Z39.7-83.9811.32.8200810.030.250984TRUETRUEVFRMETAR289.02018-10-19 15:05:17V¹M)!5    3KVER 191455Z AUTO 21005KT 10SM BKN046 OVC060 13/06 A3017 RMK AO2 T01310063KVER2018-10-19T14:55:00Z38.95-92.6813.16.3210510.030.171259TRUETRUEVFRMETAR218.02018-10-19 15:05:17?¹L(y5    3KVES 191455Z AUTO 20006KT 10SM CLR 09/02 A3022 RMK AO2KVES2018-10-19T14:55:00Z40.2-84.539.02.0200610.030.221457TRUETRUEVFRMETAR307.02018-10-19 15:05:17 0Y>¹S(y5    3KFRR 191455Z AUTO 00000KT 10SM CLR 08/05 A3032 RMK AO1KFRR2018-10-19T14:55:00Z38.92-78.258.05.00010.030.318897TRUETRUEVFRMETAR216.02018-10-19 15:05:17D¹R) 5    3KFSO 191455Z AUTO 19007KT 10SM CLR 09/02 A3000 RMK AO2 T00920020KFSO2018-10-19T14:55:00Z44.93-73.19.22.0190710.030.0TRUETRUEVFRMETAR70.02018-10-19 15:05:17Q¹Q)5   3KFSW 191455Z AUTO 20008G14KT 10SM BKN048 OVC050 12/06 A3010 RMK AO2KFSW2018-10-19T14:55:00Z40.67-91.3212.06.020081410.030.100393TRUETRUEVFRMETAR221.02018-10-19 15:05:17J¹P) 5    3KGAO 191455Z AUTO 06004KT 10SM CLR 27/21 A3019 RMK AO2 T02700206KGAO2018-10-19T14:55:00Z29.45-90.2727.020.660410.030.188976TRUETRUEVFRMETAR1.02018-10-19 15:05:17 +US¹W)5    3KHAE 191455Z AUTO 21010KT 10SM SCT043 BKN050 OVC100 12/03 A3015 RMK AO2KHAE2018-10-19T14:55:00Z39.73-91.4512.03.02101010.030.15059TRUETRUEVFRMETAR234.02018-10-19 15:05:17L¹V) 5    3KHFY 191455Z AUTO 21006KT 10SM CLR 11/02 A3023 RMK AO2 T01090023KHFY2018-10-19T14:55:00Z39.63-86.0810.92.3210610.030.230314TRUETRUEVFRMETAR251.02018-10-19 15:05:17P¹U)5    3KHMP 191455Z AUTO 11005KT 10SM OVC022 16/09 A3034 RMK AO2 T01550094KHMP2018-10-19T14:55:00Z33.38-84.3315.59.4110510.030.339567TRUETRUEMVFRMETAR269.02018-10-19 15:05:17O¹T)5    3KFEP 191455Z AUTO 22011KT 10SM OVC090 09/03 A3005 RMK AO2 T00900025KFEP2018-10-19T14:55:00Z42.25-89.589.02.52201110.030.050198TRUETRUEVFRMETAR262.02018-10-19 15:05:17 PU¹[)!5    3KSVC 191455Z AUTO 00000KT 10SM SCT039 SCT047 10/08 A3029 RMK AO2 T01000081KSVC2018-10-19T14:55:00Z32.63-108.1510.08.10010.030.28937TRUETRUEVFRMETAR1659.02018-10-19 15:05:17D¹Z({5    3KSVE 191455Z AUTO 29003KT 10SM CLR 01/M04 A3037 RMK AO2KSVE2018-10-19T14:55:00Z40.37-120.571.0-4.0290310.030.369095TRUETRUEVFRMETAR1263.02018-10-19 15:05:17@¹Y(y5    3KGWB 191455Z AUTO 22008KT 10SM CLR 10/02 A3016 RMK AO2KGWB2018-10-19T14:55:00Z41.3-85.0710.02.0220810.030.159449TRUETRUEVFRMETAR269.02018-10-19 15:05:17d¹X)+5     3KGYB 191455Z AUTO 02003KT 10SM BKN012 15/14 A3019 RMK AO2 P0001 60002 T01510139KGYB2018-10-19T14:55:00Z30.17-96.9815.113.920310.030.188976TRUETRUEMVFR0.010.02METAR148.02018-10-19 15:05:17 ;jB¹_(y5    3KTVY 191455Z AUTO 15006KT 10SM CLR 06/01 A3041 RMK AO2KTVY2018-10-19T14:55:00Z40.62-112.356.01.0150610.030.410433TRUETRUEVFRMETAR1317.02018-10-19 15:05:17@¹^({5    3KUTA 191455Z AUTO 00000KT 10SM 11/08 A3027 RMK AO2 TSNOKUTA2018-10-19T14:55:00Z34.68-90.3511.08.00010.030.268702TRUETRUETRUESPECI59.02018-10-19 15:05:17K¹]) 5    3KVDF 191455Z AUTO 06005KT 10SM BKN014 BKN022 30/24 A3022 RMK AO2KVDF2018-10-19T14:55:00Z28.02-82.3330.024.060510.030.221457TRUETRUEMVFRSPECI7.02018-10-19 15:05:17?¹\(y5    3KSIK 191455Z AUTO 23003KT 10SM CLR 13/06 A3028 RMK AO2KSIK2018-10-19T14:55:00Z36.9-89.5713.06.0230310.030.280512TRUETRUEVFRMETAR96.02018-10-19 15:05:17 CwM¹c) 5    3KMYZ 191455Z AUTO 22009KT 10SM SCT013 OVC031 13/11 A3009 RMK AO2KMYZ2018-10-19T14:55:00Z39.85-96.6313.011.0220910.030.088583TRUETRUEVFRMETAR319.02018-10-19 15:05:17F¹b)5   3KN38 191455Z AUTO 23009G15KT 10SM CLR 08/M00 A3020 RMK AO2KN382018-10-19T14:55:00Z41.73-77.48.00.023091510.030.200787TRUETRUEVFRMETAR577.02018-10-19 15:05:17J¹a) 5     3KO69 191455Z AUTO 28004KT M1/4SM FG OVC002 08/08 A3015 RMK A01KO692018-10-19T14:55:00Z38.25-122.68.08.028040.2530.15059TRUETRUEFGLIFRMETAR28.02018-10-19 15:05:17g¹`)35      3KOKM 191455Z AUTO 20005KT 10SM DZ SCT004 OVC010 12/12 A3028 RMK AO2 60003 T01170117KOKM2018-10-19T14:55:00Z35.67-95.9511.711.7200510.030.280512TRUETRUEDZMVFR0.03METAR220.02018-10-19 15:05:17 4Y>¹g(y5    3KMOR 191455Z AUTO 00000KT 10SM CLR 13/08 A3031 RMK A01KMOR2018-10-19T14:55:00Z36.18-83.3713.08.00010.030.31004TRUETRUEVFRMETAR400.02018-10-19 15:05:17@¹f(y5    3KMRC 191455Z AUTO 00000KT 10SM CLR 12/11 A3026 RMK A01KMRC2018-10-19T14:55:00Z35.55-87.1812.011.00010.030.259842TRUETRUEVFRMETAR208.02018-10-19 15:05:17U¹e)5      3KMRJ 191455Z AUTO 21011KT 10SM -RA SCT037 SCT049 OVC065 08/ A2999 RMK AO2KMRJ2018-10-19T14:55:00Z42.88-90.238.02101110.029.991142TRUETRUE-RAVFRMETAR359.02018-10-19 15:05:17F¹d(5     3KMVH 191455Z AUTO 00000KT 5SM HZ CLR 05/M02 A3038 RMK AO2KMVH2018-10-19T14:55:00Z46.83-108.935.0-2.0005.030.380905TRUETRUEHZMVFRMETAR1355.02018-10-19 15:05:17 ;vJ¹k) 5    3KMGR 191455Z AUTO 09004KT 10SM SCT047 SCT050 21/16 A3028 RMK AO2KMGR2018-10-19T14:55:00Z31.08-83.821.016.090410.030.280512TRUETRUEVFRMETAR90.02018-10-19 15:05:17T¹j)5   3KMLE 191455Z AUTO 23009G15KT 10SM SCT020 15/11 A3001 RMK AO2 T01510109KMLE2018-10-19T14:55:00Z41.2-96.1215.110.923091510.030.008858TRUETRUEVFRMETAR320.02018-10-19 15:05:17?¹i(y5    3KMMI 191455Z AUTO 00000KT 10SM CLR 14/10 A3034 RMK A01KMMI2018-10-19T14:55:00Z35.4-84.5714.010.00010.030.339567TRUETRUEVFRMETAR266.02018-10-19 15:05:17?¹h(y5    3KMNV 191455Z AUTO VRB03KT 10SM CLR 14/10 A3033 RMK A01KMNV2018-10-19T14:55:00Z35.55-84.3814.010.00310.030.33071TRUETRUEVFRMETAR314.02018-10-19 15:05:17 6nA¹p(y5    3KM91 191455Z AUTO 19007KT 10SM CLR 14/09 A3025 RMK A01KM912018-10-19T14:55:00Z36.53-86.9214.09.0190710.030.250984TRUETRUEVFRMETAR215.02018-10-19 15:05:17A¹o(y5    3KMBT 191455Z AUTO 18004KT 10SM CLR 15/08 A3026 RMK A01KMBT2018-10-19T14:55:00Z35.88-86.3815.08.0180410.030.259842TRUETRUEVFRMETAR188.02018-10-19 15:05:17;¹n(w5    3KMCC 191455Z AUTO 00000KT 7SM CLR 10/04 A3015 RMK AO2KMCC2018-10-19T14:55:00Z38.67-121.410.04.0007.030.15059TRUETRUEVFRMETAR23.02018-10-19 15:05:17B¹m)5   3KMDD 191455Z AUTO 00000KT 7SM 12/12 A3030 RMK AO2 T01180118KMDD2018-10-19T14:55:00Z32.03-102.111.811.8007.030.301182TRUETRUEMETAR854.02018-10-19 15:05:17D¹l(}5    3KMEV 191455Z AUTO 00000KT 10SM CLR M04/M08 A3038 RMK AO2KMEV2018-10-19T14:55:00Z38.98-119.75-4.0-8.00010.030.380905TRUETRUEVFRMETAR1439.02018-10-19 15:05:17 8u@¹u(y5    3KM04 191455Z AUTO 21004KT 10SM CLR 14/09 A3026 RMK A01KM042018-10-19T14:55:00Z35.58-89.5814.09.0210410.030.259842TRUETRUEVFRMETAR85.02018-10-19 15:05:17A¹t(y5    3KM08 191455Z AUTO 13004KT 10SM CLR 13/09 A3026 RMK A01KM082018-10-19T14:55:00Z35.22-89.0513.09.0130410.030.259842TRUETRUEVFRMETAR152.02018-10-19 15:05:17J¹s) 5    3KM30 191455Z AUTO 00000KT 10SM CLR 12/06 A3028 RMK AO2 T01210055KM302018-10-19T14:55:00Z37.18-88.7512.15.50010.030.280512TRUETRUEVFRMETAR117.02018-10-19 15:05:17=¹r(w5    3KM54 191455Z AUTO 00000KT 9SM CLR 14/09 A3025 RMK A01KM542018-10-19T14:55:00Z36.18-86.3214.09.0009.030.250984TRUETRUEVFRMETAR180.02018-10-19 15:05:17B¹q({5    3KM75 191455Z AUTO 23005KT 10SM CLR 05/M01 A3031 RMK A01KM752018-10-19T14:55:00Z48.37-107.925.0-1.0230510.030.31004TRUETRUEVFRMETAR687.02018-10-19 15:05:17 9u^¹y)/5    3KLGC 191455Z AUTO 12003KT 10SM BKN022 BKN027 OVC033 17/12 A3032 RMK AO2 T01690124KLGC2018-10-19T14:55:00Z33.0-85.0716.912.4120310.030.318897TRUETRUEMVFRMETAR211.02018-10-19 15:05:17T¹x)5    3KLKU 191455Z AUTO 18007KT 160V220 10SM CLR 13/06 A3038 RMK AO2 T01310062KLKU2018-10-19T14:55:00Z38.02-77.9713.16.2180710.030.380905TRUETRUEVFRMETAR150.02018-10-19 15:05:17>¹w(y5    3KLUG 191455Z AUTO 00000KT 10SM CLR 13/09 A3027 RMK A01KLUG2018-10-19T14:55:00Z35.52-86.813.09.00010.030.268702TRUETRUEVFRMETAR219.02018-10-19 15:05:17A¹v(y5    3KM02 191455Z AUTO 22008KT 10SM CLR 15/08 A3026 RMK A01KM022018-10-19T14:55:00Z36.13-87.4315.08.0220810.030.259842TRUETRUEVFRMETAR272.02018-10-19 15:05:17 ,I?¹}(y5    3KJWN 191455Z AUTO 00000KT 10SM CLR 12/08 A3026 RMK A01KJWN2018-10-19T14:55:00Z36.18-86.8812.08.00010.030.259842TRUETRUEVFRMETAR151.02018-10-19 15:05:17A¹|(y5    3KJYO 191455Z AUTO 16003KT 10SM CLR 12/05 A3034 RMK AO2KJYO2018-10-19T14:55:00Z39.07-77.5712.05.0160310.030.339567TRUETRUEVFRMETAR119.02018-10-19 15:05:17]¹{)/5    3KLAM 191455Z AUTO 05004KT 10SM SCT001 SCT100 SCT120 03/03 A3041 RMK AO2 T00310031KLAM2018-10-19T14:55:00Z35.87-106.273.13.150410.030.410433TRUETRUEVFRMETAR2179.02018-10-19 15:05:17N¹z) 5    3KLCG 191455Z AUTO 25013KT 10SM CLR 13/10 A2995 RMK AO2 T01250100KLCG2018-10-19T14:55:00Z42.25-96.9812.510.02501310.029.949802TRUETRUEVFRMETAR436.02018-10-19 15:05:17 :fqº)M5      3KXBP 191455Z AUTO 00000KT 2SM +RA SCT004 BKN009 OVC026 14/14 A3028 RMK AO2 P0013 6//// T01360136KXBP2018-10-19T14:55:00Z33.18-97.8313.613.6002.030.280512TRUETRUE+RAIFR0.13METAR260.02018-10-19 15:05:17Aº(y5    3KXLL 191455Z AUTO 24008KT 10SM CLR 11/01 A3030 RMK AO2KXLL2018-10-19T14:55:00Z40.57-75.4811.01.0240810.030.301182TRUETRUEVFRMETAR122.02018-10-19 15:05:17N¹)5    3PAAD 191455Z AUTO 08003KT OVC080 M04/M05 A2987 RMK AO2 T10431051 PWINOPAAD2018-10-19T14:55:00Z70.13-146.28-4.3-5.180329.870079TRUETRUETRUEMETAR8.02018-10-19 15:05:17@¹~(y5    3KJTC 191455Z AUTO 00000KT 10SM CLR 04/03 A3036 RMK AO2KJTC2018-10-19T14:55:00Z34.13-109.324.03.00010.030.360237TRUETRUEVFRMETAR2150.02018-10-19 15:05:17 8p\º)'5   3KVYS 191455Z AUTO 21012G16KT 10SM BKN075 OVC090 11/04 A3011 RMK AO2 T01100040KVYS2018-10-19T14:55:00Z41.35-89.1511.04.0210121610.030.109253TRUETRUEVFRMETAR199.02018-10-19 15:05:17>º(y5    3KW22 191455Z AUTO 00000KT 10SM CLR 10/03 A3027 RMK AO2KW222018-10-19T14:55:00Z39.0-80.2710.03.00010.030.268702TRUETRUEVFRMETAR499.02018-10-19 15:05:17Bº({5    3KW43 191455Z AUTO 00000KT 10SM CLR 07/M01 A3032 RMK AO2KW432018-10-19T14:55:00Z44.67-104.577.0-1.00010.030.318897TRUETRUEVFRMETAR1300.02018-10-19 15:05:17Bº(5    3KWDR 191455Z AUTO 00000KT 10SM SCT034 16/09 A3038 RMK AO1KWDR2018-10-19T14:55:00Z33.98-83.6716.09.00010.030.380905TRUETRUEVFRMETAR287.02018-10-19 15:05:17 ;j?º (y5    3KUCY 191455Z AUTO VRB03KT 10SM CLR 14/06 A3025 RMK A01KUCY2018-10-19T14:55:00Z36.38-88.9814.06.00310.030.250984TRUETRUEVFRMETAR104.02018-10-19 15:05:17Aº(5    3KVDI 191455Z AUTO 04005KT 10SM OVC050 18/11 A3031 RMK AO2KVDI2018-10-19T14:55:00Z32.2-82.3718.011.040510.030.31004TRUETRUEVFRMETAR84.02018-10-19 15:05:17Kº) 5    3KVJI 191455Z AUTO 13003KT 10SM CLR 14/08 A3033 RMK AO2 T01430077KVJI2018-10-19T14:55:00Z36.67-82.0214.37.7130310.030.33071TRUETRUEVFRMETAR631.02018-10-19 15:05:17?º(y5    3KVKS 191455Z AUTO VRB04KT 10SM CLR 19/12 A3025 RMK A01KVKS2018-10-19T14:55:00Z32.23-90.9319.012.00410.030.250984TRUETRUEVFRMETAR32.02018-10-19 15:05:17 ,SRº )5    3KTFP 191455Z AUTO 05008KT 10SM BKN002 22/21 A3010 RMK AO2 T02170205 PNOKTFP2018-10-19T14:55:00Z27.92-97.2221.720.550810.030.100393TRUETRUELIFRMETAR6.02018-10-19 15:05:17Gº (5   3KTHA 191455Z AUTO 15007G12KT 10SM CLR 16/10 A3028 RMK A01KTHA2018-10-19T14:55:00Z35.38-86.2516.010.015071210.030.280512TRUETRUEVFRMETAR331.02018-10-19 15:05:17Sº )5   3KTIF 191455Z AUTO 32017G23KT 10SM CLR 14/03 A3010 RMK AO2 T01360034KTIF2018-10-19T14:55:00Z41.97-100.5713.63.4320172310.030.100393TRUETRUEVFRMETAR892.02018-10-19 15:05:17Nº )5    3KTXW 191455Z AUTO 32012KT 7SM OVC006 17/15 A3013 RMK AO2 T01650151KTXW2018-10-19T14:55:00Z26.18-97.9716.515.1320127.030.129921TRUETRUEIFRMETAR21.02018-10-19 15:05:17 8]\º))5     3KDKB 191455Z AUTO 21011KT 10SM -RA SCT070 OVC090 08/03 A3008 RMK AO2 T00800028KDKB2018-10-19T14:55:00Z41.93-88.78.02.82101110.030.079725TRUETRUE-RAVFRMETAR279.02018-10-19 15:05:17Aº(y5    3KDKX 191455Z AUTO 14004KT 10SM CLR 13/09 A3034 RMK A01KDKX2018-10-19T14:55:00Z35.97-83.8713.09.0140410.030.339567TRUETRUEVFRMETAR254.02018-10-19 15:05:17Uº)!5    3KTBR 191455Z AUTO 08004KT 10SM BKN048 OVC070 19/13 A3032 RMK AO2 T01900130KTBR2018-10-19T14:55:00Z32.48-81.7319.013.080410.030.318897TRUETRUEVFRMETAR57.02018-10-19 15:05:17Bº({5    3KTEX 191455Z AUTO 14004KT 10SM CLR 00/M03 A3046 RMK AO2KTEX2018-10-19T14:55:00Z37.95-107.90.0-3.0140410.030.46063TRUETRUEVFRMETAR2769.02018-10-19 15:05:17 0_Nº)5    3KCVC 191455Z AUTO 11004KT 7SM SCT031 SCT039 17/10 A3033 RMK AO2 PNOKCVC2018-10-19T14:55:00Z33.63-83.8517.010.011047.030.33071TRUETRUEVFRMETAR247.02018-10-19 15:05:17Kº) 5    3KCXE 191455Z AUTO 19004KT 10SM CLR 13/07 A3036 RMK AO1 T01330068KCXE2018-10-19T14:55:00Z36.78-78.513.36.8190410.030.360237TRUETRUEVFRMETAR153.02018-10-19 15:05:17Kº) 5    3KCXW 191455Z AUTO 36004KT 10SM BKN041 OVC090 12/09 A3027 RMK A01KCXW2018-10-19T14:55:00Z35.02-92.5512.09.0360410.030.268702TRUETRUEVFRMETAR84.02018-10-19 15:05:17Jº) 5    3KDCY 191455Z AUTO 19003KT 10SM CLR 09/02 A3025 RMK AO2 T00850021KDCY2018-10-19T14:55:00Z38.7-87.138.52.1190310.030.250984TRUETRUEVFRMETAR144.02018-10-19 15:05:17 <v<º(w5    3KC83 191455Z AUTO 00000KT 9SM CLR 09/05 A3013 RMK AO2KC832018-10-19T14:55:00Z37.83-121.629.05.0009.030.129921TRUETRUEVFRMETAR24.02018-10-19 15:05:17Dº({5    3KCCB 191455Z AUTO 33004KT 10SM CLR 22/M03 A3005 RMK AO2KCCB2018-10-19T14:55:00Z34.12-117.6822.0-3.0330410.030.050198TRUETRUEVFRMETAR440.02018-10-19 15:05:17Iº) 5    3KCJR 191455Z AUTO 00000KT 10SM CLR 12/04 A3035 RMK AO2 T01190044KCJR2018-10-19T14:55:00Z38.53-77.8711.94.40010.030.351377TRUETRUEVFRMETAR97.02018-10-19 15:05:17@º(y5    3KCQF 191455Z AUTO 09003KT 10SM CLR 25/21 A3022 RMK AO2KCQF2018-10-19T14:55:00Z30.47-87.8825.021.090310.030.221457TRUETRUEVFRMETAR28.02018-10-19 15:05:17>º(y5    3KCRX 191455Z AUTO 00000KT 10SM CLR 11/08 A3027 RMK AO2KCRX2018-10-19T14:55:00Z34.92-88.611.08.00010.030.268702TRUETRUEVFRMETAR130.02018-10-19 15:05:17 T~Aº(y5    3KBXK 191455Z AUTO 00000KT 10SM CLR 16/10 A3006 RMK AO1KBXK2018-10-19T14:55:00Z33.42-112.6816.010.00010.030.059055TRUETRUEVFRMETAR315.02018-10-19 15:05:17Pº)5    3KC09 191455Z AUTO 21012KT 10SM OVC110 10/02 A3011 RMK AO2 T01000020KC092018-10-19T14:55:00Z41.43-88.4210.02.02101210.030.109253TRUETRUEVFRMETAR178.02018-10-19 15:05:17Cº(5   3KC65 191455Z AUTO 23009G14KT 10SM CLR 09/01 A3015 RMK A01KC652018-10-19T14:55:00Z41.37-86.39.01.023091410.030.15059TRUETRUEVFRMETAR244.02018-10-19 15:05:17]º))5     3KC75 191455Z AUTO 21007KT 10SM -DZ BKN070 OVC090 10/03 A3011 RMK AO2 T01000034KC752018-10-19T14:55:00Z41.02-89.3810.03.4210710.030.109253TRUETRUE-DZVFRMETAR173.02018-10-19 15:05:17 UEº")5   3KBDG 191455Z AUTO 30004KT 10SM 06/02 A3046 RMK AO1 T00560015KBDG2018-10-19T14:55:00Z37.58-109.475.61.5300410.030.46063TRUETRUEMETAR1788.02018-10-19 15:05:17Gº!(5   3KBGF 191455Z AUTO 18010G15KT 10SM CLR 17/09 A3028 RMK A01KBGF2018-10-19T14:55:00Z35.18-86.0717.09.0180101510.030.280512TRUETRUEVFRMETAR299.02018-10-19 15:05:17Aº (5    3KBHC 191455Z AUTO 06004KT 10SM OVC050 19/13 A3029 RMK AO2KBHC2018-10-19T14:55:00Z31.72-82.419.013.060410.030.28937TRUETRUEVFRMETAR61.02018-10-19 15:05:17^º)/5    3KBPG 191455Z AUTO 31003KT 10SM SCT004 SCT008 OVC035 11/10 A3031 RMK AO2 T01100101KBPG2018-10-19T14:55:00Z32.22-101.5211.010.1310310.030.31004TRUETRUEVFRMETAR784.02018-10-19 15:05:17 +YKº&) 5    3KAPS 191455Z AUTO 13005KT 10SM CLR 26/18 A3022 RMK AO2 T02550180KAPS2018-10-19T14:55:00Z30.08-90.5825.518.0130510.030.221457TRUETRUEVFRMETAR2.02018-10-19 15:05:17Sº%)5      3KAQR 191455Z AUTO 00000KT 7SM -RA OVC025 12/11 A3028 RMK AO2 P0001KAQR2018-10-19T14:55:00Z34.4-96.1512.011.0007.030.280512TRUETRUE-RAMVFR0.01METAR189.02018-10-19 15:05:17Lº$) 5    3KAVC 191455Z AUTO 19005KT 10SM CLR 13/08 A3043 RMK AO2 T01310079KAVC2018-10-19T14:55:00Z36.68-78.0313.17.9190510.030.431103TRUETRUEVFRMETAR135.02018-10-19 15:05:17Oº#) 5    3KAVK 191455Z AUTO 21013KT 10SM BKN010 BKN120 14/14 A3018 RMK AO2KAVK2018-10-19T14:55:00Z36.77-98.6714.014.02101310.030.180119TRUETRUEMVFRMETAR449.02018-10-19 15:05:17 ,b^º*)/5    3KAAA 191455Z AUTO 18010KT 10SM SCT047 BKN050 OVC070 10/04 A3016 RMK AO2 T01000043KAAA2018-10-19T14:55:00Z40.17-89.3310.04.31801010.030.159449TRUETRUEVFRMETAR182.02018-10-19 15:05:17Wº))5      3KADH 191455Z AUTO 00000KT 7SM RA BKN005 OVC019 11/11 A3027 RMK AO2 P0019KADH2018-10-19T14:55:00Z34.8-96.6711.011.0007.030.268702TRUETRUERAIFR0.19METAR308.02018-10-19 15:05:17Dº((}5    3KAFO 191455Z AUTO 00000KT 10SM CLR M03/M05 A3048 RMK AO2KAFO2018-10-19T14:55:00Z42.72-110.95-3.0-5.00010.030.481298TRUETRUEVFRMETAR1897.02018-10-19 15:05:17Nº')5    3KAJG 191455Z AUTO 22006KT 10SM BKN120 09/05 A3026 RMK AO2 T00920049KAJG2018-10-19T14:55:00Z38.62-87.739.24.9220610.030.259842TRUETRUEVFRMETAR131.02018-10-19 15:05:17 *S?º.(y5    3K8A3 191455Z AUTO VRB05KT 10SM CLR 15/08 A3026 RMK A01K8A32018-10-19T14:55:00Z36.42-85.3215.08.00510.030.259842TRUETRUEVFRMETAR419.02018-10-19 15:05:17Iº-) 5    3K9A5 191455Z AUTO 00000KT 10SM CLR 15/08 A3033 RMK AO2 T01500082K9A52018-10-19T14:55:00Z34.68-85.2815.08.20010.030.33071TRUETRUEVFRMETAR237.02018-10-19 15:05:17Qº,)5   3K9V9 191455Z AUTO 32019G24KT 10SM CLR 13/04 A3002 RMK AO2 T01280044K9V92018-10-19T14:55:00Z43.77-99.3212.84.4320192410.030.02067TRUETRUEVFRMETAR519.02018-10-19 15:05:17Pº+)5    3KA08 191455Z AUTO 16006KT 10SM OVC010 20/15 A3026 RMK AO2 T01960152KA082018-10-19T14:55:00Z32.52-87.3819.615.2160610.030.259842TRUETRUEMVFRMETAR69.02018-10-19 15:05:17 5Ydº2)75     3KT35 191455Z AUTO 00000KT 10SM -RA BKN016 BKN028 OVC095 17/14 A3021 RMK AO2 T01670141KT352018-10-19T14:55:00Z30.88-96.9716.714.10010.030.209646TRUETRUE-RAMVFRMETAR123.02018-10-19 15:05:17Lº1)5    3KT82 191455Z AUTO 00000KT 7SM OVC005 14/13 A3023 RMK AO2 T01380131KT822018-10-19T14:55:00Z30.25-98.9213.813.1007.030.230314TRUETRUEIFRMETAR517.02018-10-19 15:05:17Vº0)!5    3KTAZ 191455Z AUTO 21011KT 10SM BKN065 OVC075 10/02 A3020 RMK AO2 T00970021KTAZ2018-10-19T14:55:00Z39.53-89.339.72.12101110.030.200787TRUETRUEVFRMETAR190.02018-10-19 15:05:17Eº/(5    3K8A0 191455Z AUTO 14006KT 10SM BKN013 17/13 A3029 RMK AO2K8A02018-10-19T14:55:00Z34.23-86.2517.013.0140610.030.28937TRUETRUEMVFRMETAR315.02018-10-19 15:05:17 JqWº6)5      3KSRE 191455Z AUTO 00000KT 3/4SM +RA OVC004 11/10 A3026 RMK AO2 P0009KSRE2018-10-19T14:55:00Z35.27-96.6811.010.0000.7530.259842TRUETRUE+RALIFR0.09METAR312.02018-10-19 15:05:17Sº5)5   3KSYF 191455Z AUTO 32011G17KT 10SM CLR 13/02 A3018 RMK AO2 T01320018KSYF2018-10-19T14:55:00Z39.77-101.813.21.8320111710.030.180119TRUETRUEVFRMETAR1025.02018-10-19 15:05:17Bº4(y5    3KSYI 191455Z AUTO 18009KT 10SM CLR 17/10 A3027 RMK A01KSYI2018-10-19T14:55:00Z35.57-86.4517.010.0180910.030.268702TRUETRUEVFRMETAR245.02018-10-19 15:05:17hº3);5     3KT20 191455Z AUTO 03003KT 10SM BKN013 BKN024 BKN070 18/18 A3017 RMK AO2 60003 T01820181KT202018-10-19T14:55:00Z29.52-97.4718.218.130310.030.171259TRUETRUEMVFR0.03METAR108.02018-10-19 15:05:17 9iJº:) 5    3KSJS 191455Z AUTO 18004KT 10SM CLR 08/06 A3029 RMK AO2 T00810063KSJS2018-10-19T14:55:00Z37.75-82.638.16.3180410.030.28937TRUETRUEVFRMETAR372.02018-10-19 15:05:17>º9(w5    3KSNH 191455Z AUTO VRB03KT 8SM CLR 13/10 A3027 RMK A01KSNH2018-10-19T14:55:00Z35.17-88.2213.010.0038.030.268702TRUETRUEVFRMETAR144.02018-10-19 15:05:17Jº8)5     3KSOA 191455Z AUTO 00000KT 9SM -RA OVC003 12/12 A3029 RMK AO2KSOA2018-10-19T14:55:00Z30.58-100.6512.012.0009.030.28937TRUETRUE-RALIFRMETAR652.02018-10-19 15:05:17Aº7(y5    3KSRB 191455Z AUTO 19007KT 10SM CLR 16/09 A3027 RMK A01KSRB2018-10-19T14:55:00Z36.05-85.5316.09.0190710.030.268702TRUETRUEVFRMETAR313.02018-10-19 15:05:17 9d>º>(y5    3KRZR 191455Z AUTO 00000KT 10SM CLR 14/10 A3031 RMK A01KRZR2018-10-19T14:55:00Z35.22-84.814.010.00010.030.31004TRUETRUEVFRMETAR263.02018-10-19 15:05:17Aº=(}5    3KS39 191455Z AUTO 00000KT 10SM CLR M00/M06 A3034 RMK AO2KS392018-10-19T14:55:00Z44.28-120.90.0-6.00010.030.339567TRUETRUEVFRMETAR991.02018-10-19 15:05:17Oº<)5    3KSBS 191455Z AUTO 00000KT 10SM CLR M01/M01 A3048 RMK AO1 T10141014KSBS2018-10-19T14:55:00Z40.52-106.87-1.4-1.40010.030.481298TRUETRUEVFRMETAR2096.02018-10-19 15:05:17Aº;(y5    3KSCX 191455Z AUTO 20007KT 10SM CLR 13/08 A3028 RMK A01KSCX2018-10-19T14:55:00Z36.45-84.5813.08.0200710.030.280512TRUETRUEVFRMETAR471.02018-10-19 15:05:17 R~JºB) 5    3KRMN 191455Z AUTO 18003KT 10SM CLR 14/08 A3038 RMK AO2 T01380076KRMN2018-10-19T14:55:00Z38.4-77.4513.87.6180310.030.380905TRUETRUEVFRMETAR65.02018-10-19 15:05:17NºA)5    3KRPJ 191455Z AUTO 19008KT 10SM OVC090 09/03 A3007 RMK AO2 T00880025KRPJ2018-10-19T14:55:00Z41.88-89.088.82.5190810.030.070866TRUETRUEVFRMETAR238.02018-10-19 15:05:17Fº@(}5    3KRTS 191455Z AUTO 35003KT 10SM CLR M01/M07 A3038 RMK AO2KRTS2018-10-19T14:55:00Z39.67-119.88-1.0-7.0350310.030.380905TRUETRUEVFRMETAR1540.02018-10-19 15:05:17\º?)/5    3KRWV 191455Z AUTO 02004KT 10SM SCT031 SCT044 SCT050 17/15 A3020 RMK AO2 T01740146KRWV2018-10-19T14:55:00Z30.52-96.717.414.620410.030.200787TRUETRUEVFRMETAR119.02018-10-19 15:05:17 )efºF);5     3KRAS 191455Z AUTO 01011KT 10SM SCT005 SCT031 OVC050 22/21 A3012 RMK AO2 T02200211 60001KRAS2018-10-19T14:55:00Z27.82-97.0822.021.1101110.030.121063TRUETRUEVFR0.01METAR2.02018-10-19 15:05:17EºE)5    3KRAW 191455Z AUTO 20014G19KT 10SM SCT048 SCT060 A3020 RMK AO2KRAW2018-10-19T14:55:00Z38.35-93.35200141910.030.200787TRUETRUEVFRMETAR285.02018-10-19 15:05:17>ºD(y5    3KRKW 191455Z AUTO 00000KT 10SM CLR 13/08 A3031 RMK A01KRKW2018-10-19T14:55:00Z35.92-84.6813.08.00010.030.31004TRUETRUEVFRMETAR508.02018-10-19 15:05:17QºC)5     3KRLD 191455Z AUTO 00000KT 1SM BR VV007 01/01 A3036 RMK AO2 T00130013KRLD2018-10-19T14:55:00Z46.3-119.31.31.3001.030.360237TRUETRUEBRLIFR700METAR120.02018-10-19 15:05:17 %OeºJ);5     3KPSN 191455Z AUTO 00000KT 10SM SCT038 BKN065 OVC120 15/13 A3023 RMK AO2 P0001 T01530131KPSN2018-10-19T14:55:00Z31.78-95.715.313.10010.030.230314TRUETRUEVFR0.01METAR129.02018-10-19 15:05:17FºI(5   3KPTD 191455Z AUTO 22018G27KT 10SM CLR 11/05 A2998 RMK AO2KPTD2018-10-19T14:55:00Z44.68-74.9511.05.0220182710.029.97933TRUETRUEVFRMETAR144.02018-10-19 15:05:17PºH)5    3KPVW 191455Z AUTO 25007KT 10SM OVC085 09/09 A3026 RMK AO2 T00860085KPVW2018-10-19T14:55:00Z34.17-101.728.68.5250710.030.259842TRUETRUEVFRMETAR1028.02018-10-19 15:05:17UºG)!5    3KPXE 191455Z AUTO 07007KT 10SM BKN035 OVC044 16/13 A3033 RMK AO2 T01640128KPXE2018-10-19T14:55:00Z32.52-83.7716.412.870710.030.33071TRUETRUEVFRMETAR127.02018-10-19 15:05:17 ,VAºN(y5    3KPHT 191455Z AUTO 17005KT 10SM CLR 14/08 A3027 RMK A01KPHT2018-10-19T14:55:00Z36.33-88.3814.08.0170510.030.268702TRUETRUEVFRMETAR177.02018-10-19 15:05:17CºM({5    3KPOY 191455Z AUTO 29005KT 10SM CLR 08/M06 A3035 RMK AO2KPOY2018-10-19T14:55:00Z44.87-108.88.0-6.0290510.030.351377TRUETRUEVFRMETAR1552.02018-10-19 15:05:17PºL)5    3KPPQ 191455Z AUTO 20010KT 10SM OVC060 11/04 A3017 RMK AO2 T01140043KPPQ2018-10-19T14:55:00Z39.63-90.7811.44.32001010.030.171259TRUETRUEVFRMETAR216.02018-10-19 15:05:17NºK)5    3KPRG 191455Z AUTO 21010KT 10SM OVC120 09/03 A3023 RMK AO2 T00910025KPRG2018-10-19T14:55:00Z39.7-87.679.12.52101010.030.230314TRUETRUEVFRMETAR199.02018-10-19 15:05:17 4^TºR)5    3KOWI 191455Z AUTO 21014KT 10SM FEW014 BKN033 BKN038 13/11 A3015 RMK AO2KOWI2018-10-19T14:55:00Z38.53-95.2513.011.02101410.030.15059TRUETRUEVFRMETAR292.02018-10-19 15:05:17EºQ(5   3KOXI 191455Z AUTO 21010G16KT 10SM CLR 09/00 A3015 RMK AO1KOXI2018-10-19T14:55:00Z41.33-86.679.00.0210101610.030.15059TRUETRUEVFRMETAR209.02018-10-19 15:05:17PºP)5   3KP08 191455Z AUTO 08009G16KT 050V110 10SM CLR 20/10 A3008 RMK AO2KP082018-10-19T14:55:00Z32.93-111.4320.010.08091610.030.079725TRUETRUEVFRMETAR481.02018-10-19 15:05:17FºO(5   3KPCW 191455Z AUTO 22010G15KT 10SM CLR 09/01 A3016 RMK AO2KPCW2018-10-19T14:55:00Z41.52-82.879.01.0220101510.030.159449TRUETRUEVFRMETAR178.02018-10-19 15:05:17 ,_nºV)?5      3K6P9 191455Z AUTO 00000KT 5SM -RA BKN003 BKN008 12/12 A3026 RMK AO2 P0015 60036 T01230123K6P92018-10-19T14:55:00Z32.43-98.612.312.3005.030.259842TRUETRUE-RALIFR0.150.36METAR449.02018-10-19 15:05:17GºU) 5    3K6R3 191455Z AUTO 00000KT 7SM CLR 20/14 A3019 RMK AO2 T01990144K6R32018-10-19T14:55:00Z30.35-95.019.914.4007.030.188976TRUETRUEVFRMETAR46.02018-10-19 15:05:17GºT)5    3K6S0 191455Z AUTO 29007KT 10SM OVC110 08/M02 A3037 RMK A01K6S02018-10-19T14:55:00Z45.8-109.978.0-2.0290710.030.369095TRUETRUEVFRMETAR1363.02018-10-19 15:05:17NºS)5    3KOLY 191455Z AUTO 18004KT 10SM OVC110 09/05 A3025 RMK AO2 T00860047KOLY2018-10-19T14:55:00Z38.72-88.188.64.7180410.030.250984TRUETRUEVFRMETAR147.02018-10-19 15:05:17 ;ecºZ)75     3K66R 191455Z AUTO 06003KT 10SM -RA SCT019 SCT027 BKN032 19/15 A3018 RMK AO2 T01920154K66R2018-10-19T14:55:00Z29.65-96.5219.215.460310.030.180119TRUETRUE-RAVFRMETAR74.02018-10-19 15:05:17DºY)5   3K6A1 191455Z AUTO 07008KT 10SM 17/13 A3033 RMK AO2 T01680125K6A12018-10-19T14:55:00Z32.57-84.2516.812.570810.030.33071TRUETRUEMETAR203.02018-10-19 15:05:17PºX)5   3K6B0 191455Z AUTO 18011G17KT 10SM CLR 08/01 A3008 RMK AO2 T00750008K6B02018-10-19T14:55:00Z43.98-73.17.50.8180111710.030.079725TRUETRUEVFRMETAR149.02018-10-19 15:05:17?ºW(w5    3K6I2 191455Z AUTO 18006KT 9SM CLR 13/05 A3026 RMK AO2K6I22018-10-19T14:55:00Z37.63-85.2513.05.018069.030.259842TRUETRUEVFRMETAR264.02018-10-19 15:05:17 >iKº^) 5    3K5A6 191455Z AUTO 00000KT 10SM CLR 18/12 A3026 RMK AO2 T01790115K5A62018-10-19T14:55:00Z33.47-89.7317.911.50010.030.259842TRUETRUEVFRMETAR111.02018-10-19 15:05:17Rº])5     3K5C1 191455Z AUTO 36004KT 2 1/2SM OVC004 14/14 A3021 RMK AO1 P0002K5C12018-10-19T14:55:00Z29.72-98.714.014.036042.530.209646TRUETRUELIFR0.02METAR423.02018-10-19 15:05:17Oº\) 5    3K5T9 191455Z AUTO 32007G13KT 5SM BR OVC005 14/13 A3022 RMK A01K5T92018-10-19T14:55:00Z28.85-100.5214.013.03207135.030.221457TRUETRUEBRIFRMETAR270.02018-10-19 15:05:17<º[(w5    3K65S 191455Z AUTO 00000KT 7SM CLR 00/00 A3039 RMK AO2K65S2018-10-19T14:55:00Z48.73-116.30.00.0007.030.389763TRUETRUEVFRMETAR713.02018-10-19 15:05:17 %[Kºb) 5    3K40J 191455Z AUTO 07004KT 10SM CLR 27/22 A3025 RMK AO2 T02720216K40J2018-10-19T14:55:00Z30.07-83.5727.221.670410.030.250984TRUETRUEVFRMETAR13.02018-10-19 15:05:17Jºa) 5    3K49A 191455Z AUTO 00000KT 10SM CLR 17/09 A3036 RMK AO2 T01730086K49A2018-10-19T14:55:00Z34.63-84.5317.38.60010.030.360237TRUETRUEVFRMETAR453.02018-10-19 15:05:17Dº`(5    3K54A 191455Z AUTO 10009KT 10SM FEW020 28/23 A3018 RMK AO2K54A2018-10-19T14:55:00Z26.85-82.2528.023.0100910.030.180119TRUETRUEVFRMETAR14.02018-10-19 15:05:17Uº_)#5    3K57C 191455Z AUTO 23007KT 210V270 10SM OVC100 09/02 A3001 RMK AO2 T00920020K57C2018-10-19T14:55:00Z42.8-88.379.22.0230710.030.008858TRUETRUEVFRMETAR262.02018-10-19 15:05:17 =zEºg(5   3K2M2 191455Z AUTO 00000G11KT 10SM CLR 16/10 A3027 RMK A01K2M22018-10-19T14:55:00Z35.23-87.2516.010.0001110.030.268702TRUETRUEVFRMETAR286.02018-10-19 15:05:17Eºf(5    3K3AU 191455Z AUTO 20009KT 10SM OVC005 11/11 A3018 RMK AO2K3AU2018-10-19T14:55:00Z37.67-97.0811.011.0200910.030.180119TRUETRUEIFRMETAR405.02018-10-19 15:05:17Lºe) 5    3K3F3 191455Z AUTO 13004KT 10SM CLR 18/13 A3027 RMK AO2 T01840127K3F32018-10-19T14:55:00Z32.07-93.7718.412.7130410.030.268702TRUETRUEVFRMETAR96.02018-10-19 15:05:17=ºd(y5    3K3L4 191455Z AUTO 08005KT 10SM CLR 23/18 A3019 RMK A01K3L42018-10-19T14:55:00Z29.8-92.823.018.080510.030.188976TRUETRUEVFRMETAR2.02018-10-19 15:05:17=ºc({5    3K3S8 191455Z AUTO 00000KT 10SM CLR 02/M00 A3029 RMK AO2K3S82018-10-19T14:55:00Z42.5-123.42.00.00010.030.28937TRUETRUEVFRMETAR343.02018-10-19 15:05:17 7d@ºk(y5    3K1M5 191455Z AUTO 19007KT 10SM CLR 15/08 A3026 RMK A01K1M52018-10-19T14:55:00Z36.6-86.4815.08.0190710.030.259842TRUETRUEVFRMETAR250.02018-10-19 15:05:17Bºj(5    3K2A0 191455Z AUTO 00000KT 10SM FEW005 12/10 A3033 RMK A01K2A02018-10-19T14:55:00Z35.48-84.9312.010.00010.030.33071TRUETRUEVFRMETAR219.02018-10-19 15:05:17Mºi)5    3K2J3 191455Z AUTO 06006KT 10SM OVC032 17/09 A3033 RMK AO2 T01700094K2J32018-10-19T14:55:00Z32.98-82.3817.09.460610.030.33071TRUETRUEVFRMETAR100.02018-10-19 15:05:17Cºh(5   3K2LS 191455Z AUTO VRB06G11KT 10SM CLR 26/22 A3020 RMK AO2K2LS2018-10-19T14:55:00Z29.42-90.326.022.0061110.030.200787TRUETRUEVFRMETAR-2.02018-10-19 15:05:17 ,XMºo) 5    3K19S 191455Z AUTO 29009KT 10SM CLR 10/07 A3018 RMK AO2 T01020070K19S2018-10-19T14:55:00Z37.48-100.8310.27.0290910.030.180119TRUETRUEVFRMETAR886.02018-10-19 15:05:17Kºn)5    3K1A6 191455Z AUTO 00000KT 10SM SCT002 07/07 A3033 RMK AO2 T00710071K1A62018-10-19T14:55:00Z36.62-83.737.17.10010.030.33071TRUETRUEVFRMETAR352.02018-10-19 15:05:17Nºm) 5      3K1F0 191455Z AUTO 00000KT 12/11 A3027 RMK AO2 P0005 PWINO TSNOK1F02018-10-19T14:55:00Z34.15-97.1212.011.00030.268702TRUETRUETRUETRUE0.05METAR257.02018-10-19 15:05:17Nºl)5    3K1H2 191455Z AUTO 16003KT 10SM BKN110 09/04 A3024 RMK AO2 T00850036K1H22018-10-19T14:55:00Z39.07-88.538.53.6160310.030.239174TRUETRUEVFRMETAR179.02018-10-19 15:05:17 ,]?ºs(y5    3K0A9 191455Z AUTO 00000KT 10SM CLR 14/08 A3032 RMK AO2K0A92018-10-19T14:55:00Z36.37-82.1714.08.00010.030.318897TRUETRUEVFRMETAR486.02018-10-19 15:05:17@ºr(y5    3K0R0 191455Z AUTO 14003KT 10SM CLR 22/14 A3028 RMK AO2K0R02018-10-19T14:55:00Z31.3-89.8222.014.0140310.030.280512TRUETRUEVFRMETAR81.02018-10-19 15:05:17Iºq) 5    3K0R4 191455Z AUTO 00000KT 10SM CLR 21/12 A3024 RMK AO2 T02100123K0R42018-10-19T14:55:00Z31.57-91.521.012.30010.030.239174TRUETRUEVFRMETAR17.02018-10-19 15:05:17Nºp)5    3K11R 191455Z AUTO 06003KT 10SM SCT095 19/16 A3018 RMK AO2 T01920159K11R2018-10-19T14:55:00Z30.22-96.3719.215.960310.030.180119TRUETRUEVFRMETAR94.02018-10-19 15:05:17 -e?ºx)5   3KJAS 191455Z AUTO 09003KT CLR 21/15 A3022 RMK AO2 T02080149KJAS2018-10-19T14:55:00Z30.88-94.0320.814.990330.221457TRUETRUEMETAR65.02018-10-19 15:05:17Bºw(5    3KJAU 191455Z AUTO 00000KT 10SM FEW014 11/08 A3035 RMK A01KJAU2018-10-19T14:55:00Z36.33-84.1711.08.00010.030.351377TRUETRUEVFRMETAR360.02018-10-19 15:05:17>ºv(y5    3KJGG 191455Z AUTO 00000KT 10SM CLR 16/04 A3038 RMK AO1KJGG2018-10-19T14:55:00Z37.23-76.7216.04.00010.030.380905TRUETRUEVFRMETAR15.02018-10-19 15:05:17Bºu({5    3K05U 191455Z AUTO 20003KT 10SM CLR 00/M07 A3045 RMK A01K05U2018-10-19T14:55:00Z39.6-116.00.0-7.0200310.030.448818TRUETRUEVFRMETAR1816.02018-10-19 15:05:17Mºt)5    3K06C 191455Z AUTO 22006KT 10SM BKN110 09/01 A3008 RMK AO2 T00860013K06C2018-10-19T14:55:00Z41.98-88.18.61.3220610.030.079725TRUETRUEVFRMETAR244.02018-10-19 15:05:17 7aBº|({5    3KI23 191455Z AUTO 21009KT 10SM CLR 10/M00 A3026 RMK AO1KI232018-10-19T14:55:00Z39.57-83.4210.00.0210910.030.259842TRUETRUEVFRMETAR299.02018-10-19 15:05:17Kº{) 5    3KI68 191455Z AUTO 19008KT 10SM CLR 09/04 A3026 RMK AO1 T00940036KI682018-10-19T14:55:00Z39.47-84.259.43.6190810.030.259842TRUETRUEVFRMETAR274.02018-10-19 15:05:17Pºz)5    3KIJX 191455Z AUTO 21010KT 10SM OVC060 10/03 A3017 RMK AO2 T01030031KIJX2018-10-19T14:55:00Z39.77-90.2510.33.12101010.030.171259TRUETRUEVFRMETAR190.02018-10-19 15:05:17Cºy(5    3KIMM 191455Z AUTO 10009KT 10SM FEW025 31/23 A3017 RMK A01KIMM2018-10-19T14:55:00Z26.43-81.431.023.0100910.030.171259TRUETRUEVFRMETAR12.02018-10-19 15:05:17 ;j8»(q5   3KGZL 191455Z AUTO 09003KT 10SM 11/08 A3028 RMK AO2KGZL2018-10-19T14:55:00Z35.28-95.111.08.090310.030.280512TRUETRUEMETAR183.02018-10-19 15:05:17@»(y5    3KGZS 191455Z AUTO VRB04KT 10SM CLR 14/10 A3027 RMK A01KGZS2018-10-19T14:55:00Z35.15-87.0514.010.00410.030.268702TRUETRUEVFRMETAR209.02018-10-19 15:05:17Mº) 5    3KHHG 191455Z AUTO 22010KT 10SM CLR 10/01 A3017 RMK AO2 T01040006KHHG2018-10-19T14:55:00Z40.85-85.4510.40.62201010.030.171259TRUETRUEVFRMETAR246.02018-10-19 15:05:17Kº~) 5    3KHLX 191455Z AUTO 21005KT 10SM CLR 11/05 A3033 RMK AO2 T01090053KHLX2018-10-19T14:55:00Z36.77-80.8210.95.3210510.030.33071TRUETRUEVFRMETAR834.02018-10-19 15:05:17?º}(y5    3KHZD 191455Z AUTO 00000KT 10SM CLR 13/08 A3026 RMK A01KHZD2018-10-19T14:55:00Z36.08-88.4713.08.00010.030.259842TRUETRUEVFRMETAR151.02018-10-19 15:05:17 6]A»(}5     3KGCY 191455Z AUTO 00000KT 6SM HZ CLR 13/07 A3032 RMK A01KGCY2018-10-19T14:55:00Z36.2-82.8213.07.0006.030.318897TRUETRUEHZVFRMETAR490.02018-10-19 15:05:17?»(y5    3KGKT 191455Z AUTO 00000KT 10SM CLR 11/09 A3032 RMK A01KGKT2018-10-19T14:55:00Z35.85-83.5311.09.00010.030.318897TRUETRUEVFRMETAR309.02018-10-19 15:05:17S»)5   3KGRN 191455Z AUTO 33013G19KT 10SM CLR 11/01 A3021 RMK AO2 T01060007KGRN2018-10-19T14:55:00Z42.8-102.1710.60.7330131910.030.209646TRUETRUEVFRMETAR1086.02018-10-19 15:05:17D»(5    3KGVT 191455Z AUTO 00000KT 10SM OVC024 16/12 A3025 RMK AO2KGVT2018-10-19T14:55:00Z33.07-96.0716.012.00010.030.250984TRUETRUEMVFRMETAR163.02018-10-19 15:05:17 8Q{E» )5    3KFOT 191455Z AUTO 00000KT 1/4SM OVC002 08/08 A3021 RMK AO1KFOT2018-10-19T14:55:00Z40.55-124.138.08.0000.2530.209646TRUETRUELIFRMETAR120.02018-10-19 15:05:17P») 5     3KFTN 191455Z AUTO 32005KT 9SM OVC004 15/15 A3020 RMK A01 P0001KFTN2018-10-19T14:55:00Z28.22-100.0215.015.032059.030.200787TRUETRUELIFR0.01METAR236.02018-10-19 15:05:17a»)35      3KFWB 191455Z AUTO 28003KT 2 1/2SM RA FEW028 FEW035 SCT041 09/09 A3027 RMK AO2 P0008KFWB2018-10-19T14:55:00Z36.7-93.49.09.028032.530.268702TRUETRUERAIFR0.08METAR406.02018-10-19 15:05:17B»(y5    3KFYM 191455Z AUTO 17009KT 10SM CLR 17/11 A3027 RMK A01KFYM2018-10-19T14:55:00Z35.07-86.5717.011.0170910.030.268702TRUETRUEVFRMETAR300.02018-10-19 15:05:17 1na» )'5     3KETB 191455Z AUTO 23010G14KT 10SM -RA SCT065 OVC090 08/05 A2998 RMK AO2 P0001KETB2018-10-19T14:55:00Z43.42-88.138.05.0230101410.029.97933TRUETRUE-RAVFR0.01METAR270.02018-10-19 15:05:17M» )5    3KEZM 191455Z AUTO 06006KT 10SM OVC050 19/12 A3033 RMK AO2 T01900115KEZM2018-10-19T14:55:00Z32.22-83.1319.011.560610.030.33071TRUETRUEVFRMETAR93.02018-10-19 15:05:17=» (w5    3KFCH 191455Z AUTO 00000KT 8SM CLR 12/07 A3013 RMK A01KFCH2018-10-19T14:55:00Z36.72-119.8212.07.0008.030.129921TRUETRUEVFRMETAR85.02018-10-19 15:05:17I» ) 5    3KFKN 191455Z AUTO 19005KT 10SM CLR 15/05 A3039 RMK AO2 T01450045KFKN2018-10-19T14:55:00Z36.7-76.914.54.5190510.030.389763TRUETRUEVFRMETAR12.02018-10-19 15:05:17 .XF») 5    3KEFK 191455Z AUTO 19009KT 10SM CLR 07/01 A3000 RMK AO2 T00740005KEFK2018-10-19T14:55:00Z44.88-72.237.40.5190910.030.0TRUETRUEVFRMETAR284.02018-10-19 15:05:17D»(}5    3KEKS 191455Z AUTO 00000KT 10SM CLR M02/M04 A3045 RMK AO2KEKS2018-10-19T14:55:00Z45.27-111.65-2.0-4.00010.030.448818TRUETRUEVFRMETAR1641.02018-10-19 15:05:17P»)5    3KELK 191455Z AUTO 22008KT 10SM OVC003 12/12 A3021 RMK AO2 T01190115KELK2018-10-19T14:55:00Z35.43-99.411.911.5220810.030.209646TRUETRUELIFRMETAR610.02018-10-19 15:05:17L»)5   3KEQA 191455Z AUTO 21010G15KT 10SM OVC005 12/11 A3017 RMK AO2KEQA2018-10-19T14:55:00Z37.78-96.8212.011.0210101510.030.171259TRUETRUEIFRMETAR420.02018-10-19 15:05:17 >ik»)35      3KDUC 191455Z AUTO 17004KT 10SM -RA OVC003 12/12 A3027 RMK AO2 P0002 T01230120 60030KDUC2018-10-19T14:55:00Z34.47-97.9712.312.0170410.030.268702TRUETRUE-RALIFR0.020.3METAR339.02018-10-19 15:05:17V»)!5    3KE38 191455Z AUTO 00000KT 10SM BKN002 OVC009 09/09 A3035 RMK AO2 T00860085KE382018-10-19T14:55:00Z30.38-103.688.68.50010.030.351377TRUETRUELIFRMETAR1376.02018-10-19 15:05:17O»)5    3KEBG 191455Z AUTO 32008KT 10SM OVC007 18/16 A3014 RMK AO2 T01810160KEBG2018-10-19T14:55:00Z26.45-98.1318.116.0320810.030.138779TRUETRUEIFRMETAR24.02018-10-19 15:05:17<»(w5    3KEDU 191455Z AUTO 00000KT 8SM CLR 08/03 A3014 RMK AO1KEDU2018-10-19T14:55:00Z38.53-121.788.03.0008.030.138779TRUETRUEVFRMETAR21.02018-10-19 15:05:17 <wo»)?5    3PAIM 191455Z AUTO 13010KT 090V150 10SM FEW016 00/M01 A2966 RMK AO2 SLP061 T00011008 58036PAIM2018-10-19T14:55:00Z66.0-153.70.1-0.81301010.029.6604331006.1TRUETRUEVFR-3.6METAR389.02018-10-19 15:05:17d»)/5    3RJOI 191455Z 30005KT 9999 BKN080 15/11 A3015 RMK SLP209 T01500106 402170150 51007RJOI2018-10-19T14:55:00Z34.13132.2215.010.630056.2130.150591020.9VFR0.721.715.0METAR2.02018-10-19 15:05:17?»)5   3TXKF 191455Z 03014KT 360V060 9999 SCT041 BKN072 22/13 Q1024 TXKF2018-10-19T14:55:00Z32.37-64.6822.013.030146.2130.236221VFRMETAR6.02018-10-19 15:05:17>»(y5    3KDTA 191455Z AUTO 00000KT 10SM CLR 03/00 A3042 RMK AO1KDTA2018-10-19T14:55:00Z39.38-112.53.00.00010.030.41929TRUETRUEVFRMETAR1402.02018-10-19 15:05:17  7jd»)75     3KPCZ 191455Z AUTO 21009KT 10SM -RA SCT043 BKN070 OVC090 12/06 A2989 RMK AO2 T01200060KPCZ2018-10-19T14:55:00Z44.33-89.0212.06.0210910.029.890747TRUETRUE-RAVFRMETAR252.02018-10-19 15:05:17G»(5   3KHCO 191455Z AUTO 32016G22KT 10SM CLR 10/02 A2983 RMK AO2KHCO2018-10-19T14:55:00Z48.75-96.9310.02.0320162210.029.828741TRUETRUEVFRMETAR250.02018-10-19 15:05:17O»)5    3PACZ 191455Z 07013KT 10SM OVC070 06/03 A2947 RMK AO2A SLP983 5////PACZ2018-10-19T14:55:00Z61.78-166.036.03.0701310.029.471457998.3TRUEVFRMETAR146.02018-10-19 15:05:17n»)95     3PAEH 191455Z AUTO VRB04KT 10SM BKN018 06/03 A2943 RMK AO2 SLP968 60001 T00560032 57017PAEH2018-10-19T14:55:00Z58.65-162.075.63.20410.029.430119996.8TRUETRUEMVFR-1.70.01METAR161.02018-10-19 15:05:17 :mI»!)5     3KMBO 191455Z AUTO 00000KT 10SM CLR 19/12 A3024 RMK AO2 PWINOKMBO2018-10-19T14:55:00Z32.43-90.119.012.00010.030.239174TRUETRUETRUEVFRMETAR99.02018-10-19 15:05:17G» (5   3KBBB 191455Z AUTO 35018G23KT 10SM CLR 12/05 A2984 RMK AO2KBBB2018-10-19T14:55:00Z45.32-95.6512.05.0350182310.029.840551TRUETRUEVFRMETAR317.02018-10-19 15:05:17G»(5   3KBDH 191455Z AUTO 27012G19KT 10SM CLR 13/08 A2982 RMK AO2KBDH2018-10-19T14:55:00Z45.12-95.1313.08.0270121910.029.819881TRUETRUEVFRMETAR247.02018-10-19 15:05:17@»(y5    3KAXV 191455Z AUTO 19010KT 10SM CLR 10/02 A3022 RMK AO2KAXV2018-10-19T14:55:00Z40.5-84.310.02.01901010.030.221457TRUETRUEVFRMETAR279.02018-10-19 15:05:17 <aB»%(}5     3KDCM 191455Z AUTO 00000KT 5SM HZ CLR 15/07 A3037 RMK AO2KDCM2018-10-19T14:55:00Z34.78-81.215.07.0005.030.369095TRUETRUEHZMVFRMETAR200.02018-10-19 15:05:17U»$)5    3KLRY 191455Z AUTO 22010KT 10SM SCT015 BKN070 OVC095 13/10 A3019 RMK AO2KLRY2018-10-19T14:55:00Z38.62-94.3513.010.02201010.030.188976TRUETRUEVFRMETAR279.02018-10-19 15:05:17U»#)5   3KLUM 191455Z AUTO 21017G22KT 10SM OVC018 10/06 A2979 RMK AO2 T01010064KLUM2018-10-19T14:55:00Z44.9-91.8710.16.4210172210.029.790354TRUETRUEMVFRMETAR273.02018-10-19 15:05:17>»"(y5    3KLUX 191455Z AUTO 00000KT 10SM CLR 15/07 A3037 RMK AO2KLUX2018-10-19T14:55:00Z34.5-81.9515.07.00010.030.369095TRUETRUEVFRMETAR213.02018-10-19 15:05:17 &FvA»)(}5    3KJFX 191455Z AUTO 00000KT 10SM 18/14 A3029 RMK AO2 PWINOKJFX2018-10-19T14:55:00Z33.9-87.3218.014.00010.030.28937TRUETRUETRUEMETAR148.02018-10-19 15:05:17J»() 5    3KPSO 191455Z AUTO 00000KT 10SM CLR 04/01 A3042 RMK AO2 T00400007KPSO2018-10-19T14:55:00Z37.28-107.054.00.70010.030.41929TRUETRUEVFRMETAR2334.02018-10-19 15:05:17Z»')5     3KPTS 191455Z AUTO 20009KT 10SM OVC006 12/12 A3022 RMK AO2 P0002 T01190118KPTS2018-10-19T14:55:00Z37.45-94.7311.911.8200910.030.221457TRUETRUEIFR0.02METAR290.02018-10-19 15:05:17T»&)5   3KRCX 191455Z AUTO 21012G16KT 10SM OVC015 11/09 A2977 RMK AO2 T01100090KRCX2018-10-19T14:55:00Z45.5-91.011.09.0210121610.029.769686TRUETRUEMVFRMETAR377.02018-10-19 15:05:17 Nzb»-)/5    3KDLL 191455Z AUTO 21012G21KT 10SM -DZ BKN080 OVC090 10/06 A2993 RMK AO2 T00960061KDLL2018-10-19T14:55:00Z43.52-89.779.66.1210122110.029.929134TRUETRUE-DZVFRMETAR299.02018-10-19 15:05:17N»,) 5  3KFMM 191455Z AUTO 33017G25KT 10SM 13/M01 A3028 RMK AO2 T01271014KFMM2018-10-19T14:55:00Z40.33-103.812.7-1.4330172510.030.280512TRUETRUEMETAR1393.02018-10-19 15:05:17@»+(y5    3KHVS 191455Z AUTO 11005KT 10SM CLR 16/08 A3036 RMK AO2KHVS2018-10-19T14:55:00Z34.4-80.1216.08.0110510.030.360237TRUETRUEVFRMETAR111.02018-10-19 15:05:17f»*)55      3KIIB 191455Z AUTO 18008KT 10SM -RA BKN044 OVC050 10/08 A2997 RMK AO2 P0003 T00960084KIIB2018-10-19T14:55:00Z42.45-91.959.68.4180810.029.970472TRUETRUE-RAVFR0.03METAR298.02018-10-19 15:05:17 -XyL»1) 5     3KAIB 191455Z AUTO 00000KT M1/4SM FG OVC001 02/01 A3047 RMK AO2KAIB2018-10-19T14:55:00Z38.23-108.572.01.0000.2530.469488TRUETRUEFGLIFRMETAR1811.02018-10-19 15:05:17Y»0)5     3KAJZ 191455Z AUTO 00000KT 10SM OVC017 06/03 A3045 RMK AO2 T00560029 PWINOKAJZ2018-10-19T14:55:00Z38.78-108.075.62.90010.030.448818TRUETRUETRUEMVFRMETAR1583.02018-10-19 15:05:17O»/) 5    3KALM 191455Z AUTO 33003KT 10SM FEW021 BKN095 11/11 A3030 RMK AO2KALM2018-10-19T14:55:00Z32.82-105.9711.011.0330310.030.301182TRUETRUEVFRMETAR1279.02018-10-19 15:05:17M».)5    3KANK 191455Z AUTO 00000KT 10SM CLR 05/M01 A3052 RMK AO1 T00541009KANK2018-10-19T14:55:00Z38.53-106.055.4-0.90010.030.519686TRUETRUEVFRMETAR2293.02018-10-19 15:05:17 x:Puxw»5)G5     3K2P2 191455Z AUTO 22014G22KT 10SM -RA BKN095 OVC110 10/08 A2981 RMK AO2 P0001 60001 T01020075K2P22018-10-19T14:55:00Z45.38-86.9210.27.5220142210.029.811024TRUETRUE-RAVFR0.010.01METAR199.02018-10-19 15:05:17U»4)5   3K4R5 191455Z AUTO 22011G18KT 10SM SCT095 13/08 A2961 RMK AO2 T01270075K4R52018-10-19T14:55:00Z46.78-90.7712.77.5220111810.029.610237TRUETRUEVFRMETAR198.02018-10-19 15:05:17d»3)75     3K82C 191455Z AUTO 20005KT 10SM -RA SCT080 BKN090 OVC110 10/08 A2989 RMK AO2 T01040076K82C2018-10-19T14:55:00Z43.83-90.1310.47.6200510.029.890747TRUETRUE-RAVFRMETAR276.02018-10-19 15:05:17@»2(w5  3K96D 191455Z AUTO 32018G24KT 10SM 10/10 A2988 RMK AO2K96D2018-10-19T14:55:00Z48.93-97.910.010.0320182410.029.878937TRUETRUEMETAR290.02018-10-19 15:05:17 2QB»9({5    3KBDN 191455Z AUTO 17005KT 10SM CLR 03/M06 A3034 RMK AO2KBDN2018-10-19T14:55:00Z44.1-121.23.0-6.0170510.030.339567TRUETRUEVFRMETAR1055.02018-10-19 15:05:17@»8(y5    3KBRY 191455Z AUTO 20003KT 10SM CLR 10/05 A3026 RMK AO1KBRY2018-10-19T14:55:00Z37.82-85.510.05.0200310.030.259842TRUETRUEVFRSPECI204.02018-10-19 15:05:17[»7)!5    3KC35 191455Z AUTO 21010G17KT 10SM -RA OVC090 10/07 A2993 RMK AO2 T00990069KC352018-10-19T14:55:00Z43.53-89.989.96.9210101710.029.929134TRUETRUE-RAVFRMETAR276.02018-10-19 15:05:17H»6) 5    3KCCA 191455Z AUTO 00000KT 10SM BKN045 OVC075 11/08 A3029 RMK AO2KCCA2018-10-19T14:55:00Z35.6-92.4511.08.00010.030.28937TRUETRUEVFRSPECI157.02018-10-19 15:05:17 VC»=(y5    3KMDS 191455Z AUTO 29014KT 10SM CLR 11/10 A2990 RMK AO2KMDS2018-10-19T14:55:00Z44.02-97.0811.010.02901410.029.899607TRUETRUEVFRMETAR524.02018-10-19 15:05:17A»<(y5    3KMQJ 191455Z AUTO 19010KT 10SM CLR 10/05 A3022 RMK AO1KMQJ2018-10-19T14:55:00Z39.85-85.910.05.01901010.030.221457TRUETRUEVFRMETAR263.02018-10-19 15:05:17@»;(y5    3KMNI 191455Z AUTO 04005KT 10SM CLR 16/10 A3034 RMK AO2KMNI2018-10-19T14:55:00Z33.58-80.2216.010.040510.030.339567TRUETRUEVFRMETAR32.02018-10-19 15:05:17^»:))5   3KARV 191455Z AUTO 22013G21KT 180V250 10SM OVC015 11/09 A2972 RMK AO2 T01100086KARV2018-10-19T14:55:00Z45.92-89.7211.08.6220132110.029.719488TRUETRUEMVFRMETAR496.02018-10-19 15:05:17 &4iF»A(5   3KSAZ 191455Z AUTO 30012G17KT 10SM CLR 10/04 A2975 RMK AO2KSAZ2018-10-19T14:55:00Z46.37-94.810.04.0300121710.029.749016TRUETRUEVFRMETAR392.02018-10-19 15:05:17E»@)5    3KHZL 191455Z AUTO 24004KT 10SM CLR 11/00 A3027 RMK AO2 PNOKHZL2018-10-19T14:55:00Z40.98-76.011.00.0240410.030.268702TRUETRUEVFRMETAR489.02018-10-19 15:05:17l»?)55     3KISQ 191455Z AUTO 21011G19KT 4SM UP OVC075 08/05 A2977 RMK AO2 P0003 60003 T00800050KISQ2018-10-19T14:55:00Z45.97-86.178.05.021011194.029.769686TRUETRUEUPMVFR0.030.03METAR209.02018-10-19 15:05:17T»>)5   3KLDM 191455Z AUTO 21015G23KT 10SM SCT120 13/07 A2995 RMK AO2 T01250072KLDM2018-10-19T14:55:00Z43.97-86.412.57.2210152310.029.949802TRUETRUEVFRMETAR197.02018-10-19 15:05:17 :tK»E)5   3KAUM 191455Z AUTO 23012G16KT 10SM OVC009 10/08 A2988 RMK AO2KAUM2018-10-19T14:55:00Z43.67-92.9210.08.0230121610.029.878937TRUETRUEIFRMETAR375.02018-10-19 15:05:17S»D)5   3KRGK 191455Z AUTO 24014G21KT 10SM BKN028 OVC090 13/08 A2980 RMK AO2KRGK2018-10-19T14:55:00Z44.58-92.4813.08.0240142110.029.799213TRUETRUEMVFRMETAR239.02018-10-19 15:05:17@»C(y5    3KROX 191455Z AUTO 30012KT 10SM CLR 09/03 A2977 RMK AO2KROX2018-10-19T14:55:00Z48.85-95.79.03.03001210.029.769686TRUETRUEVFRMETAR323.02018-10-19 15:05:17@»B(y5    3KRZT 191455Z AUTO 16004KT 10SM CLR 07/02 A3027 RMK AO2KRZT2018-10-19T14:55:00Z39.43-83.027.02.0160410.030.268702TRUETRUEVFRMETAR221.02018-10-19 15:05:17 (MN»I)5    3KTEW 191455Z AUTO 23009KT 10SM CLR 11/M01 A3010 RMK AO2 T01121010KTEW2018-10-19T14:55:00Z42.57-84.4211.2-1.0230910.030.100393TRUETRUEVFRMETAR280.02018-10-19 15:05:17A»H(y5    3KSYM 191455Z AUTO 15004KT 10SM CLR 11/04 A3028 RMK AO2KSYM2018-10-19T14:55:00Z38.22-83.5811.04.0150410.030.280512TRUETRUEVFRMETAR313.02018-10-19 15:05:17U»G)5   3KCAD 191455Z AUTO 23013G20KT 10SM SCT120 10/06 A2993 RMK AO2 T01040062KCAD2018-10-19T14:55:00Z44.27-85.4210.46.2230132010.029.929134TRUETRUEVFRMETAR398.02018-10-19 15:05:17R»F)5   3KBAX 191455Z AUTO 22012G23KT 10SM CLR 11/03 A2999 RMK AO2 T01110034KBAX2018-10-19T14:55:00Z43.78-82.9811.13.4220122310.029.991142TRUETRUEVFRMETAR234.02018-10-19 15:05:17 7bb»M)'5    3KWWD 191455Z AUTO 25010KT 10SM CLR 14/02 A3035 RMK AO2 SLP279 T01390017 58009KWWD2018-10-19T14:55:00Z39.02-74.9213.91.72501010.030.3513771027.9TRUETRUEVFR-0.9METAR7.02018-10-19 15:05:17F»L(5   3KVVV 191455Z AUTO 32014G18KT 10SM CLR 11/04 A2986 RMK AO2KVVV2018-10-19T14:55:00Z45.3-96.4211.04.0320141810.029.861221TRUETRUEVFRMETAR335.02018-10-19 15:05:17O»K)5    3KVLL 191455Z AUTO 22011KT 10SM CLR 11/M01 A3012 RMK AO2 T01061011KVLL2018-10-19T14:55:00Z42.55-83.1810.6-1.12201110.030.121063TRUETRUEVFRMETAR222.02018-10-19 15:05:17C»J(5   3KUKT 191455Z AUTO 00000G11KT 10SM CLR 11/02 A3029 RMK A01KUKT2018-10-19T14:55:00Z40.43-75.3811.02.0001110.030.28937TRUETRUEVFRMETAR160.02018-10-19 15:05:17 )VP»Q)5   3KOGS 191455Z AUTO 20017G20KT 10SM CLR 12/06 A2998 RMK AO2 T01200055KOGS2018-10-19T14:55:00Z44.67-75.4712.05.5200172010.029.97933TRUETRUEVFRMETAR91.02018-10-19 15:05:17M»P) 5    3KD95 191455Z AUTO 25010KT 10SM CLR 13/01 A3006 RMK AO2 T01260011KD952018-10-19T14:55:00Z43.07-83.2712.61.12501010.030.059055TRUETRUEVFRMETAR255.02018-10-19 15:05:17M»O) 5    3KCFS 191455Z AUTO 22013KT 10SM CLR 11/02 A3003 RMK AO2 T01140023KCFS2018-10-19T14:55:00Z43.47-83.4511.42.32201310.030.029528TRUETRUEVFRMETAR214.02018-10-19 15:05:17Q»N)5   3KY31 191455Z AUTO 23009G15KT 10SM CLR 11/06 A2994 RMK AO2 T01070055KY312018-10-19T14:55:00Z44.25-84.1810.75.523091510.029.940945TRUETRUEVFRMETAR269.02018-10-19 15:05:17 E[»U)'5   3KERY 191455Z AUTO 21015G23KT 10SM BKN065 OVC110 11/07 A2973 RMK AO2 T01100069KERY2018-10-19T14:55:00Z46.3-85.4511.06.9210152310.029.731298TRUETRUEVFRMETAR265.02018-10-19 15:05:17@»T(y5    3KDLZ 191455Z AUTO 19005KT 10SM CLR 08/00 A3024 RMK AO2KDLZ2018-10-19T14:55:00Z40.28-83.128.00.0190510.030.239174TRUETRUEVFRMETAR289.02018-10-19 15:05:17K»S)5   3KDYT 191455Z AUTO 23019G25KT 10SM SCT032 14/08 A2963 RMK AO2KDYT2018-10-19T14:55:00Z46.72-92.0314.08.0230192510.029.630905TRUETRUEVFRMETAR186.02018-10-19 15:05:17d»R)55   3KRNH 191455Z AUTO 22015G19KT 10SM SCT015 SCT020 BKN026 12/08 A2977 RMK AO2 T01160080KRNH2018-10-19T14:55:00Z45.15-92.5311.68.0220151910.029.769686TRUETRUEMVFRMETAR304.02018-10-19 15:05:17 "3fW»Y)/5    3EHAK 191455Z AUTO 19018KT 9999 FEW025/// SCT029/// BKN045/// 13/08 Q1023 W///H///EHAK2018-10-19T14:55:00Z55.423.8213.08.0190186.2130.206694TRUEVFRMETAR50.02018-10-19 15:05:17G»X(5   3KHYX 191455Z AUTO 22012G17KT 10SM CLR 11/01 A3003 RMK AO2KHYX2018-10-19T14:55:00Z43.43-83.8711.01.0220121710.030.029528TRUETRUEVFRMETAR183.02018-10-19 15:05:17i»W)35      3KRYV 191455Z AUTO 20007KT 10SM -DZ OVC080 08/07 A2999 RMK AO2 P0005 60005 T00750071KRYV2018-10-19T14:55:00Z43.17-88.727.57.1200710.029.991142TRUETRUE-DZVFR0.050.05METAR254.02018-10-19 15:05:17X»V)5   3KRPD 191455Z AUTO 20011G18KT 10SM OVC023 12/M01 A2976 RMK AO2 T01231010KRPD2018-10-19T14:55:00Z45.42-91.7712.3-1.0200111810.029.760826TRUETRUEMVFRMETAR338.02018-10-19 15:05:17 (WY»])5     3KHSP 191455Z AUTO 27010KT 1/2SM HZ VV005 10/05 A3030 RMK AO2 T01010047KHSP2018-10-19T14:55:00Z37.95-79.8210.14.7270100.530.301182TRUETRUEHZLIFR500METAR1156.02018-10-19 15:05:17L»\)5    3KI35 191455Z AUTO 00000KT 10SM SCT001 07/05 A3032 RMK AO2 T00660054KI352018-10-19T14:55:00Z36.87-83.376.65.40010.030.318897TRUETRUEVFRMETAR473.02018-10-19 15:05:17K»[) 5    3KHMZ 191455Z AUTO 13003KT 10SM CLR 08/01 A3028 RMK AO2 T00810014KHMZ2018-10-19T14:55:00Z40.08-78.528.11.4130310.030.280512TRUETRUEVFRMETAR354.02018-10-19 15:05:17R»Z)5    3KHSB 191455Z AUTO 20003KT 10SM CLR 11/06 A3027 RMK AO2 6//// T01060059KHSB2018-10-19T14:55:00Z37.82-88.5510.65.9200310.030.268702TRUETRUEVFRMETAR121.02018-10-19 15:05:17 :ZL»a)5    3KJAQ 191455Z AUTO 00000KT 10SM CLR 17/M01 A3016 RMK AO1 T01671008KJAQ2018-10-19T14:55:00Z38.37-120.816.7-0.80010.030.159449TRUETRUEVFRMETAR512.02018-10-19 15:05:17O»`)5    3KIGQ 191455Z AUTO 21011KT 10SM SCT120 09/01 A3013 RMK AO2 T00880010KIGQ2018-10-19T14:55:00Z41.53-87.538.81.02101110.030.129921TRUETRUEVFRMETAR188.02018-10-19 15:05:17Z»_)5     3KINJ 191455Z AUTO 36003KT 10SM OVC018 15/15 A3023 RMK AO2 60012 T01500150KINJ2018-10-19T14:55:00Z32.08-97.115.015.0360310.030.230314TRUETRUEMVFR0.12METAR209.02018-10-19 15:05:17@»^(y5    3KI67 191455Z AUTO 18004KT 10SM CLR 08/02 A3025 RMK AO1KI672018-10-19T14:55:00Z39.25-84.788.02.0180410.030.250984TRUETRUEVFRMETAR178.02018-10-19 15:05:17 Un»e)15   3KCNK 191455Z AUTO 24011G21KT 10SM CLR 14/09 A3010 RMK AO2 SLP189 T01390094 53001 $KCNK2018-10-19T14:55:00Z39.55-97.6513.99.4240112110.030.1003931018.9TRUETRUETRUEVFR0.1METAR447.02018-10-19 15:05:17I»d)5   3KCOQ 191455Z AUTO 23012G15KT 10SM SCT027 12/06 A2965 RMK AO2KCOQ2018-10-19T14:55:00Z46.7-92.512.06.0230121510.029.648623TRUETRUEVFRMETAR390.02018-10-19 15:05:17=»c(y5    3KCVH 191455Z AUTO 00000KT 10SM CLR 07/03 A3014 RMK A01KCVH2018-10-19T14:55:00Z36.9-121.427.03.00010.030.138779TRUETRUEVFRMETAR70.02018-10-19 15:05:17b»b)55   3KCVX 191455Z AUTO 22012G19KT 10SM BKN080 BKN095 OVC110 12/07 A2987 RMK AO2 T01160066KCVX2018-10-19T14:55:00Z45.3-85.2711.66.6220121910.029.870079TRUETRUEVFRMETAR204.02018-10-19 15:05:17 $\oG»i(5   3KPHN 191455Z AUTO 21012G18KT 10SM CLR 11/00 A3008 RMK AO2KPHN2018-10-19T14:55:00Z42.92-82.5211.00.0210121810.030.079725TRUETRUEVFRMETAR198.02018-10-19 15:05:17g»h)-5   3KPHP 191455Z AUTO 32016G24KT 10SM CLR 10/02 A3015 RMK AO2 SLP208 T01000017 53044KPHP2018-10-19T14:55:00Z44.05-101.610.01.7320162410.030.150591020.8TRUETRUEVFR4.4METAR672.02018-10-19 15:05:17B»g(y5    3KCKN 191455Z AUTO 33013KT 10SM CLR 10/03 A2984 RMK AO2KCKN2018-10-19T14:55:00Z47.85-96.6210.03.03301310.029.840551TRUETRUEVFRMETAR273.02018-10-19 15:05:17V»f)5    3KCMA 191455Z 00000KT 10SM CLR 17/01 A3003 RMK AO2 SLP177 T01670011 53009KCMA2018-10-19T14:55:00Z34.22-119.116.71.10010.030.0295281017.7TRUEVFR0.9METAR23.02018-10-19 15:05:17 )\P»m)5    3KONZ 191455Z AUTO 24006KT 10SM CLR 09/01 A3013 RMK AO2 6//// T00870011KONZ2018-10-19T14:55:00Z42.1-83.158.71.1240610.030.129921TRUETRUEVFRMETAR180.02018-10-19 15:05:17Q»l)5   3KOSC 191455Z AUTO 23013G18KT 10SM CLR 13/06 A2993 RMK AO2 T01260058KOSC2018-10-19T14:55:00Z44.45-83.412.65.8230131810.029.929134TRUETRUEVFRMETAR193.02018-10-19 15:05:17G»k(5   3KOVL 191455Z AUTO 27015G20KT 10SM CLR 13/07 A2980 RMK AO2KOVL2018-10-19T14:55:00Z44.78-95.0313.07.0270152010.029.799213TRUETRUEVFRMETAR328.02018-10-19 15:05:17Q»j)5   3KOZW 191455Z AUTO 23008G14KT 10SM CLR 10/00 A3009 RMK AO2 T01010002KOZW2018-10-19T14:55:00Z42.62-83.9710.10.223081410.030.088583TRUETRUEVFRMETAR293.02018-10-19 15:05:17 h+IPhb»q)'5    3KMVL 191454Z AUTO 20015KT 10SM CLR 08/01 A3002 RMK AO2 SLP173 T00830011 58020KMVL2018-10-19T14:54:00Z44.53-72.628.31.12001510.030.020671017.3TRUETRUEVFR-2.0METAR234.02018-10-19 15:05:17s»p)E5    3KWLD 191454Z AUTO 18009KT 10SM OVC007 12/12 A3020 RMK AO2 CIG 006V012 SLP227 T01170117 55004KWLD2018-10-19T14:54:00Z37.17-97.0311.711.7180910.030.2007871022.7TRUETRUEIFR-0.4SPECI350.02018-10-19 15:05:17\»o)#5    3KGSO 191454Z 25008KT 10SM FEW250 14/06 A3036 RMK AO2 SLP278 T01390061 58003KGSO2018-10-19T14:54:00Z36.1-79.9513.96.1250810.030.3602371027.8TRUEVFR-0.3METAR275.02018-10-19 15:05:17O»n)5    3KOEB 191455Z AUTO 24010KT 10SM CLR 11/M03 A3013 RMK AO2 T01051027KOEB2018-10-19T14:55:00Z41.92-85.0310.5-2.72401010.030.129921TRUETRUEVFRMETAR292.02018-10-19 15:05:17 ;;U»u)5   3MMCS 191454Z 02008KT 10SM OVC010 12/09 A3029 RMK SLP206 52013 967 8/5//MMCS2018-10-19T14:54:00Z31.62-106.4212.09.020810.030.289371020.6MVFR1.3METAR1171.02018-10-19 15:05:17v»t)a5    3CYCP 191454Z 00000KT 15SM VCFG FEW003 SCT140 BKN190 00/M00 A3039 RMK SF1AC3AC3 FU ALQDS VIS VLY E 2 SLP320CYCP2018-10-19T14:54:00Z52.13-119.280.00.00015.030.3897631032.0VCFGVFRSPECI683.02018-10-19 15:05:17U»s)5    3CYWY 191454Z 15010KT 1SM -SN BR OVC007 M01/M02 A3024 RMK SF8 SLP252CYWY2018-10-19T14:54:00Z63.22-123.42-1.0-2.0150101.030.2391741025.2-SN BRIFRSPECI150.02018-10-19 15:05:17 »r)c5       3PAHN 191454Z AUTO 10007KT 050V180 4SM RA OVC033 09/06 A2965 RMK AO2 SLP043 P0011 60032 T00890061 56055 TSNOPAHN2018-10-19T14:54:00Z59.25-135.528.96.110074.029.6486231004.3TRUETRUETRUERAMVFR-5.50.110.32METAR5.02018-10-19 15:05:17 6*(6l»y)15     3PHMK 191454Z AUTO 03006KT 10SM CLR 24/22 A2991 RMK AO2 SLP131 T02440217 55004 TSNOPHMK2018-10-19T14:54:00Z21.15-157.124.421.730610.029.9114171013.1TRUETRUETRUEVFR-0.4METAR141.02018-10-19 15:05:17|»x)S5     3PHOG 191454Z AUTO 04005KT 10SM FEW034 SCT046 BKN055 23/21 A2990 RMK AO2 SLP129 T02330211 55004 TSNOPHOG2018-10-19T14:54:00Z20.9-156.4323.321.140510.029.8996071012.9TRUETRUETRUEVFR-0.4METAR12.02018-10-19 15:05:17i»w)-5     3PGSN 191454Z 01004KT 10SM CLR 26/26 A2982 RMK AO2 SLP120 60001 T02560256 58010 $PGSN2018-10-19T14:54:00Z15.12145.7225.625.610410.029.8198811012.0TRUETRUEVFR-1.00.01METAR65.02018-10-19 15:05:17a»v)'5    3KBKB 191454Z AUTO 13004KT 10SM CLR 21/14 A3019 RMK AO2 SLP250 T02110139 50006KBKB2018-10-19T14:54:00Z31.0-92.9221.113.9130410.030.1889761025.0TRUETRUEVFR0.6METAR94.02018-10-19 15:05:17 j 7Qja»})'5    3KOFP 191454Z AUTO 19007KT 10SM CLR 16/06 A3037 RMK AO2 SLP285 T01560061 58008KOFP2018-10-19T14:54:00Z37.7-77.4315.66.1190710.030.3690951028.5TRUETRUEVFR-0.8METAR62.02018-10-19 15:05:17`»|))5     3KOLM 191454Z 00000KT 1/4SM FG VV002 05/05 A3029 RMK AO2 SLP257 T00500050 51011KOLM2018-10-19T14:54:00Z46.97-122.95.05.0000.2530.289371025.7TRUEFGLIFR1.1200METAR58.02018-10-19 15:05:17c»{)'5    3KOLS 191454Z AUTO 03006KT 10SM CLR 14/09 A3012 RMK AO2 SLP155 T01440094 53007KOLS2018-10-19T14:54:00Z31.42-110.8514.49.430610.030.1210631015.5TRUETRUEVFR0.7METAR1184.02018-10-19 15:05:17Z»z)5    3KPNE 191454Z 26010KT 10SM CLR 14/02 A3032 RMK AO2 SLP267 T01390017 58013KPNE2018-10-19T14:54:00Z40.08-75.0213.91.72601010.030.3188971026.7TRUEVFR-1.3METAR28.02018-10-19 15:05:17Y88@HPX`hpx (08@HPX`hpx (08@HPX`hpxKºkLºoMºsNºxOº|P»Q»R» S» T»U»V»KºkLºoMºsNºxOº|P»Q»R» S» T»U»V»W»X»!Y»%Z»)[»-\»1]»5^»9_»=`»Aa»Eb»Ic»Md»Qe»Uf»Yg»]h»ai»ej»ik»ml»qm»un»yo»}q¼r¼s¼ t¼ u¼v¼w¼x¼y¼!z¼%{¼)|¼-}¼1~¼5¼9¼=¼A¼E¼I¼M¼Q¼U¼Y¼]¼a¼e¼i¼m¼q¼u¼y¼|½½½½ ½½½½½½"½%½(½,½0½4½8½<½@½D½H C,Cc¼)'5    3KPHL 191454Z 25010KT 10SM SCT250 12/02 A3032 RMK AO2 SLP267 T01220017 58014 $KPHL2018-10-19T14:54:00Z39.87-75.2312.21.72501010.030.3188971026.7TRUETRUEVFR-1.4METAR18.02018-10-19 15:05:17d¼)15    3KPIA 191454Z 20007KT 10SM BKN060 OVC075 10/04 A3013 RMK AO2 SLP206 T01000044 56019KPIA2018-10-19T14:54:00Z40.67-89.6810.04.4200710.030.1299211020.6TRUEVFR-1.9METAR205.02018-10-19 15:05:17}»)W5   3KPLN 191454Z AUTO 23016G27KT 10SM FEW120 13/06 A2981 RMK AO2 PK WND 23027/1453 SLP098 T01330061 56024KPLN2018-10-19T14:54:00Z45.57-84.813.36.1230162710.029.8110241009.8TRUETRUEVFR-2.4METAR217.02018-10-19 15:05:17a»~)'5    3KPTW 191454Z AUTO 26008KT 10SM CLR 11/01 A3031 RMK AO2 SLP264 T01110011 58013KPTW2018-10-19T14:54:00Z40.23-75.5511.11.1260810.030.310041026.4TRUETRUEVFR-1.3METAR92.02018-10-19 15:05:17 }$Rm}j¼)-5    3KRSP 191454Z AUTO 23005KT 10SM CLR 10/M02 A3029 RMK AO2 SLP268 T01001017 58007 $KRSP2018-10-19T14:54:00Z39.65-77.4710.0-1.7230510.030.289371026.8TRUETRUETRUEVFR-0.7METAR561.02018-10-19 15:05:17_¼)#5   3KORH 191454Z 26017G23KT 10SM CLR 08/01 A3016 RMK AO2 SLP222 T00830006 58013KORH2018-10-19T14:54:00Z42.27-71.878.30.6260172310.030.1594491022.2TRUEVFR-1.3METAR304.02018-10-19 15:05:17L¼)5   3KOWA 191454Z AUTO 22011G19KT 10SM OVC013 11/09 A2984 RMK AO2KOWA2018-10-19T14:54:00Z44.12-93.2511.09.0220111910.029.840551TRUETRUEMVFRMETAR350.02018-10-19 15:05:17V¼)5    3KPHF 191454Z VRB04KT 10SM CLR 15/03 A3037 RMK AO2 SLP284 T01500033 58006KPHF2018-10-19T14:54:00Z37.13-76.515.03.30410.030.3690951028.4TRUEVFR-0.6METAR12.02018-10-19 15:05:17 )DvW¼ )5    3KNKT 191454Z 02004KT 10SM CLR 19/12 A3038 RMK AO2 SLP283 T01940117 58001KNKT2018-10-19T14:54:00Z34.9-76.8819.411.720410.030.3809051028.3TRUEVFR-0.1METAR9.02018-10-19 15:05:17H¼)5    3K1V4 191454Z AUTO 06/M01 A3004 RMK AO1 SLP181 T00611006 58019K1V42018-10-19T14:54:00Z44.42-72.026.1-0.630.0413381018.1TRUETRUE-1.9METAR210.02018-10-19 15:05:17_¼)+5    3K12N 191454Z AUTO 24009G15KT 210V280 09/00 A3026 RMK AO1 SLP253 T00940000 58016K12N2018-10-19T14:54:00Z41.02-74.739.40.024091530.2598421025.3TRUETRUE-1.6METAR177.02018-10-19 15:05:17Q¼)5    3KMTP 191454Z AUTO 26006KT 12/02 A3025 RMK AO1 SLP243 T01170022 58016KMTP2018-10-19T14:54:00Z41.07-71.9211.72.2260630.2509841024.3TRUETRUE-1.6METAR2.02018-10-19 15:05:17 b,_bw¼ )W5    3PTYA 191454Z VRB02KT 12SM FEW016 FEW130 BKN300 26/25 A2985 RMK SLP110 8/171 T02560245 403150253 58002PTYA2018-10-19T14:54:00Z9.48138.0825.624.50212.029.849411011.0VFR-0.231.525.3METAR17.02018-10-19 15:05:17G¼ (5   3KETH 191454Z AUTO 31014G21KT 10SM CLR 11/01 A2989 RMK AO2KETH2018-10-19T14:54:00Z45.78-96.5511.01.0310142110.029.890747TRUETRUEVFRMETAR313.02018-10-19 15:05:17c¼ ))5    3KPSF 191454Z AUTO 23004KT 10SM CLR 09/M01 A3015 RMK AO2 SLP211 T00891006 58014KPSF2018-10-19T14:54:00Z42.43-73.288.9-0.6230410.030.150591021.1TRUETRUEVFR-1.4METAR355.02018-10-19 15:05:17e¼ ))5    3KLWT 191454Z AUTO 13004KT 10SM CLR 05/M02 A3034 RMK AO2 SLP287 T00501017 51020KLWT2018-10-19T14:54:00Z47.03-109.475.0-1.7130410.030.3395671028.7TRUETRUEVFR2.0METAR1270.02018-10-19 15:05:17 L$-3La¼)'5    3KMIV 191454Z AUTO 25009KT 10SM CLR 13/02 A3033 RMK AO2 SLP271 T01330022 58011KMIV2018-10-19T14:54:00Z39.37-75.0813.32.2250910.030.330711027.1TRUETRUEVFR-1.1METAR23.02018-10-19 15:05:17t¼)C5    3KMKC 191454Z 21013G20KT 10SM FEW028 OVC036 14/09 A3013 RMK AO2 SLP202 60000 T01390089 57013KMKC2018-10-19T14:54:00Z39.12-94.613.98.9210132010.030.1299211020.2TRUEVFR-1.30.005METAR227.02018-10-19 15:05:17q¼)G5   3KMOT 191454Z 29019G27KT 10SM CLR 09/00 A3008 RMK AO2 PK WND 28029/1419 SLP194 T00890000 52034KMOT2018-10-19T14:54:00Z48.25-101.278.90.0290192710.030.0797251019.4TRUEVFR3.4METAR519.02018-10-19 15:05:17V¼)5    3KMRY 191454Z 16003KT 9SM CLR 09/07 A3012 RMK AO2 SLP211 T00940067 53007KMRY2018-10-19T14:54:00Z36.58-121.859.46.716039.030.1210631021.1TRUEVFR0.7METAR66.02018-10-19 15:05:17 %%Y¼)5    3KLYH 191454Z 19010KT 10SM CLR 12/07 A3033 RMK AO2 SLP273 T01220067 58008KLYH2018-10-19T14:54:00Z37.32-79.212.26.71901010.030.330711027.3TRUEVFR-0.8METAR295.02018-10-19 15:05:17c¼)15    3KMEM 191454Z 19003KT 10SM FEW150 BKN250 16/08 A3025 RMK AO2 SLP244 T01560083 58002KMEM2018-10-19T14:54:00Z35.07-89.9815.68.3190310.030.2509841024.4TRUEVFR-0.2METAR86.02018-10-19 15:05:17$¼) 5      3KMFI 191454Z AUTO 22013G19KT 5SM -RA BR FEW014 BKN047 OVC060 09/09 A2982 RMK AO2 RAB41 PRESFR SLP102 P0001 60010 T00940089 TSNOKMFI2018-10-19T14:54:00Z44.63-90.189.48.922013195.029.8198811010.2TRUETRUETRUE-RA BRMVFR0.010.1METAR389.02018-10-19 15:05:17c¼)'5    3KMGJ 191454Z AUTO 20011KT 10SM CLR 09/02 A3022 RMK AO2 SLP235 T00940017 56021KMGJ2018-10-19T14:54:00Z41.52-74.279.41.72001110.030.2214571023.5TRUETRUEVFR-2.1METAR108.02018-10-19 15:05:17 w!<]w`¼)'5    3KLBT 191454Z AUTO 05004KT 10SM CLR 18/10 A3036 RMK AO2 SLP281 T01830100 50001KLBT2018-10-19T14:54:00Z34.6-79.0718.310.050410.030.3602371028.1TRUETRUEVFR0.1METAR37.02018-10-19 15:05:17Y¼)5    3KLEX 191454Z 20005KT 10SM CLR 12/05 A3026 RMK AO2 SLP248 T01220050 57015KLEX2018-10-19T14:54:00Z38.03-84.612.25.0200510.030.2598421024.8TRUEVFR-1.5METAR300.02018-10-19 15:05:17_¼)#5   3KLNK 191454Z 23018G23KT 10SM CLR 14/09 A3005 RMK AO2 SLP172 T01440094 53000KLNK2018-10-19T14:54:00Z40.85-96.7714.49.4230182310.030.0501981017.2TRUEVFR0.0METAR364.02018-10-19 15:05:17Y¼)5    3KLWM 191454Z 24008KT 10SM CLR 11/01 A3017 RMK AO2 SLP216 T01060006 58023KLWM2018-10-19T14:54:00Z42.72-71.1310.60.6240810.030.1712591021.6TRUEVFR-2.3METAR54.02018-10-19 15:05:17 e 6Tei¼)/5   3KIZG 191454Z AUTO 24009G15KT 10SM CLR 08/M01 A3008 RMK AO2 SLP189 T00831011 58022KIZG2018-10-19T14:54:00Z43.98-70.958.3-1.124091510.030.0797251018.9TRUETRUEVFR-2.2METAR135.02018-10-19 15:05:17\¼)#5    3KJAN 191454Z 16003KT 10SM SCT250 20/12 A3025 RMK AO2 SLP240 T02000117 53006KJAN2018-10-19T14:54:00Z32.32-90.0820.011.7160310.030.2509841024.0TRUEVFR0.6METAR91.02018-10-19 15:05:17d¼))5    3KJST 191454Z AUTO 25006KT 10SM CLR 08/M01 A3025 RMK AO2 SLP257 T00781011 58009KJST2018-10-19T14:54:00Z40.32-78.837.8-1.1250610.030.2509841025.7TRUETRUEVFR-0.9METAR694.02018-10-19 15:05:17Z¼)5    3KLAF 191454Z 22006KT 10SM CLR 10/02 A3019 RMK AO2 SLP227 T01000022 58012KLAF2018-10-19T14:54:00Z40.42-86.9310.02.2220610.030.1889761022.7TRUEVFR-1.2METAR182.02018-10-19 15:05:17 A$A]¼!)#5    3KIND 191454Z 19013KT 10SM BKN140 10/01 A3022 RMK AO2 SLP236 T01000011 58017KIND2018-10-19T14:54:00Z39.72-86.310.01.11901310.030.2214571023.6TRUEVFR-1.7METAR241.02018-10-19 15:05:17Z¼ )5    3KINT 191454Z 19006KT 10SM CLR 14/05 A3037 RMK AO2 SLP283 T01390050 58002KINT2018-10-19T14:54:00Z36.13-80.2213.95.0190610.030.3690951028.3TRUEVFR-0.2METAR291.02018-10-19 15:05:17W¼)5    3KIPT 191454Z VRB03KT 10SM CLR 07/02 A3026 RMK AO2 SLP251 T00670022 58015KIPT2018-10-19T14:54:00Z41.25-76.926.72.20310.030.2598421025.1TRUEVFR-1.5METAR164.02018-10-19 15:05:17¼)w5      3KISW 191454Z AUTO 20008KT 10SM FEW028 SCT060 BKN075 11/05 A2988 RMK AO2 RAE37 SLP123 P0000 60000 T01060050 56025 TSNOKISW2018-10-19T14:54:00Z44.37-89.8310.65.0200810.029.8789371012.3TRUETRUETRUEVFR-2.50.0050.005METAR307.02018-10-19 15:05:17 & &]¼%)#5   3KSBN 191454Z 22014G21KT 10SM CLR 09/00 A3015 RMK AO2 SLP214 T00940000 56015KSBN2018-10-19T14:54:00Z41.7-86.329.40.0220142110.030.150591021.4TRUEVFR-1.5METAR237.02018-10-19 15:05:17X¼$)5    3KHWD 191454Z 07005KT 10SM CLR 12/07 A3013 RMK AO2 SLP212 T01170072 53007KHWD2018-10-19T14:54:00Z37.67-122.1211.77.270510.030.1299211021.2TRUEVFR0.7METAR21.02018-10-19 15:05:17b¼#)'5    3KILN 191454Z AUTO 20009KT 10SM CLR 10/01 A3024 RMK AO2 SLP257 T01000011 58021KILN2018-10-19T14:54:00Z39.43-83.810.01.1200910.030.2391741025.7TRUETRUEVFR-2.1METAR322.02018-10-19 15:05:17+¼")5     3KIMT 191454Z AUTO 20013G18KT 6SM -RA BR FEW016 BKN070 OVC080 11/09 A2972 RMK AO2 PK WND 22026/1400 SLP069 P0001 60001 T01060089 56031KIMT2018-10-19T14:54:00Z45.82-88.1210.68.920013186.029.7194881006.9TRUETRUE-RA BRVFR-3.10.010.01METAR349.02018-10-19 15:05:17 # #d¼)))5    3KRKS 191454Z AUTO 24007KT 10SM CLR 04/M02 A3045 RMK AO2 SLP302 T00441017 53021KRKS2018-10-19T14:54:00Z41.6-109.074.4-1.7240710.030.4488181030.2TRUETRUEVFR2.1METAR2060.02018-10-19 15:05:17Z¼()5    3KROA 191454Z 24007KT 10SM CLR 12/04 A3035 RMK AO2 SLP279 T01220039 58010KROA2018-10-19T14:54:00Z37.32-79.9712.23.9240710.030.3513771027.9TRUEVFR-1.0METAR362.02018-10-19 15:05:17j¼')75   3KROC 191454Z 25015G22KT 10SM SCT180 BKN250 13/06 A3007 RMK AO2 SLP189 T01330056 58022KROC2018-10-19T14:54:00Z43.12-77.6813.35.6250152210.030.0708661018.9TRUEVFR-2.2METAR178.02018-10-19 15:05:17¼&)5    3KRST 191454Z 22015G28KT 10SM OVC009 10/09 A2987 RMK AO2 PK WND 22028/1450 RAB16E27 CIG 007V011 SLP117 P0000 60001 T01000089 56009KRST2018-10-19T14:54:00Z43.9-92.510.08.9220152810.029.8700791011.7TRUEIFR-0.90.0050.01METAR403.02018-10-19 15:05:17 v<_vc¼-)'5    3KRBL 191454Z AUTO 33007KT 10SM CLR 12/01 A3014 RMK AO2 SLP206 T01170011 53013KRBL2018-10-19T14:54:00Z40.15-122.2511.71.1330710.030.1387791020.6TRUETRUEVFR1.3METAR104.02018-10-19 15:05:17W¼,)5    3KRDG 191454Z 00000KT 10SM CLR 12/04 A3029 RMK AO2 SLP264 T01170039 58011KRDG2018-10-19T14:54:00Z40.37-75.9711.73.90010.030.289371026.4TRUEVFR-1.1METAR109.02018-10-19 15:05:17\¼+)#5    3KRFD 191454Z 21010KT 10SM OVC095 11/02 A3007 RMK AO2 SLP186 T01060017 58019KRFD2018-10-19T14:54:00Z42.2-89.110.61.72101010.030.0708661018.6TRUEVFR-1.9METAR221.02018-10-19 15:05:17\¼*)#5    3KRIC 191454Z 20007KT 10SM FEW300 14/07 A3036 RMK AO2 SLP286 T01440072 58007KRIC2018-10-19T14:54:00Z37.52-77.3214.47.2200710.030.3602371028.6TRUEVFR-0.7METAR50.02018-10-19 15:05:17 1f@¼1({5    3K04V 191454Z AUTO 00000KT 10SM CLR 04/M02 A3044 RMK AO2K04V2018-10-19T14:54:00Z38.1-106.174.0-2.00010.030.43996TRUETRUEVFRMETAR2385.02018-10-19 15:05:17E¼0)5    3KDMH 191454Z AUTO 14/04 A3036 RMK AO1 SLP281 T01440039 58003KDMH2018-10-19T14:54:00Z39.28-76.6214.43.930.3602371028.1TRUETRUE-0.3METAR5.02018-10-19 15:05:17a¼/)'5    3KNAK 191454Z AUTO 20008KT 10SM CLR 15/04 A3034 RMK AO2 SLP274 T01500039 58012KNAK2018-10-19T14:54:00Z38.98-76.4815.03.9200810.030.3395671027.4TRUETRUEVFR-1.2METAR2.02018-10-19 15:05:17b¼.))5     3PGUM 191454Z 02003KT 10SM CLR 26/26 A2985 RMK AO2 SLP099 60000 T02610261 58008PGUM2018-10-19T14:54:00Z13.48144.826.126.120310.029.849411009.9TRUEVFR-0.80.005METAR91.02018-10-19 15:05:17 7atY¼5)5    3KACY 191454Z 25009KT 10SM CLR 14/03 A3032 RMK AO2 SLP268 T01390028 58014KACY2018-10-19T14:54:00Z39.45-74.5713.92.8250910.030.3188971026.8TRUEVFR-1.4METAR23.02018-10-19 15:05:17g¼4)-5    3KAAO 191454Z AUTO 21010KT 10SM OVC006 12/12 A3017 RMK AO2 SLP217 T01170117 55000KAAO2018-10-19T14:54:00Z37.75-97.2211.711.72101010.030.1712591021.7TRUETRUEIFR0.0METAR434.02018-10-19 15:05:17P¼3)5    3K4BM 191454Z AUTO 04006KT 10SM CLR 00/M09 A3053 RMK AO2 LTG DSNT NWK4BM2018-10-19T14:54:00Z39.05-105.520.0-9.040610.030.528543TRUETRUEVFRMETAR3438.02018-10-19 15:05:17C¼2(y5    3K2V6 191454Z AUTO 30010KT 10SM CLR 10/02 A3023 RMK AO2K2V62018-10-19T14:54:00Z40.1-102.7210.02.03001010.030.230314TRUETRUEVFRMETAR1261.02018-10-19 15:05:17 42J4¼9)u5      3KALO 191454Z 19007KT 10SM -RA BKN032 BKN039 OVC046 09/08 A2997 RMK AO2 RAE1356B40 SLP150 P0000 60011 T00940083 58022KALO2018-10-19T14:54:00Z42.55-92.49.48.3190710.029.9704721015.0TRUE-RAVFR-2.20.0050.11METAR264.02018-10-19 15:05:17b¼8)'5    3KAKR 191454Z AUTO 20008KT 10SM CLR 09/01 A3022 RMK AO2 SLP240 T00940011 58020KAKR2018-10-19T14:54:00Z41.03-81.479.41.1200810.030.2214571024.0TRUETRUEVFR-2.0METAR363.02018-10-19 15:05:17a¼7)'5    3KAKQ 191454Z AUTO 25006KT 10SM CLR 15/07 A3038 RMK AO2 SLP288 T01500067 58005KAKQ2018-10-19T14:54:00Z36.98-77.015.06.7250610.030.3809051028.8TRUETRUEVFR-0.5METAR34.02018-10-19 15:05:17a¼6)'5    3KAKH 191454Z AUTO 08003KT 10SM CLR 16/08 A3036 RMK AO2 SLP280 T01560083 58004KAKH2018-10-19T14:54:00Z35.2-81.1515.68.380310.030.3602371028.0TRUETRUEVFR-0.4METAR243.02018-10-19 15:05:17 )'& )[¼=)#5    3KAVL 191454Z 00000KT 10SM FEW004 10/07 A3036 RMK AO2 SLP276 T01000072 58005KAVL2018-10-19T14:54:00Z35.43-82.5310.07.20010.030.3602371027.6TRUEVFR-0.5METAR670.02018-10-19 15:05:17¼<)u5       3KAUW 191454Z AUTO 22009KT 7SM -RA BKN047 OVC055 09/08 A2982 RMK AO2 RAE27B47 SLP106 P0002 60010 T00890078 56024 TSNOKAUW2018-10-19T14:54:00Z44.93-89.628.97.822097.029.8198811010.6TRUETRUETRUE-RAVFR-2.40.020.1METAR362.02018-10-19 15:05:17{¼;)Q5   3KAPN 191454Z AUTO 22011G20KT 10SM CLR 13/06 A2987 RMK AO2 PK WND 21026/1422 SLP116 T01330056 58026KAPN2018-10-19T14:54:00Z45.07-83.5713.35.6220112010.029.8700791011.6TRUETRUEVFR-2.6METAR210.02018-10-19 15:05:17S¼:)5    3KAPC 191454Z 00000KT 7SM CLR 07/07 A3014 RMK AO2 SLP198 T00720067 53009KAPC2018-10-19T14:54:00Z38.2-122.287.26.7007.030.1387791019.8TRUEVFR0.9METAR13.02018-10-19 15:05:17 PmZ¼A)5    3KBFL 191454Z 00000KT 10SM CLR 14/M01 A3014 RMK AO2 SLP201 T01441011 51011KBFL2018-10-19T14:54:00Z35.43-119.0514.4-1.10010.030.1387791020.1TRUEVFR1.1METAR151.02018-10-19 15:05:17]¼@)#5    3KBTV 191454Z 18014KT 10SM FEW045 09/01 A3004 RMK AO2 SLP174 T00940011 58019KBTV2018-10-19T14:54:00Z44.47-73.159.41.11801410.030.0413381017.4TRUEVFR-1.9METAR105.02018-10-19 15:05:17C¼?({5    3KBDU 191454Z AUTO 00000KT 10SM CLR 13/M03 A3032 RMK AO2KBDU2018-10-19T14:54:00Z40.03-105.2313.0-3.00010.030.318897TRUETRUEVFRMETAR1612.02018-10-19 15:05:17a¼>)%5   3KAVP 191454Z 24012G17KT 10SM CLR 08/M01 A3024 RMK AO2 SLP245 T00831006 58013KAVP2018-10-19T14:54:00Z41.33-75.728.3-0.6240121710.030.2391741024.5TRUEVFR-1.3METAR291.02018-10-19 15:05:17 9-9n¼E)=5    3KCAR 191454Z AUTO 22008KT 10SM FEW035 OVC060 02/M07 A3001 RMK AO2 SLP174 T00171067 58013KCAR2018-10-19T14:54:00Z46.87-68.021.7-6.7220810.030.0088581017.4TRUETRUEVFR-1.3METAR191.02018-10-19 15:05:17[¼D)#5    3KBWI 191454Z 21008KT 10SM FEW250 13/05 A3033 RMK AO2 SLP269 T01330050 58012KBWI2018-10-19T14:54:00Z39.17-76.6813.35.0210810.030.330711026.9TRUEVFR-1.2METAR59.02018-10-19 15:05:17c¼C)'5    3KBUY 191454Z AUTO 16004KT 10SM CLR 14/08 A3036 RMK AO2 SLP281 T01440078 58002KBUY2018-10-19T14:54:00Z36.05-79.4714.47.8160410.030.3602371028.1TRUETRUEVFR-0.2METAR180.02018-10-19 15:05:17¼B)i5   3KBUF 191454Z 22019G29KT 10SM FEW021 SCT160 BKN260 12/06 A3010 RMK AO2 PK WND 22029/1454 SLP195 T01170056 58020KBUF2018-10-19T14:54:00Z42.93-78.7311.75.6220192910.030.1003931019.5TRUEVFR-2.0METAR211.02018-10-19 15:05:17 ~)Bd~`¼I)'5    3KSJN 191454Z AUTO 00000KT 10SM CLR 05/03 A3033 RMK AO2 SLP245 T00500033 53012KSJN2018-10-19T14:54:00Z34.52-109.385.03.30010.030.330711024.5TRUETRUEVFR1.2METAR1745.02018-10-19 15:05:17X¼H)5    3KSBY 191454Z 19006KT 10SM CLR 14/06 A3036 RMK AO2 SLP282 T01440061 58008KSBY2018-10-19T14:54:00Z38.33-75.514.46.1190610.030.3602371028.2TRUEVFR-0.8METAR19.02018-10-19 15:05:17a¼G)'5    3KCEU 191454Z AUTO 00000KT 10SM CLR 14/07 A3036 RMK AO2 SLP279 T01440072 58002KCEU2018-10-19T14:54:00Z34.67-82.8814.47.20010.030.3602371027.9TRUETRUEVFR-0.2METAR268.02018-10-19 15:05:17Q¼F)5     3KCCU 191454Z AUTO 00000KT 1 1/4SM BR OVC003 M02/M05 A3054 RMK AO2KCCU2018-10-19T14:54:00Z39.48-106.15-2.0-5.0001.2530.540354TRUETRUEBRLIFRMETAR3680.02018-10-19 15:05:17 a *Jac¼M)'5    3KTAD 191454Z AUTO 26008KT 10SM CLR 09/00 A3034 RMK AO2 SLP244 T00890000 53021KTAD2018-10-19T14:54:00Z37.27-104.338.90.0260810.030.3395671024.4TRUETRUEVFR2.1METAR1756.02018-10-19 15:05:17Z¼L)5    3KSLC 191454Z 13005KT 10SM CLR 07/02 A3041 RMK AO2 SLP285 T00720017 53016KSLC2018-10-19T14:54:00Z40.77-111.977.21.7130510.030.4104331028.5TRUEVFR1.6METAR1286.02018-10-19 15:05:17]¼K)#5    3KSUS 191454Z 22005KT 10SM OVC070 12/04 A3020 RMK AO2 SLP230 T01170044 58008KSUS2018-10-19T14:54:00Z38.65-90.6511.74.4220510.030.2007871023.0TRUEVFR-0.8METAR141.02018-10-19 15:05:17m¼J);5    3KSET 191454Z AUTO 20008KT 10SM BKN070 OVC090 12/04 A3021 RMK AO2 SLP230 T01170044 56008KSET2018-10-19T14:54:00Z38.93-90.4311.74.4200810.030.2096461023.0TRUETRUEVFR-0.8METAR134.02018-10-19 15:05:17 P%9Pc¼Q)'5    3KUZA 191454Z AUTO 13003KT 10SM CLR 16/09 A3036 RMK AO2 SLP280 T01560089 58003KUZA2018-10-19T14:54:00Z34.98-81.0515.68.9130310.030.3602371028.0TRUETRUEVFR-0.3METAR202.02018-10-19 15:05:17f¼P)-5    3KUIN 191454Z AUTO 21013KT 10SM OVC046 12/04 A3013 RMK AO2 SLP204 T01170044 56016KUIN2018-10-19T14:54:00Z39.95-91.211.74.42101310.030.1299211020.4TRUETRUEVFR-1.6METAR234.02018-10-19 15:05:17m¼O)35   3KTQE 191454Z AUTO 23011G19KT 10SM BKN019 14/11 A2999 RMK AO2 SLP149 T01390106 53002KTQE2018-10-19T14:54:00Z41.77-96.1813.910.6230111910.029.9911421014.9TRUETRUEMVFR0.2METAR312.02018-10-19 15:05:17b¼N)'5    3KSYR 191454Z 22007KT 10SM BKN250 12/04 A3012 RMK AO2 SLP196 T01170039 58017 $KSYR2018-10-19T14:54:00Z43.12-76.111.73.9220710.030.1210631019.6TRUETRUEVFR-1.7METAR127.02018-10-19 15:05:17 c3Kcb¼U)'5    3KWAL 191454Z AUTO 23006KT 10SM CLR 17/04 A3037 RMK AO2 SLP281 T01670044 58006KWAL2018-10-19T14:54:00Z37.93-75.4716.74.4230610.030.3690951028.1TRUETRUEVFR-0.6METAR14.02018-10-19 15:05:17b¼T)'5    3KVSF 191454Z AUTO 18008KT 10SM CLR 09/02 A3011 RMK AO2 SLP201 T00940017 58023KVSF2018-10-19T14:54:00Z43.35-72.529.41.7180810.030.1092531020.1TRUETRUEVFR-2.3METAR175.02018-10-19 15:05:17`¼S)'5    3KVTA 191454Z AUTO VRB03KT 10SM CLR 09/02 A3025 RMK AO2 SLP249 T00940022 58017KVTA2018-10-19T14:54:00Z40.02-82.479.42.20310.030.2509841024.9TRUETRUEVFR-1.7METAR268.02018-10-19 15:05:17a¼R)'5    3KVAY 191454Z AUTO 26009KT 10SM CLR 12/01 A3031 RMK AO2 SLP262 T01220006 58014KVAY2018-10-19T14:54:00Z39.93-74.8312.20.6260910.030.310041026.2TRUETRUEVFR-1.4METAR15.02018-10-19 15:05:17 ?%?`¼Y)'5    3KCRW 191454Z 00000KT 10SM SCT180 08/06 A3028 RMK AO2 SLP258 T00780056 58017 $KCRW2018-10-19T14:54:00Z38.38-81.587.85.60010.030.2805121025.8TRUETRUEVFR-1.7METAR309.02018-10-19 15:05:17d¼X)15    3KCOU 191454Z 19008KT 10SM BKN055 OVC080 12/06 A3017 RMK AO2 SLP216 T01170056 58012KCOU2018-10-19T14:54:00Z38.82-92.2211.75.6190810.030.1712591021.6TRUEVFR-1.2METAR271.02018-10-19 15:05:17h¼W)35    3KCOS 191454Z 33011KT 10SM FEW090 FEW150 12/M02 A3035 RMK AO2 SLP250 T01221022 53025KCOS2018-10-19T14:54:00Z38.82-104.6812.2-2.23301110.030.3513771025.0TRUEVFR2.5METAR1856.02018-10-19 15:05:17}¼V)U5     3PAKN 191454Z 33004KT 10SM BKN075 OVC090 04/03 A2931 RMK AO2 RAE03 SLP925 P0000 60001 T00440028 57032PAKN2018-10-19T14:54:00Z58.68-156.654.42.8330410.029.309055992.5TRUEVFR-3.20.0050.01METAR17.02018-10-19 15:05:17 g6Nga¼])'5    3KDSV 191454Z AUTO VRB06KT 10SM CLR 13/03 A3013 RMK AO2 SLP217 T01330028 58021KDSV2018-10-19T14:54:00Z42.57-77.7213.32.80610.030.1299211021.7TRUETRUEVFR-2.1METAR198.02018-10-19 15:05:17b¼\)'5    3KDYL 191454Z AUTO 22009KT 10SM CLR 11/01 A3029 RMK AO2 SLP260 T01110006 58012KDYL2018-10-19T14:54:00Z40.33-75.1211.10.6220910.030.289371026.0TRUETRUEVFR-1.2METAR117.02018-10-19 15:05:17^¼[)#5    3KDEC 191454Z 21011KT 10SM OVC085 10/02 A3020 RMK AO2 SLP229 T01000017 56008KDEC2018-10-19T14:54:00Z39.83-88.8510.01.72101110.030.2007871022.9TRUEVFR-0.8METAR207.02018-10-19 15:05:17`¼Z)'5    3KDDH 191454Z AUTO 22004KT 10SM CLR 09/02 A3015 RMK AO2 SLP214 T00940017 58017KDDH2018-10-19T14:54:00Z42.9-73.259.41.7220410.030.150591021.4TRUETRUEVFR-1.7METAR244.02018-10-19 15:05:17 V>Vb¼a))5     3KEUG 191454Z 00000KT 10SM MIFG CLR 01/M02 A3026 RMK AO2 SLP248 T00061022 52013KEUG2018-10-19T14:54:00Z44.13-123.220.6-2.20010.030.2598421024.8TRUEMIFGVFR1.3METAR114.02018-10-19 15:05:17Y¼`)5    3KECG 191454Z 36005KT 10SM CLR 16/02 A3038 RMK AO2 SLP288 T01610022 58001KECG2018-10-19T14:54:00Z36.27-76.1816.12.2360510.030.3809051028.8TRUEVFR-0.1METAR11.02018-10-19 15:05:17N¼_)5    3KEIK 191454Z AUTO 00000KT 10SM CLR 12/M01 A3037 RMK AO2 T01151010KEIK2018-10-19T14:54:00Z40.02-105.0511.5-1.00010.030.369095TRUETRUEVFRMETAR1564.02018-10-19 15:05:17 ¼^)a5    3KDSM 191454Z 22011G21KT 10SM BKN038 OVC060 12/09 A3001 RMK AO2 RAB03E12 SLP162 P0000 60000 T01220089 56019KDSM2018-10-19T14:54:00Z41.53-93.6712.28.9220112110.030.0088581016.2TRUEVFR-1.90.0050.005METAR295.02018-10-19 15:05:17 { Bc{b¼e)'5    3KFIG 191454Z AUTO 19004KT 10SM CLR 08/01 A3025 RMK AO2 SLP254 T00830011 58012KFIG2018-10-19T14:54:00Z41.05-78.428.31.1190410.030.2509841025.4TRUETRUEVFR-1.2METAR462.02018-10-19 15:05:17Y¼d)5    3KFFZ 191454Z 02007KT 10SM CLR 21/07 A3006 RMK AO2 SLP161 T02110067 53009KFFZ2018-10-19T14:54:00Z33.47-111.7221.16.720710.030.0590551016.1TRUEVFR0.9METAR424.02018-10-19 15:05:17X¼c)5    3KEWN 191454Z 09004KT 10SM CLR 18/11 A3038 RMK AO2 SLP289 T01780106 58001KEWN2018-10-19T14:54:00Z35.07-77.0517.810.690410.030.3809051028.9TRUEVFR-0.1METAR3.02018-10-19 15:05:17Z¼b)5    3KEVV 191454Z 24004KT 10SM CLR 10/05 A3028 RMK AO2 SLP254 T01000050 55005KEVV2018-10-19T14:54:00Z38.05-87.5210.05.0240410.030.2805121025.4TRUEVFR-0.5METAR117.02018-10-19 15:05:17 P0GPq¼i)G5   3KGCN 191454Z 05016G26KT 10SM CLR 06/01 A3036 RMK AO2 PK WND 05026/1451 SLP249 T00610011 53009KGCN2018-10-19T14:54:00Z35.95-112.156.11.150162610.030.3602371024.9TRUEVFR0.9METAR2016.02018-10-19 15:05:17c¼h)'5    3KFZY 191454Z AUTO 20008KT 10SM CLR 11/03 A3010 RMK AO2 SLP195 T01110028 58018KFZY2018-10-19T14:54:00Z43.35-76.3811.12.8200810.030.1003931019.5TRUETRUEVFR-1.8METAR138.02018-10-19 15:05:17Z¼g)5    3KGCK 191454Z 30012KT 10SM CLR 09/07 A3016 RMK AO2 SLP210 T00940067 53014KGCK2018-10-19T14:54:00Z37.92-100.729.46.73001210.030.1594491021.0TRUEVFR1.4METAR877.02018-10-19 15:05:17j¼f)75   3KFWA 191454Z 21010G20KT 10SM BKN170 BKN220 10/03 A3017 RMK AO2 SLP220 T01000028 58025KFWA2018-10-19T14:54:00Z40.98-85.1810.02.8210102010.030.1712591022.0TRUEVFR-2.5METAR248.02018-10-19 15:05:17 Q+9Qb¼m)'5    3KPHD 191453Z AUTO 12006KT 10SM CLR 07/02 A3026 RMK AO2 SLP254 T00720022 58022KPHD2018-10-19T14:53:00Z40.47-81.427.22.2120610.030.2598421025.4TRUETRUEVFR-2.2METAR272.02018-10-19 15:05:17l¼l)15     3KPGA 191453Z AUTO 34003KT 10SM CLR 09/06 A3037 RMK AO2 SLP265 T00890061 53015 TSNOKPGA2018-10-19T14:53:00Z36.92-111.458.96.1340310.030.3690951026.5TRUETRUETRUEVFR1.5METAR1307.02018-10-19 15:05:17i¼k)-5   3KPEO 191453Z AUTO 22013G18KT 10SM CLR 12/04 A3012 RMK AO2 SLP203 T01170039 58019KPEO2018-10-19T14:53:00Z42.65-77.0511.73.9220131810.030.1210631020.3TRUETRUEVFR-1.9METAR256.02018-10-19 15:05:17`¼j)'5    3KGED 191454Z AUTO VRB06KT 10SM CLR 15/06 A3036 RMK AO2 SLP281 T01500056 58010KGED2018-10-19T14:54:00Z38.68-75.3715.05.60610.030.3602371028.1TRUETRUEVFR-1.0METAR19.02018-10-19 15:05:17 k /KkZ¼q)5    3KYIP 191453Z 22010KT 10SM CLR 09/01 A3013 RMK AO2 SLP204 T00890011 58020KYIP2018-10-19T14:53:00Z42.23-83.538.91.12201010.030.1299211020.4TRUEVFR-2.0METAR215.02018-10-19 15:05:17^¼p)#5     3KYKM 191453Z 28004KT 6SM BR CLR 00/M02 A3035 RMK AO2 SLP285 T00001017 51016KYKM2018-10-19T14:53:00Z46.57-120.530.0-1.728046.030.3513771028.5TRUEBRVFR1.6METAR324.02018-10-19 15:05:17k¼o)55     3KVUO 191453Z AUTO 00000KT M1/4SM FG VV002 08/07 A3027 RMK AO2 SLP250 T00780072 51012KVUO2018-10-19T14:53:00Z45.62-122.657.87.2000.2530.2687021025.0TRUETRUEFGLIFR1.2200METAR8.02018-10-19 15:05:17Z¼n)#5    3KPGD 191453Z 11009KT 10SM SCT023 29/22 A3020 RMK AO2 SLP227 T02940222 50009KPGD2018-10-19T14:53:00Z26.92-82.029.422.2110910.030.2007871022.7TRUEVFR0.9METAR7.02018-10-19 15:05:17 B -Be¼u))5    3KWRL 191453Z AUTO 21006KT 10SM CLR 04/M02 A3034 RMK AO2 SLP292 T00391022 51024KWRL2018-10-19T14:53:00Z43.97-107.953.9-2.2210610.030.3395671029.2TRUETRUEVFR2.4METAR1271.02018-10-19 15:05:17m¼t)15   3KWST 191453Z AUTO 23010G16KT 10SM CLR 12/06 A3024 RMK AO2 SLP240 T01220056 58017 $KWST2018-10-19T14:53:00Z41.35-71.812.25.6230101610.030.2391741024.0TRUETRUETRUEVFR-1.7METAR21.02018-10-19 15:05:17_¼s)'5    3KWVI 191453Z AUTO 00000KT 10SM CLR 08/07 A3012 RMK AO2 SLP201 T00830067 53007KWVI2018-10-19T14:53:00Z36.93-121.788.36.70010.030.1210631020.1TRUETRUEVFR0.7METAR43.02018-10-19 15:05:17u¼r)A5      3KXNA 191453Z 18004KT 9SM -RA OVC027 10/08 A3027 RMK AO2 SLP249 P0008 60018 T01000078 53001KXNA2018-10-19T14:53:00Z36.28-94.310.07.818049.030.2687021024.9TRUE-RAMVFR0.10.080.18METAR392.02018-10-19 15:05:17 8 +8m¼y)A5    3PABI 191453Z 10014KT 10SM FEW100 BKN140 BKN160 03/M03 A2953 RMK AO2 SLP015 T00281028 56049PABI2018-10-19T14:53:00Z64.0-145.722.8-2.81001410.029.5305121001.5TRUEVFR-4.9METAR386.02018-10-19 15:05:17Z¼x)#5    3PABE 191453Z 03003KT 10SM OVC065 02/02 A2946 RMK AO2 SLP978 T00170017 56020PABE2018-10-19T14:53:00Z60.78-161.831.71.730310.029.459646997.8TRUEVFR-2.0METAR41.02018-10-19 15:05:17a¼w)'5    3KZZV 191453Z AUTO 19006KT 10SM CLR 08/02 A3026 RMK AO2 SLP252 T00830017 58020KZZV2018-10-19T14:53:00Z39.95-81.98.31.7190610.030.2598421025.2TRUETRUEVFR-2.0METAR268.02018-10-19 15:05:17¼v)k5    3PAAQ 191453Z AUTO 02024G41KT 10SM CLR 08/M02 A2911 RMK AO2 PK WND 02041/1448 PRESFR SLP859 T00831017 58102 TSNOPAAQ2018-10-19T14:53:00Z61.6-149.088.3-1.720244110.029.111221985.9TRUETRUETRUEVFR0.0SPECI73.02018-10-19 15:05:17 n¼|)75     3PAPB 191453Z AUTO 29012KT 10SM OVC048 04/01 A2958 RMK AO2 SLP006 T00440006 58021 TSNOPAPB2018-10-19T14:53:00Z56.58-169.674.40.62901210.029.580711000.6TRUETRUETRUEVFR-2.1SPECI35.02018-10-19 15:05:170¼{)5      3PAKW 191453Z AUTO 16007G15KT 120V220 5SM -RA BR FEW027 BKN037 OVC055 12/11 A2983 RMK AO2 RAB1354 SLP103 P0000 60002 T01220111 56022 TSNOPAKW2018-10-19T14:53:00Z55.58-133.0712.211.11607155.029.8287411010.3TRUETRUETRUE-RA BRMVFR-2.20.005SPECI15.02018-10-19 15:05:17 ¼z)i5     3PADQ 191453Z 30014G19KT 6SM -RA BR FEW018 SCT026 OVC037 07/05 A2909 RMK AO2 SLP851 P0004 60022 T00720050 56037PADQ2018-10-19T14:53:00Z57.75-152.57.25.030014196.029.090551985.1TRUE-RA BRVFR-3.70.040.22METAR34.02018-10-19 15:05:17 '+'~½)S5     3PHLI 191453Z AUTO 28008KT 10SM FEW020 SCT026 BKN042 21/18 A2992 RMK AO2 SLP130 T02060178 55001 TSNOPHLI2018-10-19T14:53:00Z21.97-159.3320.617.8280810.029.9202751013.0TRUETRUETRUEVFR-0.1METAR45.02018-10-19 15:05:17l¼)15     3PHJR 191453Z AUTO 05003KT 10SM CLR 22/19 A2991 RMK AO2 SLP133 T02170189 55008 TSNOPHJR2018-10-19T14:53:00Z21.32-158.0721.718.950310.029.9114171013.3TRUETRUETRUEVFR-0.8METAR15.02018-10-19 15:05:17z¼~)O5     3PAOR 191453Z 24005KT 2SM -SN BR FEW020 FEW028 OVC034 M03/M03 A2950 RMK AO2 SLP022 T10281028 58058PAOR2018-10-19T14:53:00Z62.97-141.93-2.8-2.824052.029.5009841002.2TRUE-SN BRIFR-5.8METAR523.02018-10-19 15:05:17]¼})#5    3PHNL 191453Z 35004KT 10SM FEW023 24/20 A2989 RMK AO2 SLP123 T02390200 55007PHNL2018-10-19T14:53:00Z21.33-157.9223.920.0350410.029.8907471012.3TRUEVFR-0.7METAR4.02018-10-19 15:05:17 {½)O5     3PAQT 191453Z AUTO 29003KT 10SM SCT001 BKN070 OVC085 M07/M07 A2989 RMK AO2 SLP122 T10671072 TSNO $PAQT2018-10-19T14:53:00Z70.22-151.0-6.7-7.2290310.029.8907471012.2TRUETRUETRUETRUEVFRMETAR12.02018-10-19 15:05:17Z½)#5    3PAOT 191453Z 05006KT 10SM OVC090 02/01 A2972 RMK AO2 SLP062 T00220011 58018PAOT2018-10-19T14:53:00Z66.87-162.582.21.150610.029.7194881006.2TRUEVFR-1.8METAR3.02018-10-19 15:05:17½)_5      3PHTO 191453Z AUTO 25005KT 10SM FEW028 BKN035 OVC065 23/21 A2990 RMK AO2 SLP124 60002 T02280211 55004 TSNOPHTO2018-10-19T14:53:00Z19.72-155.0522.821.1250510.029.8996071012.4TRUETRUETRUEVFR-0.40.02METAR12.02018-10-19 15:05:17{½)I5     3PHKO 191453Z AUTO 00000KT 10SM FEW050 FEW075 24/23 A2986 RMK AO2 SLP112 T02440228 55007 TSNO $PHKO2018-10-19T14:53:00Z19.73-156.0524.422.80010.029.8612211011.2TRUETRUETRUETRUEVFR-0.7METAR27.02018-10-19 15:05:17  ½)e5       3PASO 191453Z AUTO 35008KT 10SM -RA FEW030 OVC047 07/03 A2913 RMK AO2 SLP864 P0001 60001 T00670033 56063 TSNOPASO2018-10-19T14:53:00Z59.45-151.76.73.3350810.029.128937986.4TRUETRUETRUE-RAVFR-6.30.01SPECI9.02018-10-19 15:05:17½)i5     3PASI 191453Z AUTO 11025G36KT 7SM +RA OVC036 13/11 A2965 RMK AO2 PRESRR SLP039 6//// T01280106 55007 TSNO PNO $PASI2018-10-19T14:53:00Z57.07-135.3512.810.611025367.029.6486231003.9TRUETRUETRUETRUE+RAVFR-0.7SPECI5.02018-10-19 15:05:17d½)+5    3PASC 191453Z 06004KT 10SM OVC075 M04/M06 A2987 RMK AO2 SLP114 T10391056 58015 $PASC2018-10-19T14:53:00Z70.2-148.47-3.9-5.660410.029.8700791011.4TRUETRUEVFR-1.5METAR15.02018-10-19 15:05:17  $v½ )G5      3PAVL 191453Z AUTO 04007KT 3SM BR OVC019 01/01 A2974 RMK AO2 SLP072 I3001 T00110006 58018 TSNOPAVL2018-10-19T14:53:00Z67.73-164.551.10.64073.029.7401581007.2TRUETRUETRUEBRMVFR-1.8SPECI3.02018-10-19 15:05:17 ½ )c5       3PATO 191453Z AUTO 27004KT 9SM -RA OVC043 04/03 A2913 RMK AO2 PRESFR SLP866 P0001 60002 T00390033 56089 TSNOPATO2018-10-19T14:53:00Z60.78-148.853.93.327049.029.128937986.6TRUETRUETRUE-RAVFR-8.90.01SPECI31.02018-10-19 15:05:17`½ )-5     3PATK 191453Z AUTO 02009KT CLR 08/M03 A2925 RMK AO2 SLP908 T00831033 56081 TSNO $PATK2018-10-19T14:53:00Z62.3-150.18.3-3.320929.25990.8TRUETRUETRUETRUE-8.1METAR109.02018-10-19 15:05:17p½)95     3PASN 191453Z AUTO 31009KT 10SM OVC045 03/M01 A2957 RMK AO2 SLP013 T00331011 58022 TSNOPASN2018-10-19T14:53:00Z57.15-170.223.3-1.1310910.029.5688971001.3TRUETRUETRUEVFR-2.2METAR29.02018-10-19 15:05:17 !½)5      3PAYA 191453Z AUTO 13018G40KT 10SM -RA OVC022 13/09 A2932 RMK AO2 PK WND 14040/1448 SLP928 P0010 60066 T01280094 56033 TSNOPAYA2018-10-19T14:53:00Z59.52-139.6712.89.4130184010.029.320866992.8TRUETRUETRUE-RAMVFR-3.30.10.66METAR11.02018-10-19 15:05:17½ )]5      3PAWI 191453Z AUTO 03004KT 9SM OVC049 M03/M04 A2986 RMK AO2 SNE04 SLP111 P0000 60000 T10331044 58014 TSNOPAWI2018-10-19T14:53:00Z70.62-159.85-3.3-4.43049.029.8612211011.1TRUETRUETRUEVFR-1.40.005SPECI27.02018-10-19 15:05:176½ )15      3PAWD 191453Z AUTO 02018G27KT 10SM -RA SCT048 OVC080 07/05 A2901 RMK AO2 PK WND 02028/1437 RAB1354 PRESFR SLP822 P0001 60001 T00720050 56102 TSNO $PAWD2018-10-19T14:53:00Z60.12-149.427.25.020182710.029.010826982.2TRUETRUETRUETRUE-RAVFR0.00.01SPECI23.02018-10-19 15:05:17 ~0}~y½)C5      3PACD 191453Z AUTO 27011KT 10SM SCT060 03/01 A2955 RMK AO2 SLP006 60000 T00280011 58014 TSNOPACD2018-10-19T14:53:00Z55.2-162.722.81.12701110.029.5511821000.6TRUETRUETRUEVFR-1.40.005METAR30.02018-10-19 15:05:17-½(e5   3KECP 191453Z 05006KT 10SM SCT012 24/20 A3023KECP2018-10-19T14:53:00Z30.35-85.824.020.050610.030.230314VFRMETAR21.02018-10-19 15:05:17i½)95    3TISX 191453Z COR 04013KT 10SM SCT032 SCT041 31/23 A2997 RMK AO2 SLP147 T03110233 50006TISX2018-10-19T14:53:00Z17.7-64.831.123.3401310.029.9704721014.7TRUETRUEVFR0.6METAR19.02018-10-19 15:05:17[½)#5    3TIST 191453Z 05013KT 10SM SCT030 31/23 A2997 RMK AO2 SLP148 T03060228 50005TIST2018-10-19T14:53:00Z18.33-64.9830.622.8501310.029.9704721014.8TRUEVFR0.5METAR7.02018-10-19 15:05:17 ½)_5      3PADE 191453Z AUTO 22004KT 1 1/2SM BR OVC002 00/00 A2968 RMK AO2 SLP051 I1001 I3001 T00000000 58020 TSNO $PADE2018-10-19T14:53:00Z66.07-162.770.00.022041.529.6811031005.1TRUETRUETRUETRUEBRLIFR-2.0SPECI5.02018-10-19 15:05:17½)}5     3PACV 191453Z 05012G19KT 020V080 10SM -RA OVC050 08/06 A2899 RMK AO2 PK WND 03029/1415 SLP818 P0003 60011 T00830056 56102PACV2018-10-19T14:53:00Z60.5-145.478.35.650121910.028.990158981.8TRUE-RAVFR0.00.03SPECI12.02018-10-19 15:05:17r½)A5    3PABT 191453Z 36003KT 10SM FEW060 M01/M01 A2974 RMK AO2 PRESFR SLP083 T10061006 58035 PNO $PABT2018-10-19T14:53:00Z66.92-151.52-0.6-0.6360310.029.7401581008.3TRUETRUEVFR-3.5METAR195.02018-10-19 15:05:17 ""n½)95     3PAGK 191453Z AUTO 00000KT 10SM OVC070 01/M03 A2928 RMK AO2 SLP932 T00111033 56059 TSNOPAGK2018-10-19T14:53:00Z62.15-145.451.1-3.30010.029.279528993.2TRUETRUETRUEVFR-5.9SPECI481.02018-10-19 15:05:17j½)75    3PAFA 191453Z 06005KT 10SM SCT080 BKN200 00/M03 A2953 RMK AO2 SLP008 T00001033 58054 $PAFA2018-10-19T14:53:00Z64.8-147.850.0-3.360510.029.5305121000.8TRUETRUEVFR-5.4METAR132.02018-10-19 15:05:17m½)55     3PAEG 191453Z AUTO 00000KT 10SM CLR M04/M06 A2969 RMK AO2 SLP067 T10441056 56047 TSNOPAEG2018-10-19T14:53:00Z64.78-141.15-4.4-5.60010.029.689961006.7TRUETRUETRUEVFR-4.7SPECI268.02018-10-19 15:05:17½)[5    3PAEN 191453Z AUTO 01019G26KT 10SM CLR 08/01 A2915 RMK AO2 PK WND 36030/1405 SLP874 T00830011 58083 TSNOPAEN2018-10-19T14:53:00Z60.57-151.258.31.110192610.029.149607987.4TRUETRUETRUEVFR-8.3SPECI27.02018-10-19 15:05:17 /L/<½(y5     3KP92 191453Z AUTO VRB05KT A3017 RMK AO1 SLP218 53007 $KP922018-10-19T14:53:00Z29.57-91.530530.1712591021.8TRUETRUETRUE0.7METAR1.02018-10-19 15:05:17d½)55     3KSEA 191453Z 00000KT 2SM BR SCT001 BKN250 08/07 A3028 RMK AO2 SLP259 T00780072 53006KSEA2018-10-19T14:53:00Z47.45-122.327.87.2002.030.2805121025.9TRUEBRIFR0.6METAR136.02018-10-19 15:05:179½(u5    3KVLD 191453Z VRB04KT 10SM BKN060 23/18 A3027 RMK A02KVLD2018-10-19T14:53:00Z30.78-83.2723.018.00410.030.268702TRUEVFRMETAR62.02018-10-19 15:05:17,½(_5   3KUNV 191453Z 23005KT 10SM SKC 10/01 A3026KUNV2018-10-19T14:53:00Z40.85-77.8310.01.0230510.030.259842VFRMETAR378.02018-10-19 15:05:17.½(_5   3KIFP 191453Z 36017KT 10SM SKC 21/02 A3013KIFP2018-10-19T14:53:00Z35.15-114.5721.02.03601710.030.129921VFRMETAR212.02018-10-19 15:05:17 9/9p½")95     3KLKV 191453Z AUTO 33004KT 10SM CLR M03/M06 A3038 RMK AO2 SLP745 T10281061 51012 FZRANOKLKV2018-10-19T14:53:00Z42.17-120.4-2.8-6.1330410.030.380905974.5TRUETRUETRUEVFR1.2METAR1441.02018-10-19 15:05:17i½!)-5    3KLND 191453Z AUTO 00000KT 10SM CLR 06/M02 A3037 RMK AO2 SLP271 T00561022 53022 $KLND2018-10-19T14:53:00Z42.82-108.735.6-2.20010.030.3690951027.1TRUETRUETRUEVFR2.2METAR1694.02018-10-19 15:05:17x½ )C5      3KLSE 191453Z 18008KT 10SM -RA OVC017 11/08 A2988 RMK AO2 SLP121 P0001 60010 T01060078 58017KLSE2018-10-19T14:53:00Z43.88-91.2510.67.8180810.029.8789371012.1TRUE-RAMVFR-1.70.010.1METAR199.02018-10-19 15:05:17^½)!5     3K6R6 191453Z AUTO 34004KT 13/11 A3024 RMK AO1 SLP226 60001 T01280111 51009K6R62018-10-19T14:53:00Z30.05-102.2212.811.1340430.2391741022.6TRUETRUE0.90.01METAR701.02018-10-19 15:05:17 x½%)E5     3KLXT 191453Z AUTO 22012KT 9SM BKN028 OVC075 13/10 A3015 RMK AO2 SLP207 60000 T01280100 56008KLXT2018-10-19T14:53:00Z38.97-94.3712.810.0220129.030.150591020.7TRUETRUEMVFR-0.80.005METAR306.02018-10-19 15:05:17½$)m5     3KFLD 191453Z AUTO 20012G22KT 10SM -RA SCT070 OVC085 09/05 A2995 RMK AO2 RAB28 SLP145 P0000 60000 T00940050 56020KFLD2018-10-19T14:53:00Z43.77-88.489.45.0200122210.029.9498021014.5TRUETRUE-RAVFR-2.00.0050.005METAR240.02018-10-19 15:05:17c½#))5    3KIWI 191453Z AUTO 22008KT 10SM CLR 08/M01 A3012 RMK AO2 SLP198 T00831006 58021KIWI2018-10-19T14:53:00Z43.97-69.728.3-0.6220810.030.1210631019.8TRUETRUEVFR-2.1METAR20.02018-10-19 15:05:17 g½()+5    3KODX 191453Z AUTO 32009KT 10SM CLR 12/08 A3002 RMK AO2 SLP170 T01220083 52018 $KODX2018-10-19T14:53:00Z41.62-98.9512.28.3320910.030.020671017.0TRUETRUETRUEVFR1.8METAR631.02018-10-19 15:05:17}½')Y5    3PAHO 191453Z 03012G24KT 10SM OVC075 08/02 A2913 RMK AO2 PK WND 34032/1411 SLP863 60000 T00780022 56060PAHO2018-10-19T14:53:00Z59.63-151.477.82.230122410.029.128937986.3TRUEVFR-6.00.005METAR28.02018-10-19 15:05:17 ½&)i5       3PAGY 191453Z AUTO 00000KT 5SM -RA BR FEW033 OVC047 07/06 A2971 RMK AO2 SLP061 P0005 60012 T00670056 56039 TSNOPAGY2018-10-19T14:53:00Z59.47-135.36.75.6005.029.710631006.1TRUETRUETRUE-RA BRMVFR-3.90.05SPECI5.02018-10-19 15:05:17 \G\e½,)35   3TJNR 191453Z AUTO 07010G15KT 10SM FEW028 30/25 A3000 RMK AO2 SLP160 T03000250 51009TJNR2018-10-19T14:53:00Z18.25-65.6330.025.070101510.030.01016.0TRUETRUEVFR0.9METAR12.02018-10-19 15:05:17;½+(u5    3KRYY 191453Z 11007KT 10SM BKN022 16/08 A3035 RMK AO2KRYY2018-10-19T14:53:00Z34.02-84.616.08.0110710.030.351377TRUEMVFRMETAR317.02018-10-19 15:05:17g½*)/5     3KRVS 191453Z 17006KT 10SM OVC005 13/11 A3026 RMK AO2 SLP256 60006 T01280111 52004KRVS2018-10-19T14:53:00Z36.05-95.9812.811.1170610.030.2598421025.6TRUEIFR0.40.06METAR200.02018-10-19 15:05:17½))W5     3KOTM 191453Z AUTO 20011KT 10SM OVC046 12/08 A3004 RMK AO2 RAB18E52 SLP173 P0000 60000 T01170078 58016KOTM2018-10-19T14:53:00Z41.1-92.4511.77.82001110.030.0413381017.3TRUETRUEVFR-1.60.0050.005METAR256.02018-10-19 15:05:17 q4Rq[½0)#5    3KVRB 191453Z 06006KT 10SM FEW025 29/22 A3019 RMK AO2 SLP222 T02940222 50012KVRB2018-10-19T14:53:00Z27.65-80.4229.422.260610.030.1889761022.2TRUEVFR1.2METAR10.02018-10-19 15:05:17\½/)%5    3KBIL 191453Z 00000KT 10SM OVC120 08/M01 A3035 RMK AO2 SLP281 T00831006 51027KBIL2018-10-19T14:53:00Z45.8-108.558.3-0.60010.030.3513771028.1TRUEVFR2.7METAR1091.02018-10-19 15:05:17`½.)-5    3KBAF 191453Z 19008KT 160V220 10SM CLR 09/00 A3019 RMK AO2 SLP227 T00940000 58015KBAF2018-10-19T14:53:00Z42.17-72.729.40.0190810.030.1889761022.7TRUEVFR-1.5METAR83.02018-10-19 15:05:17`½-)/5    3PAIL 191453Z 35005KT 10SM OVC060 08/02 A2927 RMK AO2 SLP912 60000 T00780022 56050PAIL2018-10-19T14:53:00Z59.75-154.927.82.2350510.029.27067991.2TRUEVFR-5.0SPECI49.02018-10-19 15:05:17 ½4)O5      3KTKI 191453Z 06004KT 10SM -RA OVC024 14/13 A3025 RMK AO2 RAB13 SLP247 P0000 60002 T01390128 53006KTKI2018-10-19T14:53:00Z33.18-96.5813.912.860410.030.2509841024.7TRUE-RAMVFR0.60.0050.02METAR179.02018-10-19 15:05:17Z½3)#5    3KTLH 191453Z 08007KT 10SM BKN250 25/20 A3025 RMK AO2 SLP242 T02500200 51008KTLH2018-10-19T14:53:00Z30.4-84.3525.020.080710.030.2509841024.2TRUEVFR0.8METAR19.02018-10-19 15:05:17½2)u5      3KVIH 191453Z AUTO 21008KT 10SM -RA SCT050 BKN065 OVC110 09/05 A3022 RMK AO2 RAB16 SLP235 P0000 60000 T00890050 58007KVIH2018-10-19T14:53:00Z38.13-91.778.95.0210810.030.2214571023.5TRUETRUE-RAVFR-0.70.005SPECI333.02018-10-19 15:05:17d½1)-5    3KVPC 191453Z AUTO 08005KT 10SM SCT023 17/09 A3034 RMK AO2 SLP267 T01670094 50002KVPC2018-10-19T14:53:00Z34.13-84.8516.79.480510.030.3395671026.7TRUETRUEVFR0.2SPECI222.02018-10-19 15:05:17 f/EfY½8)5    3KTCL 191453Z 13005KT 10SM CLR 21/14 A3027 RMK AO2 SLP248 T02110144 50005KTCL2018-10-19T14:53:00Z33.22-87.6221.114.4130510.030.2687021024.8TRUEVFR0.5SPECI49.02018-10-19 15:05:17d½7)'5    3KTDZ 191453Z AUTO 22014KT 10SM CLR 11/02 A3017 RMK AO2 SLP217 T01110017 58025KTDZ2018-10-19T14:53:00Z41.57-83.4811.11.72201410.030.1712591021.7TRUETRUEVFR-2.5METAR189.02018-10-19 15:05:17b½6)'5    3KTHV 191453Z AUTO 25005KT 10SM CLR 12/02 A3031 RMK AO2 SLP268 T01220017 58011KTHV2018-10-19T14:53:00Z39.92-76.8812.21.7250510.030.310041026.8TRUETRUEVFR-1.1METAR144.02018-10-19 15:05:17c½5)+5     3KTIW 191453Z 00000KT M1/4SM FG VV002 08/08 A3028 RMK AO2 SLP255 T00780078 53009KTIW2018-10-19T14:53:00Z47.27-122.587.87.8000.2530.2805121025.5TRUEFGLIFR0.9200METAR89.02018-10-19 15:05:17 E/Ed½<))5   3KSTP 191453Z 23012G18KT 10SM BKN022 13/09 A2978 RMK AO2 SLP085 T01330089 58018KSTP2018-10-19T14:53:00Z44.93-93.0513.38.9230121810.029.7785431008.5TRUEMVFR-1.8METAR219.02018-10-19 15:05:17a½;))5     3KSTS 191453Z 00000KT 1/4SM FG VV002 06/06 A3014 RMK AO2 SLP199 T00560056 53010KSTS2018-10-19T14:53:00Z38.5-122.825.65.6000.2530.1387791019.9TRUEFGLIFR1.0200METAR39.02018-10-19 15:05:17|½:)O5     3KSWO 191453Z 18008KT 10SM OVC006 13/12 A3023 RMK AO2 RAE1359 SLP232 P0000 60005 T01330117 55000 $KSWO2018-10-19T14:53:00Z36.17-97.0813.311.7180810.030.2303141023.2TRUETRUEIFR0.00.005SPECI290.02018-10-19 15:05:17b½9)'5    3KTCC 191453Z AUTO 29006KT 10SM CLR 09/07 A3028 RMK AO2 SLP235 T00940072 53017KTCC2018-10-19T14:53:00Z35.18-103.69.47.2290610.030.2805121023.5TRUETRUEVFR1.7METAR1235.02018-10-19 15:05:17 @)B@|½@)M5      3KSSF 191453Z 03005KT 6SM -RA OVC006 18/16 A3016 RMK AO2 RAB50 SLP209 P0000 60002 T01830156 53013KSSF2018-10-19T14:53:00Z29.33-98.4718.315.63056.030.1594491020.9TRUE-RAIFR1.30.0050.02METAR176.02018-10-19 15:05:17a½?)'5    3KSSI 191453Z AUTO 02013KT 10SM CLR 26/20 A3027 RMK AO2 SLP251 T02560200 51009KSSI2018-10-19T14:53:00Z31.15-81.3825.620.0201310.030.2687021025.1TRUETRUEVFR0.9METAR6.02018-10-19 15:05:17`½>)#5   3KSTC 191453Z 26012G20KT 10SM CLR 13/07 A2974 RMK AO2 SLP081 T01280072 55008KSTC2018-10-19T14:53:00Z45.55-94.0512.87.2260122010.029.7401581008.1TRUEVFR-0.8METAR314.02018-10-19 15:05:17k½=)/5     3KSTJ 191453Z 20012KT 10SM OVC016 13/11 A3011 RMK AO2 SLP196 60000 T01280111 58006KSTJ2018-10-19T14:53:00Z39.77-94.9212.811.12001210.030.1092531019.6TRUEMVFR-0.60.005METAR247.02018-10-19 15:05:17 A 3Al½D)55     3KSPB 191453Z AUTO 00000KT M1/4SM FG VV001 06/06 A3027 RMK AO2 SLP249 T00560056 51012KSPB2018-10-19T14:53:00Z45.77-122.875.65.6000.2530.2687021024.9TRUETRUEFGLIFR1.2100METAR14.02018-10-19 15:05:17W½C)5    3KSPG 191453Z 09007KT 10SM CLR 28/24 A3019 RMK AO2 SLP223 T02780239 50013KSPG2018-10-19T14:53:00Z27.77-82.6327.823.990710.030.1889761022.3TRUEVFR1.3METAR2.02018-10-19 15:05:17 ½B)c5    3KSPW 191453Z AUTO 23020G30KT 10SM SCT012 13/10 A2987 RMK AO2 PK WND 22030/1448 SLP117 60000 T01280100 58013KSPW2018-10-19T14:53:00Z43.17-95.2212.810.0230203010.029.8700791011.7TRUETRUEVFR-1.30.005METAR403.02018-10-19 15:05:17Z½A)#5    3KSRQ 191453Z 09009KT 10SM FEW021 28/23 A3018 RMK AO2 SLP219 T02830233 51011KSRQ2018-10-19T14:53:00Z27.4-82.5728.323.390910.030.1801191021.9TRUEVFR1.1METAR18.02018-10-19 15:05:17 q:]qf½H)35    3KSMQ 191453Z AUTO VRB06KT 10SM CLR 12/01 A3027 RMK AO2 SLP251 I3000 T01170006 58016KSMQ2018-10-19T14:53:00Z40.62-74.6711.70.60610.030.2687021025.1TRUETRUEVFR-1.6METAR30.02018-10-19 15:05:17W½G)5    3KSNA 191453Z 00000KT 10SM CLR 17/07 A3001 RMK AO2 SLP160 T01720072 53009KSNA2018-10-19T14:53:00Z33.67-117.8717.27.20010.030.0088581016.0TRUEVFR0.9METAR16.02018-10-19 15:05:17V½F)5    3KSNS 191453Z 13008KT 7SM CLR 10/08 A3012 RMK AO2 SLP207 T01000078 53006KSNS2018-10-19T14:53:00Z36.67-121.610.07.813087.030.1210631020.7TRUEVFR0.6METAR30.02018-10-19 15:05:17d½E)'5    3KSNY 191453Z AUTO 31013KT 10SM CLR 11/02 A3024 RMK AO2 SLP230 T01110017 53029KSNY2018-10-19T14:53:00Z41.1-102.9811.11.73101310.030.2391741023.0TRUETRUEVFR2.9METAR1307.02018-10-19 15:05:17 ~'Af~b½L))5    3KSIY 191453Z AUTO 00000KT 10SM CLR 00/M05 A3032 RMK AO2 SLP284 T00001050 52015KSIY2018-10-19T14:53:00Z41.77-122.470.0-5.00010.030.3188971028.4TRUETRUEVFR1.5METAR807.02018-10-19 15:05:17U½K)5    3KSJC 191453Z 00000KT 9SM CLR 12/08 A3013 RMK AO2 SLP203 T01170083 51009KSJC2018-10-19T14:53:00Z37.37-121.9211.78.3009.030.1299211020.3TRUEVFR0.9METAR24.02018-10-19 15:05:17`½J)#5    3KSLN 191453Z 22012KT 10SM BKN025 14/11 A3013 RMK AO2 SLP202 T01390111 55001KSLN2018-10-19T14:53:00Z38.78-97.6513.911.12201210.030.1299211020.2TRUEMVFR-0.1METAR385.02018-10-19 15:05:17S½I)5    3KSMF 191453Z 00000KT 10SM CLR 08/05 A3013 RMK AO2 SLP203 T00780050 52010KSMF2018-10-19T14:53:00Z38.7-121.67.85.00010.030.1299211020.3TRUEVFR1.0METAR6.02018-10-19 15:05:17 f:Vfj½P)75    3KUUU 191453Z AUTO 23007KT 190V270 10SM CLR 11/01 A3021 RMK AO2 SLP230 T01110011 58019KUUU2018-10-19T14:53:00Z41.53-71.2811.11.1230710.030.2096461023.0TRUETRUEVFR-1.9METAR51.02018-10-19 15:05:17^½O)'5    3KVCB 191453Z AUTO 00000KT 10SM CLR 08/05 A3015 RMK AO2 SLP208 T00780050 53011KVCB2018-10-19T14:53:00Z38.38-121.957.85.00010.030.150591020.8TRUETRUEVFR1.1METAR33.02018-10-19 15:05:17Y½N)5    3KVGT 191453Z 34007KT 10SM CLR 16/00 A3023 RMK AO2 SLP245 T01610000 51010KVGT2018-10-19T14:53:00Z36.22-115.216.10.0340710.030.2303141024.5TRUEVFR1.0METAR671.02018-10-19 15:05:17a½M)'5    3KSHR 191453Z AUTO 00000KT 10SM CLR 09/00 A3036 RMK AO2 SLP282 T00940000 51033KSHR2018-10-19T14:53:00Z44.77-106.979.40.00010.030.3602371028.2TRUETRUEVFR3.3METAR1202.02018-10-19 15:05:17 C #CZ½T)#5    3KTYS 191453Z 00000KT 10SM SCT250 13/08 A3033 RMK AO2 SLP269 T01280083 58001KTYS2018-10-19T14:53:00Z35.82-83.9812.88.30010.030.330711026.9TRUEVFR-0.1METAR302.02018-10-19 15:05:17b½S)-5    3KUIL 191453Z AUTO 00000KT 10SM OVC006 06/05 A3028 RMK AO2 SLP254 T00610050 51009KUIL2018-10-19T14:53:00Z47.93-124.556.15.00010.030.2805121025.4TRUETRUEIFR0.9METAR54.02018-10-19 15:05:17}½R)O5      3KUNO 191453Z AUTO 24003KT 4SM RA BR OVC110 08/06 A3028 RMK AO2 SLP256 P0011 60011 T00780056 50006KUNO2018-10-19T14:53:00Z36.88-91.97.85.624034.030.2805121025.6TRUETRUERA BRMVFR0.60.11SPECI372.02018-10-19 15:05:17l½Q)35     3KUTS 191453Z AUTO 00000KT 10SM CLR 18/15 A3019 RMK AO2 SLP219 60000 T01780150 53004KUTS2018-10-19T14:53:00Z30.75-95.5817.815.00010.030.1889761021.9TRUETRUEVFR0.40.005METAR104.02018-10-19 15:05:17 J2Jb½X)'5    3KTVR 191453Z AUTO 14005KT 10SM CLR 18/11 A3025 RMK AO2 SLP250 T01830111 52010KTVR2018-10-19T14:53:00Z32.35-91.0318.311.1140510.030.2509841025.0TRUETRUEVFR1.0SPECI26.02018-10-19 15:05:17\½W)5    3KTWF 191453Z 19008KT 10SM CLR 07/M01 A3038 RMK AO2 SLP277 T00671006 53018KTWF2018-10-19T14:53:00Z42.48-114.486.7-0.6190810.030.3809051027.7TRUEVFR1.8METAR1266.02018-10-19 15:05:17Z½V)#5    3KTXK 191453Z 00000KT 10SM OVC034 14/09 A3025 RMK AO2 SLP242 T01440089 53004KTXK2018-10-19T14:53:00Z33.45-93.9814.48.90010.030.2509841024.2TRUEVFR0.4METAR111.02018-10-19 15:05:17½U)g5      3KTYR 191453Z 00000KT 3SM RA FEW018 BKN030 OVC080 15/12 A3024 RMK AO2 RAB01 SLP235 P0004 60004 T01500117 53009KTYR2018-10-19T14:53:00Z32.37-95.415.011.7003.030.2391741023.5TRUERAMVFR0.90.040.04METAR165.02018-10-19 15:05:17 s4RsY½\)5    3KTUP 191453Z 17004KT 10SM CLR 16/09 A3027 RMK AO2 SLP247 T01610094 50005KTUP2018-10-19T14:53:00Z34.27-88.7716.19.4170410.030.2687021024.7TRUEVFR0.5METAR105.02018-10-19 15:05:17\½[)5    3KTUS 191453Z 12012KT 10SM CLR 17/10 A3010 RMK AO2 SLP161 T01720100 53009KTUS2018-10-19T14:53:00Z32.13-110.9517.210.01201210.030.1003931016.1TRUEVFR0.9METAR776.02018-10-19 15:05:17[½Z)#5    3KTVC 191453Z VRB05KT 10SM OVC140 13/07 A2987 RMK AO2 SLP118 T01280067 58031KTVC2018-10-19T14:53:00Z44.73-85.5712.86.70510.029.8700791011.8TRUEVFR-3.1METAR190.02018-10-19 15:05:17e½Y)+5    3KTVL 191453Z AUTO 24003KT 10SM CLR M03/M06 A3039 RMK AO2 SLP291 T10331061 53008KTVL2018-10-19T14:53:00Z38.9-120.0-3.3-6.1240310.030.3897631029.1TRUETRUEVFR0.8METAR1924.02018-10-19 15:05:17 0'0q½`)95     3KTRL 191453Z AUTO 06006KT 10SM OVC024 17/11 A3024 RMK AO2 SLP237 60000 T01670106 51008KTRL2018-10-19T14:53:00Z32.72-96.2716.710.660610.030.2391741023.7TRUETRUEMVFR0.80.005METAR145.02018-10-19 15:05:17c½_)+5     3KTTD 191453Z 00000KT 1/16SM FG VV002 08/08 A3027 RMK AO2 SLP250 T00830078 53012KTTD2018-10-19T14:53:00Z45.55-122.428.37.8000.0630.2687021025.0TRUEFGLIFR1.2200METAR14.02018-10-19 15:05:17^½^)#5   3KTTN 191453Z 23010G18KT 10SM CLR 13/01 A3029 RMK AO2 SLP253 T01280006 58012KTTN2018-10-19T14:53:00Z40.28-74.8212.80.6230101810.030.289371025.3TRUEVFR-1.2METAR59.02018-10-19 15:05:17½])c5     3KTUL 191453Z 18006KT 10SM SCT008 SCT013 OVC021 13/12 A3025 RMK AO2 DZE06 SLP242 P0000 60006 T01280117 52003KTUL2018-10-19T14:53:00Z36.2-95.8812.811.7180610.030.2509841024.2TRUEMVFR0.30.0050.06METAR207.02018-10-19 15:05:17 l!AWle½d)/5    3KTOP 191453Z 21009KT 10SM OVC010 12/10 A3013 RMK AO2 SLP202 60001 T01220100 56008KTOP2018-10-19T14:53:00Z39.07-95.6312.210.0210910.030.1299211020.2TRUEMVFR-0.8SPECI268.02018-10-19 15:05:17d½c)'5    3KTOR 191453Z AUTO 29010KT 10SM CLR 09/01 A3028 RMK AO2 SLP242 T00890011 53033KTOR2018-10-19T14:53:00Z42.07-104.158.91.12901010.030.2805121024.2TRUETRUEVFR3.3METAR1277.02018-10-19 15:05:17Z½b)#5    3KTPA 191453Z VRB03KT 10SM SCT015 28/23 A3021 RMK AO2 SLP230 T02830233 50013KTPA2018-10-19T14:53:00Z27.97-82.5328.323.30310.030.2096461023.0TRUEVFR1.3METAR11.02018-10-19 15:05:17Y½a)#5    3KTRI 191453Z 00000KT 10SM FEW250 12/07 A3033 RMK AO2 SLP263 T01170072 58007KTRI2018-10-19T14:53:00Z36.48-82.411.77.20010.030.330711026.3TRUEVFR-0.7METAR474.02018-10-19 15:05:17 R+ARi½h)15     3KPIL 191453Z AUTO 31012KT 6SM BR OVC003 18/17 A3010 RMK AO2 SLP192 T01780167 51013KPIL2018-10-19T14:53:00Z26.17-97.3317.816.7310126.030.1003931019.2TRUETRUEBRLIFR1.3METAR5.02018-10-19 15:05:17d½g)'5    3KPIR 191453Z AUTO 32014KT 10SM CLR 11/03 A3006 RMK AO2 SLP176 T01110033 51043KPIR2018-10-19T14:53:00Z44.38-100.2811.13.33201410.030.0590551017.6TRUETRUEVFR4.3METAR526.02018-10-19 15:05:17c½f)15    3KTMB 191453Z 11010KT 10SM SCT033 SCT044 31/22 A3016 RMK AO2 SLP214 T03110222 53013KTMB2018-10-19T14:53:00Z25.65-80.4331.122.21101010.030.1594491021.4TRUEVFR1.3METAR2.02018-10-19 15:05:17f½e)-5    3KTOI 191453Z AUTO 13006KT 10SM FEW014 23/19 A3027 RMK AO2 SLP248 T02330189 50007KTOI2018-10-19T14:53:00Z31.85-86.0223.318.9130610.030.2687021024.8TRUETRUEVFR0.7METAR118.02018-10-19 15:05:17 VBV@½l(y5    3KORB 191453Z AUTO 28005KT 10SM CLR 09/04 A2959 RMK AO2KORB2018-10-19T14:53:00Z48.02-92.879.04.0280510.029.589567TRUETRUEVFRMETAR397.02018-10-19 15:05:17 ½k) 5     3PAJN 191453Z 11020G25KT 6SM -RA BR FEW008 BKN034 OVC050 09/08 A2970 RMK AO2 PK WND 10026/1442 SLP057 P0001 60006 T00940083 56038PAJN2018-10-19T14:53:00Z58.35-134.589.48.311020256.029.6988181005.7TRUE-RA BRVFR-3.80.010.06METAR5.02018-10-19 15:05:17W½j)5    3KPIE 191453Z 07007KT 10SM CLR 27/23 A3021 RMK AO2 SLP228 T02720233 50012KPIE2018-10-19T14:53:00Z27.92-82.6827.223.370710.030.2096461022.8TRUEVFR1.2METAR4.02018-10-19 15:05:17[½i)5    3KPIH 191453Z 04005KT 10SM CLR 02/M01 A3043 RMK AO2 SLP305 T00171011 53017KPIH2018-10-19T14:53:00Z42.92-112.571.7-1.140510.030.4311031030.5TRUEVFR1.7METAR1359.02018-10-19 15:05:17 --j½o)15     3PAKV 191453Z AUTO 02003KT 10SM CLR 02/01 A2963 RMK AO2 SLP035 T00220011 58031 TSNOPAKV2018-10-19T14:53:00Z64.33-158.752.21.120310.029.6309051003.5TRUETRUETRUEVFR-3.1SPECI61.02018-10-19 15:05:17z½n)Q5   3KCMX 191453Z AUTO 25019G29KT 10SM CLR 15/06 A2958 RMK AO2 PK WND 24033/1423 SLP018 T01500061 58024KCMX2018-10-19T14:53:00Z47.17-88.4815.06.1250192910.029.580711001.8TRUETRUEVFR-2.4METAR326.02018-10-19 15:05:17]½m)#5    3KBRO 191453Z 31010KT 10SM OVC004 18/17 A3012 RMK AO2 SLP198 T01780172 53014KBRO2018-10-19T14:53:00Z25.92-97.4217.817.23101010.030.1210631019.8TRUELIFR1.4METAR7.02018-10-19 15:05:17 `½r)+5    3PALH 191453Z 35015KT 10SM CLR 06/01 A2914 RMK AO2 PRESFR SLP867 T00560006 56099PALH2018-10-19T14:53:00Z61.18-149.975.60.63501510.029.140747986.7TRUEVFR-9.9SPECI22.02018-10-19 15:05:17{½q)M5     3PAMC 191453Z AUTO 32006KT 10SM CLR M01/M02 A2947 RMK AO2 SLP984 I1000 I3001 T10111022 58043 TSNOPAMC2018-10-19T14:53:00Z62.97-155.62-1.1-2.2320610.029.471457998.4TRUETRUETRUEVFR-4.3METAR103.02018-10-19 15:05:17½p) 5     3PAKT 191453Z 16010G19KT 10SM -RA BKN026 OVC040 12/08 A2998 RMK AO2 RAB51 SLP152 HARBOR WND 13021KT P0000 60001 T01170083 56015PAKT2018-10-19T14:53:00Z55.35-131.711.78.3160101910.029.979331015.2TRUE-RAMVFR-1.50.005SPECI28.02018-10-19 15:05:17 *#*s½v);5     3PAOM 191453Z AUTO 35007KT 10SM OVC050 03/02 A2961 RMK AO2 SLP027 T00280017 56019 TSNO $PAOM2018-10-19T14:53:00Z64.5-165.432.81.7350710.029.6102371002.7TRUETRUETRUETRUEVFR-1.9METAR11.02018-10-19 15:05:17t½u)95     3PANN 191453Z AUTO 00000KT 10SM CLR M02/M03 A2951 RMK AO2 SLP001 T10171028 58052 TSNO $PANN2018-10-19T14:53:00Z64.55-149.08-1.7-2.80010.029.5098421000.1TRUETRUETRUETRUEVFR-5.2METAR110.02018-10-19 15:05:17a½t)15    3PAMR 191453Z 01006KT 10SM SCT120 06/01 A2912 RMK AO2 PRESFR SLP863 T00610006 58099PAMR2018-10-19T14:53:00Z61.22-149.856.10.610610.029.120079986.3TRUEVFR-9.9SPECI41.02018-10-19 15:05:17v½s)U5   3PANC 191453Z 35018G25KT 10SM CLR 07/02 A2914 RMK AO2 PK WND 34028/1438 PRESFR SLP869 T00670017 56095PANC2018-10-19T14:53:00Z61.17-150.06.71.7350182510.029.140747986.9TRUEVFR-9.5METAR38.02018-10-19 15:05:17 V>Vb½z)15    3KNIP 191453Z 03010KT 10SM SCT027 BKN250 28/22 A3025 RMK AO2 SLP239 T02830217 51010KNIP2018-10-19T14:53:00Z30.22-81.6728.321.7301010.030.2509841023.9TRUEVFR1.0METAR7.02018-10-19 15:05:17Z½y)#5    3KPDK 191453Z VRB04KT 10SM OVC031 16/08 A3034 RMK AO2 SLP271 T01560083 58001KPDK2018-10-19T14:53:00Z33.88-84.315.68.30410.030.3395671027.1TRUEVFR-0.1METAR302.02018-10-19 15:05:17W½x)5    3KPDT 191453Z 18004KT 10SM CLR 04/01 A3031 RMK AO2 SLP266 T00440006 53015KPDT2018-10-19T14:53:00Z45.7-118.834.40.6180410.030.310041026.6TRUEVFR1.5METAR462.02018-10-19 15:05:17½w)c5     3KPDX 191453Z 32003KT 1/8SM R10R/1200V1400FT FG VV002 07/07 A3028 RMK AO2 TWR VIS 1/4 SLP251 T00720067 53008KPDX2018-10-19T14:53:00Z45.6-122.627.26.732030.1330.2805121025.1TRUEFGLIFR0.8200METAR7.02018-10-19 15:05:17 h½})-5   3KMCK 191453Z AUTO 31011G19KT 10SM CLR 10/06 A3011 RMK AO2 SLP197 T01000056 53018KMCK2018-10-19T14:53:00Z40.2-100.5810.05.6310111910.030.1092531019.7TRUETRUEVFR1.8METAR782.02018-10-19 15:05:17u½|)W5    3KMCO 191453Z 07007KT 10SM SCT020TCU BKN085 BKN250 28/23 A3021 RMK AO2 SLP229 TCU NW-N T02780233 50013KMCO2018-10-19T14:53:00Z28.42-81.3327.823.370710.030.2096461022.9TRUEVFR1.3METAR29.02018-10-19 15:05:17"½{) 5    3KMCW 191453Z AUTO 21012G24KT 10SM BKN012 BKN017 11/10 A2992 RMK AO2 PK WND 21026/1435 RAE05 SLP128 P0000 60009 T01110100 56023KMCW2018-10-19T14:53:00Z43.15-93.3311.110.0210122410.029.9202751012.8TRUETRUEMVFR-2.30.0050.09METAR369.02018-10-19 15:05:17 A 9Ar¾)G5   3KMBS 191453Z 23021G26KT 10SM CLR 11/03 A3003 RMK AO2 PK WND 24026/1452 SLP172 T01110033 58023KMBS2018-10-19T14:53:00Z43.53-84.0811.13.3230212610.030.0295281017.2TRUEVFR-2.3METAR202.02018-10-19 15:05:17a¾)'5    3KMCB 191453Z AUTO VRB03KT 10SM CLR 23/12 A3024 RMK AO2 SLP236 T02280122 51012KMCB2018-10-19T14:53:00Z31.18-90.4722.812.20310.030.2391741023.6TRUETRUEVFR1.2METAR124.02018-10-19 15:05:17^½)'5    3KMCE 191453Z AUTO 00000KT 10SM CLR 08/04 A3012 RMK AO2 SLP200 T00830039 53010KMCE2018-10-19T14:53:00Z37.28-120.58.33.90010.030.1210631020.0TRUETRUEVFR1.0METAR47.02018-10-19 15:05:17v½~)K5     3KMCI 191453Z 22012KT 10SM SCT020 BKN033 BKN180 12/09 A3012 RMK AO2 SLP200 60000 T01220089 58009KMCI2018-10-19T14:53:00Z39.3-94.7312.28.92201210.030.1210631020.0TRUEVFR-0.90.005METAR320.02018-10-19 15:05:17 J-CJs¾)A5   3KLWD 191453Z AUTO 22015G24KT 10SM BKN014 OVC018 12/09 A3006 RMK AO2 SLP182 T01170089 56006KLWD2018-10-19T14:53:00Z40.63-93.911.78.9220152410.030.0590551018.2TRUETRUEMVFR-0.6METAR346.02018-10-19 15:05:17d¾)-5    3KLWV 191453Z AUTO 20004KT 10SM BKN120 08/05 A3026 RMK AO2 SLP250 T00830050 58004KLWV2018-10-19T14:53:00Z38.77-87.68.35.0200410.030.2598421025.0TRUETRUEVFR-0.4METAR131.02018-10-19 15:05:17g¾)+5    3KLXV 191453Z AUTO 36003KT 10SM CLR M02/M05 A3050 RMK AO2 SLP276 T10171050 53018KLXV2018-10-19T14:53:00Z39.23-106.32-1.7-5.0360310.030.4990161027.6TRUETRUEVFR1.8METAR3028.02018-10-19 15:05:17`¾)'5    3KMAE 191453Z AUTO 00000KT 10SM CLR 11/04 A3014 RMK AO2 SLP205 T01060039 53009KMAE2018-10-19T14:53:00Z36.98-120.1210.63.90010.030.1387791020.5TRUETRUEVFR0.9METAR77.02018-10-19 15:05:17 _)F_a¾ )'5    3KLVJ 191453Z AUTO 07008KT 10SM CLR 21/18 A3016 RMK AO2 SLP213 T02110178 53006KLVJ2018-10-19T14:53:00Z29.52-95.2521.117.870810.030.1594491021.3TRUETRUEVFR0.6METAR12.02018-10-19 15:05:17]¾)%5    3KLVK 191453Z AUTO 00000KT 8SM CLR 09/05 A3013 RMK AO2 SLP203 T00940050 53008KLVK2018-10-19T14:53:00Z37.7-121.829.45.0008.030.1299211020.3TRUETRUEVFR0.8METAR117.02018-10-19 15:05:17h¾)/5    3KLVM 191453Z AUTO 30010KT 10SM SCT110 06/M02 A3037 RMK AO2 SLP290 T00561017 53018KLVM2018-10-19T14:53:00Z45.7-110.435.6-1.73001010.030.3690951029.0TRUETRUEVFR1.8METAR1418.02018-10-19 15:05:17c¾)'5    3KLVS 191453Z AUTO 35005KT 10SM CLR 06/03 A3037 RMK AO2 SLP249 T00560028 53016KLVS2018-10-19T14:53:00Z35.65-105.135.62.8350510.030.3690951024.9TRUETRUEVFR1.6METAR2091.02018-10-19 15:05:17 n"7NnZ¾ )5    3KLOU 191453Z 21006KT 10SM CLR 11/04 A3026 RMK AO2 SLP248 T01110044 56015KLOU2018-10-19T14:53:00Z38.22-85.6711.14.4210610.030.2598421024.8TRUEVFR-1.5METAR164.02018-10-19 15:05:17c¾ )'5    3KLOZ 191453Z AUTO 18006KT 10SM CLR 12/07 A3028 RMK AO2 SLP256 T01170072 58012KLOZ2018-10-19T14:53:00Z37.08-84.0711.77.2180610.030.2805121025.6TRUETRUEVFR-1.2METAR362.02018-10-19 15:05:17e¾ ))5    3KLPR 191453Z AUTO 22008KT 10SM CLR 10/M01 A3020 RMK AO2 SLP230 T01001006 58023KLPR2018-10-19T14:53:00Z41.35-82.1810.0-0.6220810.030.2007871023.0TRUETRUEVFR-2.3METAR241.02018-10-19 15:05:17X¾ )5    3KLUK 191453Z 20004KT 10SM CLR 09/05 A3028 RMK AO2 SLP256 T00890050 58017KLUK2018-10-19T14:53:00Z39.1-84.428.95.0200410.030.2805121025.6TRUEVFR-1.7METAR155.02018-10-19 15:05:17 d ,Jd`¾)'5    3KLLQ 191453Z AUTO 00000KT 10SM CLR 16/10 A3026 RMK AO2 SLP246 T01560100 51007KLLQ2018-10-19T14:53:00Z33.63-91.7515.610.00010.030.2598421024.6TRUETRUEVFR0.7METAR83.02018-10-19 15:05:17\¾)!5    3KLMT 191453Z 00000KT 10SM CLR M01/M03 A3036 RMK AO2 SLP285 T10111028 53013KLMT2018-10-19T14:53:00Z42.15-121.72-1.1-2.80010.030.3602371028.5TRUEVFR1.3METAR1246.02018-10-19 15:05:17X¾)5    3KLNS 191453Z 26006KT 10SM CLR 12/04 A3031 RMK AO2 SLP264 T01220039 58011KLNS2018-10-19T14:53:00Z40.12-76.312.23.9260610.030.310041026.4TRUEVFR-1.1METAR125.02018-10-19 15:05:17p¾)75     3KLOL 191453Z AUTO 00000KT 10SM CLR M01/M07 A3036 RMK AO2 SLP289 60000 T10061067 51015KLOL2018-10-19T14:53:00Z40.07-118.57-0.6-6.70010.030.3602371028.9TRUETRUEVFR1.50.005METAR1189.02018-10-19 15:05:17 i,FiW¾)5    3KLGB 191453Z VRB03KT 10SM CLR 16/07 A3001 RMK AO2 SLP163 T01610072 53009KLGB2018-10-19T14:53:00Z33.82-118.1516.17.20310.030.0088581016.3TRUEVFR0.9METAR10.02018-10-19 15:05:17`¾)'5    3KLHQ 191453Z AUTO 00000KT 10SM CLR 09/04 A3027 RMK AO2 SLP255 T00890039 58014KLHQ2018-10-19T14:53:00Z39.75-82.678.93.90010.030.2687021025.5TRUETRUEVFR-1.4METAR260.02018-10-19 15:05:17g¾)-5    3KLHX 191453Z AUTO 27015KT 10SM SCT095 09/04 A3027 RMK AO2 SLP236 T00940044 51021KLHX2018-10-19T14:53:00Z38.05-103.529.44.42701510.030.2687021023.6TRUETRUEVFR2.1METAR1277.02018-10-19 15:05:17a¾)15    3KLIT 191453Z 02003KT 10SM FEW040 OVC080 12/09 A3027 RMK AO2 SLP253 T01220089 50006KLIT2018-10-19T14:53:00Z34.73-92.2312.28.920310.030.2687021025.3TRUEVFR0.6METAR79.02018-10-19 15:05:17 k*IkX¾)5    3KLEB 191453Z 22008KT 10SM CLR 09/01 A3009 RMK AO2 SLP195 T00890006 58020KLEB2018-10-19T14:53:00Z43.63-72.38.90.6220810.030.0885831019.5TRUEVFR-2.0METAR171.02018-10-19 15:05:17[¾)#5    3KLEE 191453Z 05006KT 10SM OVC065 27/22 A3023 RMK AO2 SLP236 T02670222 50014KLEE2018-10-19T14:53:00Z28.82-81.8226.722.250610.030.2303141023.6TRUEVFR1.4METAR23.02018-10-19 15:05:17o¾)95     3KLFK 191453Z AUTO 08006KT 10SM FEW055 18/14 A3020 RMK AO2 SLP223 60000 T01780139 52003KLFK2018-10-19T14:53:00Z31.23-94.7517.813.980610.030.2007871022.3TRUETRUEVFR0.30.005METAR88.02018-10-19 15:05:17[¾)!5    3KLFT 191453Z VRB03KT 10SM CLR 23/17 A3020 RMK AO2 SLP227 T02330172 53010 $KLFT2018-10-19T14:53:00Z30.2-92.023.317.20310.030.2007871022.7TRUETRUEVFR1.0METAR11.02018-10-19 15:05:17 #(¾)s5    3KLBB 191453Z 28007KT 10SM FEW010 OVC026 11/09 A3027 RMK AO2 SLP236 OCNL BINOVC AND BINOVC DSNT W-NW T01060094 53009KLBB2018-10-19T14:53:00Z33.67-101.8210.69.4280710.030.2687021023.6TRUEMVFR0.9METAR993.02018-10-19 15:05:17c¾)'5    3KLBF 191453Z AUTO 31009KT 10SM CLR 10/05 A3013 RMK AO2 SLP202 T01000050 53027KLBF2018-10-19T14:53:00Z41.12-100.6710.05.0310910.030.1299211020.2TRUETRUEVFR2.7METAR847.02018-10-19 15:05:17 ¾)i5      3KLBX 191453Z AUTO 05006KT 10SM -RA FEW055 SCT070 BKN110 21/19 A3014 RMK AO2 SLP206 P0002 60002 T02060189 53009KLBX2018-10-19T14:53:00Z29.12-95.4720.618.950610.030.1387791020.6TRUETRUE-RAVFR0.90.020.02METAR6.02018-10-19 15:05:17W¾)5    3KLCH 191453Z 09009KT 10SM CLR 23/17 A3018 RMK AO2 SLP228 T02330172 50004KLCH2018-10-19T14:53:00Z30.13-93.2223.317.290910.030.1801191022.8TRUEVFR0.4METAR4.02018-10-19 15:05:17 ??Y¾!)5    3KDET 191453Z 24008KT 10SM CLR 10/00 A3012 RMK AO2 SLP202 T01000000 58018KDET2018-10-19T14:53:00Z42.4-83.0210.00.0240810.030.1210631020.2TRUEVFR-1.8METAR190.02018-10-19 15:05:17q¾ )?5    3KDEW 191453Z AUTO 00000KT 7SM FEW002 M02/M03 A3035 RMK AO2 SLP298 I3000 T10221033 51013 $KDEW2018-10-19T14:53:00Z47.97-117.43-2.2-3.3007.030.3513771029.8TRUETRUETRUEVFR1.3METAR674.02018-10-19 15:05:17d¾)'5    3KDFI 191453Z AUTO 22010KT 10SM CLR 11/03 A3018 RMK AO2 SLP223 T01060028 58018KDFI2018-10-19T14:53:00Z41.33-84.4310.62.82201010.030.1801191022.3TRUETRUEVFR-1.8METAR219.02018-10-19 15:05:17{¾)O5      3KDFW 191453Z 03005KT 7SM -RA FEW008 OVC021 14/13 A3023 RMK AO2 SLP232 P0001 60010 T01440133 53007KDFW2018-10-19T14:53:00Z32.9-97.0214.413.33057.030.2303141023.2TRUE-RAMVFR0.70.010.1METAR174.02018-10-19 15:05:17 G0HG{¾%)U5     3KDBQ 191453Z 22009KT 10SM BKN070 OVC085 08/06 A3001 RMK AO2 RAE44 SLP169 P0001 60004 T00830056 58020KDBQ2018-10-19T14:53:00Z42.4-90.78.35.6220910.030.0088581016.9TRUEVFR-2.00.010.04METAR326.02018-10-19 15:05:17b¾$)'5    3KDCU 191453Z AUTO 14009KT 10SM CLR 16/11 A3029 RMK AO2 SLP255 T01610111 50002KDCU2018-10-19T14:53:00Z34.65-86.9516.111.1140910.030.289371025.5TRUETRUEVFR0.2METAR176.02018-10-19 15:05:17`¾#)%5    3KDEN 191453Z 26006KT 10SM FEW120 12/M01 A3032 RMK AO2 SLP232 T01221011 53027KDEN2018-10-19T14:53:00Z39.85-104.6512.2-1.1260610.030.3188971023.2TRUEVFR2.7METAR1640.02018-10-19 15:05:17d¾")-5    3KDEQ 191453Z AUTO 10004KT 10SM OVC031 14/09 A3025 RMK AO2 SLP241 T01440089 53004KDEQ2018-10-19T14:53:00Z34.05-94.414.48.9100410.030.2509841024.1TRUETRUEVFR0.4METAR106.02018-10-19 15:05:17  b¾))%5   3KCYS 191453Z 31013G22KT 10SM CLR 10/M01 A3034 RMK AO2 SLP237 T01001011 53024KCYS2018-10-19T14:53:00Z41.15-104.810.0-1.1310132210.030.3395671023.7TRUEVFR2.4METAR1868.02018-10-19 15:05:17¾()c5     3KDAB 191453Z 09008KT 10SM FEW007 BKN050 BKN100 26/24 A3023 RMK AO2 RAE38 SLP235 P0035 60035 T02560244 51016KDAB2018-10-19T14:53:00Z29.18-81.0725.624.490810.030.2303141023.5TRUEVFR1.60.350.35METAR9.02018-10-19 15:05:17¾')U5      3KDAL 191453Z 03003KT 10SM -RA FEW007 OVC022 16/14 A3024 RMK AO2 SLP238 P0000 60005 T01560139 53008 $KDAL2018-10-19T14:53:00Z32.85-96.8515.613.930310.030.2391741023.8TRUETRUE-RAMVFR0.80.0050.05METAR158.02018-10-19 15:05:17a¾&)'5    3KDAN 191453Z AUTO VRB04KT 10SM CLR 12/08 A3037 RMK AO2 SLP279 T01170078 58004KDAN2018-10-19T14:53:00Z36.57-79.3311.77.80410.030.3690951027.9TRUETRUEVFR-0.4METAR175.02018-10-19 15:05:17 W4MWp¾-)=5   3KCSV 191453Z AUTO 17007G15KT 130V210 10SM CLR 14/07 A3030 RMK AO2 SLP257 T01440067 58006KCSV2018-10-19T14:53:00Z35.95-85.0814.46.717071510.030.3011821025.7TRUETRUEVFR-0.6METAR570.02018-10-19 15:05:17a¾,)-5    3KCUB 191453Z AUTO VRB04KT 10SM FEW033 18/08 A3036 RMK AO2 SLP279 T01780078 50001KCUB2018-10-19T14:53:00Z33.97-81.017.87.80410.030.3602371027.9TRUETRUEVFR0.1METAR56.02018-10-19 15:05:17e¾+))5    3KCUT 191453Z AUTO 36003KT 10SM CLR 07/M04 A3026 RMK AO2 SLP230 T00721039 53039KCUT2018-10-19T14:53:00Z43.73-103.627.2-3.9360310.030.2598421023.0TRUETRUEVFR3.9METAR1725.02018-10-19 15:05:17[¾*)#5    3KCXO 191453Z 08004KT 10SM FEW070 18/16 A3019 RMK AO2 SLP221 T01830161 53007KCXO2018-10-19T14:53:00Z30.35-95.4218.316.180410.030.1889761022.1TRUEVFR0.7METAR75.02018-10-19 15:05:17 T 1TW¾1)5    3KCRE 191453Z 03008KT 10SM CLR 20/13 A3033 RMK AO1 SLP272 T02000128 50002KCRE2018-10-19T14:53:00Z33.82-78.7220.012.830810.030.330711027.2TRUEVFR0.2METAR10.02018-10-19 15:05:17i¾0)?5    3KCRG 191453Z 06009KT 10SM SCT024 SCT045 SCT055 28/22 A3025 RMK AO2 SLP242 T02780217 51009KCRG2018-10-19T14:53:00Z30.33-81.5227.821.760910.030.2509841024.2TRUEVFR0.9METAR13.02018-10-19 15:05:17a¾/)'5    3KCRQ 191453Z AUTO 08005KT 10SM CLR 18/03 A2999 RMK AO2 SLP154 T01830033 53007KCRQ2018-10-19T14:53:00Z33.13-117.2818.33.380510.029.9911421015.4TRUETRUEVFR0.7METAR99.02018-10-19 15:05:17s¾.)E5      3KCRS 191453Z AUTO -RA OVC021 16/12 A3024 RMK AO2 RAE01B24 SLP237 P0000 60000 T01560122 53006KCRS2018-10-19T14:53:00Z32.03-96.415.612.230.2391741023.7TRUETRUE-RA0.60.0050.005METAR133.02018-10-19 15:05:17 n>NnZ¾5)5    3KCNO 191453Z 19004KT 10SM CLR 17/05 A3005 RMK AO2 SLP171 T01720050 53007KCNO2018-10-19T14:53:00Z33.98-117.6217.25.0190410.030.0501981017.1TRUEVFR0.7METAR207.02018-10-19 15:05:17j¾4)15     3KCOT 191453Z AUTO 35005KT 2SM BR OVC003 16/16 A3018 RMK AO2 SLP216 T01610161 51010KCOT2018-10-19T14:53:00Z28.45-99.2216.116.135052.030.1801191021.6TRUETRUEBRLIFR1.0METAR140.02018-10-19 15:05:17Y¾3)5    3KCPR 191453Z 25008KT 10SM CLR 06/01 A3036 RMK AO2 SLP273 T00610006 51024KCPR2018-10-19T14:53:00Z42.9-106.476.10.6250810.030.3602371027.3TRUEVFR2.4METAR1621.02018-10-19 15:05:17]¾2)#5    3KCPS 191453Z 20006KT 10SM OVC075 11/03 A3023 RMK AO2 SLP237 T01110033 56007KCPS2018-10-19T14:53:00Z38.57-90.1511.13.3200610.030.2303141023.7TRUEVFR-0.7METAR126.02018-10-19 15:05:17 5 5e¾9))5    3KRIW 191453Z AUTO 28006KT 10SM CLR 07/M02 A3038 RMK AO2 SLP274 T00721022 53026KRIW2018-10-19T14:53:00Z43.07-108.477.2-2.2280610.030.3809051027.4TRUETRUEVFR2.6METAR1697.02018-10-19 15:05:17b¾8)+5     3KCLM 191453Z AUTO 00000KT 4SM BR CLR 04/03 A3028 RMK AO2 SLP256 T00390033 52006KCLM2018-10-19T14:53:00Z48.12-123.53.93.3004.030.2805121025.6TRUETRUEBRMVFR0.6METAR85.02018-10-19 15:05:17¾7)U5     3KCMI 191453Z 20011G17KT 10SM -RA OVC100 09/03 A3020 RMK AO2 RAB51 SLP229 P0000 60000 T00940028 58012KCMI2018-10-19T14:53:00Z40.03-88.279.42.8200111710.030.2007871022.9TRUE-RAVFR-1.20.0050.005METAR228.02018-10-19 15:05:17g¾6)-5    3KCNM 191453Z AUTO 33004KT 10SM OVC030 10/08 A3030 RMK AO2 SLP243 T01000078 53016KCNM2018-10-19T14:53:00Z32.33-104.2510.07.8330410.030.3011821024.3TRUETRUEMVFR1.6METAR985.02018-10-19 15:05:17 ^¾=)%5    3KRBG 191453Z AUTO 00000KT 8SM CLR 06/02 A3025 RMK AO2 SLP244 T00560022 53013KRBG2018-10-19T14:53:00Z43.23-123.355.62.2008.030.2509841024.4TRUETRUEVFR1.3METAR154.02018-10-19 15:05:17c¾<)75    3KRDD 191453Z 00000KT 10SM CLR 08/03 A3014 RMK AO2 SLP204 T00830033 53008 VISNO RWY 34KRDD2018-10-19T14:53:00Z40.52-122.38.33.30010.030.1387791020.4TRUEVFR0.8METAR155.02018-10-19 15:05:17%¾;)5    3KRHI 191453Z AUTO 22014G23KT 10SM OVC010 11/08 A2976 RMK AO2 PK WND 22026/1432 RAE34 CIG 006V014 SLP083 P0003 60008 T01060078 58018KRHI2018-10-19T14:53:00Z45.63-89.4810.67.8220142310.029.7608261008.3TRUETRUEMVFR-1.80.030.08METAR485.02018-10-19 15:05:17d¾:)-5    3KRIL 191453Z AUTO 00000KT 10SM FEW033 06/03 A3047 RMK AO2 SLP301 T00610028 53016KRIL2018-10-19T14:53:00Z39.53-107.736.12.80010.030.4694881030.1TRUETRUEVFR1.6METAR1678.02018-10-19 15:05:17 #6¾A)u5      3KPWA 191453Z 19008KT 10SM -RA BKN009 OVC022 13/12 A3023 RMK AO2 RAB46 CIG 006V012 SLP234 P0000 60000 T01280122 50003KPWA2018-10-19T14:53:00Z35.53-97.6512.812.2190810.030.2303141023.4TRUE-RAIFR0.30.0050.005METAR397.02018-10-19 15:05:17g¾@)-5    3KRAC 191453Z AUTO 22011KT 10SM BKN110 11/01 A3003 RMK AO2 SLP171 T01060011 58022KRAC2018-10-19T14:53:00Z42.77-87.8210.61.12201110.030.0295281017.1TRUETRUEVFR-2.2METAR203.02018-10-19 15:05:17Z¾?)5    3KRAL 191453Z 12003KT 10SM CLR 15/03 A3005 RMK AO2 SLP162 T01500033 53009KRAL2018-10-19T14:53:00Z33.95-117.4515.03.3120310.030.0501981016.2TRUEVFR0.9METAR252.02018-10-19 15:05:17w¾>)G5     3KRBD 191453Z 06004KT 10SM OVC022 14/13 A3023 RMK AO2 RAE26 SLP234 P0001 60003 T01440128 53007KRBD2018-10-19T14:53:00Z32.68-96.8714.412.860410.030.2303141023.4TRUEMVFR0.70.010.03METAR203.02018-10-19 15:05:17 i5Vig¾E)35    3KPTK 191453Z 23010KT 10SM FEW095 BKN180 10/M01 A3009 RMK AO2 SLP193 T01001006 58017KPTK2018-10-19T14:53:00Z42.67-83.4210.0-0.62301010.030.0885831019.3TRUEVFR-1.7METAR299.02018-10-19 15:05:17Y¾D)5    3KPUB 191453Z 26005KT 10SM CLR 09/03 A3030 RMK AO2 SLP244 T00940033 53024KPUB2018-10-19T14:53:00Z38.28-104.59.43.3260510.030.3011821024.4TRUEVFR2.4METAR1420.02018-10-19 15:05:17`¾C)'5    3KPUC 191453Z AUTO 00000KT 10SM CLR 03/03 A3044 RMK AO2 SLP325 T00330028 53018KPUC2018-10-19T14:53:00Z39.62-110.753.32.80010.030.439961032.5TRUETRUEVFR1.8METAR2091.02018-10-19 15:05:17_¾B)%5    3KPUW 191453Z AUTO 06004KT 7SM CLR 07/01 A3035 RMK AO2 SLP289 T00720011 53010KPUW2018-10-19T14:53:00Z46.75-117.127.21.16047.030.3513771028.9TRUETRUEVFR1.0METAR773.02018-10-19 15:05:17 m/KmX¾I)5    3KPRC 191453Z 00000KT 10SM CLR 06/02 A3026 RMK AO2 SLP216 T00610022 53010KPRC2018-10-19T14:53:00Z34.65-112.426.12.20010.030.2598421021.6TRUEVFR1.0METAR1524.02018-10-19 15:05:17^¾H)#5     3KPSC 191453Z 36004KT 6SM BR CLR 01/M01 A3036 RMK AO2 SLP283 T00061011 51017KPSC2018-10-19T14:53:00Z46.27-119.120.6-1.136046.030.3602371028.3TRUEBRVFR1.7METAR121.02018-10-19 15:05:17Z¾G)5    3KPSP 191453Z 31010KT 10SM CLR 24/01 A3009 RMK AO2 SLP187 T02440006 53011KPSP2018-10-19T14:53:00Z33.82-116.524.40.63101010.030.0885831018.7TRUEVFR1.1METAR135.02018-10-19 15:05:17k¾F)35     3KPSX 191453Z AUTO 06010KT 10SM CLR 21/21 A3012 RMK AO2 SLP199 60018 T02110211 53005KPSX2018-10-19T14:53:00Z28.72-96.2521.121.1601010.030.1210631019.9TRUETRUEVFR0.50.18METAR5.02018-10-19 15:05:17 u=_ud¾M)-5    3KPOF 191453Z AUTO 25004KT 10SM SCT085 13/07 A3028 RMK AO2 SLP255 T01330067 50005KPOF2018-10-19T14:53:00Z36.77-90.3213.36.7250410.030.2805121025.5TRUETRUEVFR0.5METAR99.02018-10-19 15:05:17X¾L)5    3KPOU 191453Z 21009KT 10SM CLR 09/00 A3022 RMK AO2 SLP230 T00890000 56018KPOU2018-10-19T14:53:00Z41.63-73.888.90.0210910.030.2214571023.0TRUEVFR-1.8METAR46.02018-10-19 15:05:17V¾K)5    3KPQL 191453Z 00000KT 10SM CLR 25/18 A3022 RMK AO2 SLP234 T02500183 51010KPQL2018-10-19T14:53:00Z30.47-88.5325.018.30010.030.2214571023.4TRUEVFR1.0METAR6.02018-10-19 15:05:17a¾J))5    3KPRB 191453Z AUTO 00000KT 10SM CLR 06/M01 A3015 RMK AO2 SLP208 T00561006 51009KPRB2018-10-19T14:53:00Z35.67-120.635.6-0.60010.030.150591020.8TRUETRUEVFR0.9METAR245.02018-10-19 15:05:17 a/Nag¾Q)-5   3KPKD 191453Z AUTO 32013G21KT 10SM CLR 11/02 A2975 RMK AO2 SLP076 T01060017 53021KPKD2018-10-19T14:53:00Z46.9-95.0710.61.7320132110.029.7490161007.6TRUETRUEVFR2.1METAR442.02018-10-19 15:05:17[¾P)5    3KPMD 191453Z 28004KT 10SM CLR 09/M05 A3020 RMK AO2 SLP216 T00891050 53010KPMD2018-10-19T14:53:00Z34.63-118.088.9-5.0280410.030.2007871021.6TRUEVFR1.0METAR780.02018-10-19 15:05:17[¾O)#5    3KPMP 191453Z 07010KT 10SM SCT024 30/23 A3017 RMK AO2 SLP217 T03000233 51013KPMP2018-10-19T14:53:00Z26.25-80.1230.023.3701010.030.1712591021.7TRUEVFR1.3METAR6.02018-10-19 15:05:17j¾N)/5    3KPNS 191453Z COR FEW018 10SM 10004KT 26/21 A3022 RMK AO2 SLP235 T02560206 51010 $KPNS2018-10-19T14:53:00Z30.48-87.1825.620.6100410.030.2214571023.5TRUETRUETRUEVFR1.0METAR38.02018-10-19 15:05:17 J#F5Je¾U))5    3KLAR 191453Z AUTO 13003KT 10SM CLR 02/M01 A3041 RMK AO2 SLP284 T00221006 53024KLAR2018-10-19T14:53:00Z41.32-105.672.2-0.6130310.030.4104331028.4TRUETRUEVFR2.4METAR2216.02018-10-19 15:05:17 ¾T)c5      3KLAW 191453Z 17005KT 3SM -RA BR SCT005 BKN015 OVC031 12/12 A3026 RMK AO2 SLP245 P0017 60043 T01220122 53009KLAW2018-10-19T14:53:00Z34.55-98.4212.212.217053.030.2598421024.5TRUE-RA BRMVFR0.90.170.43METAR337.02018-10-19 15:05:17W¾S)5    3KLAX 191453Z 09003KT 10SM CLR 18/03 A3002 RMK AO2 SLP163 T01830033 53007KLAX2018-10-19T14:53:00Z33.93-118.3818.33.390310.030.020671016.3TRUEVFR0.7METAR46.02018-10-19 15:05:17W¾R)5    3KPKB 191453Z 00000KT 10SM CLR 08/03 A3032 RMK AO2 SLP273 T00780028 58017KPKB2018-10-19T14:53:00Z39.35-81.427.82.80010.030.3188971027.3TRUEVFR-1.7METAR262.02018-10-19 15:05:17 >0#>_¾Y)'5    3KJKL 191453Z AUTO 00000KT 10SM CLR 09/04 A3028 RMK AO2 SLP254 T00940044 58012KJKL2018-10-19T14:53:00Z37.6-83.329.44.40010.030.2805121025.4TRUETRUEVFR-1.2METAR416.02018-10-19 15:05:17¾X)c5     3KJLN 191453Z 18010KT 10SM BKN007 BKN023 OVC032 11/10 A3024 RMK AO2 RAE52 SLP238 P0000 60016 T01060100 58005KJLN2018-10-19T14:53:00Z37.15-94.510.610.01801010.030.2391741023.8TRUEIFR-0.50.0050.16METAR299.02018-10-19 15:05:17d¾W)'5    3KLAA 191453Z AUTO 26011KT 10SM CLR 09/06 A3024 RMK AO2 SLP227 T00940056 53023KLAA2018-10-19T14:53:00Z38.07-102.689.45.62601110.030.2391741022.7TRUETRUEVFR2.3METAR1119.02018-10-19 15:05:17`¾V)#5   3KLAN 191453Z 23012G20KT 10SM CLR 10/01 A3009 RMK AO2 SLP193 T01000006 56018KLAN2018-10-19T14:53:00Z42.78-84.5810.00.6230122010.030.0885831019.3TRUEVFR-1.8METAR264.02018-10-19 15:05:17 X4LXn¾]);5     3KIXD 191453Z 20013KT 9SM BKN036 OVC050 12/10 A3015 RMK AO2 SLP208 60000 T01220100 56013KIXD2018-10-19T14:53:00Z38.82-94.8812.210.0200139.030.150591020.8TRUEVFR-1.30.005METAR342.02018-10-19 15:05:17b¾\)-5    3KJBR 191453Z AUTO 00000KT 10SM SCT100 13/07 A3028 RMK AO2 SLP251 T01330072 53006KJBR2018-10-19T14:53:00Z35.83-90.6513.37.20010.030.2805121025.1TRUETRUEVFR0.6METAR79.02018-10-19 15:05:17\¾[)#5    3KJEF 191453Z 19005KT 10SM OVC050 13/05 A3019 RMK AO2 SLP213 T01280050 58012KJEF2018-10-19T14:53:00Z38.6-92.1512.85.0190510.030.1889761021.3TRUEVFR-1.2METAR168.02018-10-19 15:05:17d¾Z))5    3KJER 191453Z AUTO 08007KT 10SM CLR 06/M01 A3039 RMK AO2 SLP292 T00611006 53017KJER2018-10-19T14:53:00Z42.72-114.456.1-0.680710.030.3897631029.2TRUETRUEVFR1.7METAR1222.02018-10-19 15:05:17Y88@HPX`hpx (08@HPX`hpx (08@HPX`hpx½P½T½X½\½`½d½h½l½o½r½v½z½P½T½X½\½`½d½h½l½o½r½v½z½}¾¾¾ ¾ ¾¾¾¾¾!¾%¾)¾-¾1¾5¾9•¾=Õ¾Aĕ¾Eŕ¾Iƕ¾MǕ¾Qȕ¾Uɕ¾Yʕ¾]̕¾a͕¾eΕ¾iϕ¾mЕ¾qѕ¾uҕ¾yӕ¾}ԕ¿Օ¿֕¿ ו¿ ؕ¿ٕ¿ڕ¿ە¿ܕ¿!ݕ¿%ޕ¿)ߕ¿-¿1¿5¿9¿=¿A¿E¿I¿M¿Q¿U¿X¿\¿`¿d¿h¿l¿p¿t¿x¿|  $(, ?(.?i¾a)-5   3KIML 191453Z AUTO 32012G22KT 10SM CLR 11/02 A3016 RMK AO2 SLP210 T01110017 53025KIML2018-10-19T14:53:00Z40.52-101.6211.11.7320122210.030.1594491021.0TRUETRUEVFR2.5METAR998.02018-10-19 15:05:17t¾`)I5    3KINK 191453Z AUTO 35004KT 10SM FEW006 BKN028 OVC080 11/09 A3028 RMK AO2 SLP240 T01060094 53013KINK2018-10-19T14:53:00Z31.78-103.210.69.4350410.030.2805121024.0TRUETRUEMVFR1.3METAR855.02018-10-19 15:05:17b¾_)'5    3KIPL 191453Z AUTO 34004KT 10SM CLR 17/07 A3002 RMK AO2 SLP164 T01720072 52013KIPL2018-10-19T14:53:00Z32.83-115.5817.27.2340410.030.020671016.4TRUETRUEVFR1.3METAR-17.02018-10-19 15:05:17j¾^)-5   3KITR 191453Z AUTO 33017G25KT 10SM CLR 13/02 A3022 RMK AO2 SLP215 T01330022 53026KITR2018-10-19T14:53:00Z39.23-102.2813.32.2330172510.030.2214571021.5TRUETRUEVFR2.6METAR1279.02018-10-19 15:05:17 h$@Qhc¾e)'5    3KICR 191453Z AUTO 32016KT 10SM CLR 12/03 A3007 RMK AO2 SLP184 T01170028 53043KICR2018-10-19T14:53:00Z43.38-99.8511.72.83201610.030.0708661018.4TRUETRUEVFR4.3METAR621.02018-10-19 15:05:17i¾d)/5     3KICT 191453Z 20011KT 10SM OVC006 12/12 A3017 RMK AO2 SLP215 60001 T01220117 55001KICT2018-10-19T14:53:00Z37.65-97.4312.211.72001110.030.1712591021.5TRUEIFR-0.10.01METAR407.02018-10-19 15:05:17^¾c)!5    3KIDA 191453Z 36003KT 10SM CLR M01/M03 A3043 RMK AO2 SLP317 T10061028 52018KIDA2018-10-19T14:53:00Z43.52-112.07-0.6-2.8360310.030.4311031031.7TRUEVFR1.8METAR1453.02018-10-19 15:05:17V¾b)5    3KILM 191453Z 08009KT 10SM CLR 20/12 A3035 RMK AO2 SLP277 T02000122 50001KILM2018-10-19T14:53:00Z34.27-77.920.012.280910.030.3513771027.7TRUEVFR0.1METAR9.02018-10-19 15:05:17 G!9Gl¾i)35   3KHYR 191453Z AUTO 22009G18KT 10SM BKN026 12/08 A2970 RMK AO2 SLP059 T01220083 58023KHYR2018-10-19T14:53:00Z46.02-91.4512.28.322091810.029.6988181005.9TRUETRUEMVFR-2.3METAR370.02018-10-19 15:05:17b¾h)'5    3KHZY 191453Z AUTO 20010KT 10SM CLR 08/01 A3019 RMK AO2 SLP229 T00830011 58023KHZY2018-10-19T14:53:00Z41.78-80.78.31.12001010.030.1889761022.9TRUETRUEVFR-2.3METAR276.02018-10-19 15:05:17r¾g)G5   3KIAG 191453Z 22020G25KT 10SM CLR 12/07 A3008 RMK AO2 PK WND 23029/1430 SLP192 T01220067 58021KIAG2018-10-19T14:53:00Z43.12-78.9312.26.7220202510.030.0797251019.2TRUEVFR-2.1METAR182.02018-10-19 15:05:17a¾f)15    3KIAH 191453Z 08005KT 10SM BKN160 BKN250 22/17 A3017 RMK AO2 SLP215 T02170172 53006KIAH2018-10-19T14:53:00Z30.0-95.3721.717.280510.030.1712591021.5TRUEVFR0.6METAR36.02018-10-19 15:05:17 l0Ol]¾m)#5    3KGTF 191453Z 24004KT 10SM OVC100 05/01 A3034 RMK AO2 SLP295 T00500006 53020KGTF2018-10-19T14:53:00Z47.47-111.385.00.6240410.030.3395671029.5TRUEVFR2.0METAR1119.02018-10-19 15:05:17[¾l)#5    3KHVN 191453Z 24009KT 10SM SCT250 11/01 A3024 RMK AO2 SLP238 T01060011 58019KHVN2018-10-19T14:53:00Z41.27-72.8710.61.1240910.030.2391741023.8TRUEVFR-1.9METAR4.02018-10-19 15:05:17d¾k))5    3KHVR 191453Z AUTO 28003KT 10SM CLR 02/M01 A3034 RMK AO2 SLP295 T00221006 51019KHVR2018-10-19T14:53:00Z48.55-109.772.2-0.6280310.030.3395671029.5TRUETRUEVFR1.9METAR787.02018-10-19 15:05:17`¾j)15    3KHWO 191453Z 06009KT 10SM SCT028 SCT035 29/23 A3018 RMK AO2 SLP219 T02940233 51013KHWO2018-10-19T14:53:00Z26.0-80.2329.423.360910.030.1801191021.9TRUEVFR1.3METAR2.02018-10-19 15:05:17 b#5BbZ¾q)5    3KGRI 191453Z 25014KT 10SM CLR 12/09 A3005 RMK AO2 SLP177 T01220089 53008KGRI2018-10-19T14:53:00Z40.97-98.3212.28.92501410.030.0501981017.7TRUEVFR0.8METAR561.02018-10-19 15:05:17m¾p)C5    3KGRR 191453Z 21010KT 10SM BKN140 OVC250 09/02 A3006 RMK AO2 SLP182 VIRGA NW T00940022 58021KGRR2018-10-19T14:53:00Z42.88-85.529.42.22101010.030.0590551018.2TRUEVFR-2.1METAR237.02018-10-19 15:05:17h¾o)-5   3KGSH 191453Z AUTO 21013G19KT 10SM CLR 10/02 A3015 RMK AO2 SLP212 T01000022 58017KGSH2018-10-19T14:53:00Z41.53-85.7810.02.2210131910.030.150591021.2TRUETRUEVFR-1.7METAR252.02018-10-19 15:05:17W¾n)5    3KGSP 191453Z 00000KT 10SM CLR 15/08 A3036 RMK AO2 SLP278 T01500083 58002KGSP2018-10-19T14:53:00Z34.9-82.2215.08.30010.030.3602371027.8TRUEVFR-0.2METAR287.02018-10-19 15:05:17  i¾u)A5    3KGNV 191453Z 09007KT 050V120 10SM SCT017 BKN090 27/23 A3027 RMK AO2 SLP246 T02720228 51010KGNV2018-10-19T14:53:00Z29.7-82.2827.222.890710.030.2687021024.6TRUEVFR1.0METAR45.02018-10-19 15:05:17¾t)_5     3KGOK 191453Z AUTO 19008KT 10SM BKN007 OVC028 13/12 A3023 RMK AO2 CIG 005V010 SLP237 60000 T01280122 53003KGOK2018-10-19T14:53:00Z35.85-97.412.812.2190810.030.2303141023.7TRUETRUEIFR0.30.005METAR324.02018-10-19 15:05:17X¾s)5    3KGPT 191453Z 05004KT 10SM CLR 24/16 A3022 RMK AO2 SLP231 T02440161 51012KGPT2018-10-19T14:53:00Z30.42-89.0824.416.150410.030.2214571023.1TRUEVFR1.2METAR14.02018-10-19 15:05:17¾r)o5    3KGRB 191453Z 21013G21KT 10SM FEW060 BKN085 OVC110 11/06 A2988 RMK AO2 RAB29E48 SLP119 P0000 60000 T01060061 58024KGRB2018-10-19T14:53:00Z44.48-88.1310.66.1210132110.029.8789371011.9TRUEVFR-2.40.0050.005METAR208.02018-10-19 15:05:17 L!<Lj¾y)+5    3KGLD 191453Z AUTO 32015KT 10SM CLR 13/04 A3018 RMK AO2 SLP207 T01280044 53024 $KGLD2018-10-19T14:53:00Z39.37-101.712.84.43201510.030.1801191020.7TRUETRUETRUEVFR2.4METAR1113.02018-10-19 15:05:17[¾x)!5    3KGLH 191453Z 00000KT 10SM CLR 16/09 A3026 RMK AO2 SLP253 T01610089 53007 $KGLH2018-10-19T14:53:00Z33.5-90.9816.18.90010.030.2598421025.3TRUETRUEVFR0.7METAR45.02018-10-19 15:05:17~¾w)W5   3KGLR 191453Z AUTO 23017G27KT 10SM FEW120 12/06 A2987 RMK AO2 PK WND 24030/1435 SLP120 T01170056 56026KGLR2018-10-19T14:53:00Z45.02-84.6811.75.6230172710.029.8700791012.0TRUETRUEVFR-2.6METAR407.02018-10-19 15:05:17Y¾v)5    3KGMU 191453Z 07004KT 10SM CLR 16/07 A3036 RMK AO2 SLP279 T01610067 58002KGMU2018-10-19T14:53:00Z34.85-82.3516.16.770410.030.3602371027.9TRUEVFR-0.2METAR315.02018-10-19 15:05:17 =.=k¾})95    3KGGG 191453Z COR 07003KT 10SM FEW065 BKN120 16/12 A3022 RMK AO2 SLP233 T01560122 53004KGGG2018-10-19T14:53:00Z32.38-94.7215.612.270310.030.2214571023.3TRUETRUEVFR0.4METAR107.02018-10-19 15:05:17d¾|)-5    3KGIF 191453Z AUTO 08006KT 10SM FEW041 28/23 A3022 RMK AO2 SLP233 T02830228 51013KGIF2018-10-19T14:53:00Z28.07-81.7528.322.880610.030.2214571023.3TRUETRUEVFR1.3METAR43.02018-10-19 15:05:17c¾{)'5    3KGKJ 191453Z AUTO 20010KT 10SM CLR 08/01 A3020 RMK AO2 SLP236 T00780006 58017KGKJ2018-10-19T14:53:00Z41.63-80.227.80.62001010.030.2007871023.6TRUETRUEVFR-1.7METAR428.02018-10-19 15:05:17y¾z)M5     3KGKY 191453Z 01003KT 10SM OVC022 15/14 A3024 RMK AO2 RAB05E35 SLP236 P0001 60002 T01500144 53008KGKY2018-10-19T14:53:00Z32.67-97.115.014.410310.030.2391741023.6TRUEMVFR0.80.010.02METAR192.02018-10-19 15:05:17 [4D[c¿))5    3KGEY 191453Z AUTO 00000KT 10SM CLR 01/M02 A3035 RMK AO2 SLP293 T00061022 51024KGEY2018-10-19T14:53:00Z44.52-108.080.6-2.20010.030.3513771029.3TRUETRUEVFR2.4METAR1191.02018-10-19 15:05:17j¿)55    3KGEZ 191453Z AUTO 18010KT 10SM CLR 11/01 A3022 RMK AO2 PRESFR SLP238 T01110011 58016KGEZ2018-10-19T14:53:00Z39.58-85.811.11.11801010.030.2214571023.8TRUETRUEVFR-1.6METAR245.02018-10-19 15:05:17]¾)#5    3KGFK 191453Z 31013KT 10SM FEW200 11/01 A2986 RMK AO2 SLP115 T01060011 53027KGFK2018-10-19T14:53:00Z47.95-97.1810.61.13101310.029.8612211011.5TRUEVFR2.7METAR258.02018-10-19 15:05:17c¾~)'5    3KGFL 191453Z AUTO 17011KT 10SM CLR 08/02 A3013 RMK AO2 SLP209 T00780017 58022KGFL2018-10-19T14:53:00Z43.33-73.627.81.71701110.030.1299211020.9TRUETRUEVFR-2.2METAR103.02018-10-19 15:05:17 34A3¿)c5      3KFYV 191453Z 18003KT 4SM -RA BR SCT007 BKN019 OVC026 09/08 A3027 RMK AO2 SLP250 P0011 60020 T00890078 51002KFYV2018-10-19T14:53:00Z36.02-94.178.97.818034.030.2687021025.0TRUE-RA BRMVFR0.20.110.2METAR379.02018-10-19 15:05:17m¿)35     3KGAG 191453Z AUTO 23013KT 10SM CLR 13/09 A3018 RMK AO2 SLP214 60000 T01330094 53002KGAG2018-10-19T14:53:00Z36.3-99.7713.39.42301310.030.1801191021.4TRUETRUEVFR0.20.005METAR668.02018-10-19 15:05:17d¿))5    3KGCC 191453Z AUTO 33006KT 10SM CLR 08/M01 A3033 RMK AO2 SLP265 T00831011 51037KGCC2018-10-19T14:53:00Z44.33-105.558.3-1.1330610.030.330711026.5TRUETRUEVFR3.7METAR1320.02018-10-19 15:05:17\¿)#5    3KGEG 191453Z 11003KT 10SM SCT250 03/01 A3035 RMK AO2 SLP290 T00330011 51016KGEG2018-10-19T14:53:00Z47.62-117.533.31.1110310.030.3513771029.0TRUEVFR1.6METAR735.02018-10-19 15:05:17 \'4\R¿ )5    3KFUL 191453Z 00000KT 10SM CLR 17/06 A3000 RMK AO2 SLP158 T01670056 53007KFUL2018-10-19T14:53:00Z33.87-117.9816.75.60010.030.01015.8TRUEVFR0.7METAR35.02018-10-19 15:05:17m¿)=5    3KFVE 191453Z AUTO 18007KT 10SM FEW040 OVC060 00/M07 A2997 RMK AO2 SLP160 T00001067 58013KFVE2018-10-19T14:53:00Z47.28-68.30.0-6.7180710.029.9704721016.0TRUETRUEVFR-1.3METAR301.02018-10-19 15:05:17a¿)'5    3KFWN 191453Z AUTO 20006KT 10SM CLR 09/02 A3024 RMK AO2 SLP242 T00940022 58019KFWN2018-10-19T14:53:00Z41.2-74.639.42.2200610.030.2391741024.2TRUETRUEVFR-1.9METAR133.02018-10-19 15:05:17l¿)=5     3KFXE 191453Z 09011KT 10SM SCT026 SCT034 30/24 A3017 RMK AO2 SLP218 60000 T03000244 51013KFXE2018-10-19T14:53:00Z26.2-80.1830.024.4901110.030.1712591021.8TRUEVFR1.30.005METAR6.02018-10-19 15:05:17 66c¿ )'5    3KFRG 191453Z AUTO 26011KT 10SM CLR 12/01 A3027 RMK AO2 SLP249 T01170006 58017KFRG2018-10-19T14:53:00Z40.73-73.4211.70.62601110.030.2687021024.9TRUETRUEVFR-1.7METAR21.02018-10-19 15:05:17u¿ )G5     3KFSM 191453Z 03006KT 10SM OVC029 11/09 A3028 RMK AO2 RAE53 SLP253 P0002 60010 T01110094 51006KFSM2018-10-19T14:53:00Z35.33-94.3711.19.430610.030.2805121025.3TRUEMVFR0.60.020.1METAR140.02018-10-19 15:05:17~¿ )Q5      3KFTW 191453Z 01003KT 10SM -RA FEW007 OVC020 14/13 A3025 RMK AO2 SLP240 P0012 60020 T01390128 53011KFTW2018-10-19T14:53:00Z32.83-97.3713.912.810310.030.2509841024.0TRUE-RAMVFR1.10.120.2METAR214.02018-10-19 15:05:17\¿ )#5    3KFTY 191453Z 08005KT 10SM OVC028 17/10 A3033 RMK AO2 SLP267 T01720100 50002KFTY2018-10-19T14:53:00Z33.78-84.5217.210.080510.030.330711026.7TRUEMVFR0.2METAR263.02018-10-19 15:05:17 i#?Oi`¿)#5   3KFNT 191453Z 24016G21KT 10SM CLR 11/00 A3008 RMK AO2 SLP189 T01110000 58019KFNT2018-10-19T14:53:00Z42.97-83.7511.10.0240162110.030.0797251018.9TRUEVFR-1.9METAR233.02018-10-19 15:05:17j¿)/5     3KFOE 191453Z 21007KT 10SM OVC011 12/10 A3014 RMK AO2 SLP204 60000 T01220100 55007KFOE2018-10-19T14:53:00Z38.93-95.6512.210.0210710.030.1387791020.4TRUEMVFR-0.70.005METAR320.02018-10-19 15:05:17^¿)!5    3KFOK 191453Z 21009KT 10SM CLR 12/00 A3028 RMK AO2 SLP269 T01170000 50020 $KFOK2018-10-19T14:53:00Z40.85-72.6211.70.0210910.030.2805121026.9TRUETRUEVFR2.0METAR33.02018-10-19 15:05:17W¿)5    3KFPR 191453Z 08006KT 10SM CLR 29/22 A3019 RMK AO2 SLP222 T02940222 51013KFPR2018-10-19T14:53:00Z27.5-80.3829.422.280610.030.1889761022.2TRUEVFR1.3METAR13.02018-10-19 15:05:17 N ,NX¿)5    3KFLO 191453Z 08005KT 10SM CLR 18/11 A3036 RMK AO2 SLP279 T01830111 50001KFLO2018-10-19T14:53:00Z34.18-79.7318.311.180510.030.3602371027.9TRUEVFR0.1METAR44.02018-10-19 15:05:17Y¿)5    3KFMN 191453Z 07003KT 10SM CLR 04/02 A3038 RMK AO2 SLP281 T00390022 53015KFMN2018-10-19T14:53:00Z36.75-108.233.92.270310.030.3809051028.1TRUEVFR1.5METAR1685.02018-10-19 15:05:17[¿)#5    3KFMY 191453Z 07008KT 10SM BKN023 28/23 A3018 RMK AO2 SLP220 T02830228 51011KFMY2018-10-19T14:53:00Z26.58-81.8728.322.870810.030.1801191022.0TRUEMVFR1.1METAR4.02018-10-19 15:05:17¿)e5     3KFNB 191453Z AUTO 22009KT 10SM FEW012 OVC021 12/11 A3008 RMK AO2 RAB26E40 SLP186 P0000 60000 T01220111 56002KFNB2018-10-19T14:53:00Z40.07-95.5812.211.1220910.030.0797251018.6TRUETRUEMVFR-0.20.0050.005METAR300.02018-10-19 15:05:17 T.@Tf¿)-5    3KFFC 191453Z AUTO 09006KT 10SM OVC021 17/10 A3034 RMK AO2 SLP273 T01670100 50004KFFC2018-10-19T14:53:00Z33.35-84.5716.710.090610.030.3395671027.3TRUETRUEMVFR0.4METAR262.02018-10-19 15:05:17h¿)35    3KFFT 191453Z AUTO 15003KT 10SM CLR 11/05 A3025 RMK AO2 SLP246 I3000 T01110050 58015KFFT2018-10-19T14:53:00Z38.18-84.911.15.0150310.030.2509841024.6TRUETRUEVFR-1.5METAR236.02018-10-19 15:05:17j¿)35     3KFHR 191453Z AUTO 00000KT 1/4SM FG VV002 07/06 A3029 RMK AO2 SLP256 T00670056 53005KFHR2018-10-19T14:53:00Z48.52-123.036.75.6000.2530.289371025.6TRUETRUEFGLIFR0.5200METAR32.02018-10-19 15:05:17\¿)#5    3KFLL 191453Z 10011KT 10SM FEW025 29/24 A3016 RMK AO2 SLP212 T02940244 51013KFLL2018-10-19T14:53:00Z26.07-80.1529.424.41001110.030.1594491021.2TRUEVFR1.3METAR3.02018-10-19 15:05:17 77W¿)5    3KFAY 191453Z 09003KT 10SM CLR 17/08 A3037 RMK AO2 SLP277 T01670078 50000KFAY2018-10-19T14:53:00Z34.98-78.8816.77.890310.030.3690951027.7TRUEVFR0.0METAR55.02018-10-19 15:05:17`¿)#5   3KFCM 191453Z 23011G21KT 10SM CLR 13/09 A2977 RMK AO2 SLP082 T01330089 56018KFCM2018-10-19T14:53:00Z44.83-93.4713.38.9230112110.029.7696861008.2TRUEVFR-1.8METAR280.02018-10-19 15:05:17¿)5     3KFDR 191453Z AUTO 20006KT 8SM -RA OVC006 13/13 A3023 RMK AO2 RAE01B14E33B52 CIG 003V008 SLP231 6//// T01280128 53006 PNO $KFDR2018-10-19T14:53:00Z34.35-98.9812.812.820068.030.2303141023.1TRUETRUETRUE-RAIFR0.6METAR386.02018-10-19 15:05:17d¿)'5    3KFDY 191453Z AUTO 21011KT 10SM CLR 11/02 A3018 RMK AO2 SLP221 T01110017 58021KFDY2018-10-19T14:53:00Z41.02-83.6711.11.72101110.030.1801191022.1TRUETRUEVFR-2.1METAR247.02018-10-19 15:05:17 k"Bckr¿!)75     3KEYE 191453Z AUTO 19008KT 10SM CLR 11/02 A3021 RMK AO2 SLP232 T01060022 58019 PWINO $KEYE2018-10-19T14:53:00Z39.83-86.310.62.2190810.030.2096461023.2TRUETRUETRUETRUEVFR-1.9METAR248.02018-10-19 15:05:17Y¿ )5    3KEYW 191453Z 10016KT 10SM CLR 30/22 A3014 RMK AO2 SLP207 T03000217 51012KEYW2018-10-19T14:53:00Z24.55-81.7530.021.71001610.030.1387791020.7TRUEVFR1.2METAR5.02018-10-19 15:05:17Z¿)5    3KFAR 191453Z 32013KT 10SM CLR 10/02 A2986 RMK AO2 SLP115 T01000022 51034KFAR2018-10-19T14:53:00Z46.93-96.8210.02.23201310.029.8612211011.5TRUEVFR3.4METAR277.02018-10-19 15:05:17X¿)5    3KFAT 191453Z 00000KT 10SM CLR 14/02 A3014 RMK AO2 SLP203 T01390022 53010KFAT2018-10-19T14:53:00Z36.78-119.7213.92.20010.030.1387791020.3TRUEVFR1.0METAR104.02018-10-19 15:05:17 h0Kh]¿%)'5     3KHUL 191453Z AUTO 10SM SCT034 OVC060 A3005 RMK AO2 SLPNO 58010 PWINO FZRANO $KHUL2018-10-19T14:53:00Z46.12-67.810.030.050198TRUETRUETRUETRUETRUEVFR-1.0METAR150.02018-10-19 15:05:17_¿$)'5    3KESF 191453Z AUTO VRB04KT 10SM CLR 21/14 A3023 RMK AO2 SLP234 T02110139 50009KESF2018-10-19T14:53:00Z31.4-92.2821.113.90410.030.2303141023.4TRUETRUEVFR0.9METAR28.02018-10-19 15:05:17e¿#))5    3KEVW 191453Z AUTO 14004KT 10SM CLR 02/M02 A3047 RMK AO2 SLP302 T00221017 53015KEVW2018-10-19T14:53:00Z41.27-111.032.2-1.7140410.030.4694881030.2TRUETRUEVFR1.5METAR2177.02018-10-19 15:05:17_¿")#5   3KEWB 191453Z 25010G15KT 10SM CLR 12/01 A3020 RMK AO2 SLP226 T01170011 58021KEWB2018-10-19T14:53:00Z41.68-70.9511.71.1250101510.030.2007871022.6TRUEVFR-2.1METAR23.02018-10-19 15:05:17 i"9Vig¿))-5   3KHSI 191453Z AUTO 24013G21KT 10SM CLR 12/09 A3007 RMK AO2 SLP180 T01170089 53009KHSI2018-10-19T14:53:00Z40.6-98.4311.78.9240132110.030.0708661018.0TRUETRUEVFR0.9METAR591.02018-10-19 15:05:17]¿()#5    3KHSV 191453Z 13005KT 10SM BKN250 17/12 A3028 RMK AO2 SLP252 T01720117 50003KHSV2018-10-19T14:53:00Z34.65-86.7817.211.7130510.030.2805121025.2TRUEVFR0.3METAR191.02018-10-19 15:05:17c¿')'5    3KHTL 191453Z AUTO 22009KT 10SM CLR 10/06 A2996 RMK AO2 SLP150 T01000056 58021KHTL2018-10-19T14:53:00Z44.35-84.6710.05.6220910.029.9586621015.0TRUETRUEVFR-2.1METAR351.02018-10-19 15:05:17X¿&)5    3KHUF 191453Z 19006KT 10SM CLR 09/04 A3023 RMK AO2 SLP240 T00890039 58015KHUF2018-10-19T14:53:00Z39.45-87.38.93.9190610.030.2303141024.0TRUEVFR-1.5METAR179.02018-10-19 15:05:17 ++b¿-)15    3KHOU 191453Z 07009KT 10SM BKN170 OVC300 21/16 A3016 RMK AO2 SLP216 T02110156 53007KHOU2018-10-19T14:53:00Z29.63-95.2821.115.670910.030.1594491021.6TRUEVFR0.7METAR36.02018-10-19 15:05:17l¿,)55     3KHQM 191453Z AUTO 03004KT M1/4SM FG VV002 06/06 A3028 RMK AO2 SLP259 T00610056 51008KHQM2018-10-19T14:53:00Z46.97-123.936.15.63040.2530.2805121025.9TRUETRUEFGLIFR0.8200METAR7.02018-10-19 15:05:17a¿+)'5    3KHRI 191453Z AUTO 17004KT 7SM CLR 00/M01 A3033 RMK AO2 SLP275 T00001006 53017KHRI2018-10-19T14:53:00Z45.83-119.270.0-0.617047.030.330711027.5TRUETRUEVFR1.7METAR195.02018-10-19 15:05:17¿*)m5      3KHRO 191453Z AUTO 00000KT 6SM -RA BR FEW038 BKN075 OVC100 09/08 A3026 RMK AO2 SLP248 P0008 60030 T00890078 50005KHRO2018-10-19T14:53:00Z36.27-93.158.97.8006.030.2598421024.8TRUETRUE-RA BRVFR0.50.080.3METAR417.02018-10-19 15:05:17 k2Skb¿1)'5    3KHLC 191453Z AUTO 27009KT 10SM CLR 12/08 A3013 RMK AO2 SLP198 T01170083 53012KHLC2018-10-19T14:53:00Z39.37-99.8311.78.3270910.030.1299211019.8TRUETRUEVFR1.2METAR669.02018-10-19 15:05:17Y¿0)5    3KHLG 191453Z 20007KT 10SM CLR 09/02 A3027 RMK AO2 SLP260 T00940022 58014KHLG2018-10-19T14:53:00Z40.17-80.659.42.2200710.030.2687021026.0TRUEVFR-1.4METAR372.02018-10-19 15:05:17Y¿/)5    3KHLN 191453Z 00000KT 10SM CLR 04/M01 A3036 RMK AO2 SLP302 T00441006 53019KHLN2018-10-19T14:53:00Z46.6-111.984.4-0.60010.030.3602371030.2TRUEVFR1.9METAR1182.02018-10-19 15:05:17i¿.);5    3KHOT 191453Z AUTO 00000KT 10SM SCT031 BKN085 13/09 A3026 RMK AO2 SLP246 T01330094 53004KHOT2018-10-19T14:53:00Z34.48-93.113.39.40010.030.2598421024.6TRUETRUEVFR0.4METAR162.02018-10-19 15:05:17 k"BUkd¿5)+5     3KHJO 191453Z AUTO 11003KT 4SM BR CLR 08/06 A3015 RMK AO2 SLP210 T00780061 53011KHJO2018-10-19T14:53:00Z36.32-119.627.86.111034.030.150591021.0TRUETRUEBRMVFR1.1METAR74.02018-10-19 15:05:17g¿4)+5    3KHKA 191453Z AUTO 21004KT 10SM CLR 14/06 A3027 RMK AO2 SLP251 T01440061 53001 $KHKA2018-10-19T14:53:00Z35.93-89.8314.46.1210410.030.2687021025.1TRUETRUETRUEVFR0.1METAR78.02018-10-19 15:05:17Z¿3)5    3KHKS 191453Z 14004KT 10SM CLR 19/12 A3025 RMK AO2 SLP237 T01940117 53008KHKS2018-10-19T14:53:00Z32.33-90.2219.411.7140410.030.2509841023.7TRUEVFR0.8METAR108.02018-10-19 15:05:17X¿2)5    3KHKY 191453Z 00000KT 10SM CLR 13/09 A3035 RMK AO2 SLP267 T01280094 58006KHKY2018-10-19T14:53:00Z35.75-81.3812.89.40010.030.3513771026.7TRUEVFR-0.6METAR354.02018-10-19 15:05:17 k%IkX¿9)5    3KHGR 191453Z 18006KT 10SM CLR 12/02 A3031 RMK AO2 SLP276 T01170017 58009KHGR2018-10-19T14:53:00Z39.7-77.7311.71.7180610.030.310041027.6TRUEVFR-0.9METAR224.02018-10-19 15:05:17V¿8)5    3KHHR 191453Z 00000KT 10SM CLR 17/06 A3002 RMK AO2 SLP164 T01670061 53009KHHR2018-10-19T14:53:00Z33.92-118.3316.76.10010.030.020671016.4TRUEVFR0.9METAR18.02018-10-19 15:05:17i¿7)-5   3KHIB 191453Z AUTO 29010G19KT 10SM CLR 12/06 A2963 RMK AO2 SLP038 T01170056 56005KHIB2018-10-19T14:53:00Z47.38-92.8311.75.6290101910.029.6309051003.8TRUETRUEVFR-0.5METAR412.02018-10-19 15:05:17f¿6)75     3KHIO 191453Z 00000KT 7SM MIFG SCT005 03/02 A3026 RMK AO2 SLP246 I3000 T00280017 51010KHIO2018-10-19T14:53:00Z45.55-122.952.81.7007.030.2598421024.6TRUEMIFGVFR1.0METAR68.02018-10-19 15:05:17 Z"7BZb¿=)'5    3KHBG 191453Z AUTO 12004KT 10SM CLR 20/13 A3026 RMK AO2 SLP244 T02000133 53010KHBG2018-10-19T14:53:00Z31.27-89.2520.013.3120410.030.2598421024.4TRUETRUEVFR1.0METAR44.02018-10-19 15:05:17o¿<)75     3KHBR 191453Z AUTO 22011KT 7SM OVC005 13/12 A3024 RMK AO2 SLP236 60008 T01280122 51004KHBR2018-10-19T14:53:00Z34.98-99.0512.812.2220117.030.2391741023.6TRUETRUEIFR0.40.08METAR473.02018-10-19 15:05:17e¿;))5    3KHEI 191453Z AUTO 31014KT 10SM CLR 09/M01 A3019 RMK AO2 SLP236 T00891006 53037KHEI2018-10-19T14:53:00Z46.02-102.658.9-0.63101410.030.1889761023.6TRUETRUEVFR3.7METAR828.02018-10-19 15:05:17X¿:)5    3KHFD 191453Z VRB05KT 10SM CLR 10/M01 A3022 RMK AO2 SLP231 T01001006 58020KHFD2018-10-19T14:53:00Z41.73-72.6510.0-0.60510.030.2214571023.1TRUEVFR-2.0METAR4.02018-10-19 15:05:17 \(C\a¿A)'5    3KGVL 191453Z AUTO 07006KT 10SM CLR 15/08 A3037 RMK AO2 SLP279 T01500078 51004KGVL2018-10-19T14:53:00Z34.27-83.8315.07.870610.030.3690951027.9TRUETRUEVFR0.4METAR386.02018-10-19 15:05:17_¿@)'5    3KGWO 191453Z AUTO 00000KT 10SM CLR 18/11 A3026 RMK AO2 SLP245 T01830106 53004KGWO2018-10-19T14:53:00Z33.5-90.0818.310.60010.030.2598421024.5TRUETRUEVFR0.4METAR44.02018-10-19 15:05:17e¿?)-5    3KGZH 191453Z AUTO 12007KT 10SM OVC009 22/18 A3026 RMK AO2 SLP246 T02220183 51011KGZH2018-10-19T14:53:00Z31.42-87.0522.218.3120710.030.2598421024.6TRUETRUEIFR1.1METAR78.02018-10-19 15:05:17g¿>)35    3KHAO 191453Z AUTO 00000KT 10SM CLR 10/04 A3027 RMK AO2 SLP254 I3001 T01000044 58016KHAO2018-10-19T14:53:00Z39.37-84.5210.04.40010.030.2687021025.4TRUETRUEVFR-1.6METAR188.02018-10-19 15:05:17 e1Je_¿E)%5    3KEPH 191453Z AUTO 35004KT 9SM CLR 04/01 A3034 RMK AO2 SLP282 T00440011 51016KEPH2018-10-19T14:53:00Z47.3-119.524.41.135049.030.3395671028.2TRUETRUEVFR1.6METAR383.02018-10-19 15:05:17a¿D)'5    3KEQY 191453Z AUTO 00000KT 10SM CLR 15/07 A3036 RMK AO2 SLP290 T01500067 58002KEQY2018-10-19T14:53:00Z35.02-80.6215.06.70010.030.3602371029.0TRUETRUEVFR-0.2METAR212.02018-10-19 15:05:17a¿C)'5    3KGUP 191453Z AUTO 06008KT 10SM CLR 04/02 A3039 RMK AO2 SLP263 T00440022 53013KGUP2018-10-19T14:53:00Z35.52-108.84.42.260810.030.3897631026.3TRUETRUEVFR1.3METAR1971.02018-10-19 15:05:17b¿B)'5    3KGUY 191453Z AUTO 31009KT 10SM CLR 12/06 A3019 RMK AO2 SLP208 T01220061 53015KGUY2018-10-19T14:53:00Z36.68-101.512.26.1310910.030.1889761020.8TRUETRUEVFR1.5METAR948.02018-10-19 15:05:17 T+?Te¿I)-5     3KELN 191453Z AUTO 00000KT 6SM BR CLR 01/M01 A3035 RMK AO2 SLP288 T00111011 51016KELN2018-10-19T14:53:00Z47.03-120.531.1-1.1006.030.3513771028.8TRUETRUEBRVFR1.6METAR519.02018-10-19 15:05:17f¿H)+5    3KELY 191453Z AUTO 16008KT 10SM CLR M02/M06 A3045 RMK AO2 SLP302 T10221056 53014KELY2018-10-19T14:53:00Z39.3-114.85-2.2-5.6160810.030.4488181030.2TRUETRUEVFR1.4METAR1906.02018-10-19 15:05:17g¿G)-5    3KEMP 191453Z AUTO 21011KT 10SM OVC007 12/10 A3016 RMK AO2 SLP214 T01170100 55006KEMP2018-10-19T14:53:00Z38.33-96.211.710.02101110.030.1594491021.4TRUETRUEIFR-0.6SPECI367.02018-10-19 15:05:17b¿F))5   3KENW 191453Z 23012G21KT 10SM BKN120 11/02 A3004 RMK AO2 SLP174 T01060022 58020KENW2018-10-19T14:53:00Z42.6-87.9310.62.2230122110.030.0413381017.4TRUEVFR-2.0METAR219.02018-10-19 15:05:17 _ 9N_i¿M)55    3KEEO 191453Z AUTO VRB03KT 10SM CLR 01/M02 A3047 RMK AO2 SLP314 I3000 T00061017 53017KEEO2018-10-19T14:53:00Z40.05-107.880.6-1.70310.030.4694881031.4TRUETRUEVFR1.7METAR1930.02018-10-19 15:05:17e¿L)-5    3KEET 191453Z AUTO VRB03KT 10SM OVC011 17/13 A3028 RMK AO2 SLP252 T01720133 50004KEET2018-10-19T14:53:00Z33.18-86.7817.213.30310.030.2805121025.2TRUETRUEMVFR0.4METAR173.02018-10-19 15:05:17a¿K)'5    3KELD 191453Z AUTO 08004KT 10SM CLR 16/10 A3026 RMK AO2 SLP243 T01610100 50006KELD2018-10-19T14:53:00Z33.22-92.8216.110.080410.030.2598421024.3TRUETRUEVFR0.6METAR81.02018-10-19 15:05:17Z¿J)5    3KELM 191453Z 24011KT 10SM CLR 11/02 A3017 RMK AO2 SLP222 T01060017 58019KELM2018-10-19T14:53:00Z42.15-76.910.61.72401110.030.1712591022.2TRUEVFR-1.9METAR302.02018-10-19 15:05:17 y @`ya¿Q)'5    3KDUJ 191453Z AUTO 23007KT 10SM CLR 08/00 A3023 RMK AO2 SLP248 T00780000 58010KDUJ2018-10-19T14:53:00Z41.17-78.97.80.0230710.030.2303141024.8TRUETRUEVFR-1.0METAR554.02018-10-19 15:05:17Z¿P)5    3KDVT 191453Z 36005KT 10SM CLR 19/07 A3008 RMK AO2 SLP170 T01890072 53009KDVT2018-10-19T14:53:00Z33.68-112.0718.97.2360510.030.0797251017.0TRUEVFR0.9METAR443.02018-10-19 15:05:17Z¿O)#5    3KDWH 191453Z VRB03KT 10SM SCT075 20/16 A3017 RMK AO2 SLP215 T02000161 53005KDWH2018-10-19T14:53:00Z30.07-95.5520.016.10310.030.1712591021.5TRUEVFR0.5METAR46.02018-10-19 15:05:17Z¿N)5    3KDXR 191453Z 26010KT 10SM CLR 09/01 A3024 RMK AO2 SLP243 T00940006 58014KDXR2018-10-19T14:53:00Z41.37-73.489.40.62601010.030.2391741024.3TRUEVFR-1.4METAR139.02018-10-19 15:05:17 N8+NW¿U)5    3KDTN 191453Z 00000KT 10SM CLR 15/11 A3024 RMK AO2 SLP239 T01500106 51007KDTN2018-10-19T14:53:00Z32.55-93.7515.010.60010.030.2391741023.9TRUEVFR0.7METAR53.02018-10-19 15:05:17¿T)c5      3KDTO 191453Z 05003KT 3SM +RA BR FEW006 BKN020 OVC027 13/13 A3025 RMK AO2 SLP241 P0010 60019 T01330128 53008KDTO2018-10-19T14:53:00Z33.2-97.213.312.85033.030.2509841024.1TRUE+RA BRMVFR0.80.10.19METAR196.02018-10-19 15:05:17Y¿S)#5    3KDTS 191453Z 05006KT 10SM OVC009 23/21 A3023 RMK AO2 SLP237 T02330206 51013KDTS2018-10-19T14:53:00Z30.4-86.4723.320.650610.030.2303141023.7TRUEIFR1.3METAR5.02018-10-19 15:05:17c¿R)/5    3KDTW 191453Z 24011KT 9SM SCT130 OVC220 10/00 A3014 RMK AO2 SLP208 T01000000 58017KDTW2018-10-19T14:53:00Z42.23-83.3310.00.0240119.030.1387791020.8TRUEVFR-1.7METAR195.02018-10-19 15:05:17 ))a¿X)'5    3KDNL 191453Z AUTO 05005KT 10SM CLR 19/08 A3034 RMK AO2 SLP271 T01890078 50001KDNL2018-10-19T14:53:00Z33.47-82.0318.97.850510.030.3395671027.1TRUETRUEVFR0.1METAR130.02018-10-19 15:05:17a¿W)'5    3KDRO 191453Z AUTO 00000KT 10SM CLR 03/01 A3040 RMK AO2 SLP288 T00280011 53013KDRO2018-10-19T14:53:00Z37.15-107.772.81.10010.030.3986231028.8TRUETRUEVFR1.3METAR2035.02018-10-19 15:05:17¿V)Q5     3KDRT 191453Z AUTO 31007KT 10SM OVC022 14/14 A3022 RMK AO2 RAE30 SLP228 P0000 60006 T01390139 53009KDRT2018-10-19T14:53:00Z29.37-100.9213.913.9310710.030.2214571022.8TRUETRUEMVFR0.90.0050.06METAR313.02018-10-19 15:05:17 $ $c¿\)'5    3KDKK 191453Z AUTO 19012KT 10SM CLR 12/03 A3014 RMK AO2 SLP210 T01170033 58022KDKK2018-10-19T14:53:00Z42.5-79.2811.73.31901210.030.1387791021.0TRUETRUEVFR-2.2METAR202.02018-10-19 15:05:17a¿[)'5    3KDLS 191453Z AUTO 12003KT 10SM CLR 03/01 A3035 RMK AO2 SLP279 T00330011 53019KDLS2018-10-19T14:53:00Z45.62-121.173.31.1120310.030.3513771027.9TRUETRUEVFR1.9METAR71.02018-10-19 15:05:17g¿Z)-5    3KDMN 191453Z AUTO 07009KT 10SM OVC024 12/08 A3028 RMK AO2 SLP219 T01220083 53015KDMN2018-10-19T14:53:00Z32.27-107.7212.28.370910.030.2805121021.9TRUETRUEMVFR1.5METAR1311.02018-10-19 15:05:17¿Y)y5    3KDMO 191453Z AUTO 22015G19KT 10SM FEW029 BKN070 OVC085 11/09 A3018 RMK AO2 RAB23E39 SLP221 P0000 60000 T01060089 58007KDMO2018-10-19T14:53:00Z38.72-93.1710.68.9220151910.030.1801191022.1TRUETRUEVFR-0.70.0050.005METAR274.02018-10-19 15:05:17 e2Je_¿`)#5   3KARB 191453Z 20013G17KT 10SM CLR 09/01 A3012 RMK AO2 SLP207 T00940011 58017KARB2018-10-19T14:53:00Z42.22-83.739.41.1200131710.030.1210631020.7TRUEVFR-1.7METAR251.02018-10-19 15:05:17b¿_)'5    3KDGW 191453Z AUTO 32007KT 10SM CLR 07/00 A3034 RMK AO2 SLP269 T00670000 52027KDGW2018-10-19T14:53:00Z42.8-105.386.70.0320710.030.3395671026.9TRUETRUEVFR2.7METAR1499.02018-10-19 15:05:17^¿^)#5    3KDHN 191453Z 10007KT 10SM OVC014 23/18 A3030 RMK AO2 SLP256 T02330178 51009KDHN2018-10-19T14:53:00Z31.32-85.4523.317.8100710.030.3011821025.6TRUEMVFR0.9METAR113.02018-10-19 15:05:17d¿])'5    3KDHT 191453Z AUTO 30005KT 10SM CLR 11/06 A3025 RMK AO2 SLP226 T01060061 53012KDHT2018-10-19T14:53:00Z36.02-102.5510.66.1300510.030.2509841022.6TRUETRUEVFR1.2METAR1217.02018-10-19 15:05:17 s!A[sb¿d)'5    3KAOO 191453Z AUTO 21007KT 10SM CLR 10/00 A3027 RMK AO2 SLP259 T01000000 58009KAOO2018-10-19T14:53:00Z40.3-78.3210.00.0210710.030.2687021025.9TRUETRUEVFR-0.9METAR455.02018-10-19 15:05:17`¿c)%5    3KAPA 191453Z 28006KT 10SM FEW090 11/M02 A3034 RMK AO2 SLP255 T01111022 53026KAPA2018-10-19T14:53:00Z39.57-104.8511.1-2.2280610.030.3395671025.5TRUEVFR2.6METAR1775.02018-10-19 15:05:17Z¿b)#5    3KAPF 191453Z 08009KT 10SM SCT024 29/23 A3017 RMK AO2 SLP214 T02890228 51012KAPF2018-10-19T14:53:00Z26.15-81.7728.922.880910.030.1712591021.4TRUEVFR1.2SPECI3.02018-10-19 15:05:17Y¿a)5    3KARA 191453Z 10006KT 10SM CLR 23/17 A3020 RMK AO2 SLP226 T02330167 53009KARA2018-10-19T14:53:00Z30.03-91.8823.316.7100610.030.2007871022.6TRUEVFR0.9SPECI18.02018-10-19 15:05:17 G%/Gb¿h)-5    3KAMG 191453Z AUTO 09004KT 10SM OVC055 22/14 A3029 RMK AO2 SLP254 T02170139 51007KAMG2018-10-19T14:53:00Z31.53-82.521.713.990410.030.289371025.4TRUETRUEVFR0.7SPECI59.02018-10-19 15:05:17p¿g)95     3KAMW 191453Z AUTO 20011KT 10SM OVC039 12/09 A2998 RMK AO2 SLP149 60004 T01170094 56023KAMW2018-10-19T14:53:00Z41.98-93.6211.79.42001110.029.979331014.9TRUETRUEVFR-2.30.04METAR279.02018-10-19 15:05:17d¿f)-5    3KANB 191453Z AUTO 06007KT 10SM SCT021 18/11 A3031 RMK AO2 SLP261 T01780111 50003KANB2018-10-19T14:53:00Z33.58-85.8517.811.160710.030.310041026.1TRUETRUEVFR0.3SPECI183.02018-10-19 15:05:17k¿e)15     3KAOH 191453Z AUTO 21009KT 10SM CLR 10/02 A3021 RMK AO2 SLP236 T01000022 58012 TSNOKAOH2018-10-19T14:53:00Z40.7-84.0210.02.2210910.030.2096461023.6TRUETRUETRUEVFR-1.2METAR296.02018-10-19 15:05:17 U".DUi¿l)-5   3KAIA 191453Z AUTO 34017G24KT 10SM CLR 10/02 A3021 RMK AO2 SLP224 T01000017 53034KAIA2018-10-19T14:53:00Z42.05-102.810.01.7340172410.030.2096461022.4TRUETRUEVFR3.4METAR1196.02018-10-19 15:05:17d¿k)'5    3KAKO 191453Z AUTO 28012KT 10SM CLR 08/02 A3025 RMK AO2 SLP238 T00830022 53026KAKO2018-10-19T14:53:00Z40.17-103.228.32.22801210.030.2509841023.8TRUETRUEVFR2.6METAR1421.02018-10-19 15:05:17n¿j)95     3KALI 191453Z AUTO 32010KT 2 1/2SM BR OVC003 17/17 A3013 RMK AO2 SLP200 T01720167 53010KALI2018-10-19T14:53:00Z27.73-98.0217.216.7320102.530.1299211020.0TRUETRUEBRLIFR1.0METAR53.02018-10-19 15:05:17X¿i)5    3KALW 191453Z 16003KT 10SM CLR 06/02 A3032 RMK AO2 SLP274 T00610017 53016KALW2018-10-19T14:53:00Z46.1-118.286.11.7160310.030.3188971027.4TRUEVFR1.6METAR363.02018-10-19 15:05:17 Y"C6YW¿p)5    3KAEX 191453Z 00000KT 10SM CLR 19/13 A3021 RMK AO2 SLP234 T01940128 53007KAEX2018-10-19T14:53:00Z31.33-92.5719.412.80010.030.2096461023.4TRUEVFR0.7METAR27.02018-10-19 15:05:17¿o)a5      3KAFW 191453Z 35003KT 3SM RA BR SCT006 BKN009 OVC020 14/13 A3025 RMK AO2 SLP240 P0016 60020 T01390128 53010KAFW2018-10-19T14:53:00Z32.97-97.3213.912.835033.030.2509841024.0TRUERA BRIFR1.00.160.2METAR233.02018-10-19 15:05:17Y¿n)5    3KAGC 191453Z 19005KT 10SM CLR 08/01 A3026 RMK AO2 SLP258 T00830011 58013KAGC2018-10-19T14:53:00Z40.35-79.928.31.1190510.030.2598421025.8TRUEVFR-1.3METAR389.02018-10-19 15:05:17X¿m)5    3KAGS 191453Z 08005KT 10SM CLR 19/10 A3033 RMK AO2 SLP270 T01940100 58001KAGS2018-10-19T14:53:00Z33.37-81.9719.410.080510.030.330711027.0TRUEVFR-0.1SPECI44.02018-10-19 15:05:17 T ;Ta¿t)15    3KABY 191453Z 06007KT 10SM SCT038 SCT050 23/14 A3030 RMK AO2 SLP260 T02280144 51008KABY2018-10-19T14:53:00Z31.53-84.222.814.460710.030.3011821026.0TRUEVFR0.8METAR58.02018-10-19 15:05:17_¿s)#5   3KACK 191453Z 25014G21KT 10SM CLR 13/02 A3023 RMK AO2 SLP235 T01280017 58018KACK2018-10-19T14:53:00Z41.25-70.0712.81.7250142110.030.2303141023.5TRUEVFR-1.8METAR16.02018-10-19 15:05:17i¿r)95     3KACV 191453Z AUTO 00000KT 2 1/2SM BR OVC003 09/09 A3020 RMK AO2 SLP234 T00890089 52008KACV2018-10-19T14:53:00Z40.98-124.18.98.9002.530.2007871023.4TRUETRUEBRLIFR0.8METAR67.02018-10-19 15:05:17k¿q)15     3KADG 191453Z AUTO 26008KT 10SM CLR 08/02 A3016 RMK AO2 SLP220 T00830017 56016 TSNOKADG2018-10-19T14:53:00Z41.87-84.088.31.7260810.030.1594491022.0TRUETRUETRUEVFR-1.6METAR241.02018-10-19 15:05:17 {7[{Z¿x)5    3KCHO 191453Z 17004KT 10SM CLR 12/06 A3032 RMK AO2 SLP268 T01220056 58007KCHO2018-10-19T14:53:00Z38.13-78.4512.25.6170410.030.3188971026.8TRUEVFR-0.7METAR192.02018-10-19 15:05:17V¿w)5    3KCKB 191453Z 00000KT 10SM CLR 10/03 A3029 RMK AO2 SLP257 T01000033 58015KCKB2018-10-19T14:53:00Z39.3-80.2210.03.30010.030.289371025.7TRUEVFR-1.5METAR360.02018-10-19 15:05:17[¿v)#5    3KCLL 191453Z 06005KT 10SM FEW055 18/15 A3018 RMK AO2 SLP217 T01780150 51007KCLL2018-10-19T14:53:00Z30.58-96.3717.815.060510.030.1801191021.7TRUEVFR0.7METAR96.02018-10-19 15:05:17b¿u)'5    3KABR 191453Z AUTO 33011KT 10SM CLR 11/03 A2998 RMK AO2 SLP154 T01060028 53046KABR2018-10-19T14:53:00Z45.45-98.4210.62.83301110.029.979331015.4TRUETRUEVFR4.6METAR397.02018-10-19 15:05:17 e8Oed¿|)-5    3KCEW 191453Z AUTO 06005KT 10SM OVC008 22/19 A3026 RMK AO2 SLP245 T02220189 51008KCEW2018-10-19T14:53:00Z30.78-86.5222.218.960510.030.2598421024.5TRUETRUEIFR0.8METAR55.02018-10-19 15:05:17c¿{))5    3KCEZ 191453Z AUTO 01003KT 10SM CLR 02/M01 A3039 RMK AO2 SLP277 T00221011 53013KCEZ2018-10-19T14:53:00Z37.3-108.632.2-1.110310.030.3897631027.7TRUETRUEVFR1.3METAR1797.02018-10-19 15:05:17\¿z)#5    3KCGI 191453Z 29003KT 10SM FEW080 13/06 A3027 RMK AO2 SLP252 T01280061 53003KCGI2018-10-19T14:53:00Z37.23-89.5812.86.1290310.030.2687021025.2TRUEVFR0.3METAR102.02018-10-19 15:05:17`¿y)15    3KCHA 191453Z 00000KT 10SM SCT060 BKN250 14/09 A3033 RMK AO2 SLP270 T01440089 58002KCHA2018-10-19T14:53:00Z35.03-85.214.48.90010.030.330711027.0TRUEVFR-0.2SPECI210.02018-10-19 15:05:17 G#.Ga))5    3KCDC 191453Z AUTO 00000KT 10SM CLR 02/M01 A3038 RMK AO2 SLP280 T00221011 53012KCDC2018-10-19T14:53:00Z37.7-113.12.2-1.10010.030.3809051028.0TRUETRUEVFR1.2METAR1714.02018-10-19 15:05:17Z¿)5    3KCDR 191453Z AUTO 30008KT 10SM CLR 10/01 A3026 RMK AO2 SLP249 T01000011KCDR2018-10-19T14:53:00Z42.83-103.110.01.1300810.030.2598421024.9TRUETRUEVFRMETAR1010.02018-10-19 15:05:17¿~)m5     3KCDS 191453Z AUTO 21006KT 10SM FEW008 BKN070 BKN110 13/12 A3024 RMK AO2 RAE43 SLP234 P0001 60001 T01280117 50000KCDS2018-10-19T14:53:00Z34.43-100.2812.811.7210610.030.2391741023.4TRUETRUEVFR0.00.010.01METAR594.02018-10-19 15:05:17W¿})5    3KCDW 191453Z VRB04KT 10SM CLR 10/01 A3027 RMK AO2 SLP257 T01000011 58018KCDW2018-10-19T14:53:00Z40.88-74.2810.01.10410.030.2687021025.7TRUEVFR-1.8METAR64.02018-10-19 15:05:17 n.DZnf))5    3KBYG 191453Z AUTO 35013KT 10SM CLR 09/M03 A3035 RMK AO2 SLP263 T00941028 53030KBYG2018-10-19T14:53:00Z44.38-106.729.4-2.83501310.030.3513771026.3TRUETRUEVFR3.0METAR1497.02018-10-19 15:05:17d))5    3KBYI 191453Z AUTO 05003KT 10SM CLR 03/M01 A3039 RMK AO2 SLP294 T00331006 53019KBYI2018-10-19T14:53:00Z42.55-113.773.3-0.650310.030.3897631029.4TRUETRUEVFR1.9METAR1264.02018-10-19 15:05:17d)+5    3KCAG 191453Z AUTO 00000KT 10SM CLR M01/M01 A3048 RMK AO2 SLP334 T10061011 53018KCAG2018-10-19T14:53:00Z40.5-107.52-0.6-1.10010.030.4812981033.4TRUETRUEVFR1.8METAR1887.02018-10-19 15:05:17L) 5    3KCCR 191453Z 10SM CLR 11/07 A3014 RMK AO2 SLP191 T01060067 51009KCCR2018-10-19T14:53:00Z38.0-122.0510.66.710.030.1387791019.1TRUEVFR0.9METAR11.02018-10-19 15:05:17 y:WyX)5    3KBTR 191453Z 06007KT 10SM CLR 22/14 A3021 RMK AO2 SLP229 T02220139 51008KBTR2018-10-19T14:53:00Z30.53-91.1522.213.960710.030.2096461022.9TRUEVFR0.8SPECI21.02018-10-19 15:05:17])!5    3KBUR 191453Z 00000KT 10SM CLR 17/02 A3003 RMK AO2 SLP158 T01670017 53009 $KBUR2018-10-19T14:53:00Z34.2-118.3716.71.70010.030.0295281015.8TRUETRUEVFR0.9METAR217.02018-10-19 15:05:17W)5    3KBVY 191453Z 25009KT 10SM CLR 09/00 A3015 RMK AO2 SLP207 T00940000 58023KBVY2018-10-19T14:53:00Z42.58-70.929.40.0250910.030.150591020.7TRUEVFR-2.3METAR28.02018-10-19 15:05:17c)'5    3KBWG 191453Z AUTO 23003KT 10SM CLR 13/07 A3027 RMK AO2 SLP251 T01280067 56009KBWG2018-10-19T14:53:00Z36.97-86.4212.86.7230310.030.2687021025.1TRUETRUEVFR-0.9SPECI168.02018-10-19 15:05:17 S+@Sg )-5   3KBRD 191453Z AUTO 29011G17KT 10SM CLR 12/06 A2972 RMK AO2 SLP065 T01220061 53000KBRD2018-10-19T14:53:00Z46.4-94.1312.26.1290111710.029.7194881006.5TRUETRUEVFR0.0METAR372.02018-10-19 15:05:17e )+5    3KBRL 191453Z AUTO 22011KT 9SM OVC055 12/05 A3009 RMK AO2 SLP192 T01220050 56015KBRL2018-10-19T14:53:00Z40.77-91.1312.25.0220119.030.0885831019.2TRUETRUEVFR-1.5METAR211.02018-10-19 15:05:17e )'5   3KBTL 191453Z 20010G15KT 10SM CLR 09/01 A3011 RMK AO2 SLP201 T00940006 58020 $KBTL2018-10-19T14:53:00Z42.32-85.239.40.6200101510.030.1092531020.1TRUETRUEVFR-2.0METAR290.02018-10-19 15:05:17d )+5    3KBTM 191453Z AUTO 00000KT 10SM CLR M01/M04 A3041 RMK AO2 SLP304 T10111044 51015KBTM2018-10-19T14:53:00Z45.97-112.5-1.1-4.40010.030.4104331030.4TRUETRUEVFR1.5METAR1688.02018-10-19 15:05:17 H#+H])!5     3KBOI 191453Z 12005KT 3SM HZ CLR 08/02 A3035 RMK AO2 SLP278 T00780017 53016KBOI2018-10-19T14:53:00Z43.57-116.237.81.712053.030.3513771027.8TRUEHZMVFR1.6METAR875.02018-10-19 15:05:17e)+5    3KBPI 191453Z AUTO 27004KT 10SM CLR M01/M06 A3044 RMK AO2 SLP304 T10061061 53017KBPI2018-10-19T14:53:00Z42.58-110.1-0.6-6.1270410.030.439961030.4TRUETRUEVFR1.7METAR2117.02018-10-19 15:05:17)i5      3KBPK 191453Z AUTO 00000KT 10SM -RA SCT036 BKN050 OVC070 09/09 A3028 RMK AO2 SLP254 P0009 60010 T00890089 51014KBPK2018-10-19T14:53:00Z36.37-92.478.98.90010.030.2805121025.4TRUETRUE-RAVFR1.40.09SPECI280.02018-10-19 15:05:17W )5    3KBPT 191453Z 09007KT 10SM CLR 23/16 A3017 RMK AO2 SLP215 T02280161 51006KBPT2018-10-19T14:53:00Z29.95-94.0322.816.190710.030.1712591021.5TRUEVFR0.6METAR5.02018-10-19 15:05:17 [3S[r)K5     3KBLI 191453Z 00000KT M1/4SM R16/0700V0800FT FG VV001 07/06 A3028 RMK AO2 SLP260 T00720061 51009KBLI2018-10-19T14:53:00Z48.8-122.537.26.1000.2530.2805121026.0TRUEFGLIFR0.9100METAR50.02018-10-19 15:05:17Z)5    3KBMG 191453Z 20008KT 10SM CLR 11/03 A3023 RMK AO2 SLP240 T01110033 58014KBMG2018-10-19T14:53:00Z39.15-86.6211.13.3200810.030.2303141024.0TRUEVFR-1.4METAR257.02018-10-19 15:05:17])#5    3KBNA 191453Z 17005KT 10SM SCT250 14/07 A3028 RMK AO2 SLP250 T01390072 58008KBNA2018-10-19T14:53:00Z36.12-86.6813.97.2170510.030.2805121025.0TRUEVFR-0.8METAR210.02018-10-19 15:05:17d)+5    3KBNO 191453Z AUTO 00000KT 10SM CLR M04/M09 A3039 RMK AO2 SLP318 T10441094 53014KBNO2018-10-19T14:53:00Z43.6-118.95-4.4-9.40010.030.3897631031.8TRUETRUEVFR1.4METAR1264.02018-10-19 15:05:17 O;RO})W5   3KBIV 191453Z AUTO 22017G23KT 10SM FEW120 12/06 A3007 RMK AO2 PK WND 23026/1439 SLP186 T01220056 58019KBIV2018-10-19T14:53:00Z42.75-86.112.25.6220172310.030.0708661018.6TRUETRUEVFR-1.9METAR208.02018-10-19 15:05:17c))5    3KBKE 191453Z AUTO 00000KT 7SM CLR M02/M03 A3037 RMK AO2 SLP301 T10171028 53015KBKE2018-10-19T14:53:00Z44.85-117.82-1.7-2.8007.030.3690951030.1TRUETRUEVFR1.5METAR1024.02018-10-19 15:05:17^)#5    3KBKL 191453Z 18012KT 10SM SCT100 11/01 A3018 RMK AO2 SLP220 T01110006 58026KBKL2018-10-19T14:53:00Z41.53-81.6711.10.61801210.030.1801191022.0TRUEVFR-2.6METAR184.02018-10-19 15:05:17[)#5    3KBKV 191453Z 04008KT 10SM SCT019 28/23 A3022 RMK AO2 SLP232 T02830228 50004KBKV2018-10-19T14:53:00Z28.47-82.4528.322.840810.030.2214571023.2TRUEVFR0.4METAR20.02018-10-19 15:05:17 h3Thf)95    3KBFM 191453Z 03004KT 10SM FEW032 24/18 A3024 RMK AO2 SLP239 TCU DSNT S T02390183 51009KBFM2018-10-19T14:53:00Z30.62-88.0723.918.330410.030.2391741023.9TRUEVFR0.9METAR20.02018-10-19 15:05:17Y)5    3KBGM 191453Z 22009KT 10SM CLR 07/01 A3016 RMK AO2 SLP226 T00720006 58012KBGM2018-10-19T14:53:00Z42.22-75.987.20.6220910.030.1594491022.6TRUEVFR-1.2METAR490.02018-10-19 15:05:17c)35    3KBGR 191453Z 19008KT 10SM FEW050 SCT070 07/M03 A3009 RMK AO2 SLP191 T00671028 58017KBGR2018-10-19T14:53:00Z44.8-68.826.7-2.8190810.030.0885831019.1TRUEVFR-1.7METAR57.02018-10-19 15:05:17^)#5    3KBHM 191453Z 12007KT 10SM BKN013 19/13 A3030 RMK AO2 SLP257 T01890128 50006KBHM2018-10-19T14:53:00Z33.57-86.7518.912.8120710.030.3011821025.7TRUEMVFR0.6METAR197.02018-10-19 15:05:17 O.=Oh )-5   3KBEH 191453Z AUTO 20009G15KT 10SM CLR 11/02 A3011 RMK AO2 SLP197 T01060017 58019KBEH2018-10-19T14:53:00Z42.13-86.4210.61.720091510.030.1092531019.7TRUETRUEVFR-1.9METAR191.02018-10-19 15:05:17k)95    3KBFD 191453Z AUTO 24007KT 200V270 10SM CLR 07/M01 A3020 RMK AO2 SLP238 T00671011 58010KBFD2018-10-19T14:53:00Z41.8-78.636.7-1.1240710.030.2007871023.8TRUETRUEVFR-1.0METAR647.02018-10-19 15:05:17d)'5    3KBFF 191453Z AUTO 29013KT 10SM CLR 09/02 A3026 RMK AO2 SLP239 T00890022 53033KBFF2018-10-19T14:53:00Z41.87-103.588.92.22901310.030.2598421023.9TRUETRUEVFR3.3METAR1203.02018-10-19 15:05:17b))5     3KBFI 191453Z 15004KT 1/8SM FG VV001 08/07 A3029 RMK AO2 SLP255 T00780067 51011KBFI2018-10-19T14:53:00Z47.55-122.327.86.715040.1330.289371025.5TRUEFGLIFR1.1100METAR4.02018-10-19 15:05:17 D%D[$)5    3KAZO 191453Z 20012KT 10SM CLR 11/02 A3011 RMK AO2 SLP201 T01060017 58021KAZO2018-10-19T14:53:00Z42.23-85.5510.61.72001210.030.1092531020.1TRUEVFR-2.1METAR272.02018-10-19 15:05:17h#)-5   3KBBW 191453Z AUTO 32016G23KT 10SM CLR 13/05 A3005 RMK AO2 SLP172 T01330050 53020KBBW2018-10-19T14:53:00Z41.43-99.6313.35.0320162310.030.0501981017.2TRUETRUEVFR2.0METAR776.02018-10-19 15:05:17f")+5    3KBCE 191453Z AUTO 26006KT 10SM CLR M01/M02 A3045 RMK AO2 SLP288 T10061022 53014KBCE2018-10-19T14:53:00Z37.7-112.15-0.6-2.2260610.030.4488181028.8TRUETRUEVFR1.4METAR2312.02018-10-19 15:05:17{!)W5   3KBDE 191453Z AUTO 31015G25KT 10SM FEW095 08/01 A2971 RMK AO2 PK WND 31028/1443 SLP067 T00830011 53027KBDE2018-10-19T14:53:00Z48.73-94.628.31.1310152510.029.710631006.7TRUETRUEVFR2.7METAR329.02018-10-19 15:05:17 6 #6g()-5   3KATY 191453Z AUTO 33012G21KT 10SM CLR 11/05 A2989 RMK AO2 SLP124 T01060050 53024KATY2018-10-19T14:53:00Z44.9-97.1510.65.0330122110.029.8907471012.4TRUETRUEVFR2.4METAR532.02018-10-19 15:05:17c'))5    3KAUG 191453Z AUTO 22008KT 10SM CLR 08/M02 A3008 RMK AO2 SLP190 T00831017 58022KAUG2018-10-19T14:53:00Z44.32-69.88.3-1.7220810.030.0797251019.0TRUETRUEVFR-2.2METAR109.02018-10-19 15:05:17&)Y5      3KAUS 191453Z 34006KT 6SM BR BKN005 OVC012 17/16 A3019 RMK AO2 RAE43 SLP221 P0005 60072 T01670156 53004KAUS2018-10-19T14:53:00Z30.18-97.6816.715.634066.030.1889761022.1TRUEBRIFR0.40.050.72METAR166.02018-10-19 15:05:17g%)-5   3KAXN 191453Z AUTO 32011G19KT 10SM CLR 12/05 A2979 RMK AO2 SLP090 T01170050 53009KAXN2018-10-19T14:53:00Z45.87-95.411.75.0320111910.029.7903541009.0TRUETRUEVFR0.9METAR433.02018-10-19 15:05:17 c7cN,)5    3CYXT 191453Z 09004KT 1/4SM FG OVC080 06/06 A3013 RMK FG6AC2 SLP212CYXT2018-10-19T14:53:00Z54.47-128.576.06.09040.2530.1299211021.2FGLIFRSPECI217.02018-10-19 15:05:17`+)'5    3KASD 191453Z AUTO 07003KT 10SM CLR 23/15 A3021 RMK AO2 SLP231 T02280150 51011KASD2018-10-19T14:53:00Z30.35-89.8222.815.070310.030.2096461023.1TRUETRUEVFR1.1METAR9.02018-10-19 15:05:17Y*)5    3KASE 191453Z 13004KT 10SM CLR 03/01 A3046 RMK AO2 SLP276 T00330006 53012KASE2018-10-19T14:53:00Z39.23-106.873.30.6130410.030.460631027.6TRUEVFR1.2METAR2354.02018-10-19 15:05:17~))W5   3KASX 191453Z AUTO 23018G25KT 10SM OVC100 13/08 A2965 RMK AO2 PK WND 22028/1427 SLP042 T01330078 58020KASX2018-10-19T14:53:00Z46.55-90.9213.37.8230182510.029.6486231004.2TRUETRUEVFR-2.0METAR251.02018-10-19 15:05:17 d-Fd\0)#5    3KNQX 191453Z 10016KT 10SM FEW030 31/21 A3014 RMK AO2 SLP205 T03060211 53013KNQX2018-10-19T14:53:00Z24.57-81.6730.621.11001610.030.1387791020.5TRUEVFR1.3METAR2.02018-10-19 15:05:17a/)'5    3KOQT 191453Z AUTO 00000KT 10SM CLR 12/09 A3034 RMK AO2 SLP278 T01170094 58005KOQT2018-10-19T14:53:00Z36.02-84.2311.79.40010.030.3395671027.8TRUETRUEVFR-0.5SPECI277.02018-10-19 15:05:17S.)5    3KP68 191453Z AUTO 21004KT 00/M07 A3043 RMK AO1 SLP301 T00001067 53016KP682018-10-19T14:53:00Z39.6-116.00.0-6.7210430.4311031030.1TRUETRUE1.6METAR1809.02018-10-19 15:05:17t-)O5    3NSTU 191453Z 14016KT 10SM SCT017 BKN038 OVC100 26/26 A2985 RMK SLP110 60006 8/87/ T02550255 57012NSTU2018-10-19T14:53:00Z-14.33-170.7225.525.51401610.029.849411011.0VFR-1.20.06METAR3.02018-10-19 15:05:17